Weather

Current METAR: AGGH 172200Z 16003KT 9999 HZ FEW018 FEW020CB BKN330 30/25 Q1007 AYGN 172100Z 00000KT 9999 FEW018 BKN040 25/24 Q1009 AYMO 172200Z 00000KT 9999 FEW018 BKN300 29/25 Q1007. AYNZ 172200Z 00000KT 9999 SCT016 BKN120 25/23 Q1008. AZUH 171950Z 00000KT CAVOK 05/03 Q1023 BGBW 172250Z AUTO 06003KT 9999NDV FEW110/// BKN210/// M07/M15 Q1024 BGGH 172250Z AUTO 09004KT 050V120 9999NDV BKN038/// M05/M07 Q1024 REFZRA BGJN 172250Z AUTO 08007KT 9999NDV BKN048/// M13/M21 Q1030 BGKK 172250Z AUTO 34009KT 9999NDV NCD M07/M15 Q1022 BGSF 172250Z AUTO 06010KT 9999NDV FEW240/// M26/M29 Q1030 BGTL 172258Z AUTO 00000KT 9999 BKN037 OVC045 M16/M18 A3042 RMK AO2 SLP291 T11561184 BIAR 172200Z 36013KT 9999 -SN BKN041 BKN049 01/M03 Q1016 R01/390195 RMK RWY SANDED BIEG 172200Z 01010G20KT 9999 BKN030 OVC050 01/M04 Q1011 R04/720095 RMK RWY SANDED BIHN 171900Z 33023G35KT 9999 FEW045 01/M08 Q1008 BIKF 172230Z 34008KT 9999 FEW040 M01/M06 Q1019 BIRK 172200Z 33007KT 9999 SCT038 BKN046 01/M06 Q1019 BKPR 172300Z 36012KT 9999 FEW014 BKN040 06/03 Q1017 NOSIG RMK 17290095 CAHR 172200Z AUTO 27014G30KT 03/01 RMK AO1 2PAST HR SOG 105 1032 PK WND 27030/2159 SLP898 P0001 T00270011 50008 CBBC 172250Z AUTO 17011G23KT 9SM -RA BKN023 OVC028 05/02 A2993 RMK SLP137 CERM 172200Z AUTO 32010G18KT M04/M07 RMK AO1 SOG 01 1028 PK WND 35020/2147 SLP064 T10421067 CMFM 172200Z AUTO 31008G16KT M09/M12 RMK AO1 SOG 05 1011 PK WND 32019/2122 SLP113 T10941117 CMGB 172245Z AUTO 24004KT M04/M07 RMK AO1 SOG 01 3009 SLP178 T10381071 CPFI 172200Z AUTO 35009KT M13/M15 RMK AO1 T11271148 CPRO 172200Z AUTO 27007KT M13/M15 RMK AO1 T11321147 CPRY 172200Z AUTO 35004KT M10/M12 RMK AO1 T10971121 CPST 172200Z AUTO 02003KT M12/M14 RMK AO1 T11151137 CPSV 172200Z AUTO 34003KT M10/M13 RMK AO1 T11021133 CPXL 172200Z AUTO 34006KT M13/M16 RMK AO1 T11291158 CTCK 172200Z AUTO 25004KT M03/M09 RMK AO1 SLP206 T10301088 53005 CTNK 172200Z AUTO 13001KT M04/M08 RMK AO1 SOG 00 6025 SLP192 T10401078 CTRA 172200Z AUTO 29003KT M03/M06 RMK AO1 SLP043 T10301059 51015 CWAE 172200Z 18004KT 15SM FEW018 BKN060 OVC100 01/M00 A3002 RMK SC2SC3AS3 WND ESTD SLP184 CWAF 172200Z AUTO 30040G47KT M03/M06 RMK AO1 PK WND 30049/2148 T10331059 CWAJ 172200Z AUTO RMK AO1 CWAQ 172200Z AUTO 35002KT M04/M07 RMK AO1 SOG 00 3009 SLP073 T10361070 CWAV 172200Z AUTO 36003KT M11/M13 RMK AO1 SOG 14 3023 SLP122 T11061127 CWBA 172200Z AUTO 16004KT M03/M07 RMK AO1 T10251068 CWBE 172200Z AUTO 14019KT 01/M03 RMK AO1 PK WND 14023/2147 SLP175 T00141028 58037 CWBK 172200Z AUTO 26016G26KT 04/02 RMK AO1 PK WND 28026/2159 SLP927 T00350018 51033 CWBO 172200Z AUTO 35004KT M13/M16 RMK AO1 SOG 13 1021 SLP132 T11331158 CWBS 172200Z AUTO 28013KT M01/M08 RMK AO1 PK WND 29017/2105 T10101079 CWBT 172000Z AUTO 03005KT M00/M00 RMK AO1 6027 SLP992 T10041004 50014 CWBU 172200Z AUTO 29013KT M12/M16 RMK AO1 SOG 09 2016 PK WND 29017/2126 SLP083 T11151155 CWBY 172200Z AUTO 02012G17KT 00/M00 RMK AO1 5PAST HR SOG 09 6010 PK WND 03025/2124 SLP966 P0002 T00001001 50025 CWBZ 172200Z AUTO 26007KT M02/M10 RMK AO1 SLP199 T10221096 50001 CWCA 172200Z 05005KT 15SM -SN FEW007 BKN020 OVC070 M01/M03 A2988 RMK ST2SC4AS2 SLP122 CWCF 172200Z AUTO 29012KT M07/M11 RMK AO1 SOG 02 1014 PK WND 27019/2117 SLP056 T10701110 CWCI 172200Z AUTO 16026KT 02/01 RMK AO1 PK WND 16034/2133 SLP068 T00160009 58021 CWCJ 172200Z AUTO 19009G18KT 01/01 RMK AO1 2PAST HR SOG 02 6023 PK WND 18021/2127 SLP055 P0012 T00130013 50077 CWCO 172200Z AUTO 14004KT 01/M04 RMK AO1 SLP179 T00141039 56035 CWCT 172200Z AUTO 30008KT M12/M14 RMK AO1 1019 SLP131 T11211139 50002 CWDA 172200Z AUTO 10010G18KT 01/M00 RMK AO1 PK WND 09025/2122 SLP063 T00111004 55021 CWDC 172100Z AUTO 32005KT M16/M19 RMK AO1 SOG 26 3022 SLP056 T11611188 CWDJ 172200Z AUTO 28006KT M14/M17 RMK AO1 SLP105 T11361172 53012 CWDK 172200Z AUTO 01005KT M11/M15 RMK AO1 SOG 03 3019 SLP105 T11051152 CWDM 172200Z AUTO 06015G27KT M00/M00 RMK AO1 6PAST HR 8017 PK WND 05027/2152 SLP996 P0002 T10031002 50029 CWDO 172200Z AUTO 09014G24KT 01/M00 RMK AO1 PK WND 09027/2102 SLP046 T00131004 55028 CWDQ 172200Z AUTO 33008KT M06/M10 RMK AO1 SLP173 T10591100 52011 CWDT 172200Z AUTO 31004KT M09/M12 RMK AO1 SLP141 T10931121 51013 CWDV 172200Z AUTO 26005KT M00/M01 RMK AO1 SOG 24 0004 SLP038 T10041012 CWDZ 172200Z AUTO 22002KT M13/M15 RMK AO1 T11281154 CWEB 172200Z AUTO 10004KT 06/05 RMK AO1 1017 SLP193 T00610050 50004 CWEF 172200Z AUTO 18012G20KT 08/05 RMK AO1 PK WND 18023/2144 SLP894 T00800050 58005 CWEH 172200Z AUTO 29006KT M04/M06 RMK AO1 SOG 03 3014 SLP069 T10391062 CWEK 172200Z AUTO 16034G40KT 05/02 RMK AO1 2PAST HR 8023 PK WND 16042/2141 SLP044 P0001 T00450015 50002 CWEL 172200Z AUTO 14003KT 08/04 RMK AO1 SLP194 T00790036 52023 CWEP 172200Z AUTO 23016G25KT 06/04 RMK AO1 PK WND 22025/2154 SLP897 T00590037 53009 CWEQ 172200Z AUTO 23008KT M09/M13 RMK AO1 SOG 02 3008 SLP076 T10901130 CWEU 172200Z 00000KT 15SM SKC M36/M39 A3042 RMK SLP306 CWEW 172200Z AUTO 25005KT M02/M09 RMK AO1 SLP189 T10191089 53007 CWEZ 172200Z AUTO 22006KT 09/04 RMK AO1 SLP196 T00880036 52025 CWFD 172200Z AUTO 01010KT ////SM //// NCD ///// A//// CWFF 172200Z AUTO 26008KT M12/M15 RMK AO1 SOG 11 2017 SLP091 T11151153 CWFJ 172200Z AUTO 26014G22KT 02/M05 RMK AO1 PK WND 26022/2103 T00201050 CWFQ 172200Z AUTO 29003KT M05/M09 RMK AO1 SOG 01 3008 SLP181 T10461090 CWGD 172200Z AUTO 16010G15KT 02/M01 RMK AO1 SLP159 T00221014 58029 CWGL 172200Z AUTO 09004KT M01/M05 RMK AO1 SLP183 T10061052 58033 CWGM 172200Z AUTO 22017G25KT 00/M05 RMK AO1 PK WND 23025/2144 T00001051 CWGR 172200Z AUTO 17010G16KT 06/04 RMK AO1 SLP870 T00610044 58009 CWGT 172200Z AUTO 20006KT 08/03 RMK AO1 SLP193 T00770028 53024 CWGW 172200Z AUTO 18005KT M00/M03 RMK AO1 SOG 18 3024 SLP100 T10011026 CWGX 172200Z AUTO 27013KT M12/M14 RMK AO1 SOG 18 2042 PK WND 28020/2142 SLP973 T11181143 50002 CWGY 172200Z AUTO 26009KT M10/M13 RMK AO1 SLP135 T11031127 53022 CWGZ 172100Z 13003KT 060V170 10SM -SN SCT030 BKN100 M23/M28 A3031 RMK SC4AC2 -18.6/-26.2/TR/LAST STFD OBS/NXT 181300 UTC SLP274 CWHL 172200Z AUTO 15029G34KT 05/02 RMK AO1 6PAST HR 8017 PK WND 15034/2153 SLP062 P0002 T00490015 50006 CWHN 172100Z AUTO 29007KT 260V320 9SM CLR M13/M18 A2967 RMK SLP098 CWHO 172200Z AUTO 01013G19KT M00/M01 RMK AO1 PK WND 01019/2153 SLP141 T10041008 58001 CWHP 172200Z AUTO 08030G36KT 03/03 RMK AO1 1PAST HR 6023 PK WND 08039/2109 SLP898 P0004 T00310027 50018 CWHQ 172200Z AUTO 31010G15KT M03/M08 RMK AO1 T10331079 CWHT 172200Z AUTO 11001KT M13/M16 RMK AO1 SOG 03 1007 SLP070 T11251161 CWHV 172200Z AUTO 29009G16KT M04/M08 RMK AO1 SLP131 T10431080 51019 CWID 172200Z AUTO 00000KT M20/M22 RMK AO1 SLP130 T11981224 51016 CWIG 172200Z AUTO 24020G29KT RMK AO1 PK WND 20029/2153 CWII 172200Z AUTO 31012KT M05/M09 RMK AO1 T10471088 CWIJ 172200Z AUTO 00000KT M23/M25 RMK AO1 SOG 30 3015 SLP136 T12261251 CWIK 172200Z AUTO 29003KT M10/M14 RMK AO1 SOG 05 3003 SLP088 T10971138 CWIL 172200Z AUTO 12011KT ////SM BKN003 BKN017 BKN075 M17/M19 A2991 CWIP 172200Z AUTO 32009KT 01/ RMK AO1 8PAST HR M P0003 T0012 50048 CWIS 172200Z AUTO 30007KT M10/M12 RMK AO1 SOG 05 1015 PK WND 31017/2126 SLP096 T11001117 CWIT 172200Z AUTO 28007KT M03/M09 RMK AO1 SLP182 T10251089 51005 CWIW 172200Z AUTO 32010KT M10/M13 RMK AO1 SOG 02 3015 PK WND 32018/2142 SLP101 T10971132 CWIX 172200Z AUTO 30011KT M07/M11 RMK AO1 SLP158 T10721109 51011 CWIZ 172200Z AUTO 27006KT M03/M08 RMK AO1 T10261083 CWJB 172200Z AUTO 17002KT M04/M08 RMK AO1 T10371082 CWJC 172200Z AUTO 33020KT M17/M20 RMK AO1 SOG 14 6002 PK WND 33025/2125 SLP957 T11711197 50002 CWJD 172200Z AUTO 27005KT M10/M12 RMK AO1 SOG 16 2016 SLP062 T10971122 CWJH 172200Z AUTO 27004KT M13/M16 RMK AO1 SOG 15 3018 SLP041 T11321157 CWJI 172200Z AUTO 34005KT M12/M16 RMK AO1 SOG 03 1014 SLP102 T11171158 CWJO 172200Z AUTO 29014G21KT M07/M10 RMK AO1 PK WND 28024/2101 SLP158 T10671099 50012 CWJR 172200Z AUTO 21007KT 05/M03 RMK AO1 SLP143 T00521028 53032 CWJV 172200Z AUTO 28004KT 07/M03 RMK AO1 SLP142 T00661032 52026 CWJW 172200Z AUTO 19003KT M02/M06 RMK AO1 SOG 01 3023 SLP110 T10201061 CWJX 172200Z AUTO 32005KT M13/M16 RMK AO1 SOG 08 3018 SLP131 T11271160 CWKG 172200Z AUTO 32007G17KT 02/01 RMK AO1 3PAST HR 1032 PK WND 33018/2107 SLP006 P0001 T00200011 50016 CWKH 172200Z AUTO 06/01 RMK AO1 SLP188 T00610013 53025 CWKK 172200Z AUTO 22008KT 01/01 RMK AO1 SOG 03 5000 PK WND 20020/2114 SLP033 T00050009 50042 CWKM 172200Z AUTO 25015KT M14/ A3004 RMK SLP180 CWKO 172200Z AUTO 02004KT M05/M09 RMK AO1 SOG 09 3012 SLP077 T10511088 CWKP 172200Z AUTO ///// M17/ A2983 RMK SLP148 CWKW 172200Z AUTO ///// A3000 CWKX 172200Z AUTO 14001KT M13/M16 RMK AO1 SOG 08 8004 SLP083 T11311158 CWLB 172200Z AUTO 28007KT M13/M18 RMK AO1 SOG 14 3017 SLP124 T11311175 CWLC 172200Z AUTO 14039G44KT 04/02 RMK AO1 PK WND 14045/2117 T00420021 CWLE 172200Z AUTO 30008KT M10/M13 RMK AO1 SOG 06 3016 SLP114 T10991127 CWLI 172200Z AUTO 20005KT ////SM //// OVC080 M21/M23 A2991 CWLM 172200Z AUTO 26010G15KT 08/04 RMK AO1 PK WND 27017/2131 SLP202 T00810037 51025 CWLP 172200Z AUTO 13018KT 07/04 RMK AO1 PK WND 13022/2153 SLP161 T00660035 51010 CWLS 172200Z AUTO 17005KT M01/M04 RMK AO1 SLP182 T10081035 56028 CWLY 172200Z AUTO VRB06G19KT 9SM CLR 07/00 A2996 RMK SLP153 CWME 172200Z AUTO 02002KT 04/02 RMK AO1 SLP154 T00370019 50006 CWMJ 172200Z AUTO 24001KT M04/M11 RMK AO1 SLP203 T10411106 55002 CWMM 172200Z AUTO 30002KT 08/04 RMK AO1 1PAST HR 3026 SLP199 P0000 T00770036 50001 CWMQ 172200Z AUTO 36004KT M08/M13 RMK AO1 SLP115 T10791129 53022 CWMT 172200Z AUTO 01001KT M23/M26 RMK AO1 SLP135 T12271258 53017 CWMZ 172200Z AUTO 16014KT 01/M03 RMK AO1 PK WND 15020/2114 SLP170 T00121033 56036 CWNC 172200Z AUTO 26005KT 01/M05 RMK AO1 SLP199 T00111054 58020 CWND 172200Z AUTO 21002KT M16/M17 RMK AO1 SLP122 T11591174 51022 CWNE 172200Z AUTO 30034G40KT 01/M00 RMK AO1 6PAST HR 3045 PK WND 31043/2123 SLP896 P0002 T00091003 50006 CWNH 172200Z AUTO 32003KT M04/M08 RMK AO1 SLP102 T10401082 53019 CWNK 172200Z AUTO 31006KT M05/M11 RMK AO1 T10541108 CWNL 172200Z AUTO 16021G27KT 04/02 RMK AO1 PK WND 16030/2133 SLP135 T00440015 56041 CWNM 172200Z AUTO 21006G21KT 07/M03 RMK AO1 SOG 00 3032 PK WND 25021/2150 SLP137 T00651032 CWNP 172200Z AUTO 24001KT 04/02 RMK AO1 3035 SLP144 T00400015 50010 CWNQ 172200Z AUTO 30008KT M02/M08 RMK AO1 SLP168 T10161083 51008 CWNZ 172200Z AUTO 13009KT M06/M07 RMK AO1 0PAST HR SOG 13 7026 PK WND 14017/2123 SLP097 P0008 T10621074 50050 CWOB 172207Z AUTO 03018KT ////SM //// OVC010 M14/M15 A3030 CWOC 172200Z AUTO 32011G18KT 01/01 RMK AO1 PK WND 32019/2117 SLP947 T00130005 53026 CWOD 172200Z AUTO 30007KT M10/M13 RMK AO1 SLP156 T10961128 51009 CWOE 172200Z AUTO 31015KT M08/M10 RMK AO1 SOG 08 3012 PK WND 31018/2120 SLP088 T10801099 CWOY 172200Z AUTO 29007KT M11/M14 RMK AO1 SOG 03 1015 SLP093 T11081143 CWPD 172200Z AUTO 02006KT M11/M12 RMK AO1 SLP119 T11121119 51011 CWPE 172200Z AUTO 31013G25KT 02/M01 RMK AO1 27 SOG 02 3035 SLP026 T00241008 CWPF 172245Z AUTO 24010KT 07/04 RMK AO1 T00740040 CWPK 172200Z AUTO 29003KT M11/M12 RMK AO1 SOG 08 3004 SLP194 T11091115 CWPO 172200Z AUTO 31009KT M07/M11 RMK AO1 SOG 04 3003 SLP083 T10721109 CWPR 172200Z AUTO 25011G18KT 05/M06 RMK AO1 SOG 06 3025 PK WND 27021/2108 SLP163 T00461064 CWPS 172200Z AUTO 14009KT 05/M01 RMK AO1 SLP183 T00501009 56032 CWPX 172200Z AUTO ///// ////SM //// OVC026 M29/M33 A2984 CWPZ 172200Z AUTO 25001KT M07/M09 RMK AO1 SOG 19 4000 SLP125 T10671090 50002 CWQH 172200Z AUTO 29008KT M03/M06 RMK AO1 PK WND 29017/2106 T10281055 CWQK 172200Z AUTO 26016G23KT 08/03 RMK AO1 PK WND 26023/2159 SLP198 T00840032 51021 CWQO 172200Z AUTO 31025KT M02/M05 RMK AO1 PK WND 30032/2101 T10171051 CWQP 172200Z AUTO 27007KT 02/M06 RMK AO1 SOG 02 8018 SLP205 T00151056 CWQR 172200Z AUTO 01021G26KT M00/ RMK AO1 PK WND 01026/2152 T1004 CWQS 172200Z AUTO 18029G35KT 08/06 RMK AO1 8018 PK WND 18036/2143 SLP024 T00810056 50010 CWQV 172200Z AUTO 28030G37KT M04/M08 RMK AO1 PK WND 27038/2137 T10431076 CWRA 172200Z AUTO 10015KT 04/04 RMK AO1 PK WND 08021/2123 SLP052 T00400037 58024 CWRF 172200Z AUTO 17014G19KT M18/ A2997 RMK SLP200 CWRH 172200Z AUTO ///// M10/ A3028 RMK SLP297 CWRJ 172200Z AUTO 26009KT M10/M12 RMK AO1 SOG 04 3015 SLP113 T10991124 CWRK 172200Z AUTO 09001KT M02/M09 RMK AO1 SOG 00 6020 SLP197 T10221094 CWRM 172200Z AUTO 27001KT M09/M12 RMK AO1 SOG 08 3020 SLP114 T10851122 50002 CWRN 172200Z AUTO 25018G27KT 07/02 RMK AO1 PK WND 25027/2157 SLP933 T00680015 53012 CWRO 172100Z AUTO 17026G32KT 06/05 RMK AO1 5PAST HR 8016 PK WND 17032/2049 SLP028 P0002 T00550046 50012 CWRT 172200Z AUTO 31006KT M00/M04 RMK AO1 PK WND 30021/2121 T10031036 CWRU 172200Z AUTO 15018G24KT 07/03 RMK AO1 PK WND 15029/2140 SLP151 T00670034 51008 CWRX 172200Z AUTO 13012KT ////SM //// ////// M15/M16 A3037 CWRY 172200Z AUTO 35009KT M04/M08 RMK AO1 SOG 11 3017 SLP081 T10411077 CWRZ 172200Z AUTO 36023G33KT 01/M00 RMK AO1 6PAST HR 3009 PK WND 02035/2115 SLP906 P0006 T00131004 50057 CWSA 172200Z AUTO 24023G31KT 5SM HZ SCT045 10/06 A2943 RMK TS/LTNG TEMPO UNAVBL SLP968 CWSD 172200Z AUTO 29023G34KT 03/01 RMK AO1 SOG 01 1040 PK WND 31035/2145 SLP918 T00290014 50008 CWSF 172200Z AUTO 35022G31KT 01/01 RMK AO1 5PAST HR 6009 PK WND 35033/2142 SLP979 P0010 T00100005 50065 CWSG 172200Z AUTO 34017KT 01/01 RMK AO1 3009 PK WND 35021/2134 SLP015 T00100010 50020 CWSK 172200Z AUTO 15002KT 06/04 RMK AO1 SLP192 T00590041 53024 CWSL 172200Z AUTO 05001KT 05/03 RMK AO1 SLP147 T00490029 51025 CWSP 172200Z AUTO 29008KT 08/05 RMK AO1 4PAST HR 1021 SLP204 P0002 T00790050 50016 CWSR 172200Z AUTO 28009KT M14/M18 RMK AO1 SOG 17 3016 SLP089 T11401177 CWSS 172200Z AUTO 29010G17KT 01/M03 RMK AO1 SOG 00 3031 PK WND 29026/2104 SLP045 T00131031 CWST 172200Z AUTO 31010G17KT M03/M09 RMK AO1 SOG 148 1025 PK WND 30017/2150 SLP106 T10271088 CWSW 172206Z 17008G18KT 150V230 2SM -SN VV016 00/M03 A2978 RMK SN8 WSHFT 2153 SLP124 CWTA 172200Z AUTO 28002KT M02/M10 RMK AO1 SLP183 T10181102 52006 CWTG 172200Z AUTO 32005KT 01/01 RMK AO1 3004 SLP026 T00070007 50020 CWTN 172200Z AUTO 27008KT M03/M08 RMK AO1 SLP133 T10281084 51028 CWTT 172200Z AUTO 29013KT M03/M06 RMK AO1 PK WND 29020/2115 T10281055 CWTU 172200Z AUTO ///// A2979 CWTY 172200Z AUTO 27004KT M02/M08 RMK AO1 SLP168 T10201076 52012 CWUP 172200Z AUTO ///// M18/ A3032 RMK SLP316 CWUS 172200Z AUTO 12001KT 07/M00 RMK AO1 SLP156 T00671004 53028 CWUW 172200Z AUTO 13013KT ////SM //// OVC028 M22/M24 A//// CWUX 172200Z AUTO 28015G22KT M08/M11 RMK AO1 PK WND 28022/2125 SLP141 T10761108 50008 CWVD 172200Z AUTO 04008KT M20/ A3027 RMK SLP329 CWVF 172245Z AUTO 02001KT 07/ RMK AO1 T0074 CWVH 172200Z AUTO 27008KT M25/ A2987 RMK SLP155 CWVI 172200Z AUTO 28006KT M15/M20 RMK AO1 SLP135 T11461203 53017 CWVN 172200Z AUTO 32003KT M02/M07 RMK AO1 SOG 02 3011 SLP083 T10231067 CWVP 172200Z AUTO 31005KT M06/M10 RMK AO1 SOG 11 3017 SLP063 T10561097 CWVQ 172200Z AUTO 26008KT M02/M08 RMK AO1 SLP191 T10201075 53003 CWVT 172200Z AUTO 30007KT M12/M16 RMK AO1 SOG 07 2017 SLP102 T11191161 50002 CWVU 172200Z AUTO 29034G39KT 05/02 RMK AO1 PK WND 29045/2126 SLP046 T00460015 53031 CWWA 172200Z AUTO 00000KT 07/03 RMK AO1 SLP195 T00650032 53025 CWWB 172200Z AUTO 06007KT 03/M03 RMK AO1 SLP194 T00261029 56027 CWWE 172200Z AUTO 29011G18KT 05/02 RMK AO1 PK WND 31022/2128 SLP007 T00450020 53029 CWWF 172200Z AUTO 32004KT M12/M16 RMK AO1 SOG 08 3008 SLP100 T11151155 CWWK 172200Z AUTO 22002KT 09/03 RMK AO1 SLP203 T00870031 53026 CWWL 172200Z AUTO 17030G36KT 08/ RMK AO1 8016 PK WND 16037/2109 SLP057 T0075 50006 CWWS 172200Z AUTO 29003KT M08/M12 RMK AO1 SLP055 T10761117 51021 CWWU 171900Z 08007KT 15SM FEW010 OVC120 02/M00 A2977 RMK SC1AS8 TR SC SLP081 CWWX 172200Z AUTO 20005KT 02/M01 RMK AO1 SLP155 T00161014 58032 CWWZ 172200Z AUTO 12005KT 03/M02 RMK AO1 SLP194 T00271015 58034 CWXA 172200Z AUTO 07002KT M10/M14 RMK AO1 SLP069 T11031135 51015 CWXC 172200Z AUTO 35008KT M07/M08 RMK AO1 SLP124 T10661079 51012 CWXI 172200Z AUTO 02/M01 RMK AO1 33 6030 SLP030 T00161012 CWXL 172200Z AUTO 33006KT M11/M15 RMK AO1 T11101152 CWXR 172200Z AUTO 04004KT M17/ A2994 RMK SLP152 CWYJ 172200Z AUTO 24005KT 09/03 RMK AO1 2026 SLP202 T00880034 50003 CWYL 172200Z AUTO 24015G22KT M04/M07 RMK AO1 SOG 34 3033 PK WND 25023/2115 SLP084 T10411070 CWYM 172200Z AUTO 36008KT M16/ A3024 RMK SLP314 CWYY 172200Z AUTO 20003KT 08/M00 RMK AO1 SLP157 T00751002 53021 CWZA 172200Z AUTO 29003KT 08/03 RMK AO1 SLP193 T00800034 53024 CWZG 172200Z AUTO 25005KT M02/M08 RMK AO1 SOG 11 3026 SLP079 T10171079 CWZL 172200Z AUTO 18018KT 06/05 RMK AO1 PK WND 17021/2158 SLP056 T00610048 58017 CWZO 172200Z AUTO 00025KT RMK AO1 CWZQ 172240Z AUTO 22022G32KT 06/05 RMK AO1 T00620047 CWZS 172200Z AUTO 32013G22KT M00/M01 RMK AO1 PK WND 33022/2150 SLP020 T10041010 53018 CWZV 172200Z AUTO 21026G31KT 06/ RMK AO1 PK WND 22036/2131 SLP087 T0063 58005 CWZW 172200Z AUTO 09005KT M16/M18 RMK AO1 SOG 06 2006 SLP080 T11611180 50002 CWZZ 172236Z AUTO 01022G37KT 330V070 ////SM //// OVC009 M09/M10 A3000 CXAF 172200Z AUTO 29004KT M14/M18 RMK AO1 T11401175 CXAG 172200Z AUTO 30010KT M15/M18 RMK AO1 T11491175 CXAJ 172200Z AUTO 27008KT M14/M18 RMK AO1 SOG 14 T11381178 CXAK 172200Z AUTO 28007KT M11/M13 RMK AO1 T11071127 50005 CXAT 172200Z AUTO 14028G33KT M16/M20 RMK AO1 SOG 05 1010 PK WND 14034/2132 SLP239 T11621200 CXBA 172200Z AUTO 31009KT M11/M12 RMK AO1 T11141115 50004 CXBI 172200Z AUTO 15007KT M00/M05 RMK AO1 SOG 00 8034 SLP185 T10011050 CXBK 172200Z AUTO 29006KT M15/M18 RMK AO1 SOG 07 3009 SLP092 T11511178 CXBO 171800Z AUTO 28011G16KT RMK AO1 PK WND 28021/1718 CXBR 172200Z AUTO 25013KT 02/M05 RMK AO1 PK WND 24024/2122 T00151048 CXCA 172200Z AUTO 17004KT M00/M00 RMK AO1 3PAST HR SOG 03 1002 SLP046 P0001 T10041001 50029 CXCD 172200Z AUTO 36001KT M17/M21 RMK AO1 T11741208 CXCH 172200Z AUTO 06/03 RMK AO1 T00590025 CXCK 172200Z AUTO 00000KT M16/M19 RMK AO1 SOG 16 1013 SLP097 T11601190 50002 CXCP 172200Z AUTO 36005KT M13/M14 RMK AO1 T11271136 CXCS 172200Z AUTO 31012KT M12/M13 RMK AO1 PK WND 31017/2127 T11181131 CXDB 172200Z AUTO 27019KT 00/M06 RMK AO1 PK WND 27023/2111 T00001056 CXDE 172200Z AUTO 31002KT M22/M25 RMK AO1 SOG 08 3016 SLP141 T12241249 CXDI 172200Z AUTO 13003KT 02/M02 RMK AO1 SLP180 T00201016 56033 CXDK 172200Z AUTO M18/M21 RMK AO1 SLP103 T11771207 51007 CXDW 172200Z AUTO 31009KT M07/M11 RMK AO1 SOG 02 3003 PK WND 28017/2111 SLP076 T10671107 CXEA 172200Z AUTO 29005KT M03/M07 RMK AO1 SOG 13 3018 SLP039 T10331066 50002 CXEC 172200Z AUTO 30005KT M11/M16 RMK AO1 SOG 11 3016 SLP132 T11101159 CXEG 172200Z AUTO M12/M14 RMK AO1 T11221142 CXET 172200Z AUTO 19008KT M00/M05 RMK AO1 SOG 01 6024 SLP188 T10011052 CXFM 172200Z AUTO 33008KT M11/M14 RMK AO1 T11051141 CXFR 172200Z AUTO 11006KT M17/M19 RMK AO1 T11711192 CXGH 172200Z AUTO 30004KT M05/M11 RMK AO1 T10461110 CXHA 172200Z AUTO 17009KT 06/01 RMK AO1 SLP159 T00570005 56034 CXHD 172200Z AUTO 31004KT M16/M19 RMK AO1 T11591194 CXHF 172200Z AUTO M03/M09 RMK AO1 T10251088 CXHR 172200Z AUTO 32006KT M13/M14 RMK AO1 T11261136 CXIB 172200Z AUTO 22006KT 07/02 RMK AO1 SLP904 T00650023 53003 CXKA 172200Z AUTO 14012G17KT M06/M08 RMK AO1 SOG 02 6030 PK WND 15017/2158 SLP129 T10621083 CXKE 172200Z AUTO 31002KT M03/M12 RMK AO1 SOG 01 5001 SLP207 T10281117 CXKI 172200Z AUTO M08/M09 RMK AO1 SOG 10 6040 SLP169 T10771091 CXKM 172200Z AUTO M12/M15 RMK AO1 T11151148 CXKT 172200Z AUTO 28015G27KT 04/M00 RMK AO1 3030 PK WND 25029/2135 SLP971 T00371002 50006 CXLB 172200Z AUTO 26019G26KT 05/04 RMK AO1 PK WND 26026/2150 SLP988 T00480040 53034 CXLC 172200Z AUTO 01001KT M26/M29 RMK AO1 SOG 15 3018 SLP119 T12611290 CXLL 172200Z AUTO 00000KT M23/M26 RMK AO1 SOG 15 3010 SLP124 T12341258 50002 CXMD 172200Z AUTO 32007KT M06/M11 RMK AO1 SOG 03 2003 SLP073 T10561113 CXMG 172200Z AUTO 14003KT M18/M21 RMK AO1 T11841211 CXMI 172200Z AUTO 28012G25KT 05/03 RMK AO1 PK WND 25025/2155 T00480033 CXMM 172200Z AUTO 29009KT M12/M18 RMK AO1 SOG 08 1020 SLP102 T11231175 CXMO 172200Z AUTO 23003KT M13/M14 RMK AO1 T11311143 CXMY 172200Z AUTO 04/03 RMK AO1 T00420026 CXNM 172200Z AUTO 22007KT 02/02 RMK AO1 PK WND 22018/2116 T00240019 CXNP 172200Z AUTO 28016G23KT 03/01 RMK AO1 2PAST HR SOG 00 1033 PK WND 26024/2136 SLP959 P0001 T00340014 50002 CXOL 172200Z AUTO 22002KT M10/M11 RMK AO1 T11041113 CXOX 172200Z AUTO 29007G15KT M12/M15 RMK AO1 SOG 21 2017 SLP068 T11201150 50002 CXOY 172200Z AUTO 31011KT M12/M13 RMK AO1 T11211134 CXPA 172200Z AUTO 08005KT M19/M22 RMK AO1 T11901216 CXPC 172200Z AUTO M00/M07 RMK AO1 SOG 02 5024 SLP181 T10021070 CXPL 172200Z AUTO 00000KT M13/M14 RMK AO1 T11281137 CXRB 172200Z AUTO 12017KT M23/M25 RMK AO1 SOG 04 3016 PK WND 11019/2158 SLP179 T12271248 50002 CXRH 172200Z AUTO 09020G35KT 03/ RMK AO1 3PAST HR M35 M P0001 T0028 50003 CXRL 172200Z AUTO 27005KT M15/M19 RMK AO1 T11481188 CXSC 172200Z AUTO 35007KT M10/M13 RMK AO1 T11031133 CXSE 172200Z AUTO 24005KT M31/M35 RMK AO1 SOG 28 3019 SLP170 T13051348 CXSH 172200Z AUTO 29005KT M04/M09 RMK AO1 SLP166 T10351090 53010 CXSL 172200Z AUTO 32007KT M14/M18 RMK AO1 T11381180 CXSP 172200Z AUTO 25005KT M15/M19 RMK AO1 T11471189 CXSR 172200Z AUTO 20007KT M13/M15 RMK AO1 SOG 33 3008 SLP094 T11321147 50002 CXTD 172200Z AUTO 25008KT 04/01 RMK AO1 PK WND 21025/2100 SLP936 T00350014 53025 CXTH 172200Z AUTO 27009KT M17/M19 RMK AO1 T11671194 CXTN 172200Z AUTO 00000KT M20/M22 RMK AO1 SLP150 T11951217 53016 CXTO 172200Z AUTO 01/M04 RMK AO1 SLP197 T00131043 58026 CXTP 172200Z AUTO 09002KT M00/M01 RMK AO1 SLP047 T10021008 56025 CXTV 172200Z AUTO 27002KT M27/M30 RMK AO1 SOG 19 3025 SLP153 T12731300 CXVM 172200Z AUTO 27005KT M14/M18 RMK AO1 T11401178 CXVN 172200Z AUTO 00000KT 03/M02 RMK AO1 SLP190 T00251024 56030 CXVW 172200Z AUTO 14005KT M15/M18 RMK AO1 T11481179 CXWB 172200Z AUTO 12028G35KT M09/M10 RMK AO1 PK WND 12035/2152 SLP152 T10851103 58013 CXWM 172200Z AUTO 33007KT M11/M13 RMK AO1 T11081126 CXWN 172200Z AUTO 30004KT M06/M11 RMK AO1 SLP075 T10571110 53011 CXYH 172200Z AUTO M21/M24 RMK AO1 SLP098 T12051237 51010 CXZC 172200Z AUTO 13007KT M08/M10 RMK AO1 PRESFR SOG 17 8040 SLP145 T10771100 CXZV 172200Z AUTO 34005KT 01/01 RMK AO1 SOG 04 6002 SLP016 T00100009 50008 CYAB 172100Z 12023G30KT 10SM DRSN FEW016 SCT023 OVC060 M16/M21 A3021 RMK SC2SC2SC4 -16.5/-19.3/0.0/SNW CVR/MUCH LOOSE/LAST STFD OBS/NEXT 181800Z CIG ESTD SLP235 CYAH 172228Z AUTO 10010KT 9SM BKN019 M14/M16 A3004 RMK SLP206 CYAM 172236Z 12009G18KT 15SM FEW019 BKN068 BKN083 OVC091 02/M01 A2979 RMK SC1AC5AC2AC1 SC TR SLP098 CYAS 172200Z 02012KT 15SM -SN BKN033 M11/M15 A3033 RMK SC5 SNOW COVER MEDIUM PACK LAST STFD OBS NEXT 181300UTC SLP285 CYAT 172252Z AUTO /////KT 2SM -SN OVC016 M08/M10 A2982 RMK PRESFR WND MISG SLP099 CYAW 171833Z 27022KT 15SM -SHRA OVC023 07/02 A2935 RMK SC8 DA-81FT LAST OBS/NXT 201000 UTC SLP939 CYAY 172200Z AUTO 05010G15KT 9SM OVC012 01/M01 A2974 RMK ICG INTMT PRESFR SLP074 CYAZ 172200Z 17004KT 15SM FEW026 BKN052 BKN120 08/04 A3011 RMK SC2SC4AC1 SLP197 CYBB 172239Z 02007KT 15SM OVC030 M17/M20 A3013 RMK SC8 SLP206 CYBC 172200Z AUTO 33015G27KT 9SM OVC070 M02/M05 A2966 RMK SLP048 CYBD 172200Z 03005KT 320V060 8SM FEW020 FEW058 BKN073 OVC090 03/01 A2997 RMK SC1SC1AC5AS1 SLP151 CYBG 172200Z 29016G21KT 10SM -SHSN OVC019 M07/M11 A2994 RMK SC8 SLP151 CYBK 172239Z 09021G28KT 2 1/2SM -SN BLSN OVC015 M07/M08 A2960 RMK BLSN1SC7 SLP026 CYBL 172200Z 13004KT 30SM FEW020 SCT080 BKN220 06/02 A3008 RMK CU2AC1CS4 SLP192 CYBN 172200Z AUTO 17008KT 9SM CLR 01/M05 A3005 RMK SLP187 CYBQ 172254Z AUTO 29006KT 2 1/2SM -SN OVC025 M16/M18 A2934 RMK SLP968 CYBR 172200Z 30009KT 15SM FEW070 FEW240 M08/M12 A2970 RMK AC1CI1 AC TR SLP091 CYBU 172251Z AUTO 26010KT 9SM -SN OVC022 M11/M15 A2971 RMK SLP092 CYBV 172200Z 30012G17KT 15SM -SN DRSN BKN020 OVC030 M07/M11 A2966 RMK SC6SC2 SNW CVR/MUCH LOOSE/LAST STFD OBS/NEXT 201300UTC SLP058 CYBW 172200Z AUTO 00000KT 9SM CLR M13/M14 A2964 RMK SLP135 CYBX 172228Z 08028G36KT 10SM -SG OVC025 01/M01 A2968 RMK SC8 PRESRR SLP055 CYCB 172200Z 03014KT 4SM -SN DRSN SCT015 OVC035 M25/M28 A2996 RMK SC3SC5 SLP152 CYCD 172200Z 11004KT 060V130 25SM FEW038 SCT057 SCT120 OVC240 08/03 A3010 RMK SC1SC2AC1CS4 HALO SLP197 CYCG 172200Z 16005KT 140V210 15SM FEW024 SCT046TCU BKN072 BKN092 07/M01 A2992 RMK SC1TCU4AC2AC1 SC TR SLP147 CYCK 172220Z AUTO 17010KT 9SM BKN150 06/01 A3000 RMK SLP166 CYCO 172200Z 24010KT 12SM IC FEW025 BKN040 M19/M21 A2996 RMK SC2SC5 SLP149 CYCP 172200Z 21004KT 170V250 15SM VCSH FEW005 SCT049CB BKN110 BKN160 01/M02 A2988 RMK SF1CB4AC2AC1 SF TR SLP148 CYCQ 172200Z 21010G16KT 10SM FEW030 SCT080 BKN110 OVC200 M07/M12 A2970 RMK SC1AC2AS4CI1 SLP109 CYCS 172200Z 12028G33KT 1 1/4SM -SN BLSN OVC020 M04/M06 A2969 RMK SN2SC6 SLP058 CYCX 172200Z 30020G26KT 15SM OVC020 01/M04 A2958 RMK SC8 DA-1100FT SLP021 CYCY 172200Z 30004KT 15SM SCT250 M30/M33 A3047 RMK CI3 SLP325 CYDA 172200Z CCA 23005KT 210V280 20SM -SN SCT090 BKN200 BKN230 M19/M22 A2976 RMK AS4CS2CI1 PARHELION SLP120 CYDB 172200Z 30008KT 5SM -SN BR FEW010 SCT030 OVC050 M10/M11 A2954 RMK SF1SC2SC5 SLP064 CYDC 172200Z 26006G16KT 220V300 10SM BKN055 BKN200 04/M06 A2996 RMK SC7CI1 CI TR SLP168 CYDF 172237Z 36011G19KT 4SM -SN OVC014 00/M01 A2954 RMK SC8 SLP006 CYDL 172247Z AUTO 00000KT 7SM -SN OVC042 M13/M15 A2955 RMK SLP065 CYDN 172200Z AUTO 29014KT 9SM SCT065 M08/M12 A2969 RMK SLP076 CYDP 172200Z 01025KT 12SM -SN DRSN FEW009 OVC016 M02/M05 A3002 RMK SF1SC7 SLP169 CYDQ 172200Z AUTO 27004KT 9SM CLR M17/M19 A2970 RMK SLP116 CYED 172200Z AUTO 33002KT 9SM CLR M14/M18 A2977 RMK SLP136 CYEG 172231Z 25003KT 15SM FEW035 SCT081 M14/M16 A2978 RMK SC1AC3 SC TR SLP141 CYEK 172252Z 14020KT 8SM -SHSN DRSN BKN042 OVC110 M05/M08 A2932 RMK SC5AC3 SLP932 CYEN 172200Z 33006KT 15SM FEW140 M08/M13 A2969 RMK AC2 SLP098 CYER 172228Z AUTO 16016G23KT 2 1/4SM -SN OVC026 M06/M07 A2944 RMK VIS VRB 1 1/4-3 SLP971 CYET 172200Z AUTO 26003KT 9SM CLR M10/M12 A2970 RMK SLP126 CYEV 172229Z 28002KT 15SM BCFG BKN008 BKN250 M28/M32 A2999 RMK ST5CI2 VIS NE 1 SLP169 CYFB 172200Z 04007KT 15SM SKC M17/M24 A3046 RMK SLP320 CYFC 172200Z AUTO 30020G27KT 9SM OVC025 01/M03 A2958 RMK SLP019 CYFO 172200Z 28008KT 8SM -SN DRSN FEW009 OVC018 M11/M15 A2959 RMK SF2SC6 VIA CYWG SLP048 CYFR 172200Z 03005KT 4SM -SN OVC019 M12/M14 A2977 RMK SC8 SLP097 CYFS 172200Z 00000KT 15SM BKN006 M23/M26 A2983 RMK ST7 SUN DMLY VSBL SLP127 CYFT 172100Z 15004KT 2SM -SN OVC015 M02/M03 A2992 RMK SC8 SENT VIA CYDP LAST STAFFED OB/ NEXT 181000UTC SLP138 CYGE 172200Z 09002KT 20SM SCT065 BKN080 BKN100 01/M01 A2979 RMK SC3AC2AC1 SH DIST SW SLP121 CYGK 172200Z 26005KT 15SM SCT160 BKN270 M00/M11 A3013 RMK AC3CI3 SLP210 CYGL 172200Z 13007KT 15SM FEW016 BKN210 M13/M16 A3007 RMK SC1CI6 SLP208 CYGP 172236Z 35014G23KT 2SM -SN OVC010 01/M01 A2936 RMK SN2SC6 SLP945 CYGQ 172214Z 18007KT 15SM SCT010 OVC056 00/M00 A2960 RMK SF4SC4 SLP046 CYGR 172253Z 18010G17KT 6SM -DZ BR BKN007 OVC015 06/05 A2914 RMK ST6SC2 SLP869 CYGT 172200Z 15013KT 6SM -SN SCT012 OVC020 M15/M17 A3027 RMK SC4SC4 -15.0/-21.2/0.6/LAST STFD OBS/NEXT 181600Z SLP261 CYGV 172256Z AUTO 03012G18KT 2 1/4SM -SN SCT008 OVC013 01/01 A2944 RMK ICG SLP973 CYGW 172200Z AUTO 15004KT 9SM BKN220 M12/M16 A3014 RMK SLP210 CYGX 172116Z 28014G21KT 3SM -SN BKN010 BKN023 BKN120 M12/M14 A2939 RMK SC5SC2AS1 AS TR VIA CYWG SLP967 CYHA 172200Z 05005KT 15SM FEW030 M10/M17 A3039 RMK SC1 SC TR SN COV/MED PACK LAST STFD OBS/NEXT 181400 UTC SLP295 CYHD 172200Z AUTO 28010KT 9SM OVC018 M01/M04 A2957 RMK SLP038 CYHE 172258Z AUTO 27008G15KT 9SM FEW027 SCT041 BKN050 OVC075 07/03 A3011 RMK SLP198 CYHI 172200Z 08005KT 15SM VCSH FEW014 FEW035 BKN078 BKN090 BKN110 M25/M30 A3002 RMK SF1SC2AC3AC1AC1 SF TR AC TR AC TR CIG RAG VIRGA SLP174 CYHK 172255Z AUTO 12011KT 5SM BR FEW055 BKN069 OVC089 M17/M18 A2996 RMK SLP156 CYHM 172200Z 19005KT 15SM SCT130 BKN250 01/M02 A3007 RMK AC4CI1 SLP193 CYHU 172200Z AUTO 27011G18KT 9SM CLR M02/M09 A3007 RMK SLP184 CYHY 172200Z 26007KT 15SM FEW100 BKN230 M19/M21 A2985 RMK AS2CS3 SLP128 CYHZ 172200Z 28016G26KT 15SM -RA OVC021 04/03 A2940 RMK SC8 SLP962 CYIK 172100Z 12018KT 15SM DRSN BKN034 M12/M16 A3030 RMK SC7 SLP266 CYIN 172200Z AUTO 00000KT 9SM BKN075 BKN093 M01/M08 A2983 RMK SLP151 CYIO 172200Z AUTO 00000KT 9SM OVC042 M19/M23 A3039 RMK SLP301 CYIV 172200Z 27016G23KT 12SM -SN DRSN BKN012 M09/M13 A2955 RMK SC7 SLP026 CYJF 172200Z 02004KT 5/8SM -SN OVC030 M21/M24 A2978 RMK SN3SC5 VV25 SLP113 CYJT 172200Z 09024G35KT 15SM BKN038 04/M01 A2934 RMK SC5 SLP938 CYKA 172200Z 26004KT 40SM FEW070 SCT160 BKN250 05/M00 A2993 RMK AC1AC3CI3 SLP149 CYKD 172250Z 30002KT 15SM OVC007 M24/M27 A3004 RMK ST8 VIS SW 10 SLP175 CYKF 172200Z AUTO 13005KT 9SM SCT110 OVC130 M00/M03 A3005 RMK SLP192 CYKG 172200Z VRB02KT 15SM -SHSN OVC028 M11/M15 A3035 RMK SC8 LAST STFD OBS/NEXT 201300 UTC SLP295 CYKJ 172200Z AUTO 29014G21KT 9SM SCT025 BKN031 M16/M20 A2952 RMK SLP046 CYKL 172248Z AUTO 33007KT 9SM -SN BKN015 BKN038 OVC085 M11/M12 A2990 RMK SLP176 CYKO 172000Z 12019KT 15SM DRSN FEW012 M18/M20 A3029 RMK SC1 LAST OB NEXT 201300 Z SLP261 CYKP 172251Z AUTO 16008G15KT 9SM OVC011 M06/M06 A2963 RMK ICG SLP052 CYKQ 172200Z 12005KT 15SM BKN150 OVC210 M10/ A3006 RMK AS6CS4 LAST STFD OBS / NEXT 191400UTC VIA CYQB SLP182 CYKY 172224Z 27011G17KT 1 1/2SM -SN OVC016 M11/M13 A2974 RMK SN2SC6 SLP131 CYKZ 172200Z 17007KT 15SM BKN110 M00/M05 A3007 RMK AC5 SLP195 CYLA 172200Z 06012G18KT 6SM -SN DRSN BKN026 M06/M11 A3030 RMK SC7 SNW CVR/ONE LOOSE LAST STFD OBS/NXT 181300UTC SLP265 CYLC 172000Z 02010KT 15SM DRSN SKC M16/M23 A3039 RMK -15.3/-17.2/0.0/1 TRACE LOOSE LAST STFD OBS/NEXT 201200Z SLP300 CYLD 172256Z 17010KT 12SM -SN OVC007 M04/M05 A2979 RMK SC8 SLP122 CYLH 172208Z AUTO 16007KT 120V200 9SM OVC008 M04/M04 A2952 RMK SLP017 CYLJ 172200Z 27012KT 15SM FEW019 FEW130 M14/M17 A2973 RMK SC1AC1 AC TR SLP110 CYLK 172200Z 02004KT 5SM -SG FEW013 SCT014 M17/M20 A2973 RMK ST2SF2 SLP090 CYLL 172200Z 28006KT 15SM DRSN SCT120 BKN250 M15/M17 A2971 RMK AC4CI1 SLP121 CYLT 172200Z 34007KT 15SM FEW120 SCT190 M29/M33 A3043 RMK AC2AC2 SLP312 CYLU 172200Z 02003KT 340V130 10SM BKN012 OVC050 M08/M11 A3020 RMK SC6SC2 LAST STFD OBS/NEXT 181300UTC SLP234 CYLW 172200Z AUTO 25009G16KT 9SM OVC075 08/M07 A2993 RMK SLP150 CYMA 172200Z 00000KT 4SM -SN SCT030 OVC055 M17/M20 A2969 RMK SC3SC5 SLP112 CYMH 172213Z AUTO 05008KT 6SM BR OVC015 01/00 A2982 RMK SLP101 CYMJ 172200Z 32002KT 12SM FEW040 BKN250 M11/M13 A2973 RMK SC1CI4 SLP110 CYMM 172200Z AUTO 29009KT 9SM FEW026 M12/M17 A2976 RMK SLP112 CYMO 172200Z AUTO 12010G15KT 9SM FEW070 SCT080 OVC100 M08/M10 A2996 RMK PRESFR SLP146 CYMT 172200Z AUTO 28004KT 9SM CLR M14/M16 A2999 RMK SLP192 CYMU 172200Z 09026KT 15SM DRSN FEW015 SCT080 BKN250 M14/M18 A3011 RMK SC1AC3CI4 SC TR LAST STFD OBS/NEXT 181300Z SLP206 CYMX 172200Z 27004KT 230V300 25SM FEW250 M03/M10 A3008 RMK CI2 SLP191 CYNA 172256Z AUTO 06016G25KT 8SM -SN FZUP OVC013 01/01 A2939 RMK ICG INTMT SLP954 CYNC 172100Z 13009G15KT 100V160 15SM SCT190 BKN240 OVC300 M11/M17 A3010 RMK AS3CS3CI2 LAST STFD OBS/NEXT 191700Z SLP195 CYND 172200Z 28005KT 15SM FEW220 M03/M10 A3013 RMK CI2 PRESFR SLP207 CYNE 172200Z AUTO 27005KT 230V310 9SM OVC041 M10/M12 A2960 RMK SLP041 CYNM 172200Z AUTO 14004KT 9SM SCT160 OVC210 M10/M11 A3002 RMK ICG SLP195 CYOA 172200Z 02014KT 15SM DRSN FEW020 M24/M27 A2969 RMK SC1 CYOC 172200Z VRB02KT 25SM FEW012 FEW040 FEW140 BKN220 M23/M26 A2990 RMK SF1SC1AC1CI4 SF TR SLP160 CYOD 172200Z 28008KT 12SM FEW027 FEW080 M13/M17 A2975 RMK SC1AC2 SLP121 CYOJ 172200Z 16004KT 15SM BKN260 M17/M19 A2980 RMK CI7 SLP128 CYOO 172200Z AUTO 18005KT 9SM BKN110 OVC130 01/M04 A3009 RMK SLP198 CYOW 172200Z 27006KT 15SM FEW180 FEW250 M03/M11 A3012 RMK AC1CI1 AC TR CI TR SLP207 CYOY 172200Z AUTO 30007KT 270V330 9SM OVC025 M05/M10 A2995 RMK SLP151 CYPA 172200Z 31008KT 10SM -SN OVC021 M11/M15 A2971 RMK SC8 SLP098 CYPC 172200Z 17003KT 15SM FEW025 BKN085 M15/M19 A2997 RMK SC1AC7 SC TR SLP151 CYPD 172200Z AUTO 25016G24KT 9SM OVC020 05/01 A2929 RMK SLP924 CYPE 172200Z 23003KT 15SM FEW002 BKN210 M17/M20 A2977 RMK CF1CI7 CF TR SLP136 CYPG 172200Z 28011KT 15SM FEW240 M06/M12 A2972 RMK CI1 SLP080 CYPH 172226Z AUTO 12018G23KT 9SM CLR M15/M18 A3019 RMK SLP229 CYPL 172200Z 28011G16KT 5SM BR OVC009 M01/M03 A2951 RMK SF8 SLP018 CYPO 172213Z AUTO 16016G30KT 1 3/4SM -SN OVC024 M07/M10 A2959 RMK VIS VRB 1 1/4-3 SLP028 CYPQ 172200Z AUTO 18007KT 9SM BKN130 OVC150 00/M05 A3009 RMK SLP202 CYPR 172233Z AUTO 14021G29KT 9SM -RA SCT020 BKN025 OVC029 04/01 A2969 RMK SLP056 CYPW 172200Z 13003KT 090V170 25SM FEW012 BKN047 OVC062 06/03 A3010 RMK SC2SC5SC1 SLP198 CYPX 172200Z AUTO 09009KT 9SM CLR M22/M24 A3027 RMK SLP257 CYPY 172200Z AUTO 27010KT 9SM -SN OVC029 M14/M16 A2975 RMK SLP101 CYQA 172200Z AUTO 13009G15KT 9SM OVC110 M01/M08 A3002 RMK SLP181 CYQB 172223Z 27014KT 15SM BKN030 M04/M10 A2998 RMK SC7 SLP158 CYQD 172200Z 27014KT 15SM -SN FEW007 OVC009 M10/M13 A2962 RMK SF1ST8 SF TR CIG BLN DSAPRD 1000 FT PCPN VRY LGT VIA CYWG SLP054 CYQF 172200Z 00000KT 10SM FEW016 BKN094 OVC250 M09/M13 A2972 RMK SC1AC6CI1 SLP126 CYQG 172200Z 14006KT 12SM OVC150 05/01 A2998 RMK AS8 SLP161 CYQH 172200Z 30003KT 15SM SCT027 BKN034 OVC180 M22/M25 A2963 RMK SC3SC2AC3 SLP112 CYQI 172248Z 32020G32KT 12SM OVC024 04/M00 A2966 RMK SC8 SLP046 CYQK 172200Z 31006KT 270V340 15SM FEW012 FEW150 SCT210 M04/M08 A2962 RMK SC1AC1CI3 SC TR SLP053 CYQL 172200Z 06004KT 8SM SKC M11/M13 A2971 RMK BR SLP118 CYQM 172254Z 26020G25KT 7SM -SHSN BKN008 OVC012 01/00 A2940 RMK ST7SC1 SLP961 CYQQ 172200Z 09004KT 20SM FEW025 FEW075 FEW140 OVC250 08/02 A3010 RMK CU1AC1AS1CI6 CONTRAILS MDT CU NE QUAD SLP194 CYQR 172200Z 28006KT 15SM FEW250 M14/M17 A2971 RMK CI2 SLP108 CYQT 172200Z 00000KT 5SM -SN SCT009 OVC020 00/00 A2964 RMK SC3SC5 SLP048 CYQU 172200Z 29004KT 20SM SCT075 OVC130 M18/M20 A2974 RMK AC4AC4 SLP134 CYQV 172200Z AUTO 26006KT 9SM OVC034 M09/M13 A2968 RMK SLP088 CYQW 172200Z AUTO 30012G20KT 9SM CLR M13/M18 A2975 RMK SLP124 CYQX 172200Z 10014G21KT 10SM OVC005 00/M00 A2964 RMK SF8 SLP048 CYQY 172200Z 22013G20KT 15SM OVC031 07/04 A2927 RMK SC8 SLP916 CYQZ 172236Z AUTO 13004KT 1 3/4SM -SN OVC024 M04/M06 A2993 RMK SLP173 CYRA 172200Z 34005KT 15SM FEW070 M27/M30 A2988 RMK AC1 SLP155 CYRB 172200Z 11019KT 10SM -SN SCT032 BKN094 M23/M26 A3006 RMK SC3AC3 SLP191 CYRJ 172200Z 30010G15KT 20SM -SHSN BKN021 M08/M12 A2999 RMK SC7 CVCTV CLD EMBD SLP170 CYRL 172200Z 31007G15KT 15SM BKN014 BKN200 M04/M09 A2959 RMK SC6CI1 CI TR SLP043 CYRQ 172200Z AUTO 29004KT 9SM CLR M03/M09 A3002 RMK SLP171 CYRT 172219Z 13026G33KT 3/4SM -SN BLSN OVC021 M05/M05 A2955 RMK BLSN3SC5 VIS VRB 1/2-1 SLP012 CYRV 172200Z AUTO 15004KT 9SM BKN100 03/02 A2990 RMK SLP144 CYSB 172200Z 16009KT 15SM OVC120 M05/M09 A2997 RMK AC8 PRESFR SLP173 CYSC 172200Z AUTO 29008KT 9SM SCT033 M05/M08 A2998 RMK SLP167 CYSF 172225Z AUTO 29009KT 9SM SCT023 M16/M20 A2957 RMK SLP041 CYSJ 172200Z 30013G25KT 260V350 10SM OVC022 01/M03 A2955 RMK SC8 PRESRR SLP013 CYSK 172200Z 13023KT 12SM DRSN BKN020 M07/M11 A3009 RMK SC6 PRESFR SLP193 CYSM 172200Z 29010KT 12SM -SN DRSN BKN017 M15/M17 A2976 RMK SC7 SLP100 CYSN 172200Z 13005KT 15SM OVC110 02/M03 A3008 RMK AC8 PRESFR SLP193 CYSP 172200Z 19013G22KT 160V220 3/8SM -SN BLSN OVC003 00/00 A2965 RMK SF8 LAST STFD OBS/NEXT 181300UTC SLP062 CYSY 172200Z 11012KT 2SM -SN BR FEW015 OVC044 M18/M20 A2995 RMK SC2SC6 SLP154 CYTE 172222Z AUTO 13008KT 9SM -SN OVC033 M08/M13 A3033 RMK SLP278 CYTH 172200Z 26009KT 15SM -SN DRSN FEW020 OVC060 M12/M15 A2949 RMK SC2SC6 SLP010 CYTL 172211Z AUTO 26012G18KT 9SM -SN BKN024 OVC029 M03/M06 A2945 RMK SLP991 CYTQ 172200Z 02010KT 10SM BKN022 M08/M09 A3029 RMK SC6 LAST STFD OBS NEXT/181300 UTC SLP261 CYTR 172200Z 24007KT 15SM SCT140 BKN250 01/M06 A3014 RMK AC3CI4 SLP210 CYTS 172255Z 15012KT 1SM R03/P6000FT/D -SN VV005 M06/M08 A2989 RMK SN8 PRESFR SLP146 CYTZ 172200Z AUTO 17004KT 110V180 9SM OVC130 01/M04 A3010 RMK SLP199 CYUB 172200Z 19004KT 1SM BR BKN080 M24/M27 A2999 RMK FG3AS4 SLP157 CYUL 172200Z 27009G17KT 15SM FEW240 M02/M10 A3008 RMK CI1 SLP189 CYUS 172200Z AUTO 12013KT ////SM //// FEW042 BKN049 OVC075 ///// A//// CYUT 172213Z 11019G25KT 1SM -SN BLSN OVC013 M12/M14 A3015 RMK BLSN1ST7 SLP213 CYUX 172215Z 16018KT 4SM -SN BLSN SCT015 OVC047 M13/M16 A3030 RMK SC3SC5 SLP263 CYUY 172200Z VRB02KT 15SM FEW015 SCT100 BKN180 BKN200 M09/M11 A3002 RMK SC1AC3AC2CI2 SC TR SLP193 CYVC 172200Z 27012KT 6SM -SN DRSN OVC026 M12/M15 A2965 RMK SC8 SLP073 CYVL 172228Z AUTO 02006KT 9SM -SN OVC041 M17/M18 A2983 RMK SLP141 CYVM 172251Z AUTO VRB14KT 9SM CLR M18/M23 A3051 RMK SLP334 CYVO 172200Z 17003KT 15SM SCT130 BKN240 M10/M11 A3002 RMK AC4CI2 SLP199 CYVP 172254Z 03008KT 1SM R07/P6000FT/N -SHSN VV010 M06/M07 A3023 RMK SN8 CVCTV CLD PRSNT SLP242 CYVQ 172200Z VRB02KT 30SM SCT120 BKN140 BKN250 M21/M23 A2990 RMK AC4AC1CI2 SLP136 CYVR 172200Z 26004KT 30SM FEW014 FEW025 FEW100 BKN150 OVC250 07/04 A3011 RMK CF1CU1AC1AS3CS3 CF TR SLP199 CYVT 172200Z 29015KT 15SM DRSN BKN025 BKN080 BKN150 M12/M17 A2968 RMK SC5AC1AC1 SLP090 CYVV 172200Z 17009KT 15SM BKN100 OVC250 00/M04 A3000 RMK AC7CS1 SLP170 CYWA 172200Z 00000KT 15SM FEW100 BKN250 M03/M12 A3009 RMK AC1CI4 DA-1876FT SLP200 CYWE 172200Z AUTO 04005KT 9SM CLR M26/M29 A2978 RMK SLP142 CYWG 172200Z 29008KT 15SM FEW140 FEW250 M07/M11 A2972 RMK AC1CI1 AC TR CI TR SLP079 CYWH 172200Z 25010KT 15SM VCSH SCT012 BKN030TCU BKN090 08/03 A3013 RMK SF3TCU3AC1 SLP204 CYWJ 172200Z 31003KT 40SM MIFG FEW015 SCT170 BKN200 M21/M24 A2983 RMK SC1AS3CS4 SC TR MIFG NE SLP132 CYWK 172200Z 02009KT 1 1/2SM -SN VV014 M11/M12 A2978 RMK SN8 /S03/ SLP126 CYWL 172200Z 15004KT 15SM BKN070 BKN220 M04/M08 A2987 RMK AC6CI1 SLP170 CYWY 172200Z 36002KT 6SM -SN BR OVC010 M22/M25 A2985 RMK SC8 SLP131 CYXC 172200Z 27007KT 240V300 25SM VCSH FEW025 FEW040TCU SCT060 04/M05 A2977 RMK CF1TCU2SC2 CF TR VIS W 15 SLP112 CYXE 172200Z 30010KT 15SM -SN FEW020 OVC040 M11/M14 A2974 RMK SC2SC6 SLP118 CYXH 172200Z 33007KT 30SM FEW180 FEW260 M10/M13 A2974 RMK AC1CI1 SLP120 CYXJ 172200Z 14005KT 15SM VCFG SCT070 OVC110 M16/M19 A2968 RMK AC3AC5 FG IN RIVER VLY SLP115 CYXL 172200Z 30008KT 15SM OVC012 M00/M02 A2955 RMK SC8 SLP031 CYXP 172200Z 11007KT 15SM FEW120 M17/M23 A3048 RMK AC1 SLP327 CYXQ 172200Z 05002KT 7SM -SN OVC040 M15/M17 A2961 RMK SC8 PCPN VRY LGT VIA CYXY SLP088 CYXR 172200Z AUTO 13003KT 9SM OVC100 M07/M08 A3000 RMK SLP181 CYXS 172256Z AUTO 18011KT 1 3/4SM -SN OVC024 M05/M06 A2987 RMK SLP162 CYXT 172200Z 04003KT 2SM -SN FEW008 BKN012 OVC027 M03/M05 A2983 RMK SF1SC5SC2 /S01/ SLP116 CYXU 172200Z 13008KT 15SM SCT140 BKN260 01/M01 A3003 RMK AC3CI3 SLP181 CYXX 172200Z 18010G16KT 25SM BKN027 BKN060 BKN220 08/03 A3011 RMK CU5SC2CI1 CI TR SLP199 CYXY 172200Z 35004KT 40SM BKN140 BKN240 M14/M17 A2955 RMK AC5CI2 SLP071 CYXZ 172228Z 17012G18KT 1/4SM SN VV007 M01/M02 A2971 RMK SN8 SLP081 CYYB 172200Z 13006KT 30SM BKN090 OVC240 M06/M09 A3001 RMK AC6CI2 SLP187 CYYC 172200Z 04004KT 5SM HZ FEW010 M13/M16 A2967 RMK ST1 SLP135 CYYD 172200Z 16003KT 100V170 25SM FEW060 OVC110 M08/M09 A2980 RMK SC1AC7 SLP126 CYYE 172200Z 12002KT 15SM BKN060 BKN140 OVC260 M20/M22 A2974 RMK SC5AC2CS1 SLP118 CYYF 172200Z 00000KT 15SM BKN075 08/M00 A2996 RMK CU6 SLP157 CYYG 172200Z 28018G30KT 15SM -SHRA OVC014 03/01 A2925 RMK SC8 SLP907 CYYH 172200Z 10007KT 7SM -SN FEW056 SCT062 BKN080 M19/M22 A3005 RMK SC2SC2AC3 SLP183 CYYJ 172243Z 25009KT 30SM FEW026TCU FEW048 SCT090 BKN250 09/03 A3013 RMK TCU1SC2AC1CI4 TCU TR SLP206 CYYL 172200Z AUTO 28011G20KT 9SM -SN OVC060 M13/M15 A2945 RMK SLP009 CYYN 172250Z AUTO 33005KT 9SM SCT013 M11/M14 A2970 RMK SLP115 CYYQ 172234Z 27010KT 2SM -SN OVC029 M11/M13 A2933 RMK SC8 VIS VRB 1 - 3 SLP936 CYYR 172247Z 06018G24KT 15SM SCT006 OVC012 M01/M03 A2983 RMK SF3SF5 SLP107 CYYT 172200Z 13009G15KT 1/4SM R11/1600FT/N R16/1600V2200FT/N -DZ FG VV002 01/01 A2969 RMK FG8 SLP063 CYYU 172232Z 17013KT 1 1/4SM -SN DRSN OVC009 M06/M08 A2984 RMK SN4SC4 SLP125 CYYW 172241Z AUTO 23004KT 190V260 6SM BR BKN012 OVC019 00/M00 A2956 RMK SLP029 CYYY 172200Z 32025G32KT 3SM -SN OVC028 M02/M04 A2969 RMK SC8 SLP057 CYYZ 172200Z 16008KT 15SM BKN130 BKN220 01/M04 A3009 RMK AC6CI1 SLP200 CYZE 172200Z AUTO 14011G20KT 9SM OVC018 02/M01 A2992 RMK SLP144 CYZF 172200Z 35006KT 15SM FEW010 FEW220 M22/M25 A2980 RMK SC1CI1 SC TR CI TR SLP121 CYZG 172200Z 17014KT 15SM FEW020 FEW080 BKN200 M16/M19 A3029 RMK SC1AS1CI3 SNW CVR MUCH LOOSE LAST STFD OBS/NEXT 181300 UTC SLP287 CYZH 172200Z AUTO 32004KT 9SM CLR M13/M17 A2977 RMK SLP132 CYZP 172257Z AUTO 17014KT 9SM FEW029 BKN037 OVC048 06/05 A2963 RMK SLP037 CYZR 172200Z AUTO 17011G18KT 9SM BKN110 OVC130 05/01 A2998 RMK PRESFR SLP161 CYZS 172227Z 11020KT 1SM -SN DRSN OVC019 M09/M10 A3010 RMK SC8 SLP201 CYZT 172200Z 11009KT 20SM FEW020 BKN050 OVC120 06/03 A3002 RMK CF1SC5AC2 SLP167 CYZU 172200Z 30007KT 15SM FEW240 M11/M15 A2973 RMK CI1 CI TR SLP130 CYZV 172200Z CCA 34010KT 5SM -SN OVC017 01/M01 A2958 RMK SN2SC6 SLP020 CYZW 172200Z 09006KT 8SM -SN FEW013 SCT030 OVC085 M16/M19 A2957 RMK SF1SC3AC4 SLP081 CYZX 172200Z 28020G29KT 15SM BKN024 04/00 A2951 RMK SC7 WNDY HILL UNAVBL SLP995 CYZY 172200Z AUTO 15007KT 9SM SCT037 M09/M12 A2982 RMK SLP152 CZBF 172200Z 32012G20KT 280V350 8SM FEW006 OVC035 02/M00 A2941 RMK SF1SC8 SF TR SLP965 CZCP 172214Z AUTO 22007KT ////SM //// FEW019 BKN035 OVC065 M15/M17 A2992 CZCR 172200Z AUTO 30015G22KT 02/M01 RMK AO1 SOG 00 3025 PK WND 30024/2149 SLP988 T00171008 CZDB 172200Z AUTO 25008KT 03/02 RMK AO1 1034 SLP951 T00310017 50007 CZEL 172200Z AUTO 16005KT M01/M04 RMK AO1 SLP190 T10081041 56026 CZEM 172000Z 10006KT 15SM SCT100 BKN200 M10/M15 A3011 RMK AS4CI3 LAST STFD OBS/NEXT 191500 UTC SLP200 CZEV 172200Z AUTO 34003KT M25/M27 RMK AO1 SOG 13 3026 SLP162 T12471274 CZFA 172200Z VRB02KT 6SM -SN BKN042 BKN051 OVC075 M19/M22 A2960 RMK SC5SC2AC1 SLP103 CZFM 172200Z 32004KT 260V020 35SM BKN023 M24/M27 A3001 RMK SC5 VIA CYWG SLP168 CZFN 172200Z 05004KT 20SM BKN130 M20/M23 A2987 RMK AS7 SLP131 CZFS 172000Z AUTO 00000KT M25/M28 RMK AO1 SOG 07 1012 SLP118 T12511276 CZHY 172200Z AUTO 26006KT M19/M21 RMK AO1 SOG 05 1020 SLP123 T11891208 CZKD 172200Z AUTO 28010G16KT M12/M14 RMK AO1 SOG 29 3031 PK WND 28017/2129 SLP987 T11191142 50003 CZMD 172200Z AUTO 25013G21KT 9SM -SN BKN020 OVC025 M06/M08 A2948 RMK SLP007 CZMJ 172200Z AUTO 33003KT M11/M15 RMK AO1 SOG 04 3012 SLP115 T11141149 CZMT 172200Z 16015G22KT 15SM -RA FEW004 SCT020 SCT100 BKN200 OVC240 05/03 A2959 RMK CF1SC3AC1CI3CC1 CF TR SLP023 CZMU 172100Z AUTO 30007KT M14/M18 RMK AO1 SOG 09 T11351184 CZOL 172200Z AUTO 33003KT M13/M17 RMK AO1 T11331169 CZPC 172234Z AUTO 25021KT 9SM 01/M05 A2967 RMK CLD MISG SLP088 CZPS 172200Z AUTO 30002KT M11/M12 RMK AO1 T11061117 50005 CZSJ 172222Z AUTO 29010G15KT 240V300 9SM -SN FEW025 BKN040 M08/M12 A2955 RMK SLP030 CZSM 172200Z AUTO 25006KT M15/M17 RMK AO1 SOG 18 3024 SLP093 T11451168 CZSP 172100Z AUTO 25017G25KT 04/03 RMK AO1 2PAST HR 3004 PK WND 26027/2048 SLP891 P0001 T00400028 50002 CZST 172200Z 00000KT 2SM -SN OVC018 M04/M06 A2980 RMK SC8 SLP095 CZTB 172200Z AUTO 00000KT M00/M00 RMK AO1 2PAST HR SOG 01 3002 SLP046 P0001 T10041001 50039 CZUM 172254Z AUTO 04012G18KT 2 1/2SM -SN FEW013 OVC026 M04/M05 A2974 RMK SLP102 CZVL 172200Z AUTO 27003KT 9SM CLR M13/M17 A2977 RMK SLP136 CZZJ 172200Z AUTO 26002KT M09/M13 RMK AO1 SOG 11 2016 SLP129 T10931129 DAAD 171800Z 22004KT CAVOK 14/04 Q1019 DAAE 172200Z 23009KT 9999 FEW023 11/09 Q1020 DAAG 172230Z 16001KT 9999 FEW023 07/06 Q1021 DAAJ 172200Z 12006KT CAVOK 14/M03 Q1018 DAAP 172200Z 11003KT CAVOK 11/M06 Q1018 DAAS 172200Z 00000KT CAVOK 04/02 Q1020 DAAT 172230Z 10006KT CAVOK 11/M12 Q1019 DAAV 172200Z 17002KT 9999 FEW020 12/11 Q1019 DAAY 172200Z 00000KT CAVOK 07/M06 Q1023 DABB 172230Z 23005KT 8000 FEW023 SCT033 13/10 Q1018 DABC 172230Z 00000KT 9999 FEW030 06/04 Q1020 DABS 172200Z 28004KT 9999 FEW040 07/04 Q1020 DABT 172200Z 06003KT 9999 FEW023 04/01 Q1020 DAFH 171800Z 00000KT CAVOK 12/M02 Q1019 DAOB 172200Z 17005KT CAVOK 02/M05 Q1020 DAOF 172200Z 18006KT CAVOK 17/M11 Q1017 DAOI 172200Z 00000KT CAVOK 12/09 Q1019 DAOL 172200Z 07004KT CAVOK 08/01 Q1020 DAON 172230Z VRB02KT CAVOK 08/05 Q1020 DAOO 172230Z 35002KT 6000 NSC 09/06 Q1019 DAOR 172200Z 05001KT CAVOK 15/M02 Q1020 DAOV 172200Z 00000KT CAVOK 06/02 Q1020 DAOY 172200Z 15004KT CAVOK 03/M09 Q1020 DAUA 172200Z 03009KT CAVOK 14/M02 Q1018 DAUB 172200Z 04004KT CAVOK 12/03 Q1019 DAUE 172200Z 00000KT CAVOK 08/M01 Q1020 DAUG 172200Z 00000KT CAVOK 12/02 Q1020 DAUH 172230Z 00000KT CAVOK 10/08 Q1019 DAUK 172200Z 14003KT CAVOK 12/07 Q1019 DAUL 172200Z 00000KT CAVOK 07/M02 Q1020 DAUO 172200Z 20004KT CAVOK 12/07 Q1018 DAUT 172200Z 05009KT CAVOK 14/M01 Q1018 DAUU 172200Z 00000KT CAVOK 11/07 Q1019 DAUZ 172200Z 03008KT CAVOK 09/M07 Q1019 DBBB 172200Z 23010KT 9999 SCT011 28/25 Q1010 NOSIG DFFD 172200Z 00000KT 4500 HZ NSC 24/11 Q1012 BECMG 6000 NSW DFOO 172200Z 32004KT CAVOK 27/10 Q1013 DGAA 172200Z 23011KT 9999 FEW016 BKN022 BKN032 28/25 Q1012 NOSIG DIAP 172230Z 26006KT 9999 SCT012 28/25 Q1011 NOSIG DIBK 172200Z 20006KT 9999 FEW010 25/24 Q1014 NOSIG DIDL 172100Z ///// CAVOK 26/23 Q1013 NOSIG DIKO 172200Z 18006KT 8000 NSC 26/19 Q1013 NOSIG DIMN 172200Z 00000KT CAVOK 23/22 Q1014 NOSIG DIOD 172200Z 04002KT 8000 FEW013 22/20 Q1014 NOSIG DISP 172200Z 32004KT 9999 SCT013 25/24 Q1012 NOSIG DIYO 172100Z 22004KT 9999 SCT010 26/23 Q1012 NOSIG DNKN 172000Z VRB02KT CAVOK 25/10 Q1014 NOSIG DNPO 172100Z 23004KT 9999 SCT008 27/25 Q1010 NOSIG DRRM 171800Z VRB02KT CAVOK 32/09 Q1010 DRRN 172200Z 33002KT 5000 DU NSC 27/03 Q1010 NOSIG DRRT 171800Z 02002KT CAVOK 32/08 Q1009 DRZA 171800Z 14008KT CAVOK 30/00 Q1011 DRZR 171800Z 00000KT CAVOK 30/08 Q1009 DTKA 172200Z 30009KT 8000 BKN020 16/09 Q1018 NOSIG DTMB 172230Z 23008KT 9999 FEW020 14/09 Q1017 DTNH 172230Z 29007KT CAVOK 12/09 Q1016 DTTA 172230Z 24005KT 9999 SCT023 13/09 Q1017 NOSIG DTTB 172200Z 29006KT 9999 FEW020 14/10 Q1017 DTTD 172200Z AUTO 28005KT 250V310 NCD 12/06 Q1019 DTTF 172200Z 06005KT 9999 SCT026 10/05 Q1018 DTTG 172200Z 22009KT 8000 SCT020 14/08 Q1018 NOSIG DTTJ 172230Z 27011KT 9999 FEW023 18/11 Q1017 NOSIG DTTK 172200Z 24002KT 9999 FEW023 13/08 Q1017 DTTL 172200Z AUTO 31004KT 210V350 NCD 15/12 Q1015 DTTX 172200Z 27004KT 9999 SCT020 12/07 Q1016 NOSIG DTTZ 172200Z 24008KT 9999 FEW030 14/07 Q1018 NOSIG DXNG 172100Z 00000KT CAVOK 26/21 Q1014 DXSK 172100Z 00000KT CAVOK 27/21 Q//// DXXX 172200Z 23009KT 9999 FEW012 28/25 Q1011 NOSIG EBAW 172250Z AUTO 23003KT CAVOK 02/00 Q1026 EBBE 172225Z AUTO 21005KT 9999 FEW039/// 04/00 Q1026 BLU EBBL 172237Z AUTO VRB02KT 4600 SCT033/// 02/01 Q1026 GRN EBBR 172250Z 22005KT 9999 FEW036 02/01 Q1026 NOSIG EBCI 172250Z 25003KT 8000 FEW040 02/01 Q1026 NOSIG EBCV 172225Z AUTO 19003KT 7000 NCD 01/01 Q1027 WHT EBDT 172225Z AUTO 25004KT 9999 FEW030/// 04/02 Q1026 BLU EBFN 172225Z AUTO 21004KT 9999 FEW035/// 02/01 Q1027 BLU EBFS 172225Z AUTO 29003KT 9999 NCD M00/M02 Q1026 BLU EBLB 172225Z AUTO VRB01KT 9999 FEW013/// M04/M04 Q1025 BLU EBLG 172250Z VRB01KT 9999 SCT043 02/00 Q1026 NOSIG EBOS 172250Z 21006KT 9999 BKN035 02/00 Q1026 NOSIG EDDB 172250Z 19004KT 160V220 9999 SCT046 02/01 Q1023 NOSIG EDDC 172250Z 20006KT 9999 0900S R22/P2000N PRFG NSC M00/M00 Q1023 EDDE 172250Z 24008KT 7000 BKN003 02/02 Q1023 EDDF 172250Z 24004KT 2800 BR BKN004 05/05 Q1025 TEMPO 3000 EDDG 172250Z 22004KT 9999 FEW040 SCT170 05/02 Q1024 NOSIG EDDH 172250Z 23012KT 9999 FEW035 BKN050 06/03 Q1020 NOSIG EDDK 172250Z VRB02KT 9999 MIFG NSC 00/00 Q1026 NOSIG EDDL 172250Z 20003KT 9999 BKN048 03/01 Q1025 NOSIG EDDM 172250Z 21001KT 9999 FEW019 SCT045 BKN065 02/01 Q1024 NOSIG EDDN 172250Z 08002KT 4000 BR BKN003 OVC004 03/03 Q1024 EDDP 172250Z 22005KT 9999 SCT023 BKN039 03/02 Q1023 NOSIG EDDR 172250Z AUTO VRB01KT 1100 R09/P2000N // OVC006/// 04/04 Q1024 EDDS 172250Z 16001KT 3300 BR FEW002 BKN004 04/04 Q1024 EDDT 172250Z 24005KT 9999 FEW045 01/M00 Q1022 EDDV 172250Z 23005KT CAVOK 05/01 Q1023 EDDW 172250Z 23008KT 9999 FEW026 BKN052 04/02 Q1022 EDFH 172250Z 30002KT 9999 FEW030 BKN036 02/02 Q1024 EDFM 171950Z 00000KT 5000 // BKN006 05/05 Q1026 EDGS 171950Z 32004KT 9999 FEW031 02/01 Q1024 EDHI 172250Z AUTO 23011KT 9999 OVC050/// 06/03 Q1020 EDHL 171720Z 22006KT CAVOK 06/04 Q1023 EDJA 172120Z 01004KT 360V060 0400 R24/0500N FG VV/// 02/02 Q1023 EDLN 171920Z VRB02KT CAVOK 02/01 Q1026 EDLP 172250Z 20009KT 9999 BKN048 04/00 Q1024 EDLV 172250Z 22004KT CAVOK 02/01 Q1024 EDLW 172050Z 19008KT 9999 SCT046 02/00 Q1026 EDMA 172250Z AUTO 13002KT 5000 // OVC057/// 01/01 Q1024 EDMO 171920Z 02002KT 4000 BR BKN004 BKN019 01/01 Q1024 EDNY 172250Z AUTO VRB02KT 5000 BKN007 OVC009 04/03 Q1024 EDQM 171850Z VRB01KT 5000 BR BKN003 OVC011 03/02 Q1024 EDSB 172250Z AUTO VRB01KT 6000 // OVC006/// 05/04 Q1025 EDTL 171850Z 03005KT 3200 BR OVC002 04/04 Q1026 EDTY 171850Z VRB01KT 4700 BR OVC003 04/03 Q1025 EDVE 172050Z 22005KT CAVOK 02/02 Q1024 EDVK 171850Z VRB02KT 7000 FEW002 SCT027 BKN045 02/02 Q1025 EEKE 172250Z AUTO 26009KT 230V300 9999NDV OVC022 07/04 Q1009 EETN 172250Z 22011KT 9999 FEW015 FEW021CB BKN038 05/04 Q1004 R08/290195 EETU 172250Z AUTO 22013KT 9999 FEW016/// OVC035/// 05/02 Q1008 EFET 172250Z AUTO 03006KT 360V070 9999 OVC005 M11/M12 Q0995 EFHA 172250Z AUTO 22009KT 9999 BKN022 02/00 Q0998 EFHK 172250Z 21009KT 9999 FEW035 03/01 Q1002 NOSIG EFIV 172250Z AUTO 05004KT 1700 BR OVC003 M11/M12 Q0997 EFJO 172250Z AUTO 21008KT 180V250 9999 OVC021 02/M00 Q0996 EFJY 172250Z AUTO 25010KT 190V280 9999 BKN013 02/00 Q0996 EFKE 172250Z 02006KT 3500 -SN OVC007 M01/M02 Q0988 EFKI 172250Z AUTO 25017G27KT 220V300 1700 -SN OVC007 M00/M01 Q0989 EFKK 172250Z 25006KT 220V280 9999 SCT021 BKN025 OVC029 02/M00 Q0993 EFKS 172250Z AUTO 06006KT 010V120 2000 SN OVC016 M04/M05 Q0989 EFKT 172250Z AUTO 01007KT 340V040 9999 -SHSN OVC008 M10/M12 Q0994 EFKU 172250Z AUTO 22012KT 9999 OVC022 02/00 Q0994 EFLP 172250Z AUTO 21008KT 9999 OVC032 02/01 Q1000 EFMA 172250Z AUTO 22011KT 9999 FEW020 06/03 Q1002 EFMI 172220Z AUTO 23008KT 180V270 9999 BKN024 02/00 Q0999 EFOU 172250Z AUTO 25006KT 7000 -RA BKN003/// OVC010/// 01/01 Q0988 EFPO 172250Z AUTO 22004KT 9999 BKN021/// BKN025/// 04/01 Q0999 EFRO 172250Z AUTO 05010KT 2400 -SN FEW023 SCT039 OVC044 M04/M05 Q0990 EFSA 172250Z AUTO 23006KT 160V270 9999 OVC022 03/M00 Q0998 EFSI 172250Z AUTO 21003KT CAVOK 00/M01 Q0996 EFTP 172250Z AUTO 21007KT CAVOK 02/01 Q0999 EFTU 172250Z AUTO 24008KT 200V260 9999 BKN028/// 04/02 Q1001 EFUT 172250Z AUTO 22008KT 9999 OVC032 02/00 Q1000 EFVA 172250Z AUTO 26005KT 230V290 CAVOK 02/M01 Q0995 EGAA 172220Z 23011KT 9999 FEW004 BKN044 06/05 Q1023 EGAC 172250Z AUTO 17010KT 9999 NCD 06/05 Q1023 EGAE 172050Z 24014KT 9999 FEW018 SCT034 07/05 Q1023 EGBB 172250Z 23004KT 200V260 9999 BKN037 06/01 Q1026 EGBJ 171850Z 24005KT 9999 FEW040 06/03 Q1028 EGCC 172250Z AUTO 19004KT 160V220 9999 FEW027 SCT031 BKN042 05/02 Q1025 NOSIG EGCK 172250Z AUTO 26013KT 9999 BKN028/// OVC043/// 10/04 Q1026 EGCN 172250Z 19007KT CAVOK 03/02 Q1024 EGDM 172150Z AUTO 16002KT 9999 NCD 01/00 Q1027 EGDR 172250Z 03003KT CAVOK 03/M00 Q1029 BLU EGDX 172150Z AUTO 36003KT 9999 ///////// 06/03 Q1027 EGDY 172150Z AUTO 12003KT 9999 BKN035/// SCT190/// 01/00 Q1028 EGEC 171720Z 29022KT 9999 -RA FEW024 BKN039 09/06 Q1022 EGFF 172250Z AUTO 31004KT 9999 OVC030 06/03 Q1028 EGGD 172250Z AUTO 23003KT 9999 SCT022 OVC031 05/02 Q1027 EGGP 172250Z 25013KT 9999 BKN041 08/04 Q1025 EGGW 172250Z AUTO 22004KT 9999 OVC035 05/02 Q1026 EGHC 171720Z 06006KT CAVOK 05/01 Q1028 EGHE 171720Z 03006KT 9999 FEW022 08/03 Q1029 EGHH 172250Z VRB01KT CAVOK M01/M02 Q1028 EGHI 172220Z 00000KT 9999 FEW035 M01/M01 Q1028 EGHQ 172020Z 13006KT CAVOK 04/M01 Q1029 EGJA 171820Z 03005KT 9999 FEW018 08/// Q1028 EGJB 172120Z 02003KT 9999 FEW020 07/04 Q1028 EGJJ 172250Z AUTO 10003KT CAVOK 05/03 Q1028 EGKA 171950Z 01002KT CAVOK 01/M01 Q1028 EGKB 172220Z 24005KT CAVOK 03/00 Q1027 EGKK 172250Z VRB01KT 9999 BKN035 M00/M01 Q1027 EGLC 172250Z AUTO 24007KT 9999 OVC039 07/02 Q1027 EGLF 172050Z VRB02KT CAVOK 01/01 Q1028 EGLL 172250Z AUTO 28007KT 9999 OVC038 06/02 Q1027 NOSIG EGMC 172250Z 25005KT 9999 SCT039 02/M00 Q1027 EGMD 172250Z AUTO 29005KT 9999 NCD 01/M00 Q1027 EGNC 171750Z 23015KT 9999 FEW015 SCT021 07/04 Q1022 EGNH 172050Z 27019KT 9999 SCT023 BKN046 09/05 Q1024 EGNJ 172250Z AUTO 20013KT 9999 SCT023/// 03/02 Q1023 EGNM 172250Z 28017KT 260V350 9999 FEW035 06/03 Q1021 EGNR 172050Z 24009KT 9999 SCT046 07/02 Q1026 EGNS 172250Z 26019KT 230V300 9999 FEW018 BKN047 09/06 Q1023 EGNT 172250Z 26015KT 9999 FEW020 BKN036 07/04 Q1018 EGNV 172120Z 18009KT 9999 FEW045 06/02 Q1021 EGNX 172250Z 22011KT 9999 BKN040 04/01 Q1025 EGOM 172150Z AUTO 26023G35KT 7000 -RA BKN008/// SCT015/// 05/05 Q1018 EGOP 172150Z AUTO 30001KT 9999 // OVC032/// 04/03 Q1028 EGOS 172150Z AUTO 26007KT 9999 BKN040/// 05/01 Q1026 EGOV 172150Z AUTO 26011KT 9999 FEW028/// BKN046/// 08/04 Q1026 EGPA 172250Z AUTO 28017KT 9999 FEW030/// 05/02 Q1008 EGPB 172250Z AUTO 30026KT 9999 BKN031/// 06/M02 Q1003 EGPC 172250Z AUTO 27020KT 8000 RA FEW013/// 03/02 Q1009 EGPD 172250Z AUTO 28009KT 9999 SCT031/// SCT043/// //////TCU 06/02 Q1012 NOSIG EGPE 172250Z AUTO 27018KT 9999 -RA FEW016/// SCT028/// 05/04 Q1014 EGPF 172250Z AUTO 24011KT 9999 -RA SCT033/// BKN040/// //////TCU 07/05 Q1018 EGPH 172250Z 25014KT 9999 SCT028 07/04 Q1017 EGPI 172220Z AUTO 28020KT 9999 FEW028/// 09/06 Q1020 RERA EGPK 172250Z 28018KT 9000 FEW010 SCT025 09/05 Q1020 EGPL 172250Z AUTO 29025G35KT 9999 FEW028/// SCT033/// 07/03 Q1017 EGPM 172250Z AUTO 28020KT 9999 FEW004/// SCT039/// 05/M01 Q1001 EGPN 172020Z 25017KT 9999 FEW040 06/04 Q1015 EGPO 172250Z AUTO 29020KT 9999 FEW039/// 06/03 Q1014 EGPU 172220Z AUTO 28024KT 250V310 9999 FEW034/// 08/05 Q1019 RERA EGQK 172150Z AUTO 24012KT 9999 FEW021/// SCT028/// BKN041/// 06/04 Q1013 RERA EGQL 172250Z 26014KT CAVOK 05/03 Q1014 BLU EGQM 172250Z AUTO 22008KT 9999 FEW027/// BKN190/// 07/04 Q1017 EGQS 172250Z 28023G36KT 5000 SHRA SCT018CB SCT024 OVC046 06/03 Q1012 RESHRA WHT EGSC 171750Z 25007KT 9999 FEW035 05/01 Q1027 EGSH 172250Z AUTO 23008KT 9999 NCD 03/02 Q1025 EGSS 172250Z AUTO 26005KT 9999 OVC035 04/01 Q1026 EGTC 171750Z 25005KT CAVOK 05/02 Q1027 EGTE 172250Z 04004KT 9999 FEW030 M01/M02 Q1029 EGTK 172220Z 25006KT 9999 BKN038 05/02 Q1027 EGUB 172150Z AUTO 18004KT 9999 // BKN038/// 04/02 Q1027 EGUL 172256Z AUTO 24010KT 9999 SCT043 02/02 A3027 RMK AO2 SLP254 T00200020 $ EGUN 172256Z AUTO 24006KT 9999 SCT042 03/03 A3028 RMK AO2 SLP257 T00330033 $ EGUW 172150Z AUTO 25006KT 9999 BKN039/// 01/M00 Q1026 EGVA 172256Z AUTO 26003KT 9999 OVC038 04/01 A3033 RMK AO2 SLP278 T00390014 $ EGVN 172150Z 25004KT 9999 BKN036 04/02 Q1027 NOSIG EGVO 172150Z AUTO 24004KT 9999 BKN033/// 04/01 Q1027 EGVP 172150Z AUTO 22001KT 9999 // SCT031/// 03/01 Q1028 EGWU 172150Z AUTO 25004KT 9999 // OVC038/// 05/02 Q1027 EGXC 172250Z 22009KT 9999 FEW040 02/01 Q1024 BLU EGXE 172150Z AUTO 25012KT 9999 NCD 07/03 Q1021 EGXP 172150Z AUTO 23013KT 9999 // NCD 04/02 Q1024 EGXS 172150Z AUTO 22012KT 9999 // NCD 03/02 Q1023 EGXT 172150Z AUTO 21005KT 9999 NCD 01/M00 Q1025 EGXU 172150Z AUTO 25008KT 9999 // FEW021/// 06/03 Q1022 EGXV 172250Z AUTO 21009KT 9999 FEW025/// 04/02 Q1022 EGXW 172250Z 22010KT 9999 FEW032 04/01 Q1024 BLU EGXZ 172150Z AUTO 26009KT 9999 NCD 07/04 Q1022 EGYD 172150Z AUTO 25010KT 9999 // BKN033/// 05/02 Q1025 EGYM 172150Z AUTO 24006KT 9999 FEW045/// 02/01 Q1025 EGYP 172250Z 17018KT 9999 BKN013 06/04 Q1003 GRN BECMG SCT015 WHT EHAK 172255Z AUTO 26032KT 9999 -RADZ FEW019/// SCT022/// BKN030/// 09/05 Q1015 EHAM 172255Z 25008KT 9999 FEW035 BKN042 08/02 Q1024 NOSIG EHBK 172255Z AUTO 19005KT 9999 BKN041 02/01 Q1025 EHDL 172255Z AUTO 22007KT 160V250 9999 OVC041 04/02 Q1024 BLU EHDV 172255Z AUTO VRB27KT 9999 SCT021/// BKN026/// BKN029/// 09/04 Q1019 EHEH 172255Z AUTO 21005KT 9999 NCD 01/00 Q1025 BLU EHFD 172255Z AUTO ///34KT 9999 FEW020/// SCT023/// BKN029/// 10/05 Q1016 EHFS 172225Z AUTO 27008KT 230V310 9999 BKN036 BKN041 08/03 Q1025 EHFZ 172255Z AUTO 27022KT 9999 SCT024 SCT028 BKN043 10/04 Q1019 EHGG 172255Z AUTO 23009KT 9999 OVC043 06/04 Q1022 EHGR 172255Z AUTO 21007KT 180V280 9999 SCT040 02/01 Q1025 BLU EHHW 172255Z AUTO 28022KT //// // ///////// 10/03 Q1019 RE// EHJA 172255Z AUTO 25031KT 9999 FEW021/// SCT025/// 09/04 Q1020 EHJR 172155Z AUTO 28024G28KT //// ///////// 09/02 Q1022 W12/H19 EHKD 172255Z AUTO 25015KT 9999 FEW027 SCT031 BKN038 09/03 Q1022 BLU EHKV 172255Z AUTO 27025KT 9999 SCT023 SCT029 BKN039 09/03 Q1022 EHLW 172255Z AUTO 22008KT 9999 FEW028 SCT032 BKN039 07/05 Q1022 BLU EHMA 172255Z AUTO 25016KT 9999 FEW030 SCT043 BKN047 09/04 Q1021 EHMG 172255Z AUTO 25025KT 9999 FEW019 10/05 Q1020 EHPG 172255Z AUTO VRB19KT 9999 FEW029 BKN032 OVC037 09/// Q1024 EHQE 172255Z AUTO 27020KT 9999 SCT022 BKN026 BKN033 09/04 Q1022 EHRD 172255Z AUTO 24006KT 9999 BKN034 OVC041 07/03 Q1024 NOSIG EHSA 172155Z AUTO 25015G18KT 9999 ///////// 09/01 Q1025 W13/H10 EHSC 172155Z AUTO 28015G20KT 9999 ///////// 09/01 Q1024 W12/H10 EHVK 172255Z AUTO 22007KT 9999 BKN041 02/01 Q1025 BLU EHVL 172255Z AUTO 28022KT 9999 FEW029 OVC042 09/03 Q1021 BLU EHWO 172255Z AUTO VRB02KT 9999 BKN038 01/01 Q1025 BLU EICK 172230Z 23007KT 9999 -DZ SCT013 BKN022 08/07 Q1027 NOSIG EIDL 171930Z 29014KT 9999 FEW031 SCT038 10/06 Q1024 EIDW 172230Z 23009KT 9999 FEW027 SCT042 05/02 Q1026 NOSIG EIKN 172030Z 27004KT 0800 -DZ FG OVC002 06/06 Q1025 NOSIG EIKY 171930Z 24003KT 9999 FEW019 BKN023 08/07 Q1027 EIME 172200Z 23013KT 9999 FEW015 BKN034 05/03 Q1026 EINN 172230Z 12007KT 8000 -DZ FEW008 SCT012 BKN015 08/07 Q1026 TEMPO BKN012 EIWF 172030Z VRB02KT 9999 SCT026 BKN036 07/05 Q1028 EKAH 172250Z AUTO 23007KT 170V280 9999NDV FEW038/// FEW060/// 06/04 Q1012 EKBI 172250Z AUTO 22008KT 9999NDV FEW051/// 05/04 Q1014 EKCH 172250Z 23016KT 9999 FEW015 BKN170 07/04 Q1015 NOSIG EKEB 172250Z AUTO 26014KT 9999NDV FEW042/// 08/04 Q1014 EKKA 172250Z AUTO 24011KT 9999NDV -SHRA BKN021/// BKN023/// BKN098/// 07/05 Q1012 EKRK 172250Z AUTO 23013KT 9999NDV FEW038/// BKN180/// 06/04 Q1015 EKRN 172250Z AUTO 24020KT 9999NDV FEW012/// FEW027/// BKN210/// 07/05 Q1017 EKSB 172250Z AUTO 22007KT 190V270 9999NDV FEW062/// 07/04 Q1016 EKSP 172250Z 24012KT 9999 FEW030CB BKN035 06/04 Q1015 EKVD 172250Z AUTO 24009KT //// ///////// 06/04 Q1015 EKVG 172250Z AUTO 30035G48KT 9999NDV -SHRA SCT040/// 04/M03 Q1003 RMK SCT044/// WIND 850FT 32051G67KT EKYT 172250Z AUTO 24014KT 9999NDV FEW027/// 07/05 Q1009 ELLX 172250Z 34005KT 2500 BR FEW000 BKN003 04/04 Q1025 NOSIG ENAL 172250Z AUTO 22021KT 9999 SCT033/// BKN064/// 05/01 Q0992 RESHUP REUP ENAN 172250Z AUTO 13012KT 9999 SCT053/// BKN076/// 02/M03 Q0992 ENAT 172250Z 16002KT 9999 FEW008 BKN012 M07/M08 Q1000 RMK WIND 700FT 13005KT ENBL 172150Z 19005KT 4000 SHSN VV010 01/M01 Q0996 ENBN 172250Z AUTO 17013KT 9999NDV FEW022/// SCT037/// BKN046/// 03/M00 Q0991 ENBO 172220Z 07017KT CAVOK 00/M02 Q0990 NOSIG ENBR 172250Z 26014G26KT 220V300 9999 SHRA FEW015CB SCT030 BKN050 05/M00 Q0999 RMK WIND 1200FT 27027G39KT ENBS 172050Z 15002KT 9999 FEW015 SCT023 BKN042 M04/M05 Q0998 ENBV 172050Z 23008KT 2000 SHSN VV006 M03/M04 Q0999 ENCN 172250Z AUTO 23008KT 9999 -DZ FEW020/// SCT035/// BKN049/// 05/03 Q1004 REDZ RERA ENDR 172220Z AUTO 22035KT 05/02 Q0986 ENDU 172250Z AUTO VRB01KT 9999 SCT090/// M05/M07 Q0994 RMK WIND 1100FT 12009KT WIND 2200FT 09016KT ENEV 172250Z AUTO 13006KT 080V170 9999 NCD 00/M05 Q0992 RMK WIND 1400FT 10015KT ENFB 172250Z AUTO 27032KT 9999NDV SCT031/// BKN150/// 06/M02 Q0997 W///S6 ENFL 172250Z AUTO 26016G27KT 9999NDV -SHRASN FEW020/// SCT050/// BKN074/// 04/M00 Q0996 ENGC 172150Z 29024KT 9999 VCSH FEW020CB SCT100 04/M01 Q0997 W07/S6 ENGM 172250Z 21009KT CAVOK 02/M01 Q0999 ENHD 172250Z AUTO 30017KT 9999 BKN024/// BKN076/// 06/02 Q1002 ENHE 172220Z 21026KT 9999 BKN015 05/02 Q0984 W///S7 ENHF 172250Z 04005KT CAVOK M04/M07 Q0998 RMK WIND 1254FT 12012KT ENHK 172050Z 10015KT 9999 FEW020 M01/M02 Q0998 ENHM 172250Z AUTO 28031KT 9999NDV FEW034/// SCT110/// BKN140/// 06/00 Q1001 W10/S6 ENHV 172120Z 22002KT 9999 SCT045 M02/M04 Q0999 ENKB 172250Z AUTO 20012KT 160V240 9999 DZ FEW008/// SCT017/// BKN040/// 03/M00 Q0992 REDZ RMK WIND 745FT 21024KT ENKR 172250Z 17005KT 6000 VV002 M08/M09 Q0997 RMK WIND 731FT 31004KT ENLA 172250Z AUTO 26040G50KT 9999NDV -SHRA FEW023/// SCT034/// BKN053/// 09/04 Q1008 W///S5 ENLE 172250Z 25039KT 9999 BKN020 09/05 Q1011 W09/S6 ENLK 172120Z 11004KT 9999 FEW010 BKN018 02/01 Q0990 ENMH 171950Z 16007KT 9999 FEW040 M06/M08 Q0999 ENML 172250Z AUTO 21014KT 9999NDV -SHRA BKN040/// OVC054/// 04/M00 Q0993 ENMS 172020Z VRB02KT 9999 -SHSN FEW008 BKN022 00/M00 Q0990 RMK WIND 412FT VRB06KT ENNA 172250Z 24002KT 0200 R16/0650N R34/0700N FZFG VV001 M07/M08 Q1000 RMK WIND 1800FT 05004KT ENNE 172250Z AUTO 17022KT 9999NDV FEW016/// 06/02 Q0985 W///S7 ENNM 172150Z 18014KT 9999 -SHRA SCT015 BKN030 02/M01 Q0992 ENNO 171750Z VRB01KT 9999 SCT030 SCT050 00/M01 Q1005 ENOA 172250Z 32036KT 9999 -SHRA BKN025 05/01 Q0998 W///S6 ENOL 172250Z 21017KT 9999 VCSH FEW012CB SCT025 02/00 Q0992 ENOV 172220Z VRB04KT 9000 SHGSRASN FEW010 SCT023 BKN033 03/M01 Q0995 RMK WIND 2175FT 21019G30KT ENQA 172250Z AUTO 30021KT 280V340 9999NDV FEW021/// 05/00 Q0998 W06/S6 ENQC 172250Z AUTO 26031G43KT 9999NDV -DZ BKN025/// BKN100/// 04/00 Q0997 W///S6 ENQR 172250Z AUTO 28045KT 3300NDV BKN019/// BKN072/// 03/00 Q0991 W///S7 ENRA 172250Z VRB02KT 4000 -SHSN VV014 M02/M03 Q0991 ENRM 171920Z 21025G36KT 6000 -SHRASNGS BKN012CB 03/02 Q0990 ENRO 172250Z AUTO 32004KT 9999NDV NCD M14/M15 Q0993 ENRY 172250Z 21007KT CAVOK 05/02 Q1001 ENSB 172250Z 10010KT 9999 FEW020 SCT030 BKN040 M03/M08 Q1014 RMK WIND 1400FT 09014KT ENSD 172120Z 35006KT 9999 -SHRA FEW011 SCT025 BKN032 03/M00 Q0996 RMK WIND 1138FT VRB09KT ENSE 172250Z AUTO 30039KT 9999NDV FEW029/// SCT043/// BKN051/// 04/00 Q0994 W///S6 ENSF 172250Z AUTO 28036KT 9999NDV SCT034/// 06/M02 Q0996 W///S6 ENSG 172050Z 23007KT 4000 -SHSN VV012 M00/M00 Q0997 RMK WIND 3806FT 25029KT ENSH 171950Z 05015KT 020V080 9999 -SHRASN BKN012 02/00 Q0990 RMK WIND 150FT 06019KT ENSK 172150Z 14012KT 9999 FEW046 02/M02 Q0991 ENSL 172250Z AUTO 28037KT 9999NDV FEW027/// SCT078/// 07/02 Q1005 W08/S6 ENSO 171920Z 25014KT 9999 SHRA FEW012 SCT018CB BKN030 05/04 Q1003 ENSR 171920Z 16006KT 120V220 CAVOK M04/M07 Q0997 WIND 1119FT 15018KT ENSS 171950Z 10011KT 9999 VCSH FEW009 SCT018 BKN024 02/M00 Q0998 RMK WIND 500FT 08015KT ENST 172250Z 18016KT 9999 VCSH FEW010CB SCT015 BKN040 03/01 Q0990 RMK WIND 300FT 17020KT ENTC 172250Z 07003KT 040V100 9999 SCT062 M03/M05 Q0995 RMK WIND 2600FT 14011KT ENTO 172250Z AUTO 22012KT 9999 NCD 05/02 Q1000 ENUG 172250Z AUTO 10011G21KT 080V170 9999NDV NCD 02/M03 Q0998 W///S5 ENVA 172250Z 11003KT 060V140 CAVOK 01/M06 Q0994 RMK WIND 670FT 17007KT ENVD 172250Z 30005KT 250V330 7000 -SHSN FEW007 SCT018 BKN028 M02/M02 Q0997 ENWV 172250Z AUTO 26040KT 9999NDV FEW022/// 09/04 Q1011 W///S5 ENZV 172250Z 26013G23KT 9999 VCSH FEW014CB SCT025 BKN053 05/01 Q1004 EPBY 172230Z 21008KT 7000 NSC M00/M00 Q1021 EPGD 172230Z 24007KT 9999 FEW012 SCT038 03/02 Q1018 EPKK 172230Z 24005KT 1500 -RA BR BKN005 BKN010 04/04 Q1022 EPKT 172230Z 30003KT 270V330 4600 BR FEW003 SCT005 BKN007 04/03 Q1022 EPLB 172230Z 26003KT 2400 -RA BR BKN003 OVC006 03/03 Q1021 EPLL 172230Z 29005KT 260V340 1400 R25/2000N BR OVC002 03/02 Q1022 EPMO 172230Z 26004KT 210V290 0100 R08/0175N FG OVC000 00/00 Q1021 EPPO 172230Z 23003KT 2000 BCFG BR NSC M01/M01 Q1023 EPRA 171900Z 31005KT 2600 BR OVC006 05/05 Q1021 EPRZ 172230Z 27004KT 1800 BR OVC003 04/04 Q1021 EPSC 172230Z 19004KT 150V230 CAVOK 03/02 Q1021 EPSY 171900Z 23005KT 0250 R01/0550N FG OVC002 02/02 Q1020 EPWA 172230Z 30004KT 4000 BR OVC002 04/03 Q1022 BECMG 3000 BR EPWR 172230Z VRB02KT 3000 MIFG BR SCT025 BKN030 01/01 Q1024 EPZG 172230Z 20002KT 2500 BCFG BR NSC M02/M02 Q1023 ESCF 172250Z AUTO 21010KT 9999 BKN024/// 06/03 Q1006 ESDF 172250Z AUTO 24008KT 200V280 9999 NCD 05/03 Q1013 ESGG 172250Z 23017KT 9999 SHRA BKN011CB OVC035 06/04 Q1007 R21/29//95 ESGJ 172250Z AUTO 22013KT 9999 -RA SCT015/// OVC023/// 05/03 Q1007 REDZ ESGR 172250Z AUTO 21012KT 9999 DZ FEW015/// SCT023/// BKN034/// 06/03 Q1005 ESGT 171850Z 22015KT 9999 SCT010 BKN020 07/05 Q1008 ESIB 172250Z AUTO 23016KT 9999 -SHRA SCT021/// BKN043/// BKN076/// 06/05 Q1004 ESKM 172250Z AUTO 22006KT 180V260 9999 NCD 02/M01 Q0998 ESKN 172250Z 23013KT 9999 SCT021 06/03 Q1005 R26/29//95 ESMK 172250Z AUTO 22011KT 9999 NCD 06/06 Q1014 ESMQ 172250Z AUTO 23010KT 9999 NCD 04/03 Q1012 ESMS 172250Z 23013KT 9999 FEW011 06/04 Q1015 R17/19//95 ESMT 172250Z AUTO 25018KT 9999 FEW018/// BKN022/// OVC047/// 08/05 Q1012 ESMX 172250Z AUTO 21014KT 9999 OVC007/// 04/03 Q1011 ESND 172250Z AUTO 02004KT 9999 NCD M02/M04 Q0996 ESNG 172250Z AUTO 33005KT 3500 -PL FEW008/// SCT010/// OVC019/// M08/M09 Q0992 ESNK 172250Z AUTO VRB02KT 9999 FEW190/// M04/M04 Q0996 ESNL 172250Z AUTO 00000KT 9999 FEW017/// BKN031/// M13/M15 Q0993 ESNN 172250Z AUTO VRB02KT 9999 NCD M04/M04 Q0997 R16/79//38 ESNO 172250Z AUTO 24008KT 9999 NCD M01/M03 Q0995 ESNQ 172250Z AUTO 36002KT 9999 -SN OVC011/// M08/M09 Q0993 ESNS 172250Z AUTO 28007KT 9999 NCD M03/M05 Q0992 ESNU 172250Z 24007KT CAVOK M02/M03 Q0994 R14/19//60 ESNV 172250Z AUTO 20002KT 9999 NCD M03/M04 Q0992 ESNX 172250Z AUTO 30008KT 5000 -SN VV019 M07/M08 Q0991 RESG ESNZ 172250Z 20011KT CAVOK M01/M06 Q0993 ESOE 172250Z AUTO 23016KT 9999 OVC018/// 07/05 Q1002 ESOK 172250Z AUTO 21008KT 9999 SCT020/// BKN100/// 05/03 Q1001 ESOW 172250Z AUTO 22012G22KT 9999 OVC027/// 07/03 Q1002 ESPA 172250Z AUTO 33010KT 3400 -UP VV020 M05/M05 Q0991 ESPE 172250Z AUTO 32007KT 2500 -SN VV025 M06/M07 Q0992 ESSA 172250Z 22013KT 9999 SCT035 06/02 Q1002 R88/19//95 NOSIG ESSB 172250Z AUTO 22009KT 9999 BKN029/// OVC036/// 07/02 Q1003 ESSD 172250Z AUTO 23008KT 9999 NCD 03/01 Q1000 ESSL 172250Z AUTO 21007KT 9999 BKN027/// BKN070/// 06/03 Q1006 ESSP 172250Z AUTO 22010KT 9999 SCT025/// 06/03 Q1005 R27/190095 ESST 172250Z AUTO 21007KT 180V240 9999 SCT082/// 05/02 Q1000 ESSV 172250Z AUTO 23016KT 9999 NCD 06/04 Q1009 ESTA 172250Z AUTO 21013KT 9999 SCT047/// BKN064/// 06/04 Q1013 ESTL 172250Z AUTO 22012KT 9999NDV FEW045/// 06/04 Q1014 ESUD 172250Z AUTO 00000KT 9999 OVC012/// M11/M13 Q0992 ESUP 172250Z AUTO 02007KT 350V050 8000 -SN BKN014/// ///// Q0993 ESUT 172250Z AUTO 16005KT 9999 -SN OVC025/// M05/M06 Q0990 ETAD 172256Z AUTO 26003KT 9999 BKN041 01/00 A3026 RMK AO2 SLP253 T00111001 400820011 TSNO $ ETAR 172256Z 00000KT 4400 BR FEW010 BKN017 OVC048 04/04 A3025 RMK AO2A VIS 4400V6000 SLP257 T00440044 400630025 $ ETEB 172258Z AUTO 00000KT 1200 BR VV002 03/03 A3023 RMK AO2 SLP269 RVRNO $ ETGG 172220Z 24014G24KT 9999 SCT050 07/03 Q1017 BLU+ ETHA 172220Z AUTO VRB01KT //// // ////// 00/M00 Q1023 /// ETHB 172220Z AUTO 26005KT 9999 // ////// 05/02 Q1023 /// ETHC 172220Z 23004KT 9999 BKN053 03/00 Q1023 BLU ETHE 172220Z AUTO 23005KT //// // ////// 04/01 Q1024 /// ETHF 172220Z VRB01KT 3000 BR BKN004 04/03 Q1024 YLO ETHL 172220Z 06003KT 0900 FG VV002 02/02 Q1024 AMB ETHN 172242Z 24002KT 0600 FG VV003 03/03 Q1024 RED ETHS 172220Z 23006KT 9999 BKN050 03/01 Q1022 BLU ETIC 172256Z AUTO 00000KT 1000 R32/0500V0650 BR VV002 03/03 A3021 RMK AO2 SLP250 T00310030 400340011 $ ETIH 172256Z AUTO 00000KT 9999 OVC005 03/03 A3024 RMK AO2 SLP261 T00300029 400340012 $ ETIK 172213Z AUTO 00000KT 8000 BR OVC004 04/04 A3027 RMK AO2 SLP265 ETML 172220Z AUTO 21010KT //// // ////// 06/04 Q1018 /// ETMN 172220Z 24014KT 9999 -SHRA FEW028 BKN038 06/04 Q1020 BLU ETNH 172220Z 23010KT 9999 -SHRA SCT018TCU SCT030 07/05 Q1019 BLU+ ETNL 172252Z 23006KT 9999 SCT035 BKN060 05/03 Q1019 BLU ETNN 172220Z AUTO VRB02KT 7000 // ////// 02/00 Q1025 /// ETNS 172220Z AUTO 22012KT 9000 // ////// 06/05 Q1018 /// ETNT 172220Z 23010KT 9999 SCT053 06/03 Q1021 BLU+ ETNW 172220Z 24008KT 9999 BKN050 06/02 Q1023 BLU ETOU 172256Z AUTO 00000KT 2200 R25/1100 BR FEW002 M A3028 RMK AO2 VIS 0800 RWY07 SLPNO ALSTG ESTMD 400530026 $ ETSA 172242Z 02002KT 2000 RADZ BR SCT002 BKN011 OVC020 01/01 Q1023 YLO ETSB 172220Z AUTO 33004KT 9999 // ////// 01/00 Q1024 /// ETSH 172220Z 13001KT 9999 FEW040 M02/M03 Q1024 BLU+ ETSI 172220Z AUTO 25001KT //// // ////// 03/01 Q1024 /// ETSL 172220Z 08002KT 5000 BR SCT004 OVC007 02/01 Q1024 GRN ETSN 172220Z 25001KT 5000 BR BKN011 03/02 Q1024 GRN ETWM 172220Z AUTO 22006KT 9999 // ////// 04/02 Q1023 /// EVLA 172250Z AUTO 25015KT 9999 FEW024 07/04 Q1013 EVRA 172250Z 20007KT 9999 SCT020 01/01 Q1013 R18/190095 NOSIG EVVA 172250Z AUTO 25017KT 9999 BKN022 08/04 Q1011 EYKA 172250Z AUTO 21005KT 170V240 9000 NCD 02/M00 Q1017 EYPA 172250Z VRB06KT 9999 BKN030 07/02 Q1015 R19/0///95 EYSA 172250Z 23007KT CAVOK 01/01 Q1015 R32R/29//95 R32L/29//95 BLU NOSIG EYVI 172250Z 23008KT 9999 OVC005 03/03 Q1017 R19/2///95 NOSIG FABL 172200Z AUTO VRB01KT 9999 ///////// 09/M02 Q1020 FACT 172200Z 20010KT CAVOK 16/12 Q1017 NOSIG FAEL 172000Z 30006KT CAVOK 13/08 Q1018 FAGG 172200Z AUTO 27003KT 240V300 9999 FEW220/// 11/11 Q1014 FAHS 172200Z AUTO 18007KT //// // ////// 16/09 Q1019 FAJB 172300Z AUTO 23001KT //// // ////// 11/M04 Q1021 FAKM 172200Z AUTO 01004KT //// // ////// 11/M01 Q1020 FAKN 172200Z AUTO 06004KT //// // ////// 13/08 Q1020 FALA 172200Z AUTO VRB03KT CAVOK 14/M00 Q1021 FALE 172200Z VRB01KT 9999 FEW025 16/13 Q1018 NOSIG FALW 172200Z AUTO 23006KT //// // ////// 13/10 Q1016 FAMM 172200Z AUTO 14006KT //// // ////// 14/M06 Q1021 FAOB 172200Z AUTO 28004KT //// // ////// 12/10 Q1016 FAOR 172200Z 19008KT CAVOK 10/M03 Q1022 NOSIG FAPE 172200Z VRB01KT CAVOK 10/08 Q1016 NOSIG FAPN 172100Z AUTO 28005KT //// // ////// 15/M03 Q1018 FAPP 172200Z AUTO 07006KT //// // ////// 15/08 Q1020 FAUP 172200Z AUTO 05003KT //// // ////// 17/M07 Q1017 FAUT 172200Z AUTO 11003KT //// // ////// 10/09 Q1018 FAWB 172200Z AUTO 16001KT //// // ////// 17/M00 Q1019 FAWK 172200Z AUTO 15004KT //// // ////// 13/01 Q1020 FBFT 172000Z 10012KT CAVOK 22/08 Q1017 FBKE 171800Z 25003KT CAVOK 22/06 Q1015 FBMN 171800Z VRB02KT CAVOK 23/M02 Q1015 FBSK 172200Z 21005KT CAVOK 17/02 Q1018 NOSIG FBSP 171800Z 11007KT CAVOK 23/11 Q1017 FCBB 172200Z 00000KT 8000 SCT020 25/22 Q1012 NOSIG FCPP 172200Z 19006KT 9999 FEW010 25/23 Q1011 NOSIG FDJR 172200Z AUTO 04004KT //// // ////// 07/01 Q1021 FDLB 172200Z AUTO 08001KT //// // ////// 16/09 Q1021 FDST 172200Z AUTO 12003KT //// // ////// 13/11 Q1018 FDUS 171800Z AUTO 16006KT //// // ////// 17/10 Q1018 FEFF 172200Z VRB03KT 7000 FEW013 22/21 Q1011 NOSIG FGBT 172200Z 17005KT 9999 SCT010 BKN100 27/26 Q1010 FGSL 172200Z 24007KT 9999 FEW010 26/23 Q1011 NOSIG FHAW 172050Z 13010KT 9999 FEW026 23/17 Q1014 BLU FIMP 172200Z 09006KT 9999 SCT015 BKN050 24/23 Q1015 FJDG 172155Z 00000KT 9999 FEW020 FEW080 SCT250 27/25 A2974 RMK SLP068 T02700246 FKKD 172200Z 12003KT 9999 BKN016 FEW020CB 26/26 Q1010 NOSIG FKKR 172100Z 00000KT CAVOK 28/17 Q1009 FKYS 172200Z 27004KT 240V300 8000 TS FEW010 FEW020CB 23/22 Q1015 NOSIG FMCH 172200Z 07004KT 350V110 9999 FEW020 27/25 Q1011 NOSIG FMCZ 172230Z AUTO 00000KT 9999 NCD 26/24 Q1011 BECMG SCT020TCU FMEE 172230Z AUTO 11007KT 9999 FEW039/// OVC049/// ///TCU 23/21 Q1014 TEMPO 3000 SHRA FMEP 172230Z AUTO VRB03KT 9999 SCT092 BKN110 BKN130 24/22 Q1013 FMMI 172300Z 14001KT 9999 -RA FEW010 BKN020 18/17 Q1019 TEMPO RA FMMT 172200Z 00000KT 9999 FEW017 22/21 Q1013 FMNM 172200Z 18006KT 9999 FEW020CB SCT040 26/23 Q1012 FMSD 172200Z VRB02KT 9999 FEW016 23/22 Q1014 FNCA 172000Z 20005KT 150V230 9999 FEW016 SCT080 25/23 Q1011 FNLU 172200Z 18009KT 8000 NSC 24/21 Q1011 NOSIG FOOG 172200Z 24008KT 9999 SCT008 BKN030 27/25 Q1011 FOOL 172230Z 27008KT 9999 FEW014 27/23 Q1010 NOSIG FOON 171800Z 18003KT 9999 FEW010 25/21 Q1010 FPST 172200Z 26004KT 9999 FEW023 SCT040 25/23 Q1012 NOSIG FQBR 172200Z 02006KT 9999 FEW018 SCT030 24/21 Q1015 FQCH 172100Z 20004KT 5000 DZ BKN006 BKN013 17/17 Q1021 FQLC 172200Z 11009KT 9999 FEW016 20/16 Q1019 FQMA 172200Z VRB01KT 9999 FEW025 21/14 Q1018 NOSIG FQNP 172200Z 19008KT 9999 SCT020 24/22 Q1014 FQPB 172200Z 04004KT 360V070 9999 SCT020 26/24 Q1012 FQQL 172200Z 13007G20KT 9999 SCT010 BKN020 BKN090 25/24 Q1014 RESH FQVL 171800Z 16012KT 9999 SCT020 24/19 Q1016 FSIA 172200Z 23004KT 9999 SCT018 26/23 Q1009 NOSIG FTTA 172100Z 18008KT CAVOK 28/22 Q1010 FTTJ 172200Z 35004KT CAVOK 23/06 Q1008 NOSIG FVBU 172000Z 11011KT CAVOK 16/12 Q1021 NOSIG FVHA 172200Z 11004KT 9999 FEW010 BKN080 15/15 Q1022 NOSIG FYGB 172200Z AUTO 06002KT //// // ////// 16/M02 Q1021 FYKT 172200Z AUTO 00000KT //// // ////// 19/M07 Q1018 FYLZ 172200Z AUTO 19011KT //// // ////// 20/07 Q1014 FYML 172200Z AUTO 12006KT //// // ////// 24/M06 Q1019 FYOO 172200Z AUTO 00000KT //// // ////// 23/M01 Q//// FYOW 172200Z AUTO 34001KT //// // ////// 18/M02 Q1018 FYRU 172200Z AUTO 14003KT //// // ////// 21/M02 Q1019 FYWB 172200Z AUTO 00000KT //// // ////// 18/08 Q1012 FYWE 171800Z 23006KT CAVOK 22/M11 Q1021 FYWH 172200Z AUTO 21004KT //// // ////// 11/M08 Q1023 FYWW 172200Z AUTO 14004KT //// // ////// 18/M07 Q1022 FZAA 172200Z 28008KT 8000 FEW018 FEW028CB BKN100 25/22 Q1012 NOSIG GABS 172230Z 00000KT 6000 NSC 19/07 Q1014 TEMPO 4000 FU GAMB 172100Z 00000KT CAVOK 25/07 Q1011 GANR 172100Z VRB02KT CAVOK 24/02 Q1013 GCFV 172230Z 05011KT 9999 FEW030 20/16 Q1018 GCGM 172230Z AUTO 14003KT 100V210 9999 OVC015/// 20/17 Q1018 RMK R09/VRB01KT ARP/VRB02KT GCHI 172230Z AUTO VRB02KT CAVOK 21/16 Q1018 GCLA 172230Z AUTO 28007KT 9999 NCD 20/15 Q1018 GCLP 172230Z 03011KT 9999 BKN024 21/16 Q1018 NOSIG GCRR 172230Z 04008KT 9999 SCT030 20/14 Q1018 GCTS 172230Z 08010KT 9999 BKN020 21/16 Q1017 NOSIG GCXO 172230Z 12006KT 9999 FEW004 BKN008 16/15 Q1019 NOSIG GEML 172230Z AUTO 26001KT 9999 NCD 13/10 Q1020 GFLL 172100Z 24009KT 9999 BKN012 FEW027CB 28/24 Q1011 RMK CB-NE GGOV 172200Z 26003KT CAVOK 27/23 Q1011 NOSIG GLRB 172230Z 00000KT 9999 BKN012 25/24 Q1012 NOSIG GMAD 172230Z VRB02KT 6000 SCT006 SCT016 16/15 Q1017 NOSIG GMAG 171800Z 28008KT CAVOK 20/13 Q1015 NOSIG GMAT 171800Z 35008KT CAVOK 18/14 Q1016 NOSIG GMFF 172200Z 19008KT CAVOK 11/M03 Q1019 NOSIG GMFK 172200Z 30008KT CAVOK 13/M09 Q1021 NOSIG GMFM 172200Z 20002KT CAVOK 11/03 Q1019 NOSIG GMFO 172200Z 19005KT CAVOK 08/02 Q1020 NOSIG GMMB 172200Z AUTO 09005KT //// ////// 13/13 Q1019 NOSIG GMMC 172000Z 02002KT CAVOK 17/15 Q1016 NOSIG GMMD 171900Z VRB02KT CAVOK 18/M03 Q1016 NOSIG GMME 172230Z VRB02KT 4500 BR SCT005 10/09 Q1018 TEMPO 5000 NSC GMMH 172100Z 04012KT 8000 NSC 19/17 Q1015 NOSIG GMMI 172200Z AUTO 01004KT 9999NDV NCD ///// Q1017 NOSIG GMML 172200Z 05010KT CAVOK 17/14 Q1017 NOSIG GMMN 172230Z 02003KT 2000 BR SCT004 14/14 Q1018 NOSIG GMMW 172200Z 25002KT CAVOK 06/03 Q1020 NOSIG GMMX 172230Z 22008KT CAVOK 15/06 Q1017 NOSIG GMMZ 172200Z 00000KT CAVOK 14/M07 Q1019 NOSIG GMTA 172200Z 18004KT CAVOK 12/11 Q1019 NOSIG GMTN 172200Z 09004KT 9999 SCT023 15/12 Q1019 NOSIG GMTT 172230Z 10011KT CAVOK 15/10 Q1018 NOSIG GOGG 172200Z 00000KT 8000 NSC 24/21 Q1012 GOGK 172100Z 00000KT 8000 NSC 24/21 Q1010 GOGS 172200Z 00000KT CAVOK 23/20 Q1011 GOOD 172100Z 00000KT 8000 NSC 24/16 Q1012 GOOG 172100Z 00000KT 8000 NSC 24/05 Q//// GOOK 172100Z 00000KT 8000 NSC 27/16 Q1011 GOOY 172230Z 36008KT CAVOK 25/19 Q1012 NOSIG GOSM 172100Z 00000KT CAVOK 25/12 Q1012 GOSP 172100Z 04002KT CAVOK 26/06 Q1012 GOSS 172100Z 36004KT CAVOK 25/18 Q1012 GOTK 171800Z 36004KT 4000 HZ NSC 30/12 Q1009 GOTT 172100Z 36004KT CAVOK 29/13 Q1011 GQNO 172230Z VRB02KT 8000 NSC 22/02 Q1013 NOSIG GQPA 171800Z 04008KT 8000 NSC 30/04 Q1012 GQPP 172200Z 01011KT 8000 NSC 20/15 Q1015 NOSIG GQPZ 171800Z 09006KT 060V120 CAVOK 26/M06 Q1016 GUCY 172200Z 00000KT 9999 FEW015 27/27 Q1012 NOSIG GVAC 172300Z 06006KT 9999 FEW014 BKN200 24/20 Q1014 NOSIG GVBA 171900Z 04010KT 9999 FEW014 BKN200 26/20 Q1012 NOSIG GVNP 172300Z 03007KT 9999 FEW018 25/20 Q1014 NOSIG GVSV 172300Z 05010KT 9999 FEW020 BKN200 24/20 Q1015 NOSIG HAAB 172200Z 02004KT C A V O K 10/M01 Q1026 HEAR 171800Z 00000KT CAVOK 16/13 Q1013 NOSIG HEAT 172200Z 33008KT CAVOK 16/08 Q1014 NOSIG HEAX 172200Z 28002KT CAVOK 17/13 Q1013 NOSIG HEBA 172200Z 00000KT CAVOK 14/11 Q1014 NOSIG HEBL 172200Z 31002KT CAVOK 23/10 Q1010 NOSIG HECA 172230Z 05007KT 4000 BR BKN025 20/19 Q1013 NOSIG HEGN 172200Z 31004KT CAVOK 21/11 Q1012 NOSIG HELX 172200Z 00000KT 6000 NSC 18/03 Q1011 NOSIG HEMA 172200Z 23002KT CAVOK 21/17 Q1011 NOSIG HEMM 172200Z 14003KT CAVOK 15/13 Q1016 NOSIG HEPS 172200Z 03009KT CAVOK 22/19 Q1014 NOSIG HESC 172200Z 00000KT CAVOK 16/M02 Q1021 NOSIG HESG 172200Z 26005KT CAVOK 19/09 Q1012 NOSIG HESH 172200Z 36005KT CAVOK 23/08 Q1011 NOSIG HESN 171800Z 36003KT CAVOK 28/06 Q1010 NOSIG HETR 172200Z 00000KT CAVOK 19/17 Q1012 HKEL 172200Z 10007KT CAVOK 14/09 Q1022 HKJK 172230Z 02004KT CAVOK 15/14 Q1020 HKMO 172100Z 00000KT 9999 SCT021 26/21 Q1011 NOSIG HLLM 172150Z 24009KT 6000 SCT25 BKN040 16/11 Q1017 HRYR 172100Z 26002KT 9999 SCT025 SCT100 18/15 Q1018 NOSIG HSSS 172300Z 34005KT CAVOK 25/04 Q1009 NOSIG HTAR 172100Z 00000KT CAVOK 20/14 Q1016 HTBU 172100Z 30010KT 9999 FEW016 FEW018CB 20/17 Q1014 HTDA 172100Z 03004KT 9999 SCT016 26/24 Q1011 NOSIG HTDO 172100Z 09008KT CAVOK 23/14 Q1016 NOSIG HTIR 172100Z 10000KT 9999 FEW020 21/11 Q1020 HTKA 172100Z 00000KT 9999 FEW020 FEW021CB SCT230 20/19 Q1015 HTKJ 172100Z 08010KT 9999 FEW025 23/15 NOSIG HTMG 172100Z 00000KT 9999 SCT023 24/22 Q1014 HTMT 172100Z 02005KT 9999 FEW021 25/23 Q1011 HTMU 172100Z 00000KT 9999 FEW020CB 23/19 Q1015 HTMW 172100Z 30006KT 9999 FEW023 FEW024CB BKN090 24/18 Q1014 NOSIG HTSO 172000Z 05012KT 9999 FEW023 25/14 Q1016 HTSU 172100Z 00000KT CAVOK 17/09 Q1018 HTTB 172100Z 10010KT CAVOK 25/09 Q1015 HTZA 172100Z 00000KT 9999 FEW016 26/24 Q1011 NOSIG HUEN 172200Z 27005KT 9999 FEW020 FEW022CB 20/18 Q1015 K04V 172248Z AUTO 31015G19KT 10SM -RA BKN075 BKN095 BKN120 11/M02 A2979 RMK AO2 K04W 172254Z AUTO 00000KT 2 1/2SM BR OVC003 01/01 A2965 RMK AO2 K05U 172255Z AUTO 30006G17KT 10SM CLR 03/M06 A3016 RMK A01 K06D 172255Z AUTO 00000KT 10SM CLR M07/M10 A2970 RMK AO2 K08D 172255Z AUTO 00000KT 5SM HZ CLR M02/M08 A2968 RMK AO2 K0A9 172255Z AUTO 00000KT 10SM CLR 08/00 A3006 RMK A01 K0CO 172247Z AUTO 27030G50KT 1/2SM -SN BKN002 OVC012 M05/M11 A2977 RMK AO2 VIS M1/4V5 K0E0 172255Z AUTO 28012G18KT 10SM OVC090 18/01 A2998 RMK AO2 T01800006 K0F2 172255Z AUTO 19011G18KT 10SM CLR 27/15 A2971 RMK AO2 T02710151 K0J4 172158Z AUTO 10003KT 10SM CLR 21/10 A3008 RMK AO2 SLP183 T02060100 K0R0 172255Z AUTO 19007KT 10SM CLR 21/13 A3005 RMK AO2 K0R4 172255Z AUTO A2995 RMK AO2 PWINO TSNO K0S9 172255Z AUTO 11004KT 10SM SCT042 BKN060 08/05 A3017 RMK AO2 K0V4 172255Z AUTO 16003KT 10SM CLR 07/00 A3014 RMK AO1 T00651003 K0VG 172230Z AUTO 00000KT 10SM CLR 10/01 A3007 RMK AO2 K11R 172235Z AUTO 19012G18KT 10SM CLR 29/19 A2988 RMK AO2 T02850190 K12N 172254Z AUTO 00000KT 01/M07 A3010 RMK AO1 SLP201 T00061067 K14Y 172250Z AUTO 00000KT 5SM BR BKN110 01/00 A2965 RMK AO2 K17J 172235Z AUTO 00000KT 10SM CLR 16/08 A3008 RMK AO2 T01650084 K18A 172255Z AUTO 00000KT 10SM CLR 12/06 A3012 RMK AO2 T01170055 K18H 172255Z AUTO VRB05G12KT 9SM CLR 25/17 A3002 RMK A01 K19S 172255Z AUTO 23009KT 10SM CLR 24/02 A2953 RMK AO2 T02360018 K1A5 172245Z AUTO 00000KT 10SM CLR 13/00 A3009 RMK AO2 T01311005 K1A6 172255Z AUTO 00000KT 10SM CLR 09/03 A3004 RMK AO2 T00930026 K1A9 172255Z AUTO 00000KT 10SM CLR 14/10 A3006 RMK AO2 T01430102 K1AM 172158Z AUTO 26026G34KT 10SM BKN065 05/M10 A2970 RMK AO2 SLP031 T00491102 $ K1AN 172256Z AUTO 00000KT 10SM CLR M05/M09 A2967 RMK AO2 SLPNO T10521093 $ K1AW 172158Z AUTO 33008KT 10SM -SHRA BKN050 06/04 A2964 RMK AO2 SHRAE24SHRAB48 SLP031 T00560036 $ K1BM 172158Z AUTO 28020G27KT 10SM SCT055 BKN180 04/M09 A2969 RMK AO2 PK WND 28036/17 SLP084 T00361091 $ K1BN 172256Z AUTO 00000KT 10SM BKN210 M05/M09 A2969 RMK AO2 SLP087 T10461086 $ K1BW 172258Z AUTO 32018G21KT 7SM SHRA FEW013 OVC029 06/03 A2968 RMK AO2 SHRAB43 CIG 029V040 SLP030 P0001 T00570034 $ K1CM 172258Z AUTO 29018G24KT 10SM FEW055 02/M09 A2972 RMK AO2 PK WND 29030/25 SLP092 T00221094 $ K1CN 172256Z AUTO 00000KT 10SM BKN200 M03/M07 A2969 RMK AO2 SLP084 T10331069 $ K1DM 172258Z AUTO 28018G23KT 10SM BKN170 04/M08 A2967 RMK AO2 SLP082 T00431078 $ K1DN 172256Z AUTO 00000KT 10SM BKN210 M04/M08 A2967 RMK AO2 SLP081 T10391080 $ K1DW 172158Z AUTO 34003KT 10SM -SHRA FEW024 SCT055 BKN090 06/04 A2967 RMK AO2 SLP036 P0005 T00560044 $ K1EM 172158Z AUTO 30011G24KT 10SM BKN060 04/M05 A2966 RMK AO2 SLP072 T00381053 $ K1EN 172256Z AUTO 00000KT 10SM BKN210 M04/M07 A2965 RMK AO2 SLPNO T10381068 $ K1F0 172235Z AUTO 24011G15KT 10SM CLR 27/13 A2968 RMK AO2 K1FN 172256Z AUTO 00000KT 10SM CLR M04/M07 A2957 RMK AO2 SLP083 T10381073 $ K1FW 172158Z AUTO 36006KT 10SM -SHRA OVC044 06/04 A2964 RMK AO2 SLP027 P0002 T00560040 $ K1GM 172258Z AUTO 26016KT 10SM CLR 01/M08 A2974 RMK AO2 PK WND 26030/2158 SLP104 T00091081 $ K1GN 172256Z AUTO 13005KT 10SM OVC240 M03/M09 A2964 RMK AO2 SLPNO T10321095 $ K1H2 172255Z AUTO 12011G17KT 7SM SCT043 08/06 A2981 RMK AO2 LTG DSNT N T00760057 K1HM 172258Z AUTO 26021G27KT 10SM CLR 02/M08 A2973 RMK AO2 PK WND 26029/28 SLPNO T00241077 $ K1HN 172256Z AUTO 11004KT 10SM FEW220 BKN230 M03/M08 A2967 RMK AO2 SLP082 T10341082 PWINO FZRANO $ K1IM 172258Z AUTO 25019G29KT 10SM CLR 03/M07 A2976 RMK AO2 PK WND 24029/45 SLP114 T00331068 $ K1IN 172256Z AUTO 00000KT 10SM CLR M03/M09 A2965 RMK AO2 SLP082 T10321094 $ K1IW 172158Z AUTO 35013KT 10SM FEW075 SCT100 11/M01 A2962 RMK AO2 SLP022 T01061007 $ K1JM 172258Z AUTO 25015G22KT 10SM CLR 03/M08 A2973 RMK AO2 SLP104 T00261080 $ K1JN 172256Z AUTO 20003KT 10SM CLR M05/M10 A2965 RMK AO2 SLP082 T10521097 $ K1JW 172258Z AUTO M 10SM SCT110 07/02 A2960 RMK AO2 SHRAE22 SLP016 T00710022 $ K1K1 172255Z AUTO 20010G21KT 10SM CLR 22/09 A2951 RMK AO2 T02160093 K1KM 172258Z AUTO 28025G31KT 10SM FEW140 01/M06 A2973 RMK AO2 PK WND 28031/16 SLP106 T00071061 $ K1KN 172256Z AUTO 06003KT 10SM CLR M05/M10 A2966 RMK AO2 SLP085 T10541100 $ K1KW 172258Z AUTO 35010KT 10SM -SHRA BKN050 06/05 A2962 RMK AO2 RAE55SHRAB55 SLP033 P0001 T00590052 $ K1LN 172256Z AUTO 36004KT 10SM CLR M08/M11 A2968 RMK AO2 SLP089 T10771110 $ K1LW 172258Z AUTO 35016KT 10SM -SHRA FEW055 BKN085 07/04 A2963 RMK AO2 RAB41E45SHRAB45 SLP016 T00650044 $ K1M4 172256Z AUTO 15004KT 10SM FEW075 16/08 A3003 RMK AO2 SLP191 T01610083 K1M5 172255Z AUTO 14005KT 10SM BKN090 13/06 A2995 RMK A01 K1MN 172256Z AUTO 36007KT 10SM CLR M06/M10 A2968 RMK AO2 SLP089 T10641101 $ K1NM 172258Z AUTO 28017G24KT 10SM SCT120 04/M08 A2967 RMK AO2 PK WND 28028/17 SLP080 T00431082 $ K1NN 172256Z AUTO 36006KT 10SM CLR M07/M11 A2971 RMK AO2 SLPNO T10681108 $ K1NW 172158Z AUTO 03016KT 10SM -SHRA SCT065 SCT100 09/05 A2959 RMK AO2 SHRAE00SHRAB05 SLP001 T00850051 $ K1ON 172256Z AUTO 35005KT 10SM CLR M08/M11 A2971 RMK AO2 SLP097 T10811114 $ K1OW 172258Z AUTO 35016KT 10SM -SHRA BKN055 05/03 A2964 RMK AO2 SHRAB40 SLP024 P0001 T00490033 PWINO $ K1P1 172255Z AUTO 31011G19KT 10SM CLR M02/M07 A2995 RMK AO2 T10241075 K1S5 172255Z AUTO 23015G20KT 10SM CLR 10/M01 A3011 RMK AO2 T00971008 K1V4 172254Z AUTO M04/M08 A3002 RMK AO1 SLP179 T10441083 K1V6 172250Z AUTO 26005G16KT 10SM BKN100 OVC120 18/00 A2962 RMK AO2 K1YT 172258Z AUTO 27008KT 10SM CLR 08/M03 A3006 RMK AO2 SLPNO T00801033 $ K20U 172255Z AUTO 27007KT 10SM CLR 04/M01 A2968 RMK AO2 K20V 172248Z AUTO 27014G24KT 10SM -RA SCT019 BKN031 OVC055 07/01 A2971 RMK AO2 P0001 K21D 172251Z AUTO 00000KT 4SM BR OVC005 02/02 A2963 RMK AO2 LTG DSNT SE K22N 172255Z AUTO 00000KT 10SM CLR 01/M04 A3011 RMK AO2 K24A 172245Z AUTO 12006KT 10SM CLR 13/M02 A3010 RMK AO2 LTG DSNT NW T01271022 K24J 172255Z AUTO 00000KT 8SM CLR A3009 RMK A01 K28J 172255Z AUTO 06005KT 10SM FEW041 19/14 A3008 RMK AO2 K2C8 172255Z AUTO 33005KT 10SM CLR M06/M10 A2972 RMK AO2 K2D5 172255Z AUTO 34009KT 10SM M01/M07 A2970 RMK AO2 PWINO K2DP 172256Z AUTO 00000KT 10SM BKN240 05/03 A3017 RMK AO2 SLPNO T00500033 $ K2F5 172255Z AUTO 23012KT 10SM CLR 26/00 A2983 RMK AO2 K2G4 172250Z AUTO 15008KT 10SM CLR 02/M03 A3003 RMK AO1 K2G9 172255Z AUTO 16004KT 10SM CLR 00/M03 A3008 RMK AO2 K2I0 172215Z AUTO 14004KT 10SM SCT033 BKN100 14/07 A2992 RMK AO2 T01350066 K2J3 172230Z AUTO 12003KT 10SM CLR 15/03 A3011 RMK AO2 T01510029 K2J9 172255Z AUTO 10003KT 10SM CLR 16/10 A3008 RMK AO2 K2LS 172255Z AUTO 00000KT 10SM CLR 22/16 A3006 RMK AO2 K2P2 172235Z AUTO 19012G20KT 7SM RA OVC011 05/03 A2968 RMK AO2 P0001 T00470034 K2V6 172254Z AUTO 03009KT 10SM SCT110 12/00 A2957 RMK AO2 K2W6 172246Z AUTO 00000KT 10SM CLR 05/00 A3018 RMK AO1 K2WX 172256Z AUTO 23008KT 04/M01 A2960 RMK AO1 SLP042 T00441006 K33V 172255Z AUTO 33013KT 1SM BKN008 OVC017 M01/M03 A2975 RMK AO1 K3AU 172255Z AUTO 19009G15KT 10SM CLR 22/10 A2951 RMK AO2 K3D2 172255Z AUTO 19012G21KT 170V240 3SM +RA OVC011 04/03 A2967 RMK AO2 P0005 T00410031 K3F3 172255Z AUTO 14006KT 10SM SCT046 SCT050 24/20 A2990 RMK AO2 T02420195 K3I2 172255Z AUTO 00000KT 10SM CLR 05/00 A3006 RMK AO2 T00540000 K3J7 172255Z AUTO 00000KT 10SM CLR 13/06 A3008 RMK AO2 K3K3 172255Z AUTO 26019G37KT 7SM CLR 25/00 A2952 RMK AO2 K3L4 172255Z AUTO 17008G13KT 5SM HZ CLR 23/20 A2999 RMK A01 K3LF 172255Z AUTO 17012KT 10SM OVC022 10/07 A2974 RMK AO2 LTG DSNT N T00950066 K3N8 172255Z AUTO 32009KT 10SM CLR M02/M06 A2969 RMK AO2 T10231065 K3R7 172255Z AUTO 18006G15KT 10SM OVC036 23/18 A2997 RMK AO2 T02320177 K3S8 172255Z AUTO 00000KT 10SM -RA CLR 09/05 A3033 RMK AO2 K3T5 172235Z AUTO 19008G16KT 10SM SCT048 29/20 A2987 RMK AO2 T02860198 K40B 172216Z AUTO VRB04G12KT M05/M08 A2976 RMK AO1 SLP099 T10511084 51021 K40J 172255Z AUTO 00000KT 10SM 15/09 A3009 RMK AO2 T01530087 K42J 172255Z AUTO 07005KT 10SM SCT049 19/12 A3008 RMK AO1 TSNO K46D 172255Z AUTO 30004KT 10SM CLR M07/M09 A2973 RMK AO2 K46U 172220Z AUTO 28014G23KT 10SM FEW025 SCT032 BKN046 01/M04 A2987 RMK A01 K49A 172255Z AUTO 00000KT 10SM CLR 14/02 A3011 RMK AO2 LTG DSNT N T01440017 K4A6 172255Z AUTO 19003KT 10SM CLR 14/02 A3005 RMK AO2 LTG DSNT N K4A9 172255Z AUTO 00000KT 10SM CLR 13/02 A3005 RMK AO2 K4BM 172248Z AUTO 22015G23KT 10SM SCT018 SCT025 SCT038 00/M03 A2985 RMK AO2 LTG DSNT NW K4I3 172256Z AUTO 13005KT 10SM CLR 04/00 A3002 RMK AO2 K4M9 172255Z AUTO 18014KT 10SM OVC035 20/16 A2978 RMK AO2 LTG DSNT N PWINO K4MR 172258Z AUTO 28020G26KT 10SM CLR 26/M04 A2982 RMK AO2 PK WND 28030/01 SLP044 T02611037 $ K4O4 172255Z AUTO 18011G14KT 10SM SCT034 BKN040 23/16 A2977 RMK AO2 K4S2 172255Z AUTO 29005KT 10SM BKN043 OVC050 07/04 A3020 RMK AO2 K4V0 172255Z AUTO 26016G22KT 10SM -DZ BKN037 OVC047 07/01 A2978 RMK AO2 T00700008 K54J 172255Z AUTO 00000KT 10SM CLR 18/11 A3007 RMK AO2 T01800111 K57C 172255Z AUTO 16008KT 3SM VCTS BR OVC007 04/03 A2966 RMK AO2 LTG DSNT S THRU N T00370029 K5A6 172255Z AUTO 17004KT 10SM CLR 21/14 A2994 RMK AO2 T02060140 K5C1 172255Z AUTO 20009KT 10SM CLR 25/17 A2991 RMK AO1 K5H4 172255Z AUTO 27003KT 10SM CLR M06/M09 A2973 RMK AO2 K5M9 172255Z AUTO 15007KT 10SM SCT050 SCT065 SCT075 13/06 A2986 RMK AO2 T01260057 K5R8 172255Z AUTO 16007KT 10SM BKN026 OVC035 23/19 A2995 RMK AO2 T02300185 K5SM 172252Z AUTO 24018G32KT 190V290 1SM -SN OVC002 M01/M02 A2982 RMK AO2 LTG DSNT NW K5T9 172255Z AUTO 10SM CLR 28/19 A2986 RMK A01 K65S 172255Z AUTO 21007KT 10SM FEW060 BKN075 04/M02 A2994 RMK AO2 K66R 172255Z AUTO 19010G14KT 10SM CLR A2990 RMK AO2 K6A1 172255Z AUTO 14005KT 10SM 15/06 A3009 RMK AO2 T01500058 K6A2 172255Z AUTO 00000KT 10SM CLR 13/07 A3010 RMK AO2 K6B0 172255Z AUTO 00000KT 10SM CLR M03/M09 A3006 RMK AO2 T10321089 K6B9 172255Z AUTO 00000KT 10SM FEW120 M02/M05 A3011 RMK AO2 K6I2 172255Z AUTO 15005KT 10SM CLR 09/02 A2998 RMK AO2 K6L4 172255Z AUTO 00000KT 10SM CLR 10/M03 A3002 RMK AO2 LTG DSNT NW K6P9 172255Z AUTO 19008KT 10SM CLR 27/17 A2977 RMK AO2 T02680166 K6R3 172255Z AUTO 16007KT 7SM CLR 25/18 A2990 RMK AO2 T02500177 K6R6 172253Z AUTO 13008KT 25/15 A2986 RMK AO1 SLP085 T02500150 K6S0 172255Z AUTO 28016G21KT 10SM CLR 02/M08 A2981 RMK A01 K6S2 172255Z AUTO 20007G14KT 10SM SCT036 SCT043 SCT050 11/M12 A3028 RMK AO2 K74V 172255Z AUTO 26020G26KT 10SM SCT060 SCT080 SCT100 07/00 A2982 RMK AO2 K79J 172256Z AUTO 00000KT 10SM CLR 18/12 A3006 RMK AO2 SLP176 T01780117 K7BM 172248Z AUTO 23012G29KT 210V280 10SM SCT009 BKN037 OVC050 06/00 A2979 RMK AO2 K7L2 172255Z AUTO 00000KT 10SM 01/M07 A2970 RMK AO2 K7N0 172256Z AUTO 16009KT 10SM CLR 23/16 A3003 RMK AO2 SLPNO T02330156 K7W4 172255Z AUTO 19003KT 10SM CLR 04/00 A3015 RMK AO1 T00441003 K7W6 172245Z AUTO 00000KT 10SM CLR 06/05 A3017 RMK AO2 T00610051 K82C 172255Z AUTO 00000KT 1 1/2SM RA BKN004 A2963 RMK AO2 K82V 172255Z AUTO 35011G16KT 10SM SCT029 BKN080 OVC110 06/05 A2966 RMK AO2 PWINO K8A0 172255Z AUTO 18004KT 10SM CLR 14/05 A3005 RMK AO2 K8A3 172255Z AUTO 20005KT 9SM CLR 14/M01 A2999 RMK A01 K8B0 172255Z AUTO 30007G16KT 250V320 10SM BKN017 OVC023 M06/M08 A2985 RMK AO2 K8D3 172256Z AUTO 35006KT 02/M04 A2967 RMK AO1 SLP065 T00171039 K8W2 172255Z AUTO 00000KT 10SM CLR 03/M01 A3012 RMK AO1 T00281012 K96D 172255Z AUTO 32008KT 10SM CLR M07/M10 A2973 RMK AO2 K9A5 172255Z AUTO 00000KT 10SM CLR 11/02 A3006 RMK AO2 T01110017 K9D7 172255Z AUTO 27005KT 10SM CLR M07/M08 A2972 RMK AO2 K9L2 172258Z AUTO M M M M M M RMK AO2 PK WND 27034/46 SLPNO PWINO PNO FZRANO TSNO $ K9MN 172251Z AUTO 11004KT 5SM OVC004 03/03 A2960 RMK AO1 T00260027 K9V9 172255Z AUTO 33007KT 10SM BKN055 OVC065 07/03 A2966 RMK AO2 T00730027 KA08 172255Z AUTO 20006KT 10SM CLR 18/12 A3004 RMK AO2 T01800118 KA39 172230Z AUTO 26007KT 10SM OVC120 28/02 A2998 RMK AO2 KAAA 172255Z AUTO 17013G17KT 10SM OVC023 09/06 A2970 RMK AO2 LTG DSNT N AND NE T00850060 KAAF 172253Z AUTO 12003KT 10SM CLR 18/15 A3007 RMK AO2 SLP184 T01780150 KAAO 172254Z AUTO 19011KT 10SM CLR 22/10 A2949 RMK AO2 SLP980 T02170100 KAAT 172255Z AUTO 08004KT 10SM FEW042 04/M06 A3022 RMK AO2 SLP240 T00441061 TSNO KABE 172251Z 27004KT 10SM CLR 04/M06 A3011 RMK AO2 SLP198 T00391056 KABH 171856Z AUTO 26027G36KT A2970 RMK AO2 PK WND 25040/1824 SLPNO $ KABI 172252Z 20011KT 10SM CLR 27/14 A2977 RMK AO2 SLP060 T02670144 $ KABQ 172252Z 27013KT 10SM FEW085 BKN120 BKN220 19/01 A2995 RMK AO2 PK WND 29026/2203 SLP090 T01890011 KABR 172253Z AUTO 36007KT 10SM OVC100 03/M05 A2970 RMK AO2 SLP068 T00281050 KABY 172253Z 11006KT 10SM CLR 18/07 A3010 RMK AO2 SLP192 T01780067 KACB 172255Z AUTO 17010G14KT 10SM -SN SCT070 OVC080 03/00 A2976 RMK AO2 T00320001 KACJ 172255Z AUTO 00000KT 10SM CLR 13/06 A3010 RMK AO2 KACK 172253Z 31012G20KT 10SM CLR 06/M04 A2995 RMK AO2 SLP142 T00611044 KACP 172235Z AUTO 18006KT 10SM CLR 24/18 A2996 RMK AO2 T02350180 KACQ 172252Z AUTO 00000KT 2 1/2SM BR OVC005 03/02 A2960 RMK AO2 LTG DSNT E KACT 172251Z 19012KT 10SM CLR 27/18 A2980 RMK AO2 SLP083 T02670178 KACV 172253Z AUTO 32013KT 10SM CLR 12/07 A3026 RMK AO2 SLP254 T01170067 KACY 172254Z 28005KT 10SM CLR 06/M03 A3011 RMK AO2 SLP197 T00561033 KADC 172252Z AUTO 28004KT 10SM CLR 02/M01 A2965 RMK AO2 KADF 172256Z AUTO 18011KT 10SM OVC055 23/18 A2981 RMK AO2 SLP096 T02280183 KADG 172253Z AUTO 17006KT 10SM BKN110 06/01 A2995 RMK AO2 SLP148 T00560011 TSNO KADH 172255Z AUTO 21013G20KT 10SM CLR 26/15 A2966 RMK AO2 KADM 172256Z 20015G21KT 10SM SKC 28/16 A2967 KADS 172247Z 16010G18KT 10SM SKC 27/18 A2975 KADU 172255Z AUTO 00000KT 1 1/2SM -DZ OVC002 11/09 A2954 RMK AO2 KADW 172256Z AUTO 00000KT 10SM CLR 05/M02 A3014 RMK AO2 SLP215 T00501023 $ KAEG 172247Z 25015G25KT 10SM FEW070 BKN120 17/01 A2998 KAEJ 172255Z AUTO 16007KT 10SM SCT042 SCT055 BKN065 06/00 A2975 RMK AO2 T00621001 KAEL 172252Z AUTO 00000KT 1 1/2SM BR OVC003 03/03 A2958 RMK AO2 LTG DSNT E KAEX 172253Z 17012KT 10SM FEW033 24/18 A2991 RMK AO2 SLP133 T02390178 KAFF 172258Z AUTO 23022G29KT 10SM FEW085 15/M06 A2966 RMK AO2 PK WND 20030/57 SLP976 T01481056 KAFJ 172256Z AUTO 10005KT 10SM CLR 03/M02 A3008 RMK AO2 SLP196 T00281022 KAFK 172255Z AUTO 01005KT 7SM BKN029 OVC036 18/15 A2949 RMK AO2 LTG DSNT NE T01750145 KAFN 172252Z AUTO 24006KT 10SM CLR 02/M09 A2995 RMK AO2 SLP156 T00171094 TSNO KAFO 172255Z AUTO 29017G20KT 10SM BKN029 OVC034 00/M05 A2989 RMK AO2 KAFP 172245Z AUTO 00000KT 10SM CLR 09/02 A3016 RMK AO2 T00850015 KAFW 172253Z 19010G18KT 10SM SCT300 28/18 A2972 RMK AO2 SLP052 T02780178 KAGC 172253Z 15005KT 10SM CLR 04/M03 A3006 RMK AO2 SLP193 T00391033 KAGS 172253Z 00000KT 10SM CLR 11/06 A3011 RMK AO2 SLP197 T01110056 KAHN 172251Z 00000KT 10SM CLR 11/07 A3011 RMK AO2 SLP200 T01060067 KAHQ 172255Z AUTO 34009KT 10SM OVC030 13/05 A2952 RMK AO2 T01300050 KAIA 172253Z AUTO 08003KT 10SM OVC090 04/03 A2963 RMK AO2 RAE2157 SLP039 P0000 T00440033 KAIB 172235Z AUTO 22022G36KT 10SM SCT070 BKN090 OVC110 16/M01 A2981 RMK AO2 KAID 172047Z 17010G15KT 10SM CLR 09/00 A2997 KAIG 172255Z AUTO 19003KT 4SM BR OVC005 00/00 A2964 RMK AO2 T00000000 KAIK 172255Z AUTO 11004KT 10SM CLR 13/01 A3016 RMK AO2 KAIO 172255Z AUTO 00000KT 2SM BR OVC003 12/12 A2952 RMK AO2 KAIT 172255Z AUTO 00000KT 5SM BR CLR 00/M01 A2963 RMK AO2 KAIZ 172156Z AUTO 16010KT 10SM SCT025 OVC031 18/13 A2963 RMK AO2 SLP032 T01780133 KAJG 172255Z AUTO 14009KT 10SM SCT070 OVC100 09/05 A2984 RMK AO2 LTG DSNT N T00850045 KAJO 172256Z AUTO 28009KT 10SM CLR 23/13 A3002 RMK AO2 SLP172 T02280133 KAJR 172255Z AUTO 12003KT 7SM CLR 12/03 A3011 RMK AO2 T01170031 KAJZ 172255Z AUTO 22020G26KT 10SM CLR 19/M03 A2968 RMK AO2 T01891027 KAKH 172254Z AUTO 00000KT 10SM CLR 11/02 A3011 RMK AO2 SLP201 T01060017 KAKO 172253Z AUTO 03016G21KT 10SM CLR 12/M01 A2959 RMK AO2 PK WND 36028/2202 SLP995 T01171011 KAKQ 172254Z AUTO 00000KT 10SM CLR 04/02 A3017 RMK AO2 SLP219 T00390017 KAKR 172254Z AUTO 18006KT 10SM CLR 06/M02 A3002 RMK AO2 SLP170 T00561017 KALB 172251Z 28010KT 10SM FEW250 01/M08 A3010 RMK AO2 SLP197 T00061083 KALI 172253Z AUTO 14013KT 10SM CLR 28/21 A2988 RMK AO2 SLP114 T02830206 KALK 172256Z AUTO 26020G26KT 10SM CLR 23/M07 A3009 RMK AO2 PK WND 27032/2157 SLP112 T02331072 KALM 172255Z AUTO 22009KT 10SM CLR 23/M04 A2996 RMK AO2 KALN 172248Z 15013KT 10SM OVC022 11/08 A2972 KALO 172254Z 00000KT 1 3/4SM BR OVC004 05/04 A2959 RMK AO2 RAB00E20 SLP025 P0002 T00500039 KALS 172252Z AUTO 23013G19KT 10SM CLR 08/02 A2986 RMK AO2 SLP073 T00780017 KALW 172253Z 25015G24KT 10SM CLR 09/01 A3013 RMK AO2 PK WND 25030/2204 SLP206 T00940006 KALX 172255Z AUTO 00000KT 10SM CLR 13/07 A3007 RMK AO2 T01270072 KAMA 172253Z 26018G25KT 10SM CLR 26/M03 A2972 RMK AO2 PK WND 25030/2159 SLP018 T02611028 KAMG 172253Z AUTO 00000KT 10SM FEW048 16/11 A3010 RMK AO2 SLP191 T01560106 KAMN 172256Z AUTO 15007KT 10SM SCT110 04/00 A2985 RMK AO2 T00370004 KAMW 172253Z AUTO 12003KT 4SM BR OVC006 08/08 A2954 RMK AO2 SLP007 T00780078 KANB 172253Z AUTO 13003KT 10SM CLR 14/03 A3006 RMK AO2 SLP183 T01440033 KAND 172256Z AUTO 00000KT 10SM CLR 12/05 A3012 RMK AO2 SLP198 T01170050 KANE 172255Z 00000KT 2 1/2SM BR OVC005 04/04 A2962 KANJ 172255Z AUTO 14011G19KT 10SM SCT017 OVC070 03/M01 A2980 RMK AO2 SLP098 T00281011 KANK 172255Z AUTO 29018G25KT 10SM SCT028 BKN040 OVC049 08/03 A2985 RMK AO1 T00760026 KANW 172255Z AUTO 11003KT 10SM SCT060 BKN075 OVC085 05/04 A2961 RMK AO2 T00520035 KAOH 172253Z AUTO 16011KT 10SM CLR 06/01 A2995 RMK AO2 SLP150 T00610011 KAOO 172253Z AUTO 20006KT 10SM CLR 04/M03 A3010 RMK AO2 SLP206 T00391028 KAPA 172253Z 23015KT 10SM FEW090 SCT110 SCT140 16/M01 A2960 RMK AO2 SLP975 T01561006 KAPC 172254Z 03007KT 10SM CLR 17/03 A3017 RMK AO2 SLP209 T01720033 KAPF 172253Z 05006KT 10SM SCT070 23/16 A3000 RMK AO2 SLP157 T02330161 KAPG 172158Z 00000KT 10SM SCT200 07/M04 A3015 RMK AO2A SLP213 T00721041 $ KAPN 172254Z AUTO 16015KT 10SM BKN080 OVC100 02/M01 A2985 RMK AO2 SLP117 T00221011 KAPS 172255Z AUTO 17009KT 10SM SCT040 23/16 A3001 RMK AO2 T02280156 KAPY 172235Z AUTO 18006KT 10SM CLR 31/14 A2985 RMK AO2 T03110147 KAQO 172230Z AUTO 15008KT 10SM CLR 27/17 A2988 RMK AO2 KAQP 172254Z AUTO 34006KT 10SM 03/00 A2967 RMK AO2 KAQR 172255Z AUTO 18007G14KT 25/16 A2970 RMK AO2 PWINO KAQV 172256Z AUTO 19008KT 160V220 10SM CLR 24/18 A2990 RMK AO2 SLP124 T02390178 $ KAQW 172252Z AUTO 29007KT 10SM CLR 00/M07 A3006 RMK AO2 SLP186 T00001072 KAQX 172255Z AUTO 00000KT 10SM CLR 12/05 A3013 RMK AO2 TSNO KARA 172253Z 18009KT 10SM BKN034 22/16 A3001 RMK AO2 SLP161 T02220161 KARB 172253Z 12005KT 10SM BKN100 04/00 A2995 RMK AO2 SLP148 T00440000 KARG 172256Z AUTO 17013KT 10SM OVC037 19/15 A2977 RMK AO2 SLP083 T01940150 KARM 172255Z AUTO 18014KT 10SM CLR 26/17 A2993 RMK AO2 T02580170 KARR 172252Z 15014KT 4SM -RA BR OVC019 04/03 A2971 RMK AO2 LTG DSNT SE AND S RAB2158E19B45 SLP064 P0000 T00440033 KART 172256Z AUTO 00000KT 10SM CLR M02/M06 A3014 RMK AO2 SLP212 T10171061 KARV 172255Z AUTO 20003KT 5SM -SN BKN005 BKN012 01/01 A2961 RMK AO2 LTG DSNT S P0002 T00110006 KARW 172255Z AUTO 00000KT 5SM HZ CLR 12/08 A3015 RMK AO2 KASD 172253Z AUTO 15007KT 10SM CLR 21/17 A3002 RMK AO2 SLP165 T02110167 KASE 172253Z VRB04G29KT 10SM SCT030 BKN060 11/M06 A2971 RMK AO2 PK WND 24029/2246 SLP973 T01061061 KASG 172248Z 18013G21KT 10SM SCT026 BKN032 20/17 A2968 KASH 172256Z 29004KT 10SM CLR 02/M08 A2997 RMK AO2 SLP160 T00221078 KASJ 172245Z AUTO 00000KT 10SM CLR 05/03 A3019 RMK AO2 T00530032 KASL 172255Z AUTO 19007KT 10SM SCT040 SCT047 24/18 A2985 RMK AO1 T02400175 KASN 172255Z AUTO 00000KT 10SM CLR 16/05 A3006 RMK AO2 LTG DSNT N T01590052 KAST 172255Z AUTO 22007KT 10SM -RA FEW042 FEW049 OVC060 11/05 A3021 RMK AO2 RAB43 SLP230 P0000 T01060050 KASW 172255Z AUTO 16005KT 10SM SCT050 BKN065 OVC090 06/01 A2986 RMK AO2 KASX 172253Z AUTO 35003KT 3SM BR FEW008 OVC021 01/M01 A2965 RMK AO2 UPE2159SNB2159E21 SLP052 P0000 T00061006 KATL 172252Z 14003KT 10SM FEW250 16/07 A3009 RMK AO2 SLP191 T01560067 KATP 172255Z AUTO 14006KT 10SM FEW037 FEW043 24/16 A3004 RMK A01 KATS 172255Z AUTO 24022G29KT 10SM CLR 28/M01 A2982 RMK AO2 KATT 172251Z AUTO VRB05KT 10SM CLR 28/17 A2986 RMK AO2 SLP099 T02780172 KATW 172245Z 19007KT 10SM -RA OVC015 03/01 A2965 KATY 172253Z AUTO 05008KT 10SM OVC090 03/00 A2964 RMK AO2 SLP051 T00280000 KAUG 172253Z AUTO 31006KT 10SM CLR M02/M08 A2987 RMK AO2 SLP118 T10171083 KAUH 172255Z AUTO 35004KT 10SM CLR 09/01 A2955 RMK AO2 T00930011 KAUM 172255Z AUTO 00000KT 2SM BR OVC003 03/02 A2958 RMK AO2 LTG DSNT E AND SE KAUN 172255Z AUTO 30006KT 10SM CLR 13/04 A3018 RMK AO1 KAUO 172256Z AUTO 00000KT 10SM CLR 16/03 A3009 RMK AO2 SLP216 T01560028 KAUS 172253Z 18013G22KT 10SM FEW043 BKN250 28/18 A2985 RMK AO2 SLP098 T02780183 KAUW 172254Z AUTO 16003KT 2 1/2SM BR OVC006 01/01 A2964 RMK AO2 RAE07UPB07E09 CIG 004V009 SLP054 P0000 T00060006 KAVC 172255Z AUTO 00000KT 10SM CLR 04/03 A3022 RMK AO2 T00440032 KAVK 172255Z AUTO 23008KT 10SM CLR 26/03 A2951 RMK AO2 KAVL 172254Z 15006KT 10SM CLR 12/M01 A3011 RMK AO2 SLP196 T01221006 KAVP 172254Z 31004KT 10SM CLR 03/M08 A3010 RMK AO2 SLP200 T00331083 KAVQ 172255Z AUTO 32011KT 10SM CLR 27/M02 A2997 RMK AO2 T02691021 KAVX 172251Z AUTO 26009KT 10SM FEW004 17/15 A3007 RMK AO2 SLP167 T01670150 $ KAWG 172255Z AUTO 16010KT 4SM BR OVC019 08/08 A2960 RMK AO2 KAWM 172253Z AUTO 18013KT 6SM HZ CLR 20/15 A2984 RMK AO2 SLP102 T02000150 KAWO 172256Z AUTO 21004KT 10SM BKN070 09/03 A3018 RMK AO2 SLP224 T00890033 KAXA 172255Z AUTO 03004KT 1/2SM FG OVC002 07/07 A2956 RMK AO2 PWINO KAXH 172255Z AUTO 20008KT 10SM SCT040 26/19 A2993 RMK AO2 T02550191 KAXN 172253Z AUTO 32003KT 6SM BR BKN120 02/01 A2966 RMK AO2 SLP058 T00220006 KAXS 172255Z AUTO 22014KT 10SM CLR 32/00 A2964 RMK AO2 T03240000 KAXV 172253Z AUTO 15009KT 10SM CLR 06/02 A2995 RMK AO2 LTG DSNT W KAXX 172255Z AUTO 23012G17KT 10SM -RA BKN024 OVC034 05/02 A2999 RMK AO2 P0002 T00500022 KAYS 172255Z AUTO 12004KT 10SM SCT047 15/11 A3010 RMK AO2 T01510106 KAZC 172255Z AUTO 24024G30KT 10SM SCT065 SCT080 17/03 A2996 RMK AO2 LTG DSNT N KAZE 172255Z AUTO 00000KT 10SM CLR 15/04 A3009 RMK AO2 T01490041 KAZO 172253Z 16009G16KT 10SM OVC080 06/00 A2984 RMK AO2 SLP111 T00610000 KBAB 172158Z COR AUTO 31006KT 10SM CLR 15/04 A3018 RMK AO2 SLP223 T01500042 $ COR 2202 KBAC 172255Z AUTO 32007KT 10SM CLR M05/M07 A2972 RMK AO2 KBAD 172256Z AUTO 18010KT 10SM FEW055 25/17 A2984 RMK AO2 SLP107 T02480173 KBAF 172253Z 31010KT 10SM CLR 02/M08 A3003 RMK AO2 SLP173 T00221078 KBAK 172245Z 17005KT 10SM SCT100 BKN200 07/M01 A2995 KBAM 172255Z AUTO 33011G16KT 10SM CLR 05/M04 A3018 RMK AO1 KBAX 172255Z AUTO 18013G17KT 10SM CLR 03/00 A2992 RMK AO2 T00320001 KBAZ 172251Z AUTO 20014KT 10SM CLR 28/17 A2986 RMK AO2 SLP103 T02830172 KBBB 172253Z AUTO 01004KT 10SM CLR 02/M01 A2967 RMK AO2 KBBF 172255Z AUTO 20015KT 10SM CLR 25/20 A2994 RMK A01 KBBG 172245Z 19013KT 10SM BKN030 OVC150 19/15 A2968 KBBP 172255Z AUTO 00000KT 10SM CLR 08/03 A3016 RMK AO2 KBBW 172253Z AUTO 01015G21KT 10SM SCT120 09/01 A2958 RMK AO2 SLP024 T00940006 KBCB 172255Z AUTO 12004KT 10SM CLR 07/M02 A3013 RMK AO2 T00741022 KBCE 172253Z AUTO 25026G34KT 10SM BKN070 OVC085 10/M02 A2992 RMK AO2 PK WND 23036/2210 SLP047 T01001022 KBCK 172255Z AUTO 00000KT 1 1/4SM DZ BKN004 BKN008 OVC015 03/03 A2963 RMK AO2 LTG DSNT SE P0001 T00280028 KBCT 172247Z 05013KT 10SM CLR 23/16 A3001 KBDE 172253Z AUTO 30007KT 10SM CLR M04/M07 A2966 RMK AO2 SLP060 T10391072 KBDG 172255Z AUTO 23021G29KT 10SM 16/M01 A2988 RMK AO1 T01561007 KBDH 172255Z AUTO 36006KT 10SM SCT014 03/02 A2965 RMK AO2 LTG DSNT SE KBDL 172251Z 32005KT 10SM FEW230 01/M08 A3004 RMK AO2 SLP174 T00111083 KBDN 172255Z AUTO VRB06KT 10SM OVC043 07/M04 A3018 RMK AO2 KBDR 172252Z 33003KT 10SM CLR 07/M09 A3005 RMK AO2 SLP174 T00671094 KBDU 172254Z AUTO 17011G16KT 10SM SCT100 15/00 A2959 RMK AO2 KBEA 172255Z AUTO 14014G19KT 10SM SCT044 27/21 A2989 RMK AO2 T02700214 KBEC 172255Z AUTO 19008KT 10SM CLR 22/09 A2950 RMK AO2 T02170093 KBED 172256Z 28007KT 10SM CLR 02/M09 A2996 RMK AO2 SLP160 T00221094 KBEH 172253Z AUTO 13010G17KT 10SM BKN029 OVC038 06/02 A2978 RMK AO2 RAB05E42 SLP089 P0003 T00610022 KBFD 172253Z AUTO 14005KT 10SM SCT100 01/M03 A3003 RMK AO2 SLP187 T00061033 KBFF 172253Z AUTO 28003KT 10SM -RA FEW055 BKN075 OVC090 08/03 A2964 RMK AO2 RAB51 SLP035 P0000 T00780028 KBFI 172253Z COR 18009G15KT 130V210 10SM SCT030 SCT044 10/04 A3017 RMK AO2 SLP217 T01000039 KBFL 172254Z 28003KT 10SM BKN025 OVC043 16/09 A3013 RMK AO2 SLP198 T01610094 KBFM 172253Z 17006KT 10SM CLR 20/16 A3006 RMK AO2 SLP180 T02000156 KBFW 172242Z AUTO 00000KT 4SM BR BKN010 OVC042 01/01 A2961 RMK AO2 KBGD 172251Z AUTO 25017G28KT 10SM CLR 28/M02 A2964 RMK AO2 PK WND 25036/2206 SLP003 T02781017 KBGE 172255Z AUTO 00000KT 10SM CLR 18/10 A3008 RMK AO2 KBGF 172255Z AUTO 15003KT 10SM CLR 14/01 A3003 RMK KBGM 172253Z 02003KT 10SM CLR M02/M09 A3007 RMK AO2 SLP203 T10221089 KBGR 172253Z 31016G26KT 10SM FEW030 M01/M08 A2980 RMK AO2 PK WND 31029/2208 SLP092 T10111078 KBHB 172256Z AUTO 32008G17KT 280V350 10SM OVC030 M01/M06 A2980 RMK AO2 SLP095 T10111056 FZRANO PNO $ KBHC 172255Z AUTO 10003KT 10SM BKN046 16/10 A3011 RMK AO2 KBHK 172251Z AUTO 26008KT 10SM CLR 03/00 A2965 RMK AO2 SLP060 T00330000 KBHM 172253Z 14004KT 10SM FEW250 17/03 A3007 RMK AO2 SLP182 T01720033 KBID 172256Z AUTO 31013G25KT 10SM CLR 06/M07 A3001 RMK AO2 PK WND 30026/2236 SLP167 T00561067 KBIE 172255Z AUTO 36007KT 10SM CLR 16/11 A2949 RMK AO2 T01620105 KBIF 172258Z AUTO 22011KT 10SM CLR 26/M04 A2994 RMK AO2 SLP090 T02611045 $ KBIH 172256Z AUTO 36016G25KT 10SM CLR 16/M01 A3002 RMK AO2 PK WND 01027/2244 SLP138 T01561006 TSNO KBIJ 172255Z AUTO 00000KT 7SM CLR 16/10 A3008 RMK AO2 KBIL 172253Z 30017KT 10SM FEW045 FEW080 SCT170 05/M08 A2975 RMK AO2 PK WND 30027/2158 SLP088 SHSN DSNT N SE-SW T00501078 KBIS 172252Z 06004KT 10SM CLR 02/M04 A2970 RMK AO2 SLP073 T00171039 KBIV 172253Z AUTO 17010KT 7SM RA SCT044 OVC065 06/02 A2982 RMK AO2 RAB11 SLP103 P0002 T00560017 KBIX 172256Z AUTO 14005KT 10SM CLR 20/18 A3004 RMK AO2 SLP175 T01990175 $ KBJC 172250Z 27015G30KT 30SM SCT080 BKN150 14/M01 A2962 RMK LLWS KBJI 172253Z AUTO 31007KT 10SM CLR M02/M04 A2964 RMK AO2 T10181044 KBJJ 172256Z AUTO 17006KT 10SM CLR 03/M01 A3002 RMK AO2 SLP173 T00331011 KBKB 172254Z AUTO VRB04KT 10SM SCT034 BKN042 24/18 A2991 RMK AO2 SLP155 T02390183 KBKD 172255Z AUTO 20007KT 5SM HZ CLR 28/13 A2973 RMK AO2 T02780134 KBKE 172253Z AUTO 30006KT 10SM SCT060 06/M07 A3012 RMK AO2 SLP220 T00561072 KBKF 172158Z 31014KT 10SM FEW060 BKN200 17/M01 A2959 RMK AO2A SLP961 T01741008 KBKL 172253Z 15009KT 10SM CLR 07/M02 A3001 RMK AO2 SLP166 T00671017 KBKN 172255Z AUTO 18011KT 10SM CLR 24/09 A2954 RMK AO2 KBKS 172255Z AUTO 14009KT 10SM SCT049 30/18 A2988 RMK AO1 T03030180 KBKV 172253Z 31004KT 10SM CLR 19/11 A3005 RMK AO2 SLP175 T01940111 KBKW 172251Z AUTO 13007KT 10SM CLR 08/M06 A3004 RMK AO2 SLP190 T00781056 TSNO KBKX 172256Z AUTO 35007KT 10SM CLR 04/00 A2965 RMK AO2 PRESRR SLP067 T00390000 KBLF 172252Z AUTO 10004KT 10SM CLR 10/M09 A3006 RMK AO2 SLP186 T01001089 KBLH 172252Z AUTO 24005KT 10SM CLR 26/09 A2990 RMK AO2 SLP120 T02610089 KBLI 172253Z 20004KT 10SM BKN060 BKN075 08/03 A3014 RMK AO2 SLP214 T00830028 KBLM 172256Z AUTO 29011KT 10SM CLR 06/M07 A3009 RMK AO2 SLP193 T00611072 KBLU 172252Z AUTO 00000KT 10SM CLR 05/M04 A3017 RMK AO2 SLP209 T00501044 TSNO KBLV 172256Z AUTO 17008KT 10SM OVC024 13/07 A2972 RMK AO2 SLP069 T01260073 KBMC 172235Z AUTO 31013G17KT 10SM SCT046 OVC110 05/M03 A3002 RMK AO1 T00481033 KBMG 172253Z 15009KT 10SM BKN034 OVC043 09/01 A2989 RMK AO2 SLP126 T00890006 KBMI 172258Z 18022G26KT 9SM -RA BKN017 OVC029 06/04 A2970 RMK AO2 RAB57 P0000 KBML 172252Z AUTO VRB06KT 10SM OVC027 M04/M08 A2993 RMK AO2 SLP152 T10441083 KBMQ 172253Z AUTO 19009G17KT 10SM CLR 26/17 A2987 RMK AO2 SLP100 T02610167 KBMT 172255Z AUTO 18012KT 10SM CLR 25/20 A2994 RMK AO2 T02450200 KBNA 172253Z 15008KT 10SM SCT090 BKN220 15/01 A2997 RMK AO2 SLP147 T01500011 KBNL 172255Z AUTO 00000KT 10SM 13/05 A3013 RMK AO2 KBNO 172253Z AUTO 29009KT 10SM OVC065 04/M07 A3015 RMK AO2 SLP228 T00441067 TSNO KBNW 172255Z AUTO 09004KT 2 1/2SM BR OVC004 09/08 A2953 RMK AO2 KBOI 172253Z 30015G24KT 10SM SCT060 08/M06 A3013 RMK AO2 SLP207 T00781056 KBOK 172256Z AUTO 29003KT 10SM CLR 11/05 A3030 RMK AO2 SLP275 T01060050 KBOS 172254Z 31010KT 10SM CLR 04/M07 A2997 RMK AO2 SLP147 T00441072 KBOW 172255Z AUTO 06005KT 10SM CLR 20/13 A3003 RMK AO2 KBPC 172255Z AUTO 25021G29KT 10SM CLR 28/M01 A2961 RMK AO2 KBPG 172255Z AUTO 24009KT 29/01 A2984 RMK AO2 T02850007 KBPI 172253Z AUTO 27006KT 10SM CLR M02/M05 A2981 RMK AO2 SLP090 T10171050 KBPK 172253Z AUTO 21015G21KT 10SM SCT021 BKN027 18/16 A2969 RMK AO2 SLP052 T01830161 KBPT 172253Z 18012G17KT 10SM BKN025 BKN029 24/20 A2994 RMK AO2 SLP139 T02390200 KBQK 172255Z AUTO 02004KT 10SM OVC048 15/12 A3013 RMK AO2 KBQP 172255Z AUTO 20004KT 10SM CLR 24/16 A2990 RMK AO2 T02370158 KBQX 172255Z AUTO 18013KT 9SM CLR 25/21 A2995 RMK A01 KBRD 172253Z AUTO 00000KT 7SM BKN031 02/01 A2964 RMK AO2 SLP050 T00220006 KBRL 172253Z AUTO 15008KT 6SM BR FEW020 BKN030 OVC039 08/06 A2960 RMK AO2 SLP027 T00830061 KBRO 172253Z 15013KT 10SM CLR 28/21 A2992 RMK AO2 SLP131 T02780206 KBTA 172255Z AUTO 35009KT 10SM OVC027 13/07 A2952 RMK AO2 T01340072 KBTL 172253Z 15011KT 10SM OVC090 06/01 A2984 RMK AO2 SLP113 T00560011 KBTM 172253Z AUTO 31014G21KT 10SM BKN060 BKN110 M01/M09 A2987 RMK AO2 SLP157 T10061089 KBTP 172256Z AUTO 11003KT 10SM CLR 03/M03 A3007 RMK AO2 SLP200 T00281033 TSNO KBTR 172253Z 18010KT 10SM FEW044 23/14 A2999 RMK AO2 SLP156 T02330144 KBTV 172254Z 01004KT 10SM CLR M02/M09 A3009 RMK AO2 SLP195 T10221089 KBUF 172254Z 10003KT 10SM BKN120 BKN150 02/M03 A3008 RMK AO2 SLP193 T00171033 KBUR 172253Z 19009KT 10SM SCT039 23/14 A3001 RMK AO2 SLP149 T02280144 KBUU 172230Z AUTO 16011G17KT 4SM BR OVC011 05/05 A2968 RMK AO2 T00510051 KBUY 172254Z AUTO 00000KT 10SM CLR 09/M01 A3014 RMK AO2 SLP207 T00891006 KBVE 172251Z AUTO 00000KT 6SM HZ CLR 22/19 A3005 RMK AO2 SLP174 T02220189 KBVI 172247Z 15006KT 10SM CLR 03/M02 A3005 RMK RUNWAY 10 IS IN USE KBVN 172255Z AUTO 35011KT 10SM SCT110 09/02 A2957 RMK AO2 T00910020 KBVO 172253Z AUTO 21011G22KT 10SM CLR 26/13 A2955 RMK AO2 SLP997 T02560128 KBVS 172255Z AUTO 19004KT 10SM FEW029 SCT033 BKN065 09/04 A3017 RMK A01 KBVU 172255Z AUTO 25014G21KT 10SM 24/04 A2989 RMK AO2 KBVX 172256Z AUTO 19011G14KT 10SM OVC026 21/16 A2977 RMK AO2 SLP081 T02110161 KBVY 172253Z 31006KT 10SM CLR 02/M07 A2995 RMK AO2 SLP138 T00221072 KBWD 172255Z AUTO 18009KT 10SM CLR 29/15 A2980 RMK AO2 KBWG 172253Z AUTO 14003KT 10SM CLR 11/04 A2996 RMK AO2 SLP147 T01110044 KBWI 172254Z 00000KT 10SM FEW160 FEW250 05/M02 A3014 RMK AO2 SLP207 T00501022 KBWW 172255Z AUTO 30004KT 10SM CLR 05/M02 A2955 RMK AO2 KBXK 172255Z AUTO 32007KT 10SM CLR 25/ A2993 RMK AO1 KBYG 172253Z AUTO 32013KT 10SM OVC047 01/M03 A2973 RMK AO2 PRESRR SLP081 T00111028 $ KBYH 172150Z 19012G20KT 10SM BKN050 21/14 A2983 RMK LAST KBYI 172253Z AUTO 28015G28KT 10SM -RA CLR 04/M04 A3003 RMK AO2 PK WND 28036/2201 RAB05E22B46 SLP175 P0000 T00391044 KBYL 172235Z AUTO 14005KT 10SM CLR 13/02 A3001 RMK AO1 KBYS 172255Z 29007G18KT 240V350 9SM CLR 22/04 A2997 RMK AO2A SLP130 WND DATA ESTMD T02180040 KBYY 172255Z AUTO 19012KT 10SM SCT024 25/20 A2993 RMK AO2 T02600205 KBZN 172256Z 30018KT 10SM FEW050 FEW070 SCT095 M01/M05 A2987 RMK AO2 PK WND 30033/2232 PRESRR SLP147 T10061050 KC07 172248Z AUTO 28011G18KT M1/4SM +SN OVC001 M04/M05 A2977 RMK AO2 P0008 KC09 172255Z AUTO 15011KT 1SM TSSN BKN010 BKN015 OVC023 05/04 A2971 RMK AO2 LTG DSNT ALQS P0058 T00480037 KC29 172255Z AUTO 17006KT 7SM OVC006 04/03 A2965 RMK AO1 P0007 T00370032 KC35 172255Z AUTO 15004KT 3SM BR OVC005 02/02 A2963 RMK AO2 T00220022 KC62 172255Z AUTO 16011G15KT 10SM SCT070 OVC095 06/01 A2989 RMK AO2 T00580012 KC65 172255Z AUTO 14010KT 10SM BKN030 OVC035 07/02 A2982 RMK A01 KC75 172255Z AUTO 18010G16KT 7SM VCTS OVC020 07/05 A2966 RMK AO2 LTG DSNT N AND NE T00660054 KC83 172255Z AUTO 34010KT 10SM CLR 16/07 A3017 RMK AO2 KCAD 172255Z AUTO 15010G14KT 10SM -RA SCT050 OVC065 02/00 A2976 RMK AO2 T00201007 KCAE 172256Z 10004KT 10SM FEW200 13/04 A3013 RMK AO2 SLP201 T01330039 KCAG 172253Z AUTO 23006KT 3/4SM -SN BR VV009 01/M01 A2979 RMK AO2 SLP070 P0008 T00061006 KCAK 172251Z 17008KT 10SM BKN200 05/M02 A3002 RMK AO2 SLP174 T00501022 KCAO 172255Z AUTO 27018G28KT 10SM CLR 20/M01 A2972 RMK AO2 PK WND 26037/2158 SLP020 T02001006 KCAR 172254Z AUTO 31016G29KT 6SM -SN BKN021 BKN065 OVC075 M03/M07 A2967 RMK AO2 PK WND 31029/2241 UPB35E38SNB38 SLP056 P0000 T10281067 KCAV 172255Z AUTO 13005KT 1SM BR OVC003 07/07 A2956 RMK AO2 P0001 PWINO KCBE 172246Z AUTO 00000KT 10SM CLR 07/M02 A3016 RMK AO1 KCBF 172255Z AUTO 04004KT 5SM BR OVC028 13/13 A2951 RMK AO2 KCBG 172255Z AUTO 32003KT 1 3/4SM BR OVC003 03/03 A2965 RMK AO2 LTG DSNT SE KCBK 172235Z AUTO 04010KT 10SM CLR 16/02 A2953 RMK AO2 KCBM 172256Z AUTO 15009KT 10SM CLR 18/14 A2997 RMK AO2 SLP152 T01840137 $ KCCA 172255Z AUTO 15007G12KT 6SM HZ OVC049 20/17 A2975 RMK AO2 KCCO 172255Z AUTO 00000KT 10SM CLR 15/05 A3009 RMK AO2 T01490047 KCCR 172253Z 10SM FEW070 17/04 A3018 RMK AO2 SLP204 T01720044 KCCU 172252Z AUTO 1 1/4SM -SN BKN036 BKN044 OVC055 01/M05 A2981 RMK AO2 VIS 1/2V3 KCCY 172255Z AUTO 11004KT 1SM -UP OVC002 04/04 A2959 RMK AO2 KCDA 172255Z AUTO 30003KT 10SM SCT024 M06/M09 A3001 RMK AO2 T10601093 KCDC 172253Z AUTO 24019G29KT 10SM FEW065 15/01 A2989 RMK AO2 PK WND 22031/2212 LTG DSNT N AND NE SLP073 T01500006 KCDD 172249Z AUTO 00000KT 3SM BR OVC018 M01/M01 A2963 RMK AO2 KCDH 172255Z AUTO 17007KT 10SM FEW055 23/17 A2983 RMK AO2 KCDI 172253Z AUTO 00000KT 10SM CLR 04/00 A3006 RMK AO2 T00351003 KCDJ 172252Z AUTO 14003KT 14/13 A2953 RMK AO1 SLP001 T01390133 KCDN 172255Z AUTO 00000KT 10SM CLR 11/03 A3015 RMK AO2 KCDR 172253Z AUTO 31004KT 6SM -RA FEW020 BKN060 OVC075 06/03 A2964 RMK AO2 RAE04B47 SLP055 P0000 T00560028 KCDS 172253Z AUTO 22007KT 10SM CLR 31/M02 A2968 RMK AO2 SLP027 T03111022 KCDW 172253Z 30003KT 10SM CLR 04/M08 A3009 RMK AO2 SLP196 T00441083 KCEC 172256Z AUTO 33007KT 10SM FEW055 12/07 A3029 RMK AO2 SLP259 T01170072 TSNO KCEF 172256Z AUTO 28006KT 10SM CLR 02/M08 A3001 RMK AO2 SLP170 T00161082 KCEU 172254Z AUTO 00000KT 10SM CLR 13/03 A3013 RMK AO2 SLP201 T01330033 KCEW 172253Z AUTO 17003KT 10SM BKN041 19/13 A3008 RMK AO2 SLP183 T01940133 KCEY 172155Z AUTO 13006KT 10SM SCT090 16/07 A2990 RMK AO1 KCEZ 172253Z AUTO 23016G23KT 10SM CLR 15/02 A2987 RMK AO2 PK WND 21031/2216 SLP061 T01500022 KCFD 172255Z AUTO 18009G14KT 10SM BKN045 27/19 A2987 RMK AO2 T02660188 KCFE 172255Z AUTO 36003KT 5SM BR OVC009 03/01 A2966 RMK AO2 LTG DSNT SE T00310012 KCFJ 172255Z AUTO 14014KT 10SM OVC026 07/01 A2984 RMK AO2 LTG DSNT NW T00650010 KCFS 172255Z AUTO 16010KT 10SM CLR 04/00 A2990 RMK AO2 T00421005 KCFV 172252Z AUTO 21012KT 10SM CLR 25/13 A2953 RMK AO2 SLP993 T02500133 KCGC 172255Z AUTO 00000KT 10SM CLR 18/13 A3005 RMK AO2 KCGE 172245Z AUTO 00000KT 2 1/2SM HZ CLR 04/01 A3016 RMK A01 KCGF 172245Z 15008KT 20SM SCT120 OVC200 06/M01 A3002 KCGI 172253Z 15014G24KT 10SM BKN035 OVC045 16/08 A2978 RMK AO2 SLP085 T01560083 $ KCGS 172246Z AUTO 00000KT 10SM CLR 06/M03 A3015 RMK AO1 T00601029 KCHA 172253Z 18003KT 10SM SCT150 SCT250 16/03 A3004 RMK AO2 SLP174 T01610033 KCHD 172247Z VRB04KT 10SM BKN110 26/01 A2993 KCHK 172235Z AUTO 20015G23KT 10SM CLR 27/12 A2958 RMK AO2 T02690117 KCHO 172253Z 16004KT 10SM CLR 09/M03 A3013 RMK AO2 SLP204 T00941033 KCHS 172256Z 12007KT 10SM CLR 12/07 A3015 RMK AO2 SLP210 T01170067 KCIC 172250Z 32010KT 80SM FEW060 15/02 A3021 KCID 172252Z 15006KT 2SM -RA BR OVC008 06/06 A2957 RMK AO2 RAB29 CIG 005V011 SLP020 P0001 T00560056 KCIN 172255Z AUTO 00000KT 1/2SM FG OVC003 10/10 A2953 RMK AO2 KCIR 172255Z AUTO 15012KT 10SM SCT047 BKN065 BKN070 16/09 A2980 RMK AO2 LTG DSNT N T01550093 KCIU 172256Z AUTO 14016G20KT 10SM OVC065 02/M01 A2977 RMK AO2 SLP110 T00171011 FZRANO PNO $ KCJR 172255Z AUTO 00000KT 10SM CLR 04/M01 A3015 RMK AO2 T00411012 KCKB 172253Z 09003KT 10SM CLR 04/M03 A3007 RMK AO2 SLP184 T00441028 KCKC 172254Z AUTO 00000KT 1 1/2SM BR OVC003 M02/M03 A2960 RMK AO2 KCKF 172255Z AUTO 00000KT 10SM CLR 17/08 A3010 RMK AO2 T01660077 KCKI 172255Z AUTO 00000KT 10SM CLR 08/06 A3015 RMK AO2 KCKM 172255Z AUTO 17009KT 10SM 22/15 A2989 RMK A01 KCKN 172254Z AUTO 35008KT 10SM CLR M06/M09 A2972 RMK AO2 KCKP 172255Z AUTO 01004KT 10SM CLR 11/07 A2955 RMK AO2 LTG DSNT E T01060074 KCKV 172252Z AUTO 14006KT 10SM FEW080 BKN100 15/03 A2992 RMK AO2 SLP133 T01500028 KCKZ 172255Z AUTO 32003KT 10SM CLR 03/M06 A3010 RMK AO2 KCLE 172251Z 17010KT 10SM OVC180 06/M01 A3003 RMK AO2 SLP175 T00611011 KCLI 172301Z AUTO 22004KT 4SM -RA OVC011 03/01 A2967 RMK AO2 KCLK 172255Z AUTO 23008G15KT 10SM CLR 28/M07 A2960 RMK AO2 KCLL 172253Z 19012KT 10SM CLR 28/19 A2986 RMK AO2 SLP105 T02780194 KCLM 172253Z AUTO 12007KT 10SM FEW036 BKN070 09/03 A3015 RMK AO2 SLP212 T00940028 KCLS 172255Z AUTO 00000KT 10SM FEW037 SCT046 08/06 A3021 RMK AO2 KCLT 172252Z 16004KT 10SM FEW250 12/00 A3012 RMK AO2 SLP201 T01220000 KCLW 172255Z AUTO 34004KT 10SM CLR 18/11 A3004 RMK AO2 KCMA 172255Z 26013KT 10SM CLR 21/14 A3001 RMK AO2 SLP171 T02110139 KCMD 172255Z AUTO 15003KT 10SM CLR 15/02 A3006 RMK AO2 T01540016 KCMH 172251Z 13007KT 10SM BKN250 08/00 A3001 RMK AO2 SLP165 T00780000 KCMI 172253Z 14016G24KT 10SM SCT020 BKN050 OVC100 07/04 A2975 RMK AO2 SLP078 T00720039 KCMR 172255Z AUTO 22017G25KT 10SM CLR 10/03 A3006 RMK AO2 KCMX 172253Z AUTO 00000KT 3/4SM -SN BR VV004 01/M01 A2964 RMK AO2 SLP048 P0013 T00061006 KCMY 172255Z AUTO 08003KT 1 3/4SM -DZ SCT007 BKN013 OVC021 02/02 A2964 RMK AO2 LTG DSNT SE P0003 T00180018 KCNB 172254Z AUTO 32007KT 280V350 10SM CLR 04/01 A2966 RMK AO2 T00390006 KCNC 172255Z AUTO 16004KT 1 1/4SM BR OVC003 12/11 A2954 RMK AO2 KCNI 172255Z AUTO 00000KT 10SM CLR 16/04 A3009 RMK AO2 KCNK 172255Z AUTO 33007KT CLR 18/08 A2947 RMK AO2 SLP970 T01780078 $ KCNM 172253Z AUTO 20008KT 10SM CLR 27/M01 A2985 RMK AO2 SLP070 T02721006 KCNO 172253Z 23009KT 10SM SCT044 SCT070 BKN150 24/12 A3002 RMK AO2 SLP162 T02390122 KCNU 172252Z AUTO 20013KT 10SM CLR 23/13 A2951 RMK AO2 SLP986 T02330133 KCNW 172255Z 18012G20KT 10SM SKC 27/18 A2980 KCNY 172253Z AUTO 25024G30KT 10SM SCT110 19/M02 A2964 RMK AO2 PK WND 25036/2223 SLP991 T01891017 KCOD 172256Z AUTO 26009KT 10SM BKN110 01/M05 A2976 RMK AO2 SNE10 SLP103 P0000 T00061050 FZRANO KCOE 172256Z AUTO 23007KT 10SM BKN037 OVC060 05/M01 A3001 RMK AO2 RAB40E53 SLP193 P0000 T00501011 KCOF 172258Z AUTO 03007KT 10SM CLR 21/14 A3004 RMK AO2 SLP177 T02140143 KCOM 172255Z AUTO 20010G17KT 10SM CLR 30/12 A2980 RMK AO2 T02980121 KCON 172251Z AUTO 33011KT 10SM CLR 00/M07 A2995 RMK AO2 SLP147 T00001072 KCOQ 172255Z AUTO 00000KT 2 1/2SM BR BKN011 BKN037 01/M01 A2963 RMK AO2 LTG DSNT SE KCOS 172254Z 27012G24KT 10SM SCT100 SCT220 17/M04 A2965 RMK AO2 PK WND 24033/2159 SLP969 T01721044 KCOT 172253Z AUTO 15011KT 10SM CLR 31/16 A2985 RMK AO2 SLP102 T03060161 KCOU 172254Z 17014KT 10SM BKN022 BKN028 17/13 A2958 RMK AO2 SLP014 T01720133 KCPC 172245Z AUTO 00000KT 10SM CLR 09/04 A3016 RMK AO2 T00920039 KCPK 172255Z AUTO 00000KT 7SM CLR 04/01 A3018 RMK AO2 T00350014 KCPR 172253Z 32006KT 3/4SM -SN BR FEW004 OVC011 00/M01 A2970 RMK AO2 SLP067 P0006 T00001006 RVRNO KCPS 172253Z 16011KT 10SM OVC024 12/07 A2972 RMK AO2 SLP064 T01220072 KCPT 172255Z AUTO 21013KT 10SM CLR 27/19 A2979 RMK AO2 KCPU 172235Z AUTO 31013G17KT 10SM CLR 14/07 A3014 RMK AO2 T01410067 KCPW 172249Z AUTO 23022G42KT M1/4SM +SN OVC001 M02/M02 A2999 RMK AO2 KCQB 172230Z AUTO 20015G19KT 10SM CLR 27/12 A2959 RMK AO2 T02660124 KCQC 172153Z AUTO 28026G37KT 10SM BKN075 OVC090 16/M04 A2997 RMK AO2 PK WND 27047/2103 SLP073 T01611039 KCQF 172255Z AUTO 00000KT 10SM CLR 18/16 A3006 RMK AO2 KCQM 172256Z AUTO 00000KT 7SM OVC015 01/M01 A2963 RMK AO2 LTG DSNT S KCQT 172247Z AUTO 27006G14KT 10SM CLR 21/14 A3002 RMK AO2 SLP163 T02110144 KCQW 172255Z AUTO 00000KT 10SM CLR 10/02 A3015 RMK AO2 KCQX 172252Z AUTO 30007G14KT 240V330 10SM CLR 06/M06 A2995 RMK AO2 SLP144 T00561056 KCRE 172253Z 00000KT 10SM CLR 08/07 A3017 RMK AO1 SLP215 T00830067 KCRG 172253Z 01007KT 10SM CLR 18/14 A3009 RMK AO2 SLP188 T01830144 KCRP 172251Z 16017KT 10SM FEW020 FEW035 FEW050 27/21 A2990 RMK AO2 SLP123 T02670206 KCRQ 172253Z AUTO 28004KT 10SM CLR 19/15 A3003 RMK AO2 SLP165 T01890150 KCRS 172253Z AUTO 19015G22KT 10SM FEW043 27/18 A2981 RMK AO2 SLP090 T02670178 TSNO KCRW 172254Z 00000KT 10SM SCT200 SCT250 08/M02 A3004 RMK AO2 SLP175 T00831022 KCRX 172255Z AUTO 15007KT 10SM CLR 18/10 A2994 RMK AO2 KCSG 172251Z 00000KT 10SM CLR 17/05 A3007 RMK AO2 SLP183 T01670050 KCSM 172253Z 22014KT 10SM CLR 27/M03 A2962 RMK AO2 SLP010 T02721028 KCSQ 172255Z AUTO 10005KT M1/4SM FG OVC002 12/11 A2953 RMK AO2 KCSV 172253Z AUTO VRB03KT 10SM CLR 12/01 A3004 RMK AO2 SLP175 T01170011 KCTB 172256Z AUTO 26017KT 10SM CLR 01/M06 A2970 RMK AO2 PK WND 26029/2229 SLP083 T00111056 KCTJ 172235Z AUTO 00000KT 10SM CLR 14/05 A3011 RMK AO2 T01430048 KCTY 172255Z AUTO 00000KT 10SM CLR 15/10 A3011 RMK AO2 T01530099 KCTZ 172245Z AUTO 00000KT 10SM CLR 08/04 A3018 RMK AO2 T00840035 KCUB 172253Z AUTO 00000KT 10SM CLR 11/04 A3014 RMK AO2 SLP205 T01110039 KCUH 172255Z AUTO 18007KT 10SM CLR 25/13 A2956 RMK AO2 T02490125 KCUL 172255Z AUTO 13010KT 10SM BKN080 09/06 A2984 RMK AO2 LTG DSNT N T00890061 KCUT 172253Z AUTO 25004KT 10SM FEW004 OVC049 01/M01 A2962 RMK AO2 SNE2158 SLP036 P0000 T00111006 $ KCVB 172255Z AUTO 18011G15KT 10SM CLR 29/16 A2989 RMK AO2 T02880159 KCVC 172255Z AUTO 00000KT 10SM CLR 13/07 A3009 RMK AO2 KCVG 172252Z 16008KT 10SM SCT200 07/02 A2997 RMK AO2 SLP151 T00670017 KCVH 172255Z AUTO 34005KT 10SM CLR 17/07 A3014 RMK A01 KCVN 172256Z AUTO 26018KT 10SM CLR 26/M03 A2981 RMK AO2 PK WND 26031/2201 SLP062 T02561028 KCVO 172256Z AUTO 21007KT 10SM FEW044 11/06 A3028 RMK AO2 RAB07E32 SLP256 P0000 T01060056 KCVS 172258Z AUTO 25016G23KT 10SM CLR 26/M03 A2982 RMK AO2 PK WND 26032/09 SLP057 T02611035 $ KCVW 172300Z AUTO 17007KT 10SM CLR 23/21 A2998 RMK A01 KCVX 172255Z AUTO 13008KT 10SM -RA SCT055 OVC065 03/00 A2977 RMK AO2 T00301005 KCWA 172253Z 18003KT 2SM DZ OVC004 01/01 A2965 KCWC 172255Z AUTO 19010G17KT 10SM CLR 28/15 A2970 RMK AO2 T02820153 KCWF 172250Z 17007KT 10SM SCT025 BKN040 24/19 A2997 KCWI 172256Z AUTO 14007KT 5SM BR OVC010 05/04 A2963 RMK AO2 CIG 008V012 SLP060 T00500039 KCWN 172258Z AUTO 18009G15KT 10SM FEW080 SCT220 13/M05 A2963 RMK AO2 SLP886 T01311049 $ KCWV 172255Z AUTO 06003KT 10SM CLR 14/09 A3012 RMK AO2 T01360093 KCXE 172255Z AUTO 00000KT 10SM CLR 05/01 A3017 RMK AO1 T00520008 KCXO 172253Z 19010KT 10SM FEW049 27/18 A2989 RMK AO2 SLP118 T02720183 KCXP 172255Z AUTO 11004KT 10SM CLR 08/M08 A3019 RMK AO2 KCXU 172255Z AUTO 00000KT 10SM CLR 16/10 A3009 RMK AO1 T01550099 KCXY 172256Z 00000KT 10SM CLR 04/M04 A3012 RMK AO2 SLP204 T00441039 KCYS 172253Z 31019G28KT 10SM BKN044 OVC055 04/00 A2969 RMK AO2 PK WND 31031/2201 RAE35 SLP016 P0002 T00390000 KCZL 172255Z AUTO 13003KT 10SM CLR 14/04 A3006 RMK AO2 T01400036 KCZT 172255Z AUTO 15008KT 10SM CLR 28/17 A2985 RMK AO2 KCZZ 172252Z AUTO 20011KT 19/08 A3003 RMK AO1 SLP148 T01890083 KD07 172256Z AUTO 00000KT 04/04 A2967 RMK AO1 SLP069 T00390039 KD25 172255Z AUTO 00000KT 3SM -SN OVC004 00/00 A2961 RMK AO2 LTG DSNT S P0007 T00000000 KD39 172253Z AUTO 00000KT 10SM BKN110 02/00 A2964 RMK AO2 LTG DSNT E T00170003 KD50 172255Z AUTO 36006KT 10SM CLR M08/M11 A2971 RMK AO2 KD55 172255Z AUTO 31006KT 10SM CLR M08/M09 A2969 RMK AO2 KD57 172255Z AUTO 00000KT 10SM SCT060 01/M05 A2966 RMK AO2 KD60 172255Z AUTO 15003KT 10SM CLR M02/M07 A2967 RMK AO2 KD73 172235Z AUTO 00000KT 10SM CLR 13/06 A3011 RMK AO2 T01300063 KD95 172254Z AUTO 18007KT 10SM SCT090 04/00 A2994 RMK AO2 T00391005 KDAA 172256Z AUTO 00000KT 10SM CLR 06/M02 A3015 RMK AO2 SLP213 T00571017 $ KDAB 172253Z 00000KT 10SM SCT049 20/14 A3006 RMK AO2 SLP177 T02000144 $ KDAG 172250Z AUTO 27027G35KT 10SM CLR 23/08 A2994 RMK AO2 PK WND 25037/2230 SLP121 T02280083 KDAL 172253Z 18013G17KT 10SM FEW040 BKN250 27/18 A2975 RMK AO2 SLP067 T02720178 KDAN 172253Z AUTO 00000KT 10SM CLR 04/00 A3015 RMK AO2 SLP207 T00440000 KDAW 172251Z AUTO 28005G16KT 10SM CLR M01/M08 A2991 RMK AO2 SLP129 T10061078 KDAY 172256Z 16008KT 10SM FEW030 SCT220 BKN250 07/01 A2997 RMK AO2 SLP155 T00720006 KDBN 172235Z AUTO 00000KT 10SM CLR 12/05 A3012 RMK AO2 KDBQ 172253Z 16008KT 1 3/4SM BR OVC003 03/03 A2960 RMK AO2 RAB15E49 SLP035 P0002 T00330033 KDCA 172252Z 30003KT 10SM FEW100 SCT250 10/M03 A3016 RMK AO2 SLP212 T01001028 KDCM 172255Z AUTO 00000KT 10SM CLR 10/00 A3013 RMK AO2 KDCU 172253Z AUTO 15007KT 9SM CLR 13/03 A3002 RMK AO2 SLP167 T01330033 KDCY 172255Z AUTO 15010KT 10SM SCT028 BKN080 BKN100 09/02 A2988 RMK AO2 LTG DSNT N T00850015 KDDC 172252Z AUTO 21010KT 8SM CLR 23/03 A2951 RMK AO2 SLP974 T02330028 KDDH 172254Z AUTO 25009KT 10SM CLR 00/M07 A3005 RMK AO2 SLP182 T00001072 KDEC 172254Z 16014KT 10SM FEW036 SCT050 BKN060 08/04 A2973 RMK AO2 SLP070 T00780044 KDED 172255Z AUTO 05003KT 10SM CLR 20/14 A3005 RMK AO2 KDEH 172255Z AUTO 00000KT 2SM BR OVC003 03/03 A2959 RMK AO2 P0003 KDEN 172253Z 03016KT 10SM FEW080 FEW120 SCT220 12/02 A2960 RMK AO2 WSHFT 2235 SLP970 SHSN OMTNS DSNT W-NW T01220017 KDEQ 172253Z AUTO 20007KT 10SM BKN046 24/19 A2976 RMK AO2 SLP073 T02390189 KDET 172253Z 17007KT 10SM CLR 04/01 A2997 RMK AO2 SLP155 T00440006 KDEW 172253Z AUTO 24011KT 10SM SCT043 07/M03 A2999 RMK AO2 SLP169 T00671028 KDFI 172253Z AUTO 16008KT 10SM BKN110 07/00 A2993 RMK AO2 SLP142 T00720000 KDFW 172253Z 19018KT 10SM BKN300 28/18 A2973 RMK AO2 PK WND 19026/2158 SLP057 T02780183 KDGW 172253Z AUTO 01010G16KT 4SM -SN BR SCT007 OVC018 01/01 A2968 RMK AO2 PK WND 27035/2215 WSHFT 2208 RAB15E34SNB34 SLP043 P0004 T00110011 KDHN 172253Z 00000KT 10SM CLR 16/07 A3010 RMK AO2 SLP191 T01610072 KDHT 172153Z AUTO 24024G32KT 10SM CLR 28/01 A2968 RMK AO2 PK WND 24035/2101 SLP002 T02780006 KDIJ 172256Z AUTO 10005KT 9SM -SN SCT043 BKN065 OVC100 M03/M05 A2990 RMK AO2 SNE30B48 SLP150 P0003 T10331050 KDIK 172256Z AUTO 16004KT 10SM FEW060 03/M05 A2963 RMK AO2 SLP054 T00281050 KDKB 172255Z AUTO 16015G22KT 3SM TS BR OVC005 04/03 A2969 RMK AO2 LTG DSNT N SE AND S T00370032 KDKK 172253Z AUTO 10004KT 10SM CLR 02/M02 A3006 RMK AO2 SLP186 T00171022 KDKR 172230Z AUTO RMK AO2 PWINO TSNO KDKX 172255Z AUTO 00000KT 9SM CLR 11/06 A3005 RMK A01 KDLF 172257Z 17009KT 10SM FEW030 27/19 A2985 RMK AO2A SLP099 T02720185 $ KDLH 172255Z VRB03KT 3SM BR OVC004 01/00 A2962 RMK AO2 SLP048 T00060000 KDLL 172255Z AUTO 17005KT 3SM VCTS BR OVC005 02/02 A2962 RMK AO2 LTG DSNT E AND SE T00220016 KDLN 172253Z AUTO 28011G27KT 10SM FEW070 01/M14 A2989 RMK AO2 PK WND 30027/2247 SLP142 T00111139 KDLO 172255Z AUTO 29003KT 10SM CLR 15/07 A3012 RMK AO2 T01530067 KDLS 172253Z AUTO 31010KT 10SM BKN041 OVC050 11/04 A3019 RMK AO2 SLP224 T01060039 KDLZ 172257Z AUTO 15004KT 10SM CLR 06/00 A3000 RMK AO2 KDMA 172258Z AUTO 32016G20KT 10SM CLR 27/M04 A2998 RMK AO2 SLP120 T02741045 $ KDMH 172254Z AUTO 10/M03 A3014 RMK AO1 SLP207 T01001033 KDMN 172253Z AUTO 27012G21KT 10SM CLR 24/M07 A2999 RMK AO2 PK WND 27027/2157 SLP106 T02441072 KDMO 172253Z AUTO 18013KT 10SM CLR 18/16 A2955 RMK AO2 SLP004 T01830156 KDMW 172245Z AUTO 00000KT 10SM CLR 07/M03 A3013 RMK AO2 KDNA 172255Z AUTO 25011G17KT 10SM CLR 26/M05 A2997 RMK AO2 PWINO KDNL 172253Z AUTO 13004KT 10SM CLR 16/02 A3012 RMK AO2 SLP196 T01610022 KDNN 172255Z AUTO 14003KT 10SM CLR 15/05 A3007 RMK AO2 KDNS 172255Z AUTO 00000KT 2SM BR OVC026 11/11 A2954 RMK AO2 KDNV 172255Z AUTO 14013G18KT 10SM BKN021 OVC025 07/02 A2975 RMK AO2 T00670024 KDOV 172256Z 24004KT 10SM CLR 06/M03 A3014 RMK AO2A SLP210 T00641028 $ KDPA 172252Z 16010KT 5SM BR OVC021 04/04 A2970 RMK AO2 LTG DSNT NE AND S RAB11E32 SLP061 P0004 T00440039 KDPL 172245Z AUTO 00000KT 10SM CLR 06/03 A3018 RMK AO2 KDQH 172255Z AUTO 00000KT 10SM CLR 16/07 A3011 RMK AO2 KDRA 172255Z AUTO 21016G22KT 10SM CLR 21/04 A2991 RMK AO2 PK WND 23027/2225 SLP092 T02110039 KDRI 172255Z AUTO 16009KT 10SM SCT023 SCT031 SCT042 24/18 A2996 RMK AO2 T02380182 KDRM 172253Z AUTO 14015G22KT 10SM BKN018 OVC075 04/00 A2980 RMK AO2 T00360000 KDRO 172253Z AUTO 24015G28KT 10SM SCT044 SCT060 11/02 A2990 RMK AO2 PK WND 25038/2221 SLP090 T01110022 KDRT 172253Z AUTO 15008KT 10SM CLR 27/19 A2984 RMK AO2 SLP091 T02670189 KDSM 172254Z 09003KT 5SM BR OVC005 11/09 A2953 RMK AO2 SLP003 T01060094 KDSV 172254Z AUTO 19004KT 10SM SCT120 01/M05 A3010 RMK AO2 SLP210 T00111050 KDTA 172255Z AUTO 36015G22KT 10SM SCT037 BKN060 OVC080 03/M01 A3005 RMK AO1 KDTL 172253Z AUTO 29008KT 10SM CLR 00/M04 A2969 RMK AO2 KDTN 172253Z 17011KT 10SM FEW050 26/18 A2984 RMK AO2 SLP102 T02560178 $ KDTO 172253Z 19014KT 10SM CLR 27/18 A2972 RMK AO2 PK WND 19026/2204 SLP057 T02720178 KDTS 172253Z 00000KT 10SM CLR 21/13 A3006 RMK AO2 SLP178 T02110128 KDTW 172253Z 17004KT 10SM BKN130 OVC170 04/01 A2998 RMK AO2 SLP156 T00440006 KDUA 172255Z AUTO 20014G22KT 10SM 25/17 A2972 RMK AO2 KDUB 172255Z AUTO 32019G30KT 1/2SM -SN BKN005 OVC011 M05/M07 A2976 RMK AO2 KDUC 172255Z AUTO 20016G20KT 10SM CLR 26/15 A2967 RMK AO2 T02640151 KDUG 172256Z AUTO 24015KT 10SM CLR 26/M09 A3004 RMK AO2 SLP122 T02561089 KDUH 172254Z AUTO 18004KT 10SM SCT110 07/01 A2996 RMK AO2 T00730010 KDUJ 172253Z AUTO 14003KT 10SM CLR 01/M04 A3006 RMK AO2 SLP194 T00111039 KDUX 172255Z AUTO 23019G23KT 10SM CLR 25/00 A2969 RMK AO2 T02461002 KDVK 172235Z AUTO 17003KT 10SM CLR 09/01 A3000 RMK AO2 KDVL 172256Z AUTO 27007KT 10SM CLR M07/M09 A2972 RMK AO2 SLP100 T10671094 FZRANO KDVN 172252Z AUTO 16007KT 5SM BR FEW015 OVC021 07/05 A2963 RMK AO2 SLP036 T00670050 KDVO 172255Z AUTO 02004G10KT 10SM CLR 17/04 A3018 RMK AO2 KDVP 172259Z AUTO 34010KT 10SM BKN120 04/01 A2963 RMK AO2 LTG DSNT E T00440008 KDVT 172253Z AUTO 33004KT 10SM BKN100 23/04 A2994 RMK AO2 SLP121 T02330039 KDWH 172253Z 19010G17KT 10SM FEW047 FEW055 27/19 A2989 RMK AO2 SLP120 T02720189 KDWU 172256Z AUTO 00000KT 10SM CLR 06/02 A3005 RMK AO2 SLP179 T00610017 KDWX 172255Z AUTO 26004KT 1/2SM SN OVC007 01/00 A2982 RMK AO2 T00050000 KDXR 172253Z 31008KT 10SM CLR 06/M10 A3004 RMK AO2 SLP175 T00561100 KDXX 172254Z AUTO 35008KT 10SM OVC110 04/01 A2967 RMK AO2 KDYA 172255Z AUTO 00000KT 10SM 19/14 A3003 RMK AO2 T01870139 KDYB 172255Z AUTO 00000KT 10SM CLR 11/06 A3016 RMK AO1 KDYL 172254Z AUTO 26004KT 10SM CLR 05/M06 A3010 RMK AO2 SLP197 T00501061 KDYR 172256Z AUTO 16010G17KT 10SM CLR 19/12 A2984 RMK AO2 SLP122 T01940117 PNO $ KDYS 172156Z 17010KT 10SM CLR 27/17 A2977 RMK AO2A SLP045 T02690168 $ KDYT 172254Z AUTO 16004KT 7SM OVC018 01/01 A2965 RMK AO2 LTG DSNT SE KDZB 172255Z AUTO 21004KT 10SM CLR 27/18 A2986 RMK AO2 T02740175 KE11 172255Z AUTO 25013G17KT 10SM CLR 26/M02 A2986 RMK AO2 T02631021 KE16 172255Z AUTO 30007KT 10SM CLR 16/05 A3014 RMK AO2 PWINO PNO KE38 172255Z AUTO 26008G17KT 10SM CLR 28/M03 A3004 RMK AO2 T02791029 KE80 172255Z AUTO 27023G32KT 10SM BKN090 OVC110 20/00 A2996 RMK AO2 T01981005 KEAN 172234Z AUTO 20007G15KT 10SM OVC090 06/01 A2967 RMK AO2 KEAR 172256Z AUTO 02008KT 10SM CLR 09/01 A2956 RMK AO2 SLP011 T00890011 KEAT 172155Z AUTO 26014KT 10SM CLR 08/M04 A3001 RMK AO2 SLP168 T00831039 KEAU 172256Z 14004KT 5SM BR BKN006 OVC016 02/02 A2961 RMK AO2 SLP037 T00220017 KEBA 172255Z AUTO 00000KT 10SM CLR 11/05 A3014 RMK AO2 T01120051 KEBG 172255Z AUTO 15011G16KT 10SM CLR 29/18 A2990 RMK AO2 T02930177 KEBS 172255Z AUTO 09003KT 1/2SM BR OVC002 07/07 A2953 RMK AO2 KECG 172254Z 02004KT 10SM CLR 09/03 A3018 RMK AO2 SLP219 T00940028 KECP 172253Z 21004KT 10SM CLR 18/13 A3005 RMK AO2 SLP188 T01830128 KECS 172255Z AUTO 00000KT 10SM SCT075 02/01 A2965 RMK AO2 KEDC 172255Z AUTO 19010G16KT 10SM CLR 27/18 A2985 RMK AO2 KEDE 172245Z AUTO 00000KT 10SM CLR 07/05 A3019 RMK AO2 T00710046 KEDJ 172255Z AUTO 16010G16KT 10SM CLR 05/00 A2997 RMK AO1 KEDN 172255Z AUTO 00000KT 10SM CLR 16/10 A3007 RMK AO2 T01610097 KEDU 172255Z AUTO 35010G15KT 10SM CLR 15/05 A3019 RMK AO1 KEDW 172158Z 28018G24KT 70SM FEW050 BKN300 19/07 A3003 RMK AO2A PK WND 28029/11 SLP157 T01940068 KEED 172256Z AUTO 22008G14KT 10SM CLR 27/04 A2989 RMK AO2 SLP096 T02720044 $ KEEN 172256Z AUTO 00000KT 10SM CLR M01/M09 A2999 RMK AO2 SLP178 T10061089 FZRANO KEEO 172253Z AUTO 9SM -RA BKN030 OVC037 04/00 A2977 RMK AO2 LTG DSNT SE RAE16B43SNB16E43 SLP039 P0003 T00390000 $ KEET 172253Z AUTO 00000KT 10SM CLR 17/09 A3006 RMK AO2 SLP178 T01670089 KEFD 172250Z 17012KT 10SM SCT040 27/18 A2994 KEFK 172255Z AUTO 00000KT 10SM CLR M06/M10 A3004 RMK AO2 T10581096 KEFT 172255Z AUTO 17010KT 2SM -TSDZ OVC003 02/02 A2963 RMK AO2 LTG DSNT NE THRU S P0002 KEGE 172256Z 27025G37KT 10SM -RA SCT050 BKN075 OVC100 07/02 A2972 RMK AO2 PK WND 26045/2217 RAB18 SLP037 P0002 T00720022 KEGI 172255Z 17005KT 10SM BKN045 19/13 A3006 RMK AO2A SLP180 T01880125 $ KEGV 172255Z AUTO 00000KT 4SM UP OVC004 00/00 A2961 RMK AO2 T00010001 KEHA 172255Z AUTO 25016G20KT 10SM CLR 26/04 A2960 RMK AO2 T02550036 KEHC 172255Z AUTO 19012KT 10SM CLR 25/18 A3000 RMK A01 KEHO 172245Z AUTO 00000KT 10SM CLR 13/00 A3012 RMK AO2 T01270000 KEHR 172256Z AUTO 13007KT 10SM BKN095 10/06 A2988 RMK AO2 SLP131 T01000061 KEHY 172235Z AUTO 25016KT 3/4SM -SN BKN010 BKN019 OVC032 00/M02 A2968 RMK AO2 KEIK 172254Z AUTO 24006KT 10SM CLR 15/M01 A2963 RMK AO2 T01461011 KEIR 172255Z AUTO 21008KT 10SM SCT034 24/18 A3004 RMK A01 KEKM 172252Z 15010G15KT 10SM -RA BKN036 OVC044 07/01 A2983 RMK AO2 KEKN 172251Z AUTO 00000KT 10SM CLR 02/M03 A3007 RMK AO2 SLP205 T00171028 TSNO KEKO 172256Z AUTO 32007KT 10SM CLR 03/M04 A3016 RMK AO2 SLP217 T00281044 TSNO KEKQ 172256Z AUTO 09007KT 050V140 10SM CLR 13/03 A3001 RMK AO2 SLP192 T01330033 PNO $ KEKS 172255Z AUTO 29019G26KT 10SM SCT055 SCT065 01/M12 A2991 RMK AO2 KEKX 172255Z AUTO 14003KT 10SM CLR 10/04 A2997 RMK AO2 LTG DSNT N T00950035 KEKY 172156Z AUTO 00000KT 10SM CLR 19/07 A3006 RMK AO2 SLP201 T01890072 KELA 172255Z AUTO 20011G16KT 10SM SCT040 28/19 A2989 RMK AO2 T02760191 KELD 172253Z AUTO 16007KT 10SM FEW040 FEW050 23/19 A2985 RMK AO2 SLP103 T02280194 KELK 172255Z AUTO 25009KT 10SM CLR A2960 RMK AO2 KELM 172253Z 00000KT 10SM CLR M01/M06 A3012 RMK AO2 SLP210 T10111056 KELN 172253Z AUTO 30019G26KT 10SM FEW055 06/00 A3007 RMK AO2 PK WND 31027/2243 SLP195 T00560000 KELO 172253Z AUTO 24003KT 7SM OVC007 00/00 A2961 RMK AO2 LTG DSNT S KELP 172251Z 25012KT 10SM FEW150 BKN250 27/M05 A2995 RMK AO2 SLP077 ACSL DSNT N T02671050 KELY 172253Z AUTO 32012G20KT 10SM FEW037 SCT046 BKN060 02/M07 A3013 RMK AO2 PK WND 33032/2228 SLP170 T00221072 KELZ 172256Z AUTO 17003KT 10SM OVC110 01/M06 A3006 RMK AO2 SLP200 T00111056 KEMK 172255Z AUTO 18019KT 8SM BKN024 BKN032 BKN040 25/20 A2998 RMK A01 KEMP 172253Z AUTO 21010KT 10SM CLR 21/11 A2947 RMK AO2 SLP977 T02110111 KEMT 172247Z 21007KT 10SM SCT060 22/13 A3001 KEMV 172255Z AUTO 00000KT 10SM CLR 03/00 A3019 RMK AO2 KEND 172256Z 17011KT 10SM SCT200 BKN250 24/10 A2951 RMK AO2A SLP985 T02360103 $ KENL 172255Z AUTO 14012G18KT 10SM SCT033 BKN050 OVC075 11/07 A2976 RMK AO2 LTG DSNT N T01090067 KENV 172256Z AUTO 33014G22KT 10SM CLR 04/M03 A3010 RMK AO2 PK WND 34029/2158 SNE20 SLP199 P0000 T00441033 KENW 172253Z 16013KT 9SM SCT013 OVC020 05/03 A2969 RMK AO2 LTG DSNT S SLP060 T00500028 KEOD 172258Z AUTO 16006KT 10SM FEW100 SCT190 16/04 A2991 RMK AO2 LTG DSNT N SLP133 T01570038 KEOE 172255Z AUTO 13003KT 10SM CLR 10/03 A3015 RMK AO2 KEOK 172255Z AUTO 13007KT 10SM BKN029 OVC035 10/08 A2958 RMK AO2 KEPH 172253Z AUTO 22013G17KT 10SM CLR 10/M05 A3003 RMK AO2 SLP175 T01001050 KEQA 172255Z AUTO 21009KT 10SM CLR 23/09 A2951 RMK AO2 KEQY 172253Z AUTO 00000KT 10SM CLR 09/01 A3013 RMK AO2 SLP218 T00940011 KERI 172251Z VRB03KT 10SM CLR 04/M02 A3005 RMK AO2 SLP181 T00391022 KERV 172255Z AUTO 18009KT 10SM CLR 26/19 A2991 RMK AO2 T02550188 KERY 172254Z AUTO 13005KT 10SM OVC018 00/00 A2973 RMK AO2 T00040000 KESC 172256Z AUTO 22011KT 4SM -RA BR BKN005 OVC012 05/04 A2970 RMK AO2 CIG 004V009 SLP083 P0008 T00500044 KESF 172253Z AUTO 18008KT 10SM FEW037 23/17 A2993 RMK AO2 SLP135 T02330172 KESN 172245Z 00000KT 10SM SKC 05/M01 A3019 KEST 172252Z AUTO 05004KT 7SM SCT029 BKN110 06/05 A2957 RMK AO2 SLP022 T00560050 KETB 172255Z AUTO 17007KT 10SM OVC016 03/01 A2966 RMK AO2 KETH 172256Z AUTO 33005KT 10SM CLR 01/M03 A2971 RMK AO2 LTG DSNT E KETN 172255Z AUTO 17008KT 10SM CLR 27/16 A2976 RMK AO2 T02740161 KEUF 172158Z AUTO 00000KT 10SM CLR 19/06 A3006 RMK AO2 SLP177 T01890056 KEUG 172254Z 18009KT 10SM SCT035 BKN047 BKN250 11/06 A3028 RMK AO2 SLP257 T01060061 KEUL 172256Z AUTO 29016KT 10SM CLR 08/M05 A3014 RMK AO2 SLP216 T00831050 KEVB 172247Z 00000KT 10SM FEW040 20/13 A3006 KEVM 172255Z AUTO 28004KT 7SM OVC007 00/M02 A2964 RMK AO2 LTG DSNT SE KEVU 172235Z AUTO 13005KT 3SM BR OVC028 15/15 A2951 RMK AO2 KEVV 172254Z 14009KT 6SM HZ OVC100 10/05 A2988 RMK AO2 SLP121 T01000050 KEVW 172253Z AUTO 26013KT 10SM FEW050 BKN080 OVC100 M04/M06 A2993 RMK AO2 SNE16 SLP132 P0000 T10391056 KEWB 172253Z 29004KT 10SM CLR 03/M07 A2997 RMK AO2 SLP150 T00281067 KEWK 172256Z AUTO 20016KT 10SM CLR 21/10 A2949 RMK AO2 SLP974 T02110100 KEWN 172254Z 00000KT 10SM CLR 07/05 A3019 RMK AO2 SLP222 T00720050 KEWR 172251Z 29006KT 10SM SCT250 07/M09 A3010 RMK AO2 SLP191 T00671094 KEXX 172245Z AUTO 00000KT 10SM CLR 09/00 A3013 RMK AO2 T00921003 KEYE 172253Z AUTO 15007KT 10SM BKN100 08/M01 A2989 RMK AO2 SLP125 T00831006 KEYW 172253Z 07008KT 10SM FEW038 BKN065 25/18 A2999 RMK AO2 SLP156 T02500183 KEZF 172255Z AUTO 00000KT 10SM CLR 06/00 A3015 RMK AO2 T00610004 KEZM 172235Z AUTO 00000KT 10SM CLR 18/M02 A3013 RMK AO2 T01801017 KEZS 172255Z AUTO 00000KT 7SM RA OVC014 03/02 A2967 RMK AO2 LTG DSNT S P0001 T00320017 KF00 172255Z AUTO 20021G26KT 10SM CLR A2975 RMK AO2 KF05 172255Z AUTO 21012G16KT 10SM CLR 31/M01 A2967 RMK AO1 T03101014 KF17 172255Z AUTO 17008KT 130V190 10SM SCT040 25/17 A2987 RMK AO2 T02480170 KF44 172255Z AUTO 20010G14KT 10SM OVC043 24/16 A2981 RMK AO2 KF46 172255Z AUTO 19020G24KT 10SM CLR 26/18 A2976 RMK AO2 T02610183 KF70 172255Z AUTO 00000KT 10SM CLR 20/10 A3004 RMK AO1 KFAF 172258Z AUTO 00000KT 10SM CLR 06/02 A3015 RMK AO2 SLP213 T00630017 $ KFAM 172256Z AUTO 18009KT 10SM OVC016 13/09 A2973 RMK AO2 SLP069 T01330094 KFAR 172253Z 33008KT 10SM CLR M01/M06 A2971 RMK AO2 SLP072 T10111061 KFAT 172253Z 28009KT 10SM FEW040 17/05 A3013 RMK AO2 SLP199 CU TPG MTNS DSNT E T01720050 KFAY 172253Z 00000KT 10SM CLR 09/02 A3016 RMK AO2 SLP209 T00940022 KFBG 172256Z AUTO 00000KT 10SM CLR 08/04 A3016 RMK AO2 SLP217 T00790036 $ KFBL 172254Z AUTO 00000KT 2SM BR OVC004 03/03 A2960 RMK AO2 LTG DSNT E AND SE KFBR 172255Z AUTO 27020G25KT 10SM SCT040 SCT048 OVC060 M02/M04 A2994 RMK AO2 T10201037 KFCH 172255Z AUTO 30009KT 10SM CLR 17/05 A3012 RMK A01 KFCM 172253Z 04003KT 2SM BR OVC003 04/03 A2962 RMK AO2 SLP036 T00390028 KFCS 172258Z AUTO 26030G40KT 10SM FEW095 18/M04 A2963 RMK AO2 SLP992 T01761041 KFDK 172247Z 00000KT 10SM SKC 04/M02 A3017 KFDR 172253Z AUTO 20011KT 10SM CLR 29/10 A2962 RMK AO2 SLP017 T02890100 KFDW 172255Z AUTO 13003KT 10SM CLR 12/02 A3013 RMK AO1 KFDY 172253Z AUTO 16010KT 10SM CLR 07/00 A2996 RMK AO2 SLP147 T00670000 KFEP 172255Z AUTO 15009KT 2 1/2SM TS BR OVC007 04/03 A2967 RMK AO2 LTG DSNT N THRU SE T00350030 KFET 172255Z AUTO 34004KT 10SM SCT032 SCT120 12/05 A2953 RMK AO2 T01230047 KFEW 172249Z AUTO 31024G29KT 10SM -SHRA OVC041 03/00 A2972 RMK AO2 SHRAE2158SHRAB23E39SHRAB49 PRESRR SLP038 $ KFFA 172220Z AUTO 00000KT 10SM CLR 09/03 A3015 RMK AO2 T00850028 KFFC 172253Z AUTO 00000KT 10SM CLR 12/07 A3009 RMK AO2 SLP194 T01170072 KFFL 172255Z AUTO 16010KT 5SM BR OVC021 09/07 A2957 RMK AO2 PWINO KFFM 172254Z AUTO 35008KT 10SM CLR 01/M03 A2970 RMK AO2 KFFO 172258Z AUTO 14008KT 10SM CLR 08/M01 A2997 RMK AO2 SLP156 T00751009 KFFT 172253Z AUTO 12003KT 10SM CLR 09/02 A2997 RMK AO2 SLP153 T00940017 KFFX 172254Z AUTO 15006KT 10SM -RA SCT043 BKN050 OVC080 04/02 A2979 RMK AO2 T00420016 KFFZ 172253Z VRB04KT 30SM BKN120 26/02 A2995 KFGN 172254Z AUTO 31004KT 10SM CLR M04/M08 A2966 RMK AO2 KFGX 172235Z AUTO 00000KT 10SM CLR 08/00 A3001 RMK AO2 T00760000 KFHR 172253Z AUTO 22006KT 10SM FEW050 BKN060 BKN075 08/03 A3016 RMK AO2 SLP213 T00830033 KFHU 172258Z AUTO 26014KT 10SM CLR 24/M10 A3009 RMK AO2 SLP132 T02391098 KFIG 172254Z AUTO 00000KT 10SM CLR 01/M03 A3008 RMK AO2 SLP201 T00111028 KFIN 172250Z 02005KT 7SM SKC 18/15 A3007 KFIT 172252Z AUTO 00000KT 10SM CLR 03/M09 A2997 RMK AO2 SLP153 T00331089 KFKA 172255Z AUTO 15005KT 1 3/4SM BR OVC003 02/02 A2960 RMK AO2 LTG DSNT E AND SE T00220016 KFKL 172256Z AUTO 16007KT 10SM FEW100 02/M03 A3004 RMK AO2 SLP189 T00221033 FZRANO KFKN 172255Z AUTO 00000KT 10SM CLR 03/01 A3019 RMK AO2 T00300014 KFKR 172255Z AUTO 16010KT 10SM BKN028 BKN034 OVC046 09/03 A2987 RMK AO2 LTG DSNT NW T00850025 KFKS 172256Z AUTO 16011G21KT 10SM BKN034 OVC039 04/01 A2970 RMK AO2 T00410014 KFLD 172253Z AUTO 19008KT 7SM -RA OVC013 04/01 A2965 RMK AO2 LTG DSNT N RAE12B39 SLP047 P0001 T00390011 KFLG 172257Z 20012KT 10SM OVC030 07/04 A3009 RMK AO2 SLP131 T00720039 KFLL 172253Z 05009G17KT 10SM FEW039 FEW150 23/17 A2999 RMK AO2 SLP153 T02330167 KFLO 172253Z 00000KT 10SM CLR 11/04 A3016 RMK AO2 SLP211 T01060044 KFLP 172256Z AUTO 18011G18KT 10SM BKN022 OVC028 19/16 A2970 RMK AO2 SLP052 T01940156 PNO $ KFLY 172255Z AUTO 28017G26KT 10SM SCT100 SCT120 14/M05 A2969 RMK AO2 T01401050 KFME 172245Z AUTO 00000KT 10SM CLR 03/M01 A3017 RMK AO1 KFMH 172255Z AUTO 31008G13KT 10SM CLR 03/M08 A2997 RMK AO2 KFMM 172255Z AUTO 01017G21KT 10SM CLR 10/03 A2961 RMK AO2 T01000026 KFMN 172253Z 26016G31KT 10SM BKN060 14/02 A2988 RMK AO2 PK WND 27032/2242 SLP089 T01440022 KFMY 172253Z 07003KT 10SM CLR 23/16 A3000 RMK AO2 SLP161 T02330156 KFNB 172253Z AUTO 10006KT 9SM CLR 16/13 A2947 RMK AO2 SLP976 T01610128 KFNL 172256Z AUTO 03015G27KT 10SM SCT070 BKN100 OVC120 08/02 A2965 RMK AO2 PK WND 06028/2244 PRESRR SLP013 T00780022 KFNT 172253Z 16013KT 10SM OVC100 04/M01 A2992 RMK AO2 PRESFR SLP138 T00391011 KFOA 172255Z AUTO 15013KT 10SM CLR 09/06 A2980 RMK AO2 LTG DSNT N T00910056 KFOD 172256Z AUTO 10007KT 1 1/4SM BR OVC004 07/07 A2954 RMK AO2 RAE24 SLP038 P0000 T00720072 KFOE 172253Z 17005KT 10SM CLR 20/14 A2946 RMK AO2 SLP971 T02000139 KFOK 172253Z 33003KT 10SM CLR 02/M06 A3005 RMK AO2 SLP176 T00171056 KFOT 172255Z AUTO 32008KT 10SM CLR 12/06 A3026 RMK AO1 KFOZ 172252Z AUTO 00000KT 10SM CLR 01/M02 A2963 RMK AO2 KFPK 172255Z AUTO 14009KT 10SM BKN095 05/00 A2985 RMK AO2 T00500003 KFPR 172253Z 03003KT 10SM CLR 21/16 A3003 RMK AO2 SLP168 T02060161 KFQD 172245Z AUTO 15003KT 10SM CLR 13/M01 A3012 RMK AO2 T01301010 KFRG 172253Z 31007KT 10SM CLR 06/M09 A3006 RMK AO2 SLP180 T00611089 KFRH 172255Z AUTO 14007KT 10SM SCT047 OVC100 08/00 A2992 RMK AO1 KFRI 172258Z AUTO 19006KT 10SM CLR 20/10 A2944 RMK AO2 SLP961 T02030102 KFRM 172256Z AUTO 04003KT 8SM FEW026 BKN110 06/04 A2958 RMK AO2 SLP030 T00560039 KFRR 172255Z AUTO 00000KT 10SM CLR 07/M02 A3012 RMK AO1 KFSD 172256Z 02010G15KT 10SM -RA BKN070 OVC110 08/02 A2962 RMK AO2 RAB53 SLP038 P0000 T00830022 KFSE 172255Z AUTO 31008KT 10SM CLR M04/M07 A2969 RMK AO2 KFSI 172256Z AUTO 19011KT 10SM CLR 27/15 A2962 RMK AO2 SLP023 T02690149 $ KFSM 172253Z 20017G26KT 10SM CLR 24/17 A2967 RMK AO2 PK WND 21029/2155 SLP044 T02440172 KFSO 172255Z AUTO 30004KT 10SM CLR M03/M09 A3011 RMK AO2 T10351088 KFST 172253Z AUTO 33008KT 10SM CLR 31/01 A2987 RMK AO2 WSHFT 2148 SLP069 T03060011 KFSW 172255Z AUTO 15008KT 4SM BR SCT033 BKN039 OVC060 08/07 A2960 RMK AO2 KFTG 172253Z 02019G27KT 10SM SCT090 BKN220 13/03 A2962 KFTK 172256Z AUTO 12006KT 10SM SCT190 10/03 A2994 RMK AO2 SLP145 T00990027 KFTN 172255Z AUTO 14006KT 10SM CLR 28/19 A2986 RMK A01 KFTW 172253Z 18016G29KT 10SM CLR 28/18 A2973 RMK AO2 PK WND 19029/2246 SLP059 T02830183 KFTY 172253Z 11004KT 10SM CLR 16/06 A3008 RMK AO2 SLP188 T01610056 KFUL 172253Z 28004KT 10SM CLR 23/15 A3001 RMK AO2 SLP160 T02330150 KFVE 172253Z AUTO 31018G29KT 10SM OVC015 M06/M08 A2967 RMK AO2 PK WND 32032/2238 SNE2158 SLP058 P0000 T10561083 KFVX 172255Z AUTO 00000KT 10SM CLR 07/M01 A3014 RMK AO2 T00671008 KFWA 172254Z 15010KT 10SM OVC090 07/02 A2991 RMK AO2 SLP133 T00720017 KFWB 172215Z AUTO 18007G17KT 10SM OVC026 19/15 A2967 RMK AO2 KFWC 172255Z AUTO 14007KT 10SM SCT060 09/06 A2980 RMK AO1 LTG DSNT N T00900058 KFWN 172253Z AUTO 00000KT 10SM CLR 01/M08 A3010 RMK AO2 SLP195 T00111078 KFWS 172250Z 19014G19KT 10SM CLR 28/17 A2977 KFWZ 172255Z AUTO 27012G17KT 10SM SCT021 BKN029 OVC047 M03/M06 RMK AO2 KFXE 172253Z 05007KT 10SM SCT030 23/17 A3000 RMK AO2 SLP161 T02330172 KFXY 172255Z AUTO 10003KT 2SM BR OVC002 05/05 A2957 RMK AO2 KFYE 172255Z AUTO 16006KT 10SM CLR 20/12 A2988 RMK A01 KFYG 172235Z AUTO 16010KT 10SM OVC021 16/12 A2967 RMK AO2 KFYJ 172255Z AUTO 00000KT 10SM CLR 04/01 A3018 RMK AO2 T00400007 KFYM 172255Z AUTO 16007KT 10SM CLR 15/01 A3000 RMK A01 KFYV 172253Z 18013KT 7SM CLR 20/17 A2967 RMK AO2 SLP037 T02000167 KFZG 172255Z AUTO 00000KT 10SM CLR 14/10 A3012 RMK AO2 T01400096 KFZY 172254Z AUTO 00000KT 10SM CLR M01/M04 A3015 RMK AO2 SLP215 T10111044 KGAD 172256Z AUTO 24003KT 10SM CLR 13/07 A3007 RMK AO2 SLP187 T01280072 KGAF 172255Z AUTO 00000KT 9SM CLR M07/M10 A2975 RMK AO2 PWINO KGAG 172253Z AUTO 21009KT 10SM CLR 26/01 A2957 RMK AO2 SLP995 T02560011 KGAI 172256Z AUTO 00000KT 10SM CLR 04/M03 A3014 RMK AO2 SLP241 T00441033 KGAO 172255Z AUTO 15003KT 10SM CLR 22/15 A3004 RMK AO2 T02190151 KGBD 172256Z AUTO 22007KT 10SM CLR 21/04 A2947 RMK AO2 SLPNO T02060044 KGBG 172255Z AUTO 14006KT 10SM OVC021 08/06 A2963 RMK AO2 LTG DSNT N THRU E T00770056 KGBK 172255Z AUTO 13011KT 10SM SCT035 24/17 A3002 RMK A01 KGCC 172253Z AUTO 28010KT 10SM BKN085 OVC110 02/00 A2969 RMK AO2 SLP070 T00170000 KGCD 172255Z AUTO 28010G15KT 10SM SCT075 06/M06 A3014 RMK AO2 T00551062 KGCK 172254Z 22006KT 10SM CLR 22/02 A2950 RMK AO2 SLP969 T02170022 KGCM 172255Z AUTO 19013G21KT 10SM CLR 24/16 A2959 RMK AO2 KGCN 172254Z 25021G34KT 10SM SCT046 BKN050 12/02 A3001 RMK AO2 PK WND 24034/2244 SLP100 T01220017 KGDB 172250Z AUTO 01007KT 10SM SCT050 SCT055 05/02 A2965 RMK AO2 LTG DSNT E T00500020 KGDJ 172255Z AUTO 17008KT 10SM CLR 28/17 A2977 RMK AO2 T02790172 KGDP 172251Z AUTO 24022G40KT 10SM CLR 23/M06 A3000 RMK AO2 PK WND 25042/2158 SLP090 T02281056 KGDV 172256Z AUTO 29007KT 10SM BKN070 OVC085 06/M05 A2965 RMK AO2 SLP061 T00611050 KGED 172254Z AUTO 25003KT 10SM CLR 07/M01 A3015 RMK AO2 SLP210 T00721011 KGEG 172253Z 24022G27KT 10SM SCT043 06/M02 A3000 RMK AO2 PK WND 24027/2205 SLP172 T00561022 KGEU 172253Z 00000KT 10SM FEW120 BKN150 OVC250 24/04 A2994 KGEV 172245Z AUTO 16003KT 10SM CLR 08/M06 A3010 RMK AO2 T00751058 KGEY 172253Z AUTO 35012G19KT 10SM FEW048 SCT085 BKN120 04/M07 A2974 RMK AO2 PK WND 35032/2234 SLP084 T00441067 KGEZ 172253Z AUTO 16011KT 10SM FEW100 08/01 A2991 RMK AO2 SLP134 T00830006 KGFA 172258Z AUTO 27016G25KT 10SM CLR 05/M09 A2976 RMK AO2 PK WND 27027/23 SLP104 T00461089 $ KGFK 172253Z 33005KT 10SM SCT150 SCT180 BKN250 M07/M09 A2973 RMK AO2 SLP080 T10671094 KGFL 172253Z AUTO 35006KT 10SM CLR M01/M09 A3007 RMK AO2 SLP190 T10061094 KGGE 172255Z AUTO 00000KT 10SM CLR 08/07 A3017 RMK AO2 KGGG 172153Z 19013KT 10SM BKN040 27/19 A2983 KGGI 172255Z AUTO 15008KT 7SM OVC009 08/06 A2956 RMK AO2 T00750060 KGGP 172255Z AUTO 14011KT 10SM BKN029 OVC035 07/01 A2986 RMK AO2 KGGW 172253Z AUTO 31006KT 10SM CLR 01/M04 A2967 RMK AO2 SLP079 T00111044 KGHB 172255Z AUTO 15008KT 080V210 10SM FEW034 24/17 A3002 RMK A01 KGHG 172255Z AUTO VRB06G14KT 10SM CLR 04/M07 A2995 RMK AO2 KGHW 172254Z AUTO 31004KT 7SM CLR 01/01 A2965 RMK AO2 LTG DSNT SE KGIC 172255Z AUTO 23016G27KT 10SM SCT060 BKN070 04/M04 A3005 RMK AO1 KGIF 172253Z AUTO 09005KT 10SM CLR 22/14 A3004 RMK AO2 SLP172 T02170139 KGJT 172253Z 32015KT 10SM -RA OVC085 12/06 A2966 RMK AO2 PK WND 30030/2240 WSHFT 2153 RAB24 SLP004 P0000 T01220061 KGKJ 172253Z AUTO 00000KT 10SM CLR 02/M02 A3004 RMK AO2 SLP185 T00221022 KGKT 172255Z AUTO 00000KT 10SM CLR 11/03 A3004 RMK A01 KGKY 172253Z 18012G18KT 10SM CLR 28/18 A2975 RMK AO2 SLP067 T02780183 KGLD 172253Z AUTO 03008KT 10SM CLR 16/00 A2953 RMK AO2 SLP973 T01560000 KGLE 172255Z AUTO 19016KT 10SM CLR 27/17 A2973 RMK AO2 T02670168 KGLH 172253Z 18011KT 10SM CLR 22/13 A2989 RMK AO2 SLP126 T02220128 KGLR 172253Z AUTO 17013G24KT 10SM -RA OVC070 01/M03 A2977 RMK AO2 PK WND 17026/2203 RAB47 SLP097 P0000 T00061028 KGLS 172252Z 18009KT 10SM CLR 24/22 A2996 RMK AO2 SLP143 T02390222 KGLW 172235Z AUTO 12003KT 10SM CLR 11/03 A2997 RMK AO2 T01080031 KGLY 172255Z AUTO 9SM OVC030 19/15 A2955 RMK AO2 KGMJ 172255Z AUTO 19013G18KT 10SM CLR 23/17 RMK AO2 KGMU 172253Z 18003KT 10SM CLR 15/01 A3012 RMK AO2 SLP200 T01500011 KGNA 172256Z AUTO 00000KT 01/01 A2964 RMK AO1 SLP047 T00110006 KGNB 172310Z AUTO 24017G26KT 10SM DZ SCT032 BKN060 OVC080 06/M01 A2969 RMK AO2 T00611011 KGNC 172255Z AUTO 24008KT 10SM CLR 26/M01 A2985 RMK AO2 T02561014 KGNR 172256Z AUTO 31021G32KT M06/M08 A2974 RMK AO1 PK WND 32036/2206 SLP089 T10561083 KGNT 172255Z AUTO 29012G16KT 10SM SCT033 BKN065 OVC110 12/03 A3007 RMK AO2 T01200032 KGNV 172253Z 06004KT 10SM BKN050 18/12 A3009 RMK AO2 SLP190 T01830117 KGOK 172253Z AUTO 20013G23KT 10SM CLR 26/11 A2955 RMK AO2 SLP998 T02610106 KGON 172256Z 31007KT 10SM CLR 04/M09 A3003 RMK AO2 SLP170 T00391089 KGOO 172300Z AUTO 32008KT 10SM CLR 09/03 A3016 RMK AO1 KGOP 172255Z AUTO 18008G15KT 10SM CLR 27/17 A2983 RMK AO2 KGOV 172255Z AUTO 15008KT 10SM OVC070 02/M02 A2980 RMK AO2 T00151020 KGPC 172255Z AUTO 15007KT 10SM OVC028 07/00 A2988 RMK AO2 KGPH 172255Z AUTO 00000KT 10SM OVC032 17/13 A2950 RMK AO2 KGPI 172255Z 23013KT 10SM SCT049 BKN060 OVC080 04/M03 A2988 RMK AO2 SLP136 T00391033 KGPM 172250Z 18009G21KT 10SM SKC 28/17 A2977 KGPT 172253Z 14006KT 6SM BR CLR 20/18 A3003 RMK AO2 SLP169 T02000178 KGPZ 172256Z AUTO 00000KT 7SM BKN013 OVC018 01/M01 A2964 RMK AO2 SLP055 T00061006 FZRANO KGRB 172253Z 19007KT 6SM RA BR OVC017 04/03 A2967 RMK AO2 LTG DSNT S AND SW RAB09 SLP052 P0003 T00390033 KGRD 172256Z AUTO 00000KT 10SM CLR 11/04 A3013 RMK AO2 SLP205 T01060044 KGRF 172258Z AUTO 19007KT 10SM BKN021 BKN027 BKN048 09/07 A3019 RMK AO2 RAE2159DZB2159E00 CIG 021V027 BKN021 V SCT SLP229 P0000 T00860074 $ KGRI 172253Z 03007KT 10SM CLR 09/02 A2956 RMK AO2 SLP014 T00940017 KGRK 172258Z AUTO 18014KT 10SM CLR 27/17 A2982 RMK AO2 SLP089 T02680171 $ KGRN 172255Z AUTO 00000KT 10SM OVC080 06/M01 A2965 RMK AO2 T00561009 KGRR 172253Z 15011KT 10SM SCT055 OVC085 06/01 A2983 RMK AO2 SLP106 T00560011 KGRY 172255Z AUTO 14007KT 10SM FEW030 24/17 A3004 RMK A01 KGSB 172256Z AUTO 08003KT 10SM CLR 07/03 A3015 RMK AO2 SLP213 T00740033 $ KGSH 172253Z AUTO 16011G19KT 10SM BKN050 OVC075 07/00 A2986 RMK AO2 SLP116 T00670000 KGSO 172254Z 13004KT 10SM CLR 11/M02 A3012 RMK AO2 SLP202 T01061017 KGSP 172253Z 15004KT 10SM CLR 11/03 A3012 RMK AO2 SLP199 T01110028 KGTB 172256Z AUTO 22003KT 10SM BKN160 M03/M07 A3011 RMK AO2 SLP206 T10321070 $ KGTF 172253Z 26019G27KT 10SM CLR 03/M09 A2974 RMK AO2 PK WND 26030/2243 SLP105 T00331089 KGTR 172256Z 14009KT 10SM CLR 19/13 A2998 RMK AO2 SLP154 T01940128 KGTU 172256Z 20016G21KT 10SM CLR 28/18 A2985 RMK AO2 SLP102 T02780178 KGUC 172256Z AUTO 29020G28KT 10SM -RA FEW023 SCT033 BKN048 07/01 A2978 RMK AO2 PK WND 29028/2253 SLP043 P0001 T00670011 KGUL 172255Z AUTO 19013KT 10SM FEW032 25/18 A3001 RMK A01 KGUP 172253Z AUTO 24010KT 9SM -RA OVC050 09/05 A3005 RMK AO2 PK WND 23029/2237 SLP101 P0002 T00890050 KGUS 172256Z AUTO 16012KT 10SM FEW038 OVC075 08/02 A2986 RMK AO2 SLP120 T00750016 $ KGUY 172253Z AUTO 26022G31KT 10SM CLR 27/01 A2958 RMK AO2 PK WND 26038/2227 SLP978 T02720006 KGVE 172255Z AUTO 00000KT 10SM CLR 05/00 A3014 RMK AO1 T00541001 KGVL 172253Z AUTO 13003KT 10SM CLR 13/03 A3011 RMK AO2 SLP196 T01330028 KGVT 172230Z AUTO 20016G24KT 10SM CLR A2978 RMK AO2 KGWB 172255Z AUTO 13003KT 10SM BKN090 BKN110 06/01 A2991 RMK AO2 KGWO 172253Z AUTO 15007KT 10SM 22/14 A2992 RMK AO2 SLP129 T02170139 PWINO $ KGWR 172255Z AUTO 35010KT 10SM M00/M07 A2970 RMK A01 KGWW 172250Z AUTO 00000KT 10SM CLR 06/05 A3018 RMK AO2 T00640050 KGXA 172255Z AUTO 28016G23KT 10SM FEW220 18/05 A3004 RMK AO2 SLP134 WND DATA ESTMD T01780049 KGXF 172255Z 27009KT 10SM BKN150 BKN200 29/03 A2991 RMK SLPNO WND DATA ALSTG ESTMD KGXY 172256Z AUTO 01016G21KT 10SM -RA FEW044 SCT070 BKN085 10/03 A2964 RMK AO2 RAB52 SLP023 P0000 T01000033 KGYB 172255Z AUTO 20008G14KT 10SM CLR 27/18 A2988 RMK AO2 T02740175 KGYH 172247Z 18004KT 10SM SKC 12/02 A3012 KGYI 172235Z AUTO 18020G25KT 10SM CLR 26/18 A2973 RMK AO2 T02600178 KGYL 172254Z AUTO 01003KT 7SM OVC012 05/03 A2962 RMK AO2 LTG DSNT SE T00500030 KGYR 172247Z 26008KT 10SM BKN160 BKN250 27/04 A2992 KGYY 172245Z 15015G26KT 8SM -RA OVC026 08/00 A2975 RMK RAB43 KGZH 172253Z AUTO 14003KT 10SM BKN036 19/14 A3006 RMK AO2 SLP176 T01940139 KGZL 172255Z AUTO 21014G24KT 10SM CLR 25/14 A2965 RMK AO2 KGZN 172220Z AUTO 20009KT 10SM CLR 28/16 A2980 RMK AO2 KGZS 172255Z AUTO 16005KT 10SM CLR 16/02 A2998 RMK A01 KH78 171840Z 09004KT 20SM BKN025 26/19 26/19 RMK SEAS 5-7 KHAE 172235Z AUTO 15009KT 10SM BKN025 OVC033 15/07 A2960 RMK AO2 KHAF 172255Z AUTO 35007KT 10SM CLR 15/07 A3014 RMK AO2 KHAI 172256Z AUTO 16009KT 10SM SCT055 OVC085 07/01 A2985 RMK AO2 T00670011 KHAO 172253Z AUTO 16004KT 10SM CLR 09/01 A2999 RMK AO2 SLP159 T00890006 KHBE 172255Z AUTO 16006KT 10SM SCT100 07/00 A2993 RMK AO2 LTG DSNT NW KHBG 172253Z AUTO 17007KT 10SM CLR 22/16 A3003 RMK AO2 SLP166 T02170156 KHBI 172255Z AUTO 00000KT 10SM CLR 10/00 A3016 RMK AO2 T01011002 KHBR 172253Z AUTO 24014KT 10SM CLR 31/M04 A2962 RMK AO2 PK WND 24030/2204 SLP013 T03061039 KHBV 172235Z AUTO 18011G17KT 10SM CLR 29/16 A2990 RMK AO2 T02910158 KHCD 172253Z AUTO 36003KT 10SM BKN016 OVC050 05/03 A2963 RMK AO2 LTG DSNT E T00490026 KHCO 172254Z AUTO 34004KT 10SM CLR M07/M09 A2971 RMK AO2 KHCR 172255Z AUTO 01020G24KT 10SM -SN SCT035 SCT042 OVC048 00/M03 A2995 RMK AO2 KHDC 172255Z AUTO 14005KT 10SM CLR 20/15 A3001 RMK AO2 KHDE 172255Z AUTO 02008KT 10SM CLR 10/02 A2955 RMK AO2 T01010018 KHDN 172256Z AUTO 25006KT 1/2SM -SN FG OVC005 00/M01 A2980 RMK AO2 UPE21SNB21 CIG 002V009 SLP071 P0001 T00001006 FZRANO KHDO 172251Z AUTO 18009KT 10SM CLR 29/18 A2988 RMK AO2 SLP103 T02940183 KHEF 172256Z 00000KT 10SM CLR 03/M01 A3015 RMK AO2 SLP223 T00331011 PNO $ KHEI 172253Z AUTO 20003KT 10SM BKN060 04/M01 A2967 RMK AO2 SLP064 T00391011 KHEQ 172250Z AUTO 03009KT 10SM CLR 14/00 A2959 RMK AO2 KHEY 172258Z AUTO 00000KT 10SM CLR 15/10 A3006 RMK AO2 SLP182 T01510103 KHEZ 172256Z AUTO 17006KT 10SM CLR 22/14 A2997 RMK AO2 SLP149 T02220139 KHFD 172253Z 30008KT 10SM CLR 04/M09 A3005 RMK AO2 SLP175 T00441094 KHFF 172256Z AUTO 00000KT 10SM CLR 06/02 A3015 RMK AO2 SLP228 T00630018 $ KHFJ 172230Z AUTO 19016G21KT 10SM BKN026 BKN031 20/16 A2961 RMK AO2 KHFY 172255Z AUTO 15009KT 10SM SCT100 09/02 A2991 RMK AO2 T00920016 KHGR 172253Z 00000KT 10SM CLR 08/M04 A3013 RMK AO2 SLP216 T00781039 KHHF 172255Z AUTO 23013G18KT 10SM CLR 29/M03 A2959 RMK AO2 T02861029 KHHG 172255Z AUTO 15008KT 10SM BKN095 OVC110 07/01 A2989 RMK AO2 LTG DSNT W AND NW T00670007 KHHR 172253Z 27009KT 10SM CLR 20/16 A3003 RMK AO2 SLP167 T02000156 KHHV 172255Z AUTO 18012KT 10SM SCT027 SCT032 26/19 A2999 RMK A01 KHHW 172255Z AUTO 18012G21KT 10SM SCT036 24/17 A2973 RMK AO2 T02440171 KHIB 172253Z AUTO 24003KT 5SM BR OVC009 00/M01 A2962 RMK AO2 CIG 005V013 SLP050 T00001006 KHIE 172252Z AUTO 25004KT 10SM SCT025 M04/M09 A3000 RMK AO2 SLP175 T10441089 KHIF 172228Z 32007KT 10SM FEW028 SCT034 BKN044 BKN060 03/M01 A3001 RMK AO2A PRESRR SLP158 KHII 172255Z AUTO 22004KT 10SM CLR 25/05 A2990 RMK AO2 KHIO 172253Z 24006KT 10SM SCT025 BKN041 BKN075 09/05 A3024 RMK AO2 SLP240 T00940050 KHJH 172255Z AUTO 36007KT 10SM CLR 16/09 A2950 RMK AO2 T01560093 KHJO 172253Z AUTO 32012KT 10SM CLR 18/07 A3013 RMK AO2 SLP203 T01830067 TSNO KHKA 172253Z AUTO 18010KT 10SM BKN050 20/14 A2983 RMK AO2 SLP102 T02000139 KHKS 172253Z AUTO 16007KT 10SM CLR 22/14 A2996 RMK AO2 SLP139 T02170139 KHKY 172253Z 00000KT 10SM CLR 12/M01 A3011 RMK AO2 SLP188 T01171011 KHLB 172255Z AUTO 14007KT 10SM CLR 07/02 A2995 RMK A01 KHLC 172253Z AUTO 03010KT 8SM CLR 18/06 A2951 RMK AO2 SLP985 T01780056 KHLG 172253Z 10005KT 10SM CLR 03/M03 A3005 RMK AO2 SLP189 T00331033 KHLN 172253Z 27020G30KT 10SM FEW055 02/M06 A2982 RMK AO2 PK WND 25030/2245 SLP139 T00221056 KHLR 172258Z AUTO 20013G22KT 10SM CLR 27/17 A2979 RMK AO2 SLP078 T02710172 $ KHLX 172255Z AUTO 16003KT 10SM CLR 08/M07 A3010 RMK AO2 T00821071 KHME 172150Z AUTO 09006KT //// // ////// 06/M08 Q1024 KHMN 172258Z AUTO 15015G18KT 10SM BKN100 26/M05 A2995 RMK AO2 SLP086 T02641053 KHMP 172255Z AUTO 11003KT 10SM CLR 14/07 A3009 RMK AO2 T01420069 KHMZ 172255Z AUTO 00000KT 10SM CLR 02/M04 A3011 RMK AO2 T00171036 KHNB 172256Z AUTO 14011KT 10SM BKN030 10/03 A2990 RMK AO2 SLP129 T01000033 KHND 172256Z 24016KT 10SM CLR 24/05 A2988 RMK AO2 PK WND 22026/2245 SLP100 T02390050 $ KHNR 172255Z AUTO 00000KT OVC002 12/12 A2956 RMK AO2 KHNZ 172245Z AUTO 00000KT 10SM CLR 06/M01 A3016 RMK AO2 T00601009 KHOB 172250Z 24008KT 10SM SKC 24/M02 A2986 KHOE 172255Z AUTO 11003KT 10SM BKN048 17/11 A3010 RMK AO2 KHON 172255Z AUTO 01010KT 10SM OVC080 06/M01 A2966 RMK AO2 SLP053 T00611006 KHOP 172258Z AUTO 15005KT 10SM FEW075 BKN100 16/02 A2991 RMK AO2 SLP132 T01610023 KHOT 172253Z AUTO 20010G17KT 10SM FEW023 SCT055 22/18 A2979 RMK AO2 SLP083 T02220183 KHOU 172253Z 19011G18KT 10SM SCT040 SCT250 26/19 A2992 RMK AO2 SLP135 T02610189 KHPN 172256Z 30017G21KT 10SM CLR 05/M08 A3003 RMK AO2 SLP176 T00501078 KHQG 172255Z AUTO 25012KT 10SM CLR 26/00 A2955 RMK AO2 T02581005 KHQI 172255Z AUTO 15012G17KT 10SM FEW027 25/18 A2998 RMK A01 KHQM 172253Z AUTO 23009KT 8SM SCT035 SCT065 09/06 A3019 RMK AO2 SLP227 T00940056 KHQU 172255Z AUTO 00000KT 10SM CLR 11/05 A3017 RMK AO2 T01110051 KHQZ 172250Z 18015G20KT 10SM FEW035 26/18 A2977 KHRI 172253Z AUTO 26015G24KT 10SM CLR 11/01 A3015 RMK AO2 PK WND 26026/2209 SLP210 T01060006 KHRJ 172245Z AUTO 00000KT CLR 09/02 A3018 RMK AO2 T00890015 PWINO KHRL 172252Z 17012KT 10SM CLR 28/20 A2990 RMK AO2 SLP124 T02830200 KHRO 172253Z AUTO 19014G22KT 10SM SCT025 19/16 A2969 RMK AO2 SLP046 T01890156 KHRT 172256Z 21003KT 10SM CLR 19/14 A3005 RMK AO2A SLP178 T01920138 $ KHRX 172255Z AUTO 10SM CLR 26/M05 A2977 RMK AO2 T02631048 KHSA 172145Z 16006KT 10SM CLR 22/17 A3004 KHSB 172255Z AUTO 12007KT 10SM SCT070 11/07 A2983 RMK AO2 LTG DSNT N T01100071 KHSD 172255Z AUTO 21019G29KT 10SM CLR 26/11 A2956 RMK A01 KHSE 172251Z AUTO VRB04KT 10SM CLR 10/04 A3017 RMK AO2 SLP215 T01000044 TSNO KHSG 172230Z AUTO 00000KT 10SM SCT044 BKN060 OVC090 02/00 A2972 RMK AO2 T00150000 KHSI 172253Z AUTO 03007KT 10SM CLR 10/01 A2956 RMK AO2 SLP009 T01000011 KHSP 172255Z AUTO 00000KT 10SM CLR 05/M20 A3009 RMK AO2 T00511197 KHST 172256Z AUTO 04009KT 10SM FEW037 23/19 A2998 RMK AO2 SLP155 T02310188 KHSV 172253Z 16007KT 10SM FEW250 15/04 A3002 RMK AO2 SLP164 T01500039 KHTH 172255Z AUTO 34011KT 10SM CLR 09/M03 A3019 RMK A01 KHTL 172253Z AUTO 15009KT 10SM SCT080 OVC100 02/M02 A2980 RMK AO2 SLP106 T00221017 KHTO 172255Z AUTO 32005KT 10SM CLR 06/M08 A3004 RMK AO2 T00561083 KHTS 172251Z 00000KT 10SM CLR 09/M03 A3003 RMK AO2 SLP174 T00891028 KHUA 172258Z AUTO 16005KT 8SM CLR 15/02 A3001 RMK AO2 SLP164 T01520015 KHUF 172253Z 17010KT 10SM BKN028 BKN032 OVC095 09/01 A2985 RMK AO2 SLP112 T00890011 KHUL 172253Z AUTO 31011G23KT 10SM OVC029 M01/M06 A2968 RMK AO2 PK WND 31027/2237 SLP057 T10061056 KHUM 172250Z 16008KT 7SM SKC 21/17 A3002 KHUT 172252Z 19010KT 10SM CLR 21/08 A2947 RMK AO2 SLP963 T02060083 KHVE 172255Z AUTO 25027G38KT 10SM BKN110 20/M06 A2973 RMK AO2 KHVN 172253Z 34009KT 10SM FEW250 06/M09 A3005 RMK AO2 SLP174 T00561089 KHVR 172253Z AUTO 24008KT 10SM CLR 03/M02 A2969 RMK AO2 SLP084 T00281017 KHVS 172255Z AUTO 00000KT 10SM CLR 06/02 A3015 RMK AO2 KHWD 172254Z 04008KT 10SM CLR 18/03 A3016 RMK AO2 SLP221 T01780028 KHWO 172253Z 04011KT 10SM CLR 24/16 A3001 RMK AO2 SLP162 T02390161 KHWV 172256Z AUTO 31008KT 10SM CLR 06/M04 A3005 RMK AO2 SLP175 T00611044 KHXD 172250Z 05006KT 10SM SKC 14/10 A3015 KHYA 172256Z 31008G18KT 10SM CLR 05/M07 A2994 RMK AO2 SLP138 T00501067 KHYI 172256Z 19014G19KT 10SM CLR 28/18 A2987 RMK AO2 SLP105 T02780183 $ KHYR 172253Z AUTO 00000KT 4SM BR OVC008 01/01 A2962 RMK AO2 RAB22E45SNE22 CIG 006V015 SLP045 P0001 T00110006 KHYS 172256Z AUTO 01009KT 10SM CLR 20/04 A2948 RMK AO2 SLP975 T02000039 KHYW 172255Z AUTO 00000KT 7SM CLR 07/06 A3017 RMK AO2 KHYX 172255Z AUTO 17009KT 10SM BKN100 04/00 A2989 RMK AO2 KHZD 172255Z AUTO 17009KT 10SM FEW085 18/08 A2989 RMK A01 KHZE 172255Z AUTO 05004KT 9SM CLR M01/M04 A2970 RMK AO2 KHZL 172255Z AUTO 33006KT 10SM CLR 02/M08 A3011 RMK AO2 PNO KHZR 172255Z AUTO 19006KT 10SM CLR 23/16 A2999 RMK AO2 T02260155 KHZX 172254Z AUTO 00000KT 5SM CLR 01/00 A2964 RMK AO2 KHZY 172253Z AUTO 17009KT 10SM CLR 04/M02 A3003 RMK AO2 SLP177 T00391022 KI16 172255Z AUTO 10SM CLR 05/01 A3008 RMK AO2 T00490008 KI19 172250Z AUTO 16004KT 10SM CLR 08/01 A2999 RMK AO2 LTG DSNT NW T00790006 KI23 172251Z AUTO 14005KT 10SM CLR 05/01 A3000 RMK AO1 KI35 172255Z AUTO 00000KT 10SM CLR 13/M03 A3004 RMK AO1 KI63 172255Z AUTO 15009KT 10SM SCT030 SCT035 OVC049 10/07 A2963 RMK AO2 LTG DSNT NE T01010065 KI67 172255Z AUTO 17003KT 10SM CLR 08/00 A2998 RMK AO1 KI68 172255Z AUTO 15005KT 10SM CLR 06/00 A2998 RMK AO2 KI69 172259Z AUTO 16003KT 10SM CLR 08/00 A3000 RMK AO2 T00780001 KI75 172255Z AUTO 15006KT 1SM BR OVC002 12/12 A2953 RMK AO2 T01210115 KIAB 172256Z AUTO 21011KT 10SM CLR 22/10 A2950 RMK AO2 SLP984 T02180097 KIAD 172252Z 00000KT 10SM FEW150 FEW250 06/M01 A3015 RMK AO2 SLP210 T00611011 KIAG 172253Z 10003KT 10SM CLR 02/M03 A3007 RMK AO2 SLP198 T00221033 KIAH 172253Z 19008KT 10SM SCT045 BKN250 28/18 A2990 RMK AO2 SLP125 T02780183 KIBM 172255Z AUTO 36009KT 7SM -RA SCT047 SCT055 OVC070 06/05 A2964 RMK AO2 T00610054 KICL 172255Z AUTO 00000KT 4SM BR SCT010 OVC032 15/15 RMK AO2 PWINO KICR 172253Z AUTO 35007KT 10SM BKN060 07/02 A2967 RMK AO2 SLP055 T00720017 KICT 172253Z COR 18011KT 10SM SCT100 BKN180 BKN220 22/11 A2949 RMK AO2 SLP978 T02170106 KIDA 172253Z 28013KT 10SM BKN090 04/M03 A2991 RMK AO2 SLP138 T00441033 KIDI 172255Z AUTO 13003KT 10SM SCT017 01/M02 A3012 RMK A01 KIDP 172255Z AUTO 21010KT 10SM CLR 23/14 A2954 RMK AO2 T02280136 KIEN 172252Z AUTO 00000KT 10SM OVC085 07/M01 A2964 RMK AO2 SLP050 T00671006 KIER 172255Z AUTO 18009KT 10SM SCT038 BKN044 OVC060 24/18 A2990 RMK AO2 T02400177 KIFA 172255Z AUTO 00000KT 1SM BR OVC004 07/06 A2957 RMK AO2 T00660061 KIFP 172255Z 23008G13KT 10SM CLR 27/05 A2987 RMK AO2 KIGM 172251Z AUTO 22018G23KT 10SM CLR 19/03 A2999 RMK AO2 SLP100 T01940033 KIGQ 172255Z AUTO 15013G18KT 10SM TS OVC025 07/03 A2974 RMK AO2 LTG DSNT W AND NW T00670030 KIGX 172256Z AUTO 00000KT 10SM CLR 07/01 A3016 RMK AO2 SLP214 T00670006 KIIB 172255Z AUTO 13005KT 1SM -DZ OVC003 04/04 A2958 RMK AO2 P0001 T00410040 KIIY 172255Z AUTO 00000KT 10SM CLR 11/06 A3011 RMK AO2 TSNO KIJD 172252Z AUTO 30006KT 10SM CLR 04/M08 A3003 RMK AO2 SLP170 T00391083 KIJX 172255Z AUTO 16015G21KT 10SM SCT044 OVC050 11/07 A2966 RMK AO2 LTG DSNT N AND NE T01100066 KIKG 172255Z AUTO 10009KT 10SM SCT048 29/23 A2988 RMK AO2 T02850233 KIKK 172255Z AUTO 15016G22KT 10SM TS OVC021 07/02 A2972 RMK AO2 LTG DSNT W THRU N T00700022 KIKV 172255Z AUTO 11004KT 6SM BR OVC006 10/09 A2955 RMK AO2 KIKW 172254Z AUTO 16010KT 10SM SCT090 OVC110 05/00 A2986 RMK AO2 T00471005 KILE 172256Z AUTO 20014G18KT 10SM CLR 27/18 A2983 RMK AO2 SLP106 T02720183 KILG 172251Z 28004KT 10SM CLR 06/M03 A3014 RMK AO2 SLP205 T00611028 KILM 172253Z 00000KT 10SM CLR 09/05 A3017 RMK AO2 SLP217 T00890050 KILN 172254Z AUTO 14005KT 10SM CLR 06/01 A2998 RMK AO2 SLP172 T00560006 KIMM 172255Z AUTO 10SM OVC065 23/18 A3002 RMK AO2 KIMS 172253Z AUTO 13003KT 10SM CLR 08/00 A2999 RMK AO1 KIMT 172254Z AUTO 16003KT 2 1/2SM -RA BR SCT008 OVC015 02/00 A2965 RMK AO2 RAB48 SLP054 P0000 T00170000 KIND 172254Z 15010KT 10SM BKN100 OVC220 08/00 A2989 RMK AO2 SLP127 T00780000 KINF 172255Z AUTO 00000KT 10SM CLR 17/12 A3006 RMK AO2 KINJ 172255Z AUTO 18012G19KT 10SM CLR 26/19 A2978 RMK AO2 T02610185 KINK 172253Z AUTO 26011KT 10SM CLR 28/M04 A2983 RMK AO2 SLP069 T02831039 KINL 172255Z AUTO 29007KT 7SM OVC017 01/M03 A2964 RMK AO2 SLP051 T00111028 KINS 172258Z AUTO 26017G28KT 10SM CLR 22/01 A2988 RMK AO2 PK WND 24033/34 SLP081 T02170008 $ KINT 172254Z 00000KT 10SM CLR 10/M03 A3014 RMK AO2 SLP207 T01001028 KINW 172256Z AUTO 24021G29KT 10SM CLR 17/02 A3001 RMK AO2 PK WND 24031/2210 SLP127 T01670022 KIOB 172255Z AUTO 15005KT 10SM CLR 10/00 A3001 RMK AO2 KIOW 172252Z AUTO 13005KT 4SM -RA BR OVC015 07/06 A2961 RMK AO2 RAB36 SLP029 P0000 T00720061 KIPJ 172255Z AUTO 00000KT 10SM CLR 10/M02 A3011 RMK AO2 T00991022 KIPL 172253Z AUTO 00000KT 10SM CLR 27/10 A2990 RMK AO2 SLP125 T02720100 TSNO KIPT 172254Z 15003KT 10SM CLR 04/M03 A3011 RMK AO2 SLP199 T00441033 KIRK 172255Z AUTO 15004KT 8SM OVC021 12/12 A2956 RMK AO2 SLP014 T01220117 KIRS 172256Z AUTO 15009G15KT 10SM OVC090 06/01 A2985 RMK AO2 KISM 172256Z 08007KT 10SM CLR 21/13 A3005 RMK AO2 SLP178 T02110133 KISN 172252Z AUTO 00000KT 10SM CLR 01/M07 A2967 RMK AO2 SLP075 T00111072 KISO 172156Z 00000KT 10SM CLR 10/03 A3017 RMK AO2 KISP 172256Z 29007KT 10SM FEW250 06/M07 A3005 RMK AO2 SLP176 T00561067 KISQ 172255Z AUTO 18013G17KT 5SM -RA BKN022 OVC028 04/01 A2972 RMK AO2 P0001 T00370008 KISW 172254Z AUTO 00000KT 2 1/2SM -RA BR OVC005 02/02 A2966 RMK AO2 SLP054 P0000 T00220017 KITH 172256Z 36003KT 10SM CLR M03/M06 A3012 RMK AO2 SLP214 T10331061 KITR 172253Z AUTO 04009KT 10SM CLR 16/00 A2954 RMK AO2 SLP969 T01560000 KIWA 172247Z 00000KT 45SM BKN150 26/02 A2995 KIWD 172256Z AUTO 00000KT 5SM -SN SCT008 OVC016 A2963 RMK AO2 SLPNO P0005 FZRANO $ KIWI 172253Z AUTO VRB06KT 10SM CLR M01/M07 A2989 RMK AO2 SLP124 T10061067 KIXA 172250Z AUTO 00000KT 10SM CLR 06/02 A3018 RMK AO2 KIXD 172253Z 17007KT 10SM CLR 18/16 A2949 RMK AO2 SLP981 T01830156 KIYA 172255Z AUTO 17008KT 10SM CLR 22/18 A3000 RMK AO2 T02160176 KIZA 172255Z AUTO 27014KT 10SM CLR 19/10 A3003 RMK AO2 KIZG 172254Z AUTO 16003KT 10SM CLR M02/M08 A2989 RMK AO2 SLP127 T10221078 KJAC 171839Z 35005KT 3/4SM -SN BR FEW010 SCT034 OVC047 M01/M03 A2972 RMK AO2 VIS 1/4V5 P0000 KJAN 172254Z 16008KT 10SM SCT250 23/13 A2996 RMK AO2 SLP143 T02280133 KJAQ 172255Z AUTO 27010G14KT 10SM CLR 13/07 A3014 RMK AO1 T01300066 KJAS 172255Z AUTO 18008KT 10SM CLR 25/20 A2994 RMK AO2 T02530202 KJAU 172255Z AUTO 00000KT 10SM CLR 11/03 A3006 RMK A01 KJAX 172256Z 01007KT 10SM BKN050 18/14 A3010 RMK AO2 SLP192 T01780144 KJBR 172253Z AUTO 18012KT 10SM OVC050 21/16 A2979 RMK AO2 SLP087 T02060156 KJCA 172255Z AUTO 00000KT 10SM CLR 13/05 A3010 RMK AO2 KJCT 172251Z AUTO 19012G18KT 10SM CLR 27/16 A2986 RMK AO2 SLP081 T02670161 KJDD 172255Z AUTO 19008KT 140V210 10SM SCT040 25/18 A2979 RMK AO2 KJDN 172248Z AUTO 28011KT 04/M03 A2967 RMK AO1 SLP073 T00441033 KJEF 172253Z 16014KT 10SM SCT028 18/13 A2959 RMK AO2 SLP010 T01830133 KJER 172253Z AUTO 25022G30KT 10SM CLR 04/M04 A3008 RMK AO2 PK WND 26036/2215 SLP197 T00391044 KJES 172301Z AUTO 00000KT 10SM SCT048 16/11 A3013 RMK AO2 KJFK 172251Z 31014G22KT 10SM SCT250 07/M09 A3008 RMK AO2 SLP187 T00721094 KJFX 172255Z AUTO 00000KT 10SM CLR 16/09 A3003 RMK AO2 PWINO KJFZ 172255Z AUTO 17004KT 10SM CLR 13/M32 A3006 RMK AO2 T01261318 KJGG 172255Z AUTO 00000KT 10SM CLR 07/02 A3018 RMK AO1 KJHN 172255Z AUTO 26024G31KT 10SM CLR 25/01 A2955 RMK AO2 T02480008 KJHW 172256Z AUTO 18006KT 10SM FEW110 01/M03 A3003 RMK AO2 SLP190 T00111033 FZRANO KJKA 172255Z AUTO 19006KT 10SM CLR 18/17 A3006 RMK AO2 T01810165 KJKJ 172254Z AUTO 35009KT 10SM CLR M02/M07 A2972 RMK AO2 KJKL 172253Z AUTO 00000KT 10SM CLR 11/M03 A3001 RMK AO2 SLP166 T01061028 KJLN 172253Z 19015KT 10SM CLR 22/17 A2957 RMK AO2 PK WND 19026/2210 SLP005 T02170172 KJMR 172259Z AUTO 00000KT 2 1/2SM BR OVC003 01/00 A2967 RMK AO2 KJMS 172256Z AUTO 31008KT 10SM CLR M03/M08 A2971 RMK AO2 SLP079 T10331078 KJNX 172255Z AUTO 00000KT 10SM CLR 07/03 A3017 RMK AO2 KJOT 172255Z AUTO 18007KT 3SM +TSRA OVC023 06/05 A2974 RMK AO2 LTG DSNT ALQS P0017 T00600045 KJQF 172251Z 00000KT 10SM CLR 10/M01 A3015 KJRB 172255Z 25008KT 10SM CLR 08/M04 RMK AO2 PWINO FZRANO RVRNO KJSL 172300Z AUTO 10009KT 10SM CLR A3003 RMK A01 KJSO 172255Z AUTO 19008G17KT 10SM SCT045 25/18 A2987 RMK AO2 T02510187 KJST 172254Z AUTO 20005KT 10SM CLR 02/M04 A3006 RMK AO2 SLP201 T00221039 KJSV 172255Z AUTO 20007KT 10SM CLR 25/16 A2967 RMK AO2 KJTC 172255Z AUTO 25024G34KT 10SM SCT070 BKN080 15/M05 A3012 RMK AO2 KJVL 172245Z 19011G18KT 3SM RA OVC009 04/04 A2967 KJVW 172255Z AUTO 17005KT 9SM CLR 23/15 A2995 RMK AO2 KJWG 172255Z AUTO 22014KT 10SM CLR 28/06 A2957 RMK AO2 T02800063 KJWN 172255Z AUTO 13005KT 10SM OVC085 17/M00 A2994 RMK A01 KJWY 172255Z AUTO 18015G24KT 10SM CLR 27/18 A2978 RMK AO2 T02680184 KJXI 172255Z AUTO 18010G16KT 10SM SCT003 OVC045 25/18 A2981 RMK AO2 T02480180 KJXN 172256Z 13008KT 10SM FEW100 05/01 A2989 RMK AO2 SLP131 T00500006 KJYG 172255Z AUTO 35006KT 10SM SCT120 06/03 A2960 RMK AO2 LTG DSNT E KJYL 172255Z AUTO 00000KT 10SM CLR 13/07 A3014 RMK AO2 T01310070 KJYM 172255Z AUTO 15007G15KT 10SM OVC100 05/00 A2989 RMK AO2 KJYO 172255Z AUTO 00000KT 10SM CLR 07/00 A3014 RMK AO2 KJYR 172235Z AUTO 02007KT 10SM CLR 10/04 A2954 RMK AO2 KJZI 172255Z AUTO 00000KT 10SM CLR 11/08 A3016 RMK AO2 KJZP 172255Z AUTO 14005KT 10SM CLR 14/04 A3012 RMK AO2 T01350040 PNO KK88 172255Z AUTO 20015G18KT 10SM CLR 22/13 A2951 RMK AO1 T02220133 KKLS 172256Z AUTO 15007KT 10SM FEW028 BKN042 09/06 A3024 RMK AO2 SLP245 T00890061 KKY8 172255Z AUTO 12005KT 10SM BKN033 BKN039 OVC100 10/04 A2992 RMK AO1 KL18 172255Z AUTO 20007KT 10SM CLR 20/11 A3004 RMK AO2 KL35 172255Z AUTO 26009KT 10SM CLR 11/03 A3013 RMK AO2 KLAA 172253Z AUTO 25026G36KT 10SM CLR 23/00 A2953 RMK AO2 PK WND 25039/2204 SLP964 T02330000 KLAF 172254Z 16011G18KT 10SM OVC025 08/01 A2982 RMK AO2 SLP100 T00830006 KLAL 172250Z 04003KT 10SM SKC 22/12 A3003 KLAM 172255Z AUTO 25014G27KT 10SM SCT029 SCT038 BKN060 11/02 A2998 RMK AO2 T01080018 KLAN 172253Z 15012KT 10SM BKN090 OVC110 04/01 A2987 RMK AO2 SLP123 T00440006 KLAR 172253Z AUTO 32020KT 8SM -SN FEW021 OVC035 M01/M01 A2970 RMK AO2 PK WND 32027/2233 SNE07B20 SLP019 P0000 T10061011 KLAS 172256Z 25012G25KT 10SM FEW090 SCT150 BKN250 24/04 A2985 RMK AO2 PK WND 26029/2236 SLP089 OCNL VCBLDU ACSL S-SW T02440044 KLAW 172253Z 19014G21KT 10SM CLR 28/13 A2964 RMK AO2 SLP026 T02780128 KLAX 172253Z 25011KT 10SM FEW010 FEW060 SCT120 BKN280 19/16 A3003 RMK AO2 SLP166 T01940161 KLBB 172253Z 23014KT 10SM FEW090 FEW250 28/M04 A2977 RMK AO2 SLP042 T02781044 KLBE 172250Z 00000KT 10SM SKC 03/M02 A3010 KLBF 172253Z AUTO 02014KT 10SM CLR 11/00 A2959 RMK AO2 SLP027 T01110000 KLBL 172256Z AUTO 24015KT 10SM CLR 26/02 A2955 RMK AO2 SLP981 T02560017 KLBO 172255Z AUTO 18009G16KT 10SM SCT002 BKN018 BKN028 17/13 A2964 RMK AO2 LTG DSNT NE KLBT 172254Z AUTO 00000KT 10SM CLR 07/03 A3016 RMK AO2 SLP213 T00670033 KLBX 172253Z AUTO 20010KT 10SM FEW025 26/20 A2994 RMK AO2 SLP138 T02560200 KLCG 172255Z AUTO 33006KT 10SM CLR 08/03 A2957 RMK AO2 LTG DSNT E T00830028 KLCH 172253Z 18007KT 10SM SCT022 SCT030 24/19 A2996 RMK AO2 SLP153 T02390194 KLCI 172256Z AUTO 27012G19KT 10SM CLR M02/M07 A2994 RMK AO2 SLP156 T10221072 FZRANO KLCK 172255Z AUTO 14003KT 10SM CLR 06/00 A3001 RMK AO2 LTG DSNT NW T00611001 KLCQ 172255Z AUTO 00000KT 10SM BKN050 16/11 A3008 RMK AO2 KLDJ 172255Z AUTO 00000KT 10SM CLR 06/M09 A3010 RMK AO2 T00601094 KLDM 172255Z AUTO 15008KT 7SM -RA BKN028 BKN035 OVC070 03/01 A2974 RMK AO2 P0006 T00340013 KLEB 172253Z 02008KT 10SM CLR M01/M08 A3000 RMK AO2 SLP168 T10111083 KLEE 172253Z 05006KT 10SM FEW055 21/13 A3005 RMK AO2 SLP175 T02110133 KLEW 172256Z AUTO 33013KT 10SM CLR M02/M07 A2989 RMK AO2 SLP140 T10171072 FZRANO KLEX 172254Z 13004KT 10SM CLR 09/02 A2999 RMK AO2 SLP159 T00940017 KLFI 172256Z AUTO 00000KT 10SM CLR 06/02 A3017 RMK AO2 SLP223 T00600021 KLFK 172253Z AUTO 17008KT 10SM CLR 25/19 A2987 RMK AO2 SLP112 T02500189 KLFT 172253Z 18008KT 10SM BKN033 22/17 A3000 RMK AO2 SLP157 T02170172 $ KLGA 172251Z 31016KT 10SM FEW250 08/M07 A3007 RMK AO2 SLP182 T00781067 KLGB 172253Z 30011KT 10SM CLR 22/14 A3001 RMK AO2 SLP162 T02220144 KLGC 172255Z AUTO 00000KT 10SM CLR 12/07 A3008 RMK AO2 T01200073 KLGD 172256Z AUTO 29016G20KT 10SM BKN070 07/M07 A3013 RMK AO2 SLP337 T00671067 KLGF 172200Z AUTO 24009KT 10SM CLEAR 27/07 A2993 KLGU 172251Z AUTO 30013G17KT 10SM FEW055 04/M05 A3000 RMK AO2 SLP162 T00391050 KLHB 172255Z AUTO 18011KT 10SM CLR 27/19 A2986 RMK AO2 T02710185 KLHM 172255Z AUTO 34010KT 10SM CLR 15/02 A3018 RMK AO1 KLHQ 172253Z AUTO 15008KT 10SM CLR 07/M01 A3002 RMK AO2 SLP171 T00671006 KLHW 172256Z AUTO 10006KT 10SM CLR 15/09 A3012 RMK AO2 SLP203 T01450089 $ KLHX 172253Z AUTO 25028G37KT 10SM CLR 22/01 A2957 RMK AO2 PK WND 25038/2230 SLP966 T02170006 TSNO $ KLHZ 172220Z AUTO 00000KT 10SM CLR 06/01 A3020 RMK AO2 KLIC 172255Z AUTO 28017G23KT 10SM CLR 18/M03 A2958 RMK AO2 PK WND 27028/2238 SLP971 T01781033 KLIT 172253Z 18013G19KT 10SM FEW029 BKN055 OVC250 22/18 A2980 RMK AO2 SLP093 T02170178 KLJF 172253Z AUTO 36005KT 10SM SCT100 04/02 A2963 RMK AO2 KLKR 172255Z AUTO 00000KT 10SM CLR 12/00 A3013 RMK AO2 KLKU 172255Z AUTO 13003KT 10SM 01/M01 RMK AO2 KLKV 172256Z AUTO 20015G18KT 10SM BKN049 02/M06 A3021 RMK AO2 SLP255 T00221056 FZRANO PNO $ KLLJ 172255Z AUTO 28004KT 10SM CLR 02/M10 A2998 RMK AO2 PK WND 28027/2208 SLP161 T00171100 KLLQ 172253Z AUTO 19006KT 10SM FEW039 23/16 A2986 RMK AO2 SLP110 T02330161 KLMO 172255Z AUTO 05016G23KT 10SM SCT050 SCT075 BKN110 11/02 A2962 RMK AO2 T01090020 KLMT 172253Z 31009KT 10SM CLR 05/M04 A3021 RMK AO2 SLP236 T00501044 KLNA 172255Z AUTO 03006KT 10SM CLR 23/16 A3002 RMK AO2 T02300156 KLNC 172255Z AUTO 19014G20KT 10SM CLR 27/18 A2977 RMK AO2 T02660180 KLND 171753Z AUTO VRB03KT 10SM SCT075 BKN090 08/M06 A2963 RMK AO2 SLP008 T00831061 10089 20022 53005 KLNK 172254Z 36008KT 7SM CLR 14/09 A2952 RMK AO2 SLP994 T01390089 KLNL 172256Z AUTO 00000KT 1SM -SN OVC007 01/00 A2963 RMK AO2 LTG DSNT S KLNN 172255Z AUTO 21006KT 10SM CLR 05/M02 A3002 RMK AO1 T00531018 KLNP 172255Z AUTO 17004KT 10SM CLR 11/M07 A3005 RMK AO2 KLNR 172256Z AUTO 11003KT 1 3/4SM -RA BR OVC009 03/03 A2964 RMK AO2 RAB46 CIG 006V011 SLP038 P0000 T00330033 KLNS 172253Z 31004KT 10SM CLR 04/M03 A3012 RMK AO2 SLP203 T00441028 KLOL 172253Z AUTO 33003KT 10SM CLR 07/M08 A3020 RMK AO2 SLP231 T00721078 TSNO KLOM 172235Z AUTO 00000KT 10SM CLR 03/M05 A3012 RMK AO1 KLOR 172258Z AUTO 00000KT 10SM CLR 15/11 A3006 RMK AO2 SLP163 T01500107 $ KLOT 172255Z AUTO 23007KT 1 1/2SM +TSRA OVC023 05/03 A2975 RMK AO2 LTG DSNT ALQS T00490032 KLOU 172253Z 00000KT 10SM CLR 10/03 A2998 RMK AO2 SLP155 T01000033 KLOZ 172253Z AUTO 13003KT 10SM CLR 11/01 A3000 RMK AO2 SLP162 T01110011 KLPC 172256Z AUTO 26011KT 10SM CLR 17/11 A3007 RMK AO2 SLP187 T01720106 TSNO KLPR 172253Z AUTO 17010KT 10SM CLR 06/M03 A3000 RMK AO2 SLP164 T00561028 KLQK 172255Z AUTO 23005KT 10SM CLR 12/05 A3011 RMK AO2 T01170045 KLRD 172256Z 18011KT 10SM CLR 30/18 A2986 RMK AO2 SLP111 T03000183 KLRF 172256Z AUTO 18008G15KT 10SM FEW025 SCT030 OVC055 22/18 A2979 RMK AO2 SLP089 T02210177 KLRJ 172255Z AUTO 34005KT 10SM FEW095 SCT120 11/06 A2957 RMK AO2 KLRO 172235Z AUTO 00000KT 10SM CLR 10/08 A3016 RMK AO2 KLRU 172255Z AUTO 28014G23KT 10SM CLR 25/M07 A2999 RMK AO2 T02451070 KLRY 172255Z AUTO 00000KT 10SM CLR 20/15 A2955 RMK AO2 KLSE 172253Z 14003KT 5SM BR SCT005 BKN010 OVC014 04/03 A2962 RMK AO2 RAE30B38E47 SLP040 P0002 T00390033 KLSF 172256Z AUTO 00000KT 10SM CLR 12/09 A3007 RMK AO2 SLP189 T01160090 $ KLSV 172258Z AUTO 21017G25KT 10SM CLR 25/04 A2982 RMK AO2 PK WND 20029/05 SLP080 T02450043 $ KLTS 172256Z AUTO 19015KT 10SM CLR 31/03 A2962 RMK AO2 SLP017 T03080029 $ KLUA 172255Z AUTO 00000KT 10SM CLR 05/M01 A3013 RMK AO2 KLUD 172255Z AUTO 18012KT 10SM CLR 28/17 A2972 RMK AO2 T02800166 KLUF 172258Z 32005KT 10SM FEW100 SCT120 BKN180 23/07 A2992 RMK AO2A SLP125 T02250067 $ KLUK 172253Z 00000KT 10SM CLR 08/01 A3000 RMK AO2 SLP161 T00780011 KLUL 172255Z AUTO 17004KT 10SM CLR 22/13 A3002 RMK AO2 T02160132 KLUM 172255Z AUTO 11003KT 3SM BR OVC004 02/02 A2963 RMK AO2 LTG DSNT SE T00230023 KLUX 172255Z AUTO 14004KT 10SM CLR 12/02 A3012 RMK AO2 KLVJ 172253Z AUTO 19009KT 10SM CLR 27/19 A2994 RMK AO2 SLP137 T02720189 KLVK 172253Z 01008KT 10SM CLR 16/04 A3015 RMK AO2 SLP208 T01610039 KLVL 172255Z AUTO 00000KT 10SM CLR 05/02 A3016 RMK AO1 T00530019 KLVM 172253Z AUTO 26014G26KT 10SM FEW047 SCT070 BKN090 03/M08 A2978 RMK AO2 PK WND 26034/2156 SLP104 T00331083 KLVN 172251Z AUTO 00000KT 3SM BR 02/02 A2962 RMK AO2 LTG DSNT E KLVS 172253Z AUTO 25023G45KT 10SM -RA FEW037 SCT055 BKN110 11/04 A2992 RMK AO2 PK WND 26045/2244 RAB40 SLP054 P0000 T01060039 KLWA 172257Z AUTO 15007KT 7SM -RA OVC036 06/02 A2979 RMK AO2 T00620018 KLWB 172255Z AUTO 00000KT 10SM CLR 05/M03 A3009 RMK AO2 T00491027 KLWC 172252Z AUTO 12006KT 10SM CLR 19/15 A2946 RMK AO2 SLP973 T01940150 KLWD 172253Z AUTO 15006KT M1/4SM FG VV002 12/12 A2953 RMK AO2 SLP001 T01220122 KLWM 172254Z 27007KT 10SM CLR 03/M07 A2998 RMK AO2 SLP151 T00331072 KLWS 172256Z 27014G20KT 10SM CLR 09/M03 A3009 RMK AO2 SLP195 T00941028 KLWT 172254Z AUTO 28017G28KT 10SM SCT080 BKN100 03/M08 A2972 RMK AO2 PK WND 29028/2229 SLP084 T00331078 KLWV 172253Z AUTO 14010KT 10SM FEW065 SCT100 08/04 A2986 RMK AO2 PRESFR SLP113 T00830039 KLXL 172252Z AUTO 00000KT 7SM BKN120 01/M01 A2966 RMK AO2 LTG DSNT SE KLXN 172255Z AUTO 02009KT 10SM CLR 10/01 A2958 RMK AO2 T01010005 KLXT 172254Z AUTO 19011KT 19/16 A2951 RMK AO2 SLP988 T01890156 $ KLXV 172253Z AUTO 15012KT 1SM -SN BR FEW008 BKN020 OVC031 M01/M02 A2977 RMK AO2 SLP000 P0003 T10061022 KLXY 172255Z AUTO 19015G21KT 10SM CLR 25/18 A2981 RMK AO2 T02520176 KLYH 172254Z 00000KT 10SM CLR 05/M04 A3013 RMK AO2 SLP210 T00501044 KLYV 172259Z AUTO 01008G14KT 10SM SCT100 BKN120 06/00 A2961 RMK AO2 LTG DSNT SE KLZU 172256Z 12003KT 10SM CLR 13/05 A3011 RMK AO2 SLP197 T01330050 $ KLZZ 172255Z AUTO 20006KT 5SM HZ CLR 26/18 A2983 RMK AO2 T02560181 KM04 172255Z AUTO 17009KT 10SM CLR 20/13 A2985 RMK A01 KM08 172255Z AUTO 14007KT 10SM CLR 18/11 A2991 RMK A01 KM19 172256Z AUTO 18010KT 10SM FEW036 BKN047 OVC060 20/16 A2979 RMK AO2 SLP091 T02000156 KM21 172255Z AUTO 14004KT 7SM SCT085 OVC100 12/04 A2992 RMK AO2 T01150039 KM25 172255Z AUTO 15007KT 10SM BKN080 16/07 A2986 RMK AO2 KM30 172255Z AUTO 13005KT 10SM SCT070 15/08 A2983 RMK AO2 LTG DSNT N T01530081 KM33 172255Z AUTO 00000KT 10SM SCT090 13/06 A2999 RMK A01 KM40 172255Z AUTO 15006KT 10SM CLR 19/17 A2999 RMK AO2 KM63 172258Z AUTO 28012KT 9SM CLR 25/M06 A2996 RMK AO2 SLP083 WND DATA ESTMD T02491063 KM75 172255Z AUTO 24004KT 10SM CLR 01/M03 A2968 RMK A01 KM91 172255Z AUTO 15004KT 10SM BKN090 15/03 A2993 RMK A01 KMAE 172253Z AUTO 28009KT 10SM CLR 17/06 A3014 RMK AO2 SLP205 T01720056 TSNO KMAF 172253Z 27012G22KT 10SM CLR 30/M01 A2984 RMK AO2 SLP063 T03001011 KMAI 172253Z AUTO 12004KT 10SM CLR 19/06 A3006 RMK AO2 SLP178 T01940061 KMAN 172255Z AUTO 29013KT 10SM FEW060 09/M06 A3014 RMK A01 KMAO 172255Z AUTO 00000KT 10SM CLR 08/04 A3017 RMK AO2 KMAW 172315Z AUTO 17010KT 10SM OVC038 18/12 A2981 RMK AO2 KMBG 172252Z AUTO 02006KT 10SM OVC100 04/M02 A2965 RMK AO2 SLP053 T00441022 KMBL 172256Z AUTO 13006KT 10SM RA OVC036 03/01 A2973 RMK AO2 SLP090 T00330011 PNO $ KMBO 172255Z AUTO 15004KT 10SM CLR 21/12 A2996 RMK AO2 KMBS 172253Z 17013KT 10SM BKN100 04/00 A2988 RMK AO2 SLP126 T00440000 KMBY 172255Z AUTO 16007KT 10SM BKN027 BKN043 16/11 A2957 RMK AO2 KMCB 172253Z AUTO 16006KT 10SM CLR 20/12 A3000 RMK AO2 SLP156 T02000122 KMCC 172250Z AUTO 32013KT 10SM CLR 15/05 A3019 RMK AO2 KMCD 172254Z AUTO 15012G17KT 10SM BKN070 OVC090 02/M02 A2977 RMK AO2 T00231020 KMCE 172253Z AUTO 31008KT 10SM CLR 17/06 A3013 RMK AO2 SLP203 T01670056 KMCF 172256Z 05003KT 10SM CLR 20/13 RMK AO2A SLPNO $ KMCI 172253Z 16007KT 8SM FEW150 BKN200 17/14 A2949 RMK AO2 SLP981 T01670139 KMCJ 172255Z AUTO 20009G16KT 160V220 10SM FEW038 SCT045 27/18 A2991 RMK A01 KMCK 172253Z AUTO 03010KT 10SM SCT120 13/01 A2955 RMK AO2 SLP006 T01280006 KMCN 172253Z 00000KT 10SM CLR 16/07 A3010 RMK AO2 SLP191 T01560067 KMCO 172253Z 06008KT 10SM FEW048 21/13 A3005 RMK AO2 SLP173 T02060133 KMCW 172253Z AUTO 11004KT 2 1/2SM BR OVC002 04/04 A2958 RMK AO2 SLP022 T00440039 KMCX 172255Z AUTO 14008KT 10SM BKN025 OVC031 07/00 A2981 RMK AO2 T00710000 KMDD 172255Z AUTO 26011KT 10SM CLR 30/M02 A2984 RMK AO2 T03031018 KMDH 172252Z 16012G21KT 10SM OVC037 14/08 A2978 RMK AO2 SLP083 T01440078 KMDQ 172235Z AUTO 16003KT 10SM CLR 17/00 A3004 RMK AO2 KMDS 172250Z AUTO 02008KT 10SM CLR 05/04 A2964 RMK AO2 KMDT 172256Z 00000KT 10SM FEW250 04/M02 A3012 RMK AO2 SLP202 T00441017 KMDW 172253Z 16010G19KT 4SM -RA OVC024 07/03 A2971 RMK AO2 LTG DSNT N AND SW RAB15 SLP068 OCNL LTGIC DSNT SW CB DSNT SW P0001 T00670033 KMDZ 172255Z AUTO 00000KT 2SM -DZ OVC003 00/00 A2962 RMK AO2 LTG DSNT S T00000000 KMEB 172252Z AUTO 00000KT 10SM CLR 08/02 A3017 RMK AO2 SLP216 T00830022 KMEH 172256Z AUTO VRB05KT 10SM SCT037 BKN048 03/M04 A3010 RMK AO2 SLP213 T00281039 KMEI 172158Z 17006KT 10SM CLR 23/15 A3000 RMK AO2 SLP158 T02330150 KMEM 172254Z COR 19011KT 10SM BKN250 21/13 A2987 RMK AO2 SLP111 T02110128 KMER 172245Z 34010KT 10SM SKC 18/06 A3014 KMEV 172255Z AUTO 33005KT 10SM CLR 07/M07 A3018 RMK AO2 KMEZ 172255Z AUTO 20006G18KT 10SM SCT022 SCT029 BKN037 23/22 A2975 RMK AO2 KMFD 172252Z 15013KT 10SM CLR 05/M01 A2999 RMK AO2 SLP165 T00501011 KMFE 172253Z 15012KT 10SM CLR 29/21 A2989 RMK AO2 SLP121 T02890206 KMFI 172254Z AUTO 17004KT 2SM -RA BR OVC003 01/01 A2963 RMK AO2 UPB28E35 SLP045 P0000 T00110006 TSNO KMFR 172253Z 36005KT 10SM CLR 11/01 A3028 RMK AO2 SLP257 T01060006 KMFV 172230Z AUTO 00000KT 10SM CLR 07/03 A3016 RMK AO2 T00740030 KMGC 172215Z AUTO 16008G15KT 10SM SCT027 OVC033 06/00 A2981 RMK AO2 KMGE 172256Z 13004KT 10SM SCT250 15/04 A3008 RMK AO2A SLP189 T01530043 $ KMGG 172253Z AUTO 35003KT 5SM BR OVC013 04/02 A2965 RMK AO2 LTG DSNT SE T00380023 KMGJ 172254Z AUTO 28007KT 10SM CLR 03/M09 A3007 RMK AO2 SLP184 T00331089 KMGM 172253Z 09003KT 10SM CLR 17/07 A3006 RMK AO2 SLP179 T01670067 KMGN 172255Z AUTO 11003KT 10SM -SN OVC075 02/M01 A2976 RMK AO2 T00231015 KMGR 172235Z AUTO 00000KT 10SM CLR 18/09 A3009 RMK AO2 KMGW 172253Z 00000KT 10SM CLR 05/M03 A3008 RMK AO2 SLP193 T00501028 KMGY 172253Z AUTO 15006KT 10SM CLR 07/00 A2997 RMK AO2 SLP154 T00670000 KMHE 172253Z AUTO 36008KT 10SM SCT050 SCT075 07/01 A2965 RMK AO2 SLP047 T00670006 KMHK 172252Z 22006KT 10SM CLR 19/11 A2944 RMK AO2 SLP966 T01940106 KMHL 172255Z AUTO 00000KT 10SM SCT029 SCT034 19/15 A2955 RMK AO2 LTG DSNT NE KMHR 172245Z 30015 10SM SKC 16/05 A3015 KMHS 172256Z AUTO VRB03KT 10SM CLR 06/M04 A3022 RMK AO2 SLP262 T00611044 KMHT 172253Z 31004KT 10SM CLR 02/M08 A2994 RMK AO2 SLP157 T00221083 KMHV 172220Z AUTO 21012G19KT 10SM BKN030 OVC035 15/08 A3006 RMK A01 KMIA 172253Z 05009KT 10SM FEW040 24/17 A2999 RMK AO2 SLP157 T02440167 KMIB 172156Z AUTO 00000KT 10SM CLR M04/M10 A2968 RMK AO2 SLP081 T10381104 $ KMIC 172253Z 00000KT 6SM BR OVC007 03/01 A2962 RMK AO2 SLP036 T00330011 KMIE 172253Z 16007KT 10SM BKN100 08/00 A2991 RMK AO2 SLP130 T00830000 KMIS 172255Z AUTO 19006KT 10SM CLR 26/17 A3005 RMK A01 KMIV 172254Z AUTO 23003KT 10SM CLR 04/M02 A3013 RMK AO2 SLP202 T00391017 KMIW 172253Z AUTO 11005KT 4SM BR OVC011 07/07 A2955 RMK AO2 RAE2156 SLP013 P0001 T00670067 KMJQ 172255Z AUTO 35003KT 10SM SCT019 OVC100 06/02 A2959 RMK AO2 KMJX 172256Z AUTO 22005KT 10SM CLR 03/M04 A3011 RMK AO2 SLP201 T00331039 KMKC 172254Z 19008KT 10SM CLR 20/14 A2948 RMK AO2 SLP979 T02000144 KMKE 172252Z 16013G21KT 7SM OVC011 06/03 A2967 RMK AO2 PRESFR SLP053 T00560033 KMKG 172255Z 13010KT 6SM -RA BKN035 OVC043 05/02 A2979 RMK AO2 RAB15 SLP093 P0007 T00500017 KMKJ 172255Z AUTO 00000KT 10SM CLR 09/M07 A3010 RMK AO2 T00851068 KMKL 172253Z 16006KT 10SM CLR 18/10 A2990 RMK AO2 SLP125 T01830100 KMKN 172255Z AUTO 20008G15KT 10SM CLR 27/17 A2980 RMK AO2 T02740165 KMKO 172253Z AUTO 20015G23KT 10SM CLR 25/17 A2964 RMK AO2 PK WND 18031/2232 SLP029 T02500167 KMKS 172255Z AUTO 16003KT 10SM CLR 08/06 A3016 RMK AO2 KMKT 172256Z AUTO 05003KT 1 1/4SM BR OVC004 04/03 A2960 RMK AO2 SLP032 T00390033 KMKY 172256Z AUTO 03005KT 10SM CLR 23/17 A3001 RMK AO2 SLP162 T02330167 KMLB 172253Z 05007KT 10SM SCT041 22/14 A3004 RMK AO2 SLP171 T02170144 KMLC 172253Z AUTO 19015G22KT 10SM FEW120 26/18 A2968 RMK AO2 PK WND 21031/2205 SLP040 T02560178 KMLE 172255Z AUTO 34003KT 10SM OVC030 16/12 A2951 RMK AO2 LTG DSNT E T01620117 KMLF 172252Z AUTO 02016G26KT 7SM RA BKN011 OVC017 04/02 A3001 RMK AO2 PK WND 01036/2218 WSHFT 2139 LTG DSNT SE PRESRR SLP143 P0001 T00390022 KMLI 172252Z 14006KT 7SM FEW015 OVC023 08/04 A2961 RMK AO2 SLP031 T00780044 KMLJ 172255Z AUTO 00000KT 10SM CLR 13/08 A3010 RMK AO2 KMLP 172253Z AUTO 27007KT 240V330 6SM BR SCT004 BKN007 OVC013 M06/M07 A2989 RMK AO2 SNB14E53 SLP168 P0001 T10561067 TSNO KMLS 172253Z AUTO 29008KT 10SM FEW045 BKN055 07/00 A2968 RMK AO2 SLP063 T00720000 KMLT 172253Z AUTO 31013G23KT 280V340 10SM FEW043 M03/M08 A2977 RMK AO2 PK WND 30029/2213 SLP091 T10281078 TSNO KMLU 172253Z 18007KT 10SM CLR 24/17 A2990 RMK AO2 SLP124 T02390167 KMMH 172255Z AUTO 32014KT 10SM CLR 09/M07 A3013 RMK AO2 T00851069 KMMI 172255Z AUTO 00000KT 10SM CLR 11/04 A3006 RMK KMMK 172253Z AUTO 33004KT 10SM CLR 03/M09 A3004 RMK AO2 SLP174 T00331094 KMML 172256Z AUTO 01008KT 10SM SCT060 04/01 A2963 RMK AO2 SLP046 T00390006 KMMT 172258Z 09003KT 10SM CLR 10/05 A3014 RMK AO2A SLP210 T01000047 $ KMMU 172159Z 35009KT 10SM FEW250 06/M11 A3010 KMMV 172253Z AUTO 00000KT 10SM BKN031 BKN050 10/07 A3025 RMK AO2 RAE18 SLP245 P0000 T01000067 KMNE 172255Z AUTO 17006KT 10SM CLR 25/18 A2986 RMK AO2 T02490183 KMNH 172248Z AUTO 26017G20KT 10SM SCT100 12/M02 A2969 RMK AO2 KMNI 172255Z 10SM CLR 09/06 A3016 RMK AO2 KMNM 172256Z AUTO 23007KT 5SM -RA BR OVC008 04/03 A2969 RMK AO2 SLP078 P0013 T00440033 $ KMNN 172253Z AUTO 16009KT 10SM CLR 06/00 A2999 RMK AO2 SLP163 T00560000 KMNV 172255Z AUTO 00000KT 10SM CLR 13/04 A3004 RMK A01 KMNZ 172255Z AUTO 20013KT 7SM CLR 26/17 A2982 RMK AO2 T02600171 KMOB 172256Z 19007KT 10SM FEW040 SCT250 19/14 A3005 RMK AO2 SLP175 T01940139 KMOD 172253Z 32009KT 10SM CLR 17/07 A3014 RMK AO2 SLP207 T01720067 KMOP 172255Z AUTO 15011G15KT 10SM SCT120 05/M01 A2983 RMK AO2 T00451008 KMOR 172255Z AUTO 00000KT 10SM CLR 12/02 A3004 RMK A01 KMOT 172254Z 35003KT 10SM CLR M04/M10 A2969 RMK AO2 SLP081 T10441100 KMOX 172253Z AUTO 33007KT 10SM SCT120 02/01 A2966 RMK AO2 KMPO 172253Z AUTO 31007KT 10SM CLR 00/M08 A3003 RMK AO2 SLP191 T00001078 KMPV 172251Z AUTO 00000KT 10SM CLR M04/M08 A3005 RMK AO2 SLP195 T10441083 KMPZ 172255Z AUTO 15008KT 5SM BR BKN028 OVC035 07/07 A2960 RMK AO2 T00730069 KMQB 172255Z AUTO 16010KT 7SM SCT031 SCT037 OVC055 09/06 A2964 RMK AO2 LTG DSNT NE T00890062 KMQI 172245Z AUTO 00000KT 10SM CLR 07/04 A3017 RMK AO2 T00710037 KMQJ 172256Z AUTO 16007KT 10SM SCT100 07/02 A2991 RMK AO1 KMQS 172255Z AUTO 00000KT 10SM CLR 05/M03 A3012 RMK AO2 KMQY 172256Z 15006KT 10SM CLR 16/00 A2998 RMK AO2 SLP115 T01560000 KMRB 172253Z 00000KT 10SM CLR 06/M03 A3013 RMK AO2 SLP204 T00611033 $ KMRC 172255Z AUTO 17004KT 10SM BKN090 17/M01 A2996 RMK A01 KMRF 172256Z AUTO 24010KT 10SM CLR 26/M02 A3004 RMK AO2 SLP132 T02561022 KMRH 172158Z AUTO 06003KT 10SM CLR 11/03 A3017 RMK AO2 SLP215 T01110033 TSNO KMRJ 172255Z AUTO 14006KT 1 1/2SM -RA OVC002 03/03 A2962 RMK AO2 KMRN 172245Z AUTO 14003KT 10SM CLR 11/01 A3014 RMK AO2 T01100007 KMRT 172253Z AUTO 17004KT 10SM CLR 06/00 A2999 RMK AO2 T00620004 KMRY 172254Z 28009KT 10SM CLR 16/09 A3014 RMK AO2 SLP217 T01560089 KMSL 172253Z AUTO 16007KT 10SM SCT075 17/06 A2999 RMK AO2 SLP153 T01720061 KMSN 172253Z 17009KT 3SM -DZ BR BKN006 OVC027 03/02 A2965 RMK AO2 LTG DSNT NE-SE RAB00E49DZB49 TSB20E38 SLP048 P0008 T00280022 $ KMSO 172253Z 28016KT 10SM BKN060 OVC080 04/M06 A2995 RMK AO2 PRESRR SLP162 T00441056 $ KMSP 172253Z 09004KT 4SM -DZ BR OVC003 03/03 A2962 RMK AO2 SLP038 P0000 T00330033 KMSS 172253Z AUTO 24003KT 10SM CLR M03/M09 A3015 RMK AO2 SLP217 T10281094 KMSV 172256Z AUTO 30010KT 10SM CLR 00/M08 A3006 RMK AO2 SLP194 T00001078 FZRANO KMSY 172253Z 16008KT 10SM FEW030 FEW050 23/17 A3002 RMK AO2 SLP169 T02280167 KMTC 172258Z 17011KT 10SM OVC150 05/02 A2994 RMK AO2A SLP149 T00480017 KMTH 172253Z AUTO 05013KT 10SM BKN065 25/17 A2998 RMK AO2 SLP151 T02500172 KMTJ 172253Z AUTO 26013G22KT 10SM -RA FEW060 BKN075 OVC100 12/03 A2977 RMK AO2 SLP027 P0000 T01170033 KMTN 172245Z 00000KT 10SM SCT150 06/M02 A3016 KMTO 172253Z AUTO 16016G22KT 10SM SCT095 07/04 A2976 RMK AO2 SLP083 T00720039 KMTP 172254Z AUTO 30011G20KT 08/M06 A3004 RMK AO1 SLP170 T00781056 KMTV 172255Z AUTO 00000KT 10SM CLR 05/M01 A3015 RMK AO2 T00531008 KMTW 172225Z AUTO 17019G23KT 10SM -RA SCT009 OVC018 05/03 A2969 RMK AO2 P0000 KMUI 172156Z 00000KT 10SM SCT250 07/M05 A3011 RMK AO2A SLP202 T00721052 TSNO $ KMUO 172258Z AUTO 30010KT 10SM BKN075 07/M04 A3014 RMK AO2 SLP218 T00691039 $ KMUT 172255Z AUTO 16008KT 6SM HZ OVC020 08/05 A2961 RMK AO2 KMVE 172252Z AUTO 01006KT 10SM CLR 03/00 A2965 RMK AO2 LTG DSNT NE KMVH 172300Z AUTO 29013G22KT 10SM FEW026 SCT034 BKN046 03/M10 A2972 RMK AO2 KMVL 172154Z AUTO 34005KT 10SM CLR M05/M09 A3005 RMK AO2 SLP186 T10501089 TSNO KMVN 172256Z AUTO 13007KT 10SM BKN042 OVC050 10/06 A2980 RMK AO2 SLP092 T01000056 KMVY 172253Z AUTO 31012G20KT 10SM CLR 06/M07 A2997 RMK AO2 SLP147 T00561067 KMWA 172245Z 14010KT 10SM BKN041 BKN060 OVC075 14/07 A2980 KMWC 172245Z 17014G18KT 10SM OVC016 05/01 A2968 KMWH 172252Z 25019G27KT 10SM CLR 09/M03 A3004 RMK AO2 PK WND 25029/2227 SLP180 T00941028 KMWK 172245Z AUTO 12003KT 10SM CLR 12/M06 A3014 RMK AO2 T01171056 KMWL 172253Z AUTO 18015KT 10SM CLR 28/16 A2973 RMK AO2 SLP054 T02830161 KMWM 172255Z AUTO 33010KT 10SM 07/M02 A2961 RMK AO2 PWINO TSNO KMWN 172249Z 32059G73KT 130SM BKN/// FEW220 M12/M26 RMK PK WND 31088/06 TPS LWR BKN052 BLSN BLO STA SW-N KMWO 172255Z AUTO 16007KT 10SM CLR 08/00 A2999 RMK AO2 LTG DSNT NW T00800001 KMWT 172253Z AUTO 22008G21KT 190V300 10SM BKN030 23/18 A2973 RMK AO2 SLP063 T02280183 KMXF 172256Z AUTO 00000KT 10SM CLR 17/09 A3005 RMK AO2 SLP179 T01700089 KMXO 172255Z AUTO 14008KT 1 3/4SM BR OVC003 05/05 A2959 RMK AO2 KMYF 172253Z 30010KT 10SM CLR 24/10 A3004 RMK AO2 SLP166 T02390100 KMYJ 172255Z AUTO 00000KT 7SM BKN027 OVC031 15/11 A2959 RMK AO2 KMYL 172251Z AUTO 26008KT 10SM FEW039 SCT070 01/M07 A3003 RMK AO2 SLP192 T00111067 TSNO KMYP 172248Z AUTO OVC001 M02/M03 A2990 RMK AO2 PWINO KMYR 172256Z 00000KT 10SM CLR 09/06 A3018 RMK AO2 SLP221 T00940061 KMYV 172253Z AUTO 34008KT 10SM CLR 16/06 A3020 RMK AO2 SLP228 T01560056 KMYZ 172235Z AUTO 00000KT 10SM CLR 21/12 A2946 RMK AO2 KMZG 172255Z AUTO 16009G14KT 10SM SCT025 26/20 A2994 RMK A01 KMZH 172256Z AUTO 00000KT 2 1/2SM BR OVC013 01/00 A2963 RMK AO2 KMZZ 172255Z AUTO 16007KT 10SM OVC090 07/01 A2991 RMK AO2 T00720010 KN03 172255Z AUTO 00000KT 10SM CLR M02/M05 A3012 RMK AO2 KN38 172255Z AUTO 09003KT 10SM BKN110 02/M06 A3007 RMK AO2 KN60 172252Z AUTO 00000KT M03/M07 A2968 RMK AO1 SLP078 T10281067 KNAK 172254Z AUTO 00000KT 10SM CLR 08/00 A3015 RMK AO2 SLP212 T00780000 KNBC 172256Z AUTO 00000KT 10SM CLR 13/10 A3015 RMK AO2 SLP211 T01280100 KNBG 172155Z 18010KT 10SM FEW010 FEW045 23/16 A3003 RMK AO2 SLP168 FU FEW010 T02330156 $ KNCA 172256Z AUTO 00000KT 10SM CLR 08/05 A3017 RMK AO2 SLP220 T00830050 KNDZ 172256Z 18006KT 10SM SCT035 19/13 A3006 RMK AO2 SLP167 T01940133 $ KNEL 172200Z AUTO 00000KT 10SM CLR 05/M04 A3009 RMK AO2 SLP188 T00501039 PNO $ KNEW 172253Z 17009KT 10SM CLR 23/14 A3003 RMK AO2 SLP161 T02280144 KNFE 172256Z AUTO 00000KT 10SM CLR 05/01 A3016 RMK AO2 SLP215 T00500006 KNFG 172257Z 26009KT 10SM BKN080 BKN100 21/14 A3001 RMK AO2 SLP162 T02060139 KNFL 172256Z 33006KT 10SM SCT060 08/M09 A3020 RMK AO2 SLP190 T00831089 $ KNFW 172252Z 18017KT 10SM SCT250 28/17 A2974 RMK AO2 SLP055 T02830172 $ KNGP 172256Z 16017KT 10SM FEW017 26/22 A2990 RMK AO2 SLP125 T02610222 KNGU 172159Z 32008KT 10SM SCT280 10/M01 A3018 RMK AO2 SLP218 T01001006 KNHK 172252Z 25004KT 10SM FEW150 FEW280 04/01 A3016 RMK AO2 SLP212 T00440006 KNID 172256Z AUTO 20027G35KT 10SM CLR 23/M01 A2988 RMK AO2 PK WND 20035/2255 SLP104 T02281011 KNIP 172253Z 02008KT 10SM SCT048 19/14 A3009 RMK AO2 SLP186 T01940139 KNJK 172256Z 11004KT 10SM FEW080 SCT120 BKN240 27/09 A2992 RMK AO2 SLP148 T02670094 KNJM 172257Z AUTO 00000KT 10SM CLR 08/05 A3019 RMK AO2 SLP225 T00780050 KNKT 172154Z 07003KT 7SM SKC 12/04 A3017 RMK SLP213 T01220039 KNKX 172155Z 29007KT 10SM FEW070 BKN110 25/12 A3004 RMK AO2 SLP166 T02500117 $ KNLC 172256Z 32013KT 10SM SCT050 19/04 A3013 RMK AO2 SLPNO RH/37 T01940044 $ KNMM 172256Z 14004KT 10SM CLR 21/15 A3001 RMK AO2 SLP173 T02060150 KNOG 172156Z AUTO 17014KT 10SM CLR 31/18 A2989 RMK AO2 SLP101 T03110183 PNO $ KNOW 172255Z AUTO 00000KT 10SM SCT043 SCT060 BKN070 10/03 A3016 RMK AO2 T00960026 KNOZ 172159Z AUTO 30013KT 10SM CLR 29/05 A2993 RMK AO2 SLP086 T02890050 KNPA 172256Z 19006KT 10SM CLR 19/14 A3005 RMK AO2 SLP179 T01890144 $ KNQA 172250Z 16008KT 10SM SCT055 BKN250 21/14 A2985 KNQI 172256Z 14015G22KT 10SM FEW022 FEW038 27/23 A2989 RMK AO2 SLP117 T02720228 KNQX 172253Z 07008KT 10SM BKN036 24/20 A2999 RMK AO2 SLP154 T02440200 $ KNRB 172252Z 35006KT 10SM SCT048 SCT080 18/16 A3008 RMK AO2 SLP186 T01830156 $ KNRS 172256Z 29010KT 10SM SCT100 BKN150 BKN200 19/16 A3004 RMK AO2 SLP171 T01940161 $ KNSE 172256Z 17008KT 10SM SCT040 18/16 A3006 RMK AO2 SLP166 T01830156 $ KNSI 172257Z AUTO 29017KT 10SM CLR 19/18 A3005 RMK AO2 SLP171 T01890178 PWINO $ KNTD 172256Z VRB05KT 10SM FEW012 FEW035 SCT280 20/14 A3003 RMK AO2 SLP169 T02000144 $ KNTU 172256Z 00000KT 10SM SCT250 07/01 A3015 RMK AO2 RAB11E38 SLP213 P0000 T00720006 KNUC 172256Z 22008KT 10SM BKN004 BKN200 18/16 A3006 RMK SLP177 T01780161 KNUI 172253Z AUTO 10003KT 10SM CLR 06/01 A3016 RMK AO2 SLP211 T00560011 KNUQ 172256Z 31006KT 10SM CLR 16/07 A3015 RMK AO2 SLP213 T01560072 KNUW 172256Z 25005KT 10SM SCT032 SCT075 BKN160 BKN250 10/02 A3021 RMK AO2 SLP229 T01000022 $ KNXF 172256Z AUTO 29006KT 10SM CLR 19/17 A3003 RMK AO2 SLP254 T01940167 PNO $ KNXP 172205Z 30020KT 10SM SCT180 SCT200 24/04 A3002 RMK AO2 PK WND 30026/2201 LAST T02440044 KNY0 172236Z AUTO 30011KT 10SM CLR M02/M08 A3008 RMK AO2 KNYC 172151Z AUTO 10SM CLR 07/M10 A3009 RMK AO2 SLP182 T00721100 $ KNYG 172256Z AUTO 31005KT CLR 07/01 A3017 RMK AO2 SLP216 T00720011 $ KNYL 172157Z 30006KT 10SM CLR 28/06 A2993 RMK AO2 SLP132 T02780056 $ KNZY 172252Z 30009KT 10SM FEW050 FEW100 BKN140 BKN200 21/16 A3003 SLP168 T02060161 KO22 172235Z AUTO 10SM CLR 14/08 A3015 RMK AO1 KO69 172255Z AUTO 00000KT 10SM CLR 17/04 A3018 RMK A01 KO86 172255Z AUTO 00000KT 10SM CLR 11/M05 A3022 RMK AO1 KOAJ 172256Z AUTO 00000KT 10SM CLR 07/04 A3019 RMK AO2 SLP227 T00670044 KOAK 172253Z 02011KT 10SM FEW026 17/05 A3017 RMK AO2 SLP215 T01670050 $ KOBE 172255Z AUTO 06004KT 10SM CLR 21/16 A3002 RMK AO2 KOCF 172251Z 00000KT 10SM CLR 19/11 A3006 RMK AO2 SLP182 T01890111 KOCH 172256Z AUTO 18009KT 10SM BKN041 26/19 A2987 RMK AO2 SLP115 T02560189 KOCQ 172255Z AUTO 23004KT 7SM OVC011 03/02 A2968 RMK AO1 P0008 KOCW 172245Z AUTO 00000KT 10SM CLR 08/04 A3019 RMK AO2 T00750040 KODO 172253Z AUTO 27014KT 10SM CLR 29/M03 A2986 RMK AO2 SLP070 T02891033 KODX 172253Z AUTO 01016G23KT 10SM FEW120 09/01 A2958 RMK AO2 SLP026 T00940011 KOEB 172254Z AUTO 15010G16KT 10SM SCT065 OVC090 06/00 A2987 RMK AO2 T00600004 KOEO 172255Z AUTO 17003KT 10SM OVC006 02/02 A2966 RMK AO2 T00230023 KOFF 172256Z AUTO 06004KT 10SM OVC022 15/12 A2951 RMK AO2 CIG 017V022 SLP996 T01500119 $ KOFK 172256Z AUTO 35013KT 10SM CLR 08/03 A2955 RMK AO2 SLP011 T00830028 KOFP 172254Z AUTO 00000KT 10SM CLR 06/01 A3017 RMK AO2 SLP218 T00560006 KOGA 172255Z AUTO 02008KT 10SM BKN110 13/00 A2961 RMK AO2 T01311005 KOGB 172253Z AUTO 00000KT 10SM CLR 10/05 A3015 RMK AO2 SLP209 T01000050 KOGD 172253Z 32010KT 10SM FEW045 BKN070 BKN110 04/M02 A3002 RMK AO2 SLP161 T00391017 KOGS 172255Z AUTO 00000KT 10SM CLR M04/M08 A3013 RMK AO2 T10401077 KOJA 172255Z AUTO 22009G14KT 10SM CLR 28/00 A2959 RMK AO2 KOJC 172253Z 18008KT 10SM CLR 18/15 A2949 RMK AO2 SLP982 T01830150 KOKB 172252Z AUTO 28009KT 10SM CLR 20/16 A3002 RMK AO2 SLP165 T02000161 KOKC 172252Z 21016G24KT 10SM SCT180 BKN250 26/11 A2960 RMK AO2 SLP010 T02560106 KOKK 172256Z AUTO 15012KT 10SM OVC085 08/01 A2988 RMK AO2 SLP126 T00780011 KOKM 172255Z AUTO 19011G21KT 10SM CLR 26/17 A2960 RMK AO2 T02600165 KOKV 172255Z AUTO 00000KT 10SM CLR 02/M01 A3013 RMK AO2 KOKZ 172255Z AUTO 00000KT 10SM CLR 12/07 A3011 RMK AO2 T01210070 KOLE 172255Z AUTO 17004KT 10SM OVC110 00/M04 A3003 RMK AO2 KOLF 172253Z AUTO 00000KT 10SM BKN080 OVC090 03/M04 A2967 RMK AO2 SLP075 T00331039 KOLG 172255Z AUTO 00000KT 2 1/2SM OVC004 00/00 A2964 RMK AO1 KOLM 172254Z 26008KT 10SM -RA FEW018 SCT030 BKN040 08/06 A3020 RMK AO2 RAB38 SLP226 P0003 T00780056 KOLS 172254Z AUTO 24010G18KT 10SM CLR 26/M06 A3006 RMK AO2 SLP130 T02561056 KOLU 172256Z AUTO 34008KT 10SM CLR 09/02 A2956 RMK AO2 SLP013 T00940017 KOLV 172250Z 18010G15KT 10SM BKN250 A2987 KOLY 172255Z AUTO 14013G19KT 10SM SCT100 08/05 A2982 RMK AO2 LTG DSNT N T00770053 KOLZ 172255Z AUTO 14007KT 3/4SM BR OVC002 04/04 A2959 RMK AO2 P0001 KOMA 172252Z 02006KT 5SM BR OVC031 14/11 A2951 RMK AO2 SLP992 T01440111 KOMH 172255Z AUTO 00000KT 10SM CLR 03/M01 A3014 RMK AO2 KOMK 172253Z AUTO 18008KT 10SM CLR 09/M02 A2998 RMK AO2 SLP163 T00941017 KOMN 172250Z 00000KT 10SM SCT043 19/15 A3006 KONA 172252Z AUTO 14003KT 4SM BR OVC007 02/02 A2962 RMK AO2 LTG DSNT SE KONL 172255Z AUTO 01011KT 10SM -RA SCT065 BKN075 OVC100 06/04 A2962 RMK AO2 T00610035 KONM 172255Z AUTO 30009G23KT 10SM BKN100 OVC120 25/M02 A2993 RMK AO2 T02481024 KONO 172253Z AUTO 28018G23KT 10SM CLR 09/M05 A3016 RMK AO2 SLP222 T00941050 TSNO KONP 172255Z AUTO 20009KT 10SM SCT031 BKN038 BKN047 11/07 A3029 RMK AO2 KONT 172253Z 24006KT 10SM FEW044 FEW075 SCT200 BKN250 22/11 A3002 RMK AO2 SLP155 T02170111 $ KONX 172300Z AUTO 00000KT 10SM CLR 07/02 A3018 RMK AO2 T00700019 KONZ 172253Z AUTO 17009KT 10SM CLR 06/02 A2996 RMK AO2 T00570020 KOOA 172255Z AUTO 15009KT 4SM BR BKN007 OVC011 08/07 A2957 RMK AO2 T00750067 KOPF 172253Z 05009KT 10SM FEW038 24/18 A3000 RMK AO2 SLP160 T02390178 KOPL 172255Z AUTO 17010KT 10SM CLR 22/17 A2998 RMK AO2 T02240170 KOPN 172235Z AUTO 12004KT 10SM CLR 15/03 A3011 RMK AO2 KOQT 172253Z AUTO 00000KT 10SM CLR 12/04 A3004 RMK AO2 SLP179 T01220044 KOQU 172254Z 31014KT 10SM SKC 04/M08 A2999 KORB 172253Z AUTO 00000KT 7SM BKN017 M01/M02 A2960 RMK AO2 LTG DSNT SE KORC 172255Z AUTO 35006KT 10SM SCT100 11/07 A2957 RMK AO2 KORD 172251Z 16012KT 10SM -RA OVC023 06/03 A2970 RMK AO2 LTG DSNT NE AND S RAB16 TSE11 SLP063 P0001 T00560028 KORE 172252Z AUTO 00000KT 10SM CLR M01/M07 A2998 RMK AO2 SLP160 T10111072 TSNO KORF 172251Z 00000KT 10SM CLR 08/03 A3016 RMK AO2 SLP212 T00830028 KORG 172255Z AUTO 19009KT 10SM SCT025 SCT031 24/21 A2997 RMK AO2 T02380206 KORH 172254Z 27009KT 10SM CLR 01/M09 A2995 RMK AO2 SLP153 T00111089 KORL 172253Z 08008KT 10SM CLR 21/14 A3005 RMK AO2 SLP179 T02110139 KORS 172255Z AUTO VRB04KT 10SM BKN060 BKN065 09/03 A3015 RMK AO2 KOSA 172255Z AUTO 19010G21KT 10SM SCT041 OVC047 25/18 A2981 RMK AO1 T02490180 KOSC 172254Z AUTO 18012G16KT 10SM SCT085 BKN120 03/M01 A2988 RMK AO2 T00331011 KOSH 172253Z 18009KT 3SM -TSRA BR OVC011 03/03 A2964 RMK AO2 LTG DSNT NE RAB10 TSB35 SLP049 P0018 T00330028 KOSU 172253Z 13008KT 10SM CLR 07/01 A2999 RMK AO2 SLP161 T00720006 KOTG 172256Z AUTO 35011KT 10SM OVC090 06/02 A2961 RMK AO2 SLP041 T00610017 KOTH 172256Z 24008KT 10SM SCT065 12/06 A3031 RMK AO2 SLP262 T01170061 KOTM 172253Z AUTO 15007KT 4SM BR BKN008 OVC014 09/08 A2956 RMK AO2 CIG 006V010 SLP013 T00890078 KOUN 172255Z AUTO 19017G21KT 10SM CLR 26/12 A2959 RMK AO2 T02630125 KOVE 172253Z AUTO 29007KT 10SM CLR 16/04 A3020 RMK AO2 SLP229 T01610044 KOVL 172252Z AUTO 36006KT 10SM CLR 04/01 A2963 RMK AO2 LTG DSNT E KOVS 172253Z AUTO 00000KT 4SM -RA BR OVC008 04/03 A2963 RMK AO2 RAB2154E16B24 CIG 005V011 SLP040 P0001 T00440028 KOWA 172255Z AUTO 00000KT 2SM BR OVC004 03/03 A2959 RMK AO2 LTG DSNT E AND SE KOWB 172256Z 13010KT 10SM OVC030 11/04 A2991 RMK AO2 SLPNO T01110044 KOWD 172253Z 28005KT 10SM CLR 03/M08 A2998 RMK AO2 SLP151 T00331083 KOWI 172255Z AUTO 15008KT 9SM CLR 19/15 A2947 RMK AO2 KOWP 172255Z AUTO 21009G18KT 10SM CLR 28/12 A2958 RMK AO2 T02800122 KOWX 172256Z AUTO 16010KT 10SM BKN110 06/02 A2997 RMK AO1 KOXB 172253Z AUTO VRB03KT 10SM CLR 07/M01 A3016 RMK AO2 SLP211 T00721011 KOXC 172251Z 32004KT 10SM CLR 03/M10 A3002 RMK AO2 SLP184 T00281100 KOXI 172255Z AUTO 16015G19KT 10SM SCT023 OVC030 07/01 A2981 RMK AO1 KOXR 172251Z 28012KT 10SM CLR 19/14 A3001 RMK AO2 SLP162 T01940144 KOXV 172255Z AUTO 16006KT 4SM BR OVC005 11/10 A2953 RMK AO2 KOZA 172255Z AUTO 18012G16KT 10SM CLR 25/13 A2989 RMK AO2 KOZR 172256Z AUTO 00000KT 10SM CLR 18/07 A3007 RMK AO2 SLP185 T01760073 KOZS 172255Z AUTO 15012KT 10SM OVC045 17/13 A2961 RMK AO2 KOZW 172255Z AUTO 15009KT 10SM OVC100 04/00 A2991 RMK AO2 T00360002 KP28 172256Z AUTO 12004KT 23/08 A2950 RMK AO1 SLP979 T02280083 KP53 172256Z AUTO 18005KT 04/04 A2969 RMK AO1 SLP060 P0008 T00390039 KP58 172251Z AUTO 18007KT 04/M01 A2989 RMK AO1 SLP130 T00391006 KP59 172251Z AUTO 24007KT 01/00 A2966 RMK AO1 SLP054 P0016 T00060000 KP60 172156Z AUTO 29007G14KT M06/M09 A2976 RMK AO1 SLP093 T10561094 KP68 172253Z AUTO 31013KT 02/M06 A3014 RMK AO1 PK WND 32034/2215 SLP186 T00221056 KP69 172252Z AUTO 26003KT 04/03 A3011 RMK AO1 SLP213 T00440033 $ KP92 172253Z AUTO 14003KT 22/19 A3000 RMK AO1 SLP159 T02170189 $ KPAE 172253Z 19004KT 10SM BKN022 08/03 A3016 RMK AO2 SLP217 T00780033 KPAH 172253Z 15011KT 10SM SCT070 16/07 A2982 RMK AO2 SLP097 T01560072 KPAM 172256Z AUTO 17003KT 10SM CLR 18/13 A3007 RMK AO2 DZB2156E22 SLP186 P0000 T01780129 TSNO $ KPAN 172255Z AUTO 00000KT 10SM 10/07 A3011 RMK AO2 KPAO 172247Z 32010KT 10SM SKC 16/09 A3016 KPBF 172253Z AUTO 19014KT 10SM BKN037 22/16 A2984 RMK AO2 PK WND 20028/2157 SLP102 T02220161 KPBG 172253Z AUTO 27004KT 10SM CLR M02/M11 A3011 RMK AO2 PRESRR SLP198 T10171106 KPBH 172255Z AUTO 17003KT 5SM RA OVC006 00/00 A2961 RMK AO2 LTG DSNT S P0001 T00000000 KPBI 172253Z 06009KT 10SM SCT025 23/15 A3001 RMK AO2 SLP162 T02330144 $ KPBX 172255Z AUTO 00000KT 10SM CLR 11/M03 A3003 RMK AO2 T01081028 KPCD 172255Z AUTO 15011KT 10SM OVC026 13/08 A2974 RMK AO2 LTG DSNT N T01330077 PWINO KPCM 172255Z AUTO 01003KT 10SM CLR 23/11 A3005 RMK AO2 KPCZ 172255Z AUTO 20004KT 4SM -RA OVC011 04/02 A2966 RMK AO2 T00400020 KPDC 172255Z AUTO 10004KT 3SM BR OVC007 04/03 A2961 RMK AO2 T00350027 KPDK 172253Z 17003KT 10SM CLR 14/04 A3009 RMK AO2 SLP197 T01390044 KPDT 172253Z 28015KT 10SM CLR 09/M01 A3014 RMK AO2 SLP205 T00891006 KPDX 172253Z 20008KT 10SM BKN032 BKN045 BKN085 11/06 A3024 RMK AO2 SLP241 T01110056 KPEA 172255Z AUTO 12004KT 7SM OVC007 09/07 A2956 RMK AO2 T00900071 KPEO 172253Z AUTO 00000KT 10SM CLR 01/M05 A3012 RMK AO2 SLP210 T00061050 KPEQ 172235Z AUTO 26012G16KT 10SM CLR 31/M04 A2984 RMK AO2 T03131044 KPEX 172253Z AUTO 00000KT 10SM SCT110 02/02 A2965 RMK AO2 T00180015 KPEZ 172255Z AUTO 18008KT 10SM CLR 29/17 A2988 RMK AO2 T02870171 KPGA 172253Z AUTO 24010G19KT 10SM SCT085 21/00 A2982 RMK AO2 SLP044 T02060000 TSNO KPGD 172253Z 00000KT 10SM SCT065 23/14 A3003 RMK AO2 SLP169 T02280144 KPGV 172245Z AUTO 00000KT 10SM CLR 07/02 A3020 RMK AO2 KPHD 172253Z AUTO 14003KT 10SM CLR 05/M01 A3005 RMK AO2 SLP182 T00501011 KPHF 172254Z 00000KT 10SM CLR 04/02 A3017 RMK AO2 SLP217 T00440022 KPHL 172254Z 30006KT 10SM FEW250 08/M07 A3013 RMK AO2 SLP201 T00831067 KPHN 172256Z AUTO 16010KT 10SM CLR 04/M00 A2996 RMK AO2 KPHP 172255Z AUTO 34006KT 10SM -RA SCT020 BKN026 OVC040 05/04 A2968 RMK AO2 RAB09 SLP061 P0001 T00500044 KPHT 172255Z AUTO 15008KT 10SM BKN085 16/08 A2988 RMK A01 KPHX 172251Z 36003KT 10SM SCT130 BKN170 BKN250 26/03 A2992 RMK AO2 SLP118 T02560028 KPIA 172254Z 17013KT 8SM OVC023 07/06 A2967 RMK AO2 SLP052 T00720056 KPIB 172256Z AUTO 20004KT 10SM CLR 21/14 A3002 RMK AO2 SLP166 T02110139 KPIE 172253Z 31006KT 10SM CLR 19/12 A3003 RMK AO2 SLP170 T01940122 KPIH 172253Z 26027G37KT 10SM SCT025 03/M02 A2995 RMK AO2 PK WND 26037/2245 SLP149 T00331022 KPIL 172253Z AUTO 15015KT 10SM CLR 26/22 A2991 RMK AO2 SLP128 T02610217 KPIM 172255Z AUTO 00000KT 10SM CLR 14/07 A3008 RMK AO2 T01350070 PWINO KPIR 172253Z AUTO 03005KT 10SM OVC075 05/02 A2966 RMK AO2 SLP054 T00500022 KPIT 172251Z 14007KT 10SM FEW150 BKN250 04/M02 A3005 RMK AO2 SLP193 T00441022 KPKB 172253Z 00000KT 10SM CLR 06/M02 A3009 RMK AO2 SLP192 T00611017 KPKD 172253Z AUTO 30006KT 10SM CLR 00/M02 A2963 RMK AO2 SLP052 T00001022 KPKV 172120Z AUTO 18013G18KT 10SM CLR 27/19 A2994 RMK AO2 T02740193 KPLN 172254Z AUTO 14007KT 10SM -RA OVC080 02/M02 A2977 RMK AO2 RAB42 SLP088 P0000 T00221017 KPLR 172255Z AUTO 00000KT 10SM CLR 11/09 A3006 RMK A01 KPLU 172255Z AUTO 24007KT 10SM FEW030 SCT040 BKN048 09/04 A3019 RMK AO2 KPMD 172253Z AUTO 31019G28KT 10SM CLR 18/08 A3006 RMK AO2 PK WND 31028/2253 SLP163 T01830078 TSNO KPMP 172253Z 05012KT 10SM FEW038 24/16 A3000 RMK AO2 SLP159 T02390161 KPMU 172255Z AUTO 15004KT 10SM CLR 21/12 A2992 RMK AO2 T02100122 KPMV 172255Z AUTO 36003KT 7SM SCT020 SCT025 OVC030 16/14 A2950 RMK AO2 T01600135 KPNA 172214Z AUTO 30016G22KT 10SM SCT032 SCT042 SCT100 M01/M07 A2977 RMK AO2 KPNC 172253Z AUTO 19008G15KT 10SM CLR 24/11 A2952 RMK AO2 SLP987 T02440111 KPNE 172254Z 26003KT 10SM CLR 07/M06 A3013 RMK AO2 SLP204 T00721061 KPNM 172254Z AUTO 35004KT 2 1/2SM BR OVC005 03/02 A2965 RMK AO2 LTG DSNT SE KPNS 172253Z 17005KT 10SM CLR 19/14 A3006 RMK AO2 SLP181 T01940144 KPNT 172255Z AUTO 18013KT 5SM -VCTSRA OVC020 07/06 A2972 RMK AO2 LTG DSNT N AND NE P0013 T00650061 KPOB 172256Z AUTO 00000KT 10SM CLR 07/03 A3016 RMK AO2 SLP217 T00710026 KPOC 172247Z 24006KT 10SM SCT039 21/12 A3005 KPOE 172258Z AUTO 17009KT 10SM SCT028 SCT040 24/19 A2992 RMK AO2 SLP132 T02380187 KPOF 172253Z AUTO 17009KT 9SM OVC034 18/14 A2976 RMK AO2 SLP079 T01830139 KPOU 172253Z 00000KT 10SM CLR 02/M08 A3007 RMK AO2 SLP180 T00171078 KPOV 172244Z AUTO 14004KT 10SM CLR 04/M02 A3002 RMK AO2 T00361021 KPOY 172255Z AUTO 34018G24KT 10SM SCT030 BKN035 OVC050 01/M08 A2973 RMK AO2 KPPA 172255Z AUTO 26020G27KT 10SM CLR 27/M03 A2967 RMK AO2 T02721026 KPPF 172252Z AUTO 21008KT 10SM CLR 24/14 A2954 RMK AO2 SLPNO T02390139 KPPO 172255Z AUTO 16011G18KT 10SM OVC023 07/01 A2981 RMK AO2 LTG DSNT W AND NW T00660010 KPPQ 172255Z AUTO 14012G18KT 10SM BKN026 BKN031 OVC040 12/08 A2965 RMK AO2 LTG DSNT NE T01200080 KPQI 172256Z AUTO 30013G24KT 9SM -SN OVC024 M02/M06 A2970 RMK AO2 PK WND 30027/2216 SNB20 SLP100 P0000 T10221056 FZRANO KPQL 172253Z AUTO 15005KT 10SM CLR 19/16 A3005 RMK AO2 SLP175 T01890161 KPQN 172253Z AUTO 02007KT 10SM CLR 04/M01 A2961 RMK AO2 KPRB 172253Z AUTO 10012KT 10SM CLR 18/09 A3009 RMK AO2 SLP185 T01780094 KPRC 172253Z 23007KT 10SM SCT120 15/03 A3006 RMK AO2 SLP123 T01500033 KPRG 172255Z AUTO 14014KT 10SM SCT021 BKN025 BKN100 07/04 A2981 RMK AO2 LTG DSNT N AND NW T00670040 KPRN 172256Z AUTO 00000KT 10SM CLR 18/10 A3005 RMK AO2 SLP176 T01780100 KPRO 172255Z AUTO 09003KT 7SM OVC006 11/10 A2953 RMK AO2 T01050096 KPRS 172255Z AUTO 19005KT 10SM CLR 31/00 A2993 RMK AO2 T03090000 KPRX 172256Z AUTO 20017G21KT 10SM OVC035 24/18 A2977 RMK AO2 PK WND 20027/2223 SLP090 T02440178 KPSC 172253Z 24013G21KT 10SM CLR 12/M01 A3012 RMK AO2 SLP202 T01171006 KPSF 172254Z AUTO 27009G18KT 200V300 10SM CLR M01/M09 A3003 RMK AO2 SLP180 T10061089 KPSK 172255Z AUTO 00000KT 10SM CLR 09/M03 A3011 RMK AO2 T00901034 KPSM 172256Z 29013G19KT 10SM CLR 00/M08 A2993 RMK AO2A SLP139 T00041083 CHINO RWY16 $ KPSN 172300Z AUTO 19013G18KT 10SM BKN044 26/18 A2985 RMK AO2 T02610181 KPSO 172255Z AUTO 25005KT 10SM SCT030 BKN037 OVC045 07/05 A2993 RMK AO2 T00650048 KPSP 172253Z 00000KT 10SM CLR 27/10 A2991 RMK AO2 SLP128 T02670100 KPSX 172253Z AUTO 18010KT 10SM CLR 25/22 A2993 RMK AO2 SLP134 T02500222 TSNO KPTB 172255Z AUTO 00000KT 10SM CLR A3017 RMK AO2 KPTK 172253Z 17010G17KT 10SM BKN080 OVC140 04/00 A2994 RMK AO2 SLP146 T00390000 KPTN 172256Z AUTO 18006KT 10SM CLR 22/17 A3002 RMK AO2 SLP168 T02220172 KPTS 172255Z AUTO 20014G19KT 10SM CLR 23/18 A2954 RMK AO2 T02320175 KPTT 172255Z AUTO 22008KT 10SM CLR 21/03 A2951 RMK AO2 T02100031 KPTV 172256Z AUTO 29003KT 10SM 17/10 A3013 RMK AO2 SLP215 T01670100 KPTW 172254Z AUTO 00000KT 10SM CLR 04/M06 A3012 RMK AO2 SLP199 T00441056 KPUB 172253Z 23008KT 10SM CLR 20/01 A2960 RMK AO2 SLP977 T02000011 KPUC 172253Z AUTO 31014G30KT 10SM FEW038 BKN070 OVC085 05/M02 A2986 RMK AO2 PK WND 31030/2247 PRESRR SLP112 T00501017 KPUJ 172255Z AUTO 00000KT 10SM CLR 17/07 A3007 RMK AO2 KPUW 172253Z AUTO 25015G25KT 10SM FEW029 SCT034 SCT055 05/M01 A3007 RMK AO2 PK WND 24027/2154 SLP201 T00501011 KPVB 172255Z AUTO 14007KT 2SM OVC002 04/04 A2962 RMK AO1 P0001 T00350035 KPVC 172256Z AUTO 30023G28KT 10SM CLR 06/M04 A2995 RMK AO2 PK WND 31031/2221 SLP140 T00561044 KPVD 172251Z 28010KT 10SM CLR 04/M06 A3000 RMK AO2 SLP159 T00391061 KPVE 172255Z AUTO VRB05G11KT 10SM SCT060 18/08 A2993 RMK A01 KPVF 172255Z AUTO 32004KT 10SM CLR 10/04 A3016 RMK AO1 KPVJ 172255Z AUTO 21014G22KT 10SM CLR 26/15 A2965 RMK AO2 T02610147 KPVU 172256Z 32015KT 10SM OVC065 03/M01 A3004 RMK AO2 SLP162 T00281006 KPVW 172255Z AUTO 24011G16KT 10SM CLR 27/M03 A2975 RMK AO2 T02741035 KPWA 172253Z 20019KT 10SM CLR 26/11 A2958 RMK AO2 SLP006 T02560111 KPWC 172253Z AUTO 00000KT 10SM CLR 00/M02 A2968 RMK AO2 KPWG 172256Z AUTO 19016G21KT 10SM CLR 28/18 A2980 RMK AO2 SLP097 T02780183 KPWK 172252Z 17011G18KT 5SM VCTS -RA BR OVC024 06/04 A2972 RMK AO2 RAB42 SLP067 P0002 T00610039 KPWM 172251Z VRB04KT 10SM FEW050 00/M08 A2991 RMK AO2 SLP130 T00001083 KPWT 172256Z AUTO 20007G14KT 10SM BKN022 09/04 A3016 RMK AO2 SLP234 T00890044 KPXE 172255Z AUTO 00000KT 10SM CLR 14/07 A3010 RMK AO2 T01390072 KPYM 172252Z AUTO 30005KT 10SM CLR 03/M07 A2997 RMK AO2 SLP148 T00331072 KPYX 172255Z AUTO 22012KT 10SM CLR 28/00 A2958 RMK AO2 T02790000 KPZQ 172255Z AUTO 16014G19KT 10SM OVC080 02/M02 A2982 RMK AO2 T00151016 KQBF 172256Z AUTO 33004KT 4000 HZ CLR 29/02 A2987 RMK AO2 SLPNO WND DATA ESTMD T02920024 KQBL 172256Z AUTO 00000KT 10SM CLR 18/15 A3008 RMK AO2 SLP188 WND DATA ESTMD T01810146 KQD3 172158Z 14001KT 9999 CLR 23/17 A3000 RMK SLP124 WND DATA ESTMD T02320174 403160221 KQDG 172256Z AUTO 24009KT 9999 BKN065 08/03 A2973 RMK AO2 LTG DSNT NE SLP070 T00820031 PWINO $ KQEI 172250Z AUTO 27001KT 8000 HZ FEW040 M02/M08 A3011 RMK A02 TSNO KQEJ 172250Z AUTO 30003KT 9999 BKN039 M02/M08 A3010 RMK A02 TSNO KQEL 172250Z AUTO 22003KT 9999 CLR M03/M10 A3025 RMK A02 TSNO KQEN 172250Z AUTO 26006KT 9999 CLR M06/M10 A2997 RMK A02 TSNO KQEP 172250Z AUTO 28005G13KT 9999 CLR M02/M11 A3021 RMK A02 TSNO KQEQ 172250Z AUTO 33007KT 9999 CLR M04/M13 A3027 RMK A02 TSNO KQER 172250Z AUTO 17002KT 9999 CLR M05/M11 A3012 RMK A02 TSNO KQES 172250Z AUTO 34020G29KT 9999 CLR M00/M09 A3026 RMK A02 TSNO KQEV 172250Z AUTO 35004KT 9999 CLR M01/M10 A3017 RMK A02 TSNO KQEW 172250Z AUTO 25008KT 9000 HZ CLR 01/M07 A3011 RMK A02 TSNO KQEX 172250Z AUTO 34008G13KT 9000 HZ CLR 02/M07 A3004 RMK A02 TSNO KQEY 172250Z AUTO 30005G10KT 9999 CLR M00/M09 A2986 RMK A02 TSNO KQFB 172250Z AUTO 31009G21KT 9999 CLR 03/M07 A3013 RMK A02 TSNO KQFT 172250Z AUTO 31003G12KT 9999 CLR M03/M11 A3019 RMK A02 TSNO KQFU 172250Z AUTO 36003KT 9999 CLR M04/M13 A3025 RMK A02 TSNO KQFV 172250Z AUTO 28004KT 9000 HZ CLR M05/M11 A3016 RMK A02 TSNO KQFW 172250Z AUTO 26002KT 8000 HZ FEW032 M02/M08 A3015 RMK A02 TSNO KQFX 172250Z AUTO 04001KT 6000 HZ CLR M02/M08 A3015 RMK A02 TSNO KQGE 172256Z AUTO 00000KT 10SM CLR 19/14 A3006 RMK AO2 SLP184 T01860143 KQHY 172256Z AUTO 00000KT 10SM CLR 18/14 A3007 RMK AO2 SLP189 T01840143 KQKG 172255Z AUTO 00000KT 6SM SCT090 39/37 A2984 RMK AO2 SLP949 WND DATA ESTMD T03920368 $ KQKR 172256Z AUTO 00000KT 9999 CLR 26/15 A2979 RMK AO2 SLPNO WND DATA ESTMD T02610147 403780229 KQKT 172258Z AUTO 00000KT 10SM CLR M A3015 RMK AO2 SLPNO $ KQN3 172256Z AUTO 30003KT 2600 HZ CLR 29/04 A2983 RMK AO2 SLP094 WND DATA ESTMD T02890043 403960225 KQND 172256Z AUTO 00000KT 9999 CLR 26/03 A2985 RMK AO2 SLPNO WND DATA ESTMD T02630029 403970246 KQOV 172258Z AUTO 16011KT 10SM OVC070 02/M01 A2978 RMK AO2 LTG DSNT SW-W SLP104 T00151014 KQRD 172258Z AUTO 00000KT 10SM CLR 18/15 A3006 RMK AO2 SLP184 KQRH 172256Z AUTO 00000KT 9000 BR CLR 24/18 A2997 RMK AO2 SLP136 WND DATA ESTMD T02380180 KQVF 172256Z AUTO VRB04KT 9999 FEW020 SCT075 26/23 A2985 RMK AO2 SLPNO WND DATA ESTMD T02610227 402980245 KQZF 172255Z AUTO 15001KT 9SM BKN021 24/M04 A3100 RMK AO2 SLP455 WND DATA ESTMD T02431041 $ KRAC 172253Z AUTO 17021G31KT 5SM BR BKN011 OVC020 05/03 A2971 RMK AO2 PK WND 17033/2157 RAB2154E04 SLP065 P0000 T00500033 KRAL 172253Z VRB04KT 10SM BKN200 22/11 A3002 RMK AO2 SLP150 T02220106 KRAP 172252Z 02007KT 10SM BKN038 OVC050 04/03 A2967 RMK AO2 RAB06E51 SLP064 P0000 T00390028 KRAW 172255Z AUTO 16009G15KT 10SM CLR A2957 RMK AO2 LTG DSNT NE KRBD 172253Z 19011G21KT 10SM CLR 27/18 A2976 RMK AO2 PK WND 18026/2200 SLP069 T02720183 KRBG 172253Z AUTO 17005KT 10SM BKN050 OVC065 12/03 A3029 RMK AO2 RAB24E45 SLP260 P0000 T01170033 KRBL 172254Z AUTO 36009KT 10SM CLR 16/00 A3022 RMK AO2 SLP231 T01610000 KRBO 172235Z AUTO 15015KT 10SM CLR 28/21 A2990 RMK AO2 T02760209 KRBW 172255Z AUTO 00000KT 10SM CLR 09/06 A3016 RMK AO2 KRCA 172256Z AUTO 02005KT 10SM BKN005 BKN026 OVC031 04/04 A2967 RMK AO2 CIG 004 RWY13 SLP066 T00400040 $ KRCM 172315Z AUTO 17008G14KT 10SM OVC032 19/15 A2953 RMK AO2 KRCR 172255Z AUTO 15010KT 10SM -RA SCT012 BKN033 OVC075 08/02 A2985 RMK AO2 LTG DSNT W AND NW KRCV 172245Z AUTO 23017G21KT 10SM BKN060 OVC070 09/00 A2984 RMK AO2 T00911005 KRCX 172255Z AUTO 12004KT 4SM BR OVC004 01/01 A2963 RMK AO2 LTG DSNT SE T00130010 KRCZ 172220Z AUTO 00000KT 10SM CLR 12/02 A3016 RMK AO2 T01190015 KRDD 172253Z 32005KT 10SM CLR 16/M02 A3020 RMK AO2 SLP226 T01611017 KRDG 172254Z AUTO 27003KT 10SM CLR 07/M04 A3011 RMK AO2 SLP203 T00671044 KRDK 172255Z AUTO 00000KT 3SM BR OVC005 14/14 A2952 RMK AO2 KRDM 172256Z 29010KT 10SM CLR 07/M06 A3017 RMK AO2 SLP230 T00671056 KRDR 172256Z AUTO 00000KT 10SM CLR M07/M10 A2973 RMK AO2 SLP086 T10691099 $ KRDU 172251Z 00000KT 10SM FEW250 07/02 A3017 RMK AO2 SLP217 T00720017 KREG 172255Z AUTO 22004KT 10SM CLR 23/15 A3000 RMK AO2 T02280152 KREO 172252Z AUTO 27012KT 06/M08 A3016 RMK AO1 SLP224 T00611078 $ KRFD 172254Z 17015KT 2SM -DZ BR OVC011 04/03 A2969 RMK AO2 SFC VIS 3 RAB36E40DZB46 SLP060 P0000 T00440028 KRFI 172255Z AUTO 18005KT 10SM BKN046 BKN050 25/19 A2985 RMK AO2 T02480187 KRGA 172255Z AUTO 00000KT 10SM CLR 10/02 A2999 RMK AO2 KRGK 172255Z AUTO 00000KT 4SM BR OVC007 03/02 A2961 RMK AO2 LTG DSNT SE KRHI 172253Z AUTO 21005KT 4SM BR OVC005 01/01 A2963 RMK AO2 RAE34 SLP052 P0000 T00060006 KRHP 172220Z AUTO 00000KT 10SM CLR 15/01 A3008 RMK AO2 T01530006 KRHV 172155Z 30009KT 10SM FEW035 17/06 A3013 KRIC 172254Z 12005KT 10SM FEW240 SCT300 06/M01 A3015 RMK AO2 SLP216 T00561006 KRID 172255Z AUTO 16004KT 10SM CLR 03/00 A2996 RMK AO2 KRIL 172253Z AUTO 24026G39KT 10SM SCT055 SCT070 BKN090 11/03 A2968 RMK AO2 PK WND 27045/2210 LTG DSNT N RAB2158E34 SLP013 P0000 T01060028 $ KRIV 172258Z AUTO 29005KT 10SM CLR 21/09 A3003 RMK AO2 SLP161 T02060089 KRIW 172253Z AUTO 04005KT 10SM BKN110 02/M04 A2972 RMK AO2 SLP064 T00221039 KRKD 172256Z AUTO 30011G20KT 10SM CLR M01/M07 A2984 RMK AO2 SLP105 T10061067 FZRANO KRKP 172253Z AUTO 16009G17KT 9SM CLR 25/22 A2991 RMK AO2 SLP129 T02500217 $ KRKR 172255Z AUTO 20014G25KT 10SM CLR 23/16 A2968 RMK AO2 KRKS 172254Z AUTO 27017KT 10SM OVC070 M02/M05 A2981 RMK AO2 PK WND 27033/2231 UPB21E48SNE21 SLP101 P0000 T10171050 KRLD 172255Z AUTO 22011G19KT 10SM CLR 13/M01 A3012 RMK AO2 T01251011 KRME 172253Z 34004KT 10SM CLR M03/M07 A3016 RMK AO2 SLP218 T10281072 KRMG 172253Z AUTO 13003KT 10SM CLR 14/06 A3005 RMK AO2 SLP172 T01390056 KRMN 172255Z AUTO 00000KT 10SM CLR 05/00 A3020 RMK AO2 T00471001 KRMY 172254Z AUTO 15009KT 10SM OVC095 05/00 A2986 RMK AO2 T00520004 KRNC 172255Z AUTO 00000KT 10SM CLR 15/M00 A3000 RMK A01 KRND 172256Z AUTO 19013KT 10SM CLR 28/18 A2987 RMK AO2 SLP107 T02830181 KRNH 172255Z AUTO 00000KT 4SM BR SCT005 OVC011 02/02 A2963 RMK AO2 T00200019 KRNM 172253Z A3004 RMK AO2 SLPNO KRNO 172255Z 01006KT 10SM FEW075 SCT090 08/M09 A3020 RMK AO2 SLP215 T00781089 KRNP 172255Z AUTO 15011G15KT 10SM SCT110 05/00 A2989 RMK AO2 T00461005 KRNT 172253Z 18007KT 10SM SCT042 BKN049 BKN075 10/04 A3017 RMK AO2 SLP223 T01000039 KRNV 172255Z AUTO 18010KT 10SM CLR 22/15 A2989 RMK AO2 T02190146 KROA 172254Z 12005KT 10SM FEW250 11/M04 A3014 RMK AO2 SLP208 T01061044 KROC 172254Z 16003KT 10SM BKN120 OVC140 02/M04 A3011 RMK AO2 SLP204 T00221044 KROG 172258Z 19018G24KT 10SM BKN026 20/16 A2965 RMK AO2 PK WND 18027/2214 SLP032 T02000161 $ KROS 172254Z AUTO 33003KT 5SM BR OVC005 02/01 A2965 RMK AO2 LTG DSNT SE T00180011 KROW 172251Z 30010KT 10SM CLR 29/01 A2980 RMK AO2 SLP043 T02940006 KROX 172254Z AUTO 28005KT 10SM CLR M05/M08 A2969 RMK AO2 KRPD 172255Z AUTO 12003KT 2 1/2SM BR OVC003 02/02 A2963 RMK AO2 LTG DSNT SE T00150015 KRPH 172255Z AUTO 18009KT 10SM 28/15 A2971 RMK AO2 T02840145 KRPJ 172255Z AUTO 16014G20KT 3SM TS BR OVC008 04/03 A2967 RMK AO2 LTG DSNT N AND SE T00400033 KRQB 172254Z AUTO 16010KT 10SM OVC080 04/M01 A2980 RMK AO2 T00371010 KRQE 172253Z AUTO 23008KT 10SM SCT039 BKN070 OVC080 09/06 A3003 RMK AO2 RAE2157B24E41 SLP108 P0000 T00940061 TSNO KRQO 172255Z AUTO 19015KT 10SM 23/11 A2961 RMK AO2 T02340113 KRRL 172255Z AUTO 00000KT 3SM BR OVC007 01/01 A2965 RMK AO2 LTG DSNT S T00070007 KRRT 172254Z AUTO 29005KT 10SM CLR M04/M09 A2969 RMK AO2 KRSL 172253Z AUTO 36011KT 10SM CLR 21/07 A2945 RMK AO2 SLP964 T02110072 KRSN 172255Z AUTO 18008KT 10SM CLR 23/17 A2992 RMK AO2 T02300170 KRSP 172154Z AUTO 33006KT 10SM CLR 04/M04 A3010 RMK AO2 SLP212 T00391039 $ KRST 172254Z 15004KT 3SM BR OVC003 02/02 A2960 RMK AO2 SFC VIS 5 SLP034 T00220022 KRSV 172255Z AUTO 14012KT 10SM SCT034 BKN100 07/03 A2984 RMK AO2 LTG DSNT NW T00740033 KRSW 172253Z 04004KT 10SM OVC065 23/17 A3001 RMK AO2 SLP158 T02280167 KRTN 172253Z AUTO 24021KT 10SM CLR 14/01 A2982 RMK AO2 PK WND 26031/2207 SLP026 T01390006 KRTS 172250Z AUTO 35004KT 10SM CLR 04/M07 A3021 RMK AO2 KRUE 172253Z AUTO 17006G14KT 10SM SCT030 BKN036 OVC046 22/17 A2972 RMK AO2 SLP058 T02220172 KRUG 172255Z AUTO 30004KT 9SM CLR M07/M10 A2970 RMK AO2 KRUQ 172245Z AUTO 00000KT 10SM CLR 12/00 A3013 RMK AO2 T01151002 KRUT 172256Z AUTO 34007KT 10SM CLR M02/M07 A3004 RMK AO2 SLP193 T10221072 FZRANO $ KRVS 172253Z 20010KT 10SM CLR 27/15 A2957 RMK AO2 SLP018 T02720150 KRWF 172253Z AUTO 34008KT 8SM BKN043 06/01 A2963 RMK AO2 SLP042 T00560006 KRWI 172253Z AUTO 00000KT 10SM CLR 06/03 A3018 RMK AO2 SLP220 T00610033 KRWL 172253Z AUTO 28015G23KT -SN SCT014 OVC023 01/M01 A2973 RMK AO2 SLP049 P0000 T00061011 KRWV 172255Z AUTO 19011G15KT 10SM CLR 27/19 A2986 RMK AO2 T02720187 KRXE 172253Z AUTO 35012G26KT 6SM -SN OVC055 01/M06 A2992 RMK AO2 PK WND 35026/2250 SNB42 PRESRR SLP143 P0001 T00111061 KRYM 172256Z AUTO 00000KT 10SM FEW036 OVC120 01/00 A2967 RMK AO2 LTG DSNT SE SLP062 T00100000 $ KRYN 172245Z 30012G18KT 10SM CLR 27/M04 A2999 KRYV 172255Z AUTO 18010G14KT 7SM TSRA OVC010 04/04 A2966 RMK AO2 LTG DSNT S THRU N T00380038 KRYW 172255Z AUTO 20008KT 10SM CLR 27/18 A2987 RMK AO2 T02670176 KRYY 172248Z 14004KT 10SM CLR 15/04 A3009 RMK AO2 SLP910 T01500044 KRZL 172255Z AUTO 14010KT 10SM VCTS OVC021 07/00 A2979 RMK AO2 LTG DSNT NW KRZN 172255Z AUTO 00000KT 4SM BR OVC005 01/01 A2965 RMK AO2 T00130010 KRZR 172255Z AUTO 18004KT 10SM CLR 12/05 A3002 RMK A01 KRZT 172255Z AUTO 17004KT 10SM CLR 07/M01 A3002 RMK AO2 LTG DSNT NW KS25 172255Z AUTO 01004KT 10SM CLR M00/M07 A2966 RMK AO2 KS32 172255Z AUTO 31005KT 9SM CLR M06/M08 A2971 RMK AO2 KS33 172255Z AUTO 22011KT 10SM SCT075 08/07 A3020 RMK AO2 KS39 172255Z AUTO 30013G18KT 10SM CLR 05/M05 A3018 RMK AO2 KS52 172255Z AUTO 23003KT 10SM CLR 07/M04 A3000 RMK AO2 T00671040 KSAA 172255Z AUTO 34005KT 1/2SM SN OVC005 00/00 A2975 RMK AO2 KSAC 172253Z 33013KT 10SM CLR 16/06 A3017 RMK AO2 SLP217 T01560061 KSAD 172251Z AUTO 30024G29KT 10SM CLR 27/M06 A2994 RMK AO2 PK WND 31030/2237 SLP104 T02671056 $ KSAF 172253Z 25021G31KT 10SM BKN075 14/03 A2996 RMK AO2 PK WND 26032/2242 SLP075 T01440028 KSAN 172251Z 30008KT 10SM FEW020 FEW050 BKN150 BKN200 21/14 A3005 RMK AO2 SLP175 T02060144 KSAR 172255Z AUTO 16010KT 10SM OVC026 13/08 A2976 RMK AO2 LTG DSNT N T01280075 KSAT 172251Z 18011KT 10SM FEW250 28/17 A2988 RMK AO2 SLP101 T02780172 KSAV 172253Z 10004KT 10SM FEW050 FEW250 14/07 A3015 RMK AO2 SLP208 T01440072 KSAW 172245Z 20007KT 4SM -DZ SCT004 BKN008 OVC021 02/02 A2967 KSAZ 172252Z AUTO 00000KT 10SM 01/00 A2965 RMK AO2 KSBA 172253Z 26017G23KT 10SM CLR 21/13 A2998 RMK AO2 SLP152 T02060133 KSBD 172250Z 22005KT 10SM BKN120 23/07 A3002 KSBM 172253Z AUTO 18017G23KT 10SM OVC019 05/03 A2966 RMK AO2 PK WND 17029/2206 SLP050 T00500028 TSNO KSBN 172254Z 15014KT 10SM OVC033 06/02 A2982 RMK AO2 RAB2159E54 SLP103 P0000 T00610022 $ KSBO 172235Z AUTO 00000KT 10SM CLR 13/06 A3012 RMK AO2 KSBP 172256Z AUTO 02008KT 10SM CLR 21/09 A3006 RMK AO2 SLP177 T02110094 KSBS 172253Z AUTO 31004KT 1 1/2SM OVC006 00/00 A2975 RMK AO1 T00001002 KSBY 172254Z 00000KT 10SM CLR 04/01 A3015 RMK AO2 SLP212 T00390006 KSCD 172255Z AUTO 00000KT 10SM SCT120 12/09 A3006 RMK AO2 T01240092 KSCF 172255Z AUTO 15010KT 10SM CLR 23/19 A3004 RMK A01 KSCH 172255Z AUTO 27011G19KT 10SM CLR 01/M07 A3009 KSCK 172255Z 35013KT 10SM CLR 17/07 A3015 RMK AO2 SLP208 T01720072 KSCR 172220Z AUTO 00000KT 10SM CLR 09/01 A3015 RMK AO2 T00860011 KSCX 172255Z AUTO 19005KT 10SM CLR 12/M00 A3001 RMK A01 KSDA 172255Z AUTO 03005KT 5SM BR OVC031 15/14 A2951 RMK AO2 KSDB 172253Z AUTO 02006KT 1SM HZ VV002 12/08 A3012 RMK AO2 SLP168 T01170083 KSDF 172256Z 11004KT 10SM BKN200 OVC250 10/03 A2997 RMK AO2 SLP148 T01000033 KSDL 172253Z 00000KT 10SM BKN100 24/04 A2996 RMK AO2 SLP127 T02440044 KSDM 172253Z 27008KT 10SM CLR 20/14 A3003 RMK AO2 SLP166 T02000144 KSDY 172256Z AUTO 02003KT 10SM FEW100 01/M04 A2967 RMK AO2 SLP077 T00111044 FZRANO KSEA 172253Z 21012G19KT 10SM FEW024 SCT030 BKN070 09/03 A3017 RMK AO2 SLP223 T00940033 KSEE 172253Z 25008KT 10SM SKC 23/09 A3003 KSEF 172255Z AUTO 07006KT 10SM SCT048 23/15 A3003 RMK AO2 T02250152 KSEG 172253Z AUTO 00000KT 10SM CLR 03/M02 A3013 RMK AO2 SLP205 T00281022 $ KSEM 172155Z AUTO 00000KT 10SM CLR 21/09 A3005 RMK AO2 TSNO KSEP 172255Z AUTO 18008KT 10SM CLR 26/17 A2982 RMK AO2 T02630165 KSET 172254Z AUTO 14014KT 10SM OVC023 12/08 A2969 RMK AO2 SLP053 T01220078 KSEZ 172255Z AUTO 15005KT 10SM BKN060 BKN075 BKN120 15/03 A3004 RMK AO2 KSFB 172253Z 08005KT 10SM CLR 19/13 A3005 RMK AO2 SLP175 T01940128 KSFF 172253Z 24011G19KT 10SM SCT048 BKN060 08/M02 A3001 RMK AO2 SLP169 T00781017 KSFM 172256Z AUTO 27011KT 10SM CLR M01/M07 A2992 RMK AO2 SLP136 T10061067 FZRANO KSFO 172256Z 35010KT 10SM FEW035 16/07 A3016 RMK AO2 SLP213 T01610067 KSFQ 172255Z AUTO 00000KT 10SM CLR 06/03 A3018 RMK AO2 T00570028 KSFY 172255Z AUTO 15007KT 5SM VCTS BR OVC010 05/04 A2963 RMK AO2 LTG DSNT NE AND SE T00510041 KSFZ 172256Z AUTO 28008KT 10SM CLR 02/M07 A2998 RMK AO2 SLP101 T00221067 FZRANO KSGF 172252Z 18013KT 10SM OVC033 19/16 A2961 RMK AO2 SLP020 T01940156 KSGH 172256Z AUTO 14007KT 10SM CLR 06/01 A2998 RMK AO2 SLP162 T00560011 $ KSGJ 172256Z 34007KT 10SM FEW050 18/15 A3008 RMK AO2 SLP186 T01830150 KSGR 172253Z 19013G19KT 10SM CLR 27/18 A2991 RMK AO2 SLP128 T02720183 KSGS 172253Z AUTO 00000KT 4SM BR BKN007 OVC011 03/03 A2962 RMK AO2 T00310031 KSGT 172256Z AUTO 21020G26KT 10SM OVC039 23/16 A2984 RMK AO2 PK WND 20026/2251 SLP104 T02330161 KSGU 172256Z AUTO 25010KT 10SM SCT110 22/03 A2985 RMK AO2 SLP082 T02170033 KSHD 172255Z AUTO 00000KT 10SM CLR 03/M02 A3014 RMK AO2 T00341021 KSHL 172255Z AUTO 02011G17KT 9SM SCT110 08/04 A2956 RMK AO2 KSHM 172258Z AUTO 26017G23KT 10SM FEW095 17/M06 A2965 RMK AO2 SLP982 T01651057 $ KSHN 172253Z AUTO 23008KT 10SM FEW055 SCT070 08/06 A3016 RMK AO2 PK WND 24029/2209 RAB09E33 SLP216 P0005 T00830056 KSHR 172253Z AUTO 02004KT 10SM OVC100 02/01 A2971 RMK AO2 RAE06SNB2155E07 SLP083 P0002 T00220006 KSHV 172256Z 18012KT 10SM SCT050 BKN280 25/18 A2983 RMK AO2 SLP100 T02500183 KSIF 172245Z AUTO 00000KT 10SM CLR 04/00 A3014 RMK AO2 T00441001 KSIK 172255Z AUTO 16006KT 10SM BKN042 BKN065 17/10 A2981 RMK AO2 KSIY 172253Z AUTO VRB05KT 10SM CLR 08/M02 A3025 RMK AO2 SLP263 T00831022 KSJC 172253Z 31011KT 10SM FEW032 17/07 A3014 RMK AO2 SLP206 T01720067 KSJN 172254Z AUTO 27022G30KT 10SM OVC065 14/03 A3005 RMK AO2 PK WND 26039/2235 RAB40E50 SLP114 P0000 T01440033 TSNO KSJS 172255Z AUTO 00000KT 10SM CLR 09/M01 A3003 RMK AO2 T00921011 KSJT 172251Z 20014KT 10SM CLR 29/12 A2981 RMK AO2 SLP074 T02890122 KSJX 172257Z AUTO 15008G16KT 10SM DZ OVC060 04/01 A2973 RMK AO2 T00380010 KSKA 172158Z 22016KT 10SM BKN037 BKN045 BKN055 06/M02 A2997 RMK AO2A SLP168 T00561016 $ KSKF 172256Z AUTO 16012KT 10SM CLR 28/18 A2986 RMK AO2 SLP105 T02830181 $ KSKX 172256Z AUTO 24017KT 10SM FEW060 OVC080 09/03 A2998 RMK AO2 PK WND 25028/2219 RAE28 SLP123 P0000 T00940028 $ KSLB 172255Z AUTO 00000KT 5SM BR SCT017 BKN026 09/08 A2954 RMK AO2 KSLC 172254Z 35012KT 10SM -RA FEW038 SCT048 OVC055 05/01 A3001 RMK AO2 RAB2157E07B46 SLP148 P0000 T00500011 VISNO NW RNWY $ KSLE 172256Z 19008KT 10SM CLR 11/05 A3025 RMK AO2 SLP246 T01060050 KSLG 172256Z AUTO 18013KT 10SM CLR 21/17 A2965 RMK AO2 SLP033 T02110167 KSLH 172254Z AUTO 15007KT 10SM BKN075 OVC090 01/M02 A2977 RMK AO2 T00141019 KSLI 172158Z 20009KT 10SM SCT030 BKN150 BKN220 23/16 A3002 RMK AO2A SLP169 T02250156 KSLK 172251Z AUTO VRB03KT 10SM CLR M07/M09 A3005 RMK AO2 SLP202 T10721094 $ KSLN 172253Z 17006KT 10SM CLR 18/09 A2946 RMK AO2 SLP967 T01780089 KSLO 172255Z AUTO 13010G16KT 10SM BKN036 BKN055 OVC080 10/06 A2977 RMK AO2 LTG DSNT N T01000055 KSLR 172255Z AUTO 20015G21KT 10SM CLR 25/18 A2979 RMK AO2 T02510175 KSME 172235Z AUTO 10003KT 10SM CLR 12/02 A3001 RMK AO2 KSMF 172253Z 34009KT 10SM CLR 15/06 A3018 RMK AO2 SLP219 T01500056 $ KSMN 172256Z AUTO 33008KT 10SM CLR 03/M09 A3000 RMK AO2 SLP187 T00281089 KSMO 172251Z 22008KT 10SM FEW040 19/16 A3003 RMK AO2 SLP168 T01890156 KSMP 172256Z AUTO 23008G20KT 170V290 1SM -SN BR BKN006 OVC012 M01/M02 A3005 RMK AO2 SNE02B24 SLP202 P0003 T10111017 KSMQ 172253Z AUTO 31004KT 10SM CLR 05/M08 A3008 RMK AO2 SLP189 T00501078 KSMS 172255Z AUTO 00000KT 10SM CLR 08/05 A3016 RMK AO2 KSMX 172251Z 31014KT 10SM CLR 19/12 A3006 RMK AO2 SLP181 T01890117 KSNA 172253Z 23005KT 10SM FEW037 BKN220 BKN250 21/16 A3002 RMK AO2 SLP165 T02060161 KSNC 172255Z AUTO 31011G21KT 10SM CLR 04/M12 A3002 RMK AO2 KSNH 172255Z AUTO 17005KT 10SM CLR 18/09 A2993 RMK A01 KSNK 172255Z AUTO 22011KT 10SM CLR 29/02 A2979 RMK AO2 T02870023 KSNL 172255Z AUTO 22012G16KT 10SM CLR 26/12 A2961 RMK AO2 T02590116 KSNS 172253Z 01008KT 10SM CLR 19/04 A3011 RMK AO2 RAE06 SLP205 P0000 T01890044 KSNT 172251Z AUTO 36005KT M03/M07 A3000 RMK AO1 SLP155 T10331072 KSNY 172253Z AUTO 01012KT 10SM FEW041 BKN075 08/02 A2963 RMK AO2 RAB2154E05 SLP032 P0000 T00830022 KSOA 172255Z AUTO 19011KT 10SM CLR 26/16 A2992 RMK AO2 KSOP 172256Z AUTO 00000KT 10SM CLR 07/02 A3016 RMK AO2 SLP233 T00720022 TSNO KSOW 172255Z AUTO 22019KT 10SM BKN100 13/02 A3011 RMK AO2 KSPA 172255Z AUTO 00000KT 10SM CLR 10/01 A3011 RMK AO2 KSPB 172253Z AUTO 21006KT 10SM FEW024 SCT029 SCT036 11/06 A3023 RMK AO2 SLP236 T01060056 KSPD 172256Z AUTO 27022G34KT 22/00 A2963 RMK AO1 PK WND 26035/2232 SLP981 T02220000 KSPF 172255Z AUTO 00000KT 10SM FEW080 03/02 A2967 RMK AO2 KSPG 172253Z 35007KT 10SM CLR 22/11 A3001 RMK AO2 SLP163 T02220111 KSPI 172252Z 16020KT 9SM BKN023 10/07 A2969 RMK AO2 PK WND 17026/2236 SLP057 T01000067 KSPR 172255Z AUTO 17012KT 10SM SCT031 BKN037 24/17 A3002 RMK A01 KSPS 172252Z 19015KT 10SM CLR 28/14 A2966 RMK AO2 SLP034 T02780144 KSPW 172253Z AUTO 03007KT 10SM BKN017 BKN110 09/06 A2956 RMK AO2 SLP017 T00890061 KSQI 172256Z AUTO 14008KT 7SM OVC012 06/04 A2965 RMK AO2 RAE27 SLPNO T00560039 KSQL 172251Z 32008KT 10SM FEW040 16/07 A3016 KSRB 172255Z AUTO 17005KT 10SM CLR 14/01 A3000 RMK A01 KSRC 172256Z AUTO 18011KT 10SM BKN030 OVC037 22/18 A2979 RMK AO2 RAB21E43 SLP096 P0000 T02170183 KSRQ 172253Z 33004KT 10SM CLR 20/14 A3001 RMK AO2 SLP162 T02000139 KSRR 172255Z AUTO 24023G36KT 10SM CLR 18/M07 A3001 RMK AO2 KSSC 172256Z AUTO 00000KT 10SM CLR 12/02 A3012 RMK AO2 SLP202 T01160021 $ KSSF 172253Z 18008G17KT 10SM CLR 29/18 A2986 RMK AO2 SLP099 T02940183 KSSI 172253Z AUTO 02008KT 10SM FEW048 17/14 A3011 RMK AO2 SLP199 T01670139 $ KSTC 172253Z 34004KT 5SM BR FEW009 SCT014 OVC047 03/02 A2966 RMK AO2 SLP060 T00280017 KSTE 172255Z AUTO 00000KT 2SM DZ OVC005 00/00 A2966 RMK AO2 P0001 T00030003 KSTF 172315Z AUTO 14005KT 10SM CLR 19/13 A2998 RMK AO2 KSTJ 172253Z 09005KT 4SM BR CLR 16/14 A2949 RMK AO2 SLP983 T01610139 KSTK 172245Z AUTO 01010G18KT 10SM CLR 11/04 A2959 RMK AO2 KSTL 172251Z 15015G21KT 10SM OVC021 13/08 A2970 RMK AO2 SLP063 T01280083 KSTP 172253Z 11004KT 10SM OVC007 03/03 A2964 RMK AO2 SLP040 T00330028 KSTS 172253Z VRB03KT 10SM FEW050 16/06 A3017 RMK AO2 SLP211 T01610056 KSUA 172250Z 05006KT 7SM SCT035 23/17 A3003 KSUE 172256Z AUTO 19016G23KT 7SM -RA OVC011 05/03 A2966 RMK AO2 PK WND 16029/2209 RAE30B48 SLP071 P0001 T00500033 KSUN 172250Z 30010G17KT 10SM SCT050 03/M10 A3000 KSUS 172254Z 15009G15KT 10SM BKN024 OVC029 15/10 A2968 RMK AO2 SLP051 T01500100 KSUT 172245Z AUTO 00000KT 10SM CLR 09/06 A3017 RMK AO2 T00920059 KSUU 172258Z AUTO 36012G20KT 10SM CLR 16/05 A3017 RMK AO2 SLP223 T01600047 KSUW 172255Z AUTO 18003KT 4SM BR OVC018 01/01 A2966 RMK AO2 T00060006 KSUX 172252Z 33006KT 10SM CLR 10/03 A2954 RMK AO2 SLP008 T01000033 KSVC 172255Z AUTO 26014G24KT 10SM CLR 22/M08 A3005 RMK AO2 T02171083 KSVE 172255Z AUTO 11003KT 10SM CLR 07/M07 A3020 RMK AO2 KSVH 172245Z AUTO 00000KT 10SM CLR 11/M07 A3011 RMK AO2 T01091068 KSVN 172256Z AUTO 05003KT 10SM FEW042 14/09 A3012 RMK AO2 SLP203 T01390089 $ KSWF 172245Z 29010KT 10SM SKC 03/M07 A3008 KSWO 172253Z 17007KT 10SM CLR 24/10 A2955 RMK AO2 SLP999 T02440100 KSWW 172255Z AUTO 20008KT 10SM CLR 29/05 A2981 RMK AO2 T02870051 KSXS 172258Z AUTO 00000KT 9SM M 17/09 A3006 RMK AO2 SLP181 T01680093 $ KSXT 172256Z AUTO 00000KT 10SM FEW009 BKN017 03/M01 A3023 RMK AO2 SLP258 T00281011 KSXU 172255Z AUTO 25022G28KT 10SM CLR 23/M04 A2982 RMK AO2 T02331045 KSYF 172255Z AUTO 02009KT 10SM CLR 13/M01 A2955 RMK AO2 T01281012 KSYI 172255Z AUTO 17005KT 10SM CLR 14/M00 A3000 RMK A01 KSYM 172250Z AUTO 12003KT 10SM CLR 10/M02 A3002 RMK AO2 KSYN 172251Z AUTO 00000KT 2SM BR OVC009 04/03 A2960 RMK AO2 LTG DSNT SE T00350026 KSYR 172254Z 00000KT 10SM FEW250 M01/M06 A3014 RMK AO2 SLP209 T10111061 KSZL 172256Z 21011KT 10SM BKN033 19/15 A2950 RMK AO2A SLP990 T01850150 KSZT 172255Z AUTO 25003KT 10SM SCT029 BKN047 OVC060 05/00 A2998 RMK AO2 KSZY 172255Z AUTO 18006KT 10SM CLR 18/10 A2993 RMK A01 KT20 172255Z AUTO 18010G18KT 10SM CLR 29/19 A2987 RMK AO2 T02850189 KT35 172255Z AUTO 20012G20KT 10SM CLR 28/18 A2984 RMK AO2 T02750181 KT65 172255Z AUTO 17010KT CLR 28/19 A2989 RMK AO2 T02830194 PWINO KT82 172255Z AUTO 20013KT 10SM CLR 25/16 A2990 RMK AO2 T02460159 KTAD 172254Z AUTO 26022G30KT 10SM CLR 17/00 A2973 RMK AO2 PK WND 27034/2218 SLP005 T01670000 KTAN 172252Z AUTO 28003KT 10SM CLR 03/M07 A2997 RMK AO2 SLP150 T00281072 KTAZ 172255Z AUTO 18011G16KT 10SM OVC026 09/06 A2974 RMK AO2 LTG DSNT N AND NE T00870055 KTBN 172256Z AUTO 18008G15KT 10SM OVC015 17/14 A2964 RMK AO2 SLP038 T01690136 KTBR 172235Z AUTO 00000KT 10SM CLR 13/03 A3013 RMK AO2 T01320034 KTBX 172255Z AUTO 32021KT M03/M03 A2975 RMK AO2 PWINO KTCC 172253Z AUTO 27020G27KT 10SM CLR 26/M02 A2975 RMK AO2 PK WND 26034/2209 SLP023 T02561022 KTCL 172253Z 20006KT 10SM CLR 18/12 A3003 RMK AO2 SLP169 T01830117 KTCM 172258Z AUTO 25005KT 10SM BKN023 OVC033 07/07 A3020 RMK AO2 DZB21E25RAB25E38 CIG 023V033 BKN V SCT SLP232 P0000 T00720065 $ KTCS 172253Z AUTO 25011KT 10SM SCT110 26/M03 A2994 RMK AO2 SLP067 T02611033 KTDF 172220Z AUTO 00000KT 10SM CLR 07/00 A3018 RMK AO2 KTDR 172256Z AUTO 18003KT 10SM CLR 17/13 A3007 RMK AO2 SLP186 T01660133 $ KTDZ 172253Z AUTO 16008KT 10SM CLR 07/01 A2997 RMK AO2 SLP152 T00670011 KTEB 172251Z 30013KT 10SM CLR 06/M08 A3007 RMK AO2 SLP183 T00611083 KTEW 172253Z AUTO 15010KT 10SM BKN100 05/01 A2989 RMK AO2 T00500006 KTEX 172255Z AUTO 23014G23KT 10SM RA SCT021 BKN036 OVC085 06/00 A2994 RMK AO2 T00631001 KTGI 172256Z AUTO 30008KT 10SM CLR 10/02 A3016 RMK AO1 KTHA 172255Z AUTO 18005KT 10SM CLR 14/M00 A3001 RMK A01 KTHV 172253Z AUTO 00000KT 10SM CLR 01/M03 A3012 RMK AO2 SLP206 T00111033 KTIF 172255Z AUTO 03008KT 10SM SCT065 SCT080 SCT095 08/02 A2963 RMK AO2 T00770022 KTIK 172256Z AUTO 20018G24KT 10SM CLR 26/11 A2959 RMK AO2 SLP016 T02600106 KTIP 172255Z AUTO 16017G21KT 10SM VCTS OVC021 07/05 A2975 RMK AO2 LTG DSNT N T00720047 KTIW 172253Z 18008KT 10SM -RA SCT022 OVC049 07/04 A3018 RMK AO2 RAB53 SLP223 P0000 T00720039 KTIX 172247Z 04007KT 7SM FEW040 22/14 A3006 KTKC 172159Z AUTO 36010KT 10SM CLR 07/02 A2960 RMK AO2 KTKI 172253Z 19014G22KT 10SM CLR 26/19 A2974 RMK AO2 SLP069 T02610189 KTKV 172255Z AUTO 00000KT 2SM DZ OVC005 00/00 A2964 RMK AO2 T00001004 KTKX 172255Z AUTO 17010KT 5SM HZ OVC040 19/15 A2979 RMK AO2 LTG DSNT N KTLH 172253Z 00000KT 10SM SCT250 19/09 A3007 RMK AO2 SLP182 T01890094 KTMA 172235Z AUTO 08003KT 10SM CLR 17/09 A3009 RMK AO2 T01730087 KTMB 172253Z 06010KT 10SM CLR 23/16 A2999 RMK AO2 SLP156 T02330161 KTME 172255Z AUTO 20014G18KT 10SM CLR 27/18 A2992 RMK AO2 KTMK 172255Z AUTO 18005KT 10SM SCT041 SCT047 OVC060 10/06 A3026 RMK AO2 KTMT 172235Z AUTO 36009KT 10SM BKN042 BKN050 BKN070 04/M06 A3019 RMK AO2 T00391058 KTNB 172255Z AUTO 00000KT 10SM CLR 07/M03 A3012 RMK AO2 T00721032 KTNU 172255Z AUTO 16007KT 6SM BR OVC008 08/07 A2955 RMK AO2 PWINO KTOA 172155Z 26011KT 10SM SCT015 BKN140 21/15 A3003 KTOB 172253Z AUTO 00000KT 1 3/4SM BR OVC004 02/02 A2959 RMK AO2 KTOC 172255Z AUTO 00000KT 10SM CLR 14/07 A3011 RMK AO2 T01360065 KTOI 172253Z AUTO 00000KT 10SM CLR 14/10 A3007 RMK AO2 SLP183 T01440100 KTOL 172252Z 16004KT 10SM SCT100 07/02 A2995 RMK AO2 SLP148 T00720017 KTOP 172253Z 16003KT 10SM CLR 21/14 A2946 RMK AO2 SLP969 T02110144 KTOR 172253Z AUTO 24005KT 10SM FEW060 OVC100 07/05 A2962 RMK AO2 SLP025 T00720050 KTPA 172253Z 33007KT 10SM CLR 22/12 A3004 RMK AO2 SLP170 T02170117 KTPF 172255Z AUTO 03003KT 10SM 22/11 A3003 RMK AO2 KTPH 172256Z AUTO 01027G38KT 10SM CLR 08/M09 A3012 RMK AO2 PK WND 35046/2235 SLP189 T00781089 KTPL 172251Z AUTO 19019KT 10SM CLR 28/18 A2982 RMK AO2 PK WND 18026/2234 SLP101 T02780178 KTQE 172254Z AUTO 36008KT 10SM CLR 12/05 A2953 RMK AO2 SLP996 T01170050 KTQH 172255Z AUTO 18006KT 10SM CLR 22/16 A2964 RMK AO2 KTRI 172253Z 00000KT 10SM FEW250 10/M01 A3005 RMK AO2 SLP172 T01001011 KTRK 172145Z 05006KT 10SM SKC 03/M09 A3017 KTRL 172253Z AUTO 19012G23KT 10SM FEW039 27/18 A2978 RMK AO2 SLP077 T02670178 KTRM 172252Z AUTO 00000KT 10SM CLR 28/11 A2987 RMK AO2 SLP116 T02780106 KTSP 172255Z AUTO 30011KT M1/4SM -RA OVC002 08/08 A3013 RMK AO2 KTTA 172245Z AUTO 00000KT 10SM CLR 07/03 A3016 RMK AO2 T00680030 KTTD 172253Z 21011KT 10SM FEW029 BKN047 OVC055 11/05 A3024 RMK AO2 SLP241 T01110050 KTTF 172253Z AUTO 16005KT 10SM CLR 06/01 A2996 RMK AO2 T00640010 KTTN 172253Z 25003KT 10SM CLR 07/M06 A3010 RMK AO2 SLP188 T00671061 KTTS 172258Z AUTO 00000KT 10SM BKN046 18/16 A3004 RMK AO2 SLP177 T01800160 VISNO RWY15 CHINO RWY15 KTUL 172253Z 19012KT 10SM OVC250 27/16 A2956 RMK AO2 SLP005 T02670156 KTUP 172253Z AUTO 14009KT 10SM CLR 19/11 A2995 RMK AO2 SLP141 T01890106 KTUS 172253Z 32015G23KT 10SM CLR 28/M04 A2999 RMK AO2 SLP120 T02781044 KTVC 172253Z 15009G14KT 120V200 10SM -RA FEW060 OVC080 03/00 A2973 RMK AO2 RAB09 SLP074 P0000 T00330000 KTVF 172201Z AUTO 32011KT 10SM CLR M05/M08 A2970 RMK AO2 SLP076 T10501083 FZRANO KTVI 172255Z AUTO 00000KT 10SM CLR 17/08 A3009 RMK AO2 KTVK 172215Z AUTO 00000KT 10SM OVC002 11/10 A2956 RMK AO2 KTVL 172253Z AUTO 03005KT 10SM CLR 04/M08 A3015 RMK AO2 SLP197 T00441083 KTVR 172253Z AUTO 18008KT 10SM -RA CLR 23/13 A2994 RMK AO2 SLP144 P0000 T02330128 KTVY 172255Z AUTO 31012KT 10SM SCT034 BKN050 OVC110 04/00 A3006 RMK AO2 KTWF 172253Z 26020KT 10SM SCT040 BKN047 03/M03 A3009 RMK AO2 PK WND 28030/2204 SLP186 T00331033 KTWM 172254Z AUTO 00000KT 4SM HZ OVC008 02/M01 A2961 RMK AO2 LTG DSNT NW KTXK 172253Z 19007KT 10SM FEW042 BKN050 23/18 A2981 RMK AO2 SLP090 T02330183 KTYQ 172255Z AUTO 16011G16KT 10SM OVC100 07/00 A2989 RMK AO2 LTG DSNT NW T00660001 KTYR 172253Z 20013KT 10SM BKN044 26/18 A2982 RMK AO2 SLP090 T02560183 KTYS 172253Z 00000KT 10SM BKN250 14/03 A3003 RMK AO2 SLP171 T01390033 KTZR 172255Z 14004KT 10SM SKC 06/00 A3001 KU16 171757Z AUTO 02008G16KT 8SM SCT028 BKN033 OVC040 04/01 A2986 RMK AO2 WSHFT 1717 SLP741 P0001 60016 T00440011 10083 20044 53034 $ KU42 172255Z AUTO 35003KT 10SM BKN013 BKN019 OVC028 02/02 A3003 RMK AO1 P0001 T00150015 KU68 172255Z AUTO 31019G27KT 10SM OVC090 04/M12 A2976 RMK AO2 KUAO 172253Z 22006KT 10SM FEW038 SCT055 BKN090 10/07 A3026 RMK AO2 RAB13E25 SLP245 T01000072 KUBE 172255Z AUTO 14004KT 3SM BR OVC004 00/00 A2960 RMK AO2 LTG DSNT SE KUCP 172256Z AUTO 15004KT 10SM CLR 03/M03 A3006 RMK AO2 SLP202 T00331028 KUCY 172255Z AUTO 15009KT 10SM FEW050 FEW075 17/09 A2984 RMK A01 KUDG 172256Z AUTO 00000KT 10SM CLR 08/04 A3016 RMK AO2 SLP221 T00830039 KUES 172245Z 16012G19KT 7SM OVC012 04/02 A2967 KUGN 172255Z 16010G17KT 7SM FEW015 OVC022 05/03 A2970 RMK AO2 LTG DSNT SE SLP064 T00500033 KUIL 172253Z AUTO 22005KT 7SM -RA SCT033 BKN040 OVC050 08/06 A3016 RMK AO2 RAB42 SLP214 P0001 T00830056 KUIN 172254Z AUTO 15005KT 9SM OVC024 12/07 A2960 RMK AO2 SLP025 T01170072 KUKF 172215Z AUTO 11005KT 10SM CLR 12/M02 A3016 RMK AO2 KUKI 172256Z AUTO 00000KT 10SM CLR 16/03 A3019 RMK AO2 SLP220 T01560028 KUKT 172255Z AUTO 00000KT 10SM CLR 03/M04 A3011 RMK AO1 KULM 172254Z AUTO 00000KT 10SM CLR 05/02 A2960 RMK AO2 LTG DSNT E KUNI 172255Z AUTO 00000KT 10SM CLR 05/00 A3004 RMK AO2 T00490000 KUNO 172253Z AUTO 17011KT 6SM BR OVC006 16/14 A2972 RMK AO2 CIG 005V010 SLP063 T01610144 KUNU 172255Z AUTO 17006KT 1 1/2SM +TSRA OVC010 03/02 A2967 RMK AO2 LTG DSNT N S AND NW T00310021 KUNV 172253Z 00000KT 10SM SKC 03/M04 A3010 KUOX 172255Z AUTO 16007G12KT 10SM CLR 20/13 A2994 RMK AO2 KUSE 172300Z AUTO 15010KT 10SM BKN100 06/03 A2993 RMK AO2 KUTA 172255Z AUTO 17008KT 10SM A2988 RMK AO2 TSNO KUTS 172253Z AUTO 18009KT 10SM CLR 27/18 A2987 RMK AO2 SLP110 T02670183 KUUU 172253Z AUTO 29012G21KT 10SM CLR 04/M06 A2998 RMK AO2 SLP152 T00441056 KUVA 172255Z AUTO 15007KT 10SM CLR 27/18 A2988 RMK AO2 T02680181 KUXL 172255Z AUTO 17011KT 10SM SCT031 24/19 A2997 RMK AO2 T02380187 KUYF 172255Z AUTO 14009KT 10SM CLR 06/00 A2998 RMK AO2 KUZA 172254Z AUTO 00000KT 7SM CLR 08/02 A3012 RMK AO2 SLP207 T00780022 KVAD 172256Z AUTO 00000KT 10SM CLR 15/10 A3008 RMK AO2 SLP189 T01540095 $ KVAF 172255Z AUTO 21014KT 8SM CLR 25/19 A2998 RMK A01 KVAY 172254Z AUTO 00000KT 10SM CLR 03/M04 A3012 RMK AO2 SLP198 T00331039 $ KVBG 172255Z 31011KT 10SM FEW030 FEW250 17/10 A3009 RMK AO2A SLP188 T01660097 KVBS 172300Z AUTO 00000KT 10SM CLR 24/20 A2996 RMK A01 KVBT 172256Z AUTO 19015G20KT 10SM OVC025 21/16 A2966 RMK AO2 SLP040 T02060161 KVBW 172255Z AUTO 00000KT 10SM CLR 03/00 RMK AO2 T00301005 KVCB 172253Z AUTO 01011KT 10SM CLR 17/04 A3020 RMK AO2 SLP224 T01670039 KVCT 172251Z 17016KT 10SM FEW030 26/19 A2990 RMK AO2 SLP125 T02610194 $ KVCV 172255Z AUTO 29017G23KT 10SM CLR 19/06 A3004 RMK AO2 KVDF 172255Z AUTO 00000KT 10SM CLR 18/12 A3004 RMK AO2 KVDI 172255Z AUTO 00000KT 10SM CLR 15/07 A3011 RMK AO2 KVEL 172253Z AUTO 33010KT 10SM BKN050 BKN070 08/M03 A2977 RMK AO2 PK WND 27031/2159 SLP069 T00831028 KVER 172255Z AUTO 16008KT 10SM CLR 16/13 A2956 RMK AO2 LTG DSNT NE T01640126 KVES 172235Z AUTO 16007KT 10SM CLR 06/01 A2995 RMK AO2 LTG DSNT W KVGT 172253Z AUTO 24015G24KT 10SM CLR 24/04 A2983 RMK AO2 PK WND 26030/2157 SLP101 T02440039 KVIH 172253Z AUTO 17011G20KT 10SM OVC015 16/13 A2967 RMK AO2 SLP044 T01610133 KVIS 172256Z AUTO 33005KT 10SM CLR 18/07 A3013 RMK AO2 SLP209 T01780072 KVJI 172255Z AUTO 00000KT 10SM CLR 11/M02 A3006 RMK AO2 T01131018 KVKS 172255Z AUTO 17005G10KT 8SM CLR 23/12 A2995 RMK A01 KVKY 172255Z AUTO VRB03KT 10SM FEW034 23/16 A3007 RMK A01 KVLD 172253Z 00000KT 10SM CLR 15/09 A3009 RMK AO2 SLP200 T01500089 $ KVLL 172255Z AUTO 17008KT 10SM SCT100 06/00 A2998 RMK AO2 T00580003 KVNC 172255Z AUTO 33007KT 10SM CLR 22/16 A3002 RMK AO2 KVNY 172251Z 30008KT 10SM SCT115 23/12 A3001 RMK AO2 SLP155 T02280122 KVOA 172255Z AUTO VRB06KT 10SM SCT029 23/16 A3005 RMK A01 KVOK 172256Z AUTO 00000KT 2 1/2SM -DZ BR OVC006 02/02 A2964 RMK AO2 RAB02E03UPB03E05RAB05E24DZB24 SLP048 P0003 T00240023 KVPC 172253Z AUTO 00000KT 10SM CLR 10/07 A3008 RMK AO2 SLP182 T01000072 KVPS 172256Z 21003KT 7SM FEW045 19/13 A3006 RMK AO2A SLP186 T01890131 $ KVPZ 172256Z AUTO 15008KT 10SM OVC022 08/02 A2978 RMK AO2 PRESFR SLP089 T00780017 $ KVQQ 172250Z 07007KT 10SM BKN049 17/14 A3009 KVQT 172255Z AUTO VRB05KT 10SM FEW030 SCT037 25/18 A3002 RMK A01 KVRB 172253Z 05005KT 10SM CLR 21/14 A3004 RMK AO2 SLP170 T02110144 KVSF 172254Z AUTO 30005KT 10SM CLR 00/M08 A3000 RMK AO2 SLP166 T00001078 KVTA 172254Z AUTO 13004KT 10SM CLR 07/M02 A3001 RMK AO2 SLP169 T00671017 KVTI 172255Z AUTO 14004KT 2 1/2SM -DZ BKN007 OVC011 06/05 A2958 RMK AO2 T00550047 KVTN 172252Z AUTO 05006KT 10SM FEW025 BKN090 OVC110 07/01 A2964 RMK AO2 SLP047 T00720006 KVTP 172254Z AUTO 20025G46KT 10SM BKN013 OVC017 01/M01 RMK AO2 KVUJ 172225Z AUTO 00000KT 10SM CLR 10/01 A3018 RMK AO2 T01010014 KVUO 172253Z AUTO 24006KT 10SM SCT033 SCT043 OVC055 11/06 A3024 RMK AO2 SLP239 T01110056 KVVG 172230Z AUTO 00000KT 10SM 21/12 A2995 RMK A01 KVVV 172254Z 10SM OVC110 03/M01 A2967 RMK AO2 KVWU 172249Z AUTO 31008KT 10SM CLR M01/M04 A2965 RMK AO2 KVYS 172255Z AUTO 16011KT 3SM TS BR SCT006 OVC016 04/04 A2968 RMK AO2 LTG DSNT N AND E P0001 T00440037 KW13 172255Z AUTO 00000KT 10SM CLR 05/M03 A3012 RMK AO1 T00541034 KW22 172255Z AUTO 08004KT 10SM 06/M02 A3006 RMK AO2 KW29 172220Z AUTO 32004KT 10SM CLR 09/M01 A3015 RMK AO2 KW31 172255Z AUTO 00000KT 10SM CLR 04/02 A3015 RMK AO1 T00410021 KW43 172235Z AUTO 26004KT 10SM BKN090 BKN120 02/01 A2968 RMK AO2 KW63 172255Z AUTO 00000KT 10SM CLR 05/01 A3016 RMK AO1 KW75 172255Z AUTO 00000KT 10SM CLR 04/02 A3016 RMK AO1 T00430019 KW78 172255Z AUTO 00000KT 10SM CLR 07/M01 A3015 RMK AO1 T00651014 KW81 172255Z AUTO 00000KT 10SM CLR 04/03 A3015 RMK AO1 T00440025 KW96 172255Z AUTO 00000KT 10SM CLR 06/01 A3016 RMK AO1 T00580006 KW99 172235Z AUTO 00000KT 10SM CLR 04/M01 A3012 RMK AO2 T00401012 KWAL 172254Z AUTO 27004KT 10SM CLR 07/00 A3016 RMK AO2 SLP209 T00670000 KWDG 172248Z 16009KT 10SM SCT150 BKN180 24/10 A2952 KWDR 172255Z AUTO 00000KT 10SM CLR 12/06 A3013 RMK AO1 LTG DSNT NW KWHP 172055Z 00000KT 10SM SKC 22/11 A3006 KWJF 172256Z 27019KT 6SM HZ CLR 17/07 A3006 RMK AO2 PK WND 27027/2216 SLP171 T01720072 KWLD 172254Z AUTO 19009KT 10SM CLR 23/12 A2952 RMK AO2 SLP990 T02280117 KWMC 172256Z AUTO 35008KT 10SM FEW047 06/M06 A3019 RMK AO2 SLP223 T00561056 KWRB 172256Z 00000KT 10SM CLR 14/09 A3009 RMK AO2A SLP193 T01410089 KWRI 172256Z AUTO 26003KT 10SM CLR 05/M05 A3008 RMK AO2 SLP187 T00491052 $ KWRL 172253Z AUTO 36016G22KT 10SM FEW043 SCT070 BKN120 04/M03 A2973 RMK AO2 SLP082 T00391033 KWST 172253Z AUTO 30005KT 10SM CLR 04/M07 A3003 RMK AO2 SLP168 T00441072 KWVI 172253Z AUTO 07004KT 10SM CLR 18/04 A3013 RMK AO2 SLP201 T01780039 $ KWVL 172256Z AUTO 28007KT 10SM CLR M02/M07 A2982 RMK AO2 SLP128 T10221072 FZRANO KWWR 172255Z AUTO 21010KT 10SM CLR 26/M03 A2960 RMK AO2 KWYS 172245Z AUTO 29010G16KT 9SM FEW055 FEW065 M02/M12 A2982 RMK AO2 KX60 172255Z AUTO 00000KT 9SM CLR 19/12 A3006 RMK A01 KXIF 172256Z AUTO 00000KT 10SM FEW160 04/M04 A3006 RMK AO2 SLPNO WND DATA ESTMD T00391044 KXIH 172255Z AUTO 21005KT 10SM CLR 24/21 A2994 RMK A01 KXLL 172255Z AUTO 27003KT 10SM CLR 06/M06 A3012 RMK AO2 KXMR 172258Z AUTO 01003KT 8SM R31/5500FT CLR 20/14 A3004 RMK AO2 CIG 043 RWY13 SLP176 T01990141 $ KXNA 172253Z 19018G25KT 10SM CLR 20/17 A2965 RMK AO2 PK WND 18030/2155 RAE06 SLP031 P0000 T02000167 KXPY 171945Z AUTO 12006KT 10SM CLR 23/17 A3007 RMK A01 KXSA 172255Z AUTO RMK AO2 PWINO TSNO KXVG 172256Z AUTO 00000KT 7SM CLR M01/M02 A2963 RMK AO2 KY19 172255Z AUTO 09004KT 10SM CLR M01/M06 A2968 RMK AO2 KY23 172255Z AUTO 00000KT 5SM BR OVC003 01/01 A2962 RMK AO2 T00130013 KY31 172254Z AUTO 12007KT 10SM SCT095 BKN110 02/M01 A2983 RMK AO2 T00221011 KY49 172255Z AUTO 31003KT 10SM CLR 01/M02 A2964 RMK AO2 LTG DSNT SE T00071020 KY50 172256Z AUTO 19004KT 2 1/2SM UP BR OVC006 02/02 A2965 RMK AO2 UPB23 CIG 004V009 SLP066 P0000 T00220017 KY51 172255Z AUTO 14003KT 2SM OVC002 02/02 A2962 RMK AO1 P0001 T00210021 KY63 172257Z AUTO 32009KT 280V350 7SM OVC120 01/M01 A2967 RMK AO2 T00121010 KY70 172256Z AUTO 14011KT 10SM BKN090 BKN110 04/00 A2983 RMK AO2 T00430001 KYIP 172253Z 15006KT 10SM SCT100 05/01 A2997 RMK AO2 SLP151 T00500011 KYKM 172253Z 23005KT 10SM SCT065 11/M02 A3009 RMK AO2 SLP197 T01061022 KYKN 172256Z AUTO 32011KT 10SM -RA SCT039 SCT075 07/04 A2963 RMK AO2 SLP053 P0000 T00670039 KYNG 172251Z 14009KT 10SM FEW130 FEW170 BKN250 04/M02 A3002 RMK AO2 SLP177 T00391022 KZPH 172315Z AUTO 03003KT 10SM CLR 20/12 A3004 RMK AO2 T01970124 KZZV 172253Z AUTO 14005KT 10SM CLR 04/M02 A3004 RMK AO2 SLP177 T00441017 LATI 172250Z VRB02KT CAVOK 08/07 Q1011 NOSIG LBBG 172230Z 27004KT 9999 OVC015 12/10 Q1017 NOSIG LBGO 172230Z AUTO 26004KT 3900 -SHRA BR BKN004/// OVC007/// 07/07 Q1020 LBPD 172230Z AUTO 08006KT 9999 -RA OVC016/// 10/10 Q1018 LBSF 172230Z 13003KT 9999 -RA SCT015 OVC017 08/08 Q1017 TEMPO 5000 RA LBWN 172230Z VRB02KT 9000 -RA OVC011 11/11 Q1017 NOSIG LCEN 172220Z 27008KT 9999 FEW025 SCT200 14/08 Q1014 NOSIG LCLK 172230Z 31007KT CAVOK 18/09 Q1014 NOSIG LCPH 172230Z 03007KT CAVOK 15/10 Q1014 LCRA 172250Z 32004KT CAVOK 16/11 Q1014 NOSIG LDDU 172230Z 02019KT CAVOK 13/03 Q1013 LDOS 172230Z 01006KT 6000 -DZ OVC010 05/04 Q1021 LDPL 172230Z AUTO 05008KT CAVOK 09/03 Q1017 LDRI 172230Z 35008KT 280V040 9999 FEW030 10/01 Q1018 LDSP 172230Z AUTO 02005KT CAVOK 11/03 Q1014 LDZA 172230Z 00000KT 9999 OVC030 05/03 Q1022 NOSIG LDZD 172230Z 04004KT 320V080 CAVOK 09/02 Q1015 LEAB 172200Z VRB02KT CAVOK 03/M04 Q1021 NOSIG LEAG 172230Z AUTO 08006KT 040V120 9999 FEW025 17/11 Q1020 LEAL 172230Z 28004KT CAVOK 11/10 Q1020 NOSIG LEAM 172230Z AUTO 33006KT 9999 NCD 13/10 Q1020 LEAO 171900Z 00000KT CAVOK 10/M01 Q1020 LEAS 172230Z 16001KT 9999 FEW027 08/06 Q1024 NOSIG LEBA 172230Z AUTO 00000KT 9999 NCD 08/03 Q1020 LEBB 172230Z 10001KT 7000 NSC 07/07 Q1025 NOSIG LEBG 172230Z AUTO 07004KT 030V110 9999 NCD 05/02 Q1023 LEBL 172230Z 33009KT CAVOK 11/02 Q1019 NOSIG LEBR 172230Z AUTO 31011KT 9999 NCD 10/04 Q1021 LEBT 172200Z AUTO 00000KT 9999 // NCD 06/01 Q1020 LEBZ 172000Z 33002KT CAVOK 10/02 Q1019 LECH 172230Z AUTO 14002KT 9999 NCD 09/04 Q1020 LECO 172230Z 18002KT 8000 NSC 08/08 Q1022 NOSIG LECV 171800Z 00000KT CAVOK 13/M00 Q1020 LEGE 172230Z 00000KT CAVOK 05/04 Q1019 LEGR 172230Z AUTO 00000KT 9999 NCD 05/03 Q1021 LEGT 171800Z 26002KT CAVOK 13/00 Q1019 LEHC 172230Z AUTO 00000KT 9999 NCD 00/M01 Q1020 LEIB 172230Z 00000KT 9999 FEW030 11/10 Q1020 NOSIG LEJR 172300Z AUTO 04002KT 9999 NCD 09/07 Q1019 LELC 172100Z 30005KT CAVOK 10/09 Q1020 NOSIG LELL 172230Z AUTO 30002KT 9999 NCD 07/02 Q1020 LELN 172000Z 06003KT 340V120 CAVOK 06/00 Q1022 LELO 172200Z 29010KT CAVOK 08/05 Q1023 LEMD 172230Z 33002KT CAVOK 07/01 Q1021 NOSIG LEMG 172230Z 29006KT CAVOK 11/08 Q1020 NOSIG LEMH 172230Z AUTO 34005KT 9999 NCD 10/06 Q1019 LEMO 172300Z 18004KT CAVOK 08/05 Q1019 NOSIG LEPA 172230Z 02001KT CAVOK 07/06 Q1020 NOSIG LEPP 172230Z 32002KT CAVOK 08/05 Q1023 LERI 171800Z 24005KT CAVOK 15/11 Q1019 NOSIG LERS 172230Z AUTO 04003KT 9999 NCD 06/03 Q1019 LERT 172200Z VRB02KT CAVOK 14/11 Q1019 NOSIG LESA 171930Z 00000KT CAVOK 07/00 Q1022 LESO 172230Z AUTO VRB02KT 8000 FEW020/// 07/07 Q1024 LEST 172230Z 10007KT 9000 NSC 09/07 Q1022 NOSIG LETL 172230Z AUTO 33003KT 9999 NCD 03/M06 Q1022 LETO 172200Z 02004KT CAVOK 07/00 Q1021 NOSIG LETU 172230Z AUTO 30012KT 9999 NCD 11/03 Q1021 LEVC 172230Z 00000KT CAVOK 07/03 Q1020 NOSIG LEVD 172030Z 06005KT CAVOK 07/M02 Q1021 LEVS 171900Z 25002KT CAVOK 12/01 Q1020 LEVT 172242Z 00000KT 0900 R04/1800D R22/P2000 BCFG FEW002 02/02 Q1024 LEVX 172230Z VRB01KT CAVOK 11/08 Q1020 NOSIG LEXJ 172230Z AUTO VRB01KT 2900 0600W BR NCD 09/09 Q1024 LEZG 172230Z 27011KT 240V300 CAVOK 11/03 Q1020 LEZL 172230Z 00000KT CAVOK 10/06 Q1019 NOSIG LFAQ 172230Z AUTO VRB02KT 9999 BKN037 03/01 Q1027 LFAT 172230Z AUTO 15004KT 5000 BR FEW038 02/02 Q1027 LFBA 172230Z AUTO 00000KT 4200 BR NSC 02/01 Q1023 LFBC 172230Z AUTO 36005KT CAVOK 06/04 Q1024 LFBD 172230Z AUTO 01005KT CAVOK 06/04 Q1024 TEMPO 3000 BR LFBE 172230Z AUTO VRB01KT 5000 BR NSC 02/01 Q1023 LFBG 172230Z AUTO 03008KT CAVOK 07/05 Q1025 LFBH 172230Z AUTO 05009KT CAVOK 06/05 Q1026 NOSIG LFBI 172230Z AUTO 01005KT 8000 OVC021 08/07 Q1026 TEMPO 3000 BR BKN010 LFBL 172230Z AUTO 06011KT 9999 BKN005 04/04 Q1024 NOSIG LFBM 172230Z AUTO 00000KT CAVOK 03/02 Q1024 TEMPO 0600 BCFG BKN001 LFBO 172230Z AUTO 18003KT 8000 NSC 04/03 Q1023 TEMPO 3000 BR LFBP 172230Z AUTO 14004KT 7000 NSC 05/04 Q1023 BECMG BKN010 LFBT 172230Z AUTO 16006KT CAVOK 04/03 Q1023 NOSIG LFBU 172230Z AUTO 03010KT CAVOK 05/03 Q1024 LFBY 172230Z AUTO 31001KT 0050 // ////// 05/04 Q1023 LFBZ 172230Z AUTO 19003KT 3200 BR NSC 08/07 Q1024 TEMPO 0300 FG VV/// LFCK 172230Z AUTO 00000KT CAVOK 03/01 Q1023 LFCR 172230Z AUTO 36003KT 330V030 CAVOK 05/02 Q1022 NOSIG LFGA 172230Z AUTO 33001KT 4200 BR OVC004 05/05 Q1025 LFGJ 172230Z AUTO 01007KT 6000 BKN008 OVC021 06/05 Q1025 LFJL 172230Z AUTO 30003KT 0450 0400 R22/0550N R04/0550N FG VV/// 05/05 Q1025 NOSIG LFJR 172230Z AUTO 36002KT 5000 BR NSC 08/07 Q1027 LFKB 172130Z 24006KT CAVOK 10/06 Q1016 NOSIG LFKC 172230Z AUTO 19005KT 150V220 CAVOK 08/07 Q1016 LFKF 172230Z AUTO 05004KT CAVOK 04/04 Q1016 LFKJ 172230Z AUTO 03006KT CAVOK 09/07 Q1016 NOSIG LFKS 172230Z AUTO 27005KT CAVOK 11/07 Q1016 LFLB 172230Z AUTO 19002KT 7000 BKN010 OVC036 04/02 Q1024 LFLC 172230Z AUTO 00000KT 1500 1200 R26/1500D R08/2100D BR OVC003 04/04 Q1025 TEMPO 0600 FG VV/// LFLL 172230Z 00000KT 4700 BR OVC004 03/01 Q1024 NOSIG LFLN 172230Z AUTO 00000KT 2500 BR BKN002 OVC012 04/04 Q1025 LFLP 172230Z AUTO VRB03KT 9999 OVC023 04/02 Q1023 LFLS 172230Z AUTO 03003KT 360V070 5000 BR OVC004 03/02 Q1023 LFLU 171800Z AUTO 36016KT 9999 BKN023 BKN028 05/02 Q1022 LFLW 172230Z AUTO 06002KT CAVOK 01/00 Q1022 LFLX 172230Z AUTO 03007KT 9000 OVC011 08/07 Q1026 TEMPO 2000 BR BKN003 LFLY 172230Z AUTO VRB02KT 7000 OVC007 03/02 Q1024 TEMPO 3000 BR OVC004 LFMC 172230Z AUTO 14002KT 9999 ////// 05/04 Q1017 LFMD 172230Z AUTO 36005KT 340V040 CAVOK 07/04 Q1016 LFMH 172230Z AUTO 10002KT 6000 OVC005 03/02 Q1024 LFMI 172230Z AUTO 34012KT CAVOK 09/03 Q1017 TEMPO 35017G27KT LFMK 172230Z AUTO 28008KT 250V310 CAVOK 09/05 Q1022 LFML 172230Z AUTO 33005KT 290V020 CAVOK 04/M00 Q1017 NOSIG LFMN 172230Z 33009KT CAVOK 11/04 Q1016 NOSIG LFMO 172230Z AUTO 32015KT 290V350 CAVOK 07/03 Q1020 TEMPO 35025G40KT LFMP 172230Z AUTO 33016KT CAVOK 14/05 Q1020 LFMT 172230Z AUTO 32003KT CAVOK 05/01 Q1019 NOSIG LFMU 172230Z AUTO 28005KT CAVOK 08/03 Q1020 LFMV 172230Z AUTO 35015KT 320V020 CAVOK 08/03 Q1018 LFMY 172230Z AUTO 35011KT 320V020 CAVOK 07/02 Q1017 LFOA 172230Z AUTO 04008KT 7000 OVC008 08/07 Q1026 LFOB 172230Z AUTO 31005KT 6000 NSC 00/M00 Q1027 TEMPO 0400 FG VV/// LFOC 172230Z AUTO 00000KT 0400 0350 R28/0500D FG VV/// 03/02 Q1027 LFOE 172230Z AUTO 32003KT 4500 BR BKN022 BKN035 06/05 Q1027 LFOH 172230Z AUTO 19002KT 4500 BR NSC 07/06 Q1027 LFOJ 172230Z AUTO 04003KT 0300 R25/0350N FG VV/// 06/05 Q1026 LFOK 172230Z AUTO 35001KT 4700 1000 R10/P2000 R28/0800D BR FEW009 02/01 Q1026 TEMPO 0200 FG VV/// LFOP 172230Z AUTO 07002KT 4800 0450 R22/0500N BCFG NSC 03/03 Q1027 LFOT 172230Z AUTO 05004KT 360V090 3600 BR BKN005 OVC058 07/07 Q1027 TEMPO 0300 FG VV/// LFOV 172230Z AUTO 35004KT 3400 BR NSC 06/05 Q1027 LFPB 172230Z AUTO 36003KT CAVOK 04/03 Q1027 NOSIG LFPG 172230Z 01003KT CAVOK 05/04 Q1027 NOSIG LFPM 172230Z AUTO 01003KT 6000 NSC 05/04 Q1027 LFPN 172230Z AUTO 00000KT 0700 0600 R25R/0750D FG FEW010 SCT140 BKN160 04/03 Q1027 LFPO 172230Z 03001KT CAVOK 04/02 Q1027 NOSIG LFPT 172230Z AUTO 34002KT 7000 NSC 02/02 Q1027 LFPV 172230Z AUTO 06003KT CAVOK 05/02 Q1026 TEMPO 3000 BR LFQA 172230Z AUTO 31002KT CAVOK 01/M00 Q1026 LFQB 172230Z AUTO 04003KT 4600 BR OVC004 06/05 Q1026 LFQG 171800Z AUTO 02005KT 350V050 9999 OVC011 08/06 Q1025 LFQQ 172230Z AUTO 23003KT 7000 NSC 02/01 Q1027 TEMPO 3000 BR LFRB 172230Z AUTO 07001KT 0450 0250 R25/1100U R07/0275N FG SCT004 06/05 Q1028 TEMPO 2000 BR OVC002 LFRC 172230Z AUTO 31003KT CAVOK 03/02 Q1028 LFRD 172230Z AUTO 18004KT 0400 0350 R35L/0500D FG VV/// 04/04 Q1028 TEMPO 0200 FG LFRH 172230Z AUTO 04004KT 3600 BR NSC 06/05 Q1028 TEMPO 0500 FG VV/// LFRI 172230Z AUTO 03009KT CAVOK 07/06 Q1026 LFRJ 172230Z AUTO 00000KT 2900 0550 R26/0500D R08/P2000 BCFG NSC 07/07 Q1028 LFRK 172230Z AUTO 00000KT 2400 BR FEW039 SCT130 04/04 Q1027 LFRL 172230Z AUTO VRB02KT 6000 NSC 07/06 Q1028 BECMG 0250 FG VV/// LFRM 172230Z AUTO VRB02KT 6000 NSC 09/07 Q1027 LFRN 172230Z AUTO VRB02KT 0300 0250 R28L/0300N FG VV/// 07/06 Q1028 NOSIG LFRO 172230Z AUTO 00000KT 3000 0650 R29/P2000 BCFG NSC 06/05 Q1029 LFRQ 172230Z AUTO 02004KT 5000 BR NSC 07/06 Q1028 TEMPO OVC003 LFRS 172230Z AUTO 03003KT 360V060 4800 BR NSC 06/06 Q1027 BECMG BKN009 LFRT 172200Z AUTO 28003KT 7000 NSC 07/06 Q1028 LFRU 171800Z AUTO 09002KT 5000 BR FEW023 08/08 Q1027 LFRV 172230Z AUTO 02010KT 0600 FG VV/// 07/06 Q1027 LFRZ 172230Z AUTO 01004KT 3200 BR NSC 07/07 Q1027 TEMPO 1500 BR BKN003 LFSB 172230Z VRB02KT 4000 BR BKN003 04/04 Q1025 NOSIG LFSD 172230Z AUTO 03008KT 9999 OVC008 06/04 Q1025 LFSG 172230Z AUTO 01004KT 4900 BR OVC003 05/04 Q1025 LFSI 172230Z AUTO 34003KT 9999 OVC010 07/05 Q1026 LFSL 172230Z AUTO 32003KT CAVOK 05/02 Q1023 LFSN 172230Z AUTO 32003KT 5000 BR OVC009 06/05 Q1025 LFSO 172230Z AUTO 36004KT 1500 0900 R20/2000D BCFG VV/// 05/05 Q1025 LFST 172230Z AUTO 01002KT 6000 OVC010 05/04 Q1025 TEMPO 2500 BR OVC003 LFSX 172230Z AUTO 07002KT 5000 BR OVC005 04/03 Q1025 LFTH 172230Z AUTO 36003KT CAVOK 07/05 Q1016 NOSIG LFTW 172230Z AUTO 36013KT CAVOK 09/02 Q1019 LFVP 172200Z 13030G40KT 3700 -RADZ BR BKN009 06/05 Q0997 NOSIG LFYR 172230Z AUTO 06005KT 010V090 9999 OVC013 09/06 Q1026 LGAD 172220Z 11009KT 9999 FEW018TCU SCT025 BKN080 14/11 Q1011 LGAL 171950Z 05011KT 9999 FEW015 SCT025 12/11 Q1016 LGAV 172250Z VRB03KT 9999 SCT010 SCT020 12/10 Q1013 NOSIG LGBL 172250Z 28003KT 9999 FEW012 11/09 Q1013 RMK FEW025 FEW080 SCT180 BLU LGEL 172250Z 33004KT 9999 FEW020 12/11 Q1013 LGHI 172150Z VRB01KT 9999 FEW010 FEW020TCU SCT025 13/12 Q1014 LGIO 171920Z /////KT 9999 SCT040 11/07 Q1011 LGIR 172250Z 16006KT 9999 FEW020 BKN080 15/11 Q1013 NOSIG LGKF 171750Z 11007KT 8000 -RA SCT012TCU SCT016 BKN070 16/15 Q1010 LGKL 172150Z AUTO VRB02KT //// -RA ////// 13/12 Q1012 RE// LGKO 172250Z 15005KT 9999 FEW018 SCT025 18/13 Q1013 LGKP 172250Z 15008KT 9999 SCT018 19/16 Q1014 LGKR 172250Z 11013KT 9999 -RA SCT015 FEW020TCU BKN030 OVC080 15/13 Q1009 NOSIG LGKV 172250Z 05008KT 9999 BKN025 OVC080 12/09 Q1014 LGKZ 171750Z 00000KT 9999 SCT020 SCT070 09/08 Q1014 LGLM 172250Z AUTO 08007KT //// // ////// 15/12 Q1014 RE// LGLR 172250Z 00000KT 9999 FEW025 08/08 Q1013 RMK FEW070 FEW180 BLU LGMK 171750Z 00000KT 8000 SCT018TCU 17/14 Q1013 LGMT 172150Z VRB02KT 9999 FEW020TCU SCT025 14/11 Q1016 LGPA 172250Z AUTO 08006KT //// // ////// 15/13 Q1014 RE// LGPZ 172250Z 08009KT 4000 TSRA FEW018CB FEW020TCU BKN025 13/13 Q1012 RMK OVC080 CB SW 3KM GRN LGRP 172250Z 13002KT 9999 SCT020 14/13 Q1015 NOSIG LGRX 172150Z 10004KT 9999 FEW020TCU BKN025 OVC070 15/13 Q1012 BLU LGSA 172250Z 00000KT 9999 SCT025 14/13 Q1013 LGSK 171750Z 32008KT 9999 FEW020 15/12 Q1013 LGSM 171750Z 00000KT 9999 FEW030 16/13 Q1014 LGSO 172250Z AUTO VRB01KT //// // ////// 16/13 Q1013 RE// LGSR 172250Z AUTO VRB03KT //// -RA ////// 15/14 Q1014 RE// LGSY 172050Z 00000KT 9999 FEW020 14/11 Q1012 RMK SCT080 BLU LGTG 172150Z 00000KT 9999 FEW012 SCT025 11/11 Q1014 RMK SCT070 BLU LGTS 172250Z VRB02KT 9000 RA FEW006 FEW018TCU BKN020 13/11 Q1014 NOSIG LGZA 171920Z 21005KT 9999 FEW018CB BKN020 16/14 Q1011 LHBC 171745Z 32003KT 8000 FEW020 OVC083 06/04 Q1021 LHBP 172230Z VRB02KT 5000 -RA BR SCT044 BKN070 04/04 Q1021 NOSIG LHDC 172215Z 33002KT 6000 OVC040 06/04 Q1020 NOSIG LHKE 172245Z 31006KT 5000 BR OVC030 05/03 Q1021 NOSIG RMK WHT LHPA 172245Z 33004KT 5000 -RA FEW010 OVC020 04/03 Q1022 NOSIG RMK WHT LHPR 172215Z AUTO 30008KT 6000 -RA BKN025 04/04 Q1022 RMK WHT LHSN 172245Z 32004KT 7000 OVC033 05/03 Q1020 NOSIG RMK WHT LHUD 172145Z 33006KT 8000 BKN040 06/04 Q1022 LIBA 171755Z 31009KT 9999 FEW030 13/11 Q1013 RMK SCT SCT080 VIS MIN 9999 WIND THR11 31007KT WIND THR29 /////KT BLU LIBD 172250Z 30007KT 9999 FEW020 SCT040 12/10 Q1013 LIBG 171850Z 02012KT 9999 -RA FEW040 14/12 Q1010 LIBH 172155Z 33008KT 9999 SCT030 15/13 Q1012 RMK OVC OVC080 QUK / QUL / VIS MAR 15 KM VIS MIN 9999 LIBN 172155Z 02012KT 7000 -RA SCT030 OVC050 14/13 Q1009 RMK OVC VIS MIN 7000 WIND THR14 02014KT WIND THR32 02013KT WHT LIBP 172150Z 23004KT 9999 SCT045 11/08 Q1016 LIBQ 172155Z 22016KT 0000 -RA FG VV/// 02/01 Q1010 RMK MON INVIS VAL INVIS VIS MIN 0000 LIBR 172245Z 36013G23KT 6000 -RA FEW015 SCT030 15/12 Q1012 NOSIG LIBV 172155Z 34012KT 7000 SCT009 SCT045 12/10 Q1012 RMK BKN VIS MIN 7000 WIND THR32 36015KT WIND THR14 34016KT WHT LIBY 172155Z 02024G36KT 3000 -TSRA BR BKN008 FEW010CB 13/09 Q1005 RMK OVC QUK / QUL / VIS MAR 3 KM VIS MIN 3000 LICA 172150Z VRB02KT 9999 FEW020 BKN060 14/10 Q1011 LICB 172150Z VRB02KT CAVOK 10/08 Q1012 LICC 172250Z 25004KT 9999 FEW060 11/10 Q1011 LICD 172050Z 32019KT 9999 -RA BKN020 17/12 Q1014 LICF 172155Z 31009KT 9999 FEW020 SCT030 15/10 Q1011 RMK BKN BKN080 QUK / QUL / VIS MAR 16 KM MON INVIS NC VIS MIN 9999 LICG 171755Z 33014KT 9999 FEW005TCU SCT010 15/13 Q1014 RMK BKN VIS MIN 9999 WIND THR08 /////KT WIND THR21 33015KT BLU LICJ 172250Z 01008KT 9999 FEW020 SCT030 18/12 Q1014 LICL 171755Z 02004KT CAVOK 17/11 Q1010 RMK SCT SCT100 QUK / QUL / VIS MAR 20 KM VIS MIN 9999 LICR 172150Z 35003KT 310V020 9999 BKN050 13/10 Q1011 LICT 172155Z 36004KT 9999 FEW022 14/13 Q1014 LICZ 172155Z 17002KT CAVOK 09/09 Q1012 RMK SKC VIS MIN 9999 WIND THR28 20004KT WIND THR10 19002KT A2991 BLU LIEA 172150Z 00000KT CAVOK 08/06 Q1017 LIEB 172055Z 29009KT CAVOK 13/09 Q1015 RMK SKC QUK / QUL / VIS MAR 20 KM MON INVIS VIS MIN 9999 LIEC 172155Z 30007KT 9999 FEW020 14/12 Q1015 RMK FEW QUK / QUL / VIS MAR 20 KM VIS MIN 9999 LIED 172155Z 34001KT CAVOK 09/07 Q1016 RMK SKC VIS MIN 9999 WIND THR35 36003KT WIND THR17 /////KT BLU LIEE 172250Z VRB02KT CAVOK 10/08 Q1017 LIEO 172250Z 27007KT CAVOK 13/09 Q1016 LIMC 172250Z 01005KT CAVOK 02/01 Q1020 NOSIG LIME 172250Z 36007KT CAVOK 06/03 Q1019 NOSIG LIMF 172250Z 30002KT CAVOK 03/M02 Q1019 LIMJ 172250Z 03006KT 340V080 CAVOK 12/04 Q1017 LIML 172250Z 35005KT CAVOK 05/04 Q1019 NOSIG LIMN 171755Z 00000KT CAVOK 05/03 Q1017 RMK SKC VIS MIN 9999 BLU LIMP 171950Z VRB03KT CAVOK 06/05 Q1019 LIMS 171755Z 23003KT 5000 BR NSC 06/06 Q1017 LIMU 172155Z 34007KT CAVOK 13/03 Q1017 RMK SKC QUK / QUL / VIS MAR 35 KM VIS MIN 9999 LIMY 171755Z 24003KT 210V340 8000 NSC 09/03 Q1017 RMK SKC VAL FOSCHIA SKC SUP VIS MIN 8000 LIMZ 171950Z 23005KT CAVOK 01/00 Q1018 LIPA 172055Z 36004KT CAVOK 06/05 Q1018 RMK SKC VIS MIN 9999 WIND THR05 /////KT WIND THR23 /////KT A3008 BLU LIPB 172150Z 00000KT CAVOK 00/M01 Q1019 LIPC 172155Z 29005KT 9999 SCT030 08/08 Q1018 LIPE 172250Z 25004KT 9999 BKN026 08/05 Q1018 LIPF 171755Z 00000KT CAVOK 09/06 Q1017 LIPH 172250Z AUTO 32001KT 9999 SCT230 05/04 Q1019 LIPL 172155Z /////KT CAVOK 04/04 Q1019 RMK SKC VIS MIN 9999 WIND THR31 02002KT BLU LIPO 172150Z 03005KT CAVOK 07/04 Q1019 LIPQ 172250Z VRB02KT 9999 SCT080 05/04 Q1018 LIPR 172245Z 29005KT 9999 SCT035 08/07 Q1018 LIPS 172155Z 36003KT CAVOK 05/05 Q1018 RMK SKC VIS MIN 9999 WIND THR26 36003KT WIND THR08 36003KT BLU LIPX 172250Z 34004KT 9999 FEW080 05/03 Q1019 LIPY 172150Z 26006KT 9999 BKN020 10/08 Q1016 LIPZ 172250Z 36008KT CAVOK 07/04 Q1018 NOSIG LIQC 172155Z /////KT CAVOK 14/10 Q1013 RMK SKC QUK / QUL / VIS MAR 20 KM VIS MIN 9999 LIRA 172250Z 03003KT CAVOK 08/06 Q1014 LIRE 172155Z 03002KT CAVOK 11/07 Q1013 RMK SKC VIS MIN 9999 WIND THR13 03009KT WIND THR31 /////KT BLU LIRF 172250Z 04007KT CAVOK 09/06 Q1014 NOSIG LIRG 171755Z 04004KT CAVOK 11/09 Q1013 LIRH 171755Z 06003KT CAVOK 12/08 Q1012 LIRL 171755Z 28004KT CAVOK 13/09 Q1013 LIRM 172155Z /////KT CAVOK 12/10 Q1014 LIRN 172250Z 01007KT CAVOK 11/06 Q1014 NOSIG LIRP 172245Z 16003KT 9999 FEW080 08/05 Q1017 NOSIG LIRQ 172250Z 01004KT 320V060 9999 FEW035 11/05 Q1017 LIRS 172155Z 35008KT CAVOK 10/06 Q1015 LIRT 172155Z /////KT 0000 FG VV/// 05/02 Q1013 RMK MON INVIS VAL INVIS VIS MIN 0000 LIRV 171755Z 05009KT CAVOK 10/05 Q1014 LIRX 171855Z 36013KT CAVOK 12/08 Q1013 RMK SKC VIS MIN 9999 VIS MAR 30 KM LIRZ 172150Z 34007KT CAVOK 08/06 Q1016 LIVC 172155Z 04040KT CAVOK M02/M03 Q1015 RMK SKC MON LIB VAL CLD SCT NC VIS MIN 9999 LIVD 171755Z 10001KT CAVOK 00/M30 Q1021 RMK BKN BKN230 VIS MIN 9999 LIVE 172155Z 03007G21KT CAVOK 01/M02 Q1019 RMK SKC VIS MIN 9999 LIVO 171755Z 03001KT 9999 BKN010 02/02 Q1020 RMK BKN VIS MIN 9999 LIVR 172055Z 33004KT CAVOK M01/M08 Q1018 RMK SKC MON LIB VIS MIN 9999 LIVT 172155Z 04021G45KT CAVOK 10/04 Q1017 RMK FEW FEW070 QUK / QUL / VIS MAR 20 KM VIS MIN 9999 LJCE 172230Z AUTO 00000KT 9999 OVC022/// 04/03 Q1023 LJLJ 172230Z 19003KT 8000 -RA FEW004 OVC008 04/03 Q1021 NOSIG LJMB 172230Z AUTO 00000KT 3300 BR BKN021/// 04/03 Q1022 LJPZ 172230Z AUTO 06007KT 020V100 9999 NSC 12/02 Q1018 LKCV 172241Z 23002KT 1500 BR VCFG SKC 01/00 Q1024 RMK AMB LKKB 172200Z 23003KT 210V330 4000 MIFG BR NSC 02/02 Q1024 LKKV 172200Z 26002KT 5000 SCT002 OVC004 02/02 Q1023 LKMT 172230Z 36006KT 4000 -RA BR SCT005 OVC007 04/04 Q1023 TEMPO 5000 BR LKNA 172200Z 33005KT 6000 OVC009 03/03 Q1023 RMK BLACK LKPD 172200Z 29004KT 7000 SCT004 BKN017 04/03 Q1024 RMK WHT LKPR 172243Z 22007KT 4000 BR FEW001 M01/M01 Q1023 RMK REG QNH 1019 LKTB 172230Z 31006KT 9000 SCT024 BKN029 05/03 Q1023 NOSIG LLBG 172250Z 11004KT 9000 NSC 16/12 Q1013 NOSIG LLOV 172050Z VRB03KT CAVOK 15/M02 Q1015 LLSD 172050Z 11004KT 8000 NSC 18/15 Q1012 LMML 172245Z 33009KT 9999 FEW029 15/12 Q1012 NOSIG LOWG 172250Z AUTO 12002KT 3100 -RA BR FEW001 BKN003 04/03 Q1022 LOWI 172250Z AUTO 26002KT 9999 FEW011 BKN014 02/01 Q1024 LOWK 172250Z AUTO 32002KT 4500 BR FEW002 BKN006 04/03 Q1022 LOWL 172250Z AUTO 27004KT 3900 -RA BR FEW006 OVC022 03/02 Q1024 LOWS 172250Z AUTO VRB01KT 6000 BKN060 02/01 Q1024 LOWW 172250Z 30010KT 9999 -RA FEW012 BKN017 05/03 Q1023 BECMG BKN014 LOXT 172050Z 24010KT 8000 -RA BKN020SC 04/03 Q1024 RMK OVC LOXZ 172050Z 24001KT 20KM FEW050SC BKN140AC 02/01 Q1021 LPAZ 172230Z 05003KT 9999 FEW016 SCT032 18/17 Q1015 LPBJ 172200Z 28003KT CAVOK 12/05 Q1019 LPCS 172130Z 36008KT CAVOK 13/09 Q1020 LPFL 171800Z 18017G28KT 150V210 9999 VCSH BKN013 19/17 Q1009 LPFR 172230Z 31005KT CAVOK 14/12 Q1019 LPHR 172200Z 19011KT 9999 FEW012 BKN025 19/15 Q1013 LPLA 172200Z /////KT 9999 FEW012 18/16 Q1014 LPMA 172230Z 36004KT 340V040 9999 SCT015 SCT060 19/16 Q1019 LPMR 172200Z VRB02KT 0300 FG VV001 09/09 Q1020 LPMT 172200Z 14002KT CAVOK 09/08 Q1019 LPOV 172200Z 17004KT 1000 BR NSC 06/06 Q1019 LPPD 172230Z 17004KT 9999 SCT015 19/17 Q1015 LPPR 172230Z 10003KT 070V150 4000 BR NSC 08/06 Q1020 LPPS 172230Z 11009KT 9999 FEW015 19/15 Q1019 LPPT 172230Z 31008KT CAVOK 15/07 Q1020 LQBK 172230Z 32004KT 3500 DZ BR SCT005 OVC010 05/05 Q1021 NOSIG LQMO 172200Z 18003KT 120V280 CAVOK 06/04 Q1014 LQSA 172200Z 15003KT 2000 -DZ BR OVC003 03/03 Q1019 LQTZ 172230Z 27003KT 1500 DZ BR OVC003 05/05 Q1020 LRAR 172230Z AUTO 02001KT 5000 R09////// R27/P2000 BR FEW050 05/04 Q1020 LRBC 172230Z 18003KT 6000 OVC013 07/06 Q1020 LRBM 172230Z AUTO /////KT //// FEW017/// SCT220/// ///// Q1019 LRBO 172300Z 02006KT 9999 BKN030 OVC050 06/05 Q1020 BLU BLU LRBS 172230Z 03002KT 6000 -RA FEW028 OVC049 07/07 Q1020 R07/19//95 NOSIG LRCK 172230Z 03009KT 8000 BKN030 08/08 Q1019 NOSIG LRCL 172230Z 00000KT 5000 BR OVC064 06/05 Q1019 LRCT 172300Z VRB02KT 2000 BR BKN002 OVC007 05/05 Q1019 AMB AMB LRCV 172230Z 04003KT 2500 +DZ SCT001 OVC017 06/06 Q1019 R09/29//95 LRIA 172200Z 09006KT 9999 SCT024 BKN030 05/01 Q1021 LROD 172230Z AUTO 27002KT 5000 BR FEW008 SCT014 OVC036 06/05 Q1020 LROP 172230Z 02003KT 5000 -RA BR OVC042 07/06 Q1020 R88/19//95 NOSIG LRSB 172230Z 00000KT 4000 BR SCT005 OVC007 07/07 Q1019 R27/19//95 LRSM 172230Z AUTO 27003KT 0750 R19/0900U FG VV001 06/06 Q1019 LRSV 172230Z 33004KT 5000 BR NSC 04/03 Q1020 LRTC 172230Z AUTO 35006KT 4800 BR BKN005 06/05 Q1020 LRTM 172230Z AUTO 00000KT 4000 BR OVC050 07/06 Q1019 LRTR 172230Z 00000KT 5000 BR FEW026 06/04 Q1020 LRTZ 172300Z 04006KT 2000 DZ BR BKN003 OVC020 10/10 Q1019 YLO YLO LSGC 172250Z AUTO 05007KT 9999 OVC003 01/01 Q1022 LSGG 172250Z AUTO 04013KT 9999 OVC018 07/03 Q1023 NOSIG LSGS 172250Z AUTO 24004KT 200V260 CAVOK M01/M02 Q1023 LSMA 172150Z AUTO 00000KT 9000NDV OVC016 03/01 Q1025 RMK LSMD 172150Z AUTO VRB01KT 6000NDV FEW007 BKN009 OVC018 04/02 Q1024 RMK LSME 172150Z AUTO 33003KT 300V360 7000NDV OVC017 04/02 Q1025 RMK LSMM 172150Z AUTO VRB02KT 9999NDV NCD M00/M01 Q1023 RMK LSMP 172250Z AUTO 06007KT 030V090 7000NDV OVC020 05/03 Q1024 RMK LSMS 172250Z AUTO 24004KT 200V260 CAVOK M01/M02 Q1023 LSZA 172250Z AUTO VRB01KT 9999 NCD 02/M00 Q1020 LSZB 172250Z AUTO VRB03KT 8000 OVC016 02/01 Q1024 LSZC 172250Z AUTO 20008KT 170V240 9999 OVC017 03/00 Q1025 LSZG 172250Z AUTO 03006KT 5000 SCT009 OVC018 05/03 Q1024 LSZH 172250Z 32002KT 4000 BKN005 04/02 Q1024 BECMG BKN003 LSZL 172150Z AUTO 00000KT 9999NDV FEW220 01/M00 Q1020 RMK LSZR 172250Z AUTO 10003KT 6000 OVC015 04/02 Q1024 LSZS 172250Z AUTO VRB01KT CAVOK M11/M12 Q1019 LTAC 172220Z 36002KT CAVOK 01/M01 Q1019 NOSIG LTAF 172220Z 04005KT 5000 HZ NSC 14/06 Q1015 NOSIG LTAG 172220Z 00000KT CAVOK 13/06 Q1015 NOSIG LTAI 172220Z 36005KT CAVOK 12/07 Q1016 NOSIG LTAJ 172220Z VRB03KT CAVOK 07/02 Q1020 NOSIG LTAN 172150Z 25002KT 7000 NSC 05/02 Q1019 NOSIG LTAP 172220Z 20001KT 6000 OVC003 07/06 Q1019 BECMG 4000 BR LTAR 172050Z 00000KT CAVOK 02/M02 Q1021 LTAT 172220Z 19005KT CAVOK 01/M01 Q1021 NOSIG LTAU 172220Z 05004KT CAVOK 00/M05 Q1020 NOSIG LTAW 171850Z VRB01KT 8000 FEW025 04/03 Q1019 LTAY 172150Z 00000KT CAVOK 06/02 Q1017 LTAZ 172220Z 13004KT CAVOK 03/M00 Q1020 LTBA 172220Z 01006KT 340V040 CAVOK 14/11 Q1016 NOSIG LTBF 172150Z 22004KT 9999 SCT035 BKN100 12/10 Q1018 NOSIG LTBH 172150Z 05004KT 010V090 9999 BKN030 BKN100 13/12 Q1015 LTBJ 172233Z VRB03KT 9999 -SHRA FEW020CB SCT030 BKN090 13/12 Q1015 RETSRA NOSIG RMK RWY16 11006KT LTBL 172007Z 31016G28KT 270V340 8000 -TSRA FEW025CB SCT030 BKN090 14/12 Q1016 BECMG TL2050 VRB02KT NSW RMK RWY17 27009KT LTBQ 172150Z 00000KT CAVOK 07/07 Q1016 NOSIG LTBR 172220Z 00000KT CAVOK 08/07 Q1015 NOSIG LTBS 172220Z 05004KT 9999 FEW030 SCT180 11/10 Q1016 NOSIG LTBU 172220Z 36010KT 9999 SCT035 BKN100 12/11 Q1016 LTBY 172150Z 00000KT CAVOK 07/04 Q1017 LTBZ 172150Z VRB01KT CAVOK 01/01 Q1018 LTCA 172150Z 24005KT CAVOK 02/M03 Q1021 NOSIG LTCB 172150Z 18006KT 8000 SCT020 BKN090 14/12 Q1018 LTCC 172220Z 26004KT CAVOK 05/01 Q1020 NOSIG LTCD 172150Z VRB01KT 4000 BR NSC M01/M03 Q1022 NOSIG LTCE 172220Z VRB02KT CAVOK M03/M05 Q1023 NOSIG LTCF 172150Z VRB01KT CAVOK M03/M03 Q1024 LTCG 172220Z 20005KT CAVOK 13/10 Q1019 NOSIG LTCI 172150Z 09004KT 9999 FEW040 01/M01 Q1023 NOSIG LTCJ 172220Z 34002KT CAVOK 06/05 Q1020 LTCM 171750Z 10010KT 9999 SCT010 BKN030 16/12 Q1017 LTCN 172150Z 10002KT CAVOK 10/05 Q1019 NOSIG LTCS 172220Z 10004KT CAVOK 13/01 Q1021 RMK RWY22 12006KT LTCW 171850Z VRB02KT CAVOK M00/M03 Q1025 LTDA 172150Z VRB02KT CAVOK 11/07 Q1018 LTFC 172220Z VRB02KT 0200 R05/0250U R23/0400N FG VV000 02/02 Q1019 LTFD 172050Z 15006KT 6000 SHRA FEW025CB BKN030 13/12 Q1017 RETSRA LTFE 172220Z 12003KT CAVOK 12/10 Q1016 NOSIG LTFG 172150Z 12006KT CAVOK 12/11 Q1015 LTFH 172150Z 15002KT 3200 BR NSC 07/06 Q1018 NOSIG LTFJ 172220Z 02006KT CAVOK 12/10 Q1016 NOSIG LUKK 172230Z VRB02KT 4100 BR FU SCT012 03/02 Q1021 R08/D TEMPO 1500 BR BKN006 LWOH 171830Z 34004KT 9999 SCT030 BKN040 08/05 Q1014 LWSK 172300Z 03002KT 9999 SCT007 OVC023 09/08 Q1017 NOSIG LXGB 172150Z AUTO 09013KT 9999 // SCT020/// 16/14 Q1019 LYBE 172230Z 03004KT 8000 NSC 07/06 Q1020 NOSIG LYBT 172230Z 35004KT 8000 NSC 07/06 Q1020 NOSIG LYKV 172230Z 31002KT 4000 BR BKN008 OVC027 07/07 Q1020 NOSIG LYNI 172230Z 32010KT 9999 FEW010 BKN025 07/04 Q1018 LYPG 172230Z 29003KT 9999 FEW026 SCT090 09/07 Q1013 NOSIG LYTV 172230Z VRB01KT CAVOK 12/07 Q1012 LYUZ 172230Z AUTO 32004KT 290V360 0350 FG VV001 02/02 Q1018 LYVR 172230Z 01004KT 7000 FEW008 SCT040 07/06 Q1020 NOSIG LZIB 172230Z 32008KT 9999 FEW012 BKN050 06/03 Q1022 LZKZ 172230Z 02010KT 9999 -RA FEW015 OVC032 05/04 Q1020 LZPP 172230Z AUTO 34007KT 6000 OVC019/// 05/03 Q1021 LZSL 172230Z 00000KT 2000 -RA BR FEW006 OVC034 04/03 Q1020 LZTT 172230Z 00000KT 0900 R27/P2000N SN OVC002 00/M00 Q1020 LZZI 172230Z 10002KT 6000 OVC016 04/03 Q1021 MBPV 172300Z 050010KT 9999 SCT010 SCT023 26/// Q1008 MDAB 172200Z 00000KT 9999 FEW018CB SCT018 SCT070 28/25 Q1008 CB/E MDBH 172300Z 00000KT 8000 -RA FEW012CB SCT014 0VC070 26/25 Q1008 CB/SE/NW MDCY 172300Z 07005KT 8000 -TSRA SCT014CB FEW016 SCT070 BKN300 26/24 Q1008 CB/NE/SW/W/NW/N MDJB 172300Z 20015KT 8000 -RA FEW016CB BKN016 BKN070 25/24 Q1008 CB/W/NW MDLR 172300Z 00000KT 7000 TSRA FEW012CB SCT014 BKN070 24/24 Q1008 CB/NE/E/SW/W/NW MDPC 172300Z 19008KT 9999 FEW018 BKN080 27/24 Q1008 MDPP 172200Z 00000KT 8000 -RA FEW015CB BKN016 BKN070 24/24 Q1007 CB/S/SW/W/NW/N MDSD 172300Z 25005KT 8000 -RA FEW016CB BKN018 BKN300 27/25 Q1007 CB/SE/S/SW/N MDST 172300Z 03004KT 0600 +RA FEW010CB SCT012 OVC070 22/22 Q1008 CB/NE/E/S/W/N MGCB 172300Z 05004KT 9999 FEW018 BKN060 19/16 QFE 870.7 MGES 172300Z 03006KT 9999 SCT018 23/16 QFE 908.7 FEW090 MGGT 172300Z 04012KT 9999 FEW018 BKN080 19/14 Q1024 A3024 FEW200 CB DIST SW/WSW/W/WNW MGHT 172300Z 09010KT 9999 SCT024 20/12 QFE 818/0 MGMM 172300Z 00000KT 9999 FEW020 29/23 Q1014 A2994 MGMT 171900Z 18006KT 9999 FEW014TCU 33/24 QFE1009.5 TCU NNE MGPB 172300Z 12004KT 9999 FEW020 26/22 Q1013 A2991 MGQZ 172300Z 00000KT 9999 SCT016 FEW025CB 17/13 QFE 771/5 CB S MGRT 172300Z 24006KT 9000 -TSRA BKN020 FEW025CB 29/23 Q1013 A2991 CB/TS NE/E VOL. STA. MARIA Y SANTIAGUITO EN ACTIVIDAD MGSJ 172300Z 00000KT 8000 SCT020TCU FEW028CB SCT080 29/24 Q1011 A2985 FU CB N/NNE/NNW TCU NE/ENE/E MGTU 172300Z 27004KT 9999 FEW018 30/23 PCPN DIST NE MGZA 172300Z 07006KT 9999 FEW030 28/16 QFE 986/9 MHAM 172200Z 23006KT 9999 FEW030 31/24 MHCA 172300Z 09002KT 9999 SCT030 29/19 Q1013 MHCH 172200Z 18004KT 9999 SCT034TCU 32/23 TCU E HZ MHLC 172200Z 27003KT 9999 SCT026TCU SCT070 28/22 Q1013 A2992 MHLE 172200Z 36006KT 9999 BKN022 15/14 VCSH N NNE MHLM 172200Z 25005KT 9999 FEW020 BKN080 23/23 Q1014 A2995 REDZ MHNO 172200Z 02018KT 9999 FEW040 27/16 HZ MHPL 172200Z 36010KT 9999 SCT028TCU 28/22 1010 TCU ALL HZ MHRO 172200Z 09006KT 9999 SCT024 28/20 Q1013 A2992 NOSIG MHSC 172158Z 36016KT 9999 BKN060 OVC090 23/21 A2998 RMK AO2A SLP122 T02320213 $ MHSR 172200Z 34008KT 9999 BKN022TCU 21/16 TCU S SW HZ MHTE 172200Z 21003KT 9999 SCT024TCU 27/23 1012 TCU E S W MHTG 172200Z 36010KT 9999 SCT030 23/15 Q1017 A3003 NOSIG MHTR 172200Z 29002KT 999 SCT024TCU 28/23 TCU SE S SW W NW MHYR 172200Z 00000KT 9999 SCT023TCU BKN080 24/20 TCU ALL HZ MKJP 172200Z 18005KT 9999 BKN020CB 29/24 Q1007 MKJS 172200Z 04009KT 9999 BKN020 29/23 Q1008 MMAA 172049Z 23004KT 7SM SKC 31/25 A2985 RMK SLP102 57021 956 HZY CU MMAN 171723Z 01003KT 2 1/2SM HZ SKC 23/18 A3006 MMAS 172054Z 22005KT 10SM SKC 26/M08 A3023 RMK PRESFR MMBT 171752Z 00000KT 8SM SKC 31/// A2996 MMCB 172300Z 17004KT 10SM SKC 27/07 A3006 MMCE 172254Z 03010KT 7SM FEW025 26/// A2995 RMK 8/400 MMCL 171747Z 00000KT 10SM SKC 31/17 A2998 RMK SLP149 50003 914 MMCM 172251Z 00000KT 7SM SCT020 26/20 A2994 RMK 8/500 MMCN 172148Z 27004KT 10SM SKC 33/03 A2987 RMK HZY FULYR NW ISOL CI MMCP 171745Z 09005KT 7SM FEW020 27/19 A2999 RMK SLP157 57012 910 8/100 MMCS 172246Z 24012KT 10SM BKN250 27/M04 A2997 RMK 8/002 MMCT 172047Z 03005KT 8SM BKN015 28/17 A2997 RMK 8/400 MSGTX MMMD MMCU 171845Z 22007KT 10SM FEW200 29/02 A3012 RMK 8/001 MMCZ 172045Z 06010KT 8SM FEW015 27/19 A2993 RMK SLP140 57019 902 8/500 MMDO 172045Z 25005KT 14SM SKC 26/M04 A3021 RMK SLP102 57032 954 MMEP 172246Z 01005KT 12SM SCT020 27/21 A3003 RMK 8/500 MMGL 172245Z 00000KT 10SM SKC 27/M02 A3013 MMHO 172249Z 27006KT 10SM FEW200 34/01 A2993 RMK 8/001 HZY MMIA 172148Z 25010KT 8SM FEW020 29/21 A2998 RMK 6//// 8/200 HZY MMLM 171746Z 33003KT 10SM SKC 29/0 A3000 RMK SLP1510 HZY MMLO 172251Z 18005KT 10SM SKC 27/M07 A3022 MMLP 172150Z 34010KT 10SM SKC 32/12 A2991 MMLT 172247Z 00000KT 8SM SK 33/21 A2988 MMMA 172246Z 15012KT 8SM SCT016 27/21 A2992 RMK 8/100 MMMD 172246Z 02008KT 7SM FEW025 26/17 A2996 RMK 8/100 MMML 172052Z 32008KT 10SM BKN060 OVC200 27/05 A2994 RMK SLP139 57013 917 8/707 MMMM 172048Z 13005KT 8SM SKC 26/00 A3019 RMK SLP117 57030 956 MMMT 172146Z 36010KT 7SM SCT020 SCT200 27/23 A2991 RMK 8/101 MMMX 172245Z 36003KT 5SM SKC 23/00 A3024 NOSIG RMK HZY MMMY 171747Z 14003KT 6SM SKC 25/17 A3000 RMK SLP162 58024 975 HZY ISOL SC MMMZ 172246Z 27008KT 12SM SKC 29/25 A2986 RMK HZY DSNT TCU NE ISOL CU MMOX 172245Z 00000KT 12SM FEW025 26/06 A3011 RMK 8/100 MMPA 172248Z 12004KT 5SM FEW020 29/24 A2998 RMK 8/100 HZY MMPB 172148Z 18013KT 10SM SKC 22/01 A3026 RMK HZY MMPG 172247Z 12007KT 8SM SKC 29/20 A2988 RMK HZY MMPN 171845Z 20008KT 12SM SKC 22/13 A3020 RMK HZY CU MMPQ 172045Z 00000KT 6SM BKN040TCU BKN120 28/23 A2983 RMK 8/210 HZY MSGTX MMMD MMPR 172248Z 19011KT 15SM FEW020 29/25 A2985 RMK 8/100 MMPS 172245Z 18005KT 15SMFEW010 28/24 A2995 RMK 8/100 HZY MMQT 172249Z 10006KT 8SM SKC 25/M04 A3023 MMRX 172149Z 14010KT 7SM SCT030 28/18 A2989 RMK 8/100 MMSD 172055Z 12012KT 12SM SKC 31/16 A2992 RMK SLP120 57029 906 MMSL 172255Z 13007KT 9SM SKC 28/17 A2997 MMSP 172250Z 04004KT 15SM SKC 25/M14 A3019 MMTC 172249Z 06006KT 10SM SKC 31/03 A3000 MMTG 172150Z 31009KT 7SM SCT025 BKN070 28/18 2992 RMK 8/470 TCU ISOLD ARND HZY MMTJ 172046Z 28005KT 10SM FEW040 SCT150 OVC200 22/10 A3006 RK SLP190 57004 947 8/558 HZY BINOVC MMTM 172246Z E12012KT 10SM SKC 27/22 A2992 MMTO 172246Z 09006KT 8SM SKC 21/M07 A3030 RMK HZY MMTP 172145Z 23007KT 10SM SCT020TCU SCT160 30/24 A2981 RMK 8/260 HZY MMUN 172248Z 36003KT 7SM FEW015 24/18 A2998 RMK 8/500 MMZC 172254Z 06005KT 10SM SKC 25/M03 A3024 MMZH 172252Z 25007KT 6SM SCT020 SCT080 31/24 A2984 RMK 8/130 HZY MMZO 172157Z RTD 25012KT 12SM FEW020 31/26 A2984 RMK 8/100 MNBL 172200Z 10004KT 9999 SCT018 29/23 Q1010 MNCH 172200Z 19006KT 9999 FEW024CB 30/24 Q1009 CB/NE/ETCU/N/NW MNJG 172200Z 36008KT 9999 SCT020 22/17 Q1012 MNJU 172200Z 06006KT 9999 FEW020 31/23 Q1010 MNMG 172200Z 12006KT 9999 FEW024TCU SCT060 31/21 Q1008 A2979 TCU/SW NOSIG MNPC 172200Z 36008KT 7000 SCT016 29/24 Q1009 HZ MNRS 172200Z 00000KT 9999 FEW015CB 29/22 Q1009 CB/SE MPDA 172200Z 21004KT 9000 VCSH SCT016TCU SCT100 28/// Q1009 RWY DAMP MPMG 172221Z 28004KT 3200 -RA SCT013 BKN080 25/24 Q1010 RWY WET NOSIG MPPA 172200Z 00000KT 9000 VCSH SCT016CB SCT080 Q1009 MPTO 172300Z 28007KT 7000 VCSH SCT008 SCT016CB BKN080 25/23 Q1011 RWY DAMP NOSIG MRLB 172300Z 05006KT CAVOK 29/19 A2980 NOSIG MRLM 172300Z 34008KT CAVOK 27/21 A2984 MROC 172300Z 22006KT 9999 SCT035 23/20 A2997 NOSIG MRPV 172300Z 08012KT 9999 FEW030 22/14 A2999 NOSIG MSAC 172250Z 26007KT 9999 FEW030 29/23 Q1008 A2977 MSLP 172250Z 22003KT 9999 FEW075 29/22 Q1009 A2982 NOSIG MSLU 172250Z 00000KT 9999 SCT037 33/22 Q1008 A2979 MSSA 172250Z 03002KT CAVOK 28/14 Q1016 A3002 MSSM 172250Z 00000KT CAVOK 30/22 Q1009 A2980 MSSS 172250Z 02005KT 9999 FEW033 27/17 Q1014 A2995 MTCH 172200Z 36008KT 8000 SCT015CB BKN050 25/22 Q1008 A2978 RMK/ CB/ALLQDS MTPP 172300Z 28003KT 7000 FEW018 SCT045 SCT200 27/24 Q1007 A2974 MUCC 172150Z 04015KT 9000 SCT020 26/20 Q1012 MUCF 172150Z 05008KT 010V080 9999 FEW020 25/21 Q1013 MUCL 172150Z 04013KT 9000 VCSH SCT020CB 27/22 Q1012 MUCM 172151Z 05014KT 9000 SCT020 24/19 Q1012 MUCU 172150Z 35007KT 310V010 9000 SCT020 27/20 Q1009 MUGM 172256Z 01007KT 9999 FEW030 FEW090 27/23 A2981 RMK SLP094 SHRA DSNT S T02720228 MUHA 172155Z 06010KT 7000 SCT028 BKN047 24/20 Q1014 MUHG 172150Z 04012KT 9000 SCT020 26/22 Q1010 MUSC 172150Z 03010KT 9000 FEW025 24/18 Q1014 MUVR 172150Z 05012KT 9000 FEW020 24/18 Q1014 MWCB 172300Z 04009KT 9999 SCT018 27/23 Q1011 MWCR 172253Z 03009KT 9999 FEW018 27/23 Q1011 MYGF 172300Z 06005KT 9999 FEW025 23/17 A3000 MYNN 172100Z 02010KT 9999 SCT020 28/12 A2994 MZBZ 172300Z 05004KT 9999 FEW025 28/19 A2993 Q1013 NOSIG NCPY 172300Z AUTO 07008KT //// ////// 31/24 Q1008 NCRG 172300Z 10011KT 9999 VCSH SCT014 SCT040 27/23 Q1014 RMK RESHRA NFFN 172300Z 25010KT 9999 FEW026TCU SCT048 29/24 Q1007 NOSIG NFNA 172300Z 22008KT 9999 SCT020 30/24 Q1007 NFTF 172300Z 02010KT 9999 FEW010 SCT018 SCT200 28/24 Q1009 NFTL 172200Z 33008KT 9999 SCT009 BKN017 OVC100 26/25 Q1009 NFTV 172300Z 01010KT 9999 SCT009 BKN017 BKN120 27/25 Q1011 NGFU 172200Z 01012KT 9999 SCT020 SCT110 BKN300 30/24 Q1008 NGTA 172300Z 07012KT 9999 FEW020 BKN300 31/24 Q1007 NIUE 172300Z 05011KT 010V100 9999 SCT018 OVC100 29/23 Q1011 NSFA 172100Z 02002KT 9999 VCSH FEW019 SCT038 OVC130 28/25 Q1010 NOSIG NSTU 172250Z 08010KT 12SM FEW023 SCT045 BKN110 BKN250 31/27 A2980 RMK SLP093 T03140268 NTAA 172230Z 27003KT 200V330 9999 FEW020 BKN050 30/22 Q1012 NOSIG NWWW 172230Z AUTO 20012KT 180V240 9999 SCT052 24/11 Q1012 NOSIG NZAA 172230Z AUTO 14014KT 9999 NCD 17/11 Q1015 NOSIG NZCH 172230Z AUTO 23004KT 160V280 9999 SCT027/// OVC038/// 15/08 Q1026 NOSIG NZCM 172055Z 11007KT 9999 FEW030 BKN045 BKN100 M07/M13 A2891 RMK SLP795 NZFX 172255Z 02003KT 9999 FEW010 FEW030 SCT050 BKN090 BKN180 M03/M09 A2893 RMK SCSL GRID N SLP797 LSR12 SN DSNT GRID NW AND SW-W GRID19003KT SDG/HDG NZSP 172250Z 13004KT 9999 FEW020 FEW080 M39/ A2847 RMK CLN AIR 13004KT ALL WNDS GRID SDG/HDG NZWD 172255Z 00000KT 9999 FEW020 BKN040 BKN060 M07/M12 A2893 RMK SCSL GRID N SLP797 SN DSNT GRID N-NE AND S-SW SDF/HDG HDP GRID S-SW NZWN 172230Z AUTO 15020KT 9999 OVC041/// 14/08 Q1025 NOSIG OAJL 172256Z 00000KT 8000 BR CLR 10/06 A3012 RMK AO2A SLP197 T00970063 OAKB 172250Z VRB02KT 4000 BR NSC M01/M02 Q1022 NOSIG RMK A3018 GRN GRN OAKN 172155Z 15003KT 9999 CLR 07/M01 A3017 RMK AO2A SLP193 Q1022 DA2934 OAMS 172250Z 16002KT 6000 FEW070 06/05 Q1024 WHT BLU+ OBBI 172300Z 32007KT CAVOK 24/15 Q1017 NOSIG OEAB 172200Z 00000KT CAVOK 12/10 Q1025 NOSIG OEAH 172200Z 32005KT CAVOK 18/05 Q1017 NOSIG OEAO 172000Z 12002KT CAVOK 22/M05 Q1016 OEAR 172200Z 00000KT 8000 SKC 27/23 Q1013 OEBA 172200Z 00000KT CAVOK 15/M01 Q1022 NOSIG OEBH 172200Z 18003KT CAVOK 16/M05 Q1020 NOSIG OEDF 172200Z VRB03KT CAVOK 18/10 Q1017 NOSIG OEDM 171800Z 07010KT CAVOK 21/M03 Q1019 OEDR 172200Z 35005KT CAVOK 22/11 Q1016 NOSIG OEGN 172200Z 00000KT CAVOK 27/20 Q1013 NOSIG OEGS 172200Z 05004KT CAVOK 18/05 Q1018 OEGT 172200Z 16002KT CAVOK 13/M03 Q1016 NOSIG OEHL 172200Z 00000KT CAVOK 14/00 Q1020 NOSIG OEJN 172200Z 03003KT CAVOK 27/21 Q1011 NOSIG OEKJ 172000Z 12009KT CAVOK 19/M01 Q1021 OEKM 172200Z 15006KT CAVOK 13/04 Q1024 NOSIG OEMA 172200Z 11004KT CAVOK 25/M06 Q1017 NOSIG OEMK 172200Z 00000KT CAVOK 28/23 Q1012 OENG 172200Z 00000KT CAVOK 13/M05 Q1021 NOSIG OEPA 172200Z 00000KT CAVOK 16/06 Q1019 NOSIG OERF 172200Z 13004KT CAVOK 13/M02 Q1018 OERK 172200Z 15003KT CAVOK 17/M02 Q1020 NOSIG OERR 172200Z 13006KT CAVOK 13/06 Q1018 NOSIG OESH 172200Z 07008KT CAVOK 18/01 Q1019 NOSIG OESK 172200Z 10005KT CAVOK 16/M02 Q1018 NOSIG OETB 172200Z 07007KT CAVOK 17/M01 Q1015 NOSIG OETF 172200Z 13009KT CAVOK 17/M06 Q1020 NOSIG OETR 172200Z 11008KT CAVOK 13/02 Q1019 OEWD 172200Z 10006KT CAVOK 18/06 Q1018 NOSIG OEWJ 172200Z 05004KT 8000 NSC 23/22 Q1011 NOSIG OEYN 172200Z 33003KT 8000 SKC 24/22 Q1010 NOSIG OIAA 172150Z 25004KT CAVOK 13/07 Q1017 OIAG 172000Z 31006KT 7000 NSC 16/05 Q1018 OIAH 172200Z 00000KT CAVOK 12/M01 Q1021 OIAI 172000Z 32002KT CAVOK 16/04 Q1018 OIAM 172200Z 00000KT CAVOK 15/06 Q1017 OIAW 172200Z 08002KT 6000 NSC 13/07 Q1017 OIBB 172150Z 36004KT 8000 NSC 22/10 Q1017 A3004 OIBK 172200Z 00000KT 7000 FEW030CB 23/17 Q1016 OIBL 172100Z 00000KT CAVOK 22/16 Q1016 OIBP 171800Z 00000KT CAVOK 20/10 Q1014 A2996 OICC 172152Z 09004KT CAVOK 03/M11 Q1023 A3023 OICI 172100Z 14002KT CAVOK 08/M02 Q1023 A3021 OICJ 172150Z AUTO 34002KT //// // ////// 05/M16 Q1025 OICK 172150Z 14004KT CAVOK 06/M07 Q1023 OICS 172200Z 00000KT CAVOK 02/M03 Q1024 OIFK 172200Z 00000KT CAVOK 07/M05 Q1023 OIFM 172230Z 00000KT CAVOK M02/M12 Q1025 A3029 OIFS 172155Z 31002KT CAVOK M04/M16 Q1027 OIGG 172200Z 00000KT 4000 BR SCT020 BKN080 14/14 Q1025 OIGK 172150Z AUTO 25002KT //// // ////// M04/M06 Q1025 OIHH 172150Z 10002KT CAVOK M03/M10 Q1025 OIHM 171950Z 11008KT CAVOK 05/M09 Q1026 OIIE 172200Z 00000KT CAVOK 06/M08 Q1024 OIII 172230Z 35004KT CAVOK 09/M03 Q1024 A3026 OIIK 172152Z 02006KT CAVOK 06/M03 Q1024 OIIP 171800Z 15006KT 8000 NSC 09/M05 Q1024 OIIS 172200Z 00000KT CAVOK 09/M01 Q1025 OIKB 172200Z 35004KT CAVOK 20/14 Q1017 A3004 OIKK 172150Z 11006KT CAVOK M00/M16 Q1026 A3031 OIKO 172150Z 00000KT 8000 NSC 19/14 Q1017 OIKQ 172200Z 04004KT 7000 NSC 19/15 Q1016 OIMB 172200Z 12006KT CAVOK M03/M22 Q1024 OIMC 172155Z AUTO 18004KT //// // ////// 04/M03 Q1025 OIMM 172230Z 00000KT CAVOK 03/M00 Q1025 A3028 OIMN 172200Z 00000KT 8000 FEW020 BKN070 02/00 Q1026 OIMQ 172200Z AUTO 03004KT //// // ////// 06/M06 Q1024 OINB 172000Z 00000KT CAVOK 14/13 Q1024 OINE 172200Z AUTO 01002KT //// // ////// 12/08 Q1025 OING 172200Z 00000KT 9999 FEW030 10/08 Q1026 OINN 172200Z 00000KT 9999 FEW028 13/12 Q1024 OINR 172100Z 00000KT 9999 FEW025CB BKN027 16/13 Q1023 OINZ 172200Z VRB02KT 7000 NSC 11/10 Q1024 OISA 172000Z 31004KT CAVOK 01/M13 Q1026 OISF 172150Z 35004KT CAVOK 06/M04 Q1020 OISL 172155Z 00000KT CAVOK 12/05 Q1018 OISS 172230Z 00000KT CAVOK 06/M06 Q1023 A3023 OISY 172200Z 00000KT CAVOK 04/M14 Q1025 OITL 172151Z 18004KT 8000 VCFG OVC008 06/05 Q1025 OITM 172100Z 08010KT CAVOK 07/M05 Q1023 OITP 172200Z AUTO 13006KT //// // ////// 11/// Q1022 OITR 172151Z 31004KT CAVOK 02/M02 Q1023 OITT 172230Z 05004KT CAVOK 04/M02 Q1024 A3026 OITU 171950Z 00000KT CAVOK 04/02 Q1023 OIYY 172150Z 00000KT CAVOK 07/M08 Q1026 OIZB 172100Z 29004KT CAVOK 08/M06 Q1021 OIZH 172200Z 00000KT CAVOK 02/M07 Q1023 A3023 OIZI 172100Z 10006KT CAVOK 14/M07 Q1019 OIZJ 172050Z 02004KT 6000 NSC 23/19 Q1016 OJAI 172300Z 06006KT 7000 NSC 13/M04 Q1017 NOSIG OJAM 172200Z 13012KT 5000 HZ NSC 20/01 Q1016 NOSIG OJAQ 172100Z 00000KT CAVOK 20/08 Q1011 NOSIG OKBK 172300Z 00000KT CAVOK 13/05 Q1018 NOSIG OLBA 172200Z 14004KT CAVOK 20/05 Q1014 NOSIG OMAA 172200Z 06004KT CAVOK 23/14 Q1015 NOSIG OMAD 172200Z VRB02KT CAVOK 24/15 Q1016 BECMG 06005KT OMAL 172200Z 06005KT CAVOK 22/13 Q1017 NOSIG OMDB 172200Z 08005KT 040V120 CAVOK 24/15 Q1016 NOSIG OMDW 172200Z 08005KT CAVOK 19/13 Q1017 NOSIG OMFJ 172200Z 30004KT 7000 NSC 23/18 Q1016 A3002 OMRK 172200Z 17002KT CAVOK 17/15 Q1016 A3003 OMSJ 172200Z 10006KT CAVOK 21/14 Q1016 OOMS 172150Z 23004KT 210V280 CAVOK 26/15 Q1015 NOSIG OOSA 172150Z 35004KT 9999 FEW025 SCT080 26/20 Q1015 NOSIG OOSH 171950Z AUTO 25004KT //// 22/18 Q1016 RMK 1012 OPKC 172255Z 00000KT 6000 NSC 16/05 Q1016 NOSIG OPLA 172255Z 00000KT 4000 FU FEW100 14/12 Q1015 A29.98 NOSIG OPMT 172254Z 00000KT 5000 FU NSC 13/10 Q1016 NOSIG OPNH 172300Z 00000KT 3000 FU NSC 16/10 Q1015 NOSIG OPPS 172300Z 00000KT 4000 BR FEW040 FEW100 10/08 Q1016 OPRN 172200Z 31004KT 4000 BR FEW040 BKN100 11/09 Q1016.7/30.02 OPSK 172200Z 00000KT 1500 BR NSC 14/11 Q1014 TEMPO 1500 BR OPST 172300Z 09003KT 4000 TS FEW030CB SCT040 SCT100 13/11 Q1015 TEMPO 13015G25KT 3000 -RA RH88 ORBD 172155Z 00000KT 9000 FU FEW200 13/06 A3008 RMK WND DATA ALSTG ESTMD ORBI 172300Z 35001KT 8000 NSC 12/06 Q1018 NOSIG ORER 172200Z 19002KT CAVOK 12/M01 Q1021 NOSIG ORMM 172200Z 22004KT CAVOK 11/01 Q1018 NOSIG ORNI 172200Z 00000KT 6000 NSC 11/01 Q1018 NOSIG ORSU 172300Z 29007KT CAVOK 05/M02 Q1023 OSDI 172200Z 02004KT CAVOK 10/M04 Q1018 OSKL 172000Z 35005KT 8000 11/M03 Q1018 OSLK 172200Z 02005KT 9999 FEW030 21/02 Q1013 OTBD 172200Z 31006KT CAVOK 25/16 Q1016 NOSIG OTBH 172256Z 33006KT 9000 HZ CLR 20/16 A3003 RMK AO2A SLP170 T02020158 $ OTHH 172200Z 33007KT CAVOK 23/15 Q1017 NOSIG PAAD 172255Z AUTO 25006KT 10SM -SN OVC012 M14/M16 A3012 RMK AO2 T11421160 PAAK 172256Z AUTO 21013G20KT 10SM CLR 08/06 A3048 RMK AO2 SLP323 T00780056 PAAQ 172253Z 34004KT 2SM BR OVC003 M08/M09 A2971 RMK AO2 SLP066 I1003 T10831094 PABA 172252Z AUTO 00000KT 10SM OVC015 M13/M15 A3011 RMK AO2 SNB26E37 SLP183 P0000 T11331150 FZRANO TSNO PABE 172253Z 32009KT 10SM OVC037 M01/M04 A3027 RMK AO2 SLP251 T10111039 PABI 172253Z 30008KT 1 3/4SM -SN BR OVC023 M10/M11 A2979 RMK AO2 SLP128 P0000 T11001111 PABL 172256Z AUTO 30012KT 9SM -SN BKN039 OVC046 M03/M05 A3012 RMK AO2 SLP202 P0000 T10281050 FZRANO PABR 172253Z 21006KT 8SM -SN BLSN OVC027 M11/M13 A3016 RMK AO2 SLP215 P0000 T11061128 PABT 172253Z 00000KT 10SM FEW150 M19/M23 A2994 RMK AO2 SLP165 T11941228 PABV 172256Z AUTO 00000KT 10SM OVC006 M06/M08 A2974 RMK AO2 SLP079 T10561078 FZRANO $ PACD 172253Z 32017G26KT 10SM FEW027 FEW110 06/01 A3034 RMK AO2 PK WND 31026/2239 SLP275 T00560011 PACM 172256Z AUTO 00000KT 10SM OVC027 M01/M04 A3030 RMK AO2 SLP256 T10061044 FZRANO PACV 172253Z 03003KT 10SM BKN110 BKN200 02/M07 A2943 RMK AO2 SLP967 T00221067 PACZ 172255Z AUTO 33006KT 10SM OVC024 M01/M05 A3024 RMK AO2 SLP249 T10091046 PADE 172255Z AUTO 26018KT 3SM -SN OVC016 M02/M04 A3012 RMK AO2 P0000 T10171044 TSNO $ PADG 172058Z 00000KT 10SM BKN020 M08/M09 A3000 PADK 172256Z AUTO 22011G23KT 8SM BKN008 OVC012 08/07 A3047 RMK AO2 SLP317 T00830072 PADL 172256Z VRB04KT 10SM BKN055 02/M06 A3011 RMK AO2 SLP200 T00171056 PADM 172256Z AUTO 31008KT 10SM OVC035 M02/M06 A3025 RMK AO2 SLP254 T10171056 FZRANO PADQ 172253Z 29021G42KT 10SM CLR 04/M06 A2971 RMK AO2 PK WND 29042/2246 SLP062 T00441056 PADU 172156Z 26005KT 10SM SCT016 SCT023 BKN100 07/02 A3047 RMK AO2 SLP323 CS T00670017 PAEC 172154Z 00000KT 20SM SCT040 M04/M06 A2962 RMK NOSPECI LAST PAED 172245Z AUTO 00000KT 1 1/2SM BR OVC006 M07/M07 A2971 PAEG 172253Z AUTO 00000KT 10SM BKN027 M15/M17 A2982 RMK AO2 SLP119 T11501172 TSNO $ PAEH 172255Z AUTO 34028G35KT 300V360 10SM OVC026 01/M03 A3025 RMK AO2 PK WND 32038/2206 SLP252 T00061034 PAEI 172156Z 00000KT 6SM -SN BR SCT020 M11/M13 A2983 PAEL 172154Z 30012KT 1/2SM SN VV005 M01/M01 A2940 RMK NOSPECI PAEN 172253Z 14004KT 1 3/4SM BR OVC003 M04/M04 A2974 RMK AO2 SLP074 T10441044 PAFA 172253Z 00000KT 10SM SCT055 BKN100 M14/M14 A2988 RMK AO2 SLP130 T11391139 VISNO NE PAFB 172158Z 00000KT 10SM BKN055 M12/M13 A2985 PAFE 172256Z AUTO 10010G18KT 1 1/4SM -SN BR BKN017 OVC023 01/M01 A2944 RMK AO2 SLP980 P0001 T00061006 FZRANO PAFM 172256Z AUTO 28005KT 10SM FEW037 BKN085 M09/M11 A3002 RMK AO2 SLP181 T10891106 FZRANO PAFR 172254Z AUTO 00000KT 10SM CLR M07/M09 A2970 RMK AO1 PAFS 172201Z AUTO 32007KT 10SM BKN022 OVC029 M03/M06 A2997 PAGA 172256Z AUTO 28010KT 10SM BKN048 M03/M08 A3004 RMK AO2 SLP175 T10331078 FZRANO PAGH 172256Z AUTO 30014KT 10SM FEW085 M08/M10 A2999 RMK AO2 SLP162 T10781100 FZRANO PAGK 172253Z AUTO 00000KT 10SM CLR M14/M16 A2966 RMK AO2 SLP100 T11441161 TSNO PAGL 172256Z AUTO 32011G16KT 10SM OVC043 M04/M06 A3022 RMK AO2 SLP232 T10391061 FZRANO PAGM 172256Z AUTO 23003KT 10SM CLR M01/M04 A3025 RMK AO2 SLP249 T10061044 FZRANO PAGN 172256Z AUTO VRB06KT 1 3/4SM -SN BR BKN007 OVC013 01/M01 A2944 RMK AO2 VIS 3/4V3 SLP959 P0000 T00061006 FZRANO PAGS 172256Z AUTO 32008KT 3/4SM -SN BR OVC011 M02/M02 A2947 RMK AO2 SLP980 P0000 T10171022 FZRANO RVRNO PAGY 172253Z AUTO 03018G29KT 10SM OVC060 M01/M09 A2960 RMK AO2 PK WND 02029/2253 UPB18E47SNB00E18 SLP024 P0000 T10111089 TSNO PAHC 172256Z AUTO 27007KT 10SM OVC031 M02/M06 A3018 RMK AO2 SLP225 T10221061 FZRANO PAHL 172256Z AUTO 29006KT 10SM CLR M06/M08 A2998 RMK AO2 SLP161 T10561083 FZRANO PAHN 172254Z AUTO 30010KT 3/4SM -SN BR VV017 M04/M06 A2959 RMK AO2 SLP021 P0000 T10441056 TSNO PAHO 172253Z 09005KT 10SM CLR 01/M05 A2971 RMK AO2 SLP061 T00061050 PAHP 172256Z AUTO 34008KT 10SM BKN028 00/M04 A3028 RMK AO2 SLP293 T00001044 FZRANO PAHX 172256Z AUTO 31005KT 10SM OVC030 M02/M05 A3017 RMK AO2 SLP217 T10221050 FZRANO PAIG 172256Z AUTO 30018G27KT 10SM OVC028 01/M04 A2999 RMK AO2 PK WND 30027/2254 SLP168 T00111039 FZRANO $ PAII 172256Z AUTO 32015G23KT 10SM CLR 02/M04 A3009 RMK AO2 SLP193 T00171039 FZRANO PAIK 172256Z AUTO 10003KT 9SM SCT080 BKN100 M08/M09 A3009 RMK AO2 SLP193 T10781089 FZRANO PAIL 172153Z 33013G22KT 10SM SCT030 SCT080 BKN095 01/M05 A2993 RMK SLP139 ACSL DSNT NE-SW T00061050 VIA AUTODIAL PAIM 172255Z AUTO 13003KT 10SM BKN004 M09/M09 A2988 RMK AO2 SHSNB1943E2059 SLP148 T10881093 PAIN 172256Z AUTO 36011G18KT 1SM -SN BR SCT008 OVC014 M08/M09 A2975 RMK AO2 SLP114 P0000 T10781094 FZRANO PAIW 172256Z AUTO 27005KT 10SM OVC025 M04/M08 A3027 RMK AO2 SLP252 T10391083 FZRANO PAJN 172253Z 06004KT 1/4SM R08/2800V4000FT SN FZFG FEW006 OVC011 M01/M01 A2948 RMK AO2 TWR VIS 1/2 SLP983 P0004 T10111011 PAJZ 172256Z AUTO 34018G23KT 7SM CLR 00/M06 A3011 RMK AO2 SLP204 T00001061 FZRANO $ PAKF 172201Z AUTO 33020G30KT 10SM FEW026 07/M01 A3034 RMK AO2 PK WND 31033/2132 SLP371 T00671006 PAKH 172256Z AUTO 33020G26KT 10SM CLR 03/M04 A2982 RMK AO2 PK WND 33032/2201 SLP100 T00331044 $ PAKI 172256Z AUTO 33008KT 10SM OVC033 00/M04 A3030 RMK AO2 SLP262 T00001039 FZRANO PAKK 172256Z AUTO 31011G16KT 8SM -SN OVC040 M04/M07 A3011 RMK AO2 SLP213 P0000 T10391067 FZRANO PAKN 172254Z 30012KT 10SM SCT060 OVC075 01/M04 A3003 RMK AO2 SLP170 T00061044 PAKP 172256Z AUTO 07010KT 6SM -SN BR SCT026 M17/M19 A2988 RMK AO2 SLP186 P0000 T11671189 FZRANO PAKT 172253Z 14021G29KT 4SM RA BR OVC014 02/01 A2956 RMK AO2 PK WND 13033/2159 RAB2159SNE02 SLP012 HARBOR WIND 10028KT P0009 T00220011 PAKU 172245Z 07003KT 10SM R06/P6000FT -SHSN OVC012 M13/M15 A3014 PAKV 172253Z AUTO 23004KT 10SM UP BKN041 OVC050 M03/M07 A3012 RMK AO2 UPE14B45 SLP202 P0000 T10281067 TSNO PAKW 172253Z AUTO 14008G14KT 4SM RA BR OVC023 03/02 A2944 RMK AO2 SLP970 P0017 T00330022 TSNO $ PALG 172256Z AUTO 27005KT OVC037 M02/M06 A3022 RMK AO2 SLP302 PWINO FZRANO TSNO RVRNO PALH 172253Z 00000KT 1/4SM FZFG BKN003 M07/M08 A2973 RMK AO2 TWR VIS 3/4 SLP069 T10721083 PALJ 172150Z 24008KT 15SM BKN040 BKN060 01/M03 A2985 RMK EST PASS CLSD NOSPECI PALP 172250Z 06005KT 10SM OVC013 M12/M15 A3015 PALU 172255Z AUTO 28014KT 4SM -SN OVC014 M03/M05 A3010 RMK AO2 SNB2158 SLP193 P0000 T10321051 PAMB 172256Z AUTO 32011KT 10SM CLR 02/M08 A3012 RMK AO2 SLP205 T00171078 FZRANO $ PAMC 172253Z AUTO 35011G17KT 10SM OVC030 M02/M08 A3003 RMK AO2 SLP178 T10221078 TSNO PAMD 172257Z AUTO 02014G18KT 10SM OVC110 04/M05 A2942 RMK AO2 SLP954 T00391050 PAMH 172256Z AUTO VRB03KT 9SM -SN BKN021 M04/M06 A2990 RMK AO2 SLP149 P0000 T10391056 FZRANO PAMK 172256Z AUTO 33012KT 10SM FEW027 OVC039 M02/M07 A3023 RMK AO2 SNB11E22 SLP239 P0000 T10221067 FZRANO $ PAMM 172256Z AUTO 15015G29KT 7SM -RA BKN020 OVC026 05/03 A2958 RMK AO2 PK WND 19031/2217 SLP006 P0014 T00500028 PAMR 172255Z 00000KT 3SM BR BKN003 M07/M07 A2972 RMK AO2 T10721072 $ PAMY 172256Z AUTO 32011KT 8SM BKN024 02/M02 A3032 RMK AO2 SLP268 T00221022 FZRANO PANA 172256Z AUTO 31009KT 10SM OVC039 M01/M03 A3027 RMK AO2 SLP248 T10111028 FZRANO PANC 172253Z 00000KT 1/2SM R07R/1000V2000FT BR BKN001 M07/M08 A2972 RMK AO2 SFC VIS 1 1/2 SLP066 BR BKN000 T10721083 $ PANI 172256Z AUTO 29007KT 10SM OVC036 M02/M06 A3019 RMK AO2 SLP192 T10171061 FZRANO PANN 172253Z AUTO 30005KT 10SM OVC080 M10/M12 A2989 RMK AO2 SLP135 T11001117 TSNO PANT 172253Z AUTO 14017G28KT 6SM RA BR BKN009 OVC014 04/04 A2957 RMK AO2 PK WND 13028/2246 SLP016 P0008 T00440044 TSNO PANW 172256Z AUTO 34015G25KT 10SM CLR 01/M06 A3007 RMK AO2 PK WND 35027/2238 SLP199 T00061056 FZRANO PAOH 172256Z AUTO 10009G16KT 1 1/4SM -SN BR OVC009 M01/M02 A2945 RMK AO2 CIG 007V012 SLP974 P0000 T10061017 FZRANO PAOM 172253Z 30009KT 10SM BKN040 M05/M07 A3023 RMK AO2 SLP238 T10501072 PAOO 172256Z AUTO 33008KT 10SM OVC022 00/M04 A3016 RMK AO2 SLP223 T00001044 FZRANO PAOR 172253Z 00000KT 4SM -SN BR BKN025 BKN030 BKN040 M15/M17 A2967 RMK AO2 SLP104 PCPN VRY LGT T11501167 PAOT 172253Z 35009KT 10SM OVC042 M05/M07 A3011 RMK AO2 SLP197 T10501072 PAOU 172256Z AUTO 31021KT 6SM HZ SCT034 05/M01 A3030 RMK AO2 PK WND 31027/2238 SLP262 T00501011 PAPB 172253Z AUTO 20007KT 4SM BR OVC010 06/05 A3037 RMK AO2 SLP273 T00610050 TSNO PAPG 172256Z 00000KT 1SM -SN BR FEW007 BKN011 OVC016 00/M01 A2950 RMK AO2 SLP994 P0002 T00001011 PAPH 172256Z AUTO 32020G27KT 10SM OVC030 02/M03 A3017 RMK AO2 PK WND 31030/2220 SLP219 T00221033 FZRANO PAPM 172256Z AUTO 32020KT 10SM OVC028 00/M04 A3026 RMK AO2 SLP249 T00001039 FZRANO PAPN 172256Z AUTO 32020G25KT 10SM CLR 03/M03 A3009 RMK AO2 SLP191 T00281033 PAPO 172256Z AUTO 30014KT 7SM -SN BKN010 BKN014 OVC019 M03/M05 A3014 RMK AO2 CIG 009V013 SLP204 P0000 T10331050 FZRANO PAQH 172256Z AUTO 32016KT 10SM SCT023 OVC032 M01/M03 A3027 RMK AO2 SLP250 T10061033 PWINO FZRANO PAQT 172253Z AUTO 03004KT 8SM UP OVC013 M13/M14 A3017 RMK AO2 SLP217 P0000 T11281144 TSNO PARS 172256Z AUTO VRB06KT 10SM OVC032 M02/M07 A3023 RMK AO2 SLP240 T10171067 FZRANO $ PARY 172256Z AUTO 29007KT 10SM SCT021 M06/M08 A2996 RMK AO2 PRESRR SLP178 T10561083 FZRANO PASA 172256Z AUTO 11005KT 10SM FEW021 M02/M04 A3027 RMK AO2 SLP251 T10221044 FZRANO $ PASC 172253Z 02005KT 8SM -SN OVC012 M12/M14 A3012 RMK AO2 SNB41 SLP203 P0000 T11221144 PASD 172256Z 01024G29KT 10SM SCT030 BKN038 BKN047 05/M02 A3022 RMK AO2 PK WND 01030/2239 SLP236 DA T00501022 PASH 172256Z AUTO 31018KT 8SM UP OVC023 M02/M06 A3022 RMK AO2 UPB2157SNE2157B05E14 SLP234 P0000 T10221056 FZRANO PASI 172253Z 07010G20KT 8SM -SN SCT023 OVC036 02/01 A2932 RMK AO2 PK WND 12026/2159 SLP929 P0002 T00220006 PASK 172256Z AUTO 28012KT 10SM OVC085 M06/M07 A3008 RMK AO2 SLP183 T10611072 FZRANO $ PASL 172256Z AUTO VRB03KT 10SM BKN028 M01/M07 A3013 RMK AO2 SLP200 T10111067 FZRANO PASM 172256Z AUTO 30005KT 10SM OVC033 M02/M04 A3027 RMK AO2 SLP267 T10221044 FZRANO PASN 172253Z AUTO 19008KT 9SM FEW015 OVC050 06/05 A3035 RMK AO2 RAE11 SLP279 P0000 T00560050 TSNO PASO 172253Z AUTO 01009KT 330V030 10SM CLR 02/M03 A2970 RMK AO2 SLP058 T00221033 TSNO PASV 172255Z AUTO 34013G23KT 1 1/2SM -FZRA BR BKN005 M05/M06 A2993 RMK AO2 SLP168 P0000 T10521061 PASX 172256Z AUTO 11005KT 10SM OVC006 M04/M06 RMK AO2 SLPNO T10441056 FZRANO $ PASY 172258Z AUTO 17026G31KT 7SM OVC004 07/07 A3001 RMK AO2 PK WND 17031/11 RAE27 SLP166 P0000 T00680068 $ PATA 172252Z 11008KT 10SM OVC050 M08/M10 A2994 RMK AO2 SLP145 T10831100 PNO PATC 172255Z AUTO 30005KT 10SM -SHSN OVC023 M05/M08 A3024 RMK AO2 SHSNB2140 SLP245 P0000 T10461081 $ PATE 172256Z AUTO 31008KT 8SM -SN FEW016 OVC031 M04/M07 A3024 RMK AO2 SLP249 P0000 T10441067 FZRANO PATG 172256Z AUTO 31021G26KT 10SM BKN036 00/M05 A3017 RMK AO2 PK WND 30026/2250 SLP314 T00001050 FZRANO PATK 172153Z 32003KT 10SM CLR M09/M12 A2971 RMK SLP068 T10891117 VIA AUTODIAL PATL 172254Z AUTO VRB01KT 7SM -SHSN BKN018 M04/M07 A3003 PATO 172253Z AUTO 31006KT 10SM CLR M04/M07 A2964 RMK AO2 SLP038 T10391072 TSNO PATQ 172256Z AUTO 10009KT 9SM -SN OVC009 M13/M14 A3015 RMK AO2 SLP217 P0000 T11281139 FZRANO TSNO PAUN 172256Z AUTO 34007KT 10SM OVC036 M03/M06 A3019 RMK AO2 SLP228 T10281061 FZRANO PAUT 172255Z AUTO 30018KT 7SM OVC023 06/04 A3041 RMK AO2 T00610043 PAVA 172256Z AUTO 36004KT 10SM OVC026 00/M04 A3028 RMK AO2 SLP341 T00001039 FZRANO PAVC 172256Z AUTO 29029G44KT 10SM FEW110 05/M01 A3025 RMK AO2 PK WND 30048/2205 SLP249 T00501011 PAVD 172256Z 30008G20KT 250V350 10SM FEW120 FEW250 04/M13 A2954 RMK AO2 PK WND 12035/2212 SLP027 2251Z WEA PAVL 172253Z AUTO 33012KT 5SM BR SCT029 BKN035 OVC055 M04/M06 A3012 RMK AO2 SLP199 T10391056 TSNO PNO $ PAWD 172253Z AUTO 32020G30KT 10SM CLR 04/M09 A2958 RMK AO2 PK WND 30032/2236 SLP018 T00391094 TSNO PAWG 172156Z 11016G22KT 5SM -SN BKN020 OVC030 02/M01 A2956 PAWI 172253Z AUTO 08008KT 10SM OVC007 M16/M17 A3013 RMK AO2 SLP205 T11611172 TSNO PAWM 172256Z AUTO 32010KT 7SM OVC040 M04/M07 A3021 RMK AO2 SNE48 SLP236 P0000 T10441067 FZRANO PAWN 172056Z AUTO 30011KT 9SM CLR M05/M07 A3007 RMK AO2 SNE00 SLP197 P0000 60000 T10501067 51018 FZRANO PAWS 172256Z AUTO 00000KT 1 1/4SM BR OVC002 M07/M08 A2972 RMK AO2 VIS 3/4V4 SLP080 T10721083 FZRANO PAYA 172253Z AUTO 10006KT 10SM SCT065 OVC080 02/M06 A2934 RMK AO2 SLP936 T00221056 TSNO PAZK 172256Z AUTO 00000KT 10SM CLR M07/M13 A2953 RMK AO2 SLP065 T10721128 FZRANO PFCL 172256Z AUTO 30008KT OVC050 02/M04 A3012 RMK AO2 SLP192 T00171044 PWINO FZRANO TSNO $ PFEL 172256Z AUTO 30006KT 8SM -SN SCT020 BKN044 M04/M07 A3021 RMK AO2 SLP229 P0000 T10441072 FZRANO PFKT 172256Z AUTO 33003KT 9SM -SN OVC029 M04/M07 A3027 RMK AO2 SLP252 P0000 T10441067 FZRANO PFKW 172256Z AUTO 33008KT 10SM -SN OVC035 M01/M04 A3026 RMK AO2 SNB54 SLP246 P0000 T10111044 FZRANO PFNO 172256Z AUTO 29010KT 8SM BKN050 M07/M09 A3010 RMK AO2 SLP192 T10721089 FZRANO PFSH 172256Z AUTO 32014KT 5SM HZ OVC036 M03/M06 A3019 RMK AO2 SLP224 T10281061 PWINO FZRANO PFWS 172256Z AUTO 32013G18KT 10SM BKN065 OVC080 01/M04 A3009 RMK AO2 SLP194 T00111039 FZRANO PFYU 172256Z 00000KT 3SM -SN BCFG CLR M21/M23 A2996 RMK AO2 SNB56 SLP172 P0000 T12061228 PGRO 172250Z 10013KT 7SM SCT013 28/25 A2985 PGSN 172254Z 11014KT 10SM SCT020 SCT027 30/26 A2985 RMK AO2 SLP129 VCSH S MOV W T03000261 PGUA 172256Z 11014KT 10SM SCT015 29/25 A2985 RMK AO2A SLP099 T02880245 RVRNO $ PGUM 172254Z 10012G19KT 10SM FEW021 29/26 A2985 RMK AO2 SLP099 T02890256 PGWT 172251Z 09010KT 7SM VCSH SCT016 BKN100 29/25 A2984 RMK VCSH E PHBK 172256Z AUTO 35016KT 10SM SCT065 28/19 A2991 RMK AO2 SLP131 T02830189 PHHI 172256Z AUTO 34004KT 9SM -RA BKN034 BKN042 24/18 A2995 RMK AO2 RAB42 SLP134 P0002 T02360182 FZRANO $ PHJH 172245Z 05011KT 15SM FEW025 FEW045 23/18 A2992 PHJR 172253Z AUTO 20006KT 10SM SCT034 SCT050 27/19 A2992 RMK AO2 SLP137 T02720189 TSNO PHKO 172253Z 20013KT 10SM CLR 28/17 A2986 RMK AO2 SLP111 T02830167 PHLI 172253Z 03011KT 10SM FEW026 BKN043 BKN050 25/19 A2995 RMK AO2 SLP137 T02500189 PHMK 172254Z 02008G16KT 10SM FEW039 BKN050 26/18 A2992 RMK AO2 SLP132 T02610183 PHNG 172257Z 02007KT 7SM FEW028 SCT035 SCT045 27/19 A2989 RMK AO2 SLP117 T02720189 $ PHNL 172253Z 02006KT 10SM FEW025 SCT046 28/16 A2990 RMK AO2 SLP123 T02780156 PHNY 172256Z AUTO 06009KT 10SM FEW018 BKN029 OVC050 22/17 A2995 RMK AO2 SLP126 T02170172 PHOG 172254Z 03012KT 10SM FEW030 SCT040 28/18 A2990 RMK AO2 SLP128 T02780183 PHSF 172256Z AUTO 26008KT 10SM CLR 19/06 A3017 RMK AO2 SLP106 WND DATA ESTMD T01890061 PWINO $ PHTO 172253Z 05007KT 020V080 10SM CLR 26/17 A2989 RMK AO2 SLP119 T02610167 PKMJ 172251Z 05009KT 15SM FEW015 SCT050 BKN300 30/26 A2978 PKMR 172251Z 08006KT 15SM FEW015 BKN300 30/25 A2977 RMK SLP081 T03040254 PKWA 172240Z AUTO 08009KT 10SM CLR 30/26 A2979 RMK AO2 T03010257 PNO PLCH 172300Z 12010KT 9999 SCT020 29/22 Q1008 PMDY 172256Z AUTO 09019KT 6SM BR CLR 24/22 A3009 RMK AO2 PK WND 09027/2200 SLP190 T02390217 PNO $ PPIZ 172256Z AUTO 06013KT 10SM OVC032 M12/M13 A3009 RMK AO2 SNE09 SLP193 P0000 T11171133 FZRANO TSNO PTKK 172250Z VRB05KT 15SM FEW014 SCT290 30/27 A2979 RMK SLP089 T03000268 PTKR 172254Z 20005KT 15SM FEW017 OVC300 28/25 A2983 RMK SLP102 T02830246 PTPN 172157Z 11004KT 15SM FEW018 FEW130 SCT300 30/24 A2979 PTRO 172250Z 00000KT 15SM FEW009 SCT016 SCT120 OVC300 27/25 A2982 PTSA 172250Z 04006KT 10SM SCT021 SCT130 BKN300 30/24 A2980 PTTP 172250Z 07004KT 15SM FEW018 FEW300 29/23 A2982 RMK SLP098 T02940233 PTYA 172250Z VRB05KT 12SM FEW016TCU BKN300 29/26 A2980 RMK TCU E SLP093 T02910259 PWAK 172258Z AUTO 35011KT 9999 FEW028 SCT034 28/20 A2988 RMK AO2 SLP125 RCFN 172230Z 32005KT 290V350 9999 FEW030 SCT300 22/20 Q1010 NOSIG RMK A2983 RCKH 172230Z 02003KT 350V050 9999 FEW016 BKN070 25/21 Q1010 NOSIG RMK A2983 RCMQ 172230Z 25002KT 4800 BR FEW008 SCT040 23/20 Q1011 NOSIG RMK A2987 RCNN 172245Z 00000KT 5000 BR FEW010 BKN060 23/20 Q1010 NOSIG RMK A2983 RCSS 172230Z 29006KT 7000 FEW010 SCT020 BKN032 24/21 Q1011 NOSIG RMK A2987 RCTP 172230Z 02007KT 3000 BR SCT004 BKN006 BKN012 22/22 Q1011 NOSIG RMK A2988 RJAA 172230Z 22003KT 9999 FEW030 BKN100 OVC150 07/05 Q1013 NOSIG RJAH 172200Z 19004KT 4000 BR FEW015 OVC120 07/06 Q1012 RJAW 172200Z 12015G25KT 9999 FEW010 BKN020 BKN230 24/20 Q1013 RMK 1CU010 5CU020 A2993 RJBB 172230Z 08010KT 6000 -RA BR FEW015 SCT050 BKN070 11/11 Q1012 TEMPO 4000 RA BR RJBE 172200Z 06009KT 9999 -RA FEW012 BKN045 BKN060 10/09 Q1012 RJCB 172247Z 00000KT 3200 -TSSN -FZRA FEW002 BKN003 M02/M03 Q1003 RMK 1ST002 7ST003 A2963 FBL TS OHD MOV NE RJCC 172230Z 20021G32KT 6000 SHRA FEW008 SCT015 BKN025 07/05 Q1001 RJCH 172238Z 26014KT 7000 -SHRA FEW005 SCT015 BKN025 08/06 Q1002 RMK 1ST005 4ST015 7CU025 A2961 RJCK 172230Z 18030G45KT 5000 -SHRA BR FEW006 BKN010 BKN018 07/05 Q1005 RMK 1ST006 5ST010 7ST018 A2969 RJCM 172245Z VRB05KT 9999 -SHRA FEW010 SCT020 BKN025 03/01 Q1003 RMK 1ST010 3CU020 6CU025 A2964 RJDC 172219Z 33003KT 280V360 6000 BR FEW006 SCT008 BKN010 11/11 Q1012 RMK 2ST006 3ST008 5CU010 A2990 BR W-NE RJDT 172230Z 35008KT 320V020 9999 FEW025 SCT030 BKN110 13/07 Q1014 RJEC 172245Z 17010KT 5000 -SHSN FEW002 SCT007 BKN018 00/M01 Q1000 RMK 2ST002 3ST007 6ST018 A2954 RJFF 172230Z 05003KT 350V140 9999 FEW002 SCT045 OVC080 12/10 Q1012 RJFK 172235Z 34013KT 4000 -SHRA BR FEW003 BKN045 BKN070 12/11 Q1008 RMK 1ST003 5CU045 7AC070 A2979 RJFM 172221Z 33007KT 5000 -RA BR FEW005 SCT040 BKN050 14/13 Q1008 RMK 1ST005 3CU040 5SC050 A2979 RJFO 172200Z 26006KT 9999 -RA FEW006 SCT030 BKN060 12/11 Q1012 RJFR 172200Z 26005KT 200V290 9999 FEW010 SCT050 BKN080 12/08 Q1012 RJFS 172200Z 32005KT 9999 FEW010 BKN070 10/10 Q1012 RJFT 172200Z 05008KT 9999 -RA FEW001 BKN050 12/11 Q1011 RJFU 172200Z 33016KT 9999 FEW005 BKN070 13/11 Q1012 RJFY 172134Z 06013KT 5000 -SHRA BR FEW008 SCT015 BKN025 15/13 Q1007 RMK 1ST008 3CU015 7CU025 A2974 RJGG 172230Z 03008KT 6000 -RA BR FEW005 SCT025 BKN050 09/07 Q1014 TEMPO 4000 RA BR RJKA 172200Z 29018G29KT 260V320 9999 FEW015 SCT100 23/21 Q1004 RJNG 172215Z 27002KT 6000 -RA FEW002 SCT005 BKN020 07/07 Q1014 RMK 1ST002 4ST005 6SC020 A2996 RJNK 172200Z 19009KT 9999 -RA FEW040 BKN060 OVC080 12/07 Q1011 RJNS 172230Z 31008KT 9999 -RA FEW004 SCT040 BKN060 09/09 Q1014 RJNT 172200Z 17009KT 9999 -SHRA FEW030 BKN050 BKN070 11/05 Q1011 RJOA 172251Z 12003KT 8000 R10/0350VP1800U PRFG FEW000 SCT015 BKN050 07/07 Q1012 RMK 1ST000 3CU015 5SC050 A2990 FG BANK SW-W RJOB 172200Z VRB02KT 6000 -RA BCFG FEW000 SCT070 BKN100 06/06 Q1012 RJOC 172245Z 19007KT 9999 -SHRA FEW003 SCT020 BKN030 10/10 Q1012 RMK 1ST003 3CU020 6CU030 A2989 RJOF 172146Z 32004KT 9999 FEW002 SCT050 BKN080 10/10 Q1012 RMK 1ST002 4SC050 7AS080 A2991 RJOH 172200Z 25004KT 220V290 9999 -RA FEW005 BKN030 BKN050 11/09 Q1012 RJOI 172155Z 32003KT 9000 BR FEW020 SCT045 OVC080 10/09 A2990 RMK RAB08E28 SLP126 P0001 T01000089 RJOK 172200Z 34006KT 9000 -RA FEW004 BKN050 BKN080 11/10 Q1010 RJOM 172200Z 13007KT 9999 -RA FEW025 SCT050 BKN080 11/10 Q1012 RJOO 172200Z VRB01KT 8000 -RA FEW010 BKN050 BKN070 09/07 Q1013 RMK 1ST010 5SC050 7AC070 A2993 RJOP 172224Z 31010KT 8000 RA FEW020 SCT050 OVC080 11/10 Q1012 RMK 1CU020 3SC050 8AS080 A2989 RJOR 172200Z 17004KT 9999 -SHRA FEW015 SCT045 BKN060 11/08 Q1011 RJOS 171746Z 30005KT 8000 -SHRA FEW010 BKN025 OVC100 10/08 Q1014 RMK 1ST010 5CU025 8AS100 A2996 RJOT 172200Z 16003KT 9999 -RA FEW005 SCT050 BKN070 09/09 Q1012 RJSA 172234Z 20017KT 4000 SHRA BCFG BR FEW001 SCT008 BKN015 05/03 Q1005 RMK 1ST001 3ST008 6CU015 A2969 RJSF 172200Z 15006KT 9999 FEW005 BKN080 BKN100 08/06 Q1010 RJSH 172221Z 23018G29KT 9999 -SHRA FEW030 BKN070 BKN100 10/04 Q1005 RMK 2CU030 6AC070 7AC100 A2970 RJSK 172231Z 30006KT 4000 -SHRA BR FEW005 SCT015 BKN025 05/02 Q1007 RMK 1ST005 3CU015 5CU025 A2976 P/RR RJSN 172200Z 18011KT 9999 FEW040 SCT120 BKN/// 08/02 Q1008 RJSO 172209Z 24015G27KT 210V270 6000 SHRA SCT010 BKN015 BKN025 07/06 Q1005 RMK 3ST010 5CU015 7CU025 A2970 RJSS 172200Z VRB02KT 9999 FEW020 SCT100 BKN150 05/04 Q1010 RJSY 172200Z 10010KT 080V180 9999 FEW050 SCT080 BKN/// 05/01 Q1007 RJTE 172149Z 23010KT 190V250 9999 FEW030 BKN080 15/08 Q1013 RMK 1CU030 7AC080 A2992 RJTT 172230Z VRB02KT 9999 FEW025 BKN100 11/04 Q1012 BECMG 20012KT RJTY 172256Z AUTO 00000KT 10SM FEW140 07/04 A2991 RMK AO2 SLP137 T00730043 FZRANO $ RKJB 172200Z 35018KT 9999 SCT030 05/M02 Q1021 NOSIG RKJK 172258Z AUTO 02013G22KT 10SM CLR 01/M07 A3020 RMK AO2 SLPNO T00111066 $ RKNY 172200Z AUTO 26007KT 9999 NCD 01/M08 Q1018 RKPC 172200Z 36011KT 320V040 9999 BKN025 OVC100 09/01 Q1020 NOSIG RKPK 172200Z 35014KT CAVOK 09/03 Q1015 NOSIG RKSG 172156Z 34014G19KT 10SM CLR M02/M11 A3020 RMK AO2A SLP231 T10251113 PWINO TSNO $ RKSI 172230Z 35015KT CAVOK M03/M15 Q1024 NOSIG RKSM 172200Z 31010KT 9999 SKC M02/M11 A3022 RKSO 172255Z 34009KT 7SM CLR M02/M08 A3020 RMK SLPNO WND DATA/ALSTG ESTMD COR 2257 RKSS 172200Z 32013KT CAVOK M04/M14 Q1024 NOSIG RKTN 172200Z 31011KT CAVOK 03/M05 Q1018 NOSIG RKTU 172200Z 29007KT 9000 NSC M01/M08 Q1021 NOSIG ROAH 172230Z 31014KT 9999 VCSH FEW015 SCT060 25/22 Q1008 RODN 172256Z AUTO 30010KT 10SM FEW021 24/21 A2979 RMK AO2 RAB28E38 SLP094 P0002 T02410214 $ ROIG 172200Z 36005KT 9999 -SHRA BKN010 BKN050 25/24 Q1009 ROMY 172200Z 35004KT 9999 SCT010 BKN050 24/24 Q1009 RORS 172200Z 34012KT 9999 FEW010 BKN060 25/23 Q1009 RORY 172200Z AUTO 30017KT 9999 FEW020 BKN027 OVC190 24/21 Q1007 ROTM 172259Z 29012G16KT 9999 SCT015 BKN080 BKN120 24/23 A2981 RMK SHRAB47E50 SLP083 STNPR29510 P0000 T02380228 ROYN 172200Z AUTO 35013KT 9999 FEW013 BKN060 26/23 Q1009 RPLB 172200Z 06005KT 9999 FEW020 SCT300 25/22 Q1007 NOSIG RMK A2974 RPLC 172200Z 27004KT 9999 FEW020 BKN300 24/23 Q1008 RMK A2977 RPLI 172200Z 16002KT 9999 FEW019 BKN280 25/25 Q1008 NOSIG RMK A2977 RPLL 172200Z 00000KT 9999 FEW023 26/26 Q1008 NOSIG RMK A2977 RPMD 172200Z 33003KT 9999 FEW016 BKN290 24/22 Q1008 RMK A2977 RPMZ 172200Z 00000KT 9999 FEW016 25/24 Q1009 RMK A2980 RPVD 172100Z 00000KT 9000 -SHRA BKN015 25/25 Q1006 RMK A2971 RPVM 172200Z VRB02KT 9999 SCT020 BKN300 26/24 Q1009 NOSIG RMK A2980 RPVP 172200Z 18002KT 9999 FEW017CB SCT250 26/24 Q1007 RMK A2974 CB NE E S SAAR 172200Z 20018KT 8000 NSC 25/03 Q1007 SABE 172200Z 25008G18KT 9999 FEW050 SCT100 25/09 Q1005 SACO 172200Z 15014KT CAVOK 24/06 Q1008 SADF 172200Z 21013KT 180V250 9999 FEW028 SCT200 24/08 Q1005 SAEZ 172200Z 23011KT 210V270 CAVOK 22/09 Q1005 SAME 172200Z 11015KT CAVOK 25/M05 Q1010 SANR 172200Z 00000KT 9999 FEW040 SCT100 31/13 Q1003 SANT 172200Z 25005KT 6000 NSC 30/13 Q1003 SAOC 172200Z 16018KT CAVOK 21/M10 Q1010 SARC 172200Z 14009KT 9999 FEW036 SCT080 24/18 Q1004 SARE 172200Z 14010KT 9999 SCT034 SCT060CB BKN100 25/17 Q1003 SARF 172200Z 16005KT 9999 OVC025 25/21 Q1003 SARI 172200Z 09006KT 5000 -TSRA BKN025 OVC045 FEW050CB 24/23 Q1004 SARL 172200Z 25008KT 8000 NSC 24/14 Q1004 SARP 172200Z 36006KT 5000 TSRA BKN004 FEW045CB FEW050 21/20 Q1004 SASA 172200Z 09011KT CAVOK 26/08 Q1008 SASJ 172200Z 07006KT 9999 FEW040 SCT100 29/11 Q1006 SAVC 172200Z 20006KT 090V240 9999 FEW045 13/04 Q1014 SAWE 172200Z 27017KT CAVOK 11/03 Q1005 SAWG 172200Z 25013KT CAVOK 13/M02 Q1008 SAWH 172200Z 25013KT 9999 FEW045 BKN100 08/00 Q1003 SAZM 172244Z 23012KT 6000 RA BKN030 OVC050 10/08 Q1007 SAZN 172200Z 27012KT 9999 SCT035 20/02 Q1012 SAZS 172200Z 27018G30KT 9999 FEW050 10/M05 Q1018 SAZT 172145Z 20021KT 2000 RA OVC015 13/12 Q1009 SBAA 172000Z 12006KT 9999 SCT025 33/22 Q1007 SBAF 172200Z 16007KT 9999 FEW030 29/16 Q1009 SBAN 172100Z 32002KT 9999 VCSH FEW040 FEW045TCU BKN100 20/18 Q1014 SBAQ 172200Z 11002KT 9999 SCT040 BKN080 24/22 Q1012 SBAR 172300Z 08007KT 9999 FEW017 25/20 Q1013 SBAT 171900Z 05007KT 9999 SCT035 FEW040TCU 31/23 Q1007 SBAX 172200Z 29003KT 9999 BKN045 26/21 Q1014 SBBE 172300Z 05009KT CAVOK 27/21 Q1008 SBBG 171900Z 32005KT CAVOK 26/13 Q1006 SBBH 172000Z 08008KT 9999 SCT048 29/13 Q1011 SBBI 172200Z 01007KT 9999 SCT007 23/18 Q1011 SBBQ 172200Z 05007KT CAVOK 24/13 Q1016 SBBR 172300Z VRB02KT 9999 FEW035 SCT100 20/18 Q1015 SBBU 172000Z 28007KT 9999 FEW030 30/21 Q1009 SBBV 172300Z 12006KT 9999 SCT035 FEW040TCU SCT070 33/20 Q1006 SBBW 172000Z 03002KT 9999 FEW020 BKN090 28/21 Q1007 SBCA 172000Z 01022KT 9999 SCT020 SCT080 25/19 Q1008 SBCB 172000Z 09006KT 9999 FEW040 26/20 Q1009 SBCC 172000Z 10005KT 9999 TS BKN030 FEW035CB 24/22 Q1008 SBCF 172300Z 05006KT CAVOK 25/14 Q1014 SBCG 172200Z 35008KT 9999 SCT040 FEW043TCU 26/19 Q1007 SBCI 172000Z 12005KT 9999 FEW020 SCT100 28/23 Q1008 SBCJ 172130Z 08002KT CAVOK 25/20 Q1011 SBCO 172200Z 11013KT 9999 FEW015 BKN045 21/18 Q1006 SBCP 172200Z 09014KT CAVOK 26/19 Q1010 SBCR 172300Z 09006KT 9999 SCT018 SCT100 24/21 Q1005 SBCT 172300Z 12006KT 9999 BKN004 19/18 Q1012 SBCX 172000Z 15006KT 4500 2000S BCFG BR SCT003 OVC005 18/17 Q1010 SBCY 172300Z 28008KT 4000 -RA BKN020 OVC090 24/23 Q1009 SBCZ 172300Z 00000KT 9999 FEW020 BKN100 26/24 Q1006 SBDN 172200Z 06004KT 9999 FEW045 28/15 Q1007 SBEG 172300Z 00000KT CAVOK 28/25 Q1006 SBEK 172100Z 13002KT 9999 TS FEW020 FEW025CB 31/26 Q1005 SBES 172200Z 07006KT CAVOK 24/21 Q1010 SBFI 172200Z 08006KT 9999 -TSRA SCT025 FEW033CB BKN090 25/23 Q1 004 SBFL 172300Z VRB02KT 9999 BKN020 BKN100 21/19 Q1009 SBFN 172200Z 12010KT 9999 SCT018 26/22 Q1013 SBFS 171900Z /////KT 9999 SCT040 ///// Q//// SBFZ 172300Z 07007KT 9999 SCT020 27/22 Q1011 SBGL 172200Z 13006KT 9999 FEW030 28/17 Q1008 SBGM 171900Z 32012KT 9999 SCT030 32/23 Q1006 SBGO 172300Z 01003KT CAVOK 23/18 Q1013 SBGR 172240Z 03011KT 9999 -RA BKN045 BKN100 20/18 Q1014 RETS SBGW 172200Z VRB02KT 9999 SCT035 BKN090 23/17 Q1011 SBHT 172200Z 08002KT 9999 SCT030 27/23 Q1006 SBIC 172000Z 08003KT 9999 FEW025TCU 32/26 Q1005 SBIH 171800Z 12003KT 9999 FEW023 33/23 Q1007 SBIL 172100Z 05005KT 9999 SCT025 25/21 Q1012 SBIP 172200Z 02005KT CAVOK 28/18 Q1010 SBJP 172200Z 14006KT 9999 SCT023 26/21 Q1013 SBJR 172100Z 00000KT 9999 FEW030 30/17 Q1007 SBJU 172100Z 15005KT 9999 FEW022 33/13 Q1012 SBJV 172200Z 00000KT 9999 BKN015 BKN030 OVC100 22/21 Q1008 RETS SBKG 172100Z 10015KT 9999 FEW050TCU 25/18 Q1013 SBKP 172200Z 03005KT 9999 RA FEW048 20/18 Q1013 SBLB 171900Z 07025KT CAVOK 25/22 Q1010 W///S4 SBLE 172100Z 09008KT 9999 SCT030 26/17 Q1013 SBLO 172200Z 00000KT 9999 FEW045 25/20 Q1008 SBLP 171900Z 16005KT 9999 TS SCT030 FEW040CB 35/18 Q1009 SBLS 172200Z 11008KT 9999 SCT049 FEW051TCU 25/15 Q1013 RESHRA SBMA 172300Z 00000KT CAVOK 27/25 Q1008 SBMD 172000Z 06007KT CAVOK 32/21 Q1007 SBMG 172200Z 12006KT 9999 FEW040 26/21 Q1006 SBMK 172200Z 07006KT CAVOK 28/14 Q1012 SBMN 172300Z 08002KT 9999 FEW020 29/24 Q1005 SBMO 172300Z 09006KT 9999 SCT020 24/21 Q1013 SBMQ 172300Z 06010KT 9999 FEW017 29/23 Q1008 SBMT 172100Z 05006KT 4000 -TSRA BR SCT011 BKN045 FEW050CB 20/17 Q1013 SBNF 172300Z 08007KT 9999 BKN014 SCT020 23/19 Q1008 SBNM 171900Z 19008KT 9999 SCT020 BKN090 25/21 Q1005 SBNT 172300Z 11009KT 9999 SCT021 SCT100 26/22 Q1012 SBOI 172000Z 08005KT 9999 FEW030 31/21 Q1008 SBPA 172200Z 10015KT 9999 SCT017 BKN040 21/18 Q1006 SBPB 172145Z 08015KT 9999 SCT017 28/23 Q1009 SBPC 171900Z 00000KT 9999 FEW025 25/18 Q1015 RETS SBPF 172100Z 10010KT 9999 SCT015 BKN040 OVC090 20/17 Q1007 SBPJ 172100Z 01003KT 9999 FEW025 FEW030TCU SCT070 31/20 Q1007 SBPK 172045Z 10012KT 9999 FEW030 22/17 Q1007 SBPL 172200Z 05002KT CAVOK 28/13 Q1011 SBPP 172100Z 35004KT 9999 FEW025 28/20 Q1006 SBPR 172100Z 09010KT 9999 SCT035 FEW040TCU 28/14 Q1013 SBPS 172300Z 05007KT 9999 SCT020 24/22 Q1013 SBPV 172300Z 00000KT 9999 SCT030 FEW035TCU 24/23 Q1007 SBQV 172200Z 12004KT CAVOK 21/14 Q1016 SBRB 172300Z 35002KT CAVOK 26/20 Q1006 SBRF 172300Z 10006KT 9999 SCT023 26/20 Q1013 SBRJ 172200Z 10007KT CAVOK 26/19 Q1008 SBRP 172300Z 10004KT CAVOK 24/19 Q1011 SBSC 172200Z 14004KT 9999 FEW030 28/17 Q1008 SBSG 172300Z 15011KT 9999 SCT019 26/22 Q1012 SBSJ 172200Z 22005KT 9999 BKN040 20/17 Q1013 SBSL 172300Z 04009KT CAVOK 27/22 Q1009 SBSM 172200Z 10005KT 9999 FEW040 SCT100 22/18 Q1005 SBSN 172200Z 11005KT CAVOK 30/22 Q1005 SBSP 172300Z 03009KT 9999 SCT007 BKN100 20/18 Q1015 RERA SBSR 172000Z 36004KT CAVOK 30/16 Q1010 SBST 172200Z 27002KT 9999 -RA NSC 23/21 Q1008 SBSV 172300Z 09008KT CAVOK 25/20 Q1013 SBSY 172100Z AUTO 32005KT 9999 -RA ///////// 21/19 Q1012 SBTA 172200Z 22004KT 9999 SCT035 FEW040TCU BKN070 21/18 Q1011 SBTE 172200Z 00000KT CAVOK 32/19 Q1007 SBTF 172245Z 09005KT 9999 -RA FEW013 FEW025TCU BKN090 27/23 Q10 07 SBTK 172100Z 36004KT 9999 FEW020 27/23 Q1006 SBTT 172300Z 00000KT CAVOK 27/24 Q1006 SBTU 171900Z /////KT 9999 SCT025 ///// Q1009 SBUA 171900Z 18003KT 9999 TS SCT030 FEW033CB SCT080 32/25 Q1005 SBUG 172100Z 22009KT CAVOK 26/13 Q1004 SBUR 172000Z 36009KT 9999 FEW035 FEW045TCU BKN100 26/16 Q1012 SBVH 172200Z 35006KT 9999 VCSH SCT030 BKN090 22/21 Q1008 SBVT 172300Z 04014KT 9999 FEW015 25/21 Q1012 SBYS 172200Z 13004KT 090V170 9999 SCT040 FEW050TCU 21/19 Q1012 SCAR 172200Z 20011KT CAVOK 19/12 Q1014 SCAT 172200Z 28008KT 240V320 9999 SCT023 18/10 Q1016 SCBA 172200Z 30027G37KT CAVOK 12/M02 Q1015 SCCF 172200Z 27019KT CAVOK 21/M03 Q1022 SCCH 172200Z 21015KT CAVOK 18/03 Q1019 SCCI 172200Z 25015KT 9999 FEW040 BKN120 09/01 Q1007 NOSIG SCCY 172200Z 25007KT 210V350 9999 FEW033 13/M00 Q1017 SCDA 172200Z 22013KT 9999 FEW027 19/13 Q1013 SCEL 172200Z 21013KT 180V250 9999 BKN170 BKN200 24/05 Q1014 NOSIG SCFA 172200Z 21011KT 9999 SCT020 BKN033 17/13 Q1014 NOSIG SCGE 172100Z 19014KT 9999 FEW030 SCT200 19/03 Q1022 SCIC 172200Z 21013KT CAVOK 19/02 Q1017 SCIE 172200Z 22018KT CAVOK 16/06 Q1021 SCIP 172200Z 11013KT 7000 -SHRA FEW010 SCT017 BKN040 19/17 Q1024 TEMPO 5000 -TS SHRA SCJO 172100Z 18009KT 9999 BKN050 14/04 Q1023 SCNT 172200Z 28022KT 9999 BKN040 BKN100 10/01 Q1010 SCPQ 172200Z AUTO 23011KT 210V270 9999 OVC046 12/03 Q1024 SCQP 172200Z 24014KT 9999 SCT049 13/06 Q1023 SCRM 172200Z 28020KT 7000 OVC004 M01/M01 Q0990 SCSE 172200Z 30010KT 99 SCTE 172200Z 11005KT 9999 BKN033 10/08 Q1025 NOSIG SCTN 172200Z AUTO 16007KT 120V200 CAVOK 11/05 Q1024 SCVD 172200Z AUTO 24010KT 210V270 CAVOK 14/06 Q1023 SCVM 172300Z 32011KT CAVOK 18/10 Q1015 SEAM 172200Z 10008KT 9999 SCT040 BKN300 16/11 Q1022 SECA 172200Z 32011KT 9999 FEW040 SCT200 27/11 Q1014 SECO 172200Z 23002KT 9999 SCT026 BKN100 29/24 Q1006 RMK A2971 SECU 172200Z 23014KT 9999 SCT040 SCT100 17/07 Q1022 SEGS 172200Z 24006KT 9999 BKN020 24/17 Q1011 A2988 SEGU 172200Z 21009KT 9999 FEW030 BKN300 27/19 Q1010 NOSIG RMK A2983 SELT 172200Z 33011KT 9999 SCT030 BKN300 16/09 Q1026 SEMC 172200Z 29003KT 9999 SCT030 BKN120 23/21 Q1012 SEMT 172200Z 21006KT 9999 OVC020 25/21 Q1011 RMK A2987 SENL 172200Z 30004KT 9999 FEW106 BKN100 29/25 Q1006 SEQM 172200Z 02007KT 9999 BKN030 BKN080 16/11 Q1023 NOSIG RMK A3023 SERB 172100Z 18005KT 9999 SCT040 OVC300 18/08 Q1024 SERO 172200Z 31006KT 9999 OVC016 24/19 Q1011 SESA 172200Z 22008KT 9999 BKN013 OVC020 22/19 Q1011 SESM 172200Z 17002KT 9999 SCT040 BKN100 23/20 Q1011 A2988 SEST 172200Z 17012KT 9999 OVC026 22/17 Q1011 RMK A2986 SETN 172200Z 22009KT 9999 BKN030 27/22 Q1009 A2982 SETU 172100Z 06006KT 9999 OVC023 13/11 Q1028 SGAS 172300Z 19007KT 160V220 9999 BKN020 25/21 Q1003 SGEN 172000Z 07005KT 9000 -TSRA BKN018 OVC025 FEW040CB 23/20 Q1003 SGES 172300Z 27004KT 240V320 2000 TSRA BKN008 OVC020 FEW040CB 21/21 Q1004 SKAR 172200Z 27006KT 9999 VCSH SCT020TCU SCT025 27/19 A2995 RMK TCU VCSH/N/NE/SW SKBG 172300Z 32007KT 9999 2000N BCFG FEW008 BKN240 21/21 A2992 SKBO 172300Z 30009KT 9999 FEW020 SCT200 14/10 A3023 SKBQ 172200Z 15007KT 9999 SCT008 BKN080 25/24 A2976 REDZ SKCC 172300Z 32005KT 9999 TS SCT017CB SCT090 28/23 A2977 RMK CB/S SKCG 172300Z 30006KT 8000 SCT012 BKN070 27/25 A2975 RMK BR SKCL 172200Z 10004KT 9000 VCSH SCT015CB BKN120 25/20 A2993 RMKCB/VCSH E/SE SKEJ 172200Z 00000KT 9999 FEW017 29/24 A2972 SKIB 172200Z 00000KT 9999 FEW010 SCT020 BKN100 23/23 A2995 SKIP 172200Z 34005KT 9999 SCT018 SCT200 13/07 A3032 SKLC 172100Z 00000KT 8000 VCSH BKN016TCU 29/24 A2979 RMK VCSH/SW/W SKLT 172300Z 00000KT 9999 FEW015CB BKN200 27/26 A2971 RMK CB/N/NE SKMD 172200Z 27010KT 9999 -TSRA SCT030CB SCT100 21/18 A3005 RMK CB/W/NW SKMR 172200Z 34006KT 9999 FEW010 BKN090 27/25 A2977 SKNV 172200Z 36007KT 9999 VCSH FEW033 SCT120 BKN200 29/22 A2976 RMK VCSH/N SKPC 172100Z 12005KT 9999 VCSH SCT020 33/24 A2966 RMK VCSH/SE SKPE 172300Z 25004KT 9999 FEW019 SCT090 23/19 A2998 SKPS 172200Z 01006KT 8000 VCSH BKN020 18/17 A3011 RMK VCSH/S SKPV 172100Z 01004KT 9999 FEW018 BKN200 29/25 A//// SKRG 172300Z 27004KT 9999 VCSH SCT017CB SCT200 18/14 A3019 RMK CB VCSH/SE/W SKRH 172200Z 31005KT 8000 4000N VCSH SCT013CB BKN080 27/25 A2976 RMK VCSH N SKSM 172200Z 16010KT 9999 FEW020 BKN100 26/25 A2974 SKSP 172300Z 36008KT 300V010 9999 SCT017 28/23 A2983 RMK WS RWY 06 SKUI 172200Z 00000KT 9999 FEW020 BKN080 26/23 A2979 SKVP 172200Z 23007KT 9999 FEW015 BKN100 24/23 A2981 RMK REDZ SKVV 172200Z 0500209KT 9999 VCSH SCT020 SCT090 27/21 A2976 RMK VCSH/NE/SE SLAL 172200Z 01017KT 9999 FEW023 22/03 Q1017 SLCA 172200Z 36005KT 9999 NSC 32/15 Q1003 SLCB 172300Z 25010KT 200V280 9999 FEW030 BKN200 24/05 Q1014 SLCO 172200Z 33007KT 8000 VCSH FEW010 FEW017CB BKN200 24/23 Q1005 SLCP 172200Z 35006KT 9999 BKN015 OVC200 26/25 Q1007 SLET 172200Z 32015G25KT 9999 FEW010 BKN200 26/22 Q1000 SLJE 172200Z 33005KT 9999 BKN017 FEW030CB OVC070 25/22 Q1007 SLJO 172200Z 32005KT 7000 VCSH FEW017 FEW023CB OVC200 30/23 Q1005 SLLP 172300Z 11008KT 8000 VCTSSH FEW020 FEW023CB BKN200 13/03 Q1031 SLMG 172200Z 00000KT 8000 TS VCSH FEW017 FEW023CB BKN200 26/24 Q1004 SLOR 171800Z 22014KT 9999 FEW020 22/00 Q1029 SLPS 172200Z 00000KT 9999 FEW017 BKN200 25/22 Q1005 SLRB 172200Z 36008KT 9999 BKN015 26/23 Q1007 SLRI 172200Z 35007KT 8000 VCSH FEW017 FEW020CB BKN200 31/23 Q1006 SLRQ 172200Z 36004KT 9999 FEW015 SCT023 OVC200 27/24 Q1004 SLRY 172200Z 34008KT 9999 FEW020 OVC200 27/23 Q1003 SLSA 172200Z 36005KT 8000 VCSH SCT017 FEW023CB BKN200 27/23 Q1004 SLSI 172200Z 00000KT 9999 SCT017 BKN200 27/23 Q1005 SLTJ 172200Z 13010KT 9999 FEW070 SCT200 25/10 Q1010 SLTR 172200Z 34011KT 9999 FEW017 FEW020CB OVC200 29/24 Q1001 SLVM 172000Z 03007KT 9999 NSC 36/16 Q0998 SLVR 172300Z 35010G20KT 9999 FEW023 BKN200 25/22 Q1003 SLYA 172200Z 00000KT 9999 NSC 31/19 Q1001 SMJP 172300Z 13001KT 9999 FEW025 26/24 Q1009 NOSIG SMZO 172300Z 06006KT 9999 FEW015 28/24 Q1008 NOSIG SOCA 172230Z AUTO 08003KT CAVOK 27/23 Q1009 NOSIG SPCL 172200Z 33006KT 9999 VCSH BKN025 29/23 Q1005 RMK PP000 SPGM 172100Z 32002KT 9999 SCT040 BKN120 27/22 Q1008 RMK BIRD HAZARD RWY19 PP000 SPHI 172200Z 19017KT CAVOK 21/14 Q1012 RMK BIRD HAZARD RWY 19/01 PP000 SPHO 172200Z 25007KT 200V280 9999 VCTS VCSH SCT025CB OVC070 24/09 Q1018 RMK TX27.3 PP000 SPHY 171900Z /////KT 9999 FEW016 BKN050 16/07 Q1029 RMK BIRD HAZARD RWY 03/21 PP000 SPJA 172130Z 06004KT 9999 SCT020 BKN100 27/21 Q1009 SPJC 172300Z 18009KT CAVOK 19/15 Q1014 NOSIG RMK PP000 SPJI 172100Z 00000KT 9999 BKN030 26/24 Q1014 RMK TX30.6 PP000 SPJJ 172119Z 16009KT 090V210 8000 3000S TSRA FEW030TCU SCT040CB BKN060 11/08 Q1023 SPJL 172200Z 17010KT 9999 BKN020 15/M01 Q1028 RMK T.MAX 21.3 PP000 SPJR 172230Z 24009KT 210V300 9999 FEW030 SCT046 16/03 Q1024 SPLO 172100Z 20006KT CAVOK 21/17 Q1014 RMK TX 22.4 PP000 SPME 172200Z 31009KT 9999 SCT013 23/18 Q1011 RMK BIRD HAZARD RWY 32/14 TX25.9 PP000 SPMS 172200Z 00000KT 9999 FEW015 SCT100 25/24 Q1010 RMK TX32.0 BIRD HAZARD RWY09/27 PP000 SPQT 172200Z VRB01KT 9999 SCT020 30/25 Q1004 NOSIG RMK BIRD HAZARD PP000 SPQU 172200Z 25010KT 210V280 CAVOK 15/06 Q1024 NOSIG RMK TX 19.5 PP000 SPRU 172200Z 15008KT 9000 FEW020 19/16 Q1012 RMK BR TX20.6 PP000 SPSO 172200Z 23014KT CAVOK 21/16 Q1013 RMK BIRD HAZARD RWY 22/04 T MAX21.2 PP000 SPST 172200Z 01005KT 9999 SCT025 SCT100 32/22 Q1004 RMK BIRD HAZARD RWY 17/35 PP000 SPTN 172200Z 22009KT 9999 FEW030 20/12 Q1015 RMK TX24.4 PP000 SPTU 172200Z 33005KT 280V360 9999 SCT040 BKN100 24/24 Q1004 RMK TX32.1 BIRD HAZARD RWY 01/19 PP000 SPYL 172200Z 23010KT CAVOK 23/16 Q1011 RMK BIRD HAZARD RWY 17/35 PP000 SPZO 172230Z 06007KT 9999 FEW040TCU SCT050 BKN100 18/05 Q1024 NOSIG RMK BIRD HAZARD RWY28 SUAA 172100Z 12006KT 9999 FEW033 BKN200 23/14 Q1005 SUCA 172200Z 32007KT 9999 FEW020 23/17 Q1003 RETS SUDU 172100Z 01004KT 9999 FEW030 BKN200 2210 Q1006 SULS 172200Z 09010KT 020V120 9999 FEW030 BKN200 19/12 Q1005 SUMU 172200Z 10005KT CAVOK 21/14 Q1005 NOSIG SVBM 172200Z 11009KT 9999 SCT016 27/19 Q1011 SVMG 172200Z /////KT 9999 FEW010 29/24 Q1018 NOSIG SVMI 172300Z /////KT 9999 FEW016 27/25 Q1007 SVVA 172000Z /////KT 9999 SCT016 30/22 Q1009 SYCJ 172200Z 06006KT 9999 FEW020CB 27/24 Q1008 CB SW NOSIG SYEC 172200Z 05008KT 9999 BKN020 28/24 Q1008 NOSIG TAPA 172200Z 14004KT 9999 FEW020 27/24 Q1010 NOSIG TBPB 172200Z 10007KT 9999 FEW018 27/24 Q1009 NOSIG TDCF 172100Z 33004KT 9999 FEW020 29/23 Q1008 TDPD 172100Z 10006KT 9999 FEW020 28/23 Q1010 TFFF 172230Z AUTO 12004KT CAVOK 27/24 Q1010 NOSIG TFFR 172230Z AUTO 11007KT CAVOK 27/22 Q1010 NOSIG TGPY 172200Z 10008KT 9999 FEW019 28/26 Q1008 NOSIG TIST 172253Z AUTO A2981 RMK AO2 SLP097 PWINO PNO $ TJBQ 172250Z 24005KT 10SM SCT055 26/23 A2981 TJPS 171755Z 18008KT 9SM FEW014 SCT038 BKN210 29/24 TJSJ 172256Z 16004KT 10SM FEW020 SCT100 29/24 A2978 RMK AO2 SLP082 T02940244 TKPK 172300Z 18007KT 9999 FEW022 27/24 Q1010 TKPN 172100Z 13004KT 9999 FEW023 30/21 Q1010 TLPC 172200Z 11005KT 9999 FEW024 28/25 Q1009 NOSIG TLPL 172200Z 11012KT 9999 FEW026 28/24 Q1009 NOSIG TNCA 172200Z 36004KT 320V070 9999 FEW017 28/25 Q1007 A2975 NOSIG TNCB 172155Z 09006KT 060V120 9999 FEW018 29/24 Q1007 TNCC 172300Z 07003KT 9999 FEW017 28/25 Q1008 NOSIG TNCE 172155Z AUTO 19006KT 160V220 //// // ///////// 27/24 Q1009 RE// TNCM 172200Z VRB03KT 9999 FEW020 28/24 Q1009 A2981 NOSIG TQPF 172200Z 17006KT 9999 FEW020 27/24 Q1010 TRPG 172200Z 13005KT 9999 FEW019 27/25 Q1010 TTCP 172200Z 10005KT 9999 SCT018 28/25 Q1008 NOSIG TTPP 172200Z 10006KT 9999 FEW022 28/23 Q1008 NOSIG TUPJ 172100Z VRB03KT 9999 SCT017 27/25 Q1009 RMK A2980 TVSA 172300Z 00000KT 9999 SCT018 27/25 Q1009 NOSIG TXKF 172255Z 01015KT 9999 SCT038 SCT300 21/13 Q1013 UAAA 172230Z 14001MPS 4600 BR SCT200 M05/M07 Q1023 R23R/CLRD65 NOSIG UACC 172230Z 18008MPS CAVOK M01/M02 Q1017 R22/0///70 NOSIG RMK QFE731/0975 UADD 172230Z 12002MPS 9999 NSC M03/M08 Q1022 NOSIG RMK QFE709/0946 UAII 172230Z 11003MPS 5000 BR NSC M00/M03 Q1024 R10/0///70 NOSIG RMK QFE733/0977 UAKK 172230Z 18010MPS CAVOK M01/M04 Q1020 R23/0///70 NOSIG RMK QFE718/0957 UAOO 172200Z 19002MPS CAVOK M03/M05 Q1022 R23/CLRD70 NOSIG RMK QFE755/1007 UARR 172200Z 21003MPS 9999 FEW036 SCT100 M00/M01 Q1027 R22/CLRD70 NOSIG RMK QFE766/1022 UASK 172200Z VRB01MPS 9999 BKN200 M03/M06 Q1030 R30/090060 NOSIG RMK QFE746/0995 UASP 172230Z 18004MPS 9999 SCT022 M03/M04 Q1023 R21/0///70 NOSIG RMK QFE756/1008 UATE 172230Z 05004MPS CAVOK M02/M02 Q1030 R12/0///70 NOSIG RMK QFE770/1027 UATG 172230Z 35001MPS 5000 BR NSC M03/M03 Q1030 R32/CLRD70 NOSIG RMK QFE774/1032 UATT 172230Z 30006MPS 9999 BKN017CB 00/M01 Q1023 R31/29//50 NOSIG RMK QFE747/0996 UAUU 172230Z 27002MPS CAVOK M05/M06 Q1015 R33/190055 NOSIG RMK QFE746/0994 UBBB 172230Z 04008KT 9999 SCT015 OVC029 12/10 Q1027 R88/D NOSIG UBBG 172230Z 08004KT 3000 BR BKN015 10/10 Q1025 R12/CLRD// NOSIG UBBL 172300Z 30005KT 4800 -RA OVC019 14/13 Q1026 R33/CLRD// NOSIG RMK MT OBSC UBBN 172230Z 10006KT 9999 NSC 06/03 Q1023 R14R/CLRD// NOSIG RMK MT OP QFE691 UBBQ 172200Z 00000KT 3600 BR SCT009 OVC019 10/09 Q1026 R16/CLRD// NOSIG RMK MT OBSC UBBY 172200Z 25004KT 8000 SCT009 OVC022 08/06 Q1029 R33/////// NOSIG RMK MT OBSC UCFL 172200Z 35006MPS 9999 NSC M02/M13 Q1025 R07/CLRD70 RMK G/O UCFM 172230Z 16001MPS 0900 0800SW R26/1900 FZFG FU NSC M05/M06 Q1023 R26/CLRD70 NOSIG UCFO 172230Z 17002MPS 4600 BR NSC 01/M03 Q1023 R12/CLRD70 NOSIG UDSG 172230Z 00000KT 7000 NSC M01/M03 Q1023 R02/CLRD70 NOSIG UDYZ 172230Z 06002KT 6000 NSC 05/01 Q1023 R09/000070 NOSIG UEEE 172230Z 24001MPS 9999 -SN NSC M29/M32 Q1021 R23L/490150 NOSIG RMK QFE757 UGKO 172230Z 09012KT 050V110 CAVOK 15/07 Q1018 R07/09//70 NOSIG UGSB 172230Z 13008KT CAVOK 09/07 Q1020 R13/70D NOSIG UGTB 172230Z 17003KT 5000 BR OVC005 10/09 Q1028 R13R/CLRD70 TEMPO 2000 -DZ UHBB 172230Z 31003MPS CAVOK M23/M29 Q1020 R36/810560 NOSIG RMK QFE747/0996 UHHH 172230Z 23003MPS CAVOK M20/M22 Q1016 R23L/CLRD60 NOSIG RMK QFE756/1008 UHMA 172200Z 10011G15MPS 2000 SN BLSN VV011 M01/M02 Q1017 RMK END R01/11013G18MPS QFE759/1012 UHMM 172230Z 00000MPS 9999 NSC M25/M26 Q1003 R10/99//31 NOSIG RMK QFE737 UHPP 172230Z 01004MPS 9999 NSC M00/M07 Q1012 R34L/290155 NOSIG RMK QFE756/1008 UHSS 172230Z 35004MPS 4700 -SHSN BKN023CB M07/M08 Q1010 R01/450365 NOSIG RMK MT OBSC QFE756/1008 UHWW 172230Z 36003MPS 9999 -SHSN BKN030CB M09/M16 Q1020 R25L/450150 NOSIG RMK QFE763 UIAA 172230Z 17002MPS 7000 -SHSN SCT033CB M14/M17 Q1020 R29/490060 NOSIG RMK QFE706/0942 UIBB 172230Z 08001MPS 2300 -SHSN BKN017CB M12/M13 Q1023 RESHSN R30/490237 NOSIG RMK QFE724/0965 UIII 172230Z 17002MPS CAVOK M16/M18 Q1027 R30/810350 NOSIG RMK QFE725/0967 UIUU 172230Z VRB01MPS 9999 -SHSN SCT031CB M12/M17 Q1026 R26/CLRD60 NOSIG RMK QFE724/0966 UKBB 172230Z 22003MPS 5000 BR BKN010 OVC022 02/01 Q1022 R88/CLRD// NOSIG UKDD 172230Z 13003MPS CAVOK 01/M02 Q1023 R08/090070 NOSIG UKDE 172230Z 05002MPS CAVOK 00/M02 Q1023 R02/CLRD70 NOSIG UKDR 172230Z 07002MPS 040V110 9999 -RA OVC026 03/01 Q1023 R36/09//70 NOSIG UKHH 172230Z 14002MPS CAVOK M02/M03 Q1025 R07/0///66 NOSIG UKKK 172230Z 21002MPS 160V240 2700 BR OVC006 02/01 Q1022 R26/290058 TEMPO 1000 BR BKN005 UKKM 172230Z AUTO 17003MPS 3500 BR ///006/// 02/02 Q1021 UKLI 172000Z 00000MPS 2100 -SHRA BR SCT023CB BKN033 04/04 Q1021 R28/190068 NOSIG UKLL 172230Z 30001MPS 1600 -RA BR BKN002 BKN020 03/02 Q1021 R31/290060 NOSIG UKLN 172030Z 00000MPS 2600 BR FEW033CB BKN100 04/04 Q1021 R33/190065 NOSIG UKLU 172000Z 32001MPS 2100 -RA BR OVC020 06/05 Q1020 NOSIG UKOH 172000Z 08006MPS CAVOK 06/03 Q1022 R03/CLRD65 NOSIG UKOO 172230Z 01002MPS 9999 OVC014 06/04 Q1021 R34/090060 NOSIG UKWW 172230Z 18002MPS 7000 OVC013 02/01 Q1021 R13/0///65 NOSIG ULAA 172230Z 16003MPS 110V200 2100 -SN OVC005 M01/M01 Q0996 R08/590537 TEMPO 1000 SN BKN004 RMK QBB150 QFE746/0995 ULLI 172230Z 23003MPS 9999 SCT018 04/02 Q1005 R28L/290050 NOSIG ULMM 172230Z 17001MPS 9999 BKN004 M12/M13 Q0997 R31/690150 NOSIG RMK QBB120 OBST OBSC QFE740 ULOO 172200Z AUTO 21003MPS 8000 // ///009/// 01/01 Q1011 RMK QFE754 ULPB 172200Z AUTO 23006MPS 210V270 9999 // NCD 02/00 Q0999 RMK QFE745/0994 ULWC 172100Z 23003G08MPS 9999 -SHSN BKN006 OVC013CB 01/00 Q1007 R21/690150 TEMPO 1500 SHRASN BKN004 BKN010CB RMK QFE745/0993 UMGG 172200Z 22002MPS 9000 FEW012 OVC032 02/01 Q1021 R28/CLRD// NOSIG UMKK 172200Z 23003MPS 9999 BKN021CB 04/03 Q1018 R24/19//60 NOSIG RMK QFE762/1016 UMMS 172242Z 21002MPS 5000 BR BKN010 BKN027 02/01 Q1019 R13/190060 NOSIG UNAA 172230Z 00000MPS CAVOK M14/M17 Q1030 R20/190060 NOSIG RMK QFE750 UNBB 172230Z 19003MPS CAVOK M04/M06 Q1026 R24/390142 NOSIG RMK QFE747 UNEE 172230Z 17005MPS 9999 OVC019 M03/M06 Q1024 R23/421040 NOSIG RMK QFE745 UNKL 172230Z 26001MPS 9999 SCT039 M04/M09 Q1024 R29/CLRD65 NOSIG RMK QFE742 UNNT 172230Z 19004MPS 9999 OVC032 M01/M04 Q1023 R25/290147 R16/390136 NOSIG RMK QFE757/1010 UNOO 172230Z 20003MPS 9999 BKN010 BKN033CB 00/M01 Q1016 R25/290050 NOSIG RMK QFE754 UNTT 172230Z 20007MPS 5000 -SHSN SCT010 BKN035CB M03/M05 Q1021 R21/490240 NOSIG RMK QFE751 URKA 172230Z AUTO 05006MPS 6000 // NCD 05/04 Q1018 RMK QFE760/1013 URKK 172230Z 07003MPS CAVOK 04/03 Q1020 R23L/CLRD70 NOSIG RMK QFE762 URMG 172230Z 10005MPS 9999 OVC019 04/04 Q1026 R08/000070 NOSIG RMK OBST OBSC QFE755/1006 URML 172230Z 25001MPS 9999 OVC018 08/05 Q1027 R32/01//70 TEMPO 3100 BR SCT007 OVC011 RMK QFE770/1026 URMT 172230Z 12008MPS 4000 BR OVC003 03/03 Q1022 R07/110060 NOSIG RMK QBB090 OBST OBSC QFE726 URRR 172230Z 10006MPS 8000 NSC 01/M01 Q1025 R04/CLRD70 TEMPO 2000 BR RMK QFE762/1016 URSS 172230Z 07004MPS 9999 NSC 10/06 Q1018 R06/090070 R02/090070 NOSIG RMK R02/05003MPS QFE762 URWA 172230Z 00000MPS 7000 NSC M03/M04 Q1031 R09/010070 NOSIG RMK QFE775/1033 URWI 172230Z AUTO 12004MPS 9999 // NCD M02/M03 Q1027 URWW 172230Z 11003MPS CAVOK M00/M03 Q1028 R06/010070 NOSIG USCC 172230Z 28004MPS 8000 -SHSN SCT007 BKN033CB M01/M03 Q1014 R27/450245 NOSIG RMK QFE740 USCM 172230Z 30009G14MPS 8000 BKN040CB M02/M07 Q1016 R36/090060 TEMPO 33015MPS 1100 SHSN VV003 RMK QFE724 USHH 172230Z 17001MPS 9000 -SHSN BKN006CB M05/M06 Q1012 R06/490539 TEMPO 1000 SHSN OVC003CB RMK QFE755 USNN 172230Z 00000MPS 1800 0400SW R03/1100N FZFG VV003 M09/M09 Q1014 R03/39//35 NOSIG RMK QBB110 QFE757 USPP 172230Z 28004MPS 9999 -SN BKN018 M01/M02 Q1015 R21/390235 NOSIG RMK QFE750 USRR 172230Z 08002MPS 6000 SCT004 BKN019 M07/M07 Q1014 R25/390034 TEMPO 2000 BR BKN004 RMK QBB120 OBST OBSC QFE755 USSS 172230Z 26002MPS 9999 -SHSN SCT014 BKN045CB M03/M03 Q1013 R26R/450140 NOSIG RMK QFE739/0986 USTR 172230Z VRB01MPS 3600 -SN BR BKN004 OVC016 M04/M04 Q1013 R30/490543 TEMPO 1200 SN BKN003 RMK QBB120 QFE750/1000 UTAA 172200Z 22004KT 9999 SCT060 BKN100 08/M01 Q1024 R88/CLRD70 NOSIG UTAK 172200Z 00000KT 9999 BKN048 07/07 Q1025 R16R/CLRD70 NOSIG UTAM 172200Z 00000KT 6000 SKC 05/01 Q1027 NOSIG UTAT 172200Z 27008KT CAVOK 07/01 Q1023 R08/CLRD70 NOSIG UTAV 172200Z 00000KT 7000 SKC 01/M01 Q1027 NOSIG UTDD 172230Z 34001MPS 5000 BR SCT039 BKN088 06/04 Q1025 R09/D NOSIG RMK QFE700/0933 UTDK 172230Z 00000MPS 8000 OVC100 08/06 Q1025 R01/09//70 RMK QFE710/0947 UTDL 172230Z 20001MPS 7000 FEW230 01/M02 Q1025 88CLRD70 NOSIG RMK QFE731/0974 UTDT 172230Z 08002MPS 3000 BR SCT060 06/05 Q1024 35////// RMK QFE728/0971 UTFA 172200Z 21002KT 0900 PRFG BR NSC M00/M02 Q1025 R88/09//70 UTFN 172200Z 33004KT 3500 BR NSC 03/M02 Q1024 R28/CLRD70 NOSIG UTNN 172230Z 32008KT CAVOK 05/03 Q1024 R33/CLRD60 NOSIG UTNU 172230Z 21010KT 9999 SCT047 06/M04 Q1023 R31/CLRD70 NOSIG UTSA 172200Z 16008KT 7000 NSC 00/M04 Q1025 R07/CLRD70 NOSIG UTSB 172230Z 19002KT 8000 NSC 01/M03 Q1025 R01/CLRD70 NOSIG UTSK 172200Z 04002KT CAVOK 03/M02 Q1025 R16/CLRD70 UTSS 172200Z VRB02KT 5000 BR NSC 03/M01 Q1025 R09/70D NOSIG UTST 172230Z 00000KT 1300 R25/P2000 BR NSC 05/04 Q1025 R88/CLRD70 TEMPO 0600 FG UTTT 172230Z 07004KT 4000 FU NSC 03/M03 Q1025 R08R/CLRD70 NOSIG UUBC 172200Z AUTO 20004MPS 9999 // ///042/// 02/M01 Q1018 RMK QFE747/0996 UUBW 172230Z 21005MPS CAVOK 02/M01 Q1017 R30/110055 NOSIG UUDD 172230Z 23004MPS 190V260 9999 BKN030 01/M02 Q1017 R14R/010095 NOSIG UUDL 172230Z 21005MPS 9999 OVC014 01/M01 Q1011 R23/290150 TEMPO 3100 -SHSNRA BKN006 BKN020CB RMK QFE750 UUEE 172230Z 21007MPS 9999 BKN045 02/M01 Q1015 R24L/CLRD62 NOSIG UUMO 172230Z 22004MPS 9999 BKN020 02/M01 Q1017 R26/090060 NOSIG RMK QFE748/0997 UUOB 172230Z 20003MPS CAVOK 00/M02 Q1024 R11/090060 NOSIG UUOK 172000Z 14004MPS 2100 1300SE BR NSC M01/M01 Q1024 R12/CLRD65 NOSIG RMK QFE750/1000 UUOO 172230Z 16002MPS 3400 BR OVC002 M01/M01 Q1025 R30/090060 TEMPO 0500 FZFG RMK QBB070 QFE755 UUWW 172230Z 22005MPS 9999 BKN017 01/M01 Q1016 R24/290050 NOSIG UUYY 172230Z 18003MPS 9999 SCT009 BKN021CB M04/M04 Q1009 R19/39//36 NOSIG RMK QFE748/0997 UWGG 172230Z 21004MPS 9999 OVC020 01/M02 Q1017 R18R/190050 TEMPO 23006G12MPS RMK QFE755 UWKE 172230Z 23005MPS 9999 BKN025 M01/M04 Q1019 R21/450555 NOSIG RMK QFE747/0996 UWKS 172230Z 22004MPS 9999 BKN027CB 00/M01 Q1017 R06/620255 NOSIG RMK QFE748 UWLW 172200Z 26005MPS 8000 -SNRA OVC020 01/M01 Q1022 R20/190055 NOSIG RMK QFE761 UWOO 172230Z 28004MPS 9999 FEW040 M01/M02 Q1024 R26/190060 NOSIG RMK QFE757/1009 UWOR 172200Z 29007MPS 9999 BKN020 M00/M02 Q1019 R25/CLRD65 NOSIG RMK QFE741/0988 UWSS 172230Z 27004MPS 9999 BKN025 02/M03 Q1025 R30/010095 NOSIG RMK QFE755 UWUU 172230Z 23003MPS 9999 BKN040 M00/M02 Q1020 R32L/390150 NOSIG RMK QFE752/1003 UWWW 172230Z 22003MPS 9999 SCT033 01/M00 Q1023 R23/550540 NOSIG RMK QFE756/1008 VAAH 172200Z 28003KT 4000 HZ NSC 19/15 Q1011 NOSIG VAAU 171800Z 00000KT 6000 NSC 20/15 Q1014 NOSIG VABB 172230Z 00000KT 2500 HZ NSC 24/18 Q1009 NOSIG VABP 171800Z 05006KT 6000 NSC 20/15 Q1014 NOSIG VAID 171800Z 36004KT 4000 HZ NSC 21/15 Q1014 VANP 172230Z 00000KT 3000 HZ NSC 22/20 Q1011 NOSIG VCBI 172210Z 09003KT 050V130 6000 SCT017 26/23 Q1008 NOSIG VCRI 172110Z VRB02KT 9999 FEW280 24/24 Q1008 NOSIG VDPP 171930Z VRB03KT 9000 FEW017 FEW020CB BKN040 28/26 Q1006 CB VDSR 171930Z 00000KT 8000 SCT017 26/26 Q1007 VEBN 172230Z 00000KT 2500 HZ NSC 22/19 Q1011 NOSIG VEBS 172230Z 03004KT 2500HZ BKN016 OVC090 22/22 Q1009 NOSIG VECC 172230Z 04003KT 1600 BR FEW020 SCT100 22/21 Q1010 NOSIG VEGY 171800Z 10003KT 2500 BR FEW018 BKN100 22/20 Q1013 VEPT 172230Z 00000KT 2000 HZ FEW018 20/19 Q1010 NOSIG VERC 171800Z 00000KT 2000 HZ SCT015 BKN100 19/19 Q1016 NOSIG VERP 171800Z 12002KT 5000 HZ SCT100 22/20 Q1013 NO SIG VGHS 172230Z 00000KT 3500 HZ FEW015 SCT100 24/22 Q1011 NOSIG VHHH 172230Z 03004KT 360V060 8000 FEW008 SCT016 25/22 Q1010 TEMPO 4000 BR VIAR 172230Z 00000KT 2000 BR FEW035 SCT090 13/13 Q1015 NOSIG VIDP 172230Z 27003KT 1500 R28/P2000 R29/P2000 BR SCT040 BKN100 18/14 Q1013 NOSIG VIGR 171800Z 00000KT 2000 HZ FEW100 16/14 Q1014 VIJP 172230Z 00000KT 2000 FU SCT035 SCT100 18/12 Q1014 NOSIG VILK 172230Z 00000KT 2000 BR FEW100 17/15 Q1012 VMMC 172230Z 33004KT 7000 FEW025 23/22 Q1010 TEMPO 4500 BR VNKT 172250Z 10003KT 6000 FEW020 11/10 Q1018 NOSIG VOBG 171800Z 07004KT 6000 SCT012 SCT080 22/20 Q1015 VOBL 172230Z 12005KT 050V160 3000 BR SCT010 20/20 Q1013 NOSIG VOBZ 171800Z 00000KT 2500 HZ FEW020 BKN100 25/24 Q1009 NOSIG VOCB 172230Z VRB03KT 3000 BR FEW015 24/22 Q1010 NOSIG VOCI 172230Z 00000KT 2500 BR SCT015 FEW025CB BKN080 27/24 Q1007 NOSIG VOCL 172230Z 08003KT 2500 BR FEW012 SCT090 25/22 Q1007 NOSIG VOGO 172000Z 02006KT 3000 BR FEW020 SCT090 25/23 Q1007 TEMPO 2000 HZ VOHS 172230Z 14003KT 5000 BR SCT015 SCT100 21/21 Q1012 NOSIG VOMD 172100Z 00000KT 6000 FEW018 SCT100 25/22 Q1010 NOSIG VOML 172230Z 00000KT 2000 BR FEW006 25/23 Q1007 NOSIG VOMM 172230Z 26003KT 2000 BR SCT020 27/26 Q1008 TEMPO 1500 BR VOTR 172230Z 00000KT 3500 BR NSC 25/24 Q1008 NOSIG VOTV 172230Z 13003KT 3000 HZ FEW015 SCT080 27/25 Q1007 NOSIG VOVZ 172100Z 31004KT 6000 FEW014 SCT090 25/23 Q1009 NOSIG VRMM 172200Z 32004KT 9999 FEW018 BKN120 28/25 Q1008 NOSIG VTBD 172230Z 26003KT 220V300 7000 FEW030 27/26 Q1008 NOSIG VTBS 172230Z VRB01KT 4000 BR NSC 26/24 Q1008 NOSIG VTBU 172230Z 36003KT 2000 BR FEW020 SCT100 25/22 Q1008 NOSIG VTCC 172230Z 00000KT 9999 FEW035 23/21 Q1012 NOSIG VTCP 172200Z AUTO 00000KT 9999 // ////// 24/24 Q1009 VTCT 172230Z AUTO 00000KT 9000 NCD 21/21 Q1011 VTSB 172200Z 00000KT 5000 BR FEW020 24/24 Q1008 VTSG 172200Z 05003KT 9000 FEW020 23/22 Q1008 VTSM 172230Z 00000KT 9999 FEW020 26/25 Q1009 VTSP 172200Z VRB02KT 9999 FEW022 25/23 Q1009 NOSIG VTSS 172230Z 34002KT 6000 FEW020 24/24 Q1008 NOSIG VTUD 172200Z 00000KT CAVOK 24/24 Q1008 VTUK 172200Z 30005KT 270V330 9000 NSC 25/24 Q1007 NOSIG VTUO 172200Z 22003KT 4000 BR NSC 24/24 Q1008 A2979 INFO W RWY 04 VTUQ 172200Z AUTO 23004KT ////NDV ////// 23/23 Q1009 A2980 VTUU 172200Z 00000KT 9000 FEW023 24/24 Q1008 NOSIG VTUV 172200Z 00000KT 8000 NSC 23/12 Q1007 A2976 INFO W RWY 36 VVCI 172230Z 10005KT 9999 BKN031 25/22 Q1008 NOSIG VVCR 172230Z 32006KT 9999 FEW015 25/25 Q1008 NOSIG VVCT 172230Z VRB01KT 9999 SCT013 FEW015TCU 26/26 Q1008 NOSIG VVDN 172230Z 00000KT 7000 FEW013 SCT060 25/24 Q1008 NOSIG VVNB 172230Z 08003KT 030V100 7000 FEW009 BKN014 26/25 Q1008 NOSIG VVPB 172230Z VRB02KT 2000 BR NSC 24/24 Q1008 NOSIG VVPQ 172230Z VRB01KT 9999 SCT015 26/25 Q1007 NOSIG VVTS 172230Z VRB02KT 8000 R25R/1900VP2000N FEW015 BKN050 26/26 Q1008 NOSIG VYMD 172230Z 29002KT 5000 SCT020 SCT100 21/20 Q1010 VYYY 172230Z 30003KT 6000 NSC 25/23 Q1009 WAAA 172300Z 12004KT 080V150 9999 FEW020 28/22 Q1008 NOSIG WABB 172200Z 00000KT 9999 FEW018 27/24 Q1008 NOSIG WADD 172230Z 28003KT 200V330 6000 VCSH FEW011 FEW013CB 26/24 Q1008 NOSIG RMK CB IN CLIMB OUT WADL 172300Z 33001KT 7000 FEW016 25/25 Q1009 NOSIG WAHS 172230Z 09002KT 6000 FEW015 25/23 Q1007 NOSIG WALL 172230Z 28006KT 9999 FEW017CB SCT018 26/24Q1008 RMK CB TO N WAMM 172230Z 00000KT 9999 FEW021 26/24 Q1009 NOSIG WAOO 172230Z AUTO 08004KT 9999 NCD 24/24 Q1008 WAPP 172230Z 35005KT 9999 SCT018 26/24 Q1007 NOSIG WAQQ 172230Z 32002KT 9000 SCT015 25/24 Q1008 WARR 172230Z 00000KT 2000 HZ FEW020 24/24 Q1007 NOSIG WATT 172230Z 14007KT 9999 FEW018 28/24 Q1008 NOSIG WBGB 172200Z VRB03KT 9999 SCT016 BKN150 25/25 Q1008 WBGG 172230Z VRB01KT 9999 FEW015CB SCT020 BKN300 24/24 Q1008 NOSIG WBGR 172200Z VRB03KT 9999 -RA SCT014 OVC140 25/24 Q1007 WBGS 172200Z 14003KT 9999 FEW008 BKN150 24/23 Q1008 WBGY 172200Z 00000KT 9999 FEW022 SCT150 BKN300 25/24 Q1008 WBKK 172230Z VRB02KT 9999 FEW014 SCT140 BKN270 24/23 Q1007 NOSIG WBKL 172200Z 00000KT 9999 SCT012 FEW015CB SCT040 OVC280 25/24 Q1007 WBKS 172200Z VRB02KT 9999 FEW010 SCT130 BKN260 25/24 Q1007 WBKT 172200Z 21004KT 190V250 9999 FEW014 SCT140 BKN270 25/23 Q1006 WBKW 172200Z 00000KT 9999 FEW017 BKN300 23/22 Q1008 WBSB 172230Z 17005KT 9000 -RA FEW003 BKN150 24/24 Q1008 NOSIG WIBB 172230Z 00000KT 6000 FEW015 24/23 Q1007 WIDD 172230Z 00000KT 9999 FEW014 25/24 Q1009 NOSIG WIHH 172200Z 00000KT 5000 HZ NSC 25/24 Q1007 NOSIG WIII 172230Z 19003KT 5000 BR SCT021 25/24 Q1008 NOSIG WIMM 172230Z 20003KT 5000 BR SCT018 24/24 Q1007 WIOO 172200Z 00000KT 5000 BR SCT013 25/24 Q1008 NOSIG WIPP 172230Z 21002KT 6000 SCT012 26/24 Q1008 WMAU 172200Z AUTO 26005KT //// // 24/24 Q//// QFF1007 WMBA 172200Z VRB01KT 9000 FEW008 BKN280 24/24 Q1007 WMKA 172200Z 00000KT 9000 FEW030 BKN280 25/24 Q1007 WMKB 172200Z VRB02KT 7000 FEW025 SCT140 BKN270 25/24 Q1007 NOSIG WMKC 172200Z 00000KT 9999 FEW020 BKN280 24/24 Q1007 WMKD 172200Z 00000KT 7000 FEW004 BKN280 24/24 Q1007 NOSIG WMKE 172200Z AUTO VRB01KT //// // 23/23 Q1007 WMKI 172200Z VRB02KT 9999 FEW030 BKN280 24/23 Q1007 WMKJ 172200Z 00000KT 5000 BR FEW010 BKN300 24/24 Q1007 WMKK 172230Z VRB01KT 9000 FEW017CB SCT140 BKN280 25/24 Q1007 NOSIG WMKL 172200Z VRB02KT 9999 FEW026 SCT140 BKN280 25/24 Q1007 WMKM 172200Z 00000KT 9999 FEW028 SCT140 BKN280 24/23 Q1008 WMKN 172200Z VRB02KT 9999 FEW022 BKN300 25/24 Q1007 WMKP 172230Z VRB03KT 8000 FEW025 BKN280 25/24 Q1007 NOSIG WMSA 172200Z 00000KT 6000 FEW017CB BKN280 25/24 Q1008 WSAP 172200Z 00000KT 9999 FEW018 SCT300 27/25 Q1007 WSSL 172200Z 00000KT 9999 FEW018 BKN300 27/24 Q1007 RMK 2130Z Q1007 WSSS 172230Z VRB02KT 9000 FEW018 BKN300 26/25 Q1008 NOSIG YABA 172207Z AUTO 28005KT 8000 // SCT034 15/14 Q1006 YAMB 172239Z AUTO 17001KT 6000 RA SCT007 BKN018 OVC033 19/17 Q1017 YARG 172200Z AUTO 35006KT 9999 // NCD 30/22 Q1010 YAYE 172200Z AUTO 11009KT 9999 // NCD 25/12 Q1013 YBAS 172230Z AUTO 06009KT 9999 // NCD 26/10 Q1015 RF00.0/000.0 YBBN 172230Z 04005KT 9999 VCSH FEW005 SCT015 BKN034 22/17 Q1017 INTER 2230/0130 3000 SHRA BKN012 BKN025 YBCG 172230Z AUTO 06014KT 9999 // SCT025 BKN032 OVC043 21/17 Q1017 YBCS 172230Z 16008KT 9999 FEW028 27/20 Q1012 NOSIG YBCV 172200Z AUTO 01014KT 9999 // NCD 23/14 Q1013 YBDV 172200Z AUTO 20008KT //// // ////// 22/04 Q1012 YBHI 172200Z AUTO 17010KT 9999 // NCD 18/12 Q1015 YBHM 172230Z AUTO 11013KT 9999 // NCD 27/19 Q1014 YBMA 172230Z AUTO 16008KT 9999 // NCD 30/01 Q1013 YBMK 172200Z AUTO 10010KT 9999 // SCT036 26/18 Q1013 YBNA 172200Z AUTO 07014KT 9999 // OVC072 23/15 Q1018 YBOK 172200Z AUTO 06018KT 9999 // SCT110 21/12 Q1016 YBPN 172200Z AUTO 13009KT 9999 // BKN051 25/20 Q1013 YBRK 172230Z AUTO 16008KT 9999 // SCT021 SCT105 SCT125 23/17 Q1016 YBRM 172230Z AUTO 18004KT 150V210 9999 // NCD 28/24 Q1008 RF00.0/000.0 YBTL 172230Z 11011KT 060V120 9999 SCT028 28/19 Q1012 NOSIG YBUD 172200Z AUTO 20007KT 9999 // OVC081 19/17 Q1017 YBWP 172200Z AUTO 10011KT 9999 // NCD 27/21 Q1010 YBWX 172200Z AUTO 25008KT //// // ////// 23/17 Q1010 YCAR 172200Z AUTO 22009KT 9999 // BKN043 OVC049 20/15 Q1010 YCAS 172200Z AUTO 26001KT //// // ////// 18/17 Q1018 YCBA 172200Z AUTO 01014KT 9999 // NCD 22/15 Q1014 YCBB 172200Z AUTO 02008KT //// // ////// 14/14 Q1018 YCBP 172200Z AUTO 05010KT 9999 // NCD 22/M00 Q1015 YCCY 172200Z AUTO 13004KT 120V180 //// // ////// 29/M02 Q1012 YCDU 172200Z AUTO 06014KT 9999 // NCD 19/09 Q1013 YCFS 172230Z AUTO 03008KT 9999 // SCT034 BKN040 OVC081 22/16 Q1019 YCIN 172230Z AUTO 24006KT 9999 // NCD 28/22 Q1008 RF00.0/000.0 YCNM 172200Z AUTO 07011KT //// // ////// 18/17 Q1016 YCOM 172200Z AUTO 07010KT 9999 // SCT013 BKN033 BKN057 13/12 Q1022 YDBY 172200Z AUTO 10003KT 9999 // NCD 28/21 Q1008 YEML 172200Z AUTO 10012KT 9999 // NCD 21/17 Q1015 YESP 172230Z AUTO 25010KT 9999 // BKN007 18/15 Q1005 YFRT 172230Z AUTO 03019KT //// // ////// 29/06 Q1007 YGEL 172230Z AUTO 21003KT 9999 // SCT043 BKN073 18/16 Q1008 YGFN 172200Z AUTO 08005KT 9999 // SCT045 BKN077 OVC087 20/18 Q1018 YGLA 172230Z AUTO 18005KT 9999 // OVC120 22/17 Q1016 RF00.0/000.4 YGTE 172200Z AUTO 13003KT 9999 // NCD 27/25 Q1009 YGTH 172200Z AUTO 06013KT 9999 // SCT110 22/13 Q1015 YHID 172230Z AUTO 12011KT 9999 // SCT022 BKN026 OVC033 29/24 Q1009 YHUG 172200Z AUTO 03005KT 9999 // NCD 26/14 Q1012 YKRY 172200Z AUTO 06008KT 9999 // NCD 19/13 Q1017 YLEC 172200Z AUTO 15004KT //// // ////// 21/09 Q1014 YLHI 172230Z AUTO 10020KT 9999 // SCT030 SCT078 20/15 Q1021 YLIS 172230Z AUTO 00000KT 7000 // BKN006 OVC010 19/17 Q1018 YLRE 172200Z AUTO 02009KT 9999 // NCD 26/18 Q1011 YMAV 172230Z AUTO 04006KT 9999 // NCD 20/17 Q1016 RF00.0/000.0 YMAY 172200Z AUTO 00000KT 9999 // OVC073 19/15 Q1017 YMDG 172230Z AUTO 05006KT 9999 RA SCT021 BKN028 BKN033 16/16 Q1018 YMEK 172200Z AUTO 28006KT 9999 // BKN060 22/12 Q1010 YMEN 172200Z AUTO 08006KT 9999 // NCD 21/15 Q1016 YMER 172200Z AUTO 04008KT 9999 // SCT028 SCT036 21/17 Q1021 YMHB 172230Z 01008KT 9999 SCT040 21/12 Q1022 YMIA 172200Z AUTO 02005KT 9999 // OVC028 18/13 Q1015 YMLT 172230Z AUTO 03003KT 9999 // SCT047 19/12 Q1022 RF00.0/000.0 YMML 172230Z 09009KT 9999 FEW040 22/14 Q1016 NOSIG YMOR 172200Z AUTO 05011KT 9999 // OVC062 18/15 Q1017 YMTG 172230Z AUTO 03004KT 9999 // OVC002 15/15 Q1016 YNAR 172200Z AUTO 07013KT //// // ////// 22/14 Q1016 YNBR 172200Z AUTO 16003KT 9999 // OVC105 18/16 Q1017 YNTN 172200Z AUTO 15008KT 9999 // NCD 28/21 Q1011 YNWN 172200Z AUTO 25007KT 9999 // NCD 25/11 Q1010 YOLD 172200Z AUTO 14007KT 9999 // NCD 20/11 Q1015 YPAD 172230Z 14005KT 9999 FEW013 BKN016 17/13 Q1016 NOSIG YPBO 172200Z AUTO 27011KT 9999 // SCT035 23/14 Q1011 YPCC 172230Z AUTO 15007KT 9999 // SCT038 BKN044 OVC055 26/20 Q1009 YPDN 172230Z 10005KT 9999 FEW018 SCT350 28/23 Q1009 NOSIG YPEA 172246Z AUTO 02005KT 9999 // BKN013 BKN051 BKN100 17/15 Q1007 YPGV 172230Z AUTO 06009KT 9999 // SCT020 SCT060 30/24 Q1010 YPJT 172253Z AUTO 33009KT 9999 // BKN012 OVC085 18/16 Q1006 YPKG 172230Z AUTO 19006KT 9999 // BKN115 21/14 Q1006 YPKU 172242Z AUTO 36008KT 9999 // NCD 29/24 Q1010 RF00.0/000.0 YPLM 172230Z AUTO 22005KT 9999 // SCT050 22/17 Q1010 YPPD 172258Z AUTO 24015KT 9999 // NCD 26/19 Q1009 YPPH 172230Z 34011KT 9999 FEW015 BKN040 18/16 Q1006 INTER 0000/0130 VRB25G45KT 2000 TSRA BKN010 FEW022CB YPTN 172230Z AUTO 12002KT 9999 // NCD 26/23 Q1010 YPWR 172230Z AUTO 13008KT 9999 // NCD 19/12 Q1015 YPXM 172230Z AUTO 23001KT 9999 // NCD 21/20 Q1010 YRMD 172200Z AUTO 34009KT 9999 // NCD 29/17 Q1011 YSCB 172230Z 09008KT 9999 -SHRA BKN022 OVC040 16/13 Q1020 FM2330 08012KT 9999 -SHRA SCT030 BKN050 YSDU 172230Z AUTO 06009KT 9999 // BKN079 OVC090 18/15 Q1017 YSNF 172237Z AUTO 17016G26KT 9999 // BKN022 20/14 Q1014 YSNW 172230Z AUTO 04008KT 6000 // BKN023 BKN030 BKN039 17/17 Q1020 YSRI 172230Z AUTO 06008KT 9999 // BKN032 BKN039 OVC064 22/16 Q1019 YSSY 172230Z 04016KT 9999 VCSH FEW015 SCT025 BKN055 21/17 Q1019 INTER 2230/0130 4000 SHRA BKN010 FM2230 MOD TURB BLW 5000FT YSTW 172230Z AUTO 00000KT 9999 // BKN060 OVC073 OVC087 19/11 Q1018 YSWG 172200Z AUTO 09010KT 9999 // SCT048 BKN078 OVC092 19/15 Q1017 YTEF 172200Z AUTO 07003KT //// // SCT100 SCT120 27/14 Q1009 YTNK 172200Z AUTO 10005KT 9999 // NCD 28/18 Q1013 YTRE 172200Z AUTO 02006KT 9999 // BKN078 21/15 Q1019 YWGT 172200Z AUTO 11006KT 9999 // SCT070 SCT100 21/13 Q1017 YWHA 172200Z AUTO 12008KT 9999 // OVC022 18/12 Q1015 YWLM 172230Z AUTO 05012KT 9999 // SCT037 SCT100 23/14 Q1018 ZBAA 172230Z 32004G09MPS 280V350 CAVOK M03/M20 Q1036 NOSIG ZBHH 172200Z 09002MPS CAVOK M18/M24 Q1033 NOSIG ZBSJ 172200Z 20002MPS CAVOK M06/M14 Q1037 NOSIG ZBTJ 172230Z 33003MPS CAVOK M07/M20 Q1036 NOSIG ZBYN 172230Z 32006MPS CAVOK M07/M19 Q1033 NOSIG ZGGG 172230Z 35002MPS 300V020 4500 BR OVC023 24/22 Q1010 BECMG AT2340 01007MPS ZGHA 172200Z 35009MPS 2000 -RA BR BKN007 OVC050 10/08 Q1022 BECMG TL2350 3500 ZGKL 172200Z 04006MPS 9999 SCT033 BKN043 16/13 Q1017 NOSIG ZGNN 172200Z 07003MPS 040V100 7000 FEW009 24/23 Q1009 NOSIG ZGOW 172200Z 00000MPS 3500 BR NSC 21/21 Q1010 BECMG 2100 BR ZGSZ 172200Z 05002MPS 340V120 5000 BR FEW020 24/22 Q1010 NOSIG ZHCC 172200Z 02005MPS CAVOK 01/M18 Q1035 NOSIG ZHHH 172200Z 04006MPS 8000 NSC 09/02 Q1026 NOSIG ZJHK 172200Z 10002MPS 2000 BR BKN004 24/24 Q1009 BECMG 3000 BR ZJSY 172200Z VRB01MPS CAVOK 24/22 Q1009 NOSIG ZLLL 172200Z 33003MPS CAVOK M07/M09 Q1026 NOSIG ZLXY 172200Z 04003MPS CAVOK 06/M05 Q1032 NOSIG ZMUB 172300Z 00000MPS 8000NW NSC M26/M30 Q1025 NOSIG RMK QFE660.7 70 NT ZPPP 172200Z 03004MPS 6000 SCT026 SCT036 09/09 Q1022 NOSIG ZSAM 172200Z 04001MPS 5000 BR NSC 21/20 Q1009 NOSIG ZSFZ 172200Z 04009MPS 5000 -RA BR BKN003 OVC010 20/20 Q1012 NOSIG ZSHC 172230Z 01009MPS 8000 BKN007 BKN020 12/09 Q1023 NOSIG ZSNB 172200Z 36006MPS 330V040 6000 -RA SCT005 BKN016 OVC033 14/12 Q1020 NOSIG ZSNJ 172200Z 03004MPS 360V080 9999 SCT026 08/04 Q1027 NOSIG ZSOF 172200Z 02005MPS CAVOK 07/01 Q1030 NOSIG ZSPD 172230Z 01010MPS 9999 FEW020 OVC033 12/08 Q1022 NOSIG ZSQD 172200Z 01006MPS CAVOK 01/M09 Q1031 NOSIG ZSSS 172230Z 01009MPS 9999 BKN023 11/07 Q1023 NOSIG ZUCK 172200Z 01004MPS 2000 BR FEW005 BKN023 OVC043 14/13 Q1020 BECMG TL2330 3200 ZUGY 172200Z 06004MPS 9999 FEW010 BKN015 OVC033 12/10 Q1020 NOSIG ZUUU 172200Z 34001MPS 9999 SCT050 15/11 Q1022 NOSIG ZWSH 172200Z 30005MPS CAVOK 02/M08 Q1026 NOSIG ZWWW 172230Z 33001MPS 0700 R25/0600N FZFG VV003 M00/M01 Q1033 NOSIG ZYCC 172200Z 29002MPS CAVOK M14/M18 Q1027 NOSIG ZYHB 172200Z 26003MPS CAVOK M16/M19 Q1025 NOSIG ZYTL 172230Z 02006MPS 350V050 9999 SCT033 M05/M14 Q1032 NOSIG ZYTX 172230Z 32003MPS CAVOK M10/M21 Q1031 NOSIG
Current TAF: AGGH 171710Z 1718/1818 VRB03KT 9999 FEW015 FM172300 05010KT 9999 SCT020 PROB40 INTER 1802/1807 5000 TSSH SCT017 SCT018CB BKN027 T 24 27 31 32 Q 1005 1007 1007 1005 BGTL 172010Z 1720/1824 14009KT 9999 SCT015 OVC030 QNH3024INS BECMG 1723/1724 10015G25KT 6000 -SN DRSN OVC030 620303 520008 QNH3033INS BECMG 1808/1809 11012G18KT 9999 NSW SCT050 510003 QNH3052INS TXM15/1721Z TNM26/1809Z LAST NO AMDS AFT 1720 NEXT 2002 BIAR 171951Z 1721/1821 12007KT 9999 -SHSN FEW015 BKN025 TX00/1721Z TNM06/1805Z TEMPO 1721/1723 2500 SN OVC008 BIEG 171951Z 1721/1821 31015KT 9999 -SHSN FEW010 SCT015 BKN025 TX02/1803Z TNM03/1821Z TEMPO 1721/1803 31020G35KT TEMPO 1721/1809 2500 SN BKN010 OVC015 BECMG 1808/1810 25007KT BIKF 171951Z 1721/1821 33008KT 9999 BKN050 TX01/1721Z TNM03/1808Z PROB40 TEMPO 1721/1803 3000 SHSN BKN015CB BIRK 171951Z 1721/1821 33012KT 9999 BKN035 TX01/1721Z TNM04/1808Z PROB40 TEMPO 1721/1802 3000 SHSN BKN015CB BECMG 1802/1805 VRB02KT BKPR 171730Z 1718/1818 01013KT 9999 SCT015 BKN040 TEMPO 1718/1810 5000 RA BKN010 CBBC 171838Z 1719/1806 13006KT P6SM BKN040 TEMPO 1719/1806 3SM -RA BR BKN020 OVC040 BECMG 1720/1722 16015G25KT RMK FCST BASED ON AUTO OBS. NXT FCST BY 180100Z CWSA 172204Z 1722/1801 24020G30KT P6SM SCT030 TEMPO 1722/1801 5SM HZ BKN020 RMK FCST BASED ON AUTO OBS. NXT FCST WILL BE ISSUED AT 180845Z CWWU 172013Z 1720/1818 08010KT P6SM SCT015 OVC120 BECMG 1720/1722 08015G25KT 6SM BR OVC010 FM180400 08020G30KT 4SM -RA BR OVC008 FM180800 08015G25KT 6SM -RA BR OVC008 BECMG 1811/1813 P6SM BKN008 FM181400 VRB04KT P6SM BKN010 RMK FCST BASED ON AUTO OBS. NXT FCST BY 180000Z CYAB 171838Z 1719/1721 12018KT P6SM FEW015 SCT030 BKN070 TEMPO 1719/1721 P6SM -SN BKN015 RMK NXT FCST WILL BE ISSUED AT 181945Z CYAH 171738Z 1718/1722 04010KT 5SM -SN OVC020 TEMPO 1718/1722 P6SM -SN OVC030 RMK FCST BASED ON AUTO OBS. NXT FCST WILL BE ISSUED AT 181145Z CYAM 171938Z 1720/1808 12010G20KT P6SM BKN070 FM172200 15010G20KT P6SM -SN OVC030 TEMPO 1722/1724 3SM -SN OVC015 FM180000 16012G22KT 3SM -SN OVC015 TEMPO 1800/1803 3/4SM -SN VV007 PROB30 1800/1803 1SM -FZRA -PL BR FM180300 15015G25KT 3/4SM RA BR OVC003 TEMPO 1803/1806 2SM -RA BR OVC006 BECMG 1804/1806 15007KT RMK NXT FCST BY 180200Z CYAS 171438Z 1715/1722 01018KT P6SM FEW020 FM171800 02015KT P6SM SCT020 TEMPO 1718/1722 P6SM -SHSN BKN020 RMK NXT FCST WILL BE ISSUED AT 181445Z CYAT 171338Z 1714/1720 16008KT P6SM BKN220 TEMPO 1714/1715 BKN002 BECMG 1716/1718 16015G25KT FM171800 16015G25KT P6SM OVC120 TEMPO 1718/1720 P6SM -SN RMK FCST BASED ON AUTO OBS. WND SENSORS INOP. NXT FCST WILL BE ISSUED AT 180945Z CYAW 171837Z 1718/1806 FCST CNCLD DUE END OF FLYING PROGRAM RMK NXT FCST WILL BE ISSUED AT 201115Z CYAY 171938Z 1720/1808 07015KT P6SM OVC015 TEMPO 1720/1723 SCT015 OVC025 FM172300 04015G25KT 6SM -RASN SCT008 OVC012 TEMPO 1723/1803 3SM -RASN BKN008 OVC012 FM180300 07015G25KT 6SM -RASN OVC005 RMK FCST BASED ON AUTO OBS. NXT FCST BY 180200Z CYAZ 171738Z 1718/1801 VRB02KT P6SM FEW015 FEW090 BKN270 BECMG 1718/1720 SCT015 BKN040 FM172100 VRB03KT P6SM SCT015 BKN040 TEMPO 1721/1801 3SM -SHRA BR BKN015 RMK NXT FCST WILL BE ISSUED AT 181645Z CYBB 171838Z 1719/1724 17005KT 6SM -SN OVC012 TEMPO 1719/1724 P6SM NSW SCT012 BKN030 BECMG 1720/1722 14010KT RMK NXT FCST WILL BE ISSUED AT 181745Z CYBC 171938Z 1720/1808 34010G20KT 5SM -SHSNRA OVC015 TEMPO 1720/1808 P6SM NSW SCT015 BKN030 RMK FCST BASED ON AUTO OBS. NXT FCST BY 180200Z CYBG 172030Z 1721/1818 29020G30KT P6SM BKN030 TEMPO 1721/1724 3SM -SHSN BKN015 FM180000 28012KT P6SM SCT030 BECMG 1804/1806 28005KT FM180900 VRB03KT P6SM SCT010 BECMG 1814/1816 10005KT SCT010 OVC100 RMK NXT FCST BY 180000Z CYBK 172247Z 1722/1806 09020G30KT 3/4SM -SN BLSN VV008 TEMPO 1722/1806 3SM -SN BLSN OVC012 RMK NXT FCST BY 180000Z CYBL 171838Z 1719/1805 VRB03KT P6SM FEW070 BKN250 FM180000 11005KT P6SM SCT020 BKN050 TEMPO 1800/1805 P6SM -SHRA BKN020 RMK NXT FCST BY 180100Z CYBN 172204Z 1718/1806 FCST CNCLD DUE END OF FLYING PROGRAM RMK NXT FCST WILL BE ISSUED AT 201015Z CYBR 171745Z 1718/1806 25012KT P6SM SKC BECMG 1719/1721 27015KT FM172200 28012KT P6SM SKC BECMG 1801/1803 28008KT BKN025 FM180300 28008KT P6SM BKN025 TEMPO 1803/1806 BKN020 RMK NXT FCST BY 180000Z CYBW 172107Z 1721/1805 VRB03KT P6SM SCT009 TEMPO 1721/1723 5SM -SN BR BKN009 FM172300 VRB03KT P6SM FEW012 SCT060 TEMPO 1723/1802 BKN012 FM180200 VRB03KT P6SM FEW060 RMK FCST BASED ON AUTO OBS. NXT FCST BY 180000Z CYBX 172238Z 1722/1808 08025G35KT 6SM -SNRA SCT008 OVC050 TEMPO 1722/1802 3SM -SNRA OVC008 PROB30 1722/1724 P6SM -PL FM180200 08025G40KT 3SM -SNRA OVC005 RMK NXT FCST BY 180200Z CYCA 171938Z 1720/1808 ADVISORY OFFSITE VRB03KT P6SM FEW020 BKN070 OVC200 TEMPO 1720/1724 5SM -SN BKN020 OVC070 FM180000 07010KT 6SM -SN OVC012 TEMPO 1800/1808 3SM -SN OVC006 RMK NXT FCST BY 180200Z CYCB 171842Z 1719/1807 04012KT P6SM -SN SCT015 BKN030 TEMPO 1719/1807 4SM -SN BKN015 OVC030 RMK NXT FCST BY 180100Z CYCD 171740Z 1718/1805 VRB03KT P6SM FEW050 SCT090 BKN240 TEMPO 1719/1805 BKN040 RMK NXT FCST BY 180000Z CYCG 171838Z 1719/1801 16008KT P6SM SCT030 BKN060 TEMPO 1719/1720 5SM -SHRA BR FEW010 BKN025 FM172000 18008KT P6SM SCT040 BKN080 TEMPO 1720/1723 P6SM -SHRA FEW020 BKN040 RMK NXT FCST WILL BE ISSUED AT 181545Z CYCO 171842Z 1719/1807 22010KT P6SM IC SCT015 BKN050 TEMPO 1719/1807 5SM IC BKN020 RMK NXT FCST BY 180100Z CYCX 171730Z 1718/1806 30015G28KT P6SM BKN020 TEMPO 1718/1724 BKN025 FM180000 30015G28KT P6SM SCT030 BECMG 1802/1804 30012G22KT RMK NXT FCST BY 180000Z CYCY 171838Z 1719/1807 27005KT P6SM SKC RMK NXT FCST BY 180100Z CYDA 171738Z 1718/1724 VRB03KT P6SM FEW060 BKN090 BKN120 TEMPO 1718/1724 4SM -SN BKN020 OVC090 RMK NXT FCST WILL BE ISSUED AT 181645Z CYDB 171906Z 1719/1806 VRB03KT P6SM FEW008 SCT030 OVC060 TEMPO 1719/1806 3SM -SN BR BECMG 1801/1803 29010KT RMK NXT FCST BY 180000Z CYDF 171938Z 1720/1808 04015G25KT P6SM -SNRA FEW012 OVC050 TEMPO 1720/1721 2SM -SN OVC012 PROB30 1720/1721 P6SM -FZRA FM172100 05018G28KT 11/2SM -SN OVC012 TEMPO 1721/1724 3SM -SN FM180000 04010G20KT P6SM OVC015 TEMPO 1800/1808 3SM -DZ BR OVC006 RMK NXT FCST BY 180200Z CYDL 172158Z 1721/1803 VRB03KT P6SM OVC050 TEMPO 1721/1803 21/2SM -SN BKN020 OVC040 RMK FCST BASED ON AUTO OBS. NXT FCST BY 180000Z CYDN 171745Z 1718/1806 27015G25KT P6SM SKC FM172200 27012KT P6SM FEW025 BECMG 1722/1724 BKN025 FM180200 27008KT P6SM BKN025 TEMPO 1805/1806 3SM -SHSN VV020 RMK FCST BASED ON AUTO OBS. NXT FCST BY 180000Z CYDP 171938Z 1720/1724 36025G35KT P6SM OVC015 TEMPO 1720/1724 21/2SM -SN BKN008 OVC015 RMK NXT FCST WILL BE ISSUED AT 181045Z CYDQ 171838Z 1719/1805 VRB03KT P6SM SCT100 RMK FCST BASED ON AUTO OBS. NXT FCST BY 180100Z CYED 171730Z 1718/1806 27005KT P6SM SCT030 BKN080 TEMPO 1718/1724 2SM -SN SCT015 OVC030 FM180000 VRB03KT P6SM SCT020 FM180200 VRB03KT P6SM SCT020 BKN040 TEMPO 1802/1806 5SM -SN BKN020 OVC040 RMK FCST BASED ON AUTO OBS 172200-180600Z. NXT FCST BY 180000Z CYEG 172038Z 1721/1818 29005KT P6SM BKN110 TEMPO 1721/1723 P6SM -SN BKN080 FM172300 VRB03KT P6SM SCT080 FM180400 18008KT P6SM BKN040 TEMPO 1804/1808 6SM -SN FM180800 18008KT P6SM BKN060 RMK NXT FCST BY 180000Z CYEK 172257Z 1722/1806 14015G25KT 6SM -SN BKN040 TEMPO 1722/1806 3SM -SN BKN020 OVC040 BECMG 1801/1803 28010KT RMK NXT FCST BY 180000Z CYEN 171745Z 1718/1724 26008KT P6SM SKC BECMG 1721/1723 32005KT RMK NXT FCST WILL BE ISSUED AT 181145Z CYER 171338Z 1714/1720 14020G30KT P6SM -SN OVC100 TEMPO 1714/1716 11/2SM -SN BKN030 OVC100 FM171600 15020G30KT 3/4SM -SN BLSN OVC008 TEMPO 1716/1720 2SM -SN OVC012 BECMG 1716/1718 15025G40KT RMK FCST BASED ON AUTO OBS. NXT FCST WILL BE ISSUED AT 180945Z CYEU 171738Z 1718/1802 ADVISORY OFFSITE VRB03KT P6SM SKC RMK NXT FCST BY 180000Z CYEV 172250Z 1722/1807 VRB03KT P6SM BKN008 TEMPO 1722/1807 BKN012 PROB30 1722/1807 1SM BR RMK NXT FCST BY 180100Z CYFB 171738Z 1718/1818 33008KT P6SM FEW040 RMK NXT FCST BY 180000Z CYFC 171738Z 1718/1806 29012G22KT P6SM OVC025 TEMPO 1718/1721 5SM -SHRASN BKN020 FM172100 30018G28KT P6SM BKN025 TEMPO 1721/1806 3SM -SHSN OVC015 BECMG 1801/1803 30015G25KT RMK FCST BASED ON AUTO OBS. NXT FCST BY 180000Z CYFS 172204Z 1722/1806 00000KT P6SM BKN006 TEMPO 1722/1723 SCT006 BKN200 FM172300 30004KT P6SM FEW006 BKN180 FM180200 33005KT P6SM SCT060 BKN120 TEMPO 1802/1806 4SM -SN FEW020 BKN060 OVC100 RMK NXT FCST BY 180000Z CYGH 171738Z 1718/1724 FCST CNCLD DUE NO OBS RMK NXT FCST WILL BE ISSUED AT 181515Z CYGK 171938Z 1720/1804 29006KT P6SM FEW030 SCT240 BECMG 1722/1724 VRB03KT FM180300 10005KT P6SM BKN140 BKN220 RMK NXT FCST BY 180200Z CYGL 171738Z 1718/1818 12010G20KT P6SM BKN030 TEMPO 1718/1720 5SM -SN BKN015 FM172000 12012KT P6SM SCT200 FM180000 15012G22KT P6SM BKN180 FM180300 15015G25KT P6SM -SN OVC090 FM180900 15015G25KT P6SM -SN OVC070 TEMPO 1809/1811 5SM -SN FM181100 15015G25KT 2SM -SN OVC015 RMK NXT FCST BY 180000Z CYGP 171938Z 1720/1808 36010G20KT 1/2SM SN VV004 TEMPO 1720/1724 3SM -SN OVC010 FM180000 33015G25KT 2SM -SN OVC006 TEMPO 1800/1808 6SM -SN OVC012 RMK NXT FCST BY 180200Z CYGQ 172230Z 1722/1808 20008KT P6SM SCT010 OVC050 TEMPO 1722/1724 4SM -SN BKN007 OVC010 FM180000 21010KT P6SM OVC012 TEMPO 1800/1805 3SM -SN OVC006 PROB30 1800/1805 2SM -FZDZ BR FM180500 30008KT P6SM OVC015 RMK NXT FCST BY 180200Z CYGR 171938Z 1720/1803 20010G20KT 5SM -SHRA BR BKN015 OVC025 TEMPO 1720/1803 P6SM NSW SCT015 BKN030 BECMG 1801/1803 31008KT RMK NXT FCST WILL BE ISSUED AT 181145Z CYGT 171838Z 1719/1722 17018KT P6SM SCT020 BKN050 TEMPO 1719/1722 5SM -SNSG BKN009 OVC020 RMK NXT FCST WILL BE ISSUED AT 181715Z CYGV 171938Z 1720/1808 05015G25KT 3/4SM -SN VV005 TEMPO 1720/1801 3SM -SN SCT008 OVC010 FM180100 06015G25KT 11/2SM -SN OVC007 TEMPO 1801/1806 6SM -SN OVC012 FM180600 06015G25KT 3SM -SN BLSN OVC020 RMK FCST BASED ON AUTO OBS. NXT FCST BY 180200Z CYGW 171738Z 1718/1806 11012G22KT P6SM SKC BECMG 1722/1724 13020G30KT FM180300 13020G30KT P6SM BKN120 RMK FCST BASED ON AUTO OBS. NXT FCST BY 180000Z CYGX 172114Z 1721/1807 28012G22KT 1SM -SN VV010 TEMPO 1721/1722 4SM -SHSN OVC015 BECMG 1722/1724 P6SM -SN OVC012 FM180000 29015G25KT P6SM -SN OVC015 TEMPO 1801/1807 P6SM NSW SCT015 OVC025 RMK NXT FCST BY 180100Z CYHA 171438Z 1715/1722 FCST NOT AVBL DUE INSUFFICIENT OBS RMK NXT FCST WILL BE ISSUED AT 181445Z CYHD 171938Z 1720/1808 26012G22KT P6SM OVC012 TEMPO 1720/1801 BKN025 FM180100 30010KT P6SM SCT020 TEMPO 1801/1803 BKN020 FM180300 30008KT P6SM FEW020 RMK FCST BASED ON AUTO OBS. NXT FCST BY 180200Z CYHI 171842Z 1719/1801 09012KT P6SM -SHSN BKN015 BKN040 TEMPO 1719/1721 P6SM NSW SCT015 BKN040 FM172100 06008KT P6SM FEW020 BKN040 TEMPO 1721/1801 SCT040 BKN070 RMK NXT FCST WILL BE ISSUED AT 181645Z CYHK 171738Z 1718/1806 17015KT P6SM -SN OVC060 TEMPO 1718/1806 2SM -SN BR SCT012 OVC040 RMK NXT FCST BY 180000Z CYHM 171739Z 1718/1818 VRB03KT P6SM FEW020 BKN140 FM180000 13008KT P6SM OVC130 FM180800 19010KT P6SM -RA BKN020 OVC040 FM181000 19010KT 3SM -RA BR OVC007 FM181500 20012G22KT 2SM -RA BR OVC007 PROB30 1815/1818 11/2SM -RA BR OVC005 RMK NXT FCST BY 180000Z CYHU 171739Z 1718/1818 28012G22KT P6SM SCT030 TEMPO 1718/1720 BKN030 BECMG 1722/1724 27010KT FM180600 VRB03KT P6SM BKN130 OVC200 FM181000 06010KT P6SM OVC100 PROB30 1816/1818 P6SM -SNPL RMK FCST BASED ON AUTO OBS. NXT FCST BY 180000Z CYHY 171738Z 1718/1806 27010KT P6SM FEW010 RMK NXT FCST BY 180000Z CYHZ 172038Z 1721/1818 28018G28KT P6SM -SHRA OVC020 TEMPO 1721/1724 P6SM NSW OVC025 FM180000 28020G30KT P6SM -SHSNRA BKN020 FM180300 30018G28KT 6SM -SHSN BKN020 RMK NXT FCST BY 180000Z CYIK 171438Z 1715/1722 14015KT P6SM BKN030 TEMPO 1715/1722 21/2SM -SHSN BKN020 RMK NXT FCST WILL BE ISSUED AT 181445Z CYIO 171838Z 1719/1807 VRB03KT P6SM SCT030 BKN070 TEMPO 1719/1807 5SM -SN BKN030 RMK NXT FCST BY 180100Z CYIV 171841Z 1719/1807 FCST CNCLD DUE INSUFFICIENT DATA RMK NXT FCST BY 180100Z CYJT 171738Z 1718/1818 08020G30KT P6SM BKN040 OVC080 TEMPO 1718/1802 5SM -RA BR OVC040 BECMG 1722/1724 13015G25KT FM180200 15012KT P6SM -SHRA OVC012 BECMG 1810/1812 04012KT FM181200 07010KT P6SM -SHRA BKN025 RMK NXT FCST BY 180000Z CYKA 171838Z 1719/1807 VRB03KT P6SM SCT020 BKN100 TEMPO 1719/1721 BKN020 RMK NXT FCST BY 180100Z CYKF 171938Z 1720/1808 17008KT P6SM SCT200 FM180200 15008KT P6SM OVC130 FM180700 16010KT P6SM -RA BKN020 OVC040 RMK FCST BASED ON AUTO OBS. NXT FCST BY 180200Z CYKG 171438Z 1715/1722 27008KT P6SM BKN030 TEMPO 1715/1722 3SM -SN BKN020 RMK NXT FCST WILL BE ISSUED AT 181445Z CYKJ 171838Z 1719/1724 29012G22KT P6SM -SN OVC025 TEMPO 1719/1722 3SM -SN OVC015 FM172200 29012G22KT P6SM OVC030 TEMPO 1722/1724 5SM -SN OVC020 RMK FCST BASED ON AUTO OBS. NXT FCST WILL BE ISSUED AT 180945Z CYKL 172006Z 1720/1808 34008KT P6SM -SN OVC025 TEMPO 1720/1722 1SM -SN FM172200 34008KT P6SM -SN OVC025 TEMPO 1722/1808 2SM -SN BECMG 1800/1802 02012KT RMK FCST BASED ON AUTO OBS. NXT FCST BY 180200Z CYKQ 171538Z 1716/1722 09007KT P6SM BKN200 BECMG 1716/1718 14010KT FM172000 15010G20KT P6SM BKN150 RMK NXT FCST WILL BE ISSUED AT 181545Z CYKZ 171739Z 1718/1806 26006KT P6SM FEW025 BKN260 FM172000 18008KT P6SM FEW020 BKN150 FM180000 13008KT P6SM OVC130 RMK NXT FCST BY 180000Z CYLD 172203Z 1722/1802 15010G20KT 11/2SM -SN OVC012 TEMPO 1722/1802 6SM -SN SCT012 OVC030 RMK NXT FCST WILL BE ISSUED AT 181245Z CYLK 172206Z 1722/1801 36005KT P6SM SCT015 TEMPO 1722/1801 5SM -SN -SG BKN015 RMK NXT FCST WILL BE ISSUED AT 181745Z CYLL 171743Z 1718/1806 29010KT P6SM BKN120 FM172100 29010KT P6SM SCT050 RMK NXT FCST BY 180000Z CYLT 171730Z 1718/1806 35006KT P6SM FEW005 FEW200 BECMG 1722/1724 23012KT RMK NXT FCST BY 180000Z CYLW 172009Z 1720/1807 23015KT P6SM SCT070 TEMPO 1720/1724 BKN070 FM180000 19010KT P6SM SCT070 BKN120 RMK FCST BASED ON AUTO OBS. NXT FCST BY 180100Z CYMA 171738Z 1718/1806 VRB03KT P6SM BKN040 OVC060 TEMPO 1718/1806 4SM -SN RMK NXT FCST BY 180000Z CYMH 171938Z 1720/1804 VRB03KT 11/2SM -SN OVC005 TEMPO 1720/1804 6SM -SN OVC010 RMK FCST BASED ON AUTO OBS. NXT FCST BY 180200Z CYMJ 171730Z 1718/1806 27008KT P6SM BKN250 FM172200 30007KT P6SM SCT020 TEMPO 1722/1802 5SM -SN BKN020 FM180200 28012KT 6SM -SN BKN015 TEMPO 1802/1806 3SM -SN BKN010 RMK NXT FCST BY 180000Z CYMM 171838Z 1719/1807 26008KT P6SM FEW040 TEMPO 1719/1722 P6SM -SN BKN040 RMK FCST BASED ON AUTO OBS. NXT FCST BY 180100Z CYMO 171738Z 1718/1806 14008KT P6SM FEW120 BKN220 FM172300 14012KT P6SM OVC120 TEMPO 1723/1801 P6SM -SN FM180100 15012KT 6SM -SN OVC030 TEMPO 1801/1805 2SM -SN OVC015 FM180500 15010KT P6SM -SN OVC015 RMK FCST BASED ON AUTO OBS. NXT FCST BY 180000Z CYMT 171738Z 1718/1801 32010KT P6SM SCT030 BECMG 1718/1720 35007KT BECMG 1723/1801 09005KT RMK FCST BASED ON AUTO OBS. NXT FCST WILL BE ISSUED AT 181245Z CYMX 171739Z 1718/1818 29008G18KT P6SM FEW030 BECMG 1721/1723 27006KT FM180600 VRB03KT P6SM BKN130 OVC200 FM181000 06010KT P6SM OVC100 PROB30 1816/1818 P6SM -SNPL RMK NXT FCST BY 180000Z CYNA 171938Z 1720/1808 06020G30KT 11/2SM -SN VV007 TEMPO 1720/1805 6SM -SN OVC015 FM180500 03015G25KT 4SM -RASN BR OVC010 RMK FCST BASED ON AUTO OBS. NXT FCST BY 180200Z CYND 171739Z 1718/1802 27012KT P6SM FEW025 FEW230 BECMG 1721/1723 28006KT RMK NXT FCST BY 180000Z CYNE 171841Z 1719/1807 28010G20KT P6SM SCT020 OVC040 TEMPO 1719/1807 5SM -SN BKN020 OVC030 BECMG 1803/1805 30012KT RMK FCST BASED ON AUTO OBS. NXT FCST BY 180100Z CYOA 171842Z 1719/1724 02012KT P6SM SKC FM172100 01015KT P6SM SCT006 TEMPO 1721/1724 BKN006 RMK NXT FCST WILL BE ISSUED AT 181345Z CYOC 171738Z 1718/1802 VRB03KT P6SM BKN030 BKN060 TEMPO 1718/1802 4SM -SN BKN020 OVC040 BECMG 1722/1724 04012KT RMK NXT FCST BY 180000Z CYOD 172030Z 1721/1818 29008KT P6SM FEW020 SCT080 BECMG 1804/1806 VRB03KT BKN080 OVC140 RMK NXT FCST BY 180000Z CYOJ 171838Z 1719/1807 VRB03KT P6SM IC SKC FM172300 VRB03KT P6SM BKN200 FM180400 VRB03KT P6SM SCT060 RMK NXT FCST BY 180100Z CYOW 172038Z 1721/1818 29012KT P6SM FEW180 FEW250 BECMG 1721/1723 27006KT FM180300 10005KT P6SM SCT130 BKN220 FM180600 06005KT P6SM BKN130 OVC220 FM180900 08008KT P6SM OVC100 PROB30 1811/1814 P6SM -SNPL FM181400 09012KT 3SM -SNPL OVC030 PROB30 1814/1818 6SM -FZRA BR RMK NXT FCST BY 180000Z CYOY 172157Z 1718/1806 FCST CNCLD DUE END OF FLYING PROGRAM RMK NXT FCST WILL BE ISSUED AT 181115Z CYPA 171841Z 1719/1807 30010KT P6SM -SN OVC015 TEMPO 1720/1724 P6SM NSW SCT015 FM180000 28008KT P6SM -SN OVC020 TEMPO 1800/1805 P6SM NSW OVC025 BECMG 1805/1807 P6SM NSW FEW025 RMK NXT FCST BY 180100Z CYPC 171842Z 1719/1724 VRB03KT P6SM SCT030 BKN090 TEMPO 1719/1724 P6SM -SN BKN030 RMK NXT FCST WILL BE ISSUED AT 181545Z CYPE 171838Z 1719/1807 VRB03KT P6SM FEW090 RMK NXT FCST BY 180100Z CYPG 171730Z 1718/1806 27010KT P6SM SCT140 FM180400 27010KT 6SM -SN BKN020 TEMPO 1804/1806 4SM -SN BKN010 RMK NXT FCST BY 180000Z CYPH 171738Z 1718/1806 12015G25KT P6SM SKC BECMG 1722/1724 12020G30KT RMK FCST BASED ON AUTO OBS. NXT FCST BY 180000Z CYPL 172113Z 1721/1802 25012KT 4SM -SN -FZDZ BR OVC007 TEMPO 1721/1723 P6SM NSW OVC010 FM172300 26010KT P6SM OVC015 TEMPO 1723/1802 BKN025 BECMG 1723/1801 29008KT RMK NXT FCST WILL BE ISSUED AT 181245Z CYPQ 171938Z 1720/1803 33005KT P6SM SCT220 BECMG 1722/1724 16005KT FM180100 13005KT P6SM BKN130 RMK FCST BASED ON AUTO OBS. NXT FCST WILL BE ISSUED AT 181045Z CYPR 171838Z 1719/1807 13015G25KT P6SM -RA OVC030 TEMPO 1719/1721 3SM -RASN BR SCT008 OVC020 FM172100 14020G35KT P6SM -RA SCT015 OVC025 TEMPO 1721/1807 3SM -SHRA BR OVC015 RMK FCST BASED ON AUTO OBS. NXT FCST BY 180100Z CYPX 171738Z 1718/1806 08012KT P6SM FEW040 TEMPO 1718/1806 5SM IC BECMG 1722/1724 09020KT RMK FCST BASED ON AUTO OBS. NXT FCST BY 180000Z CYPY 171738Z 1718/1806 29010G20KT P6SM -SN OVC030 TEMPO 1718/1721 4SM -SN OVC020 FM172100 29010KT P6SM SCT030 TEMPO 1721/1806 P6SM -SN BKN030 RMK FCST BASED ON AUTO OBS. NXT FCST BY 180000Z CYQA 171938Z 1720/1803 VRB03KT P6SM SKC FM180000 15010KT P6SM BKN120 RMK FCST BASED ON AUTO OBS. NXT FCST WILL BE ISSUED AT 181245Z CYQB 171738Z 1718/1818 27012G22KT P6SM BKN030 FM172200 27010KT P6SM FEW030 BECMG 1803/1805 27005KT FM181200 18005KT P6SM BKN120 FM181600 07007KT P6SM OVC120 RMK NXT FCST BY 180000Z CYQD 171841Z 1719/1807 28012G22KT P6SM -SN OVC020 TEMPO 1719/1807 P6SM NSW OVC025 BECMG 1722/1724 27010KT RMK NXT FCST BY 180100Z CYQF 172106Z 1721/1806 VRB03KT P6SM SCT015 BKN100 TEMPO 1721/1803 5SM -SN BR BKN015 FM180300 18006KT P6SM SCT040 BKN080 RMK NXT FCST BY 180000Z CYQG 171739Z 1718/1818 17015KT P6SM OVC020 TEMPO 1718/1721 BKN025 FM172100 17015KT P6SM BKN140 OVC220 FM180300 18015KT P6SM OVC070 FM180500 18015KT P6SM -RA OVC020 FM180700 19012KT 4SM -RA BR OVC007 FM180900 20012KT 11/2SM -RA BR OVC002 FM181500 20012KT 3SM -RA BR OVC004 RMK NXT FCST BY 180000Z CYQH 171738Z 1718/1806 VRB03KT P6SM -SN SCT040 OVC060 TEMPO 1718/1721 3SM -SN BKN020 OVC040 FM172100 VRB03KT P6SM SCT040 BKN060 TEMPO 1721/1806 4SM -SN BKN020 OVC040 RMK NXT FCST BY 180000Z CYQI 171738Z 1718/1806 30020G35KT P6SM OVC030 TEMPO 1718/1806 OVC020 RMK NXT FCST BY 180000Z CYQK 171938Z 1720/1808 30010KT P6SM SCT015 TEMPO 1720/1722 BKN015 FM180600 30010KT P6SM BKN015 RMK NXT FCST BY 180200Z CYQL 171743Z 1718/1806 31010KT P6SM SCT120 BKN250 TEMPO 1718/1721 5SM BR BECMG 1719/1721 36015KT FM172100 36015G25KT P6SM FEW060 BECMG 1802/1804 24010KT RMK NXT FCST BY 180000Z CYQM 171802Z 1718/1818 29018G28KT 2SM -SHRASN -DZ BR OVC005 TEMPO 1718/1723 6SM BR OVC010 FM172300 29015G25KT P6SM -SHSN BKN015 FM180600 28015G25KT P6SM BKN020 FM181500 28012G22KT P6SM SCT020 RMK NXT FCST BY 180000Z CYQQ 171739Z 1718/1818 27005KT P6SM FEW015 BKN150 BECMG 1718/1720 VRB03KT FM180300 14012KT P6SM SCT015 BKN080 TEMPO 1803/1806 P6SM -RA BKN025 OVC040 FM180600 14015G25KT P6SM -RA BKN020 OVC030 TEMPO 1806/1818 OVC010 RMK NXT FCST BY 180000Z CYQR 171745Z 1718/1818 31010KT P6SM SKC BECMG 1722/1724 BKN025 FM180200 30008KT 6SM -SHSN SCT012 BKN025 TEMPO 1802/1805 11/2SM -SHSN VV012 FM180600 30012KT P6SM FEW040 FM181500 25008KT P6SM SKC RMK NXT FCST BY 180000Z CYQT 171938Z 1720/1808 20010KT 1SM -SN OVC010 TEMPO 1720/1721 3SM -SN FM172100 20012KT 4SM -SN OVC009 TEMPO 1721/1723 P6SM NSW OVC015 FM172300 22008KT P6SM OVC015 TEMPO 1723/1808 BKN025 BECMG 1800/1802 29008KT RMK NXT FCST BY 180200Z CYQU 171838Z 1719/1807 VRB03KT P6SM FEW210 RMK NXT FCST BY 180100Z CYQV 171745Z 1718/1806 29010KT P6SM SCT110 BECMG 1720/1722 28008KT BKN025 FM180000 31008KT P6SM BKN025 FM180300 28008KT 6SM -SHSN SCT015 BKN025 TEMPO 1803/1806 2SM -SHSN VV015 RMK FCST BASED ON AUTO OBS. NXT FCST BY 180000Z CYQW 171745Z 1718/1806 28008KT P6SM SCT020 BKN025 TEMPO 1718/1723 3SM -SHSN BKN020 FM172300 30010G20KT P6SM BKN050 BECMG 1802/1804 30008KT SKC FM180500 28008KT P6SM SKC RMK FCST BASED ON AUTO OBS. NXT FCST BY 180000Z CYQX 171857Z 1718/1818 10010KT P6SM SCT008 OVC150 TEMPO 1718/1724 BKN008 OVC150 FM180000 11020G30KT P6SM -RA SCT008 OVC060 TEMPO 1800/1804 5SM -RA BR BKN008 OVC060 FM180400 13020G30KT 3/4SM -RA BR OVC003 TEMPO 1804/1814 6SM -RA BR FEW003 OVC006 BECMG 1806/1808 13010KT FM181400 VRB03KT P6SM BKN008 OVC012 RMK NXT FCST BY 180000Z CYQY 171738Z 1718/1806 20012G22KT P6SM BKN020 TEMPO 1718/1724 BKN025 RMK NXT FCST BY 180000Z CYQZ 172234Z 1722/1806 15005KT 2SM -SN OVC020 TEMPO 1722/1806 6SM -SN OVC030 RMK FCST BASED ON AUTO OBS. NXT FCST BY 180100Z CYRA 171842Z 1719/1801 34005KT P6SM FEW070 FM172200 35007KT P6SM BKN220 RMK NXT FCST WILL BE ISSUED AT 181745Z CYRB 171738Z 1718/1818 12012KT P6SM IC SCT060 TEMPO 1718/1806 3SM IC SCT020 FM180600 13020G30KT P6SM IC BKN050 TEMPO 1806/1815 2SM -SN BLSN BKN010 OVC025 FM181500 12030G40KT 1/2SM -SN BLSN VV005 TEMPO 1815/1818 2SM BLSN SCT005 BKN010 RMK NXT FCST BY 180000Z CYRJ 172203Z 1722/1803 31010G20KT P6SM BKN020 TEMPO 1722/1803 5SM -SHSN RMK NXT FCST WILL BE ISSUED AT 181245Z CYRL 171938Z 1720/1803 26012G22KT P6SM OVC012 TEMPO 1720/1722 5SM -SN FM172200 30010KT P6SM BKN012 TEMPO 1722/1803 SCT012 RMK NXT FCST WILL BE ISSUED AT 181145Z CYRQ 171938Z 1720/1808 32010G20KT P6SM SCT030 FM172200 30007KT P6SM FEW030 FM180000 VRB03KT P6SM SKC FM180600 VRB03KT P6SM BKN150 RMK FCST BASED ON AUTO OBS. NXT FCST BY 180200Z CYRT 171738Z 1718/1806 13025G35KT 1/2SM -SN BLSN VV008 TEMPO 1718/1721 2SM -SN BLSN OVC025 FM172100 13030G40KT 1/4SM SN +BLSN VV006 TEMPO 1721/1724 1SM -SN BLSN OVC012 RMK NXT FCST BY 180000Z CYSB 171938Z 1720/1808 16010KT P6SM SCT030 BKN100 FM180000 15010KT 6SM -SN OVC030 TEMPO 1800/1803 2SM -SN OVC015 FM180300 15010G20KT 5SM -SN OVC020 FM180500 15010G20KT 3/4SM -SN VV007 RMK NXT FCST BY 180200Z CYSC 171738Z 1718/1803 29018G28KT 5SM -SHSN OVC015 TEMPO 1718/1722 P6SM NSW OVC025 FM172200 29012G22KT P6SM SCT025 BECMG 1723/1724 28010KT RMK FCST BASED ON AUTO OBS. NXT FCST BY 180000Z CYSF 172226Z 1722/1806 30010KT P6SM SCT025 TEMPO 1722/1806 BKN020 RMK FCST BASED ON AUTO OBS. NXT FCST BY 180000Z CYSJ 171738Z 1718/1806 30015G25KT P6SM BKN015 TEMPO 1718/1719 5SM -SHRA BR OVC009 FM171900 30018G28KT P6SM BKN020 TEMPO 1719/1806 BKN025 RMK NXT FCST BY 180000Z CYSM 171907Z 1719/1806 29010KT P6SM -SN OVC025 TEMPO 1719/1806 4SM -SN OVC020 RMK NXT FCST BY 180000Z CYSN 171938Z 1720/1802 21005KT P6SM FEW030 SCT250 BECMG 1722/1724 15006KT FM180000 15006KT P6SM BKN130 RMK NXT FCST WILL BE ISSUED AT 181345Z CYSP 171938Z 1720/1722 19012G22KT 1/2SM SN BLSN OVC004 TEMPO 1720/1722 2SM -SN OVC008 RMK NXT FCST WILL BE ISSUED AT 181445Z CYSY 172228Z 1722/1724 12012KT 2SM -SN BR SCT015 OVC040 TEMPO 1722/1724 P6SM NSW SCT015 BKN040 RMK NXT FCST WILL BE ISSUED AT 181545Z CYTE 171838Z 1719/1807 VRB03KT P6SM -SN BKN025 TEMPO 1719/1807 3SM -SHSN OVC020 BECMG 1722/1724 13012KT RMK NXT FCST BY 180100Z CYTH 171905Z 1719/1807 29015KT 5SM -SN OVC020 TEMPO 1719/1801 P6SM NSW SCT020 OVC025 BECMG 1723/1801 28010KT FM180100 26008KT P6SM SCT020 OVC030 TEMPO 1805/1807 6SM -SN BKN020 RMK NXT FCST BY 180100Z CYTL 171938Z 1720/1808 18015G25KT 2SM -SN BLSN OVC015 TEMPO 1720/1722 6SM -SN OVC025 BECMG 1720/1722 24012G22KT FM172200 24012G22KT P6SM OVC025 TEMPO 1722/1808 4SM -SN OVC015 BECMG 1722/1724 30012KT RMK FCST BASED ON AUTO OBS. NXT FCST BY 180200Z CYTQ 171438Z 1715/1722 35015G25KT P6SM BKN030 TEMPO 1715/1722 4SM -SN OVC020 BECMG 1718/1720 03015G25KT RMK NXT FCST WILL BE ISSUED AT 181445Z CYTR 171730Z 1718/1818 30008KT P6SM BKN260 BECMG 1718/1720 25005KT FM180400 14008KT P6SM FEW030 OVC150 FM181000 16012KT P6SM SCT015 BKN040 TEMPO 1810/1812 5SM -SHRASN BR OVC015 FM181200 16012KT P6SM -SHRA OVC020 TEMPO 1812/1818 4SM -SHRA BR OVC010 RMK NXT FCST BY 180000Z CYTS 171938Z 1720/1808 15010G20KT P6SM OVC080 FM172200 16012KT 6SM -SN OVC025 TEMPO 1722/1724 2SM -SN OVC010 FM180000 15010G20KT 1SM -SN OVC007 TEMPO 1800/1808 3SM -SN OVC015 RMK NXT FCST BY 180200Z CYTZ 171938Z 1720/1820 21008KT P6SM SCT220 FM172200 18008KT P6SM BKN130 OVC200 FM180000 14008KT P6SM OVC140 FM180600 11012KT P6SM OVC090 FM180900 10012KT P6SM -RA BKN020 OVC040 FM181100 11012KT 3SM -RA BR OVC006 FM181300 15012KT 2SM -RA BR OVC006 PROB30 1813/1816 11/2SM -RA BR OVC005 RMK FCST BASED ON AUTO OBS. NXT FCST BY 180200Z CYUB 172112Z 1721/1806 VRB03KT 1SM BR SCT005 TEMPO 1721/1723 6SM BR BKN240 FM172300 14003KT P6SM FEW005 SCT030 FM180200 27004KT P6SM SCT030 TEMPO 1802/1806 BKN020 RMK NXT FCST BY 180100Z CYUL 172038Z 1721/1818 29012G22KT P6SM FEW030 FEW240 BECMG 1722/1724 27010KT FM180500 VRB03KT P6SM SCT130 BKN220 FM180800 VRB03KT P6SM BKN130 OVC200 FM181000 06010KT P6SM OVC100 PROB30 1816/1818 P6SM -SNPL RMK NXT FCST BY 180000Z CYUT 171905Z 1719/1723 10015KT 6SM -SN SCT008 OVC070 TEMPO 1719/1723 1SM -SN -SG BR OVC008 RMK NXT FCST WILL BE ISSUED AT 181645Z CYUX 172110Z 1721/1807 16020KT 6SM -SN SCT012 OVC040 TEMPO 1721/1807 11/2SM -SN BLSN BKN008 OVC020 RMK NXT FCST BY 180100Z CYUY 171738Z 1718/1806 VRB03KT P6SM BKN200 FM172100 15007KT P6SM BKN170 FM180200 15012KT P6SM -SN OVC060 FM180400 15010G20KT 6SM -SN OVC030 TEMPO 1804/1806 2SM -SN OVC020 RMK NXT FCST BY 180000Z CYVC 171841Z 1719/1807 28010G20KT 6SM -SN FEW020 OVC025 TEMPO 1719/1722 3SM -SHSN VV020 BECMG 1802/1804 30010KT RMK NXT FCST BY 180100Z CYVM 171838Z 1719/1807 VRB03KT P6SM SKC RMK NXT FCST BY 180100Z CYVO 171738Z 1718/1806 VRB03KT P6SM FEW200 FM172200 15007KT P6SM BKN170 FM180300 15012KT P6SM -SN OVC060 FM180500 15010G20KT 6SM -SN OVC030 TEMPO 1805/1806 2SM -SN OVC020 RMK NXT FCST BY 180000Z CYVP 171738Z 1718/1806 03010G20KT P6SM SCT020 BKN030 TEMPO 1718/1806 11/2SM -SHSN OVC020 RMK NXT FCST BY 180000Z CYVQ 171738Z 1718/1806 VRB03KT P6SM FEW020 BKN140 FM180000 26005KT P6SM FEW020 SCT060 OVC100 TEMPO 1800/1803 5SM -SN SCT020 OVC060 FM180300 28006KT P6SM -SN SCT020 OVC060 TEMPO 1803/1806 3SM -SN BKN020 OVC050 RMK NXT FCST BY 180000Z CYVR 172038Z 1721/1824 24005KT P6SM FEW020 SCT070 BKN230 FM172300 20005KT P6SM BKN070 BECMG 1723/1801 12008KT FM180300 09008KT P6SM SCT020 BKN050 TEMPO 1803/1809 5SM -RA BR BKN020 OVC050 FM180900 11010KT P6SM -SHRA FEW008 BKN020 OVC050 FM181300 14012G22KT P6SM -SHRA FEW008 BKN020 OVC050 RMK NXT FCST BY 180000Z CYVT 171838Z 1719/1804 28010G20KT P6SM -SN BKN080 TEMPO 1719/1722 5SM -SN BKN020 FM172200 30015G25KT P6SM BKN040 TEMPO 1722/1804 P6SM -SN RMK NXT FCST BY 180100Z CYVV 171938Z 1720/1724 15010KT P6SM SCT030 BKN150 RMK NXT FCST WILL BE ISSUED AT 181145Z CYWA 171730Z 1718/1806 32008KT P6SM FEW250 FM180200 12005KT P6SM BKN110 RMK FCST BASED ON AUTO OBS. NXT FCST BY 180000Z CYWE 171842Z 1719/1802 VRB03KT P6SM SKC FM172300 03010KT P6SM SCT008 TEMPO 1723/1802 BKN008 RMK FCST BASED ON AUTO OBS. NXT FCST WILL BE ISSUED AT 181345Z CYWG 171745Z 1718/1818 27012KT P6SM SKC BECMG 1722/1724 27005KT FM180300 23005KT P6SM SKC BECMG 1804/1806 BKN025 FM180600 22005KT P6SM OVC025 TEMPO 1808/1812 6SM -SN OVC020 FM181200 30008KT 6SM -SN SCT010 OVC025 TEMPO 1812/1816 1SM -SHSN VV010 FM181600 32010KT P6SM BKN020 TEMPO 1816/1818 BKN025 RMK NXT FCST BY 180000Z CYWH 172211Z 1722/1805 25012KT P6SM SCT030 BKN090 TEMPO 1722/1805 P6SM -SHRA BKN012 BKN030 RMK NXT FCST BY 180000Z CYWJ 171738Z 1718/1724 VRB03KT P6SM SCT200 PROB30 1718/1724 2SM BR BKN003 RMK NXT FCST WILL BE ISSUED AT 181515Z CYWK 172123Z 1721/1808 36012G22KT 1SM -SN OVC020 TEMPO 1721/1724 6SM -SN FM180000 03015G25KT 6SM -SN OVC020 TEMPO 1800/1808 2SM -SN RMK NXT FCST BY 180200Z CYWL 171838Z 1719/1807 VRB03KT P6SM BKN040 BKN080 TEMPO 1719/1807 5SM -SN BKN020 OVC040 RMK NXT FCST BY 180100Z CYXC 171838Z 1719/1807 VRB03KT P6SM SCT040 TEMPO 1719/1722 P6SM -SHRASN FEW010 BKN040 FM172200 22010KT P6SM SCT060 TEMPO 1722/1802 BKN060 RMK NXT FCST BY 180100Z CYXE 172031Z 1720/1818 30015KT P6SM BKN250 BECMG 1721/1722 SCT040 BKN090 FM172200 30012KT 6SM -SHSN SCT020 BKN060 TEMPO 1722/1802 2SM -SHSN VV015 FM180300 30010KT P6SM SCT040 BKN080 BECMG 1803/1805 SKC FM180600 30008KT P6SM SKC BECMG 1808/1810 23005KT FM181200 19007KT 6SM BR SKC PROB30 1812/1815 3/4SM BR VV006 FM181600 20010KT P6SM SKC RMK NXT FCST BY 180000Z CYXH 171743Z 1718/1806 03008KT P6SM BKN260 BECMG 1720/1722 33008KT FM180200 22006KT P6SM SCT120 RMK NXT FCST BY 180000Z CYXJ 171838Z 1719/1807 VRB03KT P6SM SCT200 BECMG 1721/1723 16008KT RMK NXT FCST BY 180100Z CYXL 171938Z 1720/1808 26012KT P6SM OVC012 TEMPO 1720/1802 BKN025 FM180200 30010KT P6SM SCT020 TEMPO 1802/1804 BKN020 FM180400 30008KT P6SM FEW020 RMK NXT FCST BY 180200Z CYXP 171838Z 1719/1723 VRB03KT P6SM FEW120 RMK NXT FCST WILL BE ISSUED AT 181645Z CYXR 171738Z 1718/1801 13005KT P6SM SCT200 FM172200 15010G20KT P6SM BKN150 FM180000 15010G20KT P6SM -SN OVC080 RMK FCST BASED ON AUTO OBS. NXT FCST WILL BE ISSUED AT 181245Z CYXS 172215Z 1722/1807 18010KT 11/2SM -SN OVC020 TEMPO 1722/1803 6SM -SN OVC030 RMK FCST BASED ON AUTO OBS. NXT FCST BY 180100Z CYXT 172104Z 1721/1807 VRB03KT P6SM SCT012 OVC040 TEMPO 1721/1723 21/2SM -SN FEW008 BKN012 OVC040 FM172300 04008KT 6SM -SN SCT008 OVC030 TEMPO 1723/1807 2SM -SN BKN008 OVC030 RMK NXT FCST BY 180100Z CYXU 172035Z 1720/1818 16010KT P6SM SCT020 SCT110 BKN220 TEMPO 1720/1803 BKN020 BKN110 OVC220 FM180300 17010KT P6SM BKN080 OVC130 FM180700 19010KT P6SM -RA OVC020 FM180900 19010KT 3SM -RA BR OVC006 FM181200 21012KT 11/2SM -RA BR OVC002 RMK NXT FCST BY 180000Z CYXX 171740Z 1718/1818 20006KT P6SM SCT020 BKN230 TEMPO 1718/1720 BKN020 FM172000 20008KT P6SM FEW030 SCT080 BKN230 TEMPO 1720/1803 BKN030 FM180300 20006KT P6SM SCT020 BKN040 TEMPO 1803/1812 P6SM -SHRA BKN020 OVC040 FM181200 19010G20KT P6SM -SHRA SCT020 BKN040 OVC100 RMK NXT FCST BY 180000Z CYXY 171738Z 1718/1806 VRB03KT P6SM BKN090 OVC140 TEMPO 1718/1806 4SM -SN BKN020 OVC090 RMK NXT FCST BY 180000Z CYXZ 171938Z 1720/1724 18012KT 3/4SM -SN OVC012 TEMPO 1720/1724 2SM -SN RMK NXT FCST WILL BE ISSUED AT 181245Z CYYB 171938Z 1720/1808 13007KT P6SM BKN120 FM180200 15010G20KT P6SM OVC100 FM180500 15010G20KT 6SM -SN SCT020 OVC050 TEMPO 1805/1808 2SM -SN OVC020 RMK NXT FCST BY 180200Z CYYC 172204Z 1722/1818 04005KT P6SM FEW012 TEMPO 1722/1803 5SM -SN BR BKN012 FM180300 16006KT P6SM SCT020 SCT080 PROB30 1803/1809 3/4SM BR BKN004 FM180900 25005KT P6SM SCT100 BECMG 1813/1815 25012KT RMK NXT FCST BY 180000Z CYYD 171838Z 1719/1806 VRB03KT P6SM SCT020 OVC040 TEMPO 1719/1801 4SM -SN FEW006 OVC020 FM180100 17005KT 6SM -SN SCT012 OVC040 TEMPO 1801/1806 2SM -SN SCT005 OVC012 RMK NXT FCST BY 180100Z CYYE 171838Z 1719/1807 VRB03KT P6SM BKN250 FM172100 VRB03KT P6SM SCT060 BKN120 TEMPO 1721/1724 5SM -SN BKN060 OVC120 FM180000 VRB03KT P6SM SCT060 BKN120 RMK NXT FCST BY 180100Z CYYF 171838Z 1719/1807 17012KT P6SM SCT070 BECMG 1720/1722 32010KT BECMG 1801/1803 18010KT RMK NXT FCST BY 180100Z CYYG 171745Z 1718/1806 21015G25KT P6SM OVC020 TEMPO 1718/1721 5SM -SHRA BR OVC009 BECMG 1718/1720 25018G28KT FM172100 27020G35KT 6SM -RA BR OVC012 TEMPO 1721/1806 2SM -RA BR OVC005 RMK NXT FCST BY 180000Z CYYH 171738Z 1718/1806 15012KT P6SM -SN FEW025 BKN080 TEMPO 1718/1806 4SM -SN BR BKN025 BECMG 1719/1721 10012KT RMK NXT FCST BY 180000Z CYYJ 172211Z 1722/1818 24010KT P6SM SCT040 BKN080 TEMPO 1722/1804 P6SM -SHRA FEW020 BKN040 FM180400 20008KT P6SM SCT030 BKN060 TEMPO 1804/1807 P6SM -SHRA BKN020 OVC060 FM180700 15010KT P6SM -SHRA SCT006 BKN030 OVC120 RMK NXT FCST BY 180000Z CYYL 171841Z 1719/1807 28012KT P6SM -SN OVC060 TEMPO 1719/1722 5SM -SN BKN040 FM172200 29015G25KT P6SM -SN SCT020 OVC040 TEMPO 1722/1807 5SM -SN BKN020 RMK FCST BASED ON AUTO OBS. NXT FCST BY 180100Z CYYN 171745Z 1718/1806 VRB03KT P6SM BKN210 BECMG 1721/1723 32006KT BKN025 FM180000 34008KT 6SM -SHSN SCT008 BKN025 TEMPO 1800/1803 3SM -SHSN BKN008 FM180300 29007KT 6SM BR SCT004 BKN012 TEMPO 1804/1806 2SM BR BKN004 RMK FCST BASED ON AUTO OBS. NXT FCST BY 180000Z CYYQ 172133Z 1721/1818 24005KT 3/4SM -SN VV008 TEMPO 1721/1723 3SM -SN VV020 FM172300 28010KT 11/2SM -SN VV012 TEMPO 1723/1802 4SM -SN VV030 BECMG 1723/1801 29015KT FM180200 29015KT 4SM -SN OVC015 TEMPO 1802/1807 P6SM -SN OVC025 FM180700 30018KT P6SM -SN SCT020 BKN030 TEMPO 1807/1812 5SM -SN BKN020 FM181500 28018KT P6SM SCT040 TEMPO 1815/1818 BKN040 RMK NXT FCST BY 180000Z CYYR 172028Z 1720/1818 04012KT 6SM -SN FEW005 OVC025 TEMPO 1720/1724 2SM -SN OVC005 FM180000 04012G22KT 1SM -SN OVC005 TEMPO 1800/1815 6SM -SN SCT005 OVC015 FM181500 04012G22KT 4SM -SNRA OVC010 RMK NXT FCST BY 180000Z CYYT 172152Z 1721/1818 12012KT 1/4SM FG VV001 TEMPO 1721/1724 2SM BR OVC004 FM180000 12012KT 3/4SM -RA -DZ BR OVC003 TEMPO 1800/1812 6SM -RA BR FEW003 OVC006 FM181200 25010KT 6SM -DZ BR FEW003 OVC008 FM181500 VRB03KT P6SM FEW005 BKN015 RMK NXT FCST BY 180000Z CYYU 171938Z 1720/1808 18015KT P6SM SCT020 BKN040 TEMPO 1720/1722 4SM -SN OVC020 FM172200 16010G20KT 6SM -SN OVC025 TEMPO 1722/1724 11/2SM -SN OVC012 FM180000 16012G22KT 1SM -SN OVC007 TEMPO 1800/1806 3SM -SN OVC015 FM180600 16012KT 3SM -SN OVC012 RMK NXT FCST BY 180200Z CYYY 172131Z 1721/1808 33025G35KT 11/2SM -SN VV008 TEMPO 1721/1801 6SM -SN OVC015 FM180100 33020G30KT P6SM OVC015 TEMPO 1801/1808 3SM -SHSN RMK NXT FCST BY 180200Z CYYZ 172038Z 1721/1824 18008KT P6SM FEW120 SCT220 FM172300 16005KT P6SM BKN130 OVC180 FM180600 15005KT P6SM OVC090 FM180900 15006KT P6SM -RA BKN020 OVC040 FM181100 15006KT 3SM -RA BR OVC007 FM181300 16008KT 11/2SM -RA BR OVC005 FM182100 16010KT 3SM -RA BR OVC007 BECMG 1822/1824 12008KT RMK NXT FCST BY 180000Z CYZE 171938Z 1720/1723 13010G20KT P6SM OVC030 TEMPO 1720/1723 3SM -SHSN OVC020 RMK FCST BASED ON AUTO OBS. NXT FCST WILL BE ISSUED AT 181045Z CYZF 171738Z 1718/1818 01007KT P6SM FEW010 FM172100 01008KT P6SM SKC RMK NXT FCST BY 180000Z CYZG 171438Z 1715/1722 22012KT P6SM BKN025 TEMPO 1715/1722 2SM -SN BLSN BKN015 BECMG 1717/1719 18015G25KT RMK NXT FCST WILL BE ISSUED AT 181445Z CYZH 171838Z 1719/1807 29015KT P6SM SCT020 TEMPO 1719/1721 5SM -SN BKN020 FM172100 29010KT P6SM FEW030 FM180300 VRB03KT P6SM SCT080 BKN200 RMK FCST BASED ON AUTO OBS. NXT FCST BY 180100Z CYZP 171838Z 1719/1807 17009KT P6SM BKN070 OVC090 TEMPO 1719/1805 4SM -SHRA BR SCT008 BKN020 OVC040 BECMG 1720/1722 16018G28KT FM180500 21015KT P6SM BKN040 RMK FCST BASED ON AUTO OBS. NXT FCST BY 180100Z CYZR 171938Z 1720/1803 19015G25KT P6SM BKN030 TEMPO 1720/1803 BKN020 BECMG 1723/1801 16017G27KT RMK FCST BASED ON AUTO OBS. NXT FCST WILL BE ISSUED AT 180845Z CYZS 172234Z 1722/1807 11020KT 6SM -SN FEW007 OVC030 TEMPO 1722/1807 1SM -SHSN BLSN SCT007 OVC015 RMK NXT FCST BY 180100Z CYZT 171838Z 1719/1807 20005KT P6SM BKN050 OVC080 FM172100 12010KT P6SM FEW015 BKN030 OVC050 TEMPO 1721/1803 P6SM -RA SCT015 OVC030 FM180300 14012G22KT P6SM -RA BKN015 RMK NXT FCST BY 180100Z CYZU 171838Z 1719/1723 30005KT P6SM FEW010 SCT100 RMK NXT FCST WILL BE ISSUED AT 181415Z CYZV 171908Z 1719/1818 36010KT 6SM -RASN OVC025 TEMPO 1719/1720 11/2SM -SN VV008 FM172000 36010KT P6SM SCT020 OVC050 TEMPO 1720/1724 3SM -SHSNRA BR BKN020 FM180000 36010G20KT P6SM FEW020 OVC060 TEMPO 1800/1802 P6SM -SHSN FM180200 36010G20KT P6SM FEW025 BKN060 BECMG 1804/1806 FEW080 BECMG 1812/1814 34008KT RMK NXT FCST BY 180000Z CYZW 171838Z 1719/1801 09008KT 3SM -SN BR BKN020 OVC060 TEMPO 1719/1801 P6SM NSW SCT020 BKN060 RMK NXT FCST WILL BE ISSUED AT 181845Z CYZX 171730Z 1718/1818 27020G30KT P6SM FEW012 BKN030 TEMPO 1718/1724 P6SM -SHRA OVC012 FM180000 29020G30KT P6SM BKN030 TEMPO 1800/1815 4SM -SHSN BKN020 BECMG 1806/1808 29015G25KT RMK NXT FCST BY 180000Z CYZY 171838Z 1719/1807 16008KT 6SM -SN OVC030 TEMPO 1719/1803 3SM -SN BKN015 OVC030 FM180300 12005KT 2SM -SN BKN008 OVC015 TEMPO 1803/1807 5SM -SN BKN015 OVC025 RMK FCST BASED ON AUTO OBS. NXT FCST BY 180100Z CZBF 171938Z 1720/1804 33012G22KT 11/2SM -SN OVC009 TEMPO 1720/1721 6SM -SNRA BR OVC015 FM172100 32012G22KT 2SM -SN OVC020 TEMPO 1721/1804 6SM -SHSN OVC025 RMK NXT FCST BY 180200Z CZFA 171738Z 1718/1723 VRB03KT P6SM BKN060 OVC080 TEMPO 1718/1723 3SM -SN BKN020 OVC060 RMK NXT FCST WILL BE ISSUED AT 181645Z CZFM 172227Z 1722/1724 32005KT P6SM SCT030 TEMPO 1722/1724 BKN020 RMK NXT FCST WILL BE ISSUED AT 181545Z CZMD 171738Z 1718/1723 23012G22KT P6SM -SN SCT015 OVC025 TEMPO 1718/1719 2SM -SHSN OVC015 FM171900 24012G22KT P6SM SCT015 BKN025 TEMPO 1719/1723 5SM -SN BKN015 BECMG 1720/1722 28010G20KT RMK FCST BASED ON AUTO OBS. NXT FCST WILL BE ISSUED AT 181045Z CZMT 171838Z 1719/1802 16012KT P6SM FEW007 SCT020 BKN030 TEMPO 1719/1802 3SM -SHRA BR SCT007 BKN020 BECMG 1720/1722 17015G30KT RMK NXT FCST WILL BE ISSUED AT 181615Z CZSJ 171824Z 1718/1723 28015G25KT P6SM SCT015 BKN025 TEMPO 1718/1723 5SM -SN BKN015 RMK FCST BASED ON AUTO OBS. NXT FCST WILL BE ISSUED AT 181045Z CZUM 171938Z 1720/1808 07010G20KT 3/4SM -SN OVC015 TEMPO 1720/1803 3SM -SN FM180300 03012KT 6SM -SN OVC020 TEMPO 1803/1808 21/2SM -SN PROB30 1803/1808 2SM -SN RMK FCST BASED ON AUTO OBS. NXT FCST BY 180200Z CZVL 171743Z 1718/1806 30008KT P6SM BKN050 TEMPO 1718/1720 3SM -SN FM172000 30005KT P6SM BKN050 TEMPO 1720/1722 P6SM -SN FM172200 30005KT P6SM SCT050 FM180400 18006KT P6SM BKN040 TEMPO 1804/1806 6SM -SN RMK FCST BASED ON AUTO OBS. NXT FCST BY 180000Z DAAE 171700Z 1718/1818 06010KT 9999 FEW023 BECMG 1720/1722 20008KT PROB30 TEMPO 1800/1806 VRB02KT 3000 BR SCT008 BECMG 1807/1809 32010KT DAAG 171700Z 1718/1818 VRB02KT 9999 FEW023 PROB30 TEMPO 1800/1806 4000 BR BKN015 BECMG 1808/1811 04010KT DAAJ 171700Z 1718/1818 VRB02KT CAVOK BECMG 1720/1723 04010KT BECMG 1806/1809 VRB02KT DAAS 171700Z 1718/1818 34010KT 9999 SCT026 BECMG 1722/1724 VRB02KT PROB30 TEMPO 1800/1806 3000 BR SCT008 BECMG 1806/1809 30010KT TEMPO 1812/1817 FEW023TCU DAAT 171700Z 1718/1818 30010KT CAVOK BECMG 1719/1722 06008KT BECMG 1809/1812 16010KT DAAV 171700Z 1718/1818 29010KT 9999 FEW020 PROB30 TEMPO 1804/1816 RA FEW023TCU BKN030 DABB 171700Z 1718/1818 32015KT 9999 FEW020TCU SCT030 BECMG 1721/1724 22010KT PROB30 TEMPO 1800/1806 VRB02KT 3000 BR FEWW08 TEMPO 1809/1815 RA FEW020CB BKN030 BECMG 1810/1812 32015KT DABC 171700Z 1718/1818 34010KT 9999 FEW030 BECMG 1722/1724 VRB02KT PROB40 TEMPO 1800/1806 3000 BR SCT008 BECMG 1810/1812 30010KT TEMPO 1812/1816 FEW023TCU DABS 171700Z 1718/1818 34012KT 9999 SCT030 BECMG 1721/1724 20010KT PROB30 TEMPO 1800/1806 VRB02KT 3000 BR SCT008 BECMG 1810/1812 32010KT TEMPO 1815/1818 FEW023TCU DABT 171700Z 1718/1818 32010KT 9999 FEW023 BECMG 1720/1722 VRB02KT PROB30 TEMPO 1800/1806 3000 BR SCT008 BECMG 1806/1809 34010KT DAOB 171700Z 1718/1818 VRB02KT CAVOK DAOI 171700Z 1718/1818 VRB02KT CAVOK BECMG 1814/1816 02010KT DAON 171700Z 1718/1818 VRB02KT CAVOK BECMG 1814/1816 36010KT DAOO 171700Z 1718/1818 VRB02KT CAVOK PROB30 TEMPO 1800/1806 3000 BR NSC BECMG 1814/1816 04010KT DAUA 171700Z 1718/1818 06010KT CAVOK DAUB 171700Z 1718/1818 30012KT 9999 FEW040 DAUG 171700Z 1718/1818 VRB02KT CAVOK DAUH 171700Z 1718/1818 VRB02KT CAVOK DAUI 171700Z 1718/1818 06010KT CAVOK PROB30 TEMPO 1808/1812 06015G25KT 4000 DRSA DAUZ 171700Z 1718/1818 07008KT CAVOK DBBB 171700Z 1718/1824 22010KT 9999 SCT012 PROB30 TEMPO 1718/1724 TS BKN012 FEW023CB TEMPO 1805/1809 VRB02KT 4000 BR DFFD 171700Z 1718/1824 06008KT 8000 NSC TEMPO 1718/1720 4000 HZ TEMPO 1806/1810 4000 HZ TEMPO 1817/1820 4000 HZ DFOO 171700Z 1718/1818 06008KT 8000 NSC TEMPO 1806/1810 4000 HZ DGAA 171700Z 1718/1824 23010KT 9999 SCT014 BECMG 1722/1724 FEW012 FM180200 28010KT 5000 BR CAVOK TEMPO 1811/1815 19010KT 9999 SCT020 FEW030CB DIAP 171700Z 1718/1824 24008KT 9999 SCT012 PROB30 TEMPO 1720/1724 4000 TSRA BKN010 FEW020CB OVC030 PROB30 TEMPO 1803/1809 3000 TSRA BKN008 FEW020CB OVC030 BECMG 1810/1812 BKN012 TEMPO 1817/1823 TS BKN010 FEW020CB DIBK 171700Z 1718/1818 20008KT 9999 SCT013 PROB30 TEMPO 1718/1724 TS BKN013 FEW023CB PROB30 TEMPO 1805/1808 2000 BR BECMG 1809/1811 BKN013 DIYO 171700Z 1718/1818 20006KT 9999 SCT012 PROB30 TEMPO 1718/1724 TS BKN012 FEW020CB PROB30 TEMPO 1805/1808 2000 BR BECMG 1809/1811 BKN012 DNAA 171540Z 1718/1824 24006KT 9999 SCT015 FEW020CB BECMG 1718/1720 12010KT CAVOK BECMG 1801/1803 06003KT PROB30 TEMPO 1808/1814 23008KT BKN013 DNCA 171535Z 1718/1824 24004KT 7000 BKN009 TEMPO 1721/1801 TS BKN008 FEW020CB TEMPO 1803/1807 5000 -RA BR BECMG 1808/1810 BKN011 FEW020CB DNEN 171535Z 1718/1824 18005KT 8000 FEW010 BECMG 1808/1810 BKN013 FEW021CB DNIL 171540Z 1718/1824 21006KT 9999 SCT014 TEMPO 1718/1722 17010KT CAVOK BECMG 1802/1804 VRB02KT TEMPO 1807/1813 24008KT BKN012 DNIM 171535Z 1718/1824 23006KT 9999 SCT010 TEMPO 1801/1807 5000 -RA BR BECMG 1808/1810 BKN012 FEW021CB DNJO 170930Z 1712/1818 31005KT CAVOK TEMPO 1713/1715 09012KT DNKA 170940Z 1712/1818 18006KT CAVOK 1714/1716 09013KT DNKN 171530Z 1718/1824 VRB02KT CAVOK BECMG 1807/1809 08008KT DNKT 171530Z 1718/1824 08008KT CAVOK DNMM 170950Z 1712/1818 18005KT 9999 BKN014 FEW020CB PROB30 TEMPO 1712/1718 25010KT TS BECMG 1718/1720 FEW011 DNMN 171540Z 1718/1824 12005KT 9999 FEW012 BECMG 1718/1720 06013KT CAVOK DNPO 171535Z 1718/1824 00000KT 8000 SCT009 TEMPO 1802/1807 4000 BR PROB30 TEMPO 1804/1806 0800 FG VV/// BECMG 1808/1810 21008KT BKN010 FEW020CB DNSO 170935Z 1712/1818 07010KT CAVOK DNSU 170950Z 1712/1818 21010KT 9999 BKN013 FEW020CB TEMPO 1713/1719 TS PROB30 1715/1719 5000 TSRA BKN010 FEW019CB BECMG 1719/1721 VRB02KT SCT010 DNYO 170935Z 1712/1818 21008KT CAVOK TEMPO 1715/1720 TS BKN013 FEW022CB DRRN 171700Z 1718/1824 04008KT 6000 NSC TEMPO 1718/1721 3500 DU TEMPO 1806/1810 3500 DU DRZA 171700Z 1718/1818 10010KT 8000 NSC DRZR 171700Z 1718/1818 06008KT 8000 NSC DTMB 171740Z 1718/1818 31018KT 9999 SCT020 BECMG 1719/1721 27010KT BECMG 1811/1813 33012KT DTNH 171740Z 1718/1818 35008KT 9999 FEW040 BECMG 1719/1721 27008KT BECMG 1811/1813 33012KT DTTA 171740Z 1718/1818 27008KT 9999 SCT023 BECMG 1801/1803 21004KT BECMG 1807/1809 27012KT DTTJ 171740Z 1718/1818 25008KT 9999 FEW023 BECMG 1801/1803 32010KT BECMG 1811/1813 23008KT DTTZ 171740Z 1718/1818 24008KT 9999 FEW023 TEMPO 1803/1813 VRB03KT DXNG 171700Z 1718/1818 VRB05KT 9999 FEW010= EGUL 171822Z 1712/1818 26009KT 9999 SCT020 QNH3009INS TEMPO 1804/1807 25010G15KT TX10/1715Z TN01/1800Z LAST NO AMDS AFT 1718 NEXT 1815 DXXX 171700Z 1718/1824 20010KT 9999 SCT012 BECMG 1722/1724 VRB03KT PROB30 TEMPO 1805/1809 4500 BR BKN012 BECMG 1809/1811 20010KT EBBR 171709Z 1718/1824 27004KT 9999 SCT045 PROB30 TEMPO 1817/1820 BKN013 EBCI 171709Z 1718/1824 27003KT 9999 SCT040 TEMPO 1817/1822 4000 -RADZ SCT005 BKN008 EBLG 171709Z 1718/1824 27003KT 9999 SCT035 PROB40 1821/1824 BKN008 EBOS 171709Z 1718/1824 27008KT 9999 FEW030 SCT045 PROB40 TEMPO 1811/1817 27015G25KT PROB40 TEMPO 1821/1824 32015G25KT EDDB 171700Z 1718/1818 23007KT CAVOK BECMG 1808/1811 23015G25KT TEMPO 1814/1817 RA BKN012 EDDC 172219Z 1722/1818 VRB03KT 5000 BR NSC PROB30 TEMPO 1722/1804 0300 FZFG BKN001 BECMG 1800/1803 21005KT BECMG 1810/1813 25012KT TEMPO 1813/1818 25015G25KT EDDE 171700Z 1718/1818 24005KT 9999 SCT040 TEMPO 1720/1802 1200 BCFG PROB30 TEMPO 1720/1802 0200 FG BKN001 BECMG 1802/1805 22010KT PROB30 TEMPO 1803/1808 2500 BR BKN004 BECMG 1809/1812 24015G25KT PROB30 TEMPO 1815/1818 SHRA BKN015CB EDDF 171700Z 1718/1824 VRB03KT 3000 BR OVC004 TEMPO 1718/1823 2000 BR PROB30 TEMPO 1723/1808 0400 FG OVC001 BECMG 1807/1809 21006KT 9999 FEW015 BECMG 1810/1812 24012KT EDDG 171700Z 1718/1818 21004KT 9999 SCT035 BECMG 1803/1806 23010KT BECMG 1806/1809 24015G25KT TEMPO 1811/1816 27020G30KT SHRA BKN015TCU BECMG 1816/1818 25010KT EDDH 171700Z 1718/1824 23007KT 9999 SCT020 BECMG 1806/1808 23015G30KT TEMPO 1809/1813 SHRA BKN012CB BECMG 1811/1813 27010KT TEMPO 1813/1815 28015G25KT PROB30 TEMPO 1813/1824 SHRA EDDK 171700Z 1718/1824 VRB03KT 9999 SCT035 BECMG 1808/1811 26010KT PROB40 TEMPO 1817/1821 SHRA BKN015TCU EDDL 171700Z 1718/1824 21003KT 9999 SCT035 BECMG 1805/1808 23013KT TEMPO 1810/1816 26015G25KT BECMG 1816/1818 27008KT PROB40 TEMPO 1816/1820 SHRA BKN020TCU EDDM 171747Z 1718/1824 22003KT 8000 FEW012 BKN020 BECMG 1718/1721 4000 BR BKN012 TEMPO 1721/1809 2500 -DZ BKN007 BECMG 1809/1812 25009KT 9999 BKN020 EDDN 171700Z 1718/1818 16003KT 3000 BR OVC005 TEMPO 1718/1809 2000 -DZ OVC003 BECMG 1809/1812 25009KT 8000 BKN015 EDDP 171700Z 1718/1818 22004KT CAVOK TEMPO 1721/1803 1200 BCFG PROB30 TEMPO 1722/1803 0600 FG BKN001 BECMG 1803/1806 22010KT PROB30 TEMPO 1803/1808 2500 BR BKN004 BECMG 1809/1812 24015G25KT PROB30 TEMPO 1815/1818 SHRA BKN015CB EDDR 171949Z 1719/1818 VRB03KT 7000 SCT008 BKN015 BECMG 1720/1723 4000 BR BKN005 TEMPO 1721/1808 0100 FG BKN001 BECMG 1809/1811 25010KT 9999 SCT020 EDDS 171700Z 1718/1818 VRB01KT 4000 BR OVC004 TEMPO 1720/1808 2000 BECMG 1808/1810 9999 SCT015 BECMG 1810/1812 26007KT EDDT 171700Z 1718/1818 24005KT CAVOK BECMG 1803/1806 23010KT BECMG 1809/1812 23015G25KT TEMPO 1814/1818 RA BKN012 EDDV 171700Z 1718/1818 23006KT 9999 FEW030 BECMG 1807/1809 24015G30KT TEMPO 1812/1815 SHRA PROB30 TEMPO 1813/1815 BKN014CB BECMG 1813/1815 28012KT PROB30 TEMPO 1815/1816 29015G25KT SHRA EDDW 171700Z 1718/1818 23008KT 9999 SCT025 BECMG 1806/1808 23015G30KT TEMPO 1810/1813 SHRA BKN014CB BECMG 1811/1813 27010KT TEMPO 1813/1815 28015G25KT PROB30 TEMPO 1813/1818 SHRA EDFH 172205Z 1722/1818 33004KT 9000 SCT025 PROB30 TEMPO 1722/1808 0100 FG BKN001 BECMG 1804/1806 27006KT BECMG 1808/1810 27012KT PROB30 TEMPO 1812/1818 27015G25KT EDLP 171700Z 1718/1818 21004KT 9999 SCT035 BECMG 1801/1804 24010KT BECMG 1806/1809 24015G25KT TEMPO 1811/1816 27020G30KT PROB40 TEMPO 1814/1818 SHRA BKN015TCU EDLV 171700Z 1718/1818 22004KT 9999 SCT045 BECMG 1803/1806 23010KT TEMPO 1810/1815 25015G25KT PROB30 TEMPO 1812/1815 27020G30KT EDLW 172150Z 1721/1818 CNL= ETIC 172207Z 1722/1904 VRB06KT 3200 BR BKN004 610809 QNH3013INS TEMPO 1722/1804 0800 FG BECMG 1808/1809 26012KT 9999 NSW BKN010 620206 QNH3010INS BECMG 1811/1812 26010G15KT 9999 BKN030 620305 QNH3001INS BECMG 1818/1819 25015G20KT 9999 BKN015 620206 QNH2998INS TEMPO 1819/1824 26015G25KT 6000 -RASN BECMG 1823/1824 26012G18KT 6000 -SN BKN005 620206 QNH2990INS TX04/1809Z TN00/1818Z EDNY 171919Z 1719/1818 06003KT 6000 BKN012 TEMPO 1719/1809 2500 BR BKN007 BECMG 1809/1812 24006KT BKN020 EDOP 171801Z 1718/1818 CNL EDSB 171750Z 1718/1818 VRB01KT 5000 BR OVC006 TEMPO 1720/1808 2000 OVC003 BECMG 1808/1810 SCT015 BECMG 1810/1812 26007KT EEEI 171730Z 1718/1818 23012KT 9999 BKN020 PROB40 TEMPO 1723/1809 4000 DZRA BR BKN006 PROB30 TEMPO 1808/1813 23014G25KT TEMPO 1813/1818 5000 SHRA BKN008 SCT012CB EETN 171720Z 1718/1818 24015KT 9999 BKN020 TEMPO 1722/1818 5000 SHRA BKN010 SCT015CB BECMG 1807/1809 18015KT PROB30 TEMPO 1809/1818 18015G26KT EETU 172100Z 1718/1818 CNL EFHK 172025Z 1721/1821 22009KT 9999 BKN035 TEMPO 1808/1813 SCT025CB TEMPO 1813/1821 20012G22KT 5000 SHRA BKN014 SCT020CB EFJY 172025Z 1721/1821 23008KT 9999 BKN015 BECMG 1723/1801 BKN010 PROB30 TEMPO 1801/1809 3000 BR BKN005 BECMG 1809/1811 BKN008 TEMPO 1813/1816 2500 -RASN BKN004 TEMPO 1816/1821 3000 BR BKN004 EFKU 172031Z 1721/1821 23015KT 9999 SCT016 BKN030 TEMPO 1721/1722 23015G25KT TEMPO 1803/1812 5000 BKN010 BECMG 1812/1815 15008KT BKN010 TEMPO 1815/1819 3000 -SNRA BKN004 BECMG 1819/1821 1000 BR BKN002 EFOU 172031Z 1721/1821 21008KT 8000 -RASN BKN002 TEMPO 1721/1724 1200 BR BKN010 PROB30 1721/1724 -FZDZ BECMG 1800/1803 27010KT SCT007 BKN015 TEMPO 1800/1803 2000 SNRA TEMPO 1803/1813 4000 BKN006 BECMG 1813/1815 10005KT TEMPO 1813/1818 4000 BR BKN004 EFRO 172031Z 1721/1821 06012KT 5000 -SN SCT004 BKN015 TEMPO 1721/1809 1000 SN VV005 TEMPO 1809/1821 2000 SN BKN008 PROB30 1809/1821 0600 FZFG VV001 EFTP 172025Z 1721/1821 22012KT 9999 BKN030 BECMG 1802/1804 BKN005 TEMPO 1804/1809 3000 BR BKN004 TEMPO 1809/1813 5000 SHRA BKN008 SCT020CB BECMG 1810/1812 16010KT BECMG 1813/1815 BKN030 EFTU 172025Z 1721/1821 24011KT 9999 BKN030 TEMPO 1807/1816 5000 -SHRA BKN014 SCT020CB EFVA 172031Z 1721/1821 26009KT CAVOK PROB40 1800/1806 2500 BR BKN003 TEMPO 1806/1812 2500 BR BKN003 BECMG 1812/1815 6000 BKN004 TEMPO 1815/1821 3000 -SNRA BKN008 EGAA 171653Z 1718/1818 24010KT 9999 FEW020 SCT040 PROB30 TEMPO 1800/1809 BKN013 EGBB 171702Z 1718/1818 23006KT 9999 SCT035 PROB40 1723/1808 6000 PROB40 TEMPO 1808/1815 6000 -RA BKN010 BECMG 1814/1817 30010KT EGCC 171702Z 1718/1824 24007KT 9999 SCT035 BECMG 1809/1812 30010KT PROB30 TEMPO 1809/1812 8000 -SHRA BKN013 EGCN 171658Z 1718/1818 24009KT 9999 SCT030 PROB30 TEMPO 1800/1810 25015G25KT PROB30 TEMPO 1806/1810 7000 SHRA EGFF 171702Z 1718/1818 VRB04KT 9999 SCT035 BECMG 1803/1806 23010KT BKN012 TEMPO 1806/1812 6000 -RA BKN008 BECMG 1810/1813 30009KT FEW012 SCT020 PROB30 TEMPO 1813/1818 BKN012 EGGD 171706Z 1718/1818 VRB04KT 9999 SCT030 BECMG 1802/1805 BKN012 BECMG 1805/1808 8000 -DZ BKN007 PROB40 TEMPO 1807/1814 3000 DZRA BKN004 BECMG 1808/1811 22010KT BECMG 1815/1818 32006KT 9999 NSW SCT010 BKN020 EGGP 171702Z 1718/1818 25010KT 9999 SCT035 PROB30 TEMPO 1807/1812 8000 -SHRA BECMG 1809/1812 31012KT EGGW 171657Z 1718/1818 25006KT 9999 FEW030 PROB30 1802/1809 8000 BECMG 1810/1813 BKN009 PROB40 TEMPO 1810/1815 4000 RADZ BKN004 BECMG 1815/1818 BKN030 EGKK 171657Z 1718/1824 VRB03KT CAVOK BECMG 1721/1724 9000 PROB30 1802/1808 3000 BR MIFG BECMG 1808/1812 26010KT 9999 BKN030 TEMPO 1813/1821 7000 -RADZ BKN012 PROB30 TEMPO 1818/1821 BKN008 EGLL 171658Z 1718/1824 30003KT 9999 FEW030 TEMPO 1722/1809 8000 PROB30 TEMPO 1800/1809 4500 BR BECMG 1809/1812 24010KT TEMPO 1811/1818 7000 -RADZ BKN012 PROB40 TEMPO 1812/1817 BKN007 BECMG 1820/1823 30006KT EGNM 171706Z 1718/1818 27012KT 9999 FEW018 SCT030 TEMPO 1718/1806 28020G30KT PROB30 TEMPO 1718/1802 9000 -SHRA TEMPO 1802/1810 7000 SHRA BKN012 EGNT 171658Z 1718/1818 26012KT 9999 SCT025 TEMPO 1718/1818 27015G25KT PROB30 TEMPO 1800/1806 7000 SHRA EGNX 171702Z 1718/1818 24008KT 9999 SCT035 PROB40 1723/1809 6000 PROB30 TEMPO 1809/1814 8000 -SHRA BKN014 BECMG 1813/1816 30010KT EGPD 171654Z 1718/1818 24008KT 9999 FEW025 BECMG 1721/1724 30015KT PROB40 TEMPO 1721/1806 29018G28KT 6000 SHRA BKN012 PROB40 TEMPO 1806/1818 29018G28KT EGPF 171658Z 1718/1818 25009KT 9999 SCT025 TEMPO 1718/1806 7000 SHRA PROB40 TEMPO 1718/1804 26015G25KT EGPH 171654Z 1718/1818 26014KT 9999 SCT025 TEMPO 1718/1804 25020G30KT 7000 SHRA BKN014 PROB30 TEMPO 1804/1806 7000 SHRA EGPK 171658Z 1718/1818 26015KT 9999 SCT020 TEMPO 1718/1804 27018G28KT PROB40 TEMPO 1718/1806 7000 SHRA BECMG 1804/1807 32010KT EGQS 171931Z 1721/1815 26014KT 9999 FEW030 TEMPO 1721/1808 27015G25KT 7000 -SHRA SCT024 PROB30 TEMPO 1721/1723 28025G35KT 4500 SHGS SHRA SCT022CB PROB30 TEMPO 1723/1806 29025G35KT 4000 SHRASN SHGS SCT016CB PROB30 TEMPO 1814/1815 28015G25KT 7000 SHRA SCT024 EGSS 171657Z 1718/1824 25005KT 9999 FEW035 BECMG 1800/1803 8000 PROB30 1803/1809 3000 BR MIFG BECMG 1809/1811 9999 PROB30 TEMPO 1811/1815 6000 -RADZ BKN010 EGUL 171226Z 1712/1818 26009KT 9999 SCT020 QNH3009INS TEMPO 1804/1807 25010G15KT TX10/1715Z TN01/1800Z EGUN 172004Z 1720/1902 25006KT 9999 SCT030 QNH3020INS BECMG 1809/1810 26009KT 9999 BKN030 QNH3014INS BECMG 1811/1812 28012G20KT 9000 -RA BKN012 QNH3013INS BECMG 1815/1816 29009KT 9999 NSW BKN020 QNH3010INS TX09/1813Z TN01/1723Z EGVN 171947Z 1721/1821 25003KT 9999 SCT035 BECMG 1809/1812 BKN015 TEMPO 1810/1818 5000 -RA SCT010 PROB30 TEMPO 1812/1818 3000 RADZ SCT006 BECMG 1818/1821 SCT030 EGVO 171332Z 1715/1803 34004KT 9999 FEW030 EGWU 172135Z 1721/1815 CNL= GCRR 172142Z 1721/1821 02008KT 9999 SCT030 TX23/1814Z TN16/1806Z TEMPO 1812/1817 08011KT EGXC 171944Z 1721/1815 25008KT CAVOK EGXW 171919Z 1721/1815 23008KT 9999 FEW035 PROB30 TEMPO 1809/1811 -RA SCT020 EGYP 172249Z 1722/1815 17020KT 9999 BKN012 BECMG 1722/1801 FEW018 SCT030 BECMG 1800/1803 18010KT BECMG 1812/1815 27015KT -RA BKN018 PROB40 TEMPO 1814/1815 6000 RA SCT010 EHAM 171715Z 1718/1824 24005KT 9999 FEW030 BECMG 1803/1806 26013KT BECMG 1806/1809 27018G28KT TEMPO 1812/1815 30021G33KT 6000 SHRA SCT020CB BKN030 BECMG 1814/1817 29012KT PROB30 TEMPO 1815/1824 30015G25KT 7000 -SHRA FEW025TCU EHBK 171706Z 1718/1824 26006KT CAVOK BECMG 1808/1810 23013KT PROB40 TEMPO 1817/1824 29015G25KT 6000 -SHRA RA SCT015TCU BKN020 BECMG 1818/1821 26008KT BKN012 PROB30 1819/1824 BKN008 EHEH 171732Z 1718/1824 21002KT 9999 FEW040 SCT180 BECMG 1808/1811 25012G22KT TEMPO 1813/1820 SCT015 SCT018CB BKN025 BECMG 1819/1821 28008KT EHGG 171704Z 1718/1824 23008KT CAVOK BECMG 1808/1811 30015KT TEMPO 1808/1813 32020G32KT 6000 SHRA SCT018CB OVC025 PROB30 TEMPO 1810/1812 4000 TSRAGS BKN015CB OVC020 PROB30 TEMPO 1813/1824 7000 -SHRA SCT030TCU BECMG 1815/1817 28009KT EHGR 171504Z 1714/1802 CNL EHKD 171728Z 1718/1806 28012KT 9999 FEW035 BKN170 PROB30 TEMPO 1714/1806 FEW025CB SCT030 BECMG 1800/1803 26020KT EHRD 171715Z 1718/1824 24005KT 9999 FEW030 BECMG 1803/1806 26013KT BECMG 1806/1809 27018G28KT TEMPO 1813/1816 30021G33KT 6000 SHRA SCT020CB BKN030 BECMG 1815/1818 29012KT PROB30 TEMPO 1816/1824 30015G25KT 7000 -SHRA FEW025TCU EHVK 171740Z 1718/1806 21002KT 9999 FEW040 SCT180 EICK 171700Z 1718/1818 VRB03KT 9999 FEW018 BKN030 BECMG 1721/1723 24007KT BKN008 BECMG 1801/1803 4000 BR -DZ BKN007 TEMPO 1802/1808 1200 BKN003 BECMG 1810/1812 25012KT 8000 SCT007 BKN015 EIDW 171100Z 1712/1812 23010KT 9999 FEW018 BKN040 PROB30 TEMPO 1804/1808 5000 -DZ BR BKN014 EIKN 171802Z 1718/1818 23005KT 7000 -DZ BKN008 TEMPO 1718/1810 2000 BKN002 PROB30 TEMPO 1720/1810 0800 FG BKN001 BECMG 1810/1813 8000 SCT007 BKN012 EINN 171100Z 1712/1812 16005KT 9999 FEW018 BKN040 BECMG 1719/1722 14006KT BKN012 TEMPO 1722/1802 5000 -RADZ BKN007 BECMG 1800/1803 VRB03KT 5000 -DZ BKN007 TEMPO 1802/1809 3000 BKN004 BECMG 1809/1812 8000 SCT007 BKN014 EKAH 171100Z 1712/1812 26012KT 9999 SCT030 TEMPO 1720/1724 24015G25KT SHRA SCT030CB TEMPO 1800/1812 24015G25KT SHRAGS BKN014 SCT030CB EKBI 171100Z 1712/1812 25012KT 9999 SCT030 TEMPO 1721/1724 SHRA SCT030CB TEMPO 1800/1812 25015G25KT SHRAGS BKN014 SCT030CB EKCH 171101Z 1712/1812 27012KT 9999 SCT030 TEMPO 1723/1806 24015G25KT SHRA SCT020CB TEMPO 1806/1812 24018G30KT 4000 SHRAGS BKN012 SCT020CB EKKA 172018Z 1721/1818 24012KT 9999 SCT025 TEMPO 1721/1801 23012G22KT 6000 SHRA SCT020CB TEMPO 1801/1810 23012G25KT 4000 SHRAGS BKN012CB TEMPO 1810/1818 27015G25KT 4000 SHRAGS BKN012CB EKSP 172018Z 1721/1818 25012KT 9999 SCT025 TEMPO 1721/1803 6000 SHRA SCT020CB TEMPO 1803/1811 23012G25KT 4000 SHRAGS BKN012CB TEMPO 1811/1818 27015G25KT 4000 SHRAGS BKN012CB EKYT 172018Z 1721/1818 24012KT 9999 SCT025 TEMPO 1721/1724 23015G25KT 6000 SHRA SCT020CB TEMPO 1800/1809 23015G25KT 4000 SHRAGS BKN012CB TEMPO 1809/1818 27015G25KT 4000 SHRAGS BKN012CB ELLX 171700Z 1718/1824 20003KT 0300 FG VV002 TEMPO 1802/1808 FZFG BECMG 1808/1810 6000 BKN010 ENAN 171700Z 1718/1818 11015KT 9999 FEW015 BKN070 ENBO 171700Z 1718/1818 09018KT 9999 FEW008 SCT040 PROB40 TEMPO 1800/1809 3000 -SHSNRA BKN014CB ENBR 1720/1818 25010KT 9999 -SHRA FEW015TCU BKN030 TEMPO 1720/1812 26015G25KT 4000 TSRAGS BKN012CB BECMG 1812/1815 32015KT TEMPO 1812/1818 SHRA BKN014CB ENDU 171700Z 1718/1818 12005KT 9999 FEW035 BKN050 ENGC 172000Z 1721/1821 29035G45KT 9999 -SHRA FEW015TCU SCT030 TEMPO 1721/1821 4000 SHRAGS BKN012CB PROB30 TEMPO 1721/1812 TS BECMG 1809/1812 33045G55KT BECMG 1817/1820 34038KT ENGM 171700Z 1718/1818 19006KT CAVOK PROB30 TEMPO 1815/1818 4000 -SN BKN040 BECMG 1817/1818 02010KT ENNA 171942Z 1719/1818 VRB05KT 9999 FEW005 TEMPO 1719/1818 BKN002 PROB30 1719/1818 0500 FZFG VV001 ENOA 172000Z 1721/1821 28035KT 9999 -SHRA FEW015TCU SCT030 TEMPO 1721/1821 4000 SHRAGS BKN012CB PROB30 TEMPO 1721/1812 TS BECMG 1812/1815 32045G55KT BECMG 1818/1821 34035KT ENOL 171700Z 1718/1818 22020KT 9999 -SHRA FEW012TCU BKN025 TEMPO 1718/1724 24028G38KT 3000 SHRASNGS SCT007 BKN012CB PROB30 TEMPO 1718/1722 TS BECMG 1800/1803 14015KT ENRY 171700Z 1718/1818 21015KT CAVOK BECMG 1720/1722 23005KT ENSB 171700Z 1718/1818 11010KT 9999 FEW015 BKN030 BECMG 1801/1803 12020KT ENTC 171700Z 1718/1818 VRB03KT 9999 FEW012 ENTO 171700Z 1718/1818 20012KT 9999 FEW040 BECMG 1803/1806 26008KT ENVA 171700Z 1718/1818 12008KT 9999 FEW025 SCT050 ENZV 171956Z 1719/1818 27018KT 9999 -SHRA SCT020TCU BKN040 TEMPO 1719/1722 28020G30KT TEMPO 1719/1818 4000 SHRAGS BKN014CB PROB30 TEMPO 1719/1812 TS BECMG 1812/1815 32022G32KT EPBY 171730Z 1718/1818 VRB04KT CAVOK BECMG 1718/1721 4000 BR TEMPO 1721/1809 1500 BR BKN005 PROB40 1722/1807 0300 FZFG OVC001 BECMG 1803/1806 22010KT TEMPO 1811/1818 23015G25KT BECMG 1814/1817 28010KT 4000 -RA BR BKN005 EPGD 171730Z 1718/1818 23010KT 8000 SCT022 PROB40 TEMPO 1723/1810 BKN008 TEMPO 1810/1818 21015G25KT PROB30 TEMPO 1810/1814 BKN012 BECMG 1814/1817 4500 -RA BR BKN007 EPKK 171730Z 1718/1818 25005KT 3000 BR BKN009 TEMPO 1718/1724 1000 RA DZ BR BKN004 BKN009 BECMG 1800/1802 7000 SCT009 TEMPO 1802/1807 4000 BR BKN005 BECMG 1807/1810 CAVOK EPKT 171730Z 1718/1818 27005KT 3000 BR BKN005 TEMPO 1718/1722 1000 RA DZ BR BKN002 BKN005 BECMG 1722/1724 7000 NSC BECMG 1801/1803 1500 BR PROB40 1803/1807 0500 FG BKN001 BECMG 1807/1810 CAVOK BECMG 1815/1818 20010KT EPLL 171730Z 1718/1818 30005KT 3000 -RA BR BKN004 BECMG 1719/1722 1200 BR OVC002 TEMPO 1722/1807 0500 FG OVC001 BECMG 1808/1810 6000 NSW BKN015 EPMO 172059Z 1720/1818 VRB03KT 0600 FG OVC002 TEMPO 1721/1809 0100 FG OVC001 BECMG 1809/1812 22010KT 6000 BKN015 EPPO 171819Z 1718/1818 28004KT 0800 FG NSC TEMPO 1718/1807 0300 FG PROB30 TEMPO 1721/1806 0100 FZFG OVC001 BECMG 1807/1810 20010KT 9999 BKN015 TEMPO 1812/1818 22015G28KT EPRZ 171730Z 1718/1818 27005KT 2000 BR BKN015 BECMG 1718/1721 BKN005 TEMPO 1718/1721 1000 RA DZ BR TEMPO 1721/1808 1000 RA DZ BR BKN002 BKN005 BECMG 1808/1810 9999 NSW BKN010 BECMG 1811/1813 SCT020 EPSC 171730Z 1718/1818 VRB04KT CAVOK BECMG 1718/1722 22010KT PROB30 TEMPO 1722/1803 4500 BR TEMPO 1810/1818 24015G28KT BECMG 1813/1815 BKN014 PROB40 TEMPO 1813/1818 4500 SHRA BKN005 BKN011CB EPWA 171918Z 1719/1818 30005KT 5000 BR BKN007 BECMG 1720/1723 1500 BR TEMPO 1722/1807 0500 FG OVC001 BECMG 1808/1810 6000 BKN015 EPWR 171730Z 1718/1818 29004KT 4000 BR SCT025 BECMG 1718/1720 1200 BR TEMPO 1719/1808 0500 FG BKN002 PROB40 TEMPO 1721/1806 0100 FG OVC001 BECMG 1808/1810 21010KT 9999 BKN020 PROB40 TEMPO 1816/1818 23015G25KT ESGG 171730Z 1718/1818 25015KT 9999 BKN020 TEMPO 1718/1806 25015G25KT PROB40 1718/1802 SHRA BKN008 BKN020CB TEMPO 1802/1810 2500 SHSNRA BKN008 BKN020CB TEMPO 1816/1818 SHRA BKN008 BKN020CB ESKN 172024Z 1720/1818 24017G27KT 9999 SCT035 BECMG 1721/1723 23012KT PROB40 1800/1809 SHRA BKN008 BKN020CB ESMS 171657Z 1718/1818 27010KT 9999 SCT030 TEMPO 1802/1806 24015G25KT SHRA SCT020CB TEMPO 1806/1815 24018G30KT 4000 SHRAGS BKN012 SCT020CB ESSA 171730Z 1718/1818 24012KT CAVOK TEMPO 1800/1812 4000 -RADZ BKN008 ETAD 171903Z 1719/1901 VRB06KT 9000 BR OVC030 QNH3027INS BECMG 1722/1723 VRB06KT 5000 BR OVC020 QNH3024INS TEMPO 1723/1805 2400 BR OVC015 BECMG 1806/1807 24006KT 6000 BR SCT006 BKN020 QNH3024INS BECMG 1808/1809 25009KT 9999 NSW BKN030 QNH3018INS BECMG 1812/1813 25010G15KT 9999 BKN030 620306 QNH3012INS BECMG 1818/1819 24009KT 9999 OVC010 620206 QNH3012INS TX07/1813Z TN01/1801Z LAST NO AMDS AFT 1721 NEXT 1803 ETAR 172226Z 1722/1824 VRB06KT 5000 BR BKN013 OVC050 QNH3027INS TEMPO 1722/1800 3200 BR BKN007 BECMG 1800/1801 VRB06KT 5000 BR BKN007 QNH3021INS TEMPO 1801/1807 3200 BR BECMG 1811/1812 24006KT 9999 NSW BKN005 OVC030 620209 621101 QNH3018INS BECMG 1813/1814 26010G15KT 9999 BKN040 QNH3015INS TX08/1814Z TN02/1800Z ETEB 171713Z 1717/1819 28006KT 4000 BR OVC004 610509 QNH3016INS BECMG 1804/1805 26006KT 9999 NSW BKN010 OVC030 610309 QNH3015INS BECMG 1806/1807 27010G15KT 9999 SCT010 BKN030 610305 QNH3007INS BECMG 1815/1816 27015G25KT 9999 SCT015 BKN030 610305 QNH3005INS TX04/1717Z TN01/1803Z LAST NO AMDS AFT 1717 NEXT 1805 ETIC 172207Z 1722/1904 VRB06KT 3200 BR BKN004 610809 QNH3013INS TEMPO 1722/1804 0800 FG BECMG 1808/1809 26012KT 9999 NSW BKN010 620206 QNH3010INS BECMG 1811/1812 26010G15KT 9999 BKN030 620305 QNH3001INS BECMG 1818/1819 25015G20KT 9999 BKN015 620206 QNH2998INS TEMPO 1819/1824 26015G25KT 6000 -RASN BECMG 1823/1824 26012G18KT 6000 -SN BKN005 620206 QNH2990INS TX04/1809Z TN00/1818Z ETIK 171713Z 1717/1819 28006KT 4000 BR OVC005 610509 QNH3017INS BECMG 1805/1806 26006KT 9999 NSW OVC010 610305 QNH3015INS BECMG 1807/1808 27012KT 9999 SCT010 BKN030 610305 QNH3008INS BECMG 1815/1816 27015G25KT 9999 SCT015 BKN030 610305 QNH3005INS TX07/1717Z TN01/1803Z LAST NO AMDS AFT 1717 NEXT 1922 ETNG 171400Z 1715/1806 34005KT 9999 SCT040 BECMG 1719/1721 22003KT CAVOK ETNH 171717Z 1718/1806 23010KT 9999 NSW BKN050 PROB30 1718/1706 22012G22KT 6000 -SHRA BKN015 BKN030 BY ETGL ETNL 171700Z 1718/1806 24010KT 9999 NSW SCT040 BKN250 BY ETGL ETNW 171717Z 1718/1818 23008KT 9999 NSW SCT040 TEMPO 1801/1808 23005KT 7000 MIFG FEW010 SCT025 BECMG 1808/1810 25012G22KT 9999 NSW SCT015 BKN050 TEMPO 1810/1816 28015G30KT 4000 SHRA BKN015CB BY ETGL ETOU 171408Z 1714/1817 VRB06KT 4000 BR OVC003 620505 QNH3028INS TEMPO 1717/1720 6000 BR OVC007 BECMG 1719/1720 VRB03KT 6000 BR SCT006 BKN020 QNH2025INS TEMPO 1802/1806 3200 BR BKN010 BECMG 1810/1811 30010G15KT 9999 NSW BKN020 QNH2021INS TX07/1714Z TN00/1803Z ETSA 171717Z 1718/1806 VRB03KT 5000 BR OVC010 TEMPO 1718/1806 11005KT 2500 DZ OVC005 BY ETGL EVLA 172003Z 1721/1821 23012KT 9999 BKN020 TEMPO 1800/1806 19017G28KT TEMPO 1806/1821 19020G30KT 5000 -SHRA SCT007 BKN010CB EVRA 172000Z 1721/1821 21007KT 9999 SCT030 TEMPO 1802/1809 SCT007 BKN010 TEMPO 1809/1821 19015G28KT BKN010 EYKA 171107Z 1712/1812 26010KT 6000 BKN005 TEMPO 1712/1718 3000 -RA BR BKN010 BECMG 1718/1720 20010KT 3000 BR OVC005 TEMPO 1720/1803 0500 FG VV002 BECMG 1807/1809 9000 BKN030 EYVI 171703Z 1718/1818 23008KT 4500 BR OVC004 TEMPO 1720/1723 1500 OVC002 TEMPO 1723/1805 0800 FG OVC002 BECMG 1807/1809 9000 SCT015 FALE 171600Z 1718/1824 21005KT 9999 SCT030 BECMG 1808/1810 04012KT CAVOK BECMG 1815/1817 17008KT SCT025 TX23/1812Z TN14/1803Z FCBB 171700Z 1718/1824 26004KT 8000 BKN020 FEW030CB TEMPO 1801/1803 4000 TSRA BECMG 1805/1807 SCT022 FCPP 171700Z 1718/1818 19010KT 9999 SCT016 FEW030CB PROB30 TEMPO 1721/1801 TS BECMG 1803/1805 BKN015 FEFF 171700Z 1718/1824 00000KT 7000 TS FEW033CB BECMG 1720/1721 CAVOK TEMPO 1722/1801 3000 BR BKN003 TEMPO 1803/1806 0800 FG BKN003 PROB30 TEMPO 1806/1810 4000 TSRA BKN010 FEW033CB FGBT 171100Z 1712/1812 22008KT 9999 SCT010 TEMPO 1717/1724 TS BKN010 FEW020CB PROB30 TEMPO 1803/1810 TS BKN010 FEW020CB FGSL 171700Z 1718/1824 21006KT 9999 FEW012 FEW020CB BECMG 1720/1722 TS BECMG 1805/1807 NSW FHAW 171630Z 1718/1812 CNL FIMP 171730Z 1718/1900 08010KT 9999 BKN016 BKN050 TEMPO 1718/1804 7000 -SHRA FEW010 BKN014 BECMG 1804/1806 09008KT FIMR 171740Z 1718/1812 09010KT 9999 SCT018 BECMG 1804/1806 09015G25KT FKKD 171700Z 1718/1824 VRB05KT 9999 BKN016 FEW020CB TEMPO 1720/1806 TS BKN013 FEW016CB PROB40 1801/1807 3000 TSRA FKYS 171700Z 1718/1818 26005KT 8000 BKN013 FEW020CB TEMPO 1718/1721 TS BECMG 1721/1722 FEW003 BKN006 FEW016CB PROB30 TEMPO 1802/1807 3000 TSRA BECMG 1807/1809 BKN016 FMCH 171100Z 1712/1818 24010KT 9999 FEW020 SCT030 BECMG 1715/1717 10003KT BECMG 1805/1807 20010KT FMEE 171100Z 1712/1818 09006KT 9999 FEW015TCU TEMPO 1720/1802 4500 SHRA SCT020TCU FMCZ 171700Z 1718/1818 VRB02KT 9999 SCT020TCU FM180600 09010KT 9999 FEW016CB SCT020TCU TEMPO 1806/1812 09015G25KT 1000 TSRA SCT018CB FM181200 VRB02KT 9999 SCT020TCU FMEE 171700Z 1718/1824 09007KT 9999 FEW026 TEMPO 1719/1806 3000 SHRA SCT020TCU FMMI 171100Z 1712/1818 08010KT 9999 SCT017 BKN020 PROB40 TEMPO 1712/1724 4000 TSRA FEW010 BKN015CB BECMG 1716/1718 VRB04KT PROB30 TEMPO 1800/1805 4000 SHRA BECMG 1804/1806 12010KT PROB30 TEMPO 1814/1818 4500 TSRA SCT017CB BKN020 FMMT 171100Z 1712/1812 16010KT 9999 SCT017 SCT033 BECMG 1718/1721 24005KT FMNM 171100Z 1712/1812 32008KT 9999 SCT020 BKN040 PROB40 TEMPO 1713/1809 4000 TSRA SCT020CB BKN040 FNBG 171100Z 1712/1724 28010KT 9999 FEW015 TEMPO 1714/1724 CAVOK FNCA 171100Z 1712/1724 22010KT 9999 BKN020 TEMPO 1718/1724 19005KT BKN025 FNDU 171100Z 1712/1724 VRB03KT 9999 SCT040 BKN050 BECMG 1714/1716 9000 SCT018 BKN025 PROB40 TEMPO 1714/1724 7000 -RA SCT015 BKN020 FNGI 171100Z 1712/1724 03010KT CAVOK TEMPO 1716/1724 18010KT= FNHU 171100Z 1712/1724 18010G15KT 9999 FEW010 PROB30 TEMPO 1718/1724 VRB03KT 8000 -RA FEW008 SCT016 FNKU 171100Z 1712/1724 VRB03KT 9999 FEW015 PROB30 TEMPO 1718/1724 8000 -RA FEW005 SCT015 BECMG 1721/1723 36005KT FNLU 171100Z 1712/1818 27010KT 9999 SCT023 TEMPO 1718/1723 21010KT FEW020 BECMG 1800/1802 VRB03KT BECMG 1806/1809 BKN023 BECMG 1812/1814 28006KT SCT022 FNMA 171100Z 1712/1724 27005KT 9999 BKN009 BKN040 TEMPO 1714/1718 6000 RA BKN008 OVC025 TEMPO 1720/1724 TS FEW020CB BKN023 FNMO 171100Z 1712/1724 27010KT CAVOK BECMG 1721/1724 28005KT= FNSA 171100Z 1712/1724 VRB03KT 9999 BKN020 FEW025CB TEMPO 1713/1718 7000 TSRA BKN015 FEW020CB TEMPO 1718/1724 8000 -RADZ OVC016 FNSO 171100Z 1712/1724 19010KT 9999 SCT020 BECMG 1721/1724 VRB03KT FEW020 FNUB 171100Z 1712/1724 08010KT CAVOK BECMG 1722/1724 VRB03KT= FNUE 171100Z 1712/1724 09005KT 9999 SCT030 PROB30 TEMPO 1714/1718 7000 -TSRA BKN015 FEW020CB TEMPO 1718/1724 8000 -RA FEW015 OVC018 FOOG 171700Z 1718/1818 20008KT 9999 SCT010 FEW018CB BKN030 TEMPO 1719/1724 TS PROB30 TEMPO 1802/1808 4000 TSRA BKN005 FEW016CB OVC026 FOOL 171700Z 1718/1824 22006KT 9999 SCT011 FEW020CB BKN030 TEMPO 1720/1723 TS PROB30 TEMPO 1723/1805 2500 TSRA BKN006 FEW016CB OVC026 TEMPO 1814/1820 TS FPST 171700Z 1718/1824 22008KT 9999 FEW020CB BKN040 TEMPO 1802/1806 TS FSIA 171100Z 1712/1812 26005KT 9999 FEW014CB BKN016 TEMPO 1712/1718 8000 -SHRA FEW013CB BKN015 PROB40 TEMPO 1720/1806 -SHRA FEW010 FEW015CB BKN016 BECMG 1810/1812 23010KT FTTJ 171700Z 1718/1824 03004KT 4500 HZ NSC BECMG 1718/1720 CAVOK TEMPO 1804/1807 4000 HZ TEMPO 1807/1812 06014KT FZAA 171700Z 1718/1824 22004KT 9000 SCT020 FEW028CB TEMPO 1722/1804 4000 TSRA BKN014 SCT026CB BECMG 1806/1808 28010KT SCT020 GABS 171700Z 1718/1824 36005G15KT CAVOK PROB30 TEMPO 1806/1812 4500 HZ GAGO 171705Z 1718/1818 34008G18KT 8000 NSC PROB40 TEMPO 1807/1813 4000 DU GBYD 171730Z 1718/1824 04005KT CAVOK GCFV 172000Z 1721/1821 05008KT 9999 SCT030 TX24/1814Z TN19/1806Z GCGM 172000Z 1721/1821 VRB05KT 9999 SCT025 TX23/1814Z TN20/1806Z GCHI 172000Z 1721/1821 VRB04KT 9999 FEW030 TX24/1814Z TN20/1806Z GCLA 172000Z 1721/1821 VRB04KT 9999 SCT020 BKN035 TX23/1814Z TN18/1806Z GCLP 172000Z 1721/1821 04010KT 9999 FEW025 TX23/1814Z TN18/1806Z BECMG 1721/1722 34005KT GCRR 172142Z 1721/1821 02008KT 9999 SCT030 TX23/1814Z TN16/1806Z TEMPO 1812/1817 08011KT GCTS 172000Z 1721/1821 04007KT 9999 FEW030 TX26/1814Z TN19/1806Z GCXO 172000Z 1721/1821 14007KT 9999 FEW012 TX21/1814Z TN14/1806Z PROB40 TEMPO 1721/1810 4500 BCFG BKN008 TEMPO 1721/1810 BKN006 GEML 172000Z 1721/1821 09005KT CAVOK TX19/1813Z TN11/1804Z GFLL 171000Z 1712/1818 24008KT 9999 BKN012 FEW027CB PROB30 TEMPO 1718/1802 TS SCT012 FEW027CB TEMPO 1804/1809 VRB03KT 5000 -BR BKN011 BKN150 BECMG 1810/1812 14005KT 9999 SCT013 GGOV 171700Z 1718/1818 29004KT 8000 NSC GLRB 171000Z 1712/1818 23010KT 9999 BKN018 BECMG 1713/1715 22008KT 9999 TEMPO 1717/1721 06004KT 9000 -SHRA/TS BKN014 FEW023CB BECMG 1722/1800 00000KT 9999 SCT012 GMAD 171700Z 1718/1824 25007KT CAVOK BECMG 1723/1801 07003KT 6000 SCT010 SCT020 GMFF 171700Z 1718/1824 30004KT CAVOK GMFM 171700Z 1718/1824 32008KT CAVOK BECMG 1720/1724 VRB02KT GMFO 171700Z 1718/1824 32005KT CAVOK BECMG 1721/1801 VRB03KT CAVOK BECMG 1814/1818 34012KT CAVOK GMME 171700Z 1718/1824 36006KT 8000 NSC BECMG 1720/1724 VRB02KT PROB30 TEMPO 1800/1808 14006KT 3000 BR SCT008 BECMG 1806/1812 30008KT CAVOK GMMH 171700Z 1718/1824 02016KT CAVOK GMMI 171700Z 1718/1824 36008KT 8000 NSC GMML 171700Z 1718/1824 34012KT 8000 NSC BECMG 1804/1806 SCT015 BECMG 1810/1812 NSC GMMN 171700Z 1718/1824 02012KT CAVOK BECMG 1722/1724 VRB01KT 8000 NSC PROB30 1803/1807 3000 BR BKN010 BECMG 1810/1812 36013KT CAVOK GMMW 171700Z 1718/1824 06008KT CAVOK GMMX 171700Z 1718/1824 24006KT CAVOK GMMZ 171700Z 1718/1824 VRB02KT CAVOK GMTA 171700Z 1718/1824 06006KT CAVOK GMTT 171700Z 1718/1824 09016KT CAVOK GOGS 171730Z 1718/1818 36005KT CAVOK GOOY 171730Z 1718/1824 36008KT CAVOK= GBYD 171730Z 1718/1824 04005KT CAVOK GOSS 171730Z 1718/1818 01007KT CAVOK GQNO 171700Z 1718/1824 06012KT 8000 NSC TEMPO 1719/1803 35012KT GQPP 171700Z 1718/1818 35012KT 7000 NSC TEMPO 1809/1814 33012KT GUCY 171700Z 1718/1824 26006KT 9999 SCT015 SCT110 TEMPO 1800/1806 VRB02KT BECMG 1806/1810 32006KT 3000 BR BKN015 BKN110 GVAC 171700Z 1718/1824 07012KT 9999 FEW014 TEMPO 1802/1808 05004KT GVBA 171100Z 1712/1818 04010KT 9999 FEW014 GVNP 171700Z 1718/1824 05012KT 9999 FEW016 TEMPO 1802/1808 04004KT GVSV 171700Z 1718/1824 06012KT 9999 FEW022 TEMPO 1802/1808 07004KT HBBA 171500Z 1718/1824 36004KT 9999 FEW030 BECMG 1807/1809 18010G20KT 9999 FEW025CB SCT030 BKN100 PROB30 TEMPO1811/1816 08015G25KT 5000 TSRA OR SHRA SCT025CB BKN100 BECMG1818/1820 00000KT 9999 FEW030 SCT100 HEAX 171700Z 1718/1824 03008KT 9999 SCT020 TEMPO 1803/1806 VRB03KT 6000 NSC HECA 172150Z 1722/1824 03008KT 6000 NSC TEMPO 1722/1807 VRB03KT 3000 BR TEMPO 1801/1805 1500 PROB40 TEMPO 1802/1804 0800 FG HELX 171700Z 1718/1824 30005KT CAVOK HKEL 171700Z 1718/1818 12010KT 9999 FEW021CB BKN270 TEMPO 1800/1806 09010KT FEW017 BKN240 BECMG 1808/1811 08010KT FEW022CB SCT023 BKN280 TEMPO 1812/1818 12010KT FEW021CB BKN270 HKJK 171700Z 1718/1824 01006KT 9999 BKN017 TEMPO 1800/1806 04007KT BKN016 BECMG 1808/1811 06010KT SCT022 TEMPO 1812/1818 SCT022 BECMG 1820/1823 01007KT SCT017 HKKI 171700Z 1718/1818 VRB02KT 9999 FEW021CB BKN080 TEMPO 1800/1806 08004KT FEW020CB BKN260 BECMG 1808/1811 22007KT FEW028CB TEMPO 1812/1818 22005KT FEW024CB SCT090 HKMO 171700Z 1718/1824 08005KT 9999 FEW024 BECMG 1800/1806 00000KT FEW021 BECMG 1809/1812 09010KT SCT026 BECMG 1818/1821 08005KT FEW024 HLGD 171100Z 1712/1812 27015KT 8000 FEW030 SCT080= HLLQ 171100Z 1712/1812 VRB02KT 8000 SCT022 SCT070 BECMG 1716/1718 28010KT HLGT 171100Z 1712/1812 06008KT CAVOK BECMG 1720/1722 VRB02KT HLLB 171700Z 1718/1818 18005KT 8000 SCT025 SCT080 TEMPO 1800/1818 5000 SHRA BKN020 BECMG 1810/1812 24012KT HLLM 171100Z 1712/1812 26015KT 8000 SCT025 SCT080 TEMPO 1712/1812 5000 SHRA BKN020 BKN070 BECMG 1716/1718 32012G22KT HLMS 171100Z 1712/1812 30010G20KT 8000 FEW025 SCT080 TEMPO 1712/1812 5000 SHRA BKN020 BKN070 HLON 171100Z 1712/1812 26008KT CAVOK BECMG 1718/1720 VRB02KT HLTD 171100Z 1712/1812 02008KT CAVOK BECMG 1720/1722 VRB02KT HLTQ 171100Z 1712/1812 VRB02KT 8000 FEW030 SCT080 HLUB 171100Z 1712/1812 VRB02KT CAVOK HRYR 171700Z 1718/1824 33008KT 9999 SCT025 BKN100 FM 172200 32005KT SCT026 SCT100 BECMG 1802/1805 VRB03KT 3000 BR SCT026 FM 180800 17008KT 9999 BKN023 TEMPO 1810/1816 12010G20KT -TSRA FEW023CB BKN025 FM 182000 33007KT SCT025 SCT100 HSKA 171700Z 1718/1824 VRB02KT CAVOK HSOB 171700Z 1718/1824 36006G16KT CAVOK HSPN 171700Z 1718/1824 02008G18KT CAVOK BECMG 1721/1723 VRB02KT BECMG 1809/1811 03010G20KT 9999 FEW030 SCT130 HSSS 171700Z 1718/1824 36006G16KT CAVOK HTDA 171700Z 1718/1824 07005KT 9999 SCT018 BECMG 1807/1810 06015KT BKN025 BECMG 1816/1818 SCT019 FM182200 00000KT HTDO 171700Z 1718/1818 10018KT 9999 FEW025 HTGW 171700Z 1718/1818 10015KT 9999 FEW026 HTKJ 171700Z 1718/1818 09015KT 9999 FEW038 BECMG 1800/1803 09005KT BKN022 HTMW 171100Z 1712/1812 33010KT 9999 FEW023 FEW024CB SCT090 TEMPO 1802/1807 10010KT TS SCT020 FEW021CB BKN090 BECMG 1811/1813 333010KT NSW FEW024 FEW025CB SCT100 HTZA 171700Z 1718/1818 00000KT 9999 FEW016 BECMG 1803/1805 33010KT SCT016 BKN080 BECMG 1811/1813 07010KT SCT022 HUEN 171700Z 1718/1824 27005KT 9999 FEW021 FEW023CB BECMG 1721/1724 35005KT FEW020 FEW022CB TEMPO 1801/1806 VRB10KT 9000 -TS SCT19 FEW021CB BKN110 BECMG 1807/1812 18009KT 9999 FEW024 FEW026CB FM181700 23006KT FEW022 FEW024CB SCT160 BECMG 1821/1824 35005KT FEW020 FEW022CB KABE 172016Z 1720/1818 30010G16KT P6SM SKC FM172200 30008KT P6SM SKC FM180100 VRB02KT P6SM BKN250 FM181000 VRB02KT P6SM BKN250 WS020/22030KT FM181500 20008KT P6SM OVC100 KABI 171720Z 1718/1818 20009G18KT P6SM SKC FM181000 27014KT P6SM FEW250 FM181200 35023G29KT P6SM SKC KABQ 172052Z 1721/1818 26025G35KT P6SM BKN090 FM180200 28018G26KT P6SM OVC090 FM180700 33022G30KT P6SM BKN060 FM181000 36011KT P6SM SKC KABR 172149Z 1722/1818 36013KT P6SM BKN120 FM180300 33007KT P6SM SCT200 FM181600 32016G24KT P6SM SCT110 KABY 171720Z 1718/1818 03005KT P6SM SKC FM180800 00000KT 2SM BR SCT002 FM181400 19006KT P6SM SCT250 KACK 172130Z 1722/1818 30014G24KT P6SM SKC FM180500 30010KT P6SM FEW250 FM181300 26008KT P6SM FEW250 FM181500 22010G17KT P6SM SCT250 KACT 172058Z 1721/1818 19017G27KT P6SM FEW040 BKN250 FM180700 21016KT P6SM BKN020 FM181700 31022G32KT P6SM BKN250 KACV 172213Z 1722/1818 32010G15KT P6SM FEW030 FM180300 04003KT P6SM FEW250 FM181700 23005KT P6SM SCT250 KACY 172018Z 1720/1818 30012G19KT P6SM SKC FM172200 30009KT P6SM SKC FM180200 VRB02KT P6SM SCT250 FM181200 20008KT P6SM BKN250 FM181600 21012G19KT P6SM OVC250 KADF 171737Z 1718/1818 18008G15KT P6SM OVC015 WS020/20040KT FM172000 20009G18KT P6SM OVC025 WS020/20040KT FM180100 22008G15KT P6SM OVC035 FM180400 22008KT P6SM VCSH BKN020 OVC040 FM181500 23010G20KT P6SM -RA VCTS BKN020 OVC050CB KADW 171700Z 1717/1823 32012KT 9999 FEW150 QNH3013INS BECMG 1812/1813 20012G18KT 9999 SCT120 QNH2991INS BECMG 1820/1821 20010G15KT 9999 BKN050 WS020/22052KT QNH2988INS TX10/1721Z TN02/1806Z KAEG 171741Z 1718/1818 23020G30KT P6SM BKN090 FM172000 26027G38KT P6SM BKN090 FM180600 31028G35KT P6SM BKN060 FM180900 31012KT P6SM SKC KAEX 171720Z 1718/1818 17010G15KT P6SM FEW025 FM180700 17011G17KT P6SM OVC020 FM181300 20015G20KT P6SM BKN025 KAFF 171548Z 1715/1818 20012G18KT 9999 SCT200 530002 560209 QNH2977INS TEMPO 1715/1716 25025G35KT BECMG 1715/1716 28025G35KT 9999 SCT200 560009 QNH2969INS BECMG 1722/1723 28015G25KT 9999 BKN060 530009 QNH2969INS BECMG 1802/1803 36025G35KT 2400 -SN BKN020 620409 530009 QNH2970INS BECMG 1806/1807 35022G32KT 9999 NSW SCT035 530009 QNH2972INS BECMG 1809/1810 35010G15KT 9999 SCT035 QNH2973INS TX12/1721Z TNM07/1812Z LAST NO AMDS AFT 1715 NEXT 1812 KAFW 172058Z 1721/1818 20018G29KT P6SM FEW035 BKN250 FM180000 19016G26KT P6SM BKN250 FM181000 23014KT P6SM BKN250 FM181500 31023G34KT P6SM BKN250 KAGC 172107Z 1721/1818 17005KT P6SM SCT150 FM180500 15004KT P6SM BKN100 WS020/21035KT FM181100 18006KT 6SM -RA OVC070 WS020/22040KT FM181500 20011G22KT 4SM -RA BR OVC015 KAGS 172039Z 1721/1818 VRB03KT P6SM SCT250 TEMPO 1810/1813 4SM BR KAHN 171741Z 1718/1818 13004KT P6SM FEW250 FM172300 00000KT P6SM FEW250 FM181200 15004KT P6SM SCT090 FM181500 18008G17KT P6SM BKN035 FM181700 20010G20KT P6SM BKN030 KAIA 171751Z 1718/1818 VRB05KT P6SM BKN150 FM180000 33009KT P6SM OVC070 FM180500 34014KT 4SM -SN BKN015 FM180800 33014KT P6SM BKN035 KALB 172111Z 1721/1818 30012G20KT P6SM FEW250 FM180000 30006KT P6SM FEW250 FM180300 VRB02KT P6SM FEW100 FM181400 17008KT P6SM BKN100 FM181600 17012KT P6SM VCSH OVC050 KALI 171743Z 1718/1818 16015G22KT P6SM BKN050 FM180200 16012KT P6SM FEW020 FM180500 18008KT P6SM OVC015 FM181000 18006KT 2SM BR SCT005 OVC009 FM181430 19008KT P6SM OVC015 FM181600 22010KT P6SM BKN040 KALO 171826Z 1718/1818 16011KT 1SM -RASN BR OVC005 FM180000 15004KT 2SM -DZ BR OVC002 FM180800 35012KT P6SM VCSH OVC005 FM180900 35013G19KT 1 1/2SM -RA OVC004 FM181100 34015G23KT 3SM -RASN OVC008 FM181300 34015G26KT 5SM -SN OVC014 FM181500 33016G27KT P6SM BKN025 BKN080 KALS 171723Z 1718/1818 23023G36KT P6SM SCT180 FM172200 26025G40KT P6SM FEW060 SCT200 FM180400 32015G30KT P6SM FEW030 SCT100 FM181100 33007KT P6SM SKC FM181500 VRB05KT P6SM SKC KALW 171734Z 1718/1818 22012G20KT P6SM BKN080 FM180200 19010KT P6SM BKN050 FM180800 16005KT P6SM OVC200 KAMA 171721Z 1718/1818 24022G35KT P6SM BKN250 FM180100 24014KT P6SM BKN250 FM180900 30020KT P6SM SKC KANB 171727Z 1718/1818 09003KT P6SM SKC FM171900 17005KT P6SM SCT250 FM181300 09003KT P6SM BKN020 KAND 171740Z 1718/1818 15005KT P6SM FEW250 FM180400 VRB02KT P6SM FEW120 SCT250 FM181100 VRB02KT P6SM SCT035 BKN120 FM181400 19005KT P6SM BKN025 KAOO 172224Z 1722/1818 VRB03KT P6SM BKN200 FM180600 18004KT P6SM OVC100 FM181100 19005KT P6SM -RA OVC050 FM181500 19005KT 3SM RA OVC010 KAPA 172108Z 1721/1818 27014G22KT P6SM SCT100 BKN220 FM172300 32014G24KT P6SM VCSH SCT080 BKN120 FM180200 36018G30KT P6SM SCT020 BKN080 TEMPO 1802/1806 -SHRASN OVC020 FM181000 32012KT P6SM SCT090 FM181400 20006KT P6SM FEW110 KAPF 172105Z 1721/1818 03012KT P6SM BKN070 FM172300 04008KT P6SM BKN070 FM180400 05006KT P6SM SCT070 FM181500 07006KT P6SM SCT035 KAPN 171728Z 1718/1818 17011KT P6SM BKN110 FM172100 17010G18KT P6SM VCSH OVC100 FM180000 16010G18KT P6SM SHRA OVC025 WS020/18035KT FM180300 16010KT 3SM SHRA OVC015 FM181000 19004KT 3SM -SHRA OVC008 FM181400 30005KT 4SM -RA OVC003 FM181700 32008KT 4SM -RA OVC010 KARA 171720Z 1718/1818 17009KT P6SM SCT040 FM180800 19007KT P6SM OVC040 FM181500 20015G25KT P6SM BKN050 KART 172116Z 1721/1818 26006KT P6SM SKC FM172300 VRB03KT P6SM FEW130 FM180100 15005KT P6SM BKN110 FM181400 16010KT 6SM -RA OVC090 FM181700 17013KT 6SM -RA OVC025 KASD 171730Z 1718/1818 VRB05KT P6SM SKC FM180700 18005KT 6SM BR BKN003 BKN120 FM180800 19005KT 4SM BR SCT003 BKN110 FM181400 21009KT P6SM SCT008 BKN035 KASE 172129Z 1721/1818 13015G22KT P6SM -RA SCT020 SCT040 BKN060 TEMPO 1721/1723 SCT020 BKN040 FM172300 26013G21KT 5SM RASN SCT035 BKN050 FM180000 28015G30KT 3SM +SHRASN BKN020 OVC035 FM180200 30015G29KT 1/2SM SN BKN015 OVC030 FM180500 30012G20KT P6SM VCSH BKN020 BKN030 KASN 171727Z 1718/1818 09003KT P6SM SKC FM171900 17005KT P6SM SCT250 FM181300 09003KT P6SM BKN020 KAST 171726Z 1718/1818 VRB03KT P6SM VCSH BKN050 FM172000 25008KT P6SM VCSH BKN050 FM180100 VRB03KT P6SM VCSH OVC050 KATL 172146Z 1722/1824 15007KT P6SM FEW250 FM180300 13005KT P6SM FEW250 FM180900 15005KT P6SM SCT090 FM181400 19010G20KT P6SM BKN040 FM181700 20012G25KT P6SM BKN030 KATW 172023Z 1720/1818 17011G17KT P6SM SCT015 OVC030 TEMPO 1720/1724 5SM -RA BR BKN015 FM180000 18009KT 4SM -RA BR OVC008 FM180300 24004KT 2SM -RA BR OVC004 FM180600 33004KT 1 1/2SM -RA BR OVC004 FM181000 35010KT 4SM -RA BR OVC008 FM181400 35015G22KT P6SM OVC018 KATY 172149Z 1722/1818 36013KT P6SM BKN120 FM180600 33009KT P6SM SCT150 FM181600 32015G24KT P6SM SCT090 KAUG 172158Z 1722/1818 31011G16KT P6SM SKC FM180000 30008KT P6SM FEW250 FM181600 18006KT P6SM OVC250 KAUS 172028Z 1720/1824 19015G25KT P6SM BKN035 FM172300 18011KT P6SM FEW050 FM180500 18012KT P6SM BKN010 FM181100 20009KT 4SM BR OVC007 FM181600 30012KT P6SM OVC015 FM181800 35015G25KT P6SM SCT250 KAUW 171723Z 1718/1818 16013G18KT P6SM -RA SCT015 OVC040 TEMPO 1718/1721 5SM -RA BR BKN015 FM172100 16010KT 4SM -RA BR SCT007 OVC015 FM180000 17004KT 2SM -RA BR OVC005 FM180300 VRB03KT 4SM -RA BR OVC004 FM180600 35005KT 5SM -RASN BR OVC005 FM181000 34007KT 6SM -RASN BR OVC008 FM181400 34010G16KT P6SM OVC015 KAVL 171740Z 1718/1818 16005KT P6SM SCT250 FM180200 VRB03KT P6SM SCT120 BKN250 FM181200 17005KT P6SM SCT040 BKN120 KAVP 171724Z 1718/1818 32010G18KT P6SM SCT250 FM172300 VRB03KT P6SM SCT250 FM180900 15005KT P6SM BKN150 FM181600 21008KT P6SM -RA OVC040 KAXN 171739Z 1718/1818 VRB04KT P6SM OVC090 FM171900 31005KT P6SM OVC120 FM180000 34009KT P6SM OVC150 FM181400 32012G20KT P6SM FEW200 KAZO 171740Z 1718/1818 16012G18KT P6SM SCT018 BKN035 FM180100 16014G24KT P6SM -SHRA OVC040 FM180300 18011KT 4SM -RA OVC025 FM180600 19009KT 2SM -RA BR OVC004 FM180900 16003KT 1 1/2SM -RA BR OVC004 FM181500 01008KT 1/2SM -RA FG OVC002 KBAB 171900Z 1719/1901 33009KT 9999 FEW030 QNH2960INS BECMG 1805/1806 06006KT 9999 FEW030 QNH2989INS BECMG 1816/1817 32006KT 9999 SKC QNH3018INS TX17/1723Z TN05/1813Z KBAD 172220Z 1722/1824 19012G18KT 9999 FEW050 QNH2980INS TEMPO 1722/1803 18015G25KT BECMG 1802/1803 19012G18KT 9999 OVC025 QNH2976INS BECMG 1805/1806 20012G18KT 9999 OVC015 QNH2976INS BECMG 1811/1812 21012G18KT 9999 OVC020 QNH2975INS BECMG 1817/1818 30020G30KT 9999 BKN025 510003 QNH2975INS TX26/1722Z TN17/1812Z KBAF 172130Z 1722/1818 29010KT P6SM SKC FM180500 00000KT P6SM SCT250 FM181500 18006KT P6SM BKN120 KBBD 171720Z 1718/1818 21012G18KT P6SM SKC FM180000 20008KT P6SM SKC NOT SKED KBBG 171954Z 1720/1818 15010G15KT P6SM OVC020 FM180400 18016G25KT P6SM OVC025 FM181200 26017G25KT P6SM OVC025 FM181500 30022G30KT P6SM VCSH OVC015 KBCB 171720Z 1718/1818 VRB03KT P6SM FEW250 FM180800 20005KT P6SM BKN150 WS020/22035KT FM181400 22011G19KT P6SM BKN090 BKN250 KBCE 172211Z 1722/1818 25018G28KT P6SM VCSH SCT030 BKN060 FM180000 29020G30KT 2SM -SN BR SCT007 BKN015 FM180400 32010KT P6SM VCSH SCT030 BKN060 FM180800 28008KT P6SM SCT060 SCT120 KBDL 172130Z 1722/1824 31010KT P6SM FEW250 FM180500 00000KT P6SM SCT250 FM181500 19008KT P6SM BKN120 FM182100 19008KT P6SM VCSH OVC050 KBDN 171905Z 1719/1818 22010KT P6SM SCT080 FM180300 VRB04KT P6SM SCT200 KBDR 172059Z 1721/1818 29014G20KT P6SM FEW250 FM172200 29009KT P6SM FEW250 FM180200 VRB04KT P6SM FEW250 FM181400 20009KT P6SM SCT150 FM181700 20013G24KT P6SM VCSH SCT070 BKN140 KBED 172130Z 1722/1818 30013KT P6SM FEW250 FM181100 00000KT P6SM SCT250 FM181500 22007KT P6SM BKN090 KBFD 172224Z 1722/1818 00000KT P6SM BKN150 FM180600 15005KT P6SM OVC100 FM181000 18008KT P6SM -RA OVC050 FM181500 18010G15KT 3SM RA OVC010 KBFF 171752Z 1718/1818 12010KT P6SM BKN150 FM172000 29007KT P6SM BKN070 FM180000 34012KT P6SM VCSH OVC080 FM180800 32014KT P6SM BKN040 KBFI 171732Z 1718/1818 19007KT P6SM BKN020 BKN030 FM172000 19007KT P6SM VCSH SCT030 BKN040 TEMPO 1721/1801 SCT040 FM180600 16006KT P6SM VCSH BKN020 OVC035 FM181200 15005KT P6SM SCT020 BKN035 FM181500 15006KT P6SM SCT025 SCT040 BKN200 KBFL 171751Z 1718/1818 34013G20KT P6SM -RA SCT008 BKN017 OVC025 FM172100 34010KT P6SM BKN040 FM180300 05004KT P6SM SCT050 FM181300 VRB03KT 5SM BR SCT050 KBFM 171735Z 1718/1818 13004KT P6SM SKC FM180300 16003KT P6SM FEW050 BKN250 FM180900 20004KT 4SM BR BKN025 FM181400 21007KT P6SM BKN025 KBGM 171724Z 1718/1818 32010KT P6SM SCT250 FM172300 VRB03KT P6SM SCT250 FM180600 16008KT P6SM BKN120 FM181500 18012KT P6SM -RA OVC035 KBGR 171730Z 1718/1818 31014G27KT P6SM BKN025 FM172000 31013G25KT P6SM SCT035 FM172300 31012KT P6SM SKC FM180600 29008KT P6SM SKC KBHB 171730Z 1718/1818 31017G28KT P6SM BKN030 FM172000 31016G26KT P6SM SCT040 FM180500 30014G22KT P6SM SKC FM181000 31009KT P6SM FEW120 KBHM 171727Z 1718/1818 11004KT P6SM SKC FM171900 16006KT P6SM SCT250 FM181100 18008KT P6SM BKN020 KBIF 172200Z 1722/1904 22012KT 9999 SKC QNH2993INS TEMPO 1722/1724 22015G25KT BECMG 1800/1801 24009KT 9999 FEW180 QNH3000INS BECMG 1815/1816 04010G20KT 9999 SCT220 QNH3019INS BECMG 1820/1821 06009KT 9999 SKC QNH3020INS TX27/1722Z TN09/1812Z KBIH 171739Z 1718/1818 VRB06KT P6SM FEW060 FM171900 35015G24KT P6SM FEW100 FM180200 35011KT P6SM SKC KBIL 171732Z 1718/1818 25011KT P6SM FEW070 BKN100 FM172000 29012G20KT P6SM VCSH BKN070 FM180100 28014G22KT P6SM FEW060 SCT100 FM180700 25011KT P6SM BKN100 KBIS 171740Z 1718/1818 34007KT P6SM OVC200 FM172200 VRB04KT P6SM OVC200 FM180900 33007KT P6SM BKN110 FM181100 32013KT P6SM SCT130 KBIX 171800Z 1718/1824 13006KT 9999 FEW030 QNH2999INS BECMG 1805/1806 18012KT 9999 BKN030 QNH2994INS BECMG 1815/1816 20012G18KT 9999 BKN030 QNH2988INS TX23/1721Z TN16/1812Z KBJC 172108Z 1721/1818 25016G24KT P6SM SCT080 BKN220 FM172300 34020G32KT P6SM VCSH SCT030 BKN080 TEMPO 1801/1805 -SHRASN OVC020 FM181000 32013KT P6SM SCT090 FM181300 20006KT P6SM FEW110 KBJI 171730Z 1718/1818 26005KT P6SM OVC040 FM180000 32006KT P6SM BKN200 FM181500 30011KT P6SM BKN025 KBKE 171726Z 1718/1818 30010KT P6SM BKN040 FM180300 VRB03KT P6SM VCFG BKN150 KBKF 172237Z 1722/1823 31012G20KT 9999 FEW120 BKN200 520009 QNH2956INS TEMPO 1722/1802 31025G35KT 530009 BECMG 1802/1803 35015G25KT 8000 -RASN BKN020 OVC200 620409 520009 QNH2970INS TEMPO 1805/1809 6000 -SHSN BECMG 1809/1810 35012KT 9999 NSW SCT020 BKN200 QNH2980INS BECMG 1815/1816 22009KT 9999 SCT200 QNH2995INS TX20/1723Z TNM01/1813Z KBKW 172131Z 1722/1818 15004KT P6SM FEW250 FM181100 18007KT P6SM BKN150 FM181400 19010G16KT P6SM BKN120 FM181700 20012G21KT P6SM OVC060 KBLF 171720Z 1718/1818 VRB03KT P6SM FEW250 FM180800 17007KT P6SM BKN090 FM181000 18007KT P6SM OVC060 WS020/22035KT FM181500 21010KT P6SM SCT035 BKN060 WS020/23045KT FM181700 21013G24KT P6SM SCT035 BKN060 KBLH 171720Z 1718/1818 24009KT P6SM BKN120 BKN150 FM180500 33011KT P6SM SCT250 FM180800 34012G21KT P6SM FEW250 KBLI 171740Z 1718/1818 16006KT P6SM SCT020 BKN035 FM172200 17006KT P6SM SCT030 BKN040 FM180300 16005KT P6SM SCT040 OVC050 FM181200 16007KT P6SM VCSH BKN010 OVC050 KBLV 171953Z 1719/1822 15012KT 9999 OVC020 QNH2968INS BECMG 1802/1803 17012KT 8000 -DZ OVC005 QNH2951INS BECMG 1808/1809 17012KT 9999 NSW OVC005 QNH2942INS BECMG 1814/1815 23012G20KT 6000 -SHRA OVC015 QNH2943INS BECMG 1817/1818 32015G25KT 6000 -SHRA OVC015 QNH2960INS TEMPO 1818/1822 32025G35KT 510003 TX17/1815Z TN09/1719Z KBMG 171735Z 1718/1818 16009KT P6SM BKN070 BKN250 FM180100 16009KT P6SM VCSH OVC060 FM180500 19011G21KT P6SM -SHRA OVC030 FM180600 19012G23KT 6SM SHRA OVC025 FM180800 20013G25KT 5SM SHRA OVC015 FM181200 20012G24KT 6SM SHRA VCTS OVC010CB FM181500 20012G27KT 2SM SHRA VCTS OVC010CB KBMI 171724Z 1718/1818 16014G24KT 6SM BR BKN025 FM171900 17015G25KT P6SM VCSH OVC030 FM180000 17013G23KT P6SM -SHRA OVC010 FM180400 19015G23KT 2SM SHRA BR OVC008 FM180700 23008KT 1 1/2SM SHRA BR OVC003 FM181600 33020G30KT 3SM SHRA BR OVC008 KBNA 171720Z 1718/1818 17007KT P6SM FEW040 BKN250 FM180200 18013G20KT P6SM BKN080 FM181500 20018G28KT P6SM VCSH OVC015 KBNO 171726Z 1718/1818 24006KT P6SM SCT035 FM171900 25011G17KT P6SM SCT035 FM180000 VRB03KT P6SM VCFG SCT150 KBOI 171726Z 1718/1818 31015G22KT P6SM SCT040 FM172300 32010KT P6SM FEW040 FM180400 14005KT P6SM FEW200 KBOS 172130Z 1722/1824 30012G22KT P6SM FEW250 FM180300 29010KT P6SM FEW250 FM181200 23007KT P6SM SCT250 FM182200 20012G24KT P6SM VCSH OVC060 KBPI 171735Z 1718/1818 30012G20KT P6SM VCSH SCT030 BKN050 FM180000 33023G33KT 2SM -SN BKN020 OVC050 FM180500 35010KT P6SM SCT050 BKN080 FM180700 34007KT P6SM SCT100 KBPK 171737Z 1718/1818 19008G18KT P6SM OVC020 WS020/21045KT FM172000 19009G18KT P6SM SCT015 OVC030 WS020/21045KT FM180200 19008G18KT P6SM VCSH OVC040 FM180800 22008G18KT P6SM VCSH BKN020 OVC040 FM181300 31012G22KT 6SM -TSRA BR OVC020CB KBPT 171720Z 1718/1818 16010G20KT P6SM BKN040 FM180700 17010KT P6SM OVC030 FM181600 22016G23KT P6SM OVC025 KBRD 172055Z 1721/1818 34007KT 6SM BR BKN017 OVC045 FM172200 33007KT P6SM SCT017 BKN045 FM180200 34007KT P6SM BKN050 FM181100 33009KT P6SM SCT050 FM181600 32013G19KT P6SM BKN100 KBRL 171748Z 1718/1818 15012G18KT 5SM BR OVC016 FM180000 17009KT 4SM -RA BR OVC008 FM180900 34012KT 2SM -RA BR VCTS OVC003CB FM181200 33012G20KT 2SM -RA OVC008 FM181500 33015G25KT 4SM -RA OVC012 KBRO 171720Z 1718/1818 16014G22KT P6SM BKN050 FM180000 16010KT P6SM SCT250 FM181500 17014G22KT P6SM BKN250 KBTL 171740Z 1718/1818 16012G18KT P6SM BKN035 FM180000 17013KT P6SM -RA OVC050 FM180600 20010KT 2SM -RA BR OVC004 FM180900 18005KT 1 1/2SM -RA BR OVC004 FM181500 11005KT 1/2SM -RA FG OVC002 KBTM 172010Z 1720/1818 31008KT P6SM BKN080 FM172100 30015G22KT 6SM -SHSN SCT015 OVC035 FM180200 30010KT P6SM VCSH OVC050 KBTR 171730Z 1718/1818 16012KT P6SM SKC FM180900 18007KT P6SM SCT003 BKN100 FM181400 20009KT P6SM SCT008 BKN035 KBTV 171733Z 1718/1818 33015G21KT P6SM BKN025 TEMPO 1718/1719 SCT025 FM171900 33014G20KT P6SM FEW025 FM172300 32008KT P6SM SKC FM180200 VRB03KT P6SM SKC FM181500 17007KT P6SM SCT120 FM181700 19009G16KT P6SM BKN110 KBUF 172116Z 1721/1818 17004KT P6SM FEW025 BKN120 FM180800 18009KT P6SM OVC110 WS020/21040KT FM181000 18011KT 6SM -RA OVC090 WS020/20040KT FM181200 17012KT 6SM -RA OVC030 KBUR 171745Z 1718/1818 VRB03KT P6SM SCT250 FM172000 19008KT P6SM BKN050 FM180000 20007KT P6SM SCT050 FM180300 VRB03KT P6SM SKC KBVI 172109Z 1721/1818 17005KT P6SM SCT150 FM180500 15004KT P6SM BKN100 WS020/21035KT FM181000 18006KT 6SM -RA OVC070 WS020/22040KT FM181500 20011G22KT 4SM -RA BR OVC015 KBVO 171920Z 1719/1818 18015G26KT P6SM SCT035 BKN150 FM172300 22012G21KT P6SM SCT150 FM181000 29013G22KT P6SM SCT250 FM181300 34025G35KT P6SM BKN030 KBWG 171741Z 1718/1818 15008KT P6SM BKN250 FM180200 18012KT P6SM OVC070 WS020/20045KT FM180500 18015G25KT P6SM OVC060 WS020/20055KT FM181100 19016G26KT P6SM VCSH OVC025 FM181400 19021G30KT P6SM VCSH OVC015 PROB30 1814/1818 4SM -TSRA BKN015CB KBWI 172101Z 1721/1824 31005KT P6SM FEW150 SCT250 FM172200 28004KT P6SM FEW150 SCT250 FM180400 19004KT P6SM FEW150 BKN250 FM181100 19008KT P6SM SCT150 BKN250 FM181500 20012G19KT P6SM SCT130 OVC250 KBYI 172034Z 1721/1818 28020G30KT P6SM SCT015 BKN110 FM180000 29015G25KT P6SM SKC FM180400 24006KT P6SM SKC KBZN 172223Z 1722/1824 28011KT P6SM VCSH SCT050 BKN080 TEMPO 1722/1801 BKN040 FM180300 VRB05KT P6SM FEW070 SCT250 KCAE 172039Z 1721/1818 VRB03KT P6SM SCT250 KCAK 171735Z 1718/1818 17008KT P6SM SCT025 BKN200 FM180500 18011KT P6SM VCSH BKN090 WS020/21040KT FM181100 19015G25KT 5SM -SHRA BR BKN015 OVC025 FM181300 20015G25KT 2SM -SHRA BR OVC009 KCAR 171730Z 1718/1818 31017G30KT P6SM OVC020 FM172100 31016G30KT P6SM OVC025 FM180000 31014G22KT P6SM BKN035 FM180300 31013G21KT P6SM SCT035 FM181600 30005KT P6SM BKN050 KCDC 172210Z 1722/1818 22020G30KT P6SM SCT040 BKN080 FM180000 30012G20KT P6SM VCSH SCT030 BKN060 FM180300 VRB04KT P6SM SCT060 SCT120 KCDR 172200Z 1722/1818 VRB05KT P6SM BKN080 FM180000 36009KT P6SM VCSH OVC060 FM180200 35011KT 5SM -SN OVC012 FM180400 34011KT 5SM -SN BKN025 FM180600 31010KT P6SM BKN035 FM181200 29009KT P6SM SKC KCDS 171800Z 1718/1818 26018G28KT P6SM BKN250 FM180000 24014KT P6SM SCT250 FM181000 35022G32KT P6SM SCT250 KCEC 171736Z 1718/1818 10005KT P6SM FEW025 FM172100 28007KT P6SM FEW035 SCT250 FM180300 VRB03KT P6SM FEW250 KCEF 171900Z 1719/1901 30012G18KT 9999 SCT020 SCT050 QNH2991INS TEMPO 1719/1722 31015G25KT 520004 BECMG 1721/1722 26009KT 9999 FEW200 QNH2988INS BECMG 1815/1816 20012G18KT 9999 BKN130 QNH2973INS BECMG 1819/1820 20010KT 8000 -SHRA FEW010 OVC060 QNH2960INS TX07/1819Z TNM09/1809Z KCGI 171741Z 1718/1818 16008G18KT P6SM OVC035 FM180000 18014G24KT P6SM VCSH SCT020 BKN030 FM180600 20017G27KT P6SM BKN020 KCHA 171720Z 1718/1818 19005KT P6SM SCT250 FM180600 VRB03KT P6SM BKN100 FM181200 17005KT P6SM BKN050 FM181700 19010KT P6SM OVC025 KCHO 171728Z 1718/1818 VRB03KT P6SM FEW150 FEW250 FM180900 20007KT P6SM SCT150 BKN250 FM181200 20011KT P6SM SCT130 OVC250 KCHS 171735Z 1718/1818 06008KT P6SM SKC FM172330 VRB03KT P6SM SKC FM181530 20010KT P6SM FEW050 KCID 171748Z 1718/1818 17016G22KT 4SM -DZ BR OVC007 FM172200 14012KT 2SM -RA OVC005 FM180300 18004KT 1SM -RA BR OVC003 FM180700 34014G22KT 2SM -RA BR OVC003 FM181200 33018G27KT 2SM -SN OVC008 FM181500 33020G30KT P6SM OVC020 KCKB 172131Z 1722/1818 13003KT P6SM SCT250 FM180700 17003KT P6SM BKN200 FM181100 19005KT P6SM OVC060 FM181400 21009G16KT P6SM SHRA OVC050 FM181700 21010G20KT P6SM SHRA OVC050 KCKV 171720Z 1718/1818 18008KT P6SM SCT250 FM180000 17010G15KT P6SM BKN080 FM181300 19017G26KT P6SM VCSH OVC015 KCLE 172041Z 1721/1824 16010KT P6SM FEW120 BKN250 FM180500 18014KT P6SM VCSH OVC080 WS020/20040KT FM180700 18012G20KT 6SM -SHRA BR OVC070 FM181000 19015G25KT 5SM -SHRA BR OVC015 FM181300 20018G28KT 3SM -SHRA BR OVC007 FM182300 25025G35KT 5SM -SHRA BR OVC007 KCLL 171739Z 1718/1818 19013G22KT P6SM SCT050 FM180200 18014KT P6SM SCT020 FM180700 20011KT P6SM BKN020 FM181500 22012G22KT P6SM SCT035 KCLM 171740Z 1718/1818 27005KT P6SM VCSH SCT045 BKN060 FM181200 24003KT P6SM VCSH SCT120 BKN200 KCLT 172058Z 1721/1818 16004KT P6SM FEW250 FM180400 19003KT P6SM SCT250 FM181200 20004KT P6SM FEW025 SCT120 BKN250 FM181500 20010G18KT P6SM BKN025 KCMA 172041Z 1721/1818 25011KT P6SM SCT250 FM180000 25007KT P6SM SCT250 FM180300 VRB03KT P6SM SCT250 FM180600 05006KT P6SM SKC FM180800 08010KT P6SM SKC FM181200 07016G22KT P6SM SKC KCMH 171736Z 1718/1818 15009KT P6SM FEW025 SCT250 FM180300 15010G18KT P6SM VCSH OVC080 FM180600 17010G18KT 5SM -SHRA SCT035 OVC080 WS020/21045KT FM180900 18012G20KT P6SM -SHRA OVC035 FM181400 19015G25KT P6SM VCSH OVC015 KCMI 171724Z 1718/1818 15013G23KT 6SM BR BKN008 BKN090 FM172100 16013G21KT P6SM VCSH OVC025 FM180500 18015G23KT 2SM SHRA BR OVC008 FM181400 26013KT 3SM SHRA BR OVC008 FM181600 30019G29KT 5SM SHRA BR OVC008 KCMX 172038Z 1721/1818 20006KT 1/2SM SN OVC003 TEMPO 1721/1724 1SM -SN OVC005 FM180000 24005KT 1 1/2SM -SN OVC006 FM180300 26005KT 3SM -DZ OVC008 FM181400 34014G22KT P6SM BKN015 KCNM 171959Z 1720/1818 25024G31KT P6SM BKN250 FM172300 25015G23KT P6SM BKN250 FM180100 23011KT P6SM BKN250 FM181000 28014G20KT P6SM BKN250 KCNU 172002Z 1720/1818 19022G26KT P6SM BKN035 FM172100 20017G22KT P6SM SCT035 BKN200 FM172300 19013KT P6SM BKN200 FM180500 19013KT P6SM BKN008 FM180800 28009KT 5SM BR OVC005 FM181000 34022G30KT P6SM OVC008 FM181200 34025G35KT P6SM OVC012 KCNY 171742Z 1718/1818 23024G32KT P6SM BKN100 FM172200 26033G45KT P6SM SCT080 BKN130 FM172300 29035G48KT P6SM VCSH SCT070 BKN110 FM180100 30029G49KT P6SM VCSH SCT070 BKN120 FM180300 31019G29KT P6SM FEW080 SCT250 FM181100 29004KT P6SM SKC KCOD 171829Z 1718/1818 33012KT P6SM VCSH SCT015 OVC050 TEMPO 1719/1721 2SM -SN BR OVC015 FM172100 35015G25KT P6SM VCSH SCT015 OVC035 FM180000 28012G18KT P6SM SCT060 FM181000 26015G25KT P6SM FEW080 LTD TO CLD VIS AND WIND KCOE 172019Z 1720/1818 23013KT P6SM VCSH BKN025 FM172200 23012G18KT P6SM BKN035 FM180000 21008KT P6SM SCT040 BKN200 FM180900 15007KT P6SM BKN008 KCOF 171300Z 1713/1817 33009KT 9999 FEW035 QNH3003INS BECMG 1714/1715 04012KT 9999 FEW035 QNH3000INS BECMG 1803/1804 09010KT 9999 FEW035 QNH2998INS TX24/1717Z TN18/1811Z FCST BY USAF WX MET TECH LAST NO AMDS AFT 1713 NEXT 1811 KCON 172158Z 1722/1818 32012KT P6SM SKC FM180000 30008KT P6SM FEW250 FM181700 14005KT P6SM OVC250 KCOS 171821Z 1718/1818 24015G30KT P6SM SCT120 SCT200 FM172100 26030G45KT P6SM FEW080 SCT120 BKN150 FM172300 27023G35KT P6SM SCT110 BKN150 FM180500 34030G45KT P6SM VCSH SCT030 BKN060 FM181100 35017KT P6SM FEW060 FM181700 17006KT P6SM SKC KCOU 172024Z 1720/1818 16012G18KT P6SM OVC022 FM180100 18012G19KT P6SM VCSH OVC015 FM180900 23010G18KT P6SM VCTS OVC015CB FM181100 28012KT 5SM -SHRA VCTS OVC015CB FM181400 31016G28KT 5SM -SHRA BKN015 KCPR 171735Z 1718/1818 24012G20KT P6SM VCSH SCT030 BKN090 FM172000 35015G25KT 5SM -RA SCT012 BKN030 FM180000 35015G25KT 2SM -SN BKN012 OVC030 FM180300 33008KT P6SM VCSH SCT020 BKN070 FM180800 28006KT P6SM SCT080 KCPS 172152Z 1722/1818 15012G20KT P6SM OVC025 FM180200 17011G21KT P6SM OVC015 FM181100 19012G21KT 5SM -SHRA VCTS OVC015CB FM181400 23011G23KT 5SM -SHRA OVC025 KCRE 171720Z 1718/1818 07009KT P6SM SKC TEMPO 1809/1811 5SM BR FM181400 20006KT P6SM SCT050 BKN250 KCRG 171726Z 1718/1818 06009KT P6SM SCT040 FM172300 VRB03KT P6SM FEW250 FM181500 21008KT P6SM SCT250 KCRP 171743Z 1718/1818 16020G28KT P6SM SCT035 FM180300 16015G22KT P6SM SCT025 FM180600 18010KT P6SM SCT015 TEMPO 1808/1812 FEW007 BKN015 FM181500 20012KT P6SM BKN035 KCRQ 171739Z 1718/1818 32004KT P6SM SCT050 BKN080 FM180300 VRB04KT P6SM SCT015 BKN100 FM180600 VRB03KT P6SM BKN015 FM181600 28004KT P6SM SCT020 KCRW 172131Z 1722/1818 10004KT P6SM FEW250 FM180800 17003KT P6SM OVC150 FM181400 20007KT P6SM OVC050 FM181600 20008G15KT P6SM OVC060 KCSG 171741Z 1718/1818 17004KT P6SM SKC FM180000 00000KT P6SM FEW250 FM181300 18004KT P6SM SCT080 FM181600 20009G20KT P6SM SCT040 KCSM 171720Z 1718/1818 22018G26KT P6SM BKN250 FM180000 21015KT P6SM BKN250 FM181000 34030G40KT P6SM SCT250 KCSV 171720Z 1718/1818 18006KT P6SM SKC FM180300 18010G15KT P6SM SCT250 FM181500 19015G23KT P6SM BKN025 KCTB 172029Z 1720/1818 27025G35KT P6SM FEW035 FEW200 TEMPO 1721/1801 BKN035 KCUB 172039Z 1721/1818 VRB03KT P6SM SCT250 KCVG 172152Z 1722/1824 14009KT P6SM SCT200 FM180300 18008KT P6SM VCSH BKN080 WS020/19040KT FM180500 19011KT P6SM -SHRA OVC060 WS020/20045KT FM180900 20015G27KT P6SM -SHRA OVC015 FM181500 20018G30KT P6SM VCSH OVC015 FM182000 22020G30KT 5SM -SHRA OVC015 FM182300 30022G32KT P6SM VCSH OVC018 KCVS 171801Z 1718/1824 24015G25KT 9999 BKN250 QNH2985INS TEMPO 1719/1723 24025G35KT 510009 BECMG 1723/1724 27012G18KT 9999 SKC QNH2984INS BECMG 1808/1809 30015G25KT 9999 FEW200 QNH2990INS BECMG 1813/1814 03015G25KT 9999 FEW200 QNH3002INS TEMPO 1815/1818 03025G35KT 510009 BECMG 1820/1821 05009KT 9999 SKC QNH3026INS TX25/1721Z TN10/1812Z KCWA 172024Z 1720/1818 16011G17KT 2SM -RA OVC012 TEMPO 1720/1722 5SM -DZ BR OVC008 FM172200 16010KT 4SM -RA BR OVC008 FM180000 17004KT 2SM -RA BR OVC005 FM180300 VRB03KT 4SM -RA BR OVC004 FM180600 35005KT 5SM -RASN BR OVC005 FM181000 34007KT 6SM -RASN BR OVC008 FM181400 34010G16KT P6SM OVC015 KCXO 171739Z 1718/1818 18014G19KT P6SM FEW022 SCT030 FM180200 18010KT P6SM SCT020 FM180700 20009KT P6SM SCT010 BKN020 FM181600 22014G22KT P6SM SCT035 KCXP 171726Z 1718/1818 29010G19KT P6SM SCT035 BKN060 FM172000 34011KT P6SM SCT050 BKN070 FM180200 04003KT P6SM FEW070 KCYS 172154Z 1722/1818 31015G22KT 4SM -RASN SCT025 BKN035 FM172300 31015G25KT P6SM VCSH BKN080 FM180300 36018G28KT 4SM -SN BKN012 FM180800 32014KT P6SM SCT120 FM181700 29017G26KT P6SM FEW250 KDAA 171800Z 1718/1824 29009KT 9999 FEW150 QNH3013INS BECMG 1812/1813 20012G18KT 9999 SCT120 QNH2991INS BECMG 1820/1821 20010G15KT 9999 BKN050 WS020/22052KT QNH2988INS TX13/1721Z TN02/1806Z KDAB 171736Z 1718/1818 04010KT P6SM FEW040 FM180000 VRB04KT P6SM SKC FM181500 15007KT P6SM SCT035 KDAG 171739Z 1718/1818 25025G35KT P6SM FEW080 SCT200 FM180200 27015KT P6SM SCT250 FM180500 VRB05KT P6SM SKC KDAL 172058Z 1721/1818 20018G29KT P6SM SCT035 BKN250 FM180000 19016G26KT P6SM BKN250 FM181000 23014KT P6SM BKN250 FM181500 31023G34KT P6SM BKN250 KDAN 171720Z 1718/1818 00000KT P6SM FEW250 FM181100 20006KT P6SM SCT150 FM181600 21012G24KT P6SM SCT030 BKN200 KDAY 171736Z 1718/1818 16013KT P6SM SCT250 FM180200 16012G20KT P6SM VCSH OVC080 FM180400 18012G20KT 5SM -SHRA SCT025 OVC050 FM180600 19014G23KT P6SM -SHRA OVC035 FM180900 20016G29KT P6SM VCSH OVC015 FM181700 20020G33KT P6SM -SHRA OVC012 KDBQ 172148Z 1722/1818 16012KT 1SM -RA BR OVC004 FM180300 18006KT 1SM -RA BR OVC003 FM180800 36014G22KT 2SM -RA BR OVC003 FM181300 33018G27KT 2SM -SN OVC008 FM181600 33020G30KT P6SM OVC020 KDCA 172101Z 1721/1818 31009KT P6SM FEW100 BKN250 FM172300 VRB03KT P6SM FEW150 BKN250 FM180900 19007KT P6SM SCT150 BKN250 FM181300 19011G18KT P6SM SCT150 BKN250 KDDC 171735Z 1718/1818 25013G20KT P6SM BKN250 FM180600 34010KT P6SM SCT250 FM180800 34025G35KT P6SM SCT250 KDEC 172004Z 1720/1818 17013G24KT P6SM VCSH OVC025 FM180000 18011G21KT P6SM -SHRA OVC015 FM180500 19014G23KT 2SM SHRA BR OVC008 FM181100 21009KT 3SM SHRA BR OVC008 FM181400 27014G23KT 5SM SHRA BR OVC008 FM181600 30018G27KT 6SM SHRA BR OVC008 KDEN 172108Z 1721/1824 26020G30KT P6SM FEW090 SCT120 BKN200 FM172230 32018G26KT P6SM VCSH SCT080 BKN120 FM180100 36020G33KT P6SM FEW020 BKN060 TEMPO 1801/1805 -SHRASN OVC020 FM180800 32018KT P6SM VCSH OVC030 FM181100 30011KT P6SM SCT030 BKN060 FM181400 20010KT P6SM FEW080 SCT120 FM182000 VRB05KT P6SM FEW120 KDET 171743Z 1718/1818 17013KT P6SM SCT030 BKN150 TEMPO 1718/1722 BKN030 OVC150 FM180400 17013KT 6SM -SHRA OVC045 WS017/22040KT FM180700 20010KT 4SM RA BR OVC008 PROB30 1807/1810 2SM TSRA BR OVC008CB FM181300 VRB03KT 2SM -RA BR OVC004 KDFW 172058Z 1721/1824 20018G29KT P6SM SCT035 BKN250 FM180000 19016G26KT P6SM BKN250 FM181000 23014KT P6SM BKN250 FM181500 31023G34KT P6SM BKN250 FM182300 35015KT P6SM SKC KDHN 171720Z 1718/1818 12005KT P6SM SKC FM172300 VRB03KT P6SM SKC FM181400 20006KT P6SM SCT250 KDHT 171721Z 1718/1818 24025G35KT P6SM BKN250 FM172200 24031G41KT P6SM BKN250 FM180000 24013KT P6SM BKN250 FM180900 31020G30KT P6SM SKC KDIJ 172155Z 1722/1818 25010KT 6SM BR VCSH SCT015 OVC050 TEMPO 1722/1723 1/2SM SN FZFG VV002 FM172300 34008KT 4SM BR SCT004 BKN035 OVC060 FM180200 VRB04KT P6SM SCT008 BKN035 BKN060 FM181130 24006KT P6SM SCT008 OVC015 LTD TO CLD VIS AND WIND KDIK 171740Z 1718/1818 VRB06KT P6SM OVC120 FM180600 28010KT P6SM BKN110 FM181200 31013KT P6SM SCT150 KDLF 171800Z 1718/1824 15009KT 9999 SCT008 BKN011 QNH2999INS BECMG 1719/1720 16012G18KT 9999 FEW020 SCT250 QNH2985INS BECMG 1723/1724 15009KT 9999 FEW250 QNH2981INS BECMG 1808/1809 VRB04KT 4800 BR BKN005 QNH2987INS TEMPO 1812/1815 1600 -DZ BR OVC002 BECMG 1815/1816 34015G25KT 9999 NSW FEW250 530802 QNH2994INS TX28/1721Z TN16/1812Z KDLH 172152Z 1722/1818 32006KT 5SM BR VCSH OVC005 FM180000 32006KT 5SM BR OVC007 FM180500 34009KT P6SM SCT015 BKN035 FM181500 33012G18KT P6SM SCT035 KDLS 171734Z 1718/1818 30013KT P6SM SCT080 FM180500 30006KT P6SM SCT080 SCT200 FM181000 00000KT P6SM BKN200 KDMA 172203Z 1722/1904 29009KT 9999 FEW120 BKN280 QNH2997INS TEMPO 1722/1724 29012G18KT BECMG 1802/1803 33009KT 9999 SCT060 BKN150 OVC250 QNH3002INS BECMG 1808/1809 13006KT 9999 BKN250 QNH3006INS BECMG 1819/1820 33009KT 9999 SKC QNH3004INS TX29/1722Z TN11/1812Z KDMN 171806Z 1718/1818 25015G27KT P6SM SCT140 BKN250 FM180200 28012KT P6SM SCT120 BKN250 FM181300 33013KT P6SM FEW140 SCT250 KDNL 172039Z 1721/1818 VRB03KT P6SM SCT250 KDOV 171600Z 1716/1822 31012G18KT 9999 FEW200 QNH3014INS BECMG 1721/1722 23009KT 9999 SKC QNH2990INS BECMG 1813/1814 19012G18KT 9999 BKN150 QNH2983INS BECMG 1815/1816 21015G25KT 9999 FEW010 BKN150 QNH2970INS BECMG 1821/1822 21020G35KT 9999 SCT010 BKN100 510002 QNH2968INS TX12/1816Z TN02/1809Z KDPA 172212Z 1722/1818 16015G20KT P6SM VCTS SCT015 OVC023CB TEMPO 1722/1724 2SM SHRA BKN015 FM180000 18015G22KT 4SM -RA SCT007 OVC010 WS020/20050KT FM180300 21012KT 3SM -RA BR OVC007 WS020/21045KT FM180700 28009KT 1 1/2SM -DZ BR OVC004 FM181200 35008KT 2SM -DZ BR OVC004 FM181500 36016G26KT 3SM -RA BR BKN006 OVC015 KDRO 171742Z 1718/1818 26006KT P6SM BKN060 BKN080 OVC090 FM172000 26019G30KT P6SM OVC050 FM180100 28022G39KT P6SM VCSH SCT030 BKN080 FM180300 29018G29KT P6SM VCSH SCT030 BKN070 FM180500 30013G21KT P6SM FEW050 SCT090 KDRT 171834Z 1719/1818 14009KT P6SM FEW011 OVC016 FM171930 15010KT P6SM FEW025 FM180800 19010KT 5SM BR OVC012 FM181000 05004KT 1SM BR OVC006 FM181600 33012G22KT P6SM SCT250 KDSM 172110Z 1721/1818 16007KT 6SM -DZ BR OVC006 FM180000 16007KT 4SM BR OVC003 FM180300 33007KT 5SM BR OVC003 FM180800 35013G19KT 1 1/2SM -RA OVC005 FM181200 34014G28KT 3SM -RASN OVC014 FM181300 34014G28KT 3SM -SN OVC018 FM181500 33016G28KT P6SM VCSH SCT014 BKN070 KDTW 172109Z 1721/1824 16013KT P6SM SCT030 BKN150 FM180400 18013KT 6SM -SHRA OVC045 WS017/22040KT FM180700 20010KT 4SM RA BR OVC008 PROB30 1807/1810 2SM TSRA BR OVC008CB FM181300 VRB03KT 2SM -RA BR OVC004 FM182200 33015G25KT 6SM -SHRA OVC025 KDUG 171720Z 1718/1818 18006KT P6SM FEW200 FM172000 25012G20KT P6SM SCT200 FM180200 35008KT P6SM SCT120 BKN200 FM181000 VRB03KT P6SM SCT120 BKN200 KDUJ 172108Z 1721/1818 23005KT P6SM SCT120 FM180600 12006KT P6SM BKN100 WS020/21030KT FM181100 16008KT 6SM -RA OVC070 WS020/22035KT FM181200 18011G20KT 4SM -RA OVC015 FM181500 18013G23KT 4SM -RA OVC008 KDVL 171730Z 1718/1818 30010KT P6SM BKN250 FM181100 31010KT P6SM BKN050 FM181300 31014KT P6SM BKN015 FM181600 31015KT P6SM SCT020 KDYS 171830Z 1718/1823 19020G25KT 9999 FEW250 QNH2974INS BECMG 1723/1724 22012KT 9999 SKC WS020/23040KT QNH2972INS BECMG 1814/1815 31015G20KT 9999 FEW100 520802 QNH2991INS BECMG 1817/1818 29025G35KT 9999 FEW050 510002 530802 QNH3004INS BECMG 1820/1821 35020G30KT 9999 SKC 510002 530802 QNH3008INS TX26/1720Z TN18/1812Z KEAR 172225Z 1722/1818 01012KT P6SM BKN200 FM180000 01016KT P6SM BKN130 FM180600 35019G27KT 5SM -RA OVC020 FM180900 34020G28KT 2SM -RASN OVC020 FM181000 34018G25KT P6SM VCSH SCT020 BKN050 FM181600 32021G30KT P6SM FEW040 KEAT 172223Z 1722/1818 25013KT P6SM FEW200 FM180000 30008KT P6SM FEW150 SCT200 FM180600 30005KT P6SM OVC200 KEAU 171811Z 1718/1818 15008KT 1 1/2SM -DZ BR OVC012 FM172000 VRB05KT 2SM -RA BR OVC007 FM180300 33006KT 4SM -DZ BR OVC008 FM181000 35008KT P6SM -SN OVC015 FM181600 33010KT P6SM BKN080 KECG 171725Z 1718/1818 34007KT P6SM SKC FM172300 VRB03KT P6SM SCT250 FM180800 19004KT P6SM SCT250 FM181400 20012G20KT P6SM SCT200 KECP 171720Z 1718/1818 06005KT P6SM SKC FM172300 VRB03KT P6SM SKC FM181400 20006KT P6SM SCT250 KEDW 171802Z 1718/1824 24015G25KT 9999 FEW040 BKN250 510009 QNH3000INS BECMG 1719/1720 27025G35KT 9999 BKN250 520009 QNH2995INS BECMG 1800/1801 26012G18KT 9999 SCT250 QNH3003INS BECMG 1804/1805 VRB06KT 9999 SKC QNH3008INS BECMG 1817/1818 02009KT 9999 SKC QNH3000INS TX21/1723Z TN03/1814Z KEED 171739Z 1718/1818 23007KT P6SM BKN100 BKN200 FM171900 26014G23KT P6SM FEW100 BKN200 FM180200 32010KT P6SM FEW250 FM180500 36018G28KT P6SM SKC KEET 171727Z 1718/1818 14004KT P6SM SKC FM171900 16005KT P6SM SCT250 FM181100 16007KT P6SM BKN020 KEFD 172000Z 1720/1902 18009KT 9999 SCT020 OVC030 QNH2990INS BECMG 1805/1806 19009KT 9999 OVC005 QNH2989INS BECMG 1811/1812 20009KT 9999 BKN010 OVC020 QNH2988INS BECMG 1814/1815 22015G20KT 9999 BKN020 QNH2996INS BECMG 1820/1821 30015G20KT 9999 SCT030 BKN040 QNH2995INS TX31/1721Z TN20/1812Z KEGE 172009Z 1720/1818 25017G29KT P6SM -RA SCT040 OVC060 FM172200 25025G40KT P6SM -RA SCT040 OVC060 FM180100 27016G29KT 5SM -SN OVC030 FM180400 27013G21KT P6SM VCSH SCT030 OVC045 FM180600 27009KT P6SM SCT035 BKN070 KEGI 171800Z 1718/1824 10007KT 9999 SKC QNH3009INS BECMG 1722/1723 14006KT 9999 FEW045 QNH3005INS BECMG 1807/1808 16005KT 4800 BR FEW025 FEW250 QNH2998INS BECMG 1813/1814 18009KT 9999 NSW SCT025 BKN250 QNH2993INS BECMG 1818/1819 20012G18KT 9999 BKN025 BKN080 QNH2987INS TX24/1720Z TN11/1810Z FCST BY USAF WX MET TECH KEKN 172131Z 1722/1818 15003KT P6SM SCT250 FM181100 19006KT P6SM OVC200 FM181600 21009G17KT P6SM SHRA OVC050 KEKO 172153Z 1722/1818 17006KT P6SM FEW040 FEW070 FM180300 VRB04KT P6SM VCFG SKC TEMPO 1809/1812 3SM BR FM181700 08003KT P6SM FEW250 KEKS 172222Z 1722/1818 31011KT P6SM VCSH SCT035 BKN070 TEMPO 1722/1801 5SM -SHSN BKN030 FM180300 21009KT P6SM FEW045 FEW200 KELD 172142Z 1722/1818 18011KT P6SM SCT035 BKN045 FM180000 17010KT P6SM BKN045 FM180500 18012KT P6SM BKN025 FM181000 19012G19KT P6SM BKN018 FM181500 21013G19KT P6SM BKN015 KELM 171724Z 1718/1818 30008KT P6SM SCT250 FM172300 VRB03KT P6SM SCT250 FM180400 VRB03KT P6SM BKN120 FM181400 19008KT P6SM -RA OVC040 KELP 171742Z 1718/1818 24010KT P6SM SCT140 BKN250 FM172000 25015G25KT P6SM SCT140 BKN250 FM180800 28012KT P6SM SCT120 BKN250 FM181200 33013KT P6SM FEW140 SCT250 KELY 171805Z 1718/1818 28015G33KT P6SM -SHRASN BKN040 BKN080 OVC110 TEMPO 1718/1720 3SM -SHSNRA BR OVC020 FM172200 34015G25KT P6SM SCT050 SCT180 FM180200 34012KT P6SM SCT200 FM181700 VRB06KT P6SM SKC KEND 171900Z 1719/1901 21015G20KT 9999 BKN250 QNH2956INS BECMG 1722/1723 20012KT 9999 BKN250 QNH2952INS BECMG 1811/1812 34025G35KT 9999 FEW035 SCT250 520003 QNH2957INS TEMPO 1815/1820 35030G40KT BECMG 1820/1821 34015G25KT 9999 FEW250 510104 QNH2968INS BECMG 1823/1824 33012KT 9999 SKC QNH2981INS TX25/1721Z TN08/1812Z KENV 172207Z 1722/1818 32012G20KT P6SM VCSH SCT040 BKN080 TEMPO 1722/1723 1/2SM -SN FG BKN025 FM180300 32008KT P6SM SCT120 FM180900 VRB04KT P6SM SKC KENW 172150Z 1722/1818 17011G19KT P6SM VCSH OVC025 FM180000 17012G19KT P6SM -RA OVC020 FM180600 25005KT P6SM VCSH OVC003 FM181200 36009KT 3SM RA OVC003 FM181400 35013G21KT 2SM RA OVC008 FM181600 35016G28KT 3SM RA OVC008 KERI 171735Z 1718/1818 VRB03KT P6SM BKN025 FM171900 16008KT P6SM SCT025 BKN120 FM180400 17015G25KT P6SM BKN090 FM180800 19015G25KT P6SM -SHRA OVC050 FM181200 19015G25KT 5SM -SHRA BR OVC010 FM181400 19018G28KT 2SM -SHRA BR OVC007 KEUG 171726Z 1718/1818 20007KT P6SM VCSH SCT030 SCT050 FM181200 14004KT 1/2SM FG OVC003 KEUL 171726Z 1718/1818 30014G21KT P6SM SCT050 FM172200 29010KT P6SM SCT050 FM180400 VRB06KT P6SM FEW200 KEVV 171912Z 1719/1818 14007KT 6SM HZ OVC150 FM171939 15007KT P6SM OVC035 FM180000 17013KT P6SM VCSH BKN040 FM180600 19015G25KT P6SM BKN025 PROB30 1806/1812 -SHRA KEVW 172209Z 1722/1818 30010G18KT 1SM -SN BR BKN025 OVC040 FM180000 34020G30KT P6SM VCSH SCT040 BKN080 FM180200 28008KT P6SM SCT080 SCT120 KEWN 171721Z 1718/1818 04005KT P6SM SKC FM172300 00000KT P6SM SKC FM181500 20006KT P6SM SCT150 KEWR 172059Z 1721/1824 30014G23KT P6SM FEW250 FM172300 29008KT P6SM FEW250 FM180400 VRB03KT P6SM FEW250 FM181400 19008KT P6SM BKN150 FM181700 20011G19KT P6SM SCT060 BKN150 FM182200 21014G23KT 6SM -SHRA OVC050 KEYW 171725Z 1718/1818 05012G18KT P6SM FEW018 FM180000 04009KT P6SM FEW020 SCT060 KFAF 171919Z 1719/1901 32009KT 9999 SKC QNH2998INS WND 22009KT AFT 1805 BECMG 1813/1814 21012G18KT 9999 BKN150 510153 QNH2990INS TX13/1721Z TN04/1811Z LAST NO AMDS AFT 1804 NEXT 2011 KFAR 171730Z 1718/1818 32008KT P6SM OVC200 FM181300 32009KT P6SM BKN080 FM181600 32014G22KT P6SM BKN030 KFAT 171751Z 1718/1818 32014KT P6SM BKN060 FM171900 31010KT P6SM SCT040 FM180300 32004KT P6SM SKC FM181000 VRB03KT 5SM BR SKC TEMPO 1813/1817 2SM BR KFAY 171737Z 1718/1818 VRB05KT P6SM BKN250 FM181400 21011KT P6SM BKN250 KFBG 171800Z 1718/1824 VRB06KT 9999 SCT250 QNH3009INS BECMG 1810/1811 18008KT 9999 SCT150 QNH3003INS BECMG 1814/1815 20010G15KT 9999 SCT025 BKN120 510102 QNH2983INS BECMG 1820/1821 20012G20KT 9999 BKN025 OVC080 520102 QNH2979INS TX17/1719Z TN04/1810Z KFCS 172100Z 1721/1903 22025G35KT 9999 SCT200 530009 QNH2960INS TEMPO 1721/1724 25035G45KT 560009 BECMG 1802/1803 27015G25KT 6000 -SHRA BKN060 620609 520009 QNH2965INS TEMPO 1803/1806 27025G35KT 530009 BECMG 1805/1806 35015G25KT 9999 NSW BKN100 520009 QNH2974INS BECMG 1808/1809 35012G18KT 9999 SCT100 SCT150 QNH2989INS BECMG 1811/1812 35009KT 9999 SCT100 SCT150 QNH3006INS BECMG 1817/1818 15009KT 9999 FEW200 QNH3020INS BECMG 1901/1902 33009KT 9999 FEW200 QNH3022INS TX18/1721Z TNM05/1812Z KFDY 171735Z 1718/1818 16010G18KT P6SM SCT020 BKN120 FM180300 17015KT P6SM -SHRA OVC050 WS020/19045KT FM180700 19015G25KT 4SM -SHRA BR OVC030 FM180900 20018G28KT 4SM -SHRA BR OVC015 FM181600 21015G25KT 2SM -SHRA BR OVC007 KFFO 171900Z 1719/1901 14012KT 9999 FEW020 BKN200 QNH2971INS BECMG 1805/1806 16012KT 8000 -SHRA BKN020 OVC040 WS015/18050KT QNH2962INS TEMPO 1806/1809 18015G25KT 520152 BECMG 1808/1809 20015G25KT 6000 -SHRA OVC010 QNH2933INS TEMPO 1817/1821 21025G35KT 510004 BECMG 1820/1821 31015G25KT 6000 -SHRA OVC015 QNH2933INS TEMPO 1821/1901 31025G35KT 510004 TX13/1819Z TN04/1800Z KFHU 171759Z 1718/1824 25012G18KT 9999 FEW090 SCT300 QNH3014INS BECMG 1719/1720 26015G25KT 9999 FEW100 SCT300 520009 QNH3011INS BECMG 1722/1723 27012KT 9999 FEW070 SCT250 QNH3010INS BECMG 1802/1803 27006KT 9999 BKN055 BKN250 QNH3013INS BECMG 1808/1809 29006KT 9999 SCT080 BKN250 QNH3014INS BECMG 1817/1818 33012KT 9999 SKC QNH3013INS TX25/1721Z TN10/1812Z KFKL 172108Z 1721/1818 17005KT P6SM SCT120 FM180500 15009KT P6SM BKN100 WS020/20035KT FM181200 18013G22KT 4SM -RA OVC025 FM181400 18013G21KT 4SM -RA OVC008 KFLG 172227Z 1722/1818 23012G22KT P6SM SCT030 BKN040 TEMPO 1722/1724 BKN030 FM180100 25011G17KT P6SM SCT030 BKN200 FM180700 07010G15KT P6SM SKC KFLL 172105Z 1721/1824 06012KT P6SM FEW035 SCT060 FM180000 05009KT P6SM FEW030 FM181500 10010KT P6SM SCT030 KFLO 171720Z 1718/1818 06007KT P6SM SKC FM180000 00000KT P6SM SKC TEMPO 1809/1811 5SM BR FM181400 20006KT P6SM SCT050 BKN100 KFMH 172130Z 1722/1818 31012G20KT P6SM FEW250 FM180500 30006KT P6SM FEW250 FM181300 24006KT P6SM FEW250 FM181600 22010G19KT P6SM SCT150 KFMN 171741Z 1718/1818 25014G22KT P6SM BKN090 FM172000 27025G35KT P6SM BKN070 FM180400 30028G35KT P6SM -SHRA OVC050 FM180700 28011KT P6SM SKC KFMY 171737Z 1718/1818 03007KT P6SM SKC FM180200 08006KT P6SM SKC FM181400 14006KT P6SM FEW250 KFNT 171743Z 1718/1818 16013KT P6SM SCT030 BKN150 TEMPO 1719/1722 BKN030 OVC150 FM180200 18013KT 6SM -SHRA OVC045 FM180600 20010KT 4SM RA BR OVC008 FM181100 VRB03KT 2SM -RA BR OVC004 KFOD 172111Z 1721/1818 17007KT 4SM -RA BR OVC006 FM180200 35008KT P6SM OVC002 FM180600 36011G17KT P6SM OVC006 FM180800 35012KT 1 1/2SM -RA OVC007 FM180900 35012KT 3SM -RASN OVC011 FM181200 34015G24KT P6SM OVC040 KFOE 171725Z 1718/1818 20015G24KT P6SM BKN012 FM171900 20015G25KT P6SM FEW020 FM172300 20006KT P6SM SCT200 FM180400 32005KT P6SM SCT200 FM180800 34020G30KT P6SM VCSH OVC012 KFPR 171736Z 1718/1818 04009G16KT P6SM SCT035 FM180000 04003KT P6SM SKC FM181500 11008KT P6SM SCT035 KFRI 172220Z 1722/1822 24010G15KT 9999 FEW200 QNH2941INS BECMG 1802/1803 02009KT 9999 SCT015 SCT100 QNH2952INS BECMG 1805/1806 03012KT 9999 OVC010 QNH2950INS BECMG 1809/1810 35015G25KT 6000 -SHRA OVC005 650209 QNH2964INS BECMG 1813/1814 32010G15KT 9999 NSW OVC005 650709 QNH2987INS BECMG 1816/1817 33020G30KT 9999 SKC 510003 QNH3000INS TX24/1722Z TN02/1811Z KFSD 171722Z 1718/1818 34009KT P6SM OVC110 FM180100 36011KT P6SM SCT030 OVC035 FM180500 33011KT P6SM VCSH BKN060 FM181100 33011KT P6SM SCT140 FM181700 32014G24KT P6SM FEW150 KFSI 172205Z 1722/1904 20012G20KT 9999 FEW250 QNH2962INS BECMG 1722/1723 20012KT 9999 FEW250 QNH2950INS BECMG 1813/1814 35025G35KT 9999 SCT040 520005 QNH2980INS BECMG 1817/1818 36018G28KT 9999 FEW040 QNH3000INS BECMG 1820/1821 36010KT 9999 SKC QNH3010INS TX28/1722Z TN12/1813Z LAST NO AMDS AFT 1800 NEXT 2014 KFSM 171941Z 1720/1818 20014G24KT P6SM BKN035 FM180300 19012G18KT P6SM BKN025 FM181400 28012G22KT P6SM SCT250 FM181700 31013G22KT P6SM BKN030 KFST 171720Z 1718/1818 24011G18KT P6SM BKN250 FM180000 21010KT P6SM BKN250 FM181300 31014G20KT P6SM SCT250 KFTK 171605Z 1716/1815 13006KT 9999 FEW012 QNH2986INS BECMG 1802/1803 18010G15KT 9999 BKN015 BKN040 BKN100 WS020/20060KT QNH2970INS BECMG 1810/1811 20012G18KT 9000 -DZ BKN010 OVC040 WS020/20060KT QNH2960INS TX12/1803Z TN03/1716Z KFTW 172058Z 1721/1818 20018G29KT P6SM FEW035 BKN250 FM180000 19016G26KT P6SM BKN250 FM181000 23014KT P6SM BKN250 FM181500 31023G34KT P6SM BKN250 KFTY 171741Z 1718/1818 15005KT P6SM FEW250 FM180000 00000KT P6SM FEW250 FM181000 VRB03KT P6SM SCT090 FM181400 18008G19KT P6SM SCT050 FM181700 20012G25KT P6SM BKN030 KFVE 171730Z 1718/1818 32020G32KT P6SM OVC011 FM172300 31013G24KT P6SM BKN030 FM180300 31012G22KT P6SM SCT035 FM181000 31008KT P6SM FEW070 FM181500 31005KT P6SM BKN040 KFWA 171723Z 1718/1818 15012KT P6SM BKN250 FM180300 17011G20KT P6SM -RA OVC050 WS020/21050KT FM180600 20013G26KT 4SM RA OVC020 WS020/22060KT FM181000 21013G25KT 3SM RA OVC008 FM181300 21009KT 3SM RA OVC008 KFXE 172105Z 1721/1818 06011KT P6SM FEW035 SCT060 FM180000 04006KT P6SM FEW030 FEW060 FM180300 35003KT P6SM FEW060 FM181500 09010KT P6SM SCT035 KFYV 171740Z 1718/1818 19016G24KT 5SM BR OVC012 TEMPO 1718/1721 P6SM NSW BKN020 FM172100 21015G26KT P6SM BKN025 FM181400 29013G22KT P6SM SCT250 FM181700 31022G31KT P6SM BKN030 KGAG 171720Z 1718/1818 23018G26KT P6SM BKN250 FM180800 33025G33KT P6SM SCT250 KGBD 172145Z 1722/1818 27017G22KT P6SM BKN250 FM172300 29007KT P6SM BKN250 FM180300 01013KT P6SM BKN200 FM180700 36017G26KT P6SM SCT030 FM180900 35025G30KT P6SM OVC017 LTD TO CLD VIS AND WIND KGCC 172046Z 1721/1818 35007KT P6SM OVC035 FM172300 32015KT P6SM SCT035 BKN100 KGCK 171735Z 1718/1818 25012G20KT P6SM BKN250 FM180500 34010KT P6SM SCT250 FM180700 34025G35KT P6SM SCT250 KGCN 171937Z 1720/1818 23017G25KT P6SM BKN040 BKN200 TEMPO 1720/1721 6SM -SHRA SCT030 OVC040 FM180100 25010G16KT P6SM BKN040 FM180600 07008KT P6SM SKC KGDV 171725Z 1718/1818 VRB04KT P6SM BKN160 FM172100 27009KT P6SM SCT150 FM180000 30009KT P6SM BKN070 FM180600 30012G20KT P6SM SCT070 FM181200 29009KT P6SM SCT090 KGEG 172220Z 1722/1818 23016G25KT P6SM BKN035 FM180100 21010KT P6SM SCT040 SCT250 FM181000 20010KT P6SM SCT007 BKN250 FM181400 18007KT P6SM OVC006 KGFA 172006Z 1720/1902 24015G20KT 9999 FEW200 510009 QNH2967INS TEMPO 1720/1801 24020G28KT 520009 BECMG 1800/1801 22012KT 9999 SKC QNH2984INS TEMPO 1818/1823 24025G35KT 520009 TX08/1721Z TNM01/1812Z KGFK 171730Z 1718/1818 33011KT P6SM SCT120 SCT250 FM181400 32011KT P6SM BKN025 FM181700 32015G22KT P6SM SCT045 KGFL 172204Z 1722/1818 33006KT P6SM FEW250 FM180400 22002KT P6SM FEW140 FM181600 18006KT P6SM VCSH BKN050 KGGG 171744Z 1718/1818 18013G19KT P6SM SCT020 BKN025 TEMPO 1718/1720 BKN020 FM172100 19015G24KT P6SM BKN035 FM180500 19016G24KT P6SM BKN023 FM180900 20016G24KT P6SM BKN018 FM181500 24015G24KT P6SM BKN020 KGGW 171725Z 1718/1818 12007KT P6SM SCT110 FM172100 29007KT P6SM BKN100 FM180300 32008KT P6SM SCT090 FM181200 VRB05KT P6SM SCT040 KGJT 171742Z 1718/1818 24010G17KT P6SM SCT070 OVC100 FM172000 25015G25KT P6SM FEW070 SCT090 FM172300 28024G36KT 6SM -RA SCT060 OVC070 FM180100 29024G37KT P6SM VCSH SCT050 BKN070 FM180300 31016G26KT P6SM BKN070 FM180700 32004KT P6SM FEW060 FEW250 KGKY 172058Z 1721/1818 20018G29KT P6SM SCT035 BKN250 FM180000 19016G26KT P6SM BKN250 FM181000 23014KT P6SM BKN250 FM181500 31023G34KT P6SM BKN250 KGLD 171725Z 1718/1818 30015G25KT P6SM FEW250 FM172100 01011KT P6SM SCT050 SCT200 FM180400 35025G35KT P6SM -SHRASN BKN035 FM181200 33020G30KT P6SM FEW250 KGLH 171740Z 1718/1818 18013G23KT P6SM SCT050 FM181100 20018G29KT P6SM OVC025 KGLS 171739Z 1718/1818 16011KT P6SM OVC035 FM181200 20012KT P6SM BKN025 KGMU 171740Z 1718/1818 15004KT P6SM FEW250 FM180300 VRB03KT P6SM FEW120 BKN250 FM181100 21004KT P6SM SCT035 BKN120 FM181400 21007KT P6SM BKN025 KGNV 171726Z 1718/1818 07007KT P6SM SCT040 FM172300 VRB03KT P6SM FEW250 FM181500 19007KT P6SM SCT250 KGON 172059Z 1721/1818 30014G22KT P6SM FEW250 FM172300 30008KT P6SM FEW250 FM180300 VRB05KT P6SM FEW250 FM181400 22008KT P6SM SCT150 FM181600 21012G21KT P6SM BKN150 KGPI 172125Z 1721/1818 25014KT P6SM VCSH BKN035 FM180200 19008KT P6SM VCSH FEW010 OVC020 FM181700 19005KT P6SM FEW020 OVC035 KGPT 171730Z 1718/1818 14005KT P6SM SKC FM180300 17007KT P6SM FEW008 SCT250 FM180600 18007KT 5SM BR SCT003 BKN150 FM181300 20008KT P6SM SCT003 BKN080 FM181700 21012KT P6SM SCT008 BKN040 KGRB 172021Z 1720/1818 16015G20KT P6SM -RA BKN025 OVC035 FM180000 18009KT 4SM -RA BR OVC008 FM180300 24004KT 2SM -RA BR OVC004 FM180600 33004KT 1 1/2SM -RA BR OVC004 FM181000 35010KT 4SM -RA BR OVC008 FM181400 35015G22KT P6SM OVC020 KGRF 172105Z 1721/1903 21012KT 9999 BKN020 QNH3014INS TEMPO 1721/1724 BKN015 BECMG 1723/1724 22009KT 9999 BKN030 QNH3020INS BECMG 1802/1803 VRB06KT 9999 BKN030 QNH3026INS BECMG 1817/1818 VRB06KT 9999 SCT020 QNH3016INS TX09/1721Z TN03/1810Z KGRI 172225Z 1722/1818 01012KT P6SM BKN200 FM180000 36016KT P6SM BKN130 FM180600 35018G27KT 5SM -RA OVC020 FM180900 34021G29KT 2SM -RASN OVC020 FM181000 34019G27KT P6SM VCSH SCT020 BKN050 FM181700 32023G32KT P6SM FEW040 KGRK 171600Z 1716/1822 20015G20KT 9999 BKN020 QNH2989INS BECMG 1718/1719 20015G25KT 9999 SCT025 QNH2985INS BECMG 1723/1724 20010G15KT 9999 FEW030 QNH2981INS BECMG 1808/1809 23012KT 9999 SCT015 QNH2980INS BECMG 1816/1817 35020G30KT 9999 SKC QNH2992INS TX28/1722Z TN17/1812Z KGRR 171740Z 1718/1818 15012G18KT P6SM BKN120 FM180000 16012G24KT P6SM -SHRA OVC040 FM180400 19012G23KT 3SM -SHRA BR OVC015 FM180600 21007KT 2SM SHRA BR OVC003 FM181000 15005KT 1 1/2SM -RA BR OVC003 KGSB 172226Z 1722/1903 02006KT 9999 SCT250 QNH3011INS BECMG 1722/1723 VRB03KT 9999 BKN250 QNH2998INS BECMG 1814/1815 20010G15KT 9999 FEW035 BKN250 QNH2980INS BECMG 1821/1822 21012G18KT 9999 BKN030 OVC200 QNH2975INS BECMG 1901/1902 22015G22KT 9999 VCSH BKN020 OVC150 QNH2970INS TX18/1820Z TN05/1812Z LAST NO AMDS AFT 1723 NEXT 1821 KGSO 171737Z 1718/1818 VRB05KT P6SM BKN250 FM181400 21011KT P6SM BKN250 KGSP 171740Z 1718/1818 16004KT P6SM FEW250 FM180300 VRB03KT P6SM FEW120 BKN250 FM181100 21004KT P6SM SCT035 BKN120 FM181400 21007KT P6SM BKN025 KGTF 172031Z 1721/1818 26020G30KT P6SM FEW040 SCT150 TEMPO 1721/1801 BKN040 FM180600 23015KT P6SM FEW060 SCT150 KGTR 171740Z 1718/1818 17010KT P6SM SCT050 FM180100 16010G18KT P6SM SCT100 FM181200 18014G20KT P6SM SCT015 OVC025 KGUC 172122Z 1721/1818 25018G32KT P6SM -RA FEW027 SCT035 BKN045 FM180100 26021G37KT 6SM -RASN SCT030 OVC060 FM180300 27020G32KT 2SM -SN SCT025 OVC035 FM180500 30015G26KT P6SM VCSH SCT025 BKN050 FM180600 30012G21KT P6SM SCT030 BKN080 FM180800 29008KT P6SM FEW030 SCT100 KGUP 171741Z 1718/1818 24015G25KT P6SM OVC060 FM172000 25025G35KT P6SM VCSH OVC060 FM180300 26018G26KT P6SM OVC060 FM180600 31014G20KT P6SM VCSH OVC050 FM180900 02005KT P6SM SKC KGUS 171900Z 1719/1901 16010G15KT 9999 FEW020 BKN180 QNH2979INS BECMG 1801/1802 18012KT 9000 -SHRA FEW015 OVC025 QNH2956INS BECMG 1808/1809 19012KT 8000 -SHRA BR OVC010 520252 QNH2947INS BECMG 1811/1812 20012KT 4800 SHRA BR OVC006 QNH2927INS BECMG 1818/1819 31015G25KT 6000 -SHRA BR OVC012 QNH2927INS TEMPO 1819/1901 31025G35KT 510003 TX10/1815Z TN07/1719Z KGUY 171721Z 1718/1818 25024G34KT P6SM BKN250 FM180800 32015G30KT P6SM BKN250 KGWO 171740Z 1718/1818 17010KT P6SM SCT050 SCT090 FM180600 19015G20KT P6SM BKN100 FM181100 19017G25KT P6SM OVC025 KGYY 172212Z 1722/1818 16015G20KT P6SM VCTS SCT015 OVC022CB TEMPO 1722/1724 2SM SHRA BKN015 FM180100 18015G22KT 4SM -RA SCT007 OVC010 WS020/20050KT FM180500 21012KT 3SM -RA BR OVC007 WS020/21045KT FM180900 28009KT 2SM -DZ BR OVC004 FM181300 35008KT 2SM -DZ BR OVC004 FM181600 36016G26KT 3SM -RA BR BKN006 OVC015 KHBG 171740Z 1718/1818 19008KT P6SM SCT050 FM181000 18004KT 5SM BR SCT250 FM181400 20011G18KT P6SM OVC025 KHBR 171720Z 1718/1818 22018G26KT P6SM BKN250 FM180000 21015KT P6SM BKN250 FM181100 34030G40KT P6SM SCT250 KHCR 172224Z 1722/1818 34010KT P6SM -SHSN SCT020 BKN040 FM180000 35010G18KT P6SM SCT040 BKN080 FM180300 VRB04KT P6SM VCSH SCT080 SCT120 KHDC 171730Z 1718/1818 14008KT P6SM SKC FM180600 18005KT P6SM FEW010 SCT100 FM180900 19005KT 3SM BR SCT008 BKN050 FM181300 19006KT P6SM SCT003 BKN035 FM181600 21010KT P6SM SCT010 BKN025 KHIB 171732Z 1718/1818 21007KT 3SM -SN BR BKN007 OVC018 TEMPO 1718/1720 2SM -FZDZSN BR BKN005 OVC015 FM172000 24003KT 4SM -DZSN BR OVC009 FM172300 26003KT 6SM -SN BR BKN006 OVC015 FM180400 33008KT 6SM BR SCT010 BKN035 FM181500 33010G17KT P6SM BKN030 KHIE 171950Z 1720/1818 28010KT P6SM OVC020 FM180000 30008KT P6SM BKN035 FM181600 VRB03KT P6SM BKN050 KHIF 172106Z 1721/1903 32009KT 9999 BKN035 OVC045 620359 QNH2993INS TEMPO 1721/1723 4800 -SN BKN020 620209 BECMG 1723/1724 29009KT 9999 BKN100 QNH3006INS BECMG 1806/1807 11009KT 9999 SKC QNH3029INS BECMG 1817/1818 18006KT 9999 SKC QNH3033INS BECMG 1900/1901 11006KT 9999 SKC QNH3032INS TX03/1821Z TNM06/1812Z KHIO 171726Z 1718/1818 22003KT P6SM VCSH SCT025 SCT050 FM181400 00000KT 1/2SM FG OVC003 KHKS 171740Z 1718/1818 19010KT P6SM SCT050 FM180200 17011KT P6SM FEW250 FM181200 17014G22KT P6SM BKN025 KHKY 171740Z 1718/1818 15004KT P6SM FEW250 FM180300 VRB02KT P6SM SCT250 FM180900 21004KT P6SM SCT120 BKN250 FM181600 21008KT P6SM BKN025 KHLG 172107Z 1721/1818 17006KT P6SM SCT150 FM180500 16007KT P6SM BKN100 WS020/21035KT FM181100 19012KT 6SM -RA OVC060 WS020/21040KT FM181500 21016G25KT 4SM -RA BR OVC015 KHLN 172224Z 1722/1818 27015G25KT P6SM VCSH SCT060 BKN090 TEMPO 1722/1724 5SM -SN BR BKN040 FM180300 26009KT P6SM BKN060 BKN200 KHMN 172029Z 1720/1902 20012KT 9999 SKC QNH2997INS BECMG 1723/1724 22009KT 9999 SCT100 QNH3004INS BECMG 1811/1812 36012G18KT 9999 FEW180 QNH3016INS TEMPO 1815/1818 36015G25KT BECMG 1823/1824 12009KT 9999 SKC QNH3025INS TX30/1721Z TN08/1812Z LAST NO AMDS AFT 1721 NEXT 2004 KHNB 171741Z 1718/1818 16007KT P6SM BKN250 FM180200 17012KT P6SM VCSH OVC040 WS020/19045KT FM180600 18015G25KT P6SM -SHRA OVC030 WS020/20055KT FM181000 19016G26KT P6SM -SHRA OVC015 FM181200 19018G28KT P6SM -SHRA OVC015 PROB30 1812/1816 4SM -TSRA BKN010CB FM181600 20020G32KT P6SM SHRA OVC012 PROB30 1816/1818 4SM TS OVC008CB KHND 171739Z 1718/1818 23025G35KT P6SM FEW080 SCT150 BKN200 FM171900 25022G32KT P6SM FEW080 SCT200 FM180200 36015G25KT P6SM SCT250 FM180500 03007KT P6SM SKC KHOB 171720Z 1718/1818 24016G24KT P6SM BKN250 FM180000 23011KT P6SM BKN250 FM180900 29015G24KT P6SM BKN250 KHON 171722Z 1718/1818 36010KT P6SM OVC080 FM180600 33008KT P6SM OVC060 FM180900 32007KT P6SM SCT100 FM181400 32011G17KT P6SM SCT150 KHOP 171600Z 1716/1822 15012KT 9999 BKN050 BKN180 QNH2983INS BECMG 1803/1804 17012KT 9999 OVC025 WS020/20050KT QNH2978INS BECMG 1811/1812 20012KT 9000 -DZ OVC012 510154 QNH2964INS BECMG 1813/1814 21012G18KT 8000 -SHRA BR OVC008 QNH2964INS TX15/1721Z TN00/1812Z KHOT 171737Z 1718/1818 18008KT P6SM OVC015 WS020/20040KT FM172000 20009G18KT P6SM OVC025 WS020/20040KT FM180100 22008G15KT P6SM OVC035 FM180800 22008KT P6SM VCSH BKN020 OVC040 FM181500 23010G20KT P6SM -RA VCTS BKN020 OVC050CB KHOU 172131Z 1722/1818 19012G21KT P6SM SCT040 SCT250 FM180200 18009KT P6SM SCT020 FM180900 20007KT P6SM BKN020 FM181500 23012G22KT P6SM BKN025 KHPN 172059Z 1721/1818 30014G22KT P6SM FEW250 FM172300 29008KT P6SM FEW250 FM180200 VRB04KT P6SM FEW250 FM181300 19005KT P6SM SCT150 FM181500 19009KT P6SM BKN140 FM181700 18011G19KT P6SM VCSH SCT060 BKN120 NOT SKED KHQM 171748Z 1718/1818 22005KT P6SM VCSH SCT025 BKN040 TEMPO 1718/1722 5SM -SHRA BR BKN025 BKN040 FM180600 18006KT P6SM VCSH SCT012 BKN018 OVC030 KHRL 171720Z 1718/1818 17015G24KT P6SM BKN050 FM180000 16010KT P6SM SCT250 FM181500 17016G24KT P6SM BKN250 KHRO 171737Z 1718/1818 18012G22KT P6SM BKN008 OVC030 WS020/21045KT FM172000 18012G22KT P6SM SCT015 OVC030 WS020/21045KT FM180200 19008G18KT P6SM VCSH OVC040 FM180800 22008G18KT P6SM VCSH BKN020 OVC040 FM181300 31012G22KT 6SM -TSRA BR OVC020CB KHST 171648Z 1716/1822 05010G15KT 9999 SCT030 QNH2997INS BECMG 1723/1724 05012KT 9999 SCT030 QNH2998INS BECMG 1814/1815 07009KT 9999 FEW030 QNH2994INS TX27/1719Z TN18/1810Z KHSV 171720Z 1718/1818 14011KT P6SM SCT250 FM180300 17013KT P6SM BKN050 BKN150 FM181200 18016G26KT P6SM BKN020 OVC060 KHTS 172131Z 1722/1818 12005KT P6SM FEW250 FM180700 17005KT P6SM OVC090 FM181100 20009KT P6SM OVC050 FM181500 20011G18KT P6SM OVC040 FM181700 20011G22KT P6SM OVC040 KHUF 171735Z 1718/1818 16011KT P6SM BKN025 BKN250 FM171900 16011KT P6SM BKN045 BKN250 FM180000 16010KT P6SM VCSH OVC035 FM180200 17011G19KT P6SM VCSH OVC035 FM180400 18012G21KT P6SM VCSH OVC025 FM180600 18012G25KT 5SM SHRA OVC015 FM181200 19012G24KT 5SM SHRA VCTS OVC010CB FM181500 20013G28KT 1 1/2SM SHRA VCTS OVC010CB FM181700 25014G28KT 2SM SHRA VCTS OVC010CB KHUL 171730Z 1718/1818 31016G28KT P6SM OVC020 FM180100 31013G24KT P6SM BKN040 FM180200 31013G23KT P6SM SCT045 FM180800 31009KT P6SM FEW120 FM181600 31006KT P6SM BKN100 KHUM 171730Z 1718/1818 12005KT P6SM FEW026 FM180900 19006KT P6SM SCT003 BKN110 FM181400 21010KT P6SM SCT008 BKN050 KHUT 171740Z 1718/1818 21017KT P6SM BKN250 FM172300 22007KT P6SM BKN250 FM180300 36007KT P6SM OVC200 FM180600 36013KT P6SM SCT015 BKN250 FM180800 35022G30KT P6SM OVC018 KHVR 172228Z 1722/1818 24010G18KT P6SM SCT060 BKN100 FM180100 30010KT P6SM SCT040 BKN150 KHYA 172130Z 1722/1818 30011G20KT P6SM FEW250 FM180400 30006KT P6SM FEW250 FM181300 25006KT P6SM FEW250 FM181600 22010G19KT P6SM SCT200 KHYR 172155Z 1722/1818 20004KT 3SM -SNRA BR OVC010 TEMPO 1722/1724 2SM -SN BR OVC008 FM180000 VRB04KT 3SM BR VCSH OVC007 FM180600 35005KT 5SM BR OVC003 FM181200 34007KT P6SM BKN010 BKN060 FM181600 33010G16KT P6SM SCT010 BKN060 KHYS 171735Z 1718/1818 22012KT P6SM BKN250 FM180200 35010KT P6SM SCT250 FM180600 35025G35KT P6SM BKN150 KIAB 172222Z 1722/1824 23015G25KT 9999 SCT170 BKN220 QNH2950INS BECMG 1723/1724 19006KT 9999 FEW250 QNH2948INS BECMG 1808/1809 33025G35KT 6000 -SHRA OVC010 510002 550203 QNH2952INS BECMG 1810/1811 34035G50KT 9999 NSW OVC010 650102 520002 550203 QNH2965INS BECMG 1815/1816 34020G35KT 9999 BKN015 BKN035 610152 510002 550203 QNH2977INS BECMG 1818/1819 34015G25KT 9999 SKC QNH3005INS TX24/1722Z TN03/1809Z KIAD 172101Z 1721/1824 30007KT P6SM FEW150 SCT250 FM172200 VRB03KT P6SM FEW150 BKN250 FM180700 18007KT P6SM SCT150 BKN250 FM181200 19012KT P6SM SCT140 OVC250 KIAG 172116Z 1721/1818 20008KT P6SM SKC FM172300 16004KT P6SM BKN110 FM180800 17007KT P6SM OVC090 WS020/21035KT FM181000 17008KT 6SM -RA OVC090 WS020/20035KT FM181200 17013G19KT 6SM -RA OVC015 KIAH 172131Z 1722/1824 20009G17KT P6SM SCT040 SCT250 FM180200 18009KT P6SM SCT020 FM180900 20007KT P6SM BKN020 FM181600 24015KT P6SM BKN030 FM182000 32016KT P6SM SCT050 KICT 171748Z 1718/1818 20017G22KT P6SM SCT015 FM172000 21017KT P6SM BKN250 FM172300 19009KT P6SM BKN250 FM180200 18004KT P6SM BKN180 FM180600 34009KT P6SM SKC FM180800 34022G26KT P6SM OVC012 KIDA 172029Z 1720/1818 24015G25KT P6SM SCT008 BKN015 OVC060 TEMPO 1720/1722 BKN008 OVC015 FM172200 28020G30KT P6SM VCSH BKN060 BKN100 FM180000 32010KT P6SM BKN070 BKN100 FM180300 29006KT P6SM SCT050 FM180900 19008KT P6SM OVC004 KIFP 171739Z 1718/1818 VRB05KT P6SM BKN100 BKN200 FM171900 19013G21KT P6SM FEW100 BKN200 FM180300 36014G24KT P6SM FEW250 FM180500 01025G35KT P6SM SKC KILG 172017Z 1720/1818 30012G18KT P6SM SKC FM172300 27006KT P6SM SKC FM180100 VRB02KT P6SM SCT250 FM181300 18005KT P6SM BKN250 FM181600 20010KT P6SM OVC250 KILM 171720Z 1718/1818 02009KT P6SM SKC FM180000 00000KT P6SM SKC TEMPO 1809/1811 5SM BR FM181400 20006KT P6SM SCT050 BKN250 KILN 171736Z 1718/1818 15009KT P6SM SCT200 FM180300 17010G18KT P6SM VCSH OVC080 FM180500 19012G20KT P6SM -SHRA SCT035 OVC080 FM180700 19014G23KT 5SM -SHRA BKN035 OVC080 WS020/21050KT FM180900 20016G29KT P6SM -SHRA OVC028 FM181200 21016G30KT P6SM VCSH OVC015 KIND 172020Z 1720/1824 16008KT P6SM BKN200 FM180200 16012KT P6SM VCSH OVC045 FM180600 19013G22KT 5SM -SHRA VCTS OVC015CB WS020/21040KT FM181400 20016G25KT 1 1/2SM SHRA OVC010 FM181900 24017G26KT 2SM SHRA OVC008 FM182000 28018G27KT 3SM SHRA OVC010 FM182300 31020G39KT 6SM SHRA OVC020 KINK 171720Z 1718/1818 25014G23KT P6SM BKN250 FM180000 24011KT P6SM BKN250 FM181100 30013G20KT P6SM BKN250 KINL 171732Z 1718/1818 23008KT 5SM BR VCSH OVC014 FM172100 25006KT 6SM BR BKN019 FM172200 29006KT P6SM SCT020 BKN040 FM180400 32006KT P6SM SCT015 BKN100 FM181000 31007KT P6SM BKN025 FM181600 30010G17KT P6SM BKN025 KINS 172059Z 1721/1821 27015G25KT 9999 FEW250 520009 QNH2984INS TEMPO 1722/1801 28025G35KT 530009 BECMG 1800/1801 35012G18KT 9999 SKC QNH2998INS BECMG 1808/1809 02009KT 9999 SKC QNH3015INS TX25/1723Z TN03/1812Z KINT 171737Z 1718/1818 VRB05KT P6SM BKN250 FM181400 21011KT P6SM BKN250 KINW 171732Z 1718/1818 23025G35KT P6SM BKN060 BKN100 OVC250 FM180100 23015G25KT P6SM BKN250 FM180800 27010KT P6SM SKC KIPL 171720Z 1718/1818 28012KT P6SM BKN120 BKN150 FM181500 33006KT P6SM FEW250 KIPT 172224Z 1722/1818 VRB03KT P6SM BKN200 FM180800 09003KT P6SM OVC100 FM181300 10004KT P6SM -RA OVC050 FM181600 11007KT 3SM RA OVC010 KISM 171736Z 1718/1818 06007KT P6SM SCT040 FM180000 VRB02KT P6SM SKC FM181600 14005KT P6SM SCT040 KISN 171740Z 1718/1818 VRB04KT P6SM SCT250 FM180200 34007KT P6SM BKN040 FM181200 31010KT P6SM BKN090 KISO 171721Z 1718/1818 36007KT P6SM SKC FM172300 VRB03KT P6SM SKC FM181500 20008KT P6SM SCT150 LTD TO CLD VIS AND WIND KISP 172059Z 1721/1818 29014G23KT P6SM FEW250 FM172300 29009KT P6SM FEW250 FM180300 VRB05KT P6SM FEW250 FM181300 20007KT P6SM SCT150 FM181500 20012G20KT P6SM SCT070 BKN150 KITH 171724Z 1718/1818 32010KT P6SM SCT035 FM172300 VRB03KT P6SM SCT250 FM180500 15007KT P6SM BKN120 FM181400 17012KT P6SM -RA OVC035 KIWA 171720Z 1718/1818 15006KT P6SM BKN120 BKN150 FM171900 27008KT P6SM SCT100 BKN150 FM180700 09005KT P6SM SCT250 FM181600 03008KT P6SM FEW250 KIWD 172052Z 1721/1818 20007KT 2SM -SN OVC008 FM172200 23005KT 1 1/2SM -SN OVC008 FM180300 29006KT 4SM -DZ OVC003 FM181400 34009KT P6SM BKN010 KIXD 172051Z 1721/1818 19012KT 6SM BR SCT007 OVC025 TEMPO 1721/1724 5SM -DZ SCT025 FM180600 31009KT P6SM -SHRA OVC015 FM180900 34016G25KT P6SM -SHRA OVC015 FM181500 34018G30KT P6SM SCT015 BKN080 KJAC 171914Z 1719/1818 35010KT 3SM -SN SCT010 OVC030 TEMPO 1719/1721 1SM -SN BKN010 OVC020 FM172100 24015G25KT 2SM -SN BKN012 OVC020 FM180100 24012KT P6SM VCSH SCT015 BKN040 FM180600 21009KT P6SM FEW015 SCT040 BKN080 FM181100 20008KT P6SM SCT010 BKN040 OVC080 LTD TO CLD VIS AND WIND KJAN 171740Z 1718/1818 19010KT P6SM SCT050 FM180200 17011KT P6SM FEW250 FM181200 17014G22KT P6SM BKN025 KJAX 171726Z 1718/1818 06009KT P6SM SCT040 FM172300 VRB03KT P6SM FEW250 FM181500 21008KT P6SM SCT250 KJBR 171720Z 1718/1818 19012G18KT P6SM SCT035 BKN060 TEMPO 1718/1721 BKN035 FM180400 20018G26KT P6SM VCSH BKN025 OVC040 FM180900 20020G30KT P6SM VCSH BKN018 OVC040 FM181500 22020G30KT 6SM -SHRA VCTS BKN015CB OVC040 TEMPO 1816/1818 2SM +TSRA BKN009CB KJCT 171720Z 1718/1818 21012G18KT P6SM SKC FM181200 25010KT P6SM FEW250 FM181500 35018G27KT P6SM SKC KJER 171726Z 1718/1818 25015KT P6SM VCSH SCT015 OVC050 FM172000 25021G31KT P6SM FEW040 FM180100 23014KT P6SM FEW040 FM180300 VRB06KT P6SM FEW200 KJFK 172059Z 1721/1824 30015G24KT P6SM FEW250 FM180000 31010KT P6SM FEW250 FM180500 VRB05KT P6SM FEW200 FM181400 20010G18KT P6SM SCT150 FM181800 20016G25KT P6SM SCT070 BKN150 FM182300 21018G30KT P6SM VCSH OVC060 KJHW 172116Z 1721/1818 19007KT P6SM OVC120 FM180700 17014KT P6SM OVC120 WS020/20040KT FM180900 17014KT 6SM -RA OVC080 WS020/20040KT FM181200 17017KT 6SM -RA OVC007 WS020/19045KT LTD TO CLD VIS AND WIND KJKL 171738Z 1718/1818 VRB03KT P6SM FEW250 FM180600 VRB05KT P6SM BKN110 FM181300 20009KT P6SM OVC060 FM181500 21013G25KT P6SM BKN045 KJLN 172125Z 1721/1818 20020G30KT P6SM BKN035 FM172300 23022G30KT P6SM OVC040 FM181000 28019G27KT P6SM OVC030 FM181400 31025G35KT P6SM OVC025 KJMS 171740Z 1718/1818 33014KT P6SM BKN200 FM180000 35005KT P6SM BKN110 FM181200 32012KT P6SM BKN070 FM181400 31013G22KT P6SM SCT030 KJST 172224Z 1722/1818 17005KT P6SM BKN150 FM180600 18008KT P6SM OVC100 FM181000 18010KT P6SM -RA OVC050 FM181500 18010G15KT 3SM RA OVC010 KJXN 171740Z 1718/1818 15010G21KT P6SM BKN040 FM180400 18012G19KT P6SM -RA OVC015 FM180700 19008KT 4SM -RA BR OVC007 FM181000 18006KT 2SM -RA BR OVC003 FM181700 09004KT 1/2SM -RA FG OVC001 KLAF 171735Z 1718/1818 16009KT P6SM BKN200 FM172300 16009KT P6SM VCSH OVC050 FM180100 17010G19KT P6SM -SHRA OVC045 FM180600 20012G27KT 4SM SHRA OVC015 FM181200 21009KT 3SM SHRA VCTS OVC010CB FM181400 20008KT 1 1/2SM SHRA VCTS OVC008CB FM181700 32011G22KT 2SM SHRA VCTS OVC010CB KLAL 171737Z 1718/1818 05007KT P6SM SKC FM180100 VRB03KT P6SM SKC FM181000 VRB03KT 5SM BR SCT008 FM181400 13005KT P6SM FEW250 KLAN 171740Z 1718/1818 16014G19KT P6SM BKN050 FM180000 17012KT P6SM -RA OVC025 FM180400 18011KT 6SM -RA OVC015 FM180500 18010KT 4SM -RA OVC007 FM180600 18009KT 4SM -RA OVC003 FM181400 15002KT 2SM -RA BR OVC003 FM181600 02005KT 1/2SM -RA FG OVC002 KLAR 172157Z 1722/1818 33015G25KT 3SM -SN BKN025 OVC050 TEMPO 1722/1723 1SM -SN BR OVC008 FM180400 36018G28KT 3SM -SN BKN012 OVC025 FM180800 34014KT P6SM SCT120 FM181700 29017G26KT P6SM FEW250 KLAS 172046Z 1721/1824 25022G32KT P6SM FEW080 FEW150 SCT250 FM180100 35014G23KT P6SM SCT250 FM180300 36010KT P6SM FEW250 FM181200 02007KT P6SM SKC KLAW 171720Z 1718/1818 21014G25KT P6SM BKN250 FM180000 20010KT P6SM BKN250 FM181100 34020G30KT P6SM SCT250 KLAX 172130Z 1722/1824 26012KT P6SM SCT150 BKN250 FM180200 27008KT P6SM SCT025 SCT250 FM180500 29004KT P6SM BKN025 FM181000 03005KT P6SM SKC FM181500 VRB03KT P6SM SKC FM182000 27008KT P6SM SKC KLBB 171725Z 1718/1818 26016KT P6SM BKN250 FM171900 24017G27KT P6SM SCT250 FM180000 25015KT P6SM SCT250 FM181100 34020G30KT P6SM SCT250 KLBE 172109Z 1721/1818 21005KT P6SM SCT150 FM180600 16005KT P6SM BKN100 WS020/22035KT FM181200 19009KT 6SM -RA OVC060 WS020/22045KT FM181500 20012G24KT 4SM -RA BR OVC010 KLBF 171759Z 1718/1818 36012G19KT P6SM SCT120 FM180000 36012G20KT P6SM VCSH BKN100 FM180200 35013G25KT P6SM -SHRA SCT040 OVC100 FM180500 36015G24KT 6SM -RA BR BKN015 OVC035 FM180700 36017G27KT 4SM -RASN OVC012 FM181000 33018G29KT P6SM VCSH SCT020 BKN045 OVC150 FM181200 31016G26KT P6SM FEW250 KLBL 171735Z 1718/1818 25012G20KT P6SM BKN250 FM180500 34010KT P6SM SCT250 FM180700 34025G35KT P6SM SCT250 KLBT 171720Z 1718/1818 04007KT P6SM SKC FM180000 00000KT P6SM SKC TEMPO 1809/1811 5SM BR FM181400 20006KT P6SM SCT050 BKN100 KLBX 171739Z 1718/1818 19014G22KT P6SM SCT030 FM180200 18010KT P6SM SCT020 FM180900 20007KT P6SM BKN020 FM181500 21014G23KT P6SM BKN025 KLCH 171720Z 1718/1818 17010G16KT P6SM SCT025 FM180600 18008KT P6SM OVC040 FM181600 22014G20KT P6SM OVC040 KLCK 171736Z 1718/1818 15009KT P6SM FEW025 SCT250 FM180300 15010G18KT P6SM VCSH OVC080 FM180600 17010G18KT 5SM -SHRA SCT035 OVC080 WS020/21045KT FM180900 18012G20KT P6SM -SHRA OVC035 FM181400 19015G25KT P6SM VCSH OVC015 KLEB 171950Z 1720/1818 34010KT P6SM SCT030 FM172300 32009KT P6SM FEW250 FM181600 17005KT P6SM BKN100 KLEE 171736Z 1718/1818 00000KT P6SM SKC FM180000 VRB04KT P6SM SKC FM181600 17005KT P6SM SCT045 KLEX 171741Z 1718/1818 15008KT P6SM FEW250 FM180300 18008KT P6SM BKN140 WS020/20045KT FM180600 19016G26KT P6SM OVC060 WS020/20055KT FM181300 20020G31KT P6SM OVC035 PROB30 1813/1814 4SM -TSRA OVC025CB KLFI 171800Z 1718/1824 34010G15KT 9999 SKC QNH2998INS BECMG 1722/1723 33009KT 9999 FEW100 QNH2992INS BECMG 1813/1814 21012G18KT 9999 BKN150 510153 QNH2981INS TX13/1721Z TN04/1810Z KLFK 171744Z 1718/1818 19013G18KT P6SM SCT030 BKN040 FM180000 18011KT P6SM SCT050 SCT300 FM180400 17011KT P6SM BKN025 FM180600 18012KT P6SM BKN020 FM180900 18011KT P6SM BKN015 FM181600 23013KT P6SM BKN018 KLFT 171720Z 1718/1818 17008KT P6SM SCT040 FM180800 20006KT P6SM OVC040 FM181600 21015G23KT P6SM BKN050 KLGA 172059Z 1721/1818 29014G24KT P6SM FEW250 FM180000 29010KT P6SM FEW250 FM180500 VRB05KT P6SM FEW250 FM181400 20009KT P6SM BKN150 FM181700 19012G20KT P6SM VCSH SCT060 BKN130 KLGB 171745Z 1718/1818 31007KT P6SM SCT070 FM172100 25009KT P6SM BKN050 FM172300 29009KT P6SM SCT250 FM180300 29006KT P6SM SCT025 FM180500 VRB03KT P6SM BKN025 FM181200 VRB03KT P6SM SKC KLGU 172208Z 1722/1818 31010KT P6SM VCSH SCT020 BKN040 FM180000 30012G20KT P6SM SCT040 BKN080 FM180200 VRB04KT P6SM SCT080 FM180900 VRB04KT P6SM BCFG SCT001 KLIT 171737Z 1718/1818 19009G18KT P6SM BKN020 OVC040 WS020/20040KT FM172000 20009G18KT P6SM SCT030 OVC050 WS020/20040KT FM180100 22008G15KT P6SM SCT025 OVC050 WS020/21040KT FM180400 22008KT P6SM VCSH BKN020 OVC040 FM181500 23010G20KT P6SM -RA VCTS BKN020 OVC050CB KLLQ 171737Z 1718/1818 19009G18KT P6SM SCT050 FM172000 19010G20KT P6SM BKN050 FM180600 20008KT P6SM BKN025 OVC050 FM181200 22008G15KT P6SM VCSH BKN020 OVC040 FM181700 22010G20KT P6SM -RA VCTS BKN020 OVC050CB KLMT 171736Z 1718/1818 26007KT P6SM SCT030 FM172300 26005KT P6SM FEW050 KLND 171735Z 1718/1818 30012KT P6SM SCT030 BKN050 FM172200 33015G25KT P6SM VCSH SCT020 BKN040 FM180300 VRB05KT P6SM SCT040 BKN080 KLNK 172132Z 1722/1818 36010KT P6SM SCT025 TEMPO 1722/1724 BKN025 FM180500 35014KT P6SM VCSH BKN040 FM180800 34015KT 5SM -RA BR OVC015 FM181400 33015G25KT P6SM SCT040 KLNS 172224Z 1722/1818 VRB04KT P6SM SCT250 FM180900 12003KT P6SM OVC100 FM181500 16005KT P6SM -RA OVC050 KLOZ 171738Z 1718/1818 VRB04KT P6SM FEW250 FM180500 19008KT P6SM BKN120 FM180900 19010G22KT P6SM OVC080 FM181400 20016G31KT P6SM BKN045 KLRD 171743Z 1718/1818 16014KT P6SM SCT015 FM180000 14012KT P6SM FEW050 TEMPO 1809/1813 3SM BR OVC012 FM181600 33008KT P6SM SCT035 KLRF 172219Z 1722/1821 18012KT 9999 BKN025 QNH2975INS BECMG 1802/1803 20012KT 9999 OVC018 WS020/20044KT QNH2970INS BECMG 1814/1815 23012G20KT 8000 -SHRA OVC015 520203 QNH2964INS BECMG 1819/1820 31015G35KT 9999 NSW SCT018 BKN030 QNH2960INS TX22/1722Z TN17/1809Z KLRU 171740Z 1718/1818 26010KT P6SM SCT140 BKN250 FM172000 25015G25KT P6SM SCT140 BKN250 FM180200 28012KT P6SM SCT120 BKN250 FM181200 33013KT P6SM FEW140 SCT250 KLSE 172140Z 1722/1818 15005KT 2SM -RA BR OVC006 FM180000 VRB03KT 2SM BR VCSH OVC006 FM180700 35009KT 3SM BR OVC008 FM181000 34010KT P6SM OVC010 KLSV 171501Z 1715/1821 19015G25KT 9999 SCT100 BKN250 510009 QNH2978INS TEMPO 1715/1803 23020G35KT 520009 BECMG 1802/1803 03015G25KT 9999 SCT200 510009 QNH2995INS BECMG 1803/1804 04012G18KT 9999 FEW250 QNH2999INS TEMPO 1809/1812 04015G25KT BECMG 1819/1820 03012KT 9999 FEW250 QNH3004INS TX27/1723Z TN09/1814Z KLTS 171806Z 1718/1823 24020G25KT 9999 FEW150 QNH2964INS BECMG 1723/1724 21012KT 9999 FEW250 WS020/23040KT QNH2959INS BECMG 1811/1812 34025G35KT 9999 FEW050 510002 520802 QNH2977INS BECMG 1814/1815 35030G46KT 9999 SCT050 520003 530802 QNH3002INS BECMG 1817/1818 24025G40KT 9999 FEW250 520003 530802 QNH3014INS BECMG 1820/1821 18020G30KT 9999 SKC 510002 530802 QNH3015INS TX28/1720Z TN10/1815Z KLUF 171959Z 1720/1902 23009KT 9999 SCT070 BKN180 QNH2993INS BECMG 1805/1806 34009KT 9999 BKN250 QNH3001INS TEMPO 1812/1817 35010G15KT BECMG 1817/1818 06006KT 9999 SKC QNH3006INS BECMG 1823/1824 31005KT 9999 SKC QNH3005INS TX28/1723Z TN13/1812Z KLUK 171736Z 1718/1818 16009KT P6SM SCT200 FM180300 18005KT P6SM VCSH BKN080 WS020/19040KT FM180500 19011KT P6SM -SHRA OVC060 WS020/20045KT FM180900 20015G27KT P6SM -SHRA OVC015 FM181500 20018G30KT P6SM VCSH OVC015 KLVK 171727Z 1718/1818 25005KT P6SM FEW050 FM172000 02006KT P6SM FEW060 FM180400 00000KT P6SM SKC KLVM 171732Z 1718/1818 27014G22KT P6SM VCSH SCT030 BKN060 FM180100 26015G25KT P6SM SCT080 FM180600 24026G38KT P6SM BKN080 KLVS 171741Z 1718/1818 26035G45KT P6SM SCT100 FM180700 30028G40KT P6SM SCT060 FM181000 01011KT P6SM SKC KLWB 171720Z 1718/1818 VRB03KT P6SM FEW250 FM181000 16004KT P6SM BKN090 FM181100 18004KT P6SM BKN090 WS020/22035KT KLWS 171723Z 1718/1818 VRB03KT P6SM SCT060 FM171900 27013G20KT P6SM FEW060 FM180000 23008KT P6SM FEW060 SCT250 FM180600 17004KT P6SM BKN250 KLWT 171930Z 1720/1818 30015G24KT P6SM VCSH SCT035 BKN100 TEMPO 1720/1724 BKN035 FM180000 27014G24KT P6SM VCSH FEW035 SCT200 TEMPO 1800/1803 BKN035 FM181200 26015G25KT P6SM FEW060 BKN250 KLYH 171720Z 1718/1818 00000KT P6SM FEW250 FM180900 19006KT P6SM SCT150 FM181200 20007KT P6SM BKN150 WS020/22035KT FM181300 20009KT P6SM BKN150 BKN250 FM181600 21013G22KT P6SM BKN150 BKN250 KMAF 171720Z 1718/1818 25014G22KT P6SM BKN250 FM180000 21011KT P6SM BKN250 FM181100 29013G20KT P6SM BKN250 KMBG 171739Z 1718/1818 01007KT P6SM BKN100 FM180600 32005KT P6SM SCT200 FM181300 31014KT P6SM SCT200 KMBL 171720Z 1718/1818 16013G22KT P6SM BKN090 FM172100 17012G23KT P6SM VCSH OVC070 WS020/18040KT FM180000 17012G22KT 4SM SHRA OVC040 WS020/18035KT FM180300 18008KT 3SM SHRA OVC015 FM180600 21005KT 3SM -SHRA OVC008 FM180900 30006KT 3SM -SHRA OVC015 FM181200 01006KT 5SM RA OVC015 FM181600 36010G21KT 5SM RA OVC015 KMBS 171743Z 1718/1818 16013KT P6SM SCT030 BKN150 TEMPO 1719/1723 BKN030 OVC150 FM180200 18013KT 6SM -SHRA OVC045 FM180500 20010KT 4SM RA BR OVC008 FM181000 VRB03KT 2SM -RA BR OVC004 FM181700 36015G25KT 6SM -SHRA OVC025 KMCB 171730Z 1718/1818 19011KT P6SM SKC FM180700 19007KT 5SM BR SCT008 BKN120 FM181200 20008KT 3SM BR SCT003 BKN015 FM181300 20009KT P6SM SCT003 BKN010 FM181700 22013KT P6SM SCT015 OVC020 KMCE 171751Z 1718/1818 32009KT P6SM SCT040 FM180100 32005KT P6SM SKC FM180600 VRB03KT 5SM BR SKC TEMPO 1810/1812 3SM BR FM181200 00000KT 2SM BR SKC TEMPO 1813/1817 1/4SM FG VV002 KMCF 171700Z 1717/1823 05009KT 9999 SKC QNH3002INS BECMG 1723/1724 07006KT 9999 FEW025 QNH3001INS BECMG 1814/1815 10009KT 9999 SKC QNH2995INS TX26/1720Z TN12/1812Z KMCI 172051Z 1721/1818 19010KT 6SM BR SCT007 OVC020 TEMPO 1721/1724 5SM -DZ SCT025 FM180600 31009KT P6SM -SHRA OVC015 FM180900 34016G25KT P6SM -SHRA OVC015 FM181500 34018G28KT P6SM SCT015 BKN080 KMCK 171725Z 1718/1818 01008KT P6SM SCT200 FM180600 34020G30KT P6SM -SHRA BKN035 FM181200 32020G30KT P6SM FEW250 KMCN 171741Z 1718/1818 15004KT P6SM FEW250 FM180000 00000KT P6SM FEW250 FM180900 17003KT P6SM FEW050 FM181400 19005KT P6SM SCT050 FM181700 21010G20KT P6SM SCT035 KMCO 172102Z 1721/1824 06009KT P6SM SCT050 FM180100 02003KT P6SM SKC FM181500 15006KT P6SM SCT040 FM182000 20006KT P6SM SCT050 KMCW 172110Z 1721/1818 15011KT 1SM -DZ BR OVC003 FM180100 34008KT 3SM BR OVC003 FM180300 34015G22KT P6SM OVC007 FM180600 35013G21KT P6SM VCSH OVC004 FM181000 34015G23KT P6SM VCSH OVC007 FM181100 34016G24KT P6SM VCSH OVC010 FM181300 33015G26KT P6SM BKN070 KMDT 172224Z 1722/1818 VRB04KT P6SM SCT250 FM180900 14003KT P6SM OVC100 FM181400 15005KT P6SM -RA OVC050 FM181700 16005KT 3SM RA OVC010 KMDW 172212Z 1722/1818 16015G20KT P6SM VCTS SCT015 OVC022CB TEMPO 1722/1724 2SM SHRA BKN015 FM180000 18015G22KT 4SM -RA SCT007 OVC010 WS020/20050KT FM180400 21012KT 3SM -RA BR OVC007 WS020/21045KT FM180800 28009KT 2SM -DZ BR OVC004 FM181200 35008KT 2SM -DZ BR OVC004 FM181500 36016G26KT 3SM -RA BR BKN006 OVC015 KMEI 171740Z 1718/1818 19010KT P6SM SCT050 FM181200 20009KT P6SM BKN025 FM181500 21016G22KT P6SM OVC025 KMEM 172112Z 1721/1824 18014G20KT P6SM SCT050 BKN250 FM180300 19018G26KT P6SM BKN040 BKN250 FM180800 19020G30KT P6SM VCSH BKN025 FM181700 21020G28KT P6SM -SHRA VCTS BKN015CB OVC040 TEMPO 1818/1820 2SM +TSRA BKN009CB FM182100 32018G26KT P6SM VCSH BKN035 KMER 171751Z 1718/1818 32009KT P6SM SCT040 FM180100 32005KT P6SM SKC FM180600 VRB03KT 5SM BR SKC TEMPO 1810/1812 3SM BR FM181200 00000KT 2SM BR SKC TEMPO 1813/1817 1/4SM FG VV002 KMFD 171735Z 1718/1818 16011KT P6SM FEW020 BKN100 FM180300 17014KT P6SM VCSH OVC080 WS020/20045KT FM180500 18015G25KT 6SM -SHRA BR OVC050 FM180900 18018G28KT 5SM -SHRA BR OVC030 FM181300 20018G28KT 2SM -SHRA BR OVC009 FM181700 20020G30KT 3SM -SHRA BR OVC003 KMFE 171720Z 1718/1818 15014G20KT P6SM SCT050 FM180000 15013KT P6SM SCT250 FM181500 19012KT P6SM BKN250 KMFR 171736Z 1718/1818 VRB05KT P6SM SCT010 SCT050 FM181000 00000KT 5SM BR FEW020 FM181400 00000KT 3SM BR OVC003 KMGE 172200Z 1722/1904 13006KT 9999 SCT025 SCT200 QNH3001INS BECMG 1814/1815 17012G18KT 9999 SCT030 BKN050 QNH2978INS BECMG 1901/1902 19010G15KT 6000 -SHRA SCT010 BKN020 QNH2971INS TX20/1821Z TN03/1812Z KMGM 171727Z 1718/1818 14003KT P6SM SKC FM171900 17007KT P6SM SCT250 FM181100 16007KT P6SM BKN020 KMGW 171728Z 1718/1818 VRB04KT P6SM BKN250 FM180600 17004KT P6SM BKN250 WS020/22035KT FM181200 18007KT 6SM -RA OVC070 WS020/22045KT FM181600 19010G22KT 5SM -RA BR OVC020 KMHK 171725Z 1718/1818 21015G25KT P6SM FEW250 FM172300 23006KT P6SM SCT250 FM180200 33004KT P6SM BKN200 FM180700 36016G26KT P6SM BKN020 FM181000 34020G30KT P6SM VCSH OVC015 FM181400 34020G30KT P6SM BKN060 KMHR 171720Z 1718/1818 VRB04KT P6SM SKC FM181300 VRB03KT 4SM BR FEW002 KMHT 172158Z 1722/1818 28004KT P6SM SKC FM172300 31009KT P6SM FEW250 FM181700 16006KT P6SM OVC250 KMIA 172105Z 1721/1824 05010KT P6SM SCT040 SCT060 FM172300 04008KT P6SM FEW030 SCT060 FM180400 VRB03KT P6SM FEW060 FM181500 09008KT P6SM SCT035 KMIB 171700Z 1717/1823 30009KT 9999 FEW120 QNH2964INS BECMG 1801/1802 28009KT 9999 BKN015 620153 QNH2975INS BECMG 1808/1809 30009KT 9999 SCT015 BKN070 620704 QNH2990INS BECMG 1817/1818 31012G18KT 9999 FEW020 QNH2997INS TXM02/1720Z TNM09/1808Z KMIV 171720Z 1718/1818 30013G23KT P6SM SKC FM172200 29010KT P6SM SKC FM180100 VRB02KT P6SM SCT250 FM181400 20007KT P6SM BKN250 FM181700 20013G24KT P6SM SCT150 OVC250 KMKC 172051Z 1721/1818 18010KT 6SM BR SCT007 OVC025 TEMPO 1721/1724 5SM -DZ SCT025 FM180600 31009KT P6SM -SHRA OVC015 FM180900 34016G25KT P6SM -SHRA OVC015 FM181500 34018G28KT P6SM SCT015 BKN080 KMKE 172149Z 1722/1824 17012G19KT P6SM VCSH OVC020 FM172300 18012G19KT 6SM -SHRA BR OVC015 FM180000 18012G18KT 4SM RA OVC015 FM180200 20009KT 3SM RA OVC008 FM181400 35014G24KT 2SM RA OVC008 FM182000 34016G31KT P6SM OVC035 KMKG 172143Z 1722/1818 15014G21KT P6SM VCSH OVC035 FM180000 17017G24KT 4SM -SHRA OVC019 FM180200 18016G23KT 2SM -SHRA OVC009 FM181000 12004KT 1 1/2SM SHRA OVC003 FM181700 01012G19KT 1 1/2SM -RA BR OVC003 KMKL 171720Z 1718/1818 17010KT P6SM BKN035 BKN250 FM172000 18010G16KT P6SM SCT040 BKN250 FM180400 18014G22KT P6SM BKN040 BKN250 FM180900 19018G26KT P6SM VCSH BKN025 FM181700 21018G26KT P6SM -SHRA BKN018 OVC025 KMKT 172220Z 1722/1818 VRB04KT 6SM -RA BR OVC015 TEMPO 1722/1724 2SM BR OVC004 FM180200 35011KT P6SM OVC015 FM181300 34012KT P6SM SCT250 KMLB 171736Z 1718/1818 04011KT P6SM FEW035 FM180000 04006KT P6SM SKC FM181500 12008KT P6SM SCT035 KMLC 171923Z 1719/1818 19016G25KT P6SM SCT035 FM172300 22015G26KT P6SM SCT150 FM181200 29013G22KT P6SM SCT250 FM181500 34024G35KT P6SM BKN030 KMLI 172032Z 1721/1818 16006KT 3SM -SHRA OVC011 FM180000 17009KT 3SM -RA BR OVC008 FM180900 34012KT 2SM -RA BR OVC003 FM181200 33012G20KT 2SM -RA OVC008 FM181500 33015G25KT 3SM -RASN OVC012 KMLS 171732Z 1718/1818 VRB05KT P6SM BKN100 FM172000 29013KT P6SM VCSH BKN050 FM180200 29012G19KT P6SM SCT050 FM180800 29010KT P6SM BKN100 KMLU 171744Z 1718/1818 19010G16KT P6SM FEW025 FM172000 19011KT P6SM SCT035 SCT300 FM180000 18009KT P6SM BKN040 FM180400 18011KT P6SM BKN025 FM180700 20011KT P6SM BKN018 FM181500 22013G18KT P6SM BKN017 KMMH 171726Z 1718/1818 26025G40KT P6SM FEW035 SCT060 FM172300 29011G16KT P6SM SCT070 FM180200 30005KT P6SM SKC KMMT 171600Z 1716/1822 07009KT 9999 SKC QNH3015INS BECMG 1720/1721 08006KT 9999 SKC QNH3006INS BECMG 1811/1812 10006KT 9999 BKN035 QNH2993INS BECMG 1817/1818 21010G15KT 9999 SCT025 QNH2983INS TX17/1721Z TN04/1812Z KMOB 171735Z 1718/1818 VRB03KT P6SM SKC FM180300 15005KT P6SM FEW050 BKN250 FM180900 17005KT 4SM BR BKN030 FM181400 19011KT P6SM BKN030 KMOT 171740Z 1718/1818 VRB06KT P6SM BKN130 FM180000 30005KT P6SM BKN100 FM180800 30010G18KT P6SM BKN045 FM181200 30015G20KT P6SM SCT025 FM181700 29015G20KT P6SM SCT130 KMPV 171733Z 1718/1818 32017G29KT P6SM BKN015 TEMPO 1719/1721 SCT025 FM172100 31011G21KT P6SM SKC FM172300 31008KT P6SM SKC FM180200 31004KT P6SM SKC FM181600 16005KT P6SM SCT130 KMQY 171720Z 1718/1818 17007KT P6SM SCT250 FM180200 18010G17KT P6SM BKN100 FM181500 20016G26KT P6SM VCSH OVC015 KMRB 171728Z 1718/1818 31006KT P6SM FEW150 FEW250 FM172100 24004KT P6SM FEW150 FEW250 FM180000 17004KT P6SM FEW150 SCT250 FM180900 17005KT P6SM SCT150 BKN250 WS020/21035KT FM181300 18008KT P6SM SCT110 OVC150 FM181500 17009KT 6SM -SHRA SCT035 OVC070 KMRY 171727Z 1718/1818 VRB03KT P6SM FEW040 FM172000 31005KT P6SM FEW050 FM180230 11003KT P6SM SKC KMSL 171720Z 1718/1818 15011KT P6SM SCT250 FM180100 17012KT P6SM BKN040 BKN120 FM181200 18017G27KT P6SM BKN015 OVC060 KMSN 172207Z 1722/1818 17012G21KT 2SM -SHRA BR OVC007 TEMPO 1722/1723 1SM TSRA BR OVC005CB FM172300 17010G15KT 4SM -RA OVC008 FM180200 17005KT 2SM -RA OVC003 FM181200 36011KT 3SM -RA OVC008 FM181400 35013KT 3SM -RASN OVC008 KMSO 172050Z 1721/1818 28015G22KT P6SM VCSH BKN070 FM180200 29006KT P6SM OVC050 FM181200 VRB03KT 5SM BR BCFG SCT005 SCT150 FM181700 VRB03KT P6SM SCT030 KMSP 172112Z 1721/1824 09004KT 4SM -DZ BR OVC007 FM172200 08004KT 6SM BR OVC010 TEMPO 1722/1801 06004KT SCT010 BKN070 FM180100 02005KT 6SM BR OVC009 FM180400 34012KT P6SM OVC012 FM180800 34008KT P6SM OVC015 FM181200 33009KT P6SM SCT020 BKN040 FM182000 32014KT P6SM SCT050 KMSS 171733Z 1718/1818 27012KT P6SM SKC FM172100 26007KT P6SM SKC FM172300 VRB03KT P6SM FEW200 FM181100 VRB03KT P6SM BKN110 KMSY 171730Z 1718/1824 14009KT P6SM FEW020 FM180500 18007KT P6SM FEW008 SCT200 FM181200 20007KT P6SM SCT003 BKN080 FM181400 21010KT P6SM SCT008 BKN050 FM181800 22014KT P6SM SCT025 BKN035 FM182300 25012G20KT P6SM SCT015 BKN030 KMTH 171725Z 1718/1818 04012G18KT P6SM FEW018 FM180000 04009KT P6SM FEW020 SCT060 KMTJ 172130Z 1722/1818 21020G28KT P6SM -RA SCT060 BKN100 BKN120 FM180000 26026G40KT P6SM -RA SCT030 OVC070 FM180200 29021G36KT P6SM -SHRA OVC035 FM180400 30014KT P6SM VCSH SCT040 BKN045 FM180900 20005KT P6SM FEW045 FEW200 KMTN 171728Z 1718/1818 31009KT P6SM FEW150 FEW250 FM172200 29005KT P6SM FEW150 FEW250 FM180400 20004KT P6SM FEW150 SCT250 FM181000 19008KT P6SM FEW150 SCT250 FM181400 19012G19KT P6SM SCT140 BKN250 KMTW 172107Z 1721/1818 17017G26KT P6SM OVC011 TEMPO 1721/1724 5SM -RA BR SCT011 OVC020 FM180000 18013KT 4SM -RA BR OVC008 FM180300 21008KT 2SM -RA BR OVC004 FM180700 33004KT 1 1/2SM -RA BR OVC004 FM181100 35010KT 4SM -RA BR OVC008 FM181400 35015G22KT P6SM OVC020 KMUI 172230Z 1722/1901 30009KT 9999 FEW040 QNH3006INS BECMG 1803/1804 18009KT 9999 BKN120 QNH2985INS BECMG 1814/1815 17012G18KT 9999 OVC080 510204 QNH2967INS BECMG 1816/1817 20015G25KT 8000 -SHRA BKN020 OVC060 QNH2956INS TEMPO 1818/1821 3200 -RA OVC009 TX06/1722Z TNM01/1809Z LAST NO AMDS AFT 1805 NEXT 1811 KMUO 172233Z 1722/1824 29010G15KT 9999 FEW040 QNH2998INS TEMPO 1722/1801 31015G25KT 510009 BECMG 1801/1802 VRB06KT 9999 BKN050 QNH3024INS BECMG 1805/1806 09009KT 9999 FEW050 QNH3033INS BECMG 1817/1818 11010G15KT 9999 FEW250 QNH3029INS TX10/1722Z TNM03/1812Z KMWH 171723Z 1718/1818 22010KT P6SM SCT250 FM172100 24015G25KT P6SM SKC FM180000 22006KT P6SM BKN250 KMXF 172000Z 1720/1902 12005KT 9999 BKN250 QNH3008INS BECMG 1804/1805 15009KT 9999 SCT040 BKN120 QNH2997INS BECMG 1816/1817 22012G20KT 9999 SCT035 BKN050 OVC120 QNH2989INS BECMG 1823/1824 27012G20KT 9999 -RA BKN030 OVC080 QNH2980INS TX24/1820Z TN10/1811Z LAST NO AMDS AFT 1804 NEXT 1812 KMYL 171726Z 1718/1818 28010KT P6SM VCSH SCT020 BKN035 TEMPO 1720/1722 2SM -SHSN BKN009 FM180300 VRB05KT P6SM VCFG SCT020 BKN035 KMYR 171720Z 1718/1818 04009KT P6SM SKC FM180000 VRB03KT P6SM SKC TEMPO 1809/1811 5SM BR FM181400 20006KT P6SM SCT050 BKN250 KNBC 1715/1815 05009KT 9999 SKC QNH3010INS BECMG 1801/1803 VRB03KT 9999 FEW100 QNH3005INS T18/1720Z T08/1810Z LAST NO AMDS AFT 1715Z/ NEXT 1909Z KNBG 1715/1815 10004KT 9999 FEW040 SCT250 QNH3004INS BECMG 1718/1720 15008KT 9999 SCT015 SCT050 BKN250 QNH3001INS BECMG 1722/1801 18008KT 9999 SCT020 BKN050 BKN250 QNH2997INS BECMG 1803/1805 18007KT 4800 SCT015 BKN040 BKN250 QNH2992INS BECMG 1808/1810 20010G15KT 9999 NSW BKN025 BKN040 BKN250 QNH2991INS T26/1719Z T16/1812Z FN20040 KNCA 1722/1821 02010KT 9999 SKC QNH3014INS BECMG 1802/1804 00000KT QNH3003INS T05/1806Z T19/1719Z 2220 KNEW 171730Z 1718/1818 18008KT P6SM SKC FM180100 17007KT P6SM FEW015 FEW250 FM180800 19007KT P6SM BKN008 BKN140 FM181500 21011KT P6SM SCT008 BKN035 KNFG 1721/1821 24008KT 9999 SCT080 BKN100 QNH3000INS BECMG 1803/1805 VRB05KT 9999 SCT100 BKN200 QNH3002INS TEMPO 1806/1812 BKN012 FM181830 32008KT 9999 SCT020 QNH3006INS T22/1721Z T09/1814Z KNFL 1715/1815 34011KT 9999 FEW040 SCT060 BKN100 BKN150 640509 641406 540909 541809 QNH2994INS FM172000 34007KT 9999 SCT060 SCT150 SCT180 600000 QNH2998INS FM180300 VRB06KT 9999 SKC QNH3005INS T09/1722Z TM08/1713Z FS30003 KNFW 1715/1815 18012G22KT 9999 OVC015 QNH2989INS TEMPO 1715/1718 SCT015 BKN035 BECMG 1717/1719 19017G28KT 9999 FEW040 SCT250 WSCONDS 520009 QNH2972INS FM181000 22016G23KT 9999 BKN250 WSCONDS QNH2976INS T27/1722Z T16/1815Z FN20048 KNGP 1719/1815 16018G25KT 9999 FEW020 QNH2988INS TEMPO 1720/1803 15019G28KT FM180400 17016G23KT 9999 SCT017 QNH2985INS FM180600 18012KT 9999 FEW015 SCT025 QNH2981INS TEMPO 1809/1814 FEW009 BKN015 T29/1720Z T22/1812Z 1920 FN00003 KNGU 1715/1815 35012G23KT 9999 SKC QNH3012INS FM180000 VRB05KT 9999 FEW250 QNH3016INS FM181200 22009G15KT 9999 SCT250 QNH3002INS T13/1718Z T05/1811Z FN20000 KNHK 1715/1815 32011G17KT 9999 FEW280 QNH3010INS BECMG 1720/1721 30007KT 9999 SCT280 QNH3009INS BECMG 1723/1800 VRB05KT 9999 BKN280 QNH2993INS BECMG 1809/1810 20009KT 9999 FEW220 BKN280 QNH2990INS BECMG 1812/1814 19015G25KT 9999 BKN120 BKN180 BKN280 WS020/23040KT 641209 520006 542709 QNH2986INS T12/1720Z T05/1808Z FN20066 KNIP 1715/1815 06009KT 9999 SCT030 SCT250 QNH3005INS FM180300 VRB05KT 9999 FEW030 FEW050 FEW250 QNH3002INS TEMPO 1807/1812 VRB04KT 8000 BR FEW005 SCT010 SCT250 FM181200 19007KT 9999 FEW015 SCT250 QNH3003INS T22/1720Z T14/1812Z FN20061 KNJK 1715/1815 27008KT 9999 FEW080 BKN100 BKN250 621206 520009 520906 522409 523309 QNH2984INS TEMPO 1720/1802 27016KT FM180300 29006KT 9999 SCT250 600000 500000 QNH2986INS T29/1722Z T12/1813Z FS30093 KNKT 1721/1821 02010KT 9999 SKC QNH3014INS BECMG 1802/1804 00000KT QNH3003INS T05/1806Z T19/1719Z KNKX 1721/1821 32007KT 9999 FEW050 BKN100 BKN200 QNH3000INS BECMG 1803/1805 VRB05KT 9999 SCT100 BKN200 QNH3004INS TEMPO 1807/1813 BKN015 FM181830 32008KT 9999 SCT020 QNH3004INS T25/1721Z T13/1814Z KNLC 1718/1815 33016KT 9999 FEW030 BKN040 540009 550903 532409 533309 QNH3012INS TEMPO 1718/1721 33018G25KT FM180000 35012G20KT 9999 FEW035 SCT065 531809 532707 QNH3006INS T19/1722Z T03/1814Z 1840 FS30012 KNMM 1715/1815 17006KT 9999 FEW035 SCT060 QNH2998INS FM180000 18006KT 9999 FEW023 SCT035 BKN050 BKN300 QNH2991INS FM180900 18006KT 8000 BR OVC010 QNH2988INS FM181500 23013G19KT 9999 OVC013 QNH2988INS T23/1720Z T14/1812Z FN20035 KNPA 1715/1815 08006KT 9999 FEW080 QNH3010INS FM171800 14008KT 9999 SCT030 SCT080 QNH3005INS FM180100 17005KT 9999 FEW025 SCT250 QNH3004INS FM180500 17005KT 9999 SCT025 BKN250 QNH2997INS FM181000 19007KT 9999 BKN025 BKN250 QNH2996INS 23/1720Z T17/1810Z FN20053 KNQI 1715/1815 17010KT 9999 FEW008 FEW015 QNH3001INS TEMPO 1715/1717 17014G20KT FM171700 17013G19KT 9999 SCT025 SCT040 QNH2987INS FM172100 14013G19KT 9999 FEW035 FEW250 QNH2986INS TEMPO 1721/1802 14017G24KT FM180200 16012G18KT 9999 FEW012 SCT250 510104 QNH2988INS FM180400 17011G16KT 9999 FEW008 BKN012 BKN250 WS020/18040KT 510104 QNH2980INS FM181000 18008KT 9000 BR BKN008 OVC012 WS020/19045KT 510104 QNH2981INS TEMPO 1812/1814 4000 BR OVC006 T32/1720Z T22/1813Z FN20044 KNQX 1715/1815 04014KT 9999 SCT015 QNH2994INS BECMG 1806/1808 08010KT 9999 SCT018 QNH2997INS T26/1719Z T23/1810Z FN20027 KNRB 1715/1815 03006KT 9999 FEW020 FEW080 QNH3010INS FM171800 04010KT 9999 SCT030 SCT080 QNH3006INS FM180000 05005KT 9999 SCT060 QNH3004INS FM180600 23005KT 9999 FEW020 FEW060 QNH3002INS T22/1719Z T14/1812Z FN20021 KNSE 1715/1815 VRB05KT 9999 FEW080 QNH3011INS FM171838 13007KT 9999 SCT040 QNH3006INS FM180146 16003KT 9999 FEW025 QNH3012INS TEMPO 1810/1815 00000KT 6000 BR BKN020 T24/1720Z T14/1812Z FN00002 KNTD 1715/1815 VRB05KT 9999 VCSH BKN007 OVC012 621109 521509 522302 QNH3000INS BECMG 1716/1718 VRB05KT 9999 VCSH SCT008 BKN015 BKN040 600000 500000 QNH2998INS TEMPO 1718/1720 25007KT FEW008 SCT015 SCT040 FM172000 27007KT 9999 FEW015 SCT280 QNH2998INS TEMPO 1721/1724 27011G16KT FM180100 9999 VRB05KT FEW020 QNH2998INS TEMPO 1806/1809 BKN020 T21/1722Z T13/1813Z FS30016 KNTU 1715/1815 35012G23KT 9999 FEW250 QNH3012INS FM172300 VRB06KT 9999 FEW250 QNH3014INS FM181200 22009G15KT 9999 SCT250 QNH3002INS T12/1719Z T05/1809Z FN20008 KNUC 1720/1815 30008G15KT 9999 VCSH FEW005 SCT050 BKN120 BKN250 641009 641903 540109 541009 541909 522807 QNH3000INS TEMPO 1720/1721 VRB06KT 8000 -SHRA BKN005 BKN050 OVC100 T20/1803Z T15/1813Z 2018 FS30121 KNUW 1715/1815 26010KT 9999 VCSH SCT030 BKN050 BKN080 BKN200 640309 641202 540009 540909 541809 522703 QNH2990INS TEMPO 1715/1720 24016G24KT 8000 SHRA BR BKN025 BKN040 OVC080 FM172000 19010KT 9999 VCSH SCT025 BKN040 BKN080 BKN180 640309 641202 540909 541809 522703 QNH2995INS FM180000 VRB06KT 9999 SCT025 BKN040 BKN080 BKN180 640309 641302 540909 541809 522703 QNH3002INS FM180900 15015G20KT 9999 BKN025 BKN070 BKN180 640509 641302 540009 540909 541809 522703 QNH3015INS T09/1722Z T05/1813Z FS30028 KNXP 1721/1821 30015G25KT 9999 BKN150 QNH3000INS BECMG 1723/1801 33012KT 9999 FEW150 QNH3000INS T24/1722Z T10/1814Z KNYG 1715/1815 35010G20KT 9999 SCT250 QNH3014INS FM180000 VRB06KT 9999 SCT120 QNH2998INS BECMG 1812/1814 20010G20KT 9999 OVC100 520009 520901 541009 541909 522809 QNH2986INS T11/1719Z T02/1810Z LAST NO AMENDS/ NEXT 1903 KNYL 1721/1821 28010KT 9999 FEW100 SCT250 QNH2988INS BECMG 1807/1809 36008KT 9999 SCT250 QNH3000INS T31/1722Z T17/1813Z KNZY 1715/1815 VRB06KT 9999 BKN100 BKN140 BKN200 641309 520009 540903 522409 523309 QNH3002INS FM172000 31009KT 9999 SCT120 SCT150 BKN250 600000 520009 520903 QNH3004INS FM180300 VRB06KT 9999 FEW015 SCT150 BKN250 520009 520906 542009 522909 523804 QNH3006INS T21/1721Z T16/1812Z FS30022 KOAJ 171721Z 1718/1818 02008KT P6SM SKC FM172300 00000KT P6SM SKC FM181500 20007KT P6SM SCT150 LTD TO CLD VIS AND WIND KOAK 171727Z 1718/1824 30006KT P6SM FEW020 SCT080 FM172000 29008KT P6SM FEW025 FEW100 FM180300 VRB04KT P6SM SKC FM182200 30006KT P6SM SKC KOFF 172225Z 1722/1824 15009KT 9999 BKN015 BKN025 OVC034 QNH2949INS BECMG 1723/1724 36006KT 9999 BKN030 QNH2956INS BECMG 1805/1806 34015G20KT 6000 -RA OVC010 620204 QNH2960INS BECMG 1815/1816 34015G20KT 9999 NSW FEW010 FEW250 QNH2965INS TEMPO 1818/1824 34025G35KT 510003 TX16/1722Z TN03/1809Z KOFK 172221Z 1722/1818 34012KT P6SM SCT080 FM180200 36013G21KT P6SM VCSH BKN040 FM180600 35013G21KT 5SM -RA BR OVC025 TEMPO 1809/1812 4SM -RASN SCT015 OVC025 FM181200 33015KT P6SM OVC040 KOGB 172039Z 1721/1818 VRB03KT P6SM SCT250 KOGD 172209Z 1722/1818 32010KT P6SM SCT040 BKN080 FM180300 17006KT P6SM SCT080 SCT120 KOKC 171720Z 1718/1818 21020G28KT P6SM SCT250 FM180000 22014KT P6SM BKN250 FM181000 34028G38KT P6SM SCT040 BKN250 KOLF 171725Z 1718/1818 07006KT P6SM SCT120 FM172100 29005KT P6SM SCT110 FM180000 33007KT P6SM BKN090 FM180600 30011KT P6SM FEW035 FM181200 VRB04KT P6SM SCT050 KOLM 171745Z 1718/1818 21007KT P6SM VCSH SCT030 BKN045 TEMPO 1718/1722 -SHRA BKN030 BKN045 FM180800 20004KT 2SM BR SCT006 BKN010 OVC030 FM181500 20004KT 6SM BR SCT018 SCT030 BKN200 KOLS 171720Z 1718/1818 VRB04KT P6SM FEW200 FM172000 24010G18KT P6SM FEW120 SCT200 FM180200 04004KT P6SM SCT120 BKN200 FM180600 VRB03KT P6SM FEW120 BKN200 KOMA 172220Z 1722/1818 01008KT P6SM BKN025 TEMPO 1722/1802 5SM -DZ FM180400 35011KT P6SM BKN010 FM180900 35011KT 5SM -RA SCT003 BKN010 KONP 171726Z 1718/1818 22008KT P6SM VCSH BKN050 FM180300 15004KT P6SM VCSH SCT040 BKN070 FM180600 12004KT P6SM BKN100 FM181300 09005KT P6SM OVC050 KONT 171739Z 1718/1824 25006KT P6SM SCT070 BKN110 BKN250 FM180300 VRB04KT P6SM SCT100 FM181600 05008KT P6SM SKC FM182300 23005KT P6SM SKC KOPF 172105Z 1721/1818 06012KT P6SM FEW040 SCT060 FM180000 04007KT P6SM FEW030 FEW060 FM180300 34005KT P6SM FEW060 FM181500 09010KT P6SM SCT035 KORD 172212Z 1722/1824 16015G20KT P6SM VCTS SCT015 OVC024CB TEMPO 1722/1724 2SM SHRA BKN015 FM180000 18015G22KT 4SM -RA SCT007 OVC010 WS020/20050KT FM180400 21012KT 3SM -RA BR OVC007 WS020/21045KT FM180800 28009KT 2SM -DZ BR OVC004 FM181200 35008KT 2SM -DZ BR OVC004 FM181500 36016G26KT 3SM -RA BR BKN006 OVC015 FM182000 35015G25KT P6SM OVC025 KORF 171725Z 1718/1818 36008KT P6SM SKC FM180100 VRB03KT P6SM SCT250 FM180400 20005KT P6SM SCT250 FM181100 20011KT P6SM SCT250 FM181400 21013G21KT P6SM SCT200 KORH 172130Z 1722/1818 29012G22KT P6SM SKC FM172300 28010KT P6SM SKC FM181100 25005KT P6SM SCT250 FM181600 21008KT P6SM BKN110 KOTH 171736Z 1718/1818 23006KT P6SM SCT040 FM180000 27008KT P6SM SCT035 FM180300 15003KT P6SM FEW012 KOTM 171826Z 1718/1818 16012G20KT 6SM -DZ BR OVC012 FM172200 17015KT 4SM -RA BR OVC008 FM180100 16007KT 5SM BR OVC004 FM180700 33010KT P6SM VCSH OVC005 FM181100 34011KT 5SM -DZ OVC006 FM181300 34017G30KT 3SM -RASN OVC012 FM181400 33018G31KT 3SM -SN OVC017 FM181700 32017G28KT P6SM SCT017 BKN110 KOUN 171720Z 1718/1818 21020G28KT P6SM SCT250 FM180000 22014KT P6SM BKN250 FM181030 34028G38KT P6SM SCT040 BKN250 KOWB 171741Z 1718/1818 17008KT 5SM BR OVC008 FM171830 15009KT P6SM BKN080 FM180000 17012KT P6SM VCSH BKN050 FM180600 19015G25KT P6SM BKN025 PROB30 1806/1812 -SHRA KOXR 172040Z 1721/1818 27012KT P6SM SCT250 FM180000 27009KT P6SM SCT250 FM180500 VRB03KT P6SM SKC FM180800 09007KT P6SM SKC FM181200 07015G20KT P6SM SKC KOZR 171600Z 1716/1822 07006KT 9999 SKC QNH3002INS BECMG 1815/1816 17010G15KT 9999 FEW030 QNH2990INS BECMG 1820/1821 20010G15KT 9999 BKN030 QNH2989INS TX22/1721Z TN09/1812Z KPAE 171732Z 1718/1818 16007KT P6SM BKN018 BKN030 FM172100 19008KT P6SM VCSH SCT030 BKN040 FM180700 16008KT P6SM BKN015 OVC025 FM181600 16009KT P6SM SCT025 SCT045 BKN200 KPAH 171922Z 1719/1818 16009KT P6SM OVC035 FM180000 17013G23KT P6SM VCSH BKN070 FM180600 19017G27KT P6SM SCT020 BKN030 KPAM 171900Z 1719/1901 12006KT 9999 FEW030 QNH3001INS BECMG 1815/1816 19010G15KT 9999 SCT030 QNH2991INS BECMG 1822/1823 21009KT 9999 BKN030 QNH2990INS TX23/1721Z TN13/1812Z KPBF 171737Z 1718/1818 19010G18KT P6SM SCT020 OVC050 WS020/20040KT FM180100 22008G15KT P6SM SCT025 OVC040 WS020/21040KT FM180400 22008KT P6SM VCSH BKN020 OVC040 FM181500 22010G20KT P6SM -RA VCTS BKN020 OVC050CB KPBG 171733Z 1718/1818 31013G20KT P6SM FEW030 FM171900 33012G20KT P6SM SKC FM172200 30008KT P6SM SKC FM180000 28004KT P6SM SKC FM181200 15004KT P6SM BKN130 FM181700 14008G18KT P6SM BKN110 KPBI 172105Z 1721/1818 05012KT P6SM SCT025 SCT060 FM180000 04008KT P6SM FEW030 SCT060 FM180500 35006KT P6SM FEW030 FEW060 FM181500 10008KT P6SM SCT035 KPDK 171741Z 1718/1818 16006KT P6SM FEW250 FM180100 00000KT P6SM FEW250 FM181000 17004KT P6SM SCT070 FM181300 17007G16KT P6SM BKN080 FM181700 20011G25KT P6SM BKN030 KPDT 171734Z 1718/1818 24020G28KT P6SM SCT050 FM180200 23010KT P6SM BKN060 FM180800 16005KT P6SM BKN200 KPDX 172055Z 1721/1818 21010KT P6SM VCSH SCT015 SCT050 FM181400 13003KT P6SM OVC025 KPEQ 171720Z 1718/1818 25014G23KT P6SM BKN250 FM180000 23010KT P6SM BKN250 FM181200 30011G19KT P6SM SCT250 KPGA 171732Z 1718/1818 25020G30KT P6SM SCT060 BKN250 FM180300 30010G20KT P6SM FEW070 SCT250 FM180600 29006KT P6SM SKC KPGD 171737Z 1718/1818 03007KT P6SM SKC FM180100 VRB03KT P6SM SKC FM181000 08004KT 5SM BR SCT008 FM181400 13005KT P6SM FEW250 KPGV 171721Z 1718/1818 01005KT P6SM SKC FM172300 VRB03KT P6SM SKC FM180600 VRB03KT 3SM BR FEW250 FM181200 20008KT P6SM SCT150 LTD TO CLD VIS AND WIND KPHF 171725Z 1718/1818 32008KT P6SM SKC FM180100 VRB03KT P6SM SCT250 FM180500 20005KT P6SM SCT250 FM181100 21011KT P6SM SCT250 FM181400 21013G21KT P6SM SCT200 KPHL 172043Z 1721/1824 31012G18KT P6SM SKC FM180000 28007KT P6SM SKC FM180200 VRB02KT P6SM SCT250 FM181400 20008KT P6SM BKN250 FM182100 21012G19KT 6SM -SHRA SCT025 OVC050 KPHX 172035Z 1721/1824 VRB04KT P6SM BKN120 BKN150 FM172200 26009KT P6SM SCT100 BKN150 FM180800 07004KT P6SM SCT250 FM181200 26003KT P6SM FEW250 FM181600 06011KT P6SM FEW250 FM182300 31005KT P6SM SKC KPIA 172001Z 1720/1818 17012G22KT 5SM BR VCSH OVC020 FM172200 17012G21KT P6SM VCSH OVC015 FM180000 17010G18KT P6SM -SHRA OVC010 FM180500 19009KT 2SM -SHRA BR OVC004 FM181000 26006KT 3SM -SHRA BR OVC004 FM181400 34015G24KT 4SM SHRA BR OVC008 KPIE 171737Z 1718/1818 03007KT P6SM SKC FM180100 VRB05KT P6SM SKC FM181400 13006KT P6SM FEW250 KPIH 172028Z 1720/1818 25025G35KT P6SM VCSH SCT025 SCT080 BKN110 TEMPO 1720/1722 BKN025 OVC080 FM172200 27025G35KT P6SM FEW025 SCT080 FM180000 27020G30KT P6SM SCT050 BKN080 FM180200 25010KT P6SM FEW040 SCT080 FM181100 19006KT P6SM SCT025 KPIR 171739Z 1718/1818 34011KT P6SM OVC070 FM172200 36008KT P6SM VCSH OVC050 FM180200 34006KT P6SM OVC035 FM181200 30014KT P6SM SCT250 KPIT 172106Z 1721/1824 17005KT P6SM SCT150 FM180500 15004KT P6SM BKN100 WS020/21035KT FM181000 18006KT 6SM -RA OVC070 WS020/22040KT FM181500 20011G22KT 4SM -RA BR OVC015 KPKB 172131Z 1722/1818 13005KT P6SM SCT250 FM180900 18007KT P6SM OVC070 FM181100 19008G14KT P6SM SHRA OVC035 FM181600 20010G18KT P6SM SHRA OVC035 KPLN 171720Z 1718/1818 15010KT P6SM VCSH OVC090 FM172100 16009KT P6SM -SHRASN OVC070 FM172300 16008KT P6SM -SHRA OVC060 FM180300 16006KT 3SM SHRA OVC015 FM180900 VRB03KT 3SM -SHRA OVC008 FM181400 35006KT 3SM -RA OVC015 KPMD 171745Z 1718/1818 24014G20KT P6SM SCT250 FM172000 28022G30KT P6SM SCT250 FM180200 27011KT P6SM SKC FM180500 23005KT P6SM SKC FM181200 VRB03KT P6SM SKC KPNA 171735Z 1718/1818 29012KT P6SM VCSH SCT020 BKN040 FM180000 33020G30KT 2SM -SN BKN020 OVC040 FM180500 30010KT P6SM SCT040 BKN080 FM180700 30010KT P6SM SCT010 SCT080 FM181400 31008KT P6SM SKC LTD TO CLD VIS AND WIND KPNC 171720Z 1718/1818 19015G25KT P6SM BKN250 FM180900 33020G30KT P6SM SCT030 BKN250 KPNE 172017Z 1720/1818 31012G18KT P6SM SKC FM172200 30009KT P6SM SKC FM180100 VRB02KT P6SM SCT250 FM181400 19009KT P6SM BKN250 KPNS 171735Z 1718/1818 12004KT P6SM SKC FM180300 15004KT P6SM FEW050 SCT250 FM180900 18006KT P6SM BKN030 FM181500 21010KT P6SM BKN030 KPOB 171800Z 1718/1824 VRB06KT 9999 SCT250 QNH3009INS BECMG 1810/1811 18008KT 9999 SCT150 QNH3003INS BECMG 1814/1815 20010G15KT 9999 SCT025 BKN120 510102 QNH2983INS BECMG 1820/1821 20012G20KT 9999 BKN025 OVC080 520102 QNH2979INS TX17/1719Z TN04/1810Z KPOE 171600Z 1716/1822 16006KT 9999 FEW005 BKN015 QNH3002INS BECMG 1717/1718 17009KT 9999 FEW015 BKN025 QNH2990INS BECMG 1802/1803 19009KT 9999 BKN010 OVC020 QNH2984INS TEMPO 1803/1809 OVC005 BECMG 1814/1815 22010G15KT 9999 OVC025 QNH2983INS TEMPO 1815/1822 25015G25KT TX25/1721Z TN17/1812Z KPOU 172112Z 1721/1818 28010KT P6SM SKC FM172200 30007KT P6SM FEW250 FM180100 VRB02KT P6SM FEW100 FM181600 18007KT P6SM VCSH BKN050 KPQI 171730Z 1718/1818 31017G30KT P6SM OVC020 FM172100 31016G30KT P6SM BKN030 FM180000 31014G22KT P6SM BKN035 FM180300 31013G21KT P6SM SCT035 FM181600 31005KT P6SM BKN090 KPRB 171745Z 1718/1818 34014G18KT P6SM BKN070 FM172100 05009KT P6SM SCT070 FM180200 08006KT P6SM SKC FM181000 VRB03KT P6SM SKC KPRC 171831Z 1719/1818 21010G20KT P6SM BKN050 OVC100 TEMPO 1719/1720 6SM -SHRA OVC050 FM180100 27008KT P6SM SCT250 KPSC 171734Z 1718/1818 24019G26KT P6SM FEW100 FM180200 21013KT P6SM FEW100 FM181200 19007KT P6SM OVC200 KPSF 172205Z 1722/1818 27010KT P6SM SKC FM180100 30009KT P6SM FEW250 FM180300 30002KT P6SM FEW100 FM181200 18003KT P6SM BKN100 FM181600 19008KT P6SM VCSH BKN050 KPSM 172158Z 1722/1818 28010KT P6SM SKC FM180000 30009KT P6SM FEW250 FM181600 22006KT P6SM OVC250 KPSP 171739Z 1718/1818 VRB03KT P6SM BKN100 FM172200 33010G20KT P6SM SCT100 FM180700 33005KT P6SM SKC KPTK 171743Z 1718/1818 15013KT P6SM SCT030 BKN150 TEMPO 1718/1722 BKN030 OVC150 FM180400 18013KT 6SM -SHRA OVC045 WS017/22035KT FM180700 20010KT 4SM RA BR OVC008 PROB30 1807/1810 2SM TSRA BR OVC008CB FM181200 VRB03KT 2SM -RA BR OVC004 KPUB 171956Z 1720/1818 28015G25KT P6SM FEW070 SCT200 FM172200 28030G45KT P6SM FEW070 SCT200 FM172300 28022G32KT P6SM SCT060 BKN150 FM180500 33032G45KT P6SM SCT030 BKN080 FM180900 34015G25KT P6SM FEW060 BKN090 FM181100 36015KT P6SM SCT100 FM181400 20004KT P6SM SKC KPUW 171723Z 1718/1818 24017G24KT P6SM SCT030 BKN060 FM171900 25020G28KT P6SM SCT025 SCT050 TEMPO 1721/1723 BKN050 FM180000 22013KT P6SM SCT050 FM180700 21009KT P6SM SCT030 SCT150 BKN250 KPVD 172130Z 1722/1818 30013KT P6SM FEW250 FM180900 25004KT P6SM SCT250 FM181500 21008KT P6SM BKN100 KPVU 171740Z 1718/1818 35010G18KT P6SM -SHRA SCT020 BKN050 FM172100 32015G25KT P6SM SCT040 BKN080 FM180300 VRB04KT P6SM SCT080 SCT120 KPVW 171725Z 1718/1818 26020G30KT P6SM BKN250 FM180000 26014KT P6SM SCT250 FM180900 34022G32KT P6SM SCT250 KPWM 172157Z 1722/1818 34009KT P6SM FEW050 FM180000 30009KT P6SM FEW250 FM181600 19008KT P6SM OVC250 KPWT 172107Z 1721/1818 21011KT P6SM SCT025 BKN035 TEMPO 1721/1722 BKN025 BKN035 FM180000 21009KT P6SM SCT030 BKN040 FM180500 19004KT P6SM SCT008 BKN012 OVC045 FM181600 19005KT P6SM SCT014 BKN035 KQD3 171917Z 1719/1901 VRB06KT 8000 HZ FEW030 QNH2992INS BECMG 1806/1807 09012KT 8000 HZ FEW040 QNH2989INS BECMG 1813/1814 VRB06KT 8000 HZ FEW040 QNH2992INS TX31/1810Z TN22/1803Z KQN3 172118Z 1721/1903 VRB06KT 3200 HZ SKC QNH2976INS TEMPO 1721/1724 2400 HZ BECMG 1810/1811 07009KT 9999 NSW SKC QNH2971INS BECMG 1816/1817 VRB06KT 4000 HZ SKC QNH2971INS TX38/1814Z TN21/1806Z KQRH 171917Z 1719/1901 VRB06KT 8000 HZ FEW030 QNH2992INS TEMPO 1719/1721 4400 HZ BECMG 1806/1807 09012KT 8000 HZ FEW040 QNH2989INS BECMG 1813/1814 VRB06KT 8000 HZ FEW040 QNH2992INS TEMPO 1819/1821 4400 HZ TX31/1810Z TN22/1803Z KRAP 172205Z 1722/1818 36012KT 5SM -RASN OVC015 FM180300 30005KT P6SM SCT025 OVC040 FM180600 33019KT P6SM SCT030 KRBG 171736Z 1718/1818 VRB05KT P6SM VCSH SCT040 FM180600 00000KT P6SM FEW010 FM181000 00000KT 1SM BR OVC001 KRBL 171720Z 1718/1818 34006KT P6SM SKC KRCA 172239Z 1722/1901 33006KT 9000 -SHRA SCT007 OVC025 610259 QNH2960INS BECMG 1723/1724 33006KT 9000 -SHRA BKN007 OVC025 610079 QNH2960INS BECMG 1800/1801 33006KT 8000 -RASN BKN015 OVC030 620155 QNH2962INS BECMG 1802/1803 31009KT 9999 NSW FEW025 SCT050 QNH2983INS BECMG 1805/1806 31012KT 9999 SKC WS020/33042KT QNH2983INS TEMPO 1806/1818 31025G35KT 510003 BECMG 1817/1818 30025G35KT 9999 FEW100 510003 QNH2983INS BECMG 1900/1901 27009KT 9999 SKC QNH2983INS TX05/1817Z TNM02/1811Z KRDD 171720Z 1718/1818 36004KT P6SM SKC KRDG 171720Z 1718/1818 31012G18KT P6SM SKC FM172200 29008KT P6SM SKC FM180100 VRB02KT P6SM BKN250 FM181000 VRB02KT P6SM BKN250 WS020/22030KT FM181500 18008KT P6SM OVC100 KRDM 171734Z 1718/1818 24009KT P6SM SCT080 FM180200 18004KT P6SM SCT200 KRDR 171800Z 1718/1824 30012KT 9999 SCT130 QNH2964INS BECMG 1807/1808 30009KT 9999 FEW012 BKN040 620403 QNH2981INS BECMG 1812/1813 31012G18KT 9999 BKN030 620305 QNH2992INS BECMG 1823/1824 29009KT 9999 FEW020 QNH3001INS TX01/1719Z TNM07/1812Z KRDU 171737Z 1718/1818 VRB05KT P6SM BKN250 FM181400 21011KT P6SM BKN250 KRFD 172212Z 1722/1818 16015G23KT P6SM VCSH SCT010 OVC012 FM172300 18012G18KT 3SM -RA OVC007 FM180300 19012KT 1 1/2SM -DZ BR OVC004 FM180900 36010KT 2SM -DZ BR OVC004 FM181400 36016G26KT 3SM -RA BR BKN006 OVC015 PROB30 1814/1817 3SM -RASN KRHI 172026Z 1720/1818 19008G15KT 2SM -RA BR OVC010 TEMPO 1720/1723 5SM -RA BR SCT010 OVC020 FM172300 19005KT 2SM -RA BR OVC004 FM180200 28003KT 3SM -RASN BR OVC004 FM180500 35004KT 5SM -FZDZSN BR OVC006 FM181100 35007KT 6SM -FZDZSN BR OVC008 FM181400 34009KT P6SM OVC012 KRIC 171725Z 1718/1818 32009KT P6SM SCT250 FM172200 VRB03KT P6SM SCT250 FM180600 19004KT P6SM SCT250 FM181500 20012G20KT P6SM BKN200 KRIL 172219Z 1722/1818 26020G31KT P6SM VCSH FEW050 SCT060 BKN080 TEMPO 1722/1723 -SHRA SCT045 BKN060 FM172300 28027G35KT P6SM -RA SCT050 BKN060 FM180100 29024G31KT P6SM VCSH OVC045 FM180400 30015G24KT P6SM SCT040 BKN045 FM180600 30007KT P6SM FEW045 SCT080 KRIV 171959Z 1720/1902 30009KT 9999 FEW010 FEW180 SCT250 QNH3003INS TEMPO 1721/1801 30012G18KT BECMG 1802/1803 VRB03KT 9999 SCT010 SCT250 QNH3007INS BECMG 1806/1807 VRB03KT 0400 FG BKN002 QNH3011INS BECMG 1811/1812 02005KT 4800 BR SCT005 QNH3015INS BECMG 1817/1818 34012KT 9999 NSW SKC QNH3009INS TX22/1722Z TN06/1812Z KRIW 171735Z 1718/1818 29010KT P6SM SCT060 BKN100 FM172200 33015G25KT P6SM VCSH SCT012 BKN040 FM180000 35020G30KT 2SM -SN BKN012 OVC030 FM180300 30015G25KT P6SM SCT040 BKN080 FM180600 29010KT P6SM SCT080 KRKD 171720Z 1718/1818 30016G26KT P6SM SCT035 FM180800 31009KT P6SM FEW250 FM181600 23006KT P6SM SKC LTD TO CLD VIS AND WIND KRKS 171911Z 1719/1818 29010KT 3SM -SN SCT006 OVC012 TEMPO 1719/1721 31012G20KT 1SM -SN BKN006 OVC012 FM172100 27015G25KT 2SM -SN BKN012 OVC030 FM180000 27025G35KT P6SM VCSH SCT015 BKN040 FM180400 27015G25KT P6SM SCT040 BKN070 KRME 171724Z 1718/1818 29010KT P6SM SCT035 FM172300 VRB03KT P6SM SCT250 FM180700 10005KT P6SM BKN120 FM181500 12008KT P6SM -RA OVC040 KRND 172240Z 1722/1824 18012G18KT 9999 SKC QNH2988INS TEMPO 1722/1724 18015G25KT BECMG 1723/1724 18009KT 9999 FEW025 QNH2987INS BECMG 1808/1809 20009KT 9999 BKN010 QNH2987INS BECMG 1815/1816 21012KT 9999 BKN015 QNH3000INS BECMG 1821/1822 01020G30KT 9999 FEW020 QNH3002INS BECMG 1823/1824 02015KT 9999 SKC QNH3010INS TX29/1722Z TN19/1812Z LAST NO AMDS AFT 1801 NEXT 1917 KRNH 172053Z 1721/1818 17005KT 2SM -DZ BR OVC003 FM180300 35006KT 6SM BR OVC008 FM181000 35007KT P6SM OVC015 FM181200 34010KT P6SM OVC040 FM181600 33012KT P6SM SCT250 KRNO 171726Z 1718/1818 32010G16KT P6SM SCT035 BKN050 FM172000 36008KT P6SM SCT050 BKN070 FM180200 VRB03KT P6SM FEW070 KROA 171720Z 1718/1818 00000KT P6SM FEW250 FM180800 VRB03KT P6SM SCT150 WS020/21030KT FM181500 19006KT P6SM BKN150 BKN250 FM181700 19010G18KT P6SM SCT090 BKN250 KROC 172116Z 1721/1818 27004KT P6SM BKN120 BKN250 FM180800 16009KT P6SM BKN130 WS020/21035KT FM181100 18007KT 6SM -RA OVC090 WS020/21035KT FM181500 19014G21KT 6SM -RA OVC025 KROG 171740Z 1718/1818 19016G24KT P6SM OVC015 FM172100 21015G26KT P6SM BKN025 FM181400 29013G22KT P6SM SCT250 FM181700 31022G31KT P6SM BKN030 KROW 171741Z 1718/1818 22010KT P6SM SKC FM172000 24015G25KT P6SM SKC FM180200 21011KT P6SM FEW110 FM180700 33015G23KT P6SM SKC FM181600 01018G25KT P6SM SKC KRSL 171740Z 1718/1818 22017KT P6SM SKC FM172000 29009KT P6SM BKN200 FM172200 35009KT P6SM SKC FM180200 01013KT P6SM SKC FM180600 36017G26KT P6SM BKN025 FM180900 35025G30KT P6SM OVC017 KRST 172138Z 1722/1818 17005KT 2SM -RA BR OVC004 FM172300 16004KT 1SM BR VCSH OVC003 FM180300 36006KT 1SM BR VCSH OVC003 FM181000 36011KT P6SM OVC008 FM181600 32014G23KT P6SM SCT150 KRSW 171737Z 1718/1818 03007KT P6SM SKC FM180100 08006KT P6SM SKC FM181400 14006KT P6SM FEW250 KRUT 171733Z 1718/1818 32013G19KT P6SM BKN030 TEMPO 1718/1719 SCT030 FM171900 32010G16KT P6SM FEW030 FM172300 34006KT P6SM SKC FM180300 00000KT P6SM SKC FM181000 13006KT P6SM BKN130 KRVS 171922Z 1719/1818 17016G27KT P6SM SCT035 BKN150 FM172300 22014G24KT P6SM SCT150 FM181100 29013G22KT P6SM SCT250 FM181400 34024G35KT P6SM BKN030 KRWF 171739Z 1718/1818 19004KT P6SM OVC080 FM172000 34005KT P6SM VCSH OVC130 FM172100 34004KT P6SM OVC100 FM180000 34008KT P6SM BKN060 FM180200 34007KT P6SM OVC035 FM180600 33010KT P6SM OVC050 FM181300 32010KT P6SM SCT200 KRWI 171737Z 1718/1818 VRB05KT P6SM BKN250 FM181400 21011KT P6SM BKN250 KRWL 172159Z 1722/1818 27014G24KT 5SM -SN BKN025 FM180400 29016KT 5SM -SN BKN012 FM180800 27014KT P6SM SCT050 KRYY 171741Z 1718/1818 16006KT P6SM FEW250 FM180100 00000KT P6SM FEW250 FM181000 16005KT P6SM SCT070 FM181300 16009G20KT P6SM BKN080 FM181700 19012G25KT P6SM BKN030 KSAC 171720Z 1718/1818 34005KT P6SM SKC FM181300 VRB03KT 4SM BR FEW002 KSAF 171741Z 1718/1818 24018G28KT P6SM BKN090 FM172100 26023G33KT P6SM BKN080 FM180600 31018G25KT P6SM BKN060 FM180900 36015KT P6SM SKC KSAN 172100Z 1721/1824 30005KT P6SM FEW100 SCT150 BKN200 FM180300 VRB04KT P6SM BKN100 FM180600 VRB03KT P6SM SCT018 TEMPO 1810/1814 BKN018 FM182000 29008KT P6SM SCT025 KSAT 171745Z 1718/1824 19015KT P6SM SCT035 FM180700 17010KT 6SM BR OVC012 FM181100 20009KT 2SM BR OVC007 FM181200 21006KT 1SM BR OVC003 FM181400 25007KT 4SM BR OVC007 FM182000 34014G24KT P6SM SCT250 KSAV 171735Z 1718/1818 09008KT P6SM SKC FM180000 00000KT P6SM FEW040 FM181500 19009KT P6SM FEW050 KSAW 172049Z 1721/1818 18013G20KT 4SM -RA OVC015 FM172200 19015G22KT 6SM -RA OVC008 FM180200 22005KT 1 1/2SM -RASN OVC003 FM180500 33004KT 2SM BR OVC008 FM181500 35014G22KT P6SM OVC010 KSBA 171745Z 1718/1818 VRB03KT P6SM FEW035 BKN250 FM172000 25010KT P6SM BKN250 FM180200 VRB03KT P6SM SKC KSBD 171739Z 1718/1818 25007KT P6SM OVC050 FM172100 25008KT P6SM SCT050 BKN100 FM180200 VRB04KT P6SM SCT100 FM181400 05008KT P6SM SKC KSBN 171723Z 1718/1818 16013G22KT P6SM BKN250 FM180000 17012G22KT P6SM VCSH OVC150 WS020/20045KT FM180200 18014G23KT 4SM RA OVC020 WS020/20060KT TEMPO 1804/1808 2SM RA OVC008 FM180800 22009KT 2SM RA OVC008 FM181300 25006KT 1SM RA OVC003 KSBP 171745Z 1718/1818 32004KT P6SM SCT008 FM172000 32012KT P6SM SCT050 FM180200 32008KT P6SM SCT250 FM180600 05004KT P6SM SKC FM181400 VRB03KT P6SM SKC KSBY 171811Z 1718/1818 31011G19KT P6SM SKC FM172100 30008KT P6SM SCT250 FM180100 VRB03KT P6SM SCT250 FM181000 19008KT P6SM SCT200 FM181500 20013G21KT P6SM BKN200 KSCK 171720Z 1718/1818 30008KT P6SM SKC FM181200 VRB03KT 3SM BR FEW002 KSDF 171741Z 1718/1824 15008KT P6SM BKN250 FM180300 18013KT P6SM OVC060 WS020/19045KT FM180500 19013G23KT P6SM VCSH OVC045 WS020/20055KT FM181000 19016G26KT P6SM -SHRA OVC025 FM181600 20020G29KT P6SM -SHRA OVC015 PROB30 1816/1818 4SM -TSRA BKN010CB KSDL 172104Z 1721/1818 VRB03KT P6SM BKN120 BKN150 FM172300 24005KT P6SM SCT100 BKN150 FM180200 VRB03KT P6SM SCT250 KSDY 171725Z 1718/1818 VRB04KT P6SM BKN180 FM172100 27006KT P6SM SCT180 FM180000 32007KT P6SM SCT070 FM181200 29007KT P6SM BKN070 KSEA 172102Z 1721/1824 22011KT P6SM VCSH BKN025 BKN040 FM172300 19008KT P6SM VCSH SCT030 BKN040 FM180600 18007KT P6SM VCSH BKN018 OVC030 FM181200 18007KT P6SM SCT020 BKN035 FM181500 17006KT P6SM SCT025 SCT040 BKN200 FM181900 18006KT P6SM SCT120 BKN200 KSEZ 171859Z 1719/1818 23011G16KT P6SM SCT040 BKN060 OVC120 TEMPO 1719/1720 5SM -SHRA SCT025 BKN035 OVC050 FM180100 24010KT P6SM FEW120 SCT250 FM180500 04013G20KT P6SM SKC KSFB 171736Z 1718/1818 06008KT P6SM SCT040 FM180000 02003KT P6SM SKC FM181500 16007KT P6SM SCT040 KSFF 172220Z 1722/1818 22012KT P6SM BKN040 FM180000 22005KT P6SM SCT050 FM180900 VRB03KT P6SM BKN012 BKN250 FM181700 VRB03KT P6SM SCT015 KSFO 172113Z 1721/1824 30009KT P6SM FEW025 FM180300 VRB04KT P6SM SKC FM182200 29006KT P6SM SKC KSGF 171959Z 1720/1818 17015G25KT P6SM OVC025 FM180400 20022G30KT P6SM OVC035 FM181200 26017G25KT P6SM VCSH OVC030 FM181500 32026G36KT P6SM VCSH OVC025 KSGJ 171726Z 1718/1818 05009KT P6SM SCT040 FM172300 VRB03KT P6SM FEW250 FM181500 20008KT P6SM SCT250 KSGR 171739Z 1718/1818 19014KT P6SM FEW035 FM180200 18009KT P6SM SCT020 FM180900 20007KT P6SM BKN020 FM181500 23015KT P6SM BKN025 KSGU 172210Z 1722/1818 26012G20KT P6SM BKN080 BKN120 FM180300 02011G20KT P6SM SCT120 FM180700 06008KT P6SM SKC KSHR 171732Z 1718/1818 VRB06KT 6SM -SHSN SCT012 OVC040 FM172000 33014KT P6SM VCSH FEW012 BKN035 FM180200 32016KT P6SM BKN050 FM180900 VRB05KT P6SM SCT100 KSHV 171744Z 1718/1818 19013G20KT P6SM BKN020 FM172000 19013G20KT P6SM SCT030 BKN035 FM180000 19012KT P6SM BKN040 FM180400 19014G20KT P6SM BKN025 FM180700 20014G21KT P6SM BKN018 FM181500 24014G23KT P6SM BKN016 KSJC 171727Z 1718/1818 VRB03KT P6SM FEW040 FM171900 31006KT P6SM FEW050 FM172130 32010KT P6SM FEW060 FM180400 VRB03KT P6SM SKC KSJS 171738Z 1718/1818 VRB03KT P6SM FEW250 FM180700 18007KT P6SM BKN120 FM181500 20010G20KT P6SM BKN050 KSJT 171720Z 1718/1818 20013KT P6SM SKC FM181000 26014KT P6SM FEW250 FM181300 35015G25KT P6SM SKC KSKA 171911Z 1719/1901 20012G18KT 9999 SCT010 QNH2988INS TEMPO 1721/1724 20015G25KT BECMG 1802/1803 20009KT 9999 BKN020 650203 QNH3009INS BECMG 1805/1806 19009KT 9999 FEW010 BKN080 620801 QNH3016INS BECMG 1808/1809 19007KT 1200 BR SCT010 QNH3017INS TEMPO 1812/1818 0800 FG BECMG 1823/1824 VRB06KT 9999 NSW FEW130 QNH3016INS TX05/1721Z TNM01/1806Z KSKF 171800Z 1718/1824 18015G20KT 9999 SCT025 QNH2988INS BECMG 1723/1724 18009KT 9999 FEW025 QNH2987INS BECMG 1808/1809 20009KT 9999 BKN010 QNH2987INS BECMG 1815/1816 21012KT 9999 BKN015 QNH3000INS BECMG 1819/1820 01020G30KT 9999 FEW020 QNH3002INS BECMG 1823/1824 02015KT 9999 SKC QNH3010INS TX30/1722Z TN19/1812Z KSLC 172122Z 1721/1824 33010KT P6SM -SHRA SCT030 BKN060 FM172300 32010KT P6SM VCSH SCT040 BKN080 FM180300 15007KT P6SM SCT080 SCT120 KSLE 171726Z 1718/1818 19009KT P6SM VCSH SCT025 SCT050 FM181300 VRB03KT 6SM BR OVC003 KSLI 172101Z 1721/1903 27009KT 9999 FEW050 BKN250 QNH3000INS BECMG 1802/1803 VRB05KT 8000 BR SCT050 QNH3004INS TEMPO 1805/1808 4000 BR BKN005 BECMG 1817/1818 03009KT 9999 NSW SKC QNH2999INS TX24/1723Z TN10/1814Z KSLK 171733Z 1718/1818 29009G15KT P6SM BKN014 TEMPO 1718/1719 SCT015 FM171900 28008KT P6SM SKC FM172300 26004KT P6SM SKC FM181000 00000KT P6SM BKN110 FM181600 17006KT P6SM OVC110 KSLN 171740Z 1718/1818 22017KT P6SM BKN300 FM172300 31005KT P6SM SKC FM180400 36013KT P6SM SCT025 FM180600 34022G26KT P6SM OVC022 FM181000 34025G35KT P6SM OVC018 KSME 171738Z 1718/1818 VRB03KT P6SM SKC FM180500 19006KT P6SM BKN100 FM181000 19010KT P6SM BKN050 FM181300 20014G28KT P6SM BKN050 FM181600 20016G31KT P6SM OVC025 KSMF 171720Z 1718/1818 33005KT P6SM SKC KSMN 172102Z 1721/1818 30015G25KT 6SM -SHSNRA SCT015 BKN040 FM172300 33010KT P6SM VCSH OVC050 LTD TO CLD VIS AND WIND KSMO 171745Z 1718/1818 VRB03KT P6SM FEW070 SCT250 FM172100 23009KT P6SM BKN070 FM172300 24007KT P6SM BKN250 FM180200 VRB03KT P6SM SKC FM181100 05006KT P6SM SKC KSMX 171745Z 1718/1818 29006KT P6SM SCT040 FM172000 30012KT P6SM BKN250 FM180200 32007KT P6SM SCT250 FM180800 11005KT P6SM SKC FM181400 VRB03KT P6SM SKC KSNA 171739Z 1718/1818 23006KT P6SM BKN070 BKN180 FM180200 VRB04KT P6SM SCT020 SCT100 KSNS 171727Z 1718/1818 27004KT P6SM FEW050 FM172000 27009KT P6SM FEW060 FM180300 VRB04KT P6SM SKC FM180600 11006KT P6SM SKC KSNY 171750Z 1718/1818 03012KT P6SM BKN200 FM172100 27011KT P6SM BKN150 FM172300 32012KT P6SM BKN100 FM180400 32019G28KT P6SM -RA BKN045 FM180600 34022G32KT P6SM BKN035 KSOA 171720Z 1718/1818 19012G18KT P6SM SKC FM181100 26010KT P6SM SCT250 FM181400 35020G28KT P6SM SCT250 KSPI 172002Z 1720/1818 16014G25KT P6SM VCSH OVC020 FM172200 17014G23KT P6SM VCSH OVC015 FM180200 18012G21KT P6SM -SHRA VCTS OVC010CB FM180500 18013KT 5SM -SHRA VCTS OVC008CB FM181100 23007KT 2SM SHRA BR OVC008 FM181400 30014KT 4SM SHRA BR OVC008 FM181600 32019G29KT P6SM SHRA OVC010 KSPS 171720Z 1718/1818 22016G22KT P6SM SCT250 FM180000 21014KT P6SM SCT250 FM181300 35032G40KT P6SM SCT250 KSRQ 171737Z 1718/1818 03007KT P6SM SKC FM180100 VRB05KT P6SM SKC FM181400 14006KT P6SM FEW250 KSSC 171600Z 1716/1822 07009KT 9999 SKC QNH3012INS BECMG 1720/1721 08006KT 9999 FEW250 QNH3005INS BECMG 1811/1812 10006KT 9999 BKN035 BKN250 QNH2991INS BECMG 1817/1818 21012G20KT 9999 SCT025 BKN250 QNH2982INS TX18/1721Z TN04/1812Z KSSF 171745Z 1718/1818 19015KT P6SM SCT035 FM180700 17010KT 6SM BR OVC012 FM181100 20009KT 2SM BR OVC007 FM181200 21006KT 1SM BR OVC003 FM181400 25007KT 4SM BR OVC007 KSSI 171726Z 1718/1818 05010KT P6SM SCT040 FM172300 VRB03KT P6SM FEW250 FM181500 21008KT P6SM SCT250 KSTC 172112Z 1721/1818 VRB05KT P6SM BKN015 BKN120 FM180100 35006KT P6SM BKN015 BKN100 FM180500 34007KT P6SM BKN100 FM181600 32013KT P6SM FEW200 KSTJ 172051Z 1721/1818 18010KT 6SM BR SCT007 OVC020 TEMPO 1721/1724 5SM -DZ SCT025 FM180500 31009KT P6SM -SHRA OVC015 FM180900 34016G25KT P6SM -SHRA OVC015 FM181500 34018G30KT P6SM SCT015 BKN080 KSTL 172150Z 1722/1824 15012G20KT P6SM OVC025 FM180100 18013G22KT P6SM OVC015 FM181100 21012KT 5SM -SHRA VCTS OVC015CB FM181400 25012G23KT 5SM -SHRA OVC025 FM181600 31020G33KT 6SM -SHRA OVC025 FM182100 31020G33KT P6SM BKN040 KSTS 171727Z 1718/1818 VRB03KT P6SM SKC FM180400 00000KT P6SM SKC TEMPO 1809/1813 1/2SM FG VV002 KSUA 171736Z 1718/1818 04010KT P6SM SCT035 FM180000 05004KT P6SM FEW030 FM181500 10008KT P6SM SCT030 KSUN 171720Z 1718/1824 31015G25KT P6SM FEW040 FM172300 31010KT P6SM FEW030 FM180300 VRB05KT P6SM FEW025 FM181800 15010KT P6SM FEW025 SCT150 KSUS 172151Z 1722/1818 15010G21KT P6SM OVC025 FM180000 17011G18KT P6SM OVC015 FM181100 21010G20KT 5SM -SHRA VCTS OVC025CB FM181400 26012G23KT 5SM -SHRA OVC020 KSUU 171900Z 1719/1901 35009KT 9999 FEW030 QNH3016INS BECMG 1801/1802 30006KT 9999 FEW030 QNH3019INS BECMG 1817/1818 04009KT 9999 SKC QNH3018INS BECMG 1900/1901 24012KT 9999 SKC QNH3017INS TX19/1723Z TN06/1812Z KSUX 172018Z 1720/1818 33011KT P6SM SCT030 OVC035 FM172100 34006KT P6SM OVC040 FM180300 35013KT P6SM VCSH OVC035 FM180900 33016G24KT P6SM -RASN OVC035 FM181200 33015G23KT P6SM SCT100 KSVN 172100Z 1721/1903 07009KT 9999 SKC QNH3012INS BECMG 1723/1724 07006KT 9999 SKC QNH3004INS BECMG 1808/1809 14006KT 8000 BR FEW020 QNH3004INS BECMG 1812/1813 14006KT 9999 NSW FEW025 QNH2996INS BECMG 1817/1818 21010G15KT 9999 FEW140 QNH2988INS BECMG 1823/1824 20009KT 9999 FEW040 QNH2986INS TX23/1821Z TN11/1812Z KSWF 172059Z 1721/1824 30012G20KT P6SM FEW250 FM172200 29009KT P6SM FEW250 FM180100 VRB05KT P6SM FEW250 FM181400 20006KT P6SM BKN150 FM181600 20008KT P6SM BKN100 FM182000 20009KT 5SM -SHRA SCT040 OVC070 NOT SKED KSYM 171738Z 1718/1818 VRB05KT P6SM FEW250 FM180500 19008KT P6SM BKN110 FM180900 19011G21KT P6SM VCSH OVC070 FM181200 20014G24KT P6SM OVC045 FM181600 20017G32KT P6SM OVC035 KSYR 171724Z 1718/1818 28010KT P6SM SCT035 FM172300 VRB03KT P6SM SCT250 FM180600 10005KT P6SM BKN120 FM181500 14008KT P6SM -RA OVC040 KSZL 172210Z 1722/1901 18015KT 9999 SCT040 BKN120 QNH2945INS BECMG 1723/1724 21006KT 9999 FEW250 QNH2948INS BECMG 1808/1809 33025G35KT 6000 -SHRA OVC005 510002 550203 QNH2952INS BECMG 1810/1811 34035G50KT 9999 NSW OVC005 650102 520002 550203 QNH2965INS BECMG 1815/1816 34020G35KT 9999 BKN015 BKN035 610152 510002 550203 QNH2977INS BECMG 1818/1819 34015G25KT 9999 SKC QNH3005INS TX24/1722Z TN03/1809Z KTCC 171741Z 1718/1818 25022G30KT P6SM SKC FM172000 26030G40KT P6SM SKC FM180100 26020G30KT P6SM SCT100 FM181000 34020G30KT P6SM FEW100 FM181300 02018G25KT P6SM SCT050 KTCL 171727Z 1718/1818 14004KT P6SM SKC FM171900 16005KT P6SM SCT250 FM181100 16007KT P6SM BKN020 KTCM 172104Z 1721/1903 21012KT 9999 BKN020 QNH3014INS TEMPO 1721/1724 BKN015 BECMG 1723/1724 22009KT 9999 BKN030 QNH3020INS BECMG 1802/1803 VRB06KT 9999 BKN030 QNH3026INS BECMG 1817/1818 VRB06KT 9999 SCT020 QNH3016INS TX09/1721Z TN03/1810Z KTCS 172023Z 1720/1818 24012KT P6SM SCT140 BKN250 FM172100 25015G25KT P6SM SCT140 BKN250 FM180200 27012KT P6SM SCT140 BKN250 FM180800 30012KT P6SM SCT120 BKN250 FM181200 36013KT P6SM FEW140 SCT250 KTEB 172059Z 1721/1818 29013G20KT P6SM FEW250 FM172300 29008KT P6SM FEW250 FM180200 VRB03KT P6SM FEW250 FM181500 19008KT P6SM BKN140 FM181700 20010G18KT P6SM SCT070 BKN120 KTEX 172006Z 1720/1818 22015G28KT P6SM VCSH BKN045 BKN060 OVC090 FM172200 23021G42KT 6SM -SN SCT020 OVC035 FM180200 28019G44KT 1/2SM SN BLSN SCT010 OVC030 FM180500 31013G27KT P6SM VCSH SCT015 BKN025 FM180800 01007KT P6SM FEW030 SCT110 KTIK 171800Z 1718/1824 21025G35KT 9999 SCT250 520003 QNH2968INS BECMG 1722/1723 20015KT 9999 SCT250 520203 QNH2962INS BECMG 1805/1806 21012KT 8000 BR BKN250 QNH2958INS BECMG 1812/1813 34025G35KT 9999 NSW FEW250 QNH2955INS TEMPO 1815/1822 35030G40KT BECMG 1823/1824 33012KT 9999 SKC QNH2962INS TX26/1721Z TN10/1812Z KTIX 171736Z 1718/1818 04012KT P6SM FEW035 FM180000 VRB03KT P6SM SKC FM181500 13008KT P6SM SCT035 KTLH 171720Z 1718/1818 04006KT P6SM SKC FM172300 00000KT P6SM SKC FM181000 00000KT 6SM BR FEW002 FM181400 19005KT P6SM SCT250 KTMB 172105Z 1721/1818 06012KT P6SM FEW040 BKN060 FM172300 04010KT P6SM FEW030 SCT060 FM180300 36005KT P6SM SKC FM181500 09010KT P6SM SCT035 KTOI 171727Z 1718/1818 14003KT P6SM SKC FM171900 14004KT P6SM SCT250 FM181100 16007KT P6SM BKN020 KTOL 171735Z 1718/1818 16010KT P6SM SCT025 BKN120 FM180200 17010KT P6SM -SHRA OVC050 WS020/19040KT FM180600 18011KT 6SM -SHRA BR OVC020 WS020/19040KT FM181000 20011KT 4SM -SHRA BR OVC007 WS020/22040KT FM181400 21010G20KT 2SM -SHRA BR OVC003 KTOP 171725Z 1718/1818 18012G22KT P6SM BKN020 FM171900 19012G25KT P6SM FEW020 FM172300 21006KT P6SM SCT200 FM180400 32005KT P6SM SCT200 FM180800 34020G30KT P6SM VCSH OVC015 KTPA 172056Z 1721/1824 02005KT P6SM SKC FM180100 VRB04KT P6SM SKC FM181400 15006KT P6SM FEW250 KTPH 171729Z 1718/1818 33025G40KT P6SM VCSH SCT050 OVC100 FM180200 35010KT P6SM FEW180 FM181700 VRB06KT P6SM SKC KTRI 171720Z 1718/1818 VRB03KT P6SM SCT250 FM180600 VRB03KT P6SM BKN150 FM181200 VRB03KT P6SM OVC100 FM181700 21010G25KT P6SM OVC050 KTRK 171726Z 1718/1818 30008KT P6SM SCT035 BKN050 FM172000 34005KT P6SM SCT040 BKN060 FM180100 VRB03KT P6SM FEW060 KTRM 171739Z 1718/1818 30007KT P6SM BKN110 FM172200 33010KT P6SM SCT100 FM180900 33005KT P6SM SKC KTTD 171726Z 1718/1818 23006KT P6SM VCSH SCT025 SCT050 FM181400 10003KT P6SM OVC015 KTTN 172017Z 1720/1818 31010G16KT P6SM SKC FM172200 31008KT P6SM SKC FM180100 VRB02KT P6SM SCT250 FM181500 20009KT P6SM BKN250 KTUL 171921Z 1719/1818 18024G33KT P6SM SCT035 BKN150 FM172300 22016G25KT P6SM SCT150 FM181100 29013G22KT P6SM SCT250 FM181400 34026G38KT P6SM BKN030 KTUP 171720Z 1718/1818 15008KT P6SM SCT040 SCT250 FM180100 17010G16KT P6SM FEW040 BKN250 FM180900 18013G20KT P6SM SCT025 OVC040 TEMPO 1810/1814 BKN025 FM181400 19015G22KT P6SM VCSH BKN018 OVC025 KTUS 171720Z 1718/1818 19005KT P6SM FEW150 FEW250 FM172000 32008KT P6SM FEW150 SCT250 FM180200 23005KT P6SM SCT140 BKN250 FM180700 14007KT P6SM FEW140 BKN200 KTVC 171720Z 1718/1818 17013G21KT P6SM BKN100 FM172100 17013G23KT P6SM VCSH OVC080 WS020/18040KT FM180000 17012G23KT 5SM SHRA OVC050 WS020/18035KT FM180100 17011G21KT 4SM SHRA OVC050 WS020/18035KT FM180300 18007KT 3SM SHRA OVC015 FM180900 27005KT 3SM -SHRA OVC008 FM181100 33005KT 3SM -SHRA OVC008 FM181400 36008KT 3SM RA OVC015 KTVF 171730Z 1718/1818 32009KT P6SM SCT015 BKN250 FM181300 31008KT P6SM BKN025 FM181500 31011KT P6SM BKN015 KTVL 171726Z 1718/1818 19011KT P6SM SCT035 BKN050 FM172000 20006KT P6SM SCT040 BKN060 FM180100 VRB03KT P6SM FEW060 KTWF 171726Z 1718/1818 25015KT P6SM VCSH SCT025 OVC050 FM172000 27020G30KT P6SM BKN040 FM180200 24015KT P6SM FEW040 FM180600 19010KT P6SM FEW200 KTXK 172138Z 1722/1818 19012G20KT P6SM SCT035 BKN040 FM180300 20015G21KT P6SM BKN035 FM180600 20016G23KT P6SM BKN025 FM180900 20016G23KT P6SM BKN018 FM181500 24015G23KT P6SM BKN020 KTYR 171744Z 1718/1818 19016G23KT P6SM SCT020 BKN025 FM172100 20017G25KT P6SM BKN035 FM180500 20017G26KT P6SM BKN020 FM181500 24015G24KT P6SM BKN020 KTYS 171720Z 1718/1818 VRB03KT P6SM SCT250 FM180600 20005KT P6SM BKN150 FM181200 22010KT P6SM OVC050 FM181600 21010G25KT P6SM OVC050 KUAO 171726Z 1718/1818 19009KT P6SM VCSH SCT025 SCT050 FM181300 VRB03KT 6SM BR OVC003 KUES 172148Z 1722/1818 16011G18KT P6SM VCSH OVC015 FM172300 17011G17KT 4SM -SHRA BR OVC010 FM180000 18010G15KT 2SM -RA OVC010 FM180400 VRB04KT 3SM -RA OVC008 FM181200 35010KT 3SM RA OVC008 FM181600 35015G26KT 4SM RA OVC008 KUIN 171739Z 1718/1818 16015G25KT P6SM OVC015 FM172200 17015G20KT P6SM VCSH OVC015 FM180500 19011G17KT P6SM VCSH OVC008 FM180800 24010G16KT 5SM -SHRA BR VCTS OVC008CB FM181200 32013G19KT 5SM -SHRA OVC008 FM181700 33022G33KT P6SM OVC020 KUKI 171736Z 1718/1818 35004KT P6SM FEW035 SCT250 FM180300 VRB03KT P6SM SKC FM181500 VRB03KT 3SM BR SCT003 KUNV 172224Z 1722/1818 VRB03KT P6SM BKN200 FM180700 23003KT P6SM OVC100 FM181200 22004KT P6SM -RA OVC050 FM181600 21005KT 3SM RA OVC010 KUTS 172131Z 1722/1818 17009G19KT P6SM BKN040 BKN060 FM180200 18012KT P6SM SCT020 FM180700 20011KT P6SM SCT015 BKN020 FM181500 23012G22KT P6SM SCT030 KVAD 172230Z 1722/1823 12009KT 9999 SKC QNH3008INS BECMG 1723/1724 10006KT 9999 FEW030 QNH3005INS BECMG 1815/1816 18010G15KT 9999 SKC QNH2991INS TX21/1816Z TN09/1811Z LAST NO AMDS AFT 1722 NEXT 1904 KVBG 171613Z 1716/1821 33012KT 9999 FEW004 BKN015 QNH3008INS BECMG 1717/1718 33015KT 9999 BKN020 BKN035 QNH3006INS BECMG 1720/1721 33015G20KT 9999 SCT020 SCT035 510004 QNH3005INS BECMG 1801/1802 35014KT 9999 SCT020 SCT035 QNH3008INS BECMG 1805/1806 01012KT 8000 BR FEW020 SCT035 QNH3010INS BECMG 1815/1816 34010KT 9999 NSW FEW020 QNH3012INS BECMG 1817/1818 33012KT 9999 FEW020 QNH3013INS BECMG 1820/1821 33015KT 9999 FEW020 QNH3010INS TX19/1722Z TN09/1815Z KVCT 171743Z 1718/1818 17015G22KT P6SM SCT018 BKN040 FM180000 15012KT P6SM SCT040 FM180200 16008KT P6SM BKN015 FM180800 19006KT 2SM BR OVC008 FM181430 21010KT P6SM OVC015 FM181600 23015KT P6SM BKN035 KVEL 172126Z 1721/1818 30015G24KT P6SM -RA SCT045 BKN060 OVC090 TEMPO 1721/1723 24015G25KT FM172300 29018G32KT P6SM FEW060 SCT090 FM180300 30012G20KT P6SM FEW070 FEW250 FM180700 VRB03KT P6SM FEW080 FEW250 KVGT 171739Z 1718/1818 23025G35KT P6SM FEW080 SCT150 BKN200 FM180000 34020G30KT P6SM SCT250 FM180300 35012KT P6SM SKC KVIS 171751Z 1718/1818 31012KT P6SM SCT020 OVC035 FM172000 32009KT P6SM SCT040 FM180300 VRB04KT P6SM SKC FM180900 VRB03KT 4SM BR SKC TEMPO 1810/1813 2SM BR FM181300 VRB02KT 2SM BR SKC TEMPO 1813/1817 1/2SM FG VV002 KVLD 171720Z 1718/1818 03005KT P6SM SKC FM180600 00000KT 3SM BR FEW002 FM180800 00000KT 1SM BR SCT002 FM181400 20006KT P6SM SCT250 KVNY 171745Z 1718/1818 VRB03KT P6SM SCT250 FM172100 34008KT P6SM BKN050 FM180000 34011KT P6SM BKN250 FM180200 34005KT P6SM SKC FM180900 36008KT P6SM SKC KVOK 172105Z 1721/1823 15009KT 6000 BR OVC006 QNH2964INS BECMG 1804/1805 33012KT 6000 -RA OVC007 QNH2961INS BECMG 1808/1809 35009KT 9999 NSW OVC007 QNH2962INS BECMG 1814/1815 35012KT 9999 OVC010 620204 QNH2967INS BECMG 1817/1818 35015G25KT 9999 OVC020 620203 QNH2971INS BECMG 1820/1821 35015G25KT 9999 SCT020 QNH2974INS TX02/1721Z TNM01/1812Z KVPS 1718/1824 12007KT 9999 SKC QNH3009INS BECMG 1722/1723 16006KT 9999 FEW045 QNH3005INS BECMG 1807/1808 17006KT 9999 FEW025 FEW250 QNH2999INS BECMG 1813/1814 19009KT 9999 SCT025 BKN250 QNH2994INS BECMG 1818/1819 21012G18KT 9999 BKN030 BKN080 QNH2988INS TX24/1720Z TN12/1811Z FCST BY USAF WX MET TECH KVQQ 171726Z 1718/1818 07009KT P6SM SCT040 FM172300 VRB03KT P6SM FEW250 FM181500 21008KT P6SM SCT250 KVRB 171736Z 1718/1818 03012G17KT P6SM FEW035 FM180000 03005KT P6SM SKC FM181500 11007KT P6SM SCT035 KVTN 171723Z 1718/1818 01008G15KT P6SM VCSH BKN050 OVC100 FM172000 03010KT P6SM BKN060 OVC100 FM172300 35012G18KT P6SM -RA SCT010 BKN030 OVC050 FM180300 01011G19KT 5SM -RASN OVC008 FM180500 36014G26KT 3SM -SN OVC010 FM180800 33016G24KT P6SM BKN008 OVC015 FM181000 31019G38KT P6SM SCT140 KWJF 171745Z 1718/1818 23012KT P6SM SCT250 FM172000 26024G32KT P6SM SCT250 FM172300 26017G23KT P6SM SKC FM180200 27012KT P6SM SKC FM180500 27006KT P6SM SKC FM181200 VRB03KT P6SM SKC KWMC 171729Z 1718/1818 29010G20KT P6SM VCSH SCT015 BKN070 TEMPO 1718/1720 BKN015 FM172200 32005KT P6SM SKC FM180200 10005KT P6SM VCFG SKC FM181700 09006KT P6SM FEW250 KWRB 172100Z 1721/1903 14006KT 9999 SCT180 QNH2990INS TEMPO 1810/1814 VRB04KT 4800 BR BECMG 1814/1815 20009KT 9999 SCT030 BKN120 QNH2980INS BECMG 1817/1818 22010G15KT 9999 BKN030 BKN080 QNH2970INS BECMG 1821/1822 24012G20KT 6000 -SHRA BKN020 OVC040 QNH2964INS TX22/1820Z TN08/1813Z KWRI 171800Z 1718/1824 32012G18KT 9999 SCT050 QNH3008INS TEMPO 1718/1721 32015G29KT BECMG 1720/1721 24009KT 9999 SKC QNH2988INS BECMG 1813/1814 19015G25KT 9999 BKN150 520202 QNH2958INS TX12/1818Z TN00/1807Z KWRL 171735Z 1718/1818 31009KT P6SM SCT025 OVC100 FM172100 33012G20KT P6SM VCSH BKN025 OVC100 FM180300 31009KT P6SM SCT050 BKN100 FM180600 VRB05KT P6SM SCT100 KWWR 171720Z 1718/1818 21012G19KT P6SM BKN250 FM180900 33025G32KT P6SM SCT250 KXNA 171740Z 1718/1818 19016G24KT P6SM OVC015 FM172100 21015G26KT P6SM BKN025 FM181400 29014G22KT P6SM SCT250 FM181700 31022G31KT P6SM BKN030 KYIP 171743Z 1718/1818 16013KT P6SM SCT030 BKN150 TEMPO 1718/1722 BKN030 OVC150 FM180400 18013KT 6SM -SHRA OVC045 WS017/22040KT FM180700 20010KT 4SM RA BR OVC008 PROB30 1807/1810 2SM TSRA BR OVC008CB FM181300 VRB03KT 2SM -RA BR OVC004 KYKM 171734Z 1718/1818 26011G18KT P6SM SKC FM180300 26007KT P6SM BKN200 FM181000 26005KT 6SM BR FEW007 BKN200 KYNG 171735Z 1718/1818 18005KT P6SM SCT025 BKN250 FM180600 16010KT P6SM VCSH OVC090 WS020/21040KT FM181200 19012G20KT 4SM -SHRA BR BKN015 OVC025 FM181400 19012G20KT 2SM -SHRA BR OVC007 KZZV 171728Z 1718/1818 15006KT P6SM BKN200 FM180500 16005KT P6SM OVC130 WS020/20035KT FM180700 17007KT P6SM VCSH OVC100 WS020/21040KT FM181000 18009KT 6SM -RA OVC050 WS020/21040KT FM181300 19010KT 4SM -RA BR OVC020 LATI 171700Z 1718/1818 VRB04KT 9999 SCT040 BKN100 PROB40 TEMPO 1718/1806 3000 BCFG TEMPO 1810/1816 35010KT LBBG 171700Z 1718/1818 07010KT 9999 FEW010 BKN020 BECMG 1719/1721 01008KT TEMPO 1721/1818 5000 RA SCT007 BKN015 OVC025 BECMG 1807/1809 09010KT LBGO 171700Z 1718/1818 29008KT 7000 BKN010 OVC017 TEMPO 1718/1805 3000 RA FEW003 BKN007 OVC015 TEMPO 1805/1808 1500 BR SCT003 BKN005 PROB30 1805/1808 0800 BCFG SCT002 BKN003 LBPD 171700Z 1718/1818 VRB04KT 5000 BR BKN010 OVC020 TEMPO 1718/1812 2000 DZ BKN005 OVC010 BECMG 1812/1814 28012KT 9999 SCT040 BKN060 LBSF 171700Z 1718/1818 VRB04KT 5000 BR BKN010 OVC020 TEMPO 1718/1812 2000 DZ BKN005 OVC010 BECMG 1812/1813 30010KT 9999 SCT020 BKN040 LBWN 171700Z 1718/1818 02008KT 9999 SCT015 BKN025 TEMPO 1721/1818 3000 RA SCT007 BKN015 OVC030 BECMG 1807/1809 10010KT LCLK 171730Z 1718/1818 35009KT 9999 FEW030 BECMG 1805/1808 05016KT LCPH 171730Z 1718/1818 03007KT 9999 FEW030 BECMG 1807/1811 28013KT LCRA 171939Z 1721/1815 VRB03KT CAVOK LDDU 171725Z 1718/1818 03010KT 9999 FEW060 TX16/1812Z TN11/1806Z BECMG 1809/1811 28008KT BECMG 1815/1817 03010KT LDOS 171725Z 1718/1818 07005KT 3000 BR OVC010 TX07/1718Z TN03/1805Z PROB40 TEMPO 1718/1722 6000 NSW SCT010 OVC020 PROB40 TEMPO 1722/1810 1000 DZ BR OVC003 BECMG 1810/1812 30007KT BECMG 1813/1815 6000 NSW BKN020 BECMG 1816/1818 1200 BCFG LDPL 171725Z 1718/1818 07010KT CAVOK TX14/1813Z TN06/1805Z LDRI 171725Z 1718/1818 07008KT CAVOK TX13/1813Z TN06/1805Z TEMPO 1718/1818 07015G25KT LDSP 171725Z 1718/1818 04008KT CAVOK TX15/1812Z TN08/1806Z BECMG 1801/1803 31006KT LDZA 171725Z 1718/1818 04006KT 6000 OVC020 TX07/1812Z TN01/1817Z PROB40 1800/1809 2000 DZ BR OVC008 BECMG 1816/1818 0300 FG LDZD 171725Z 1718/1818 06008KT CAVOK TX14/1813Z TN06/1805Z TEMPO 1718/1818 06014KT LEAL 171700Z 1718/1818 VRB03KT 9999 FEW030 TX19/1812Z TN08/1806Z BECMG 1811/1813 18007KT BECMG 1816/1818 VRB03KT LEAM 172000Z 1721/1821 04005KT CAVOK TX20/1814Z TN11/1805Z LEAS 172000Z 1721/1821 15006KT 9999 SCT025 TX15/1814Z TN08/1807Z PROB30 TEMPO 1722/1809 3000 BR TEMPO 1811/1819 08010KT LEBB 172231Z 1722/1818 10004KT 9999 SCT025 TX15/1814Z TN05/1806Z TEMPO 1723/1810 3000 BR LEBL 171700Z 1718/1818 VRB03KT 9999 FEW030 TX18/1812Z TN07/1806Z BECMG 1719/1721 34008KT TEMPO 1806/1810 34010G20KT BECMG 1810/1812 07008KT BECMG 1816/1818 15008KT LEBZ 171700Z 1718/1818 VRB02KT CAVOK TX22/1815Z TN02/1806Z LECO 172000Z 1721/1821 10005KT CAVOK TX16/1815Z TN09/1805Z TEMPO 1722/1810 3000 BR PROB40 TEMPO 1722/1809 0350 FG VV001 LEDA 171400Z 1715/1815 VRB03KT 9999 FEW030 TX14/1813Z TN01/1806Z LEGE 171700Z 1718/1818 VRB03KT 9999 FEW030 TX18/1813Z TN03/1806Z TEMPO 1805/1808 34006KT TEMPO 1815/1818 17007KT LEGR 172000Z 1721/1821 VRB03KT CAVOK TX19/1815Z TN05/1807Z LEIB 172000Z 1721/1821 VRB03KT 9999 FEW030 TX19/1812Z TN08/1806Z TEMPO 1812/1816 22007KT LEJR 171700Z 1718/1818 VRB03KT CAVOK TX21/1815Z TN04/1807Z PROB30 TEMPO 1806/1809 3000 BR BCFG LELC 171700Z 1718/1818 21006KT CAVOK TX18/1814Z TN11/1804Z LELL 171400Z 1715/1815 VRB03KT 9999 FEW030 TX17/1813Z TN02/1806Z LEMD 171701Z 1718/1824 02007KT CAVOK TX20/1814Z TN03/1807Z LEMG 171700Z 1718/1818 VRB02KT CAVOK TX18/1814Z TN11/1806Z BECMG 1800/1802 32005KT TEMPO 1801/1812 BKN009 LEMH 172000Z 1721/1821 35008KT 9999 FEW030 TX17/1812Z TN09/1806Z TEMPO 1809/1816 35014G25KT LEPA 171700Z 1718/1818 34006KT 9999 FEW040 TX19/1812Z TN04/1806Z BECMG 1718/1720 VRB03KT BECMG 1812/1814 22008KT BECMG 1816/1818 VRB03KT LEPP 172000Z 1721/1821 34008KT 9999 FEW030 TX13/1814Z TN04/1807Z PROB40 TEMPO 1811/1818 33018KT LERS 172000Z 1721/1821 VRB04KT 9999 FEW030 TX18/1813Z TN04/1806Z PROB30 TEMPO 1805/1810 31010KT LESA 171700Z 1718/1818 07004KT CAVOK TX15/1814Z TNM03/1807Z PROB30 TEMPO 1805/1808 3000 BR BKN012 LESO 171700Z 1718/1818 VRB04KT 9999 SCT020 TX14/1814Z TN06/1806Z PROB30 TEMPO 1802/1810 4500 -DZ BR BKN014 LEST 171700Z 1718/1818 VRB05KT CAVOK TX17/1815Z TN05/1806Z PROB30 TEMPO 1721/1723 4000 BR TEMPO 1723/1808 3000 BR PROB40 TEMPO 1723/1807 1500 BCFG BKN002 PROB30 TEMPO 1802/1807 0500 FG VV001 LESU 171400Z 1715/1815 VRB03KT 9999 FEW050 TX17/1813Z TNM02/1806Z TEMPO 1715/1718 36007KT LETO 171700Z 1718/1818 03007KT CAVOK TX20/1814Z TN03/1807Z LEVC 172004Z 1720/1818 VRB03KT CAVOK TX19/1813Z TN05/1806Z TEMPO 1720/1724 4000 FU BECMG 1811/1813 10007KT BECMG 1816/1818 VRB03KT LEVD 171700Z 1718/1818 03007KT CAVOK TX15/1814Z TN02/1807Z LEVT 171700Z 1718/1818 VRB02KT 9000 FEW002 TX12/1814Z TN02/1806Z PROB40 TEMPO 1720/1724 4000 BR BKN005 TEMPO 1800/1810 3000 BR BKN004 PROB40 TEMPO 1721/1809 1400 BCFG BKN002 PROB40 TEMPO 1800/1808 0350 FG VV001 PROB40 TEMPO 1813/1816 01010KT LEVX 171700Z 1718/1818 VRB04KT CAVOK TX19/1815Z TN06/1806Z PROB30 TEMPO 1804/1808 1400 BCFG LEXJ 172000Z 1721/1821 20004KT 9999 SCT020 TX15/1814Z TN08/1821Z TEMPO 1721/1809 3000 BR TEMPO 1811/1821 07010KT LEZG 171700Z 1718/1818 29006KT 9999 FEW040 TX18/1814Z TN05/1806Z BECMG 1718/1720 29011KT TEMPO 1810/1816 30015G27KT LEZL 172000Z 1721/1821 02003KT CAVOK TX22/1815Z TN08/1806Z LFBC 171451Z 1715/1815 CNL LFBD 171700Z 1718/1824 02005KT CAVOK PROB40 1800/1809 3000 BR PROB30 1803/1807 0500 FG VV/// BECMG 1822/1824 VRB02KT TX14/1814Z TN03/1806Z LFBE 172054Z 1720/1818 CNL= LFRZ 172050Z 1720/1818 02006KT 4000 BR BKN010 TEMPO 1720/1809 1500 BR BKN003 PROB40 TEMPO 1803/1809 0200 FG VV/// BECMG 1809/1812 9999 NSW SCT030 LFBG 171503Z 1715/1815 CNL LFBH 172039Z 1720/1818 05010KT CAVOK BECMG 1720/1722 BKN020 PROB30 1803/1806 3000 BR BKN006 BECMG 1809/1811 BKN015 BECMG 1812/1814 CAVOK LFBI 172109Z 1721/1818 36006KT 9999 OVC020 PROB40 1721/1806 3000 BR BKN010 PROB30 1803/1806 0600 FG VV/// BECMG 1809/1811 BKN020 BECMG 1815/1817 CAVOK LFBL 171700Z 1718/1818 05008KT CAVOK BECMG 1721/1723 BKN007 BECMG 1809/1811 SCT012 BECMG 1812/1814 SCT020 LFBM 172000Z 1721/1821 VRB02KT CAVOK TEMPO 1800/1810 0600 BCFG BKN001 LFBO 171700Z 1718/1824 VRB02KT CAVOK TEMPO 1719/1810 3000 BR PROB40 TEMPO 1805/1808 0400 FG VV/// PROB40 TEMPO 1808/1810 1500 OVC002 BECMG 1810/1812 29005KT SCT010 BECMG 1812/1814 CAVOK PROB40 TEMPO 1819/1824 4000 BR BECMG 1822/1824 VRB02KT LFBP 171700Z 1718/1818 VRB03KT CAVOK BECMG 1800/1802 BKN010 PROB30 TEMPO 1802/1809 0500 FG VV/// BECMG 1811/1813 SCT015 LFBT 171700Z 1718/1818 VRB03KT CAVOK TEMPO 1800/1806 20006KT PROB30 TEMPO 1806/1809 3000 BR LFBU 172054Z 1720/1818 CNL LFBZ 172137Z 1721/1818 VRB03KT CAVOK TEMPO 1721/1723 3500 BR NSC BECMG 1723/1801 1000 BR BKN010 PROB40 TEMPO 1800/1809 0300 FG VV/// BECMG 1812/1814 SCT015 LFCR 171700Z 1718/1818 35005KT CAVOK TEMPO 1807/1811 VRB02KT= LFJL 171700Z 1718/1818 01003KT 2500 BR OVC002 PROB40 1718/1809 0400 FG VV/// BECMG 1809/1811 26008KT 8000 NSW BKN006 BECMG 1811/1813 BKN012 PROB40 TEMPO 1813/1816 SCT013 BKN020 LFKB 172000Z 1721/1821 24006KT CAVOK BECMG 1808/1810 34008KT BECMG 1818/1821 24004KT TX17/1813Z TN10/1721Z LFKC 171900Z 1719/1815 CNL LFKF 172132Z 1721/1815 CNL= LICJ 172131Z 1718/1818 02012KT 9999 SCT030 TEMPO 1718/1721 02020G30KT BECMG 1809/1811 28012KT LFKJ 172000Z 1721/1821 04006KT CAVOK BECMG 1810/1812 24006KT BECMG 1820/1821 04006KT LFKS 171804Z 1718/1815 CNL LFLB 172158Z 1721/1818 CNL LFLC 172208Z 1722/1821 VRB03KT 9999 OVC005 TEMPO 1722/1808 0600 FG VV/// BECMG 1807/1809 BKN014 BECMG 1811/1813 BKN025 LFLL 171700Z 1718/1824 34012KT 6000 OVC020 BECMG 1719/1721 4000 BR OVC010 TEMPO 1721/1809 2000 OVC003 BECMG 1810/1812 BKN015 BECMG 1818/1820 BKN025 LFLP 172000Z 1720/1815 CNL LFLS 171957Z 1719/1815 CNL LFLX 171700Z 1718/1824 05004KT 9999 BKN016 PROB30 TEMPO 1720/1724 4000 BR BKN007 BECMG 1800/1803 VRB03KT TEMPO 1800/1810 2000 BR BKN003 PROB30 TEMPO 1803/1808 0300 FG VV/// BECMG 1810/1813 BKN022 TEMPO 1813/1824 SCT025 BKN040 LFLY 171700Z 1718/1818 36008KT 9000 BKN020 BECMG 1718/1720 OVC009 TEMPO 1720/1809 OVC004 PROB40 TEMPO 1720/1809 3000 BR BECMG 1811/1813 BKN014 BECMG 1815/1817 SCT030 LFMD 171917Z 1719/1815 CNL= LHBP 171900Z 1719/1818 30006KT 6000 -RA BKN040 OVC060 TEMPO 1718/1724 2500 RA BR BECMG 1721/1724 VRB03KT BKN020 OVC040 TEMPO 1800/1812 1200 RADZ BR BKN004 OVC010 BECMG 1812/1815 29006KT CAVOK LFMH 172102Z 1721/1815 CNL= LFOP 172102Z 1721/1818 CNL LFMI 172000Z 1721/1821 34015KT CAVOK TEMPO 1721/1812 35017G27KT BECMG 1812/1814 34020G30KT TEMPO 1815/1820 34025G35KT LFMK 171803Z 1718/1815 CNL LFML 172218Z 1722/1903 VRB03KT CAVOK TEMPO 1722/1812 32006KT BECMG 1812/1814 32015KT TX13/1812Z TN01/1805Z LFMN 172000Z 1721/1903 33006KT CAVOK BECMG 1812/1814 24010KT BECMG 1818/1820 34010KT LFMO 172000Z 1721/1821 35025G35KT CAVOK TEMPO 1721/1821 35025G40KT LFMP 172149Z 1721/1815 CNL= LFMU 172149Z 1721/1815 CNL LFMT 172000Z 1721/1821 35006KT CAVOK LFMU 172149Z 1721/1815 CNL LFMV 172000Z 1720/1815 CNL LFMY 171434Z 1715/1815 CNL LFOA 171523Z 1715/1815 CNL LFOB 171700Z 1718/1818 VRB02KT 9999 BKN040 BECMG 1720/1723 3000 BR PROB30 1723/1808 0400 FG VV/// BECMG 1808/1810 9999 NSW BECMG 1810/1812 25012KT BECMG 1815/1817 BKN013 TEMPO 1817/1818 2000 RADZ OVC003 LFOC 171400Z 1715/1815 CNL LFOE 172000Z 1721/1821 VRB02KT 3000 BR BKN030 PROB40 TEMPO 1721/1806 0600 FG VV/// BECMG 1809/1811 7000 NSW BKN008 BECMG 1811/1813 BKN025 LFOH 171925Z 1719/1812 CNL LFOJ 171801Z 1718/1815 CNL LFOK 171851Z 1718/1818 VRB02KT 1500 BR BKN015 TEMPO 1718/1809 0200 FG VV/// PROB30 TEMPO 1803/1809 FZFG BECMG 1809/1812 25012KT 7000 NSW BECMG 1816/1818 BKN013 LFOP 172102Z 1721/1818 CNL LFOT 171700Z 1718/1818 05004KT 9999 BKN018 PROB30 TEMPO 1718/1722 4000 BR BKN007 BECMG 1722/1801 VRB03KT TEMPO 1722/1809 3000 BR BKN003 PROB30 TEMPO 1723/1808 0300 FG VV/// BECMG 1809/1812 BKN022 TEMPO 1812/1818 SCT025 BKN040 LFPB 171700Z 1718/1818 04005KT 9999 FEW015 BKN050 PROB30 TEMPO 1803/1807 4000 BR BECMG 1810/1812 29010KT LFPG 171700Z 1718/1824 04005KT 9999 FEW015 BKN050 PROB30 TEMPO 1803/1807 4000 BR BECMG 1810/1812 29010KT BECMG 1822/1824 BKN012 PROB40 TEMPO 1822/1824 3000 -RA TX10/1814Z TN03/1804Z LFPO 171700Z 1718/1824 VRB03KT 9999 BKN025 TEMPO 1802/1808 1500 BR SCT002 BECMG 1809/1812 30003KT SCT030 BECMG 1815/1818 22005KT BKN025 TEMPO 1822/1824 6000 -RA BKN016 LFPV 172000Z 1721/1821 04005KT 9999 SCT030 PROB40 TEMPO 1800/1805 3000 BR BECMG 1809/1811 29005KT SCT030 BECMG 1820/1821 -RA BKN010 LFQQ 171700Z 1718/1824 VRB02KT 9999 SCT030 PROB30 1721/1807 3000 BR BECMG 1809/1812 26012KT BECMG 1814/1816 OVC013 TEMPO 1816/1820 2000 RADZ OVC003 TEMPO 1820/1824 BKN003 LFRB 171700Z 1718/1824 VRB02KT 9999 BKN022 TEMPO 1722/1808 BKN012 PROB30 TEMPO 1722/1808 2000 BR OVC002 LFRD 171828Z 1718/1818 VRB03KT 2000 BR NSC TEMPO 1718/1809 0200 FG VV/// BECMG 1809/1812 20007KT 9999 NSW BKN015 BECMG 1815/1818 27007KT LFRH 171700Z 1718/1818 VRB05KT CAVOK BECMG 1719/1722 2000 BR TEMPO 1722/1806 0500 FG VV/// PROB40 TEMPO 1806/1809 0300 FG VV/// BECMG 1809/1811 5000 BR BKN003 BECMG 1811/1812 8000 NSW SCT006 BECMG 1812/1814 CAVOK LFRI 172100Z 1721/1818 CNL LFRN 171919Z 1719/1818 04005KT 0800 FG NSC TEMPO 1719/1810 0200 FG VV/// BECMG 1809/1812 3000 BR SCT003 BECMG 1812/1814 CAVOK LFRO 172030Z 1720/1818 CNL LFRS 171700Z 1718/1824 06006KT 9999 SCT025 BECMG 1721/1724 VRB03KT 4000 BR BKN009 PROB40 TEMPO 1803/1809 0300 FG VV/// BECMG 1809/1812 9999 NSW SCT015 PROB30 TEMPO 1821/1824 3000 MIFG LFRZ 172050Z 1720/1818 02006KT 4000 BR BKN010 TEMPO 1720/1809 1500 BR BKN003 PROB40 TEMPO 1803/1809 0200 FG VV/// BECMG 1809/1812 9999 NSW SCT030 LFSB 171900Z 1719/1818 VRB03KT 8000 FEW035 BKN055 BECMG 1719/1721 3000 BCFG OVC003 TEMPO 1721/1809 0400 FG VV/// BECMG 1809/1811 8000 NSW BKN015 BECMG 1811/1813 BKN020 BECMG 1815/1818 26010KT LFSI 172000Z 1721/1821 VRB02KT 5000 BR OVC008 BECMG 1804/1806 BKN004 OVC006 BECMG 1811/1813 BKN015 LFSO 171421Z 1715/1815 CNL LFST 172042Z 1720/1818 02004KT 8000 OVC020 PROB40 TEMPO 1720/1803 2500 BR OVC003 BECMG 1803/1805 BKN013 BECMG 1807/1809 20006KT BKN020 LFSX 171432Z 1715/1815 CNL LFTH 172000Z 1721/1821 VRB03KT CAVOK TEMPO 1721/1809 32006KT BECMG 1810/1812 24010KT BECMG 1816/1818 VRB03KT LFTW 171901Z 1719/1815 CNL LFVP 171700Z 1718/1803 12025G35KT 4000 -RA BR SCT005 OVC080 BECMG 1718/1719 14030G45KT 2000 -RA BR BKN003 OVC080 TEMPO 1719/1722 14035G50KT TEMPO 1720/1722 SHRA BECMG 1722/1724 20015KT 6000 SCT005 BKN020 BKN100 BECMG 1801/1803 9999 SCT025 LGAV 171700Z 1718/1818 25010KT 9999 FEW018 SCT025 BKN070 PROB30 TEMPO 1718/1815 5000 RA BKN020 BKN070 PROB30 TEMPO 1800/1815 3000 TSRA FEW010 FEW018CB BKN025 BECMG 1805/1807 04010KT LGEL 171700Z 1718/1818 VRB05KT 9999 SCT020 SCT070 PROB30 TEMPO 1718/1812 5000 RA BKN020 BKN070 PROB30 TEMPO 1800/1815 3000 TSRA FEW010 FEW018CB BKN025 BECMG 1804/1806 36010KT LGIR 171700Z 1718/1818 18010KT 9999 FEW020 SCT080 PROB30 TEMPO 1800/1815 5000 RA SCT018 BKN080 PROB30 TEMPO 1800/1815 5000 TSRA FEW010 FEW018CB BKN020 BECMG 1810/1812 19020KT LGKO 171700Z 1718/1818 14015KT 9999 FEW018 BKN025 PROB30 TEMPO 1800/1818 5000 RA SCT018 BKN025 PROB30 TEMPO 1718/1720 5000 TSRA FEW010 FEW018CB BKN020 LGKR 171700Z 1718/1818 14015KT 9999 FEW020 SCT030 BKN070 PROB40 TEMPO 1718/1810 5000 RA FEW015 BKN035 BKN070 PROB40 TEMPO 1718/1804 3000 TSRA FEW010 FEW020CB BKN020 OVC070 BECMG 1810/1812 33010KT LGPZ 171700Z 1718/1818 13012KT 9999 FEW010 SCT025 BKN080 PROB30 TEMPO 1718/1818 6000 RA PROB30 TEMPO 1718/1818 4000 TSRA FEW016CB BKN020 OVC070 LGRP 171700Z 1718/1818 13010KT 9999 FEW018 SCT030 PROB30 TEMPO 1803/1818 5000 RA SCT018 BKN025 PROB30 TEMPO 1810/1818 5000 TSRA FEW010 FEW018CB BKN020 LGSA 171700Z 1718/1818 VRB05KT 9999 FEW020 SCT080 PROB30 TEMPO 1722/1818 5000 RA SCT018 BKN080 PROB30 TEMPO 1800/1812 5000 TSRA FEW010 FEW018CB BKN020 BECMG 1804/1806 18010KT LGSR 171700Z 1718/1818 17010KT 9999 FEW015 SCT018 PROB30 TEMPO 1718/1818 7000 RA SCT015 BKN018 PROB30 TEMPO 1718/1818 4000 TSRA FEW016CB BKN018 LGTS 171700Z 1718/1818 34015KT 8000 SCT010 BKN025 TEMPO 1718/1815 5000 RA PROB40 TEMPO 1718/1803 3000 TSRA SCT008 FEW015CB OVC020 LHBP 171900Z 1719/1818 30006KT 6000 -RA BKN040 OVC060 TEMPO 1718/1724 2500 RA BR BECMG 1721/1724 VRB03KT BKN020 OVC040 TEMPO 1800/1812 1200 RADZ BR BKN004 OVC010 BECMG 1812/1815 29006KT CAVOK LHPA 171715Z 1718/1818 36006KT 6000 BKN020 OVC040 TEMPO 1718/1806 1500 -RA BR BKN005 OVC015 BECMG 1805/1808 33010KT BECMG 1807/1810 9999 SCT030 BECMG 1813/1816 VRB04KT LIBD 171700Z 1718/1818 32014KT 9999 SCT030 TEMPO 1718/1721 RA= LIBP 171700Z 1718/1818 35008KT 9999 BKN030 LIBP 171700Z 1718/1818 35008KT 9999 BKN030 LIBR 171700Z 1718/1818 05015G27KT 9999 FEW020 BKN030 TEMPO 1718/1720 5000 SHRA FEW015CB BKN025 BECMG 1808/1810 34015G27KT SCT025 LICA 171700Z 1718/1818 30012KT 9999 SCT020 TEMPO 1718/1724 TSRA LICC 171700Z 1718/1818 29010KT 9999 SCT030 BKN060 BECMG 1809/1811 04010KT BECMG 1815/1817 25010KT LICD 172211Z 1718/1818 CNL LICJ 172131Z 1718/1818 02012KT 9999 SCT030 TEMPO 1718/1721 02020G30KT BECMG 1809/1811 28012KT LICR 171700Z 1718/1818 35014KT 9999 SCT030 TEMPO 1718/1724 RA LIEA 171700Z 1718/1818 VRB06KT 9999 FEW030 LIEE 171700Z 1718/1818 33008KT CAVOK LIEO 171700Z 1718/1818 34008KT 9999 FEW030 LIMC 171700Z 1718/1824 VRB05KT 9999 SCT090 TEMPO 1800/1808 3500 BCFG LIME 171700Z 1718/1818 VRB05KT 9999 SCT090 LIMF 171700Z 1718/1818 VRB05KT CAVOK TEMPO 1802/1807 2500 BCFG LIMJ 171700Z 1718/1818 03008KT CAVOK= LIRF 171700Z 1718/1824 02008KT CAVOK LIML 171700Z 1718/1818 VRB05KT 7000 SCT090 TEMPO 1803/1808 3000 BCFG LIMP 172031Z 1718/1818 CNL LIMZ 172001Z 1718/1818 CNL LIPB 172213Z 1718/1818 CNL LIPE 171700Z 1718/1818 VRB04KT 9999 FEW040 LIPH 171700Z 1718/1818 VRB04KT CAVOK LIPO 171700Z 1718/1818 VRB05KT CAVOK TEMPO 1803/1808 3500 BR LIPQ 171700Z 1718/1818 VRB05KT 9999 SCT060 LIPY 171700Z 1718/1818 32010KT 9999 SCT030 LIPZ 171700Z 1718/1824 04008KT CAVOK BECMG 1818/1820 3000 BR LIRA 171700Z 1718/1818 VRB06KT CAVOK LIRF 171700Z 1718/1824 02008KT CAVOK LIRN 171700Z 1718/1818 04007KT 9999 FEW040 LIRP 171700Z 1718/1818 09005KT CAVOK TEMPO 1800/1807 5000 BR BECMG 1808/1810 10006KT BECMG 1811/1813 14010KT LIRQ 171700Z 1718/1818 04007KT CAVOK LIRZ 172212Z 1718/1818 CNL LJLJ 172000Z 1721/1821 12003KT 9999 FEW020 OVC030 PROB40 TEMPO 1721/1724 7000 -RA BKN010 OVC020 TEMPO 1800/1815 OVC010 PROB40 1800/1809 3500 BR TEMPO 1818/1821 3500 BR BKN010 LJMB 172000Z 1721/1821 05004KT 3500 BR OVC017 TEMPO 1721/1805 2000 -RA BR BKN005 OVC010 BECMG 1805/1808 18003KT 7000 NSW SCT020 BKN040 BECMG 1809/1812 18005KT 9999 FEW035 LKCV 171700Z 1718/1818 30006KT 8000 BR SCT025 TEMPO 1718/1720 4000 BR BKN006 BECMG 1800/1802 VRB02KT 4000 BR NSC TEMPO 1802/1809 3000 BR BKN008 PROB40 TEMPO 1803/1808 0500 FZFG VV002 BECMG 1809/1811 24008KT 6000 BKN015 LKKB 171715Z 1718/1818 31002KT 9999 BKN030 BECMG 1720/1722 VRB02KT SCT030 TEMPO 1800/1807 3000 BR BKN005 BECMG 1802/1804 0800 FZFG OVC003 TEMPO 1803/1807 0400 FZFG BKN001 BECMG 1805/1807 24006KT BECMG 1808/1810 9999 BKN025 BECMG 1814/1816 25010G20KT LKKV 171100Z 1712/1818 26005KT 6000 BKN002 TEMPO 1712/1718 3000 -RA BR BKN005 BECMG 1715/1717 VRB02KT BECMG 1800/1802 2500 BR BKN007 TEMPO 1802/1807 0700 FZFG BKN002 BECMG 1808/1810 25010KT 8000 BKN017 LKMT 172150Z 1721/1900 VRB02KT 1200 BR OVC005 TEMPO 1721/1723 0600 -RA FG OVC003 TEMPO 1723/1808 0600 FG OVC003 PROB30 TEMPO 1803/1808 0400 FG OVC002 BECMG 1810/1812 21008KT 9999 BKN030 TEMPO 1812/1818 SCT040 LKNA 171700Z 1718/1818 33006KT 3000 BR SCT020 OVC030 TEMPO 1718/1800 2000 SHRA BKN010 PROB40 TEMPO 1802/1808 0800 FZFG VV002 BECMG 1808/1810 28010KT 8000 BKN030 LKPD 171700Z 1718/1818 28006KT 5000 BR BKN008 BECMG 1721/1800 2000 BR NSC TEMPO 1801/1808 VRB02KT 0400 FZFG VV001 BECMG 1809/1812 25008KT 7000 NSW BKN025 LKPR 171100Z 1712/1818 33006KT 7000 -RA BKN012 TEMPO 1712/1718 26008KT BKN017 BECMG 1718/1721 VRB02KT SCT025 BECMG 1800/1802 3000 BR BKN005 BECMG 1802/1804 0300 FZFG OVC001 TEMPO 1804/1808 0600 FZFG BKN003 BECMG 1808/1810 24010KT 9999 BKN030 LKTB 171100Z 1712/1818 28005KT 9999 BKN020 TEMPO 1713/1721 6000 -RA BKN013 BECMG 1721/1723 BKN030 LLBG 171107Z 1712/1812 29008KT CAVOK BECMG 1714/1716 VRB03KT BECMG 1721/1723 14004KT 7000 BECMG 1803/1805 22005KT PROB40 1805/1809 5000 BR SCT013 BECMG 1809/1811 28008KT 8000 FEW016 TX25/1712Z TN14/1804Z LLET 171113Z 1712/1812 02012KT CAVOK BECMG 1718/1720 VRB04KT BECMG 1807/1810 16005KT TX29/1712Z TN15/1804Z LLHA 171128Z 1712/1812 07006KT CAVOK BECMG 1716/1719 13010KT TX29/1712Z TN16/1804Z LLHZ 171125Z 1712/1812 30006KT 7000 NSC BECMG 1714/1716 VRB03KT BECMG 1720/1722 14004KT 5000 BR PROB40 1722/1807 22005KT 3000 SCT007 BECMG 1807/1809 27006KT 7000 NSW SCT013 TX23/1712Z TN15/1804Z LLIB 171458Z 1712/1812 CNL LLOV 172112Z 1718/1818 CNL LLSD 171851Z 1719/1818 VRB03KT CAVOK BECMG 1720/1722 14004KT 7000 FEW010 PROB40 1722/1807 22005KT 4000 BR SCT007 BECMG 1807/1809 27006KT 9000 NSW FEW016 BECMG 1814/1816 9999 SCT020 TX24/1811Z TN15/1804Z LOWG 172238Z 1722/1818 VRB02KT 4000 BR BKN005 TX09/1812Z TN01/1805Z TEMPO 1722/1808 0100 FG VV001 BECMG 1808/1810 5000 BR SCT060 TEMPO 1811/1816 16005KT 9999 FEW060 BECMG 1816/1818 7000 BKN050 LOWI 171715Z 1718/1818 VRB02KT 9999 SCT012 BKN015 TX07/1812Z TN01/1806Z TEMPO 1718/1722 FEW010 SCT015 BKN070 PROB40 1722/1810 SCT005 BKN010 TEMPO 1812/1816 SCT015 SCT030 LOWK 172210Z 1722/1818 VRB02KT 5000 BR FEW007 BKN070 TX06/1813Z TN01/1805Z TEMPO 1722/1809 0500 BCFG BKN002 PROB40 TEMPO 1723/1808 0300 FG VV001 LOWL 171934Z 1719/1818 27008KT 7000 SCT010 BKN016 TX05/1814Z TN02/1806Z TEMPO 1719/1721 4000 BR SCT007 OVC010 BECMG 1721/1724 25004KT 4000 -DZRA OVC007 PROB40 1802/1810 2000 -DZ OVC003 BECMG 1812/1815 27012KT 9999 -SHRA SCT010 BKN018 LOWS 171715Z 1718/1818 VRB02KT 9999 FEW020 SCT045 BKN060 TX05/1816Z TN01/1806Z TEMPO 1720/1812 6000 -RA SCT025 BKN030 PROB30 TEMPO 1722/1808 4000 -RA BR BKN014 TEMPO 1810/1812 35007KT LOWW 171715Z 1718/1824 30010KT 9999 BKN025 TX08/1814Z TN04/1803Z TEMPO 1720/1806 6000 -RA OVC014 BECMG 1808/1810 28010KT FEW030 SCT050 TEMPO 1810/1816 31015G25KT LPAZ 172001Z 1718/1824 CNL LPBJ 171703Z 1718/1818 VRB02KT CAVOK LPFR 171700Z 1718/1818 12010KT CAVOK BECMG 1718/1720 32007KT BECMG 1723/1802 04007KT BECMG 1810/1813 13010KT LPLA 171703Z 1718/1818 18010KT 9999 FEW014 SCT025 TEMPO 1718/1815 8000 -SHRA SCT012 BKN020 LPMA 171700Z 1718/1818 20008KT 9999 SCT015 TEMPO 1718/1812 VRB05KT BKN015 BECMG 1812/1815 03010KT LPMR 171815Z 1718/1818 VRB02KT 0200 FG BKN001 BECMG 1807/1809 4000 BR SCT003 BECMG 1810/1812 CAVOK TEMPO 1814/1818 35005KT LPMT 171704Z 1718/1818 VRB02KT CAVOK TEMPO 1815/1818 29005KT LPOV 171815Z 1718/1818 VRB02KT 5000 BR FEW002 PROB40 1721/1808 0400 FG BKN002 BECMG 1811/1813 CAVOK TEMPO 1814/1818 35005KT LPPD 171700Z 1718/1818 12007KT 9999 FEW012 SCT020 TEMPO 1718/1818 FEW006 SCT012 BECMG 1800/1802 VRB05KT LPPR 171700Z 1718/1818 VRB03KT 5000 BR NSC PROB30 1718/1802 2000 BR NSC BECMG 1800/1802 09008KT CAVOK BECMG 1813/1816 34007KT LPPS 171700Z 1718/1824 12008KT 9999 SCT015 SCT030 TEMPO 1718/1812 BKN015 BECMG 1800/1803 09008KT BECMG 1810/1813 03010KT LPPT 171700Z 1718/1824 32008KT CAVOK BECMG 1800/1803 VRB03KT BECMG 1808/1810 06005KT BECMG 1817/1820 34007KT LQBK 171700Z 1718/1818 36006KT 3000 -DZ BR BKN005 OVC010 TX05/1812Z TN03/1805Z TEMPO 1718/1804 1500 RA BKN002 OVC005 BECMG 1815/1817 6000 NSW SCT010 BKN015 LQMO 171700Z 1718/1818 02006KT CAVOK TX15/1813Z TN05/1805Z LQTZ 171700Z 1718/1818 27004KT 3000 -DZ BR BKN005 OVC010 TX05/1812Z TN03/1805Z TEMPO 1718/1804 1200 -RA OVC003 LRBS 171700Z 1718/1818 06006KT 5000 BR SCT015 OVC025 TEMPO 1721/1722 3000 BR TEMPO 1802/1811 1500 -DZ BR BKN002 OVC005 TEMPO 1812/1818 3000 BR BKN010 OVC015 LRCK 171700Z 1718/1818 04008KT 5000 BR OVC015 PROB40 TEMPO 1719/1723 3000 -RA BR BKN010 OVC020 BECMG 1723/1801 3000 BR BKN005 OVC010 BECMG 1804/1807 RADZ BKN002 OVC005 TEMPO 1808/1818 1500 RA BR BKN001 OVC005 LROP 171700Z 1718/1818 06006KT 5000 BR SCT015 OVC025 TEMPO 1721/1803 3000 BR TEMPO 1802/1811 1500 -DZ BR BKN002 OVC005 TEMPO 1812/1818 3000 BR BKN010 OVC015 LRSB 171700Z 1718/1818 VRB04KT 5000 BR OVC040 BECMG 1721/1723 3000 -DZ BR BKN010 OVC030 TEMPO 1802/1810 1500 DZ BR OVC010 TEMPO 1811/1818 1500 RA BKN005 OVC010 LRTR 171700Z 1718/1818 34005KT 5000 BR NSC BECMG 1720/1722 3000 BR BKN010 OVC025 TEMPO 1800/1806 1500 BR BKN005 OVC020 BECMG 1810/1812 1500 -RADZ BR BKN002 OVC010 LSGG 172025Z 1721/1903 05010KT 9999 SCT015 BKN020 TX06/1814Z TN02/1806Z BECMG 1802/1804 VRB03KT BKN014 PROB40 1812/1818 SCT015 LSMD 172252Z 1722/1823 VRB03KT 7000 BKN015 BKN025 TEMPO 1722/1812 4000 BR BKN009 PROB40 TEMPO 1722/1809 2500 -DZ BKN004 TEMPO 1812/1823 SCT012 LSME 171625Z 1717/1823 VRB01KT 6000 SCT016 BECMG 1721/1724 4000 BR BKN012 TEMPO 1801/1809 BKN008 TEMPO 1812/1818 8000 SCT015 LSMM 171625Z 1717/1823 09005KT 9999 FEW100 TEMPO 1722/1808 BKN014 PROB40 TEMPO 1723/1808 1200 BCFG BKN003 LSZH 172025Z 1721/1903 VRB03KT 5000 FEW006 BKN010 BKN020 TX06/1814Z TN00/1806Z TEMPO 1721/1809 4000 BR BKN008 PROB40 1721/1809 2500 -DZ BKN005 BECMG 1810/1813 25006KT 8000 BKN015 BECMG 1900/1903 RA LTAP 172032Z 1720/1818 VRB02KT 6000 OVC005 BECMG 1721/1724 4000 BR OVC003 BECMG 1800/1803 2000 PROB40 1803/1807 1200 BCFG OVC002 BECMG 1808/1811 6000 BKN009 LTBA 171908Z 1719/1824 03012KT CAVOK BECMG 1803/1807 VRB02KT BKN028 BECMG 1807/1810 CAVOK BECMG 1820/1823 -SHRA BKN025 LTBJ 171934Z 1719/1818 VRB02KT 9999 SCT030 BKN100 TEMPO 1719/1723 36017G27KT 5000 TSRA SCT015CB BKN025 PROB40 TEMPO 1809/1813 18013KT 5000 TSRA SCT015CB BKN025 BECMG 1815/1818 -SHRA= LTFC 172059Z 1720/1818 VRB02KT 0500 FG VV002 BECMG 1802/1806 1500 BCFG SCT010 BECMG 1806/1810 4000 BR LUKK 171720Z 1718/1818 10006KT 3800 BR BKN008 TEMPO 1718/1721 1500 DZ BR BKN003 BECMG 1721/1723 1200 BR OVC002 TEMPO 1723/1807 0200 FG VV/// BECMG 1807/1809 6000 NSW BKN010 TEMPO 1815/1817 1200 BR BKN002 LWOH 172030Z 1721/1821 33005KT 9999 SCT020 BKN040 TEMPO 1723/1803 5000 RA SCT015 OVC035 LWSK 172030Z 1721/1821 VRB02KT 9999 SCT020 OVC040 TEMPO 1721/1801 5000 RA SCT010 OVC030 LYBE 171700Z 1718/1818 01006KT 8000 BKN010 OVC023 TX08/1718Z TN05/1806Z TEMPO 1801/1806 2000 -DZ BR BKN006 OVC020 TEMPO 1813/1818 5000 -RA BR BKN010 OVC027 LYBT 171700Z 1718/1818 02008KT 6000 BKN010 BKN025 TX08/1718Z TN05/1806Z BECMG 1723/1801 2500 BR OVC005 BECMG 1812/1814 4000 -RA BKN013 BKN027 LYKV 171700Z 1718/1818 32005KT 6000 SCT010 BKN020 TX07/1813Z TN05/1805Z TEMPO 1718/1818 3000 RA BR BKN008 OVC023 LYNI 171700Z 1718/1818 04005KT 9999 FEW010 SCT025 BKN040 TX09/1813Z TN04/1805Z TEMPO 1718/1802 5000 RA BECMG 1805/1807 33312KT TEMPO 1811/1818 5000 RA LYPG 171700Z 1718/1818 02005KT 9999 FEW040 SCT090 TX17/1813Z TN07/1806Z LYTV 171700Z 1718/1818 35005KT CAVOK TX20/1812Z TN09/1804Z LYUZ 171700Z 1718/1818 06005KT 0100 FG VV001 TX03/1718Z TN00/1806Z LYVR 171700Z 1718/1818 02006KT 7000 BKN013 OVC023 TX08/1718Z TN04/1806Z TEMPO 1800/1806 1500 BR BKN006 OVC020 BECMG 1815/1817 4000 -RA BR MGGT 171700Z 1718/1818 02010KT 9999 FEW018 SCT090 TX25/1720Z TN14/1812Z TEMPO 1720/1801 36014KT SCT020 BECMG 1801/1803 SCT016 BECMG 1815/1817 03008KT FEW018 MGMM 171700Z 1718/1818 05006KT 9999 SCT018 BKN090 TX30/1720Z TN21/1812Z TEMPO 1720/1806 09006KT 8000 DZ BKN018 BECMG 1801/1803 00000KT SCT016 BECMG 1806/1808 FEW014 TEMPO 1810/1815 SCT012 BECMG 1815/1817 08006KT FEW018 MGPB 171700Z 1718/1818 05008KT 9999 SCT018 BKN090 TX29/1720Z TN21/1812Z TEMPO 1718/1806 8000 RADZ BKN018 BECMG 1801/1803 00000KT BKN016 TEMPO 1806/1812 SCT016 BECMG 1815/1817 05008KT SCT018 MGSJ 171700Z 1718/1818 18008KT 9999 FEW020 TX33/1720Z TN23/1812Z TEMPO 1720/1801 22012KT 8000 SCT020 BECMG 1801/1803 00000KT CAVOK BECMG 1815/1817 20008KT FEW020 MHSC 172108Z 1721/1903 33015G20KT 9999 SCT035 SCT050 BKN080 QNH2996INS BECMG 1802/1803 35009KT 9999 FEW050 QNH3005INS BECMG 1809/1810 VRB06KT 6000 BR BKN005 QNH3003INS BECMG 1815/1816 36012G20KT 9999 NSW FEW005 QNH2997INS BECMG 1819/1820 34009KT 9999 SCT030 QNH2993INS TX29/1819Z TN16/1809Z MKJP 171715Z 1718/1818 12010KT 9999 FEW022 BECMG 1801/1803 35005KT BECMG 1814/1816 13010KT MKJS 171715Z 1718/1818 07010KT 9999 FEW022 BECMG 1801/1803 VRB03KT BECMG 1814/1816 06010KT MMAN 171720Z 1718/1818 00000KT 5SM HZ SKC FM172000 12010KT P6SM SKC FM181300 20010KT P6SM SKC MMCE 171355Z 1714/1806 09010KT P6SM BKN015OVC070 TEMPO 1714/1716 5SM RA FM171800 12010KT P6SM SCT020 MMCS 171720Z 1718/1818 24015KT P6SM BKN250 FM172100 27025KT 5SM BLDU BKN250 TEMPO 1722/1801 2SM BLDU FM180300 30012KT P6SM BKN250 MMCU 171720Z 1718/1818 23010KT P6SM SCT250 FM172100 06012KT P6SM SCT250 FM180300 23012KT P6SM BKN250 MMCV 171712Z 1718/1818 16018KT P6SM SKC FM180100 16008KT P6SM SCT020 TEMPO 1810/1814 1/2SM FG VV005 FM181600 16015KT P6SM SCT020 MMCZ 171710Z 1718/1824 05015KT P6SM SCT015 FM180300 02010KT P6SM SKC FM181500 05012KT P6SM BKN020 PROB40 1816/1820 5SM RA SCT010CB MMEP 171420Z 1714/1806 00000KT 0SM FG VV000 FM171430 00000KT 4SM HZ SCT010 FM171600 12010KT P6SM SCT020 MMIO 171720Z 1718/1818 02010KT P6SM SKC FM180600 20010KT P6SM SKC FM181500 30010KT P6SM SKC MMLM 171454Z 1714/1806 00000KT 1/4SM FG VV004 FM171500 12010KT P6SM SKC FM172000 24010KT P6SM SKC MMMA 171712Z 1718/1818 18015KT P6SM BKN020 FM172000 16015G25KT P6SM SCT020 FM180200 16005KT P6SM SKC TEMPO 1810/1814 2SM BR BKN010 FM181600 16015KT P6SM SCT020 MMMD 171710Z 1718/1824 06012KT P6SM BKN020 TX31/1720Z TN18/1812Z FM172200 06012KT P6SM SCT030 FM181200 00000KT 5SM HZ BKN015 FM182000 06012KT P6SM SCT025 MMMV 171720Z 1718/1818 20010KT P6SM SKC FM180600 23010KT P6SM SKC FM181600 30010KT P6SM SKC MMMX 171321Z 1713/1818 05005KT 1/4SM FG VV005 TX23/1721Z TN06/1812Z FM171500 00000KT 2SM BR OVC010 FM171600 00000KT 3SM BR BKN015 FM171800 04005KT 5SM HZ FU SKC FM181200 00000KT 2SM BR SKC FM181600 00000KT 4SM HZ SCT020 MMMY 171720Z 1718/824 00000KT 5SM HZ SCT025 TX29/1721Z TN18/1812Z FM172100 12010KT P6SM SKC FM181500 00000KT 5SM HZ SKC FM181800 34020KT 6SM DU SKC MMNL 171712Z 1718/1818 16010KT P6SM SKC FM180200 6005KT P6SM SCT010 FM181000 00000KT 1/2SM FG VV002 FM181500 36005KT P6SM SCT010 FM181600 36018KT P6SM SKC MMPA 171712Z 1718/1818 08008KT 6SM HZ SCT020 FM180200 06005KT 4SM HZ SCT015 TEMPO 1810/1814 1/2SM FG VV005 FM181500 08005K 5SM HZ SCT015 MMPG 171712Z 1718/1818 12005KT 3SM BR HZ BKN010 FM171930 16010KT P6SM SKC FM180200 13005KT P6SM SKC FM180900 00000KT 1/2SM FG VV005 FM181400 35015KT P6SM SCT010 MMQT 171433Z 1715/1806 12005KT 1/2SM FG VV003 FM171630 00000KT 3SM BR BKN010 FM171800 12010KT P6SM SKC MMRX 171712Z 1718/1818 16015G25KT P6SM SCT015 FM180100 13005KT P6SM SCT015 FM180900 13005KT 3SM BR HZ BKN012 FM181600 16015KT P6SM SKC FM181700 36015KT P6SM SKC MMTC 171720Z 1718/1818 06010KT P6SM SKC FM180300 00000KT P6SM SKC MMTG 171710Z 1718/1818 30012KT P6SM SCT020 BKN080 FM180300 00000T P6SM SCT020 TEMPO 1812/1816 3SM BR BKN015 MMTM 171322Z 1713/1806 00000KT 2SM BR VV002 FM171500 00000KT 3SM BR BKN010 FM171600 12005KT P6SM SCT015 MMTO 171351Z 1714/1818 00000KT 5SM HZ SKC TX22/1722Z TN01/1812Z FM171800 04010KT 6SM SKC FM181200 00000KT 2SM BR SKC TEMPO 1812/1816 1/2SM FG FM181600 00000KT 4SM HZ SKC MMTP 171710Z 1718/1824 24012KT P6SM SCT020 TEMPO 1721/1801 BKN020 VC CB FM180300 00000KT P6SM SCT080 BKN250 FM181800 24010KT P6SM SCT030 MMUN 171710Z 1718/1824 02012KT P6SM BKN015 TX28/1719Z TN18/1810Z FM172200 04012KT P6SM SCT015 FM181500 04012KT P6SM BKN015 MPDA 171705Z 1718/1806 22004KT 9000 SCT016 SCT090 TEMPO 1720/1724 7000 RA TEMPO 1800/1804 00000KT 9999 SCT018 MPMG 171705Z 1718/1806 26004KT 9000 FEW006 SCT016 BKN080 TEMPO 1718/1722 6000 RA TEMPO 1802/1806 00000KT 9999 FEW008 SCT018 BKN090 MPPA 171705Z 1718/1824 35004KT 9000 FEW006 SCT016 BKN080 TEMPO 1718/1722 6000 RA TEMPO 1802/1806 00000KT 9999 FEW008 SCT018 BKN090 PROB30 TEMPO 1809/1813 6000 -TSRA FEW005 SCT015CB BKN070 MPSM 171705Z 1718/1824 22004KT 9000 SCT016 SCT090 TEMPO 1720/1724 6000 RA TEMPO 1802/1806 00000KT 9999 FEW008 SCT018 BKN090 MPTO 171705Z 1718/1824 29004KT 9000 FEW006 SCT016 BKN080 TEMPO 1718/1722 6000 RA TEMPO 1802/1806 00000KT 9999 FEW008 SCT018 BKN090 PROB30 TEMPO 1809/1813 6000 -TSRA FEW005 SCT015CB BKN070 MRLB 171100Z 1712/1812 08010KT 9999 FEW040 TX32/1718Z TN23/1811Z MRLM 171100Z 1712/1812 24007KT 9999 FEW025 SCT110 TX31/1719Z TN22/1811Z BECMG 1714/1716 32010KT MROC 171100Z 1712/1812 09010KT 9999 FEW035 TX28/1718Z TN20/1810Z TEMPO 1719/1723 25007KT MRPV 171100Z 1712/1812 08013KT 9999 FEW035 SCT120 TX27/1718Z TN19/1810Z MTCH 171100Z 1712/1812 VRB02KT 9999 SCT022CB BKN060 BECMG 1719/1723 04010KT PROB30 TEMPO 1722/1802 4500 SHRA SCT020CB BKN040 BECMG 1808/1812 VRB02KT 9000 FEW016 SCT020 MTPP 171700Z 1718/1818 09004KT 9000 FEW010 SCT022 BKN050 BECMG 1719/1723 27010KT PROB40 TEMPO 1800/1804 4500 SHRA SCT022CB BKN050 BECMG 1808/1812 VRB02KT 9000 FEW016 SCT020 BECMG 1813/1817 09010KT MUGM 1715/1815 36012KT 9999 FEW030 SCT070 SCT280 QNH2972INS TEMPO 1715/1720 36018KT BECMG 1720/1722 36012KT 9999 VCSH SCT030 SCT070 BKN280 QNH2976INS BECMG 1800/1802 33008KT 9999 FEW025 SCT280 QNH2980INS T29/1717Z T22/1810Z 1530 FN20026 MWCB 180000Z 1718/1818 CNL NCRG 171112Z 1712/1812 09010KT 9999 SCT015 BKN040 PROB30 TEMPO 1722/1803 10010G22KT NFFN 171112Z 1712/1812 VRB03KT 9999 SCT025 SCT100 BECMG 1722/1724 25010KT PROB30 TEMPO 1802/1806 5000 TSRA FEW018CB BECMG 1804/1806 14005KT NFNA 171708Z 1718/1818 15006KT 9999 SCT020 SCT045 PROB30 TEMPO 1800/1808 5000 SHRA BKN015 NFTF 171607Z 1716/1812 VRB03KT 9999 -RA FEW008 BKN016 OVC100 TEMPO 1716/1812 3000 TSRA SCT008 SCT015CB NFTV 171709Z 1718/1818 04008KT 9999 -SHRA FEW008 SCT017 BKN100 TEMPO 1718/1724 5000 TSRA SCT008 FEW018CB PROB30 NGFU 171709Z 1718/1818 02013KT 9999 SCT018 BKN100 PROB30 TEMPO 1718/1806 5000 TSRA FEW018CB NGTA 171708Z 1718/1818 06010KT 9999 SCT020 SCT100 NIUE 171708Z 1718/1818 06008KT 9999 SCT018 BKN030 OVC100 PROB30 TEMPO 1718/1724 7000 SHRA BKN015 NLWF 171700Z 1718/1818 05005KT 9999 FEW020 TEMPO 1718/1804 4000 SHRA FEW020CB PROB40 TEMPO 1718/1724 VRB15G25KT 1500 TSRA BKN012 BKN015CB= NLWW 171700Z 1718/1818 06005KT 9999 FEW020 TEMPO 1718/1724 4500 SHRA FEW020CB PROB40 TEMPO 1718/1723 VRB15G25KT 2500 TSRA BKN012 BKN015CB NLWW 171700Z 1718/1818 06005KT 9999 FEW020 TEMPO 1718/1724 4500 SHRA FEW020CB PROB40 TEMPO 1718/1723 VRB15G25KT 2500 TSRA BKN012 BKN015CB NSFA 171922Z 1719/1818 08010KT 9000 -SHRA FEW012 SCT020 BKN045 PROB40 TEMPO 1719/1806 3000 TSRA BKN015 FEW018CB PROB30 TEMPO 1806/1818 5000 TSRA BKN015 FEW018CB NSTU 171738Z 1718/1818 07008KT P6SM VCSH SCT015 SCT040 BKN100 FM180200 VRB05KT P6SM VCSH SCT015 BKN040 BKN100 NTAA 171100Z 1712/1818 VRB03KT 9999 FEW023 SCT050 NWWD 171700Z 1718/1818 VRB02KT 9999 BKN060 BECMG 1721/1723 16012G25KT BECMG 1807/1809 05005KT NWWE 171700Z 1718/1818 18006KT 9999 SCT030 BECMG 1721/1723 15016KT PROB30 TEMPO 1806/1809 SHRA NWWK 171700Z 1718/1818 11008KT 9999 BKN050 BECMG 1721/1723 17015G25KT BECMG 1807/1809 VRB02KT NWWM 171700Z 1718/1818 16005KT 9999 SCT035 BECMG 1722/1724 16015KT BECMG 1807/1809 05006KT NWWR 171700Z 1718/1818 VRB02KT 9999 FEW035 PROB30 TEMPO 1718/1724 SHRA BECMG 1721/1723 15015KT BECMG 1807/1809 05006KT NWWU 171700Z 1718/1818 16005KT 9999 BKN060 BECMG 1722/1724 15016KT= NWWL 171700Z 1718/1818 VRB02KT 9999 FEW035 BECMG 1721/1723 17012KT BECMG 1807/1809 VRB02KT NWWW 171700Z 1718/1818 VRB02KT 9999 FEW030 SCT040 BECMG 1721/1723 16015KT BECMG 1807/1809 VRB02KT NZAA 171701Z 1718/1818 14010KT 9999 FEW050 FM172200 12015G25KT 9999 -RA BKN050 BECMG 1812/1814 14010KT NZCH 171715Z 1718/1818 VRB02KT 9999 -SHRA BKN025 FM180200 06010KT 9999 FEW025 BECMG 1808/1810 VRB02KT PROB30 1813/1818 0400 FG NZFX 1721/1821 18012KT 9999 FEW010 SCT030 BKN050 510205 QNH2880INS GRID35012KT TEMPO 1722/1803 18015G25KT 2400 BLSN GRID35015G25KT BECMG 1818/1820 18010G15KT 8000 BLSN SCT020 BKN040 BKN100 510205 QNH2881INS GRID35010G15KT NZSP 1721/1821 11006KT 9999 FEW020 SCT080 QNH2846INS ALL WINDS GRID NZWD 1721/1821 06009KT 9999 FEW030 BKN060 BKN100 510205 QNH2880INS GRID23009KT TEMPO 1722/1803 18015G25KT 2400 BLSN GRID35015G25KT BECMG 1818/1820 18010G15KT 8000 BLSN SCT020 BKN040 BKN100 510205 QNH2881INS GRID35010G15KT NZWN 171701Z 1718/1818 16015G25KT 9999 SCT020 BKN045 BECMG 1809/1811 17015KT OAJL 171610Z 1716/1822 28005KT 9000 BR FEW080 BKN160 QNH3015INS TEMPO 1800/1804 4000 BR BECMG 1808/1809 29009KT 9999 NSW SKC QNH3017INS TX15/1809Z TN07/1800Z OAKN 171500Z 1715/1821 VRB06KT 9999 SKC QNH3018INS TX18/1809Z TN04/1800Z OAMS 171105Z 1712/1812 01006KT 9999 NSW FEW025 SCT060 BECMG 1714/1716 16005KT 9000 NSW SCT025 BECMG 1802/1804 31005KT 6000 NSW SCT020 TEMPO 1802/1804 35004KT 4000 FU BR SCT020 BECMG 1804/1806 02008KT 9999 NSW FEW025 OBBI 171700Z 1718/1900 VRB03KT 9999 FEW045 BECMG 1810/1812 06010KT PROB30 TEMPO 1820/1900 4500 HZ BKN014 OEDF 170830Z 1712/1818 03005KT CAVOK= OEDR 170830Z 1712/1818 03005KT CAVOK OEJN 171100Z 1712/1818 24012KT 9999 FEW040 BECMG 1716/1718 05006KT OEMA 171100Z 1712/1818 10012KT CAVOK PROB30 TEMPO 1712/1714 3500 BLDU BECMG 1716/1718 VRB03KT OERK 171100Z 1712/1818 12010KT CAVOK BECMG 1717/1719 09006KT OIAA 171700Z 1718/1824 32004MPS 8000 NSC BECMG 1800/1802 3000 BR BECMG 1805/1807 8000 NSC BECMG 1821/1823 VRB02MPS 4000 BR FEW035 SCT100 OIAW 171700Z 1718/1824 27003MPS 8000 NSC TEMPO 1802/1806 4000 HZ OIBK 171700Z 1718/1824 03004MPS 7000 FEW035TCU SCT100 BECMG 1723/1801 3000 BR FEW30CB SCT035 PROB40 TEMPO 1801/1806 SHRA BECMG 1807/1809 10005MPS 7000 NSC OICI 171700Z 1718/1824 22004MPS 8000 NSC TEMPO 1812/1818 16006MPS 6000 FEW035 SCT100 BECMG 1821/1823 8000 FEW035 BKN100 OIFM 171700Z 1718/1824 VRB02MPS 8000 NSC BECMG 1801/1802 3000 HZ BECMG 1807/1808 6000 NSC TEMPO 1815/1824 4000 HZ OIIE 171700Z 1718/1824 14004MPS 8000 NSC TEMPO 1801/1805 3000 HZ OIII 171700Z 1718/1824 32003MPS 8000 NSC BECMG 1801/1803 VRB02 3000 HZ BECMG 1806/1808 6000 NSC BECMG 1815/1817 4000 HZ OIKB 171700Z 1718/1824 03004MPS 7000 NSC TEMPO 1800/1804 4000 HZ TEMPO 1809/1812 09005MPS 7000 NSC OIKK 171700Z 1718/1824 VRB03MPS 8000 NSC TEMPO 1812/1818 32005MPS OIMM 171700Z 1718/1824 VRB03MPS 8000 NSC BECMG 1801/1803 3000 HZ BECMG 1806/1808 16004MPS 7000 NSC OISL 171700Z 1718/1824 VRB03MPS 8000 NSC TEMPO 1800/1804 3000 BR HZ OISS 171700Z 1718/1824 VRB02MPS CAVOK BECMG 1904/1906 14004MPS 8000 FEW035 BKN100 OITR 171700Z 1718/1824 VRB03MPS 8000 FEW035 PROB40 TEMPO 1800/1806 3000 HZ BR FEW035 SCT100 OITT 171700Z 1718/1824 07004MPS 8000 FEW035 PROB40 TEMPO 1800/1806 3000 HZ BR FEW035 SCT100 OIZC 171700Z 1718/1824 02003MPS 6000 NSC BECMG 1721/1723 4000 HZ BECMG 1804/1820 09005MPS 7000 NSC TEMPO 1810/1816 24007MPS TEMPO 1818/1824 06008MPS OIZH 171700Z 1718/1824 34004MPS CAVOK OJAI 171650Z 1718/1824 VRB02KT 7000 NSC TEMPO 1802/1806 4000 HZ BECMG 1806/1808 13010KT 5000 HZ NSC BECMG 1818/1820 25012KT 6000 FEW030 OJAM 171650Z 1718/1824 VRB02KT 4000 HZ NSC TEMPO 1802/1806 3000 FU BECMG 1806/1808 12010KT 5000 HZ NSC BECMG 1818/1820 24012KT 6000 FEW030 OJAQ 171650Z 1718/1824 VRB02KT 7000 NSC BECMG 1808/1810 20010KT OKBK 171645Z 1718/1824 VRB03KT 7000 SKC OMAA 171700Z 1718/1900 07005KT 8000 NSC BECMG 1803/1805 15010KT BECMG 1812/1814 36008KT BECMG 1816/1818 08010KT OMAD 171700Z 1718/1900 02005KT 8000 NSC BECMG 1718/1720 08005KT BECMG 1803/1805 15008KT BECMG 1811/1813 01006KT BECMG 1816/1818 08008KT OMDB 171701Z 1718/1900 09007KT CAVOK BECMG 1808/1810 35012KT PROB30 TEMPO 1809/1814 VRB15G25KT 4000 BLDU FEW035CB BECMG 1814/1816 09007KT OMRK 171701Z 1718/1900 12007KT 9999 FEW040 PROB40 1808/1814 36010KT PROB30 TEMPO 1808/1814 VRB20G30KT 1500 TSRA BLDU SCT035CB OMSJ 171701Z 1718/1900 10007KT CAVOK PROB30 TEMPO 1808/1814 VRB15G25KT 3000 BLDU FEW035CB BECMG 1809/1811 35012KT BECMG 1814/1816 09007KT OOMS 171700Z 1718/1900 VRB03KT 8000 SCT025 PROB30 TEMPO 1718/1723 -RA SCT020 BKN035 PROB30 TEMPO 1802/1805 -RA BKN020 BECMG 1805/1807 04015KT BECMG 1816/1818 VRB03KT OOSA 171740Z 1718/1900 VRB03KT 9999 SCT025 BECMG 1807/1809 16008KT BECMG 1815/1817 VRB03KT FEW025 OOSH 171700Z 1718/1900 VRB03KT 8000 SCT030 PROB30 TEMPO 1802/1805 -RA BKN025 BECMG 1806/1808 07010KT BECMG 1815/1817 VRB03KT ORBD 171900Z 1719/1901 VRB06KT 8000 DUHZ FEW250 QNH2998INS BECMG 1802/1803 12006KT 8000 DUHZ SCT150 OVC250 QNH3002INS TX27/1811Z TN09/1803Z ORBI 171600Z 1718/1818 VRB03KT 8000 NSC BECMG 1807/1809 12006KT ORER 171600Z 1718/1818 03008KT 8000 NSC BECMG 1804/1806 12006KT ORMM 171600Z 1718/1818 VRB03KT 8000 NSC ORNI 171600Z 1718/1818 VRB03KT 7000 NSC BECMG 1804/1806 12006KT ORSU 171100Z 1712/1812 12006KT CAVOK BECMG 1717/1719 29005KT BECMG 1723/1801 VRB03KT BECMG 1807/1809 18010KT 9999 FEW045 SCT200 OTBD 171703Z 1718/1824 35005KT CAVOK BECMG 1720/1722 29005KT TEMPO 1805/1815 9999 FEW035 BECMG 1806/1808 05010KT OTBH 171500Z 1715/1821 VRB06KT 9000 HZ SKC QNH3002INS BECMG 1801/1802 02008KT 9000 HZ SKC QNH2996INS TX29/1812Z TN17/1802Z OTHH 171646Z 1718/1824 01006KT CAVOK BECMG 1720/1722 31005KT TEMPO 1805/1815 9999 FEW035 BECMG 1806/1808 05010KT PAAQ 172159Z 1722/1818 36006KT 5SM BR OVC005 TEMPO 1722/1724 2SM BR FM180000 VRB04KT P6SM FEW010 SCT100 FM180200 04013G20KT P6SM SCT100 PABE 172103Z 1721/1818 31010KT P6SM SCT025 BKN040 FM180200 VRB06KT P6SM FEW050 SCT100 PABI 172000Z 1722/1904 30006KT 1600 -SN BR OVC025 620257 QNH2970INS TEMPO 1722/1801 3200 -SN BR BECMG 1801/1803 30009KT 4800 -SN BR BKN030 BKN050 620307 QNH2965INS BECMG 1810/1811 VRB06KT 9999 NSW SCT030 QNH2968INS TXM08/1800Z TNM20/1818Z PABR 171738Z 1718/1818 VRB05KT P6SM -SN BKN015 OVC025 FM172100 09008KT P6SM -SN BKN015 OVC025 PABT 171738Z 1718/1818 VRB03KT P6SM VCSH BKN035 BKN050 FM180600 34003KT P6SM SCT070 PACD 172158Z 1722/1818 31015G25KT P6SM BKN025 TEMPO 1722/1724 SCT025 BKN120 FM180100 34014KT P6SM -RA SCT025 BKN035 FM180900 VRB06KT P6SM BKN020 OVC030 PACV 171724Z 1718/1818 VRB04KT P6SM SKC PADL 171723Z 1718/1818 29005KT P6SM SKC FM172000 30011KT P6SM SKC FM180300 32005KT P6SM SKC PADQ 171724Z 1718/1818 29020G30KT P6SM SKC FM181200 30012G19KT P6SM SKC PADU 172012Z 1720/1818 25010KT P6SM FEW025 OVC080 TEMPO 1720/1724 BKN020 FM180900 25014KT P6SM BKN030 PAED 172000Z 1720/1901 VRB06KT 0800 FG BKN005 610059 QNH2965INS TEMPO 1720/1723 0600 FG BECMG 1723/1724 VRB06KT 1600 BR SCT005 BKN020 610207 QNH2965INS BECMG 1806/1807 01009KT 9999 NSW SCT020 QNH2975INS TXM03/1721Z TNM12/1818Z PAEI 172054Z 1720/1902 VRB06KT 4800 -SN BR SCT025 OVC030 620307 QNH2970INS BECMG 1723/1724 VRB06KT 9999 VCSH BKN020 BKN050 620208 QNH2971INS BECMG 1814/1815 VRB06KT 9999 NSW SCT025 SCT050 QNH2976INS TXM10/1800Z TNM23/1818Z PAEN 172103Z 1721/1818 VRB04KT 1SM BR OVC003 TEMPO 1721/1723 5SM BR BKN006 FM172300 01011KT P6SM SCT100 PAFA 172132Z 1722/1824 VRB04KT P6SM BKN060 BKN100 FM180300 VRB04KT P6SM VCFG SCT005 BKN100 FM181800 VRB04KT P6SM FEW100 PAFB 172000Z 1720/1902 VRB06KT 9999 VCSH BKN075 620752 QNH2960INS BECMG 1804/1805 VRB06KT 9999 NSW SCT080 QNH2965INS TXM10/1800Z TNM22/1818Z PAGA 171738Z 1718/1818 27008KT 6SM -SN BR SCT025 BKN035 FM172100 29006KT P6SM VCSH SCT025 BKN035 FM180600 08005KT P6SM SCT040 PAGK 171724Z 1718/1818 33008KT P6SM SCT100 PAGS 171952Z 1720/1818 35010KT 1SM -SN BKN009 OVC015 TEMPO 1720/1724 3SM -SN SCT008 BKN025 OVC030 FM180500 35007KT 6SM -SN SCT012 OVC025 LTD TO CLD VIS AND WIND PAGY 171723Z 1718/1818 VRB02KT 3SM -SN OVC025 TEMPO 1718/1721 04014KT 3/4SM -SN BR VV011 FM172200 03015G25KT 5SM -SN SCT015 OVC025 FM180300 03020G30KT P6SM -SN SCT025 OVC035 LTD TO CLD VIS AND WIND PAHN 171723Z 1718/1818 29009KT 1 1/2SM -SN FEW008 OVC020 TEMPO 1718/1721 1SM -SN BR VV012 FM172100 31010G18KT 3SM -SN SCT008 OVC015 FM180500 31014G22KT 6SM -SN SCT020 OVC030 LTD TO CLD VIS AND WIND PAHO 171724Z 1718/1818 01008KT P6SM SKC PAIL 171723Z 1718/1818 30012G20KT P6SM VCSH SCT025 BKN070 TEMPO 1718/1722 30012KT BKN025 FM180600 31010KT P6SM SKC PAJN 171723Z 1718/1818 11015KT 2SM -SN BR SCT015 OVC035 WS015/13030KT TEMPO 1718/1720 1SM -SN VV008 FM172000 10011KT 1/2SM SN SCT003 OVC008 FM180300 10008KT 2SM -SN SCT008 OVC012 FM180900 VRB05KT 3SM -SN BR SCT012 OVC025 PAKN 171723Z 1718/1818 31011KT P6SM BKN060 FM172100 33015G22KT P6SM SCT050 FM180600 34008KT P6SM SKC PAKT 171934Z 1720/1818 14018G28KT 5SM -SN BR BKN025 OVC035 WS020/14030KT TEMPO 1720/1721 3SM -SN BR BKN015 OVC025 FM172100 14018G28KT 3SM -SNRA BR SCT010 OVC020 FM180000 14010KT 5SM -SHRA BR BKN015 OVC025 FM180600 14008KT 6SM -SHRA BR SCT015 OVC025 LTD TO CLD VIS AND WIND 1806/1815 PAKW 172229Z 1722/1818 16011G15KT 3SM -RA BR SCT010 OVC020 WS020/18025KT FM180800 06007KT 6SM -SHRA BR BKN025 OVC035 LTD TO CLD VIS AND WIND PAMC 171738Z 1718/1818 30006KT P6SM VCSH SCT025 BKN035 PANC 172204Z 1722/1824 VRB04KT 2SM BR SCT002 TEMPO 1722/1724 3/4SM BR BKN002 FM180100 35007KT P6SM SCT100 FM180800 36012KT P6SM SKC PAOM 171738Z 1718/1818 30015KT P6SM VCSH BKN050 FM172300 03005KT P6SM SCT050 PAOR 171738Z 1718/1818 30005KT 2SM -SN BR BKN025 FM180200 30005KT 6SM -SN BR BKN025 PAOT 171738Z 1718/1818 32010KT P6SM VCSH BKN025 BKN050 PAPG 171933Z 1720/1818 08008KT 4SM -SN BR BKN025 OVC030 WS015/14030KT TEMPO 1720/1722 1SM -SN BR BKN015 OVC025 FM172200 VRB05KT 1 1/2SM -SN BR BKN015 OVC025 WS020/14040KT FM180400 VRB04KT 3SM -SHSN SCT006 BKN012 OVC020 WS020/15025KT LTD TO CLD VIS AND WIND 1806/1815 PAQT 171738Z 1718/1818 06010KT 6SM -SN BLSN BR OVC012 FM172100 03008KT 6SM -SN BR OVC012 FM180000 30008KT 6SM -SN BKN015 OVC025 PASC 171738Z 1718/1818 06018KT 6SM -SN BLSN BR OVC012 FM172100 06010KT 4SM -SN BR OVC012 FM180000 27010KT 6SM -SN BKN015 OVC025 PASD 172104Z 1721/1818 34020G30KT P6SM SCT040 FM180400 33010KT P6SM SCT100 FM181500 33006KT P6SM -RA SCT025 BKN040 LTD TO CLD VIS AND WIND PASI 172227Z 1722/1818 11015G25KT 4SM -SNRA BR OVC025 WS020/17025KT FM180000 17014KT 5SM -SHRA BR BKN025 OVC035 FM180800 12009KT P6SM -SHRA SCT025 OVC035 PASN 172105Z 1721/1818 21011KT P6SM -RA SCT015 OVC035 TEMPO 1721/1724 3SM -RA BR BKN015 FM180000 19012KT 4SM -RA BR SCT003 OVC008 FM180300 22018KT 3SM BR BKN002 OVC005 PASY 172200Z 1722/1904 18025G35KT 3200 -RA OVC005 520203 QNH2994INS BECMG 1800/1801 20020G30KT 4800 BR OVC006 510203 QNH2993INS BECMG 1803/1804 29015KT 6000 BR BKN015 QNH2985INS TX09/1822Z TN04/1818Z PATA 171738Z 1718/1818 28005KT P6SM -SHSN SCT025 OVC035 FM180200 06003KT P6SM VCSH BKN035 PATK 171724Z 1718/1818 VRB03KT P6SM SCT100 PAUN 171738Z 1718/1818 32015KT P6SM -SHSN SCT025 BKN035 FM172100 31006KT P6SM VCSH SCT025 BKN035 FM180600 08005KT P6SM SCT040 PAVD 171724Z 1718/1818 09022G37KT P6SM SKC LTD TO CLD VIS AND WIND PAWG 171740Z 1718/1818 07010G18KT 5SM -SN BR SCT015 OVC025 WS015/14030KT TEMPO 1718/1722 2SM -SN BR BKN015 OVC025 FM172200 09012G22KT 4SM -SNRA BR SCT015 BKN020 OVC035 WS020/16025KT FM180600 13011KT 6SM -SHRA BR BKN015 OVC025 LTD TO CLD VIS AND WIND 1806/1815 PAYA 171837Z 1719/1818 09011G17KT 5SM -SN OVC035 WS015/13030KT TEMPO 1719/1720 2SM -SN BR OVC025 FM172000 08010KT 6SM -SN SCT015 OVC020 WS020/10030KT FM180000 06007KT P6SM SCT020 OVC040 FM181100 06004KT P6SM SCT040 NOT SKED PGRO 172202Z 1722/1818 12010G16KT P6SM VCSH SCT012 PGSN 171720Z 1718/1818 10014KT P6SM VCSH SCT020 PGUA 172237Z 1722/1900 10015G20KT 9999 BKN013 BKN025 QNH2979INS BECMG 1723/1801 09015G20KT 9999 SCT015 BKN030 QNH2977INS BECMG 1802/1803 09015KT 9999 VCSH BKN015 QNH2973INS TX30/1802Z TN25/1818Z PGUM 171720Z 1718/1824 08010KT P6SM VCSH SCT020 FM172300 09015KT P6SM VCSH SCT020 PGWT 172125Z 1721/1818 09010KT P6SM VCSH SCT016 PHHI 171500Z 1715/1821 33006KT 9999 FEW030 QNH2994INS BECMG 1717/1718 05009KT 9999 SCT030 QNH2987INS TX24/1721Z TN17/1815Z PHJH 171738Z 1718/1818 04010KT P6SM VCSH FEW015 SCT040 FM172000 06010KT P6SM FEW015 SCT040 FM180500 05006KT P6SM FEW015 SCT040 NOT SKED AFT 180400 PHJR 171738Z 1718/1818 06008KT P6SM FEW050 FM172100 13009KT P6SM SCT030 SCT050 FM180100 36007KT P6SM FEW030 SCT050 PHKO 171738Z 1718/1818 VRB06KT P6SM FEW030 SCT060 FM172100 29009KT P6SM FEW030 SCT060 FM180600 08005KT P6SM FEW020 SCT060 PHLI 171738Z 1718/1818 35008KT P6SM VCSH SCT025 BKN040 TEMPO 1718/1720 SHRA BKN025 BKN035 FM172200 04012KT P6SM SCT025 SCT040 PHMK 171738Z 1718/1818 02008KT P6SM SCT025 SCT045 FM172000 05009KT P6SM SCT020 SCT040 FM180400 02005KT P6SM SCT020 BKN040 PHNG 1721/1821 06008KT 9999 FEW025 SCT035 QNH2986INS TEMPO 1721/1800 06008G16KT BKN025 BKN040 FM180900 06010G18KT 9999 SCT025 BKN040 QNH2996INS TEMPO 1813/1816 8000 -SHRA BKN020 BKN030 T27/1723Z T24/1812Z PHNL 172059Z 1721/1824 06011KT P6SM SCT025 SCT050 FM180500 36005KT P6SM FEW040 PHNY 171738Z 1718/1818 05012KT P6SM SCT025 SCT035 FM172100 05008KT P6SM SCT025 SCT035 FM180200 VRB05KT P6SM SCT020 BKN035 PHOG 171738Z 1718/1818 04009KT P6SM FEW030 SCT050 FM172100 04011KT P6SM FEW030 SCT050 FM180300 VRB05KT P6SM FEW030 SCT050 LTD TO VIS AND WIND 1809/1816 PHTO 171738Z 1718/1818 24005KT P6SM FEW020 SCT060 FM172200 07012KT P6SM SCT020 SCT050 FM180300 VRB05KT P6SM FEW025 PKMJ 171720Z 1718/1818 09011KT P6SM VCSH SCT015 BKN050 PKWA 171720Z 1718/1818 08008KT P6SM VCSH SCT020 SCT050 PLCH 171708Z 1718/1818 12012KT 9999 SCT018 PMDY 171738Z 1718/1818 12015G25KT 5SM -SHRA VCTS SCT015CB BKN025 OVC060 TEMPO 1718/1720 VRB20G30KT 2SM TSRA SCT005 BKN015CB OVC025 PTKK 171720Z 1718/1818 VRB05KT P6SM VCSH SCT014 BKN120 PTPN 172009Z 1720/1818 16008KT P6SM VCSH SCT017 SCT130 PTRO 171720Z 1718/1818 VRB05KT P6SM VCSH SCT016 BKN120 TEMPO 1718/1722 -SHRA BKN015 OVC100 PTSA 172206Z 1722/1818 VRB05KT P6SM VCSH SCT018 SCT130 PTYA 171720Z 1718/1818 VRB05KT P6SM VCSH SCT016 PWAK 172200Z 1722/1904 36009KT 9999 FEW025 SCT050 QNH2982INS BECMG 1811/1812 04012KT 9999 VCSH SCT025 BKN035 QNH2979INS TX29/1802Z TN23/1818Z RCFN 171700Z 1718/1818 34004KT 9999 FEW015 SCT032 BKN060 TEMPO 1720/1802 02008KT BECMG 1802/1804 03012KT TEMPO 1804/1810 FEW010 BKN018 BKN035 RCKH 171700Z 1718/1824 05004KT 6000 FEW015 SCT045 TEMPO 1718/1722 4500 BR TEMPO 1722/1802 2200 BR FEW010 BKN035 BECMG 1801/1803 30008KT 8000 FEW020 SCT100 TEMPO 1804/1810 25008KT BECMG 1812/1814 33004KT TEMPO 1820/1824 06004KT 4000 BR RCMQ 171700Z 1718/1818 34004KT 0800 FG SCT002 BKN010 TX28/1806Z TN20/1720Z BECMG 1720/1723 3200 BR FEW008 BKN040 TEMPO 1800/1805 3200 RA BR FEW004 BKN010 BKN020 BECMG 1806/1809 1600 RA BR SCT002 BKN010 RCNN 171700Z 1718/1818 36004KT 2400 BR FEW012 BKN050 TX28/1806Z TN19/1721Z BECMG 1801/1804 01010KT 6000 FEW012 BKN060 BECMG 1806/1809 01015KT 9000 FEW012 BKN040 RCSS 171700Z 1718/1818 10004KT 5000 BR FEW015 SCT032 BKN060 TEMPO 1720/1802 29006KT 3500 RA FEW008 BKN016 BKN032 BECMG 1803/1805 09010KT TEMPO 1804/1810 5000 RA FEW010 BKN020 BKN035 RCTP 171700Z 1718/1824 17005KT 3500 BR SCT006 BKN012 BKN030 TEMPO 1718/1724 2000 BR SCT002 BKN004 BKN018 BECMG 1800/1802 04016G26KT 6000 SCT008 BKN016 BKN035 TEMPO 1802/1808 03022G34KT 4000 RA SCT005 BKN008 BKN018 TEMPO 1814/1820 FEW010 BKN020 BKN045 RJAA 171706Z 1718/1900 31004KT 9999 FEW015 BKN030 BECMG 1800/1802 18005KT BECMG 1804/1806 4000 -RA BR FEW004 BKN007 BECMG 1806/1809 33006KT TEMPO 1809/1812 2000 BR FEW002 BKN004 BECMG 1812/1815 9999 NSW FEW030 RJAH 171706Z 1718/1900 36004KT 9999 FEW030 BECMG 1723/1801 21006KT TEMPO 1803/1809 3000 RA BR FEW003 BKN005 BECMG 1806/1809 34006KT TEMPO 1809/1812 3000 BR FEW003 BKN005 RJBB 171706Z 1718/1900 07006KT 8000 -RA FEW008 SCT015 BKN030 TEMPO 1719/1803 3500 RA BR BECMG 1804/1806 34020KT TEMPO 1806/1812 34022G33KT BECMG 1818/1821 29018KT RJCB 172105Z 1721/1900 35004KT 9999 FEW008 BKN025 TEMPO 1721/1800 0700 TSSN BKN004 BKN025 FEW025CB BECMG 1722/1800 16015KT TEMPO 1800/1803 16018G30KT 3000 TSRA BR BKN004 BKN025 FEW025CB BECMG 1806/1809 34006KT RJCC 172029Z 1720/1900 18020KT 9999 -SHRA FEW005 BKN025 TEMPO 1720/1801 18034G45KT 3000 TSRA BR BKN005 BKN025 FEW025CB TEMPO 1801/1806 23020G30KT BECMG 1809/1812 34015KT TEMPO 1815/1900 34018G28KT 1500 -SHSN FEW005 BKN008 RJCH 171721Z 1718/1900 15016G26KT 9999 -SHRA FEW008 BKN025 TEMPO 1718/1801 4000 TSRA BR BKN008 BKN025 FEW025CB BECMG 1719/1721 19026G40KT BECMG 1723/1801 30015KT TEMPO 1818/1900 30018G28KT RJCK 171714Z 1718/1900 36006KT 9999 -SHRA FEW003 BKN025 BECMG 1720/1722 18030KT TEMPO 1723/1804 18034G45KT 4000 TSRA BR BKN003 BKN025 FEW025CB BECMG 1804/1806 25015KT BECMG 1815/1818 35006KT RJCM 171719Z 1718/1900 17006KT 9999 FEW020 SCT040 BECMG 1722/1800 19025KT TEMPO 1723/1804 19028G38KT 4000 TSRA BR BKN006 BKN025 FEW025CB BECMG 1806/1809 21005KT BECMG 1812/1815 34008KT TEMPO 1815/1900 2000 -SHSN FEW005 BKN008 RJEC 172156Z 1721/1900 19018KT 9999 -SHSN FEW005 BKN015 TEMPO 1721/1800 0700 SHSN VV005 TEMPO 1800/1804 19026G36KT 4000 SHRA BR FEW005 BKN008 BECMG 1812/1815 32010KT TEMPO 1812/1900 2000 -SHSN RJFF 172123Z 1721/1900 18003KT 9999 FEW010 SCT025 BKN040 BECMG 1721/1723 35015KT TEMPO 1800/1809 35018G28KT RJFK 171716Z 1718/1900 35007KT 8000 -SHRA FEW005 SCT010 BKN020 TEMPO 1718/1721 3000 SHRA BR FEW002 BKN007 BKN015 BECMG 1720/1722 34018KT TEMPO 1721/1723 34020G30KT 4000 SHRA BR TEMPO 1723/1806 34020G30KT BECMG 1812/1815 35006KT RJFM 172154Z 1721/1900 01011KT 9999 FEW010 BKN040 TEMPO 1721/1723 01020G30KT 3000 SHRA BR BECMG 1803/1805 10010KT BECMG 1806/1809 27020KT BECMG 1809/1812 32009KT RJFO 171710Z 1718/1900 26004KT 8000 -SHRA FEW008 SCT010 BKN015 TEMPO 1718/1723 4000 -SHRA BR FEW005 BKN008 BKN015 BECMG 1719/1721 32005KT BECMG 1800/1802 33016KT TEMPO 1801/1806 33017G27KT RJFR 171707Z 1718/1900 21003KT 8000 -SHRA FEW008 SCT020 BKN030 BECMG 1721/1723 32010KT TEMPO 1800/1809 30020G30KT RJFS 171709Z 1718/1900 35005KT 7000 -SHRA FEW010 SCT020 BKN030 TEMPO 1718/1721 3000 SHRA BR BECMG 1800/1802 35015KT TEMPO 1800/1809 35015G25KT RJFT 171710Z 1718/1900 33010KT 9999 -SHRA FEW015 BKN040 TEMPO 1718/1722 3000 SHRA BR FEW005 BKN008 BKN015 TEMPO 1722/1800 4000 -SHRA BR RJFU 171713Z 1718/1900 35015KT 9999 -SHRA FEW010 SCT020 BKN030 TEMPO 1802/1812 35022G33KT RJGG 171705Z 1718/1900 36010KT 6000 -RA FEW008 BKN015 TEMPO 1720/1802 3000 RA BR FEW005 BKN008 TEMPO 1802/1806 4000 -RA BR FEW005 BKN008 BECMG 1806/1809 32028KT TEMPO 1809/1815 32032G42KT RJNK 171706Z 1718/1900 20012KT 9999 FEW030 BKN080 TEMPO 1800/1803 3000 TSRA BR FEW005 BKN008 FEW015CB BECMG 1803/1805 34020G32KT TEMPO 1803/1809 3000 SHRA BR FEW005 BKN008 TEMPO 1809/1812 4000 TSRAGS BR FEW008 BKN015 FEW020CB BECMG 1818/1821 30010KT TEMPO 1821/1900 4000 TSRAGS BR FEW008 BKN015 FEW020CB RJNS 171706Z 1718/1900 32006KT 9999 FEW020 BKN060 TEMPO 1801/1806 3000 SHRA BR FEW005 BKN008 BECMG 1809/1812 27016KT RJNT 171709Z 1718/1900 18012KT 9999 FEW030 SCT060 TEMPO 1802/1805 3000 TSRA BR FEW005 BKN008 FEW015CB BECMG 1803/1805 32008KT TEMPO 1805/1812 4000 -SHRA BR FEW005 BKN008 TEMPO 1812/1818 3000 TSRAGS BR FEW005 BKN008 FEW015CB BECMG 1818/1821 20006KT RJOA 172020Z 1720/1900 32004KT 3000 -RA BR FEW020 BKN040 TEMPO 1720/1801 1500 -RA BR BCFG FEW000 SCT003 BKN008 BECMG 1801/1803 32016KT 9999 NSW TEMPO 1803/1806 32018G28KT BECMG 1815/1818 32006KT RJOB 171705Z 1718/1900 35004KT 8000 -RA FEW005 SCT015 BKN025 TEMPO 1721/1803 4000 -RA BR FEW003 BKN008 BKN015 BECMG 1802/1804 30008KT RJOC 171705Z 1718/1900 25010KT 9000 -SHRA FEW010 BKN025 TEMPO 1720/1723 4000 TSRA BR FEW002 BKN008 BKN015 FEW020CB BECMG 1723/1801 32017KT TEMPO 1809/1815 32020G30KT -TSRA FEW008 SCT015 FEW020CB BKN025 TEMPO 1821/1900 30020G31KT RJOH 171705Z 1718/1900 21008KT 9999 -SHRA FEW020 BKN045 TEMPO 1720/1723 4000 TSRA BR FEW002 BKN008 BKN015 FEW020CB BECMG 1723/1801 28012KT TEMPO 1809/1815 32017G28KT -TSRA FEW008 SCT015 FEW020CB BKN025 TEMPO 1821/1900 28020G32KT RJOI 1721/1821 31005KT 9000 VCSH BR FEW020 SCT045 OVC080 620809 QNH2984INS TEMPO 1721/1801 8000 -SHRA BR FEW020 BKN045 OVC080 FM180100 33010G16KT 9999 SCT015 BKN030 BKN200 600000 510005 QNH2976INS FM180500 34014G20KT 9999 SCT020 BKN035 520005 QNH2978INS BECMG 1808/1810 35012G20KT 9999 FEW015 BKN030 520005 QNH2986INS FM181400 34010KT 9999 FEW015 SCT030 520203 QNH2994INS FM181900 30011KT 9999 SCT015 BKN035 520203 QNH3000INS T14/1804Z T05/1818Z RJOK 171705Z 1718/1900 35014KT 8000 -RA FEW005 SCT020 BKN030 TEMPO 1719/1801 4000 RA BR TEMPO 1801/1809 35020G30KT RJOM 171708Z 1718/1900 12004KT 8000 -RA FEW015 SCT025 BKN050 TEMPO 1718/1800 3000 RA BR FEW003 BKN008 BKN020 BECMG 1722/1800 34005KT BECMG 1803/1805 34020KT RJOO 171709Z 1718/1900 32004KT 8000 -RA FEW008 SCT015 BKN025 TEMPO 1720/1803 3000 RA BR TEMPO 1806/1812 33015G25KT RJOT 172210Z 1722/1900 30007KT 4000 -RA BR FEW003 SCT010 BKN025 TEMPO 1722/1803 1500 -RA BR BCFG FEW000 SCT003 BKN008 BECMG 1803/1805 9999 NSW RJSA 172040Z 1720/1900 20018KT 8000 -SHRA FEW010 SCT020 BKN030 TEMPO 1720/1800 20020G30KT 3000 TSRA BR FEW005 SCT010 BKN020 FEW020CB BECMG 1800/1802 26012KT TEMPO 1800/1812 3000 SHRA BR FEW003 BKN008 BKN020 TEMPO 1812/1900 0700 SHSN FEW002 BKN005 BKN008 RJSF 171716Z 1718/1900 16008KT 9999 FEW020 SCT050 BECMG 1809/1812 32015KT TEMPO 1815/1821 32020G30KT RJSK 171705Z 1718/1900 14008KT 9999 FEW020 BKN040 TEMPO 1723/1802 3000 TSRA BR FEW005 BKN008 BKN020 FEW020CB BECMG 1800/1802 30015KT TEMPO 1802/1812 3000 SHRA BR FEW005 BKN008 BKN020 TEMPO 1812/1818 1500 -SHSNRA FEW005 BKN008 BKN015 TEMPO 1818/1900 30020G30KT 1500 -SHSN FEW005 BKN008 BKN015 RJSN 171708Z 1718/1900 17010KT 9999 FEW030 BECMG 1801/1803 30022KT TEMPO 1801/1804 3000 TSRA BR FEW005 BKN008 FEW015CB TEMPO 1804/1812 4000 -SHRA BR TEMPO 1818/1900 4000 -SHRA BR RJSS 171705Z 1718/1900 30004KT 9999 FEW030 BECMG 1721/1723 23010KT BECMG 1806/1809 30015KT TEMPO 1812/1821 30020G30KT RJTT 171717Z 1718/1900 32005KT 9999 FEW020 BKN040 BECMG 1722/1800 20010KT TEMPO 1803/1809 3000 RA BR FEW005 BKN008 BECMG 1806/1809 35008KT BECMG 1809/1812 34022KT TEMPO 1812/1818 34024G36KT RJTY 172100Z 1721/1903 VRB06KT 9999 FEW030 QNH2985INS BECMG 1802/1803 33009KT 8000 -SHRA SCT015 BKN025 QNH2954INS BECMG 1813/1814 33012G18KT 9999 NSW BKN060 QNH2952INS TX13/1806Z TN02/1818Z RKJK 172226Z 1722/1821 34014KT 9999 SKC QNH3005INS TEMPO 1722/1803 35020G30KT BECMG 1802/1803 36015G20KT 9999 NSW SCT025 QNH3013INS TX05/1806Z TN02/1722Z RKPC 171700Z 1718/1824 35020G35KT 9999 BKN030 TN08/1723Z TX09/1801Z TN06/1818Z BECMG 1811/1812 35015G25KT BECMG 1817/1818 34010KT RKPK 171700Z 1718/1824 30006KT CAVOK TN04/1721Z TX10/1806Z BECMG 1800/1801 30015G25KT 9999 SCT030 SCT200 BECMG 1815/1816 33013KT SCT030 RKSG 172000Z 1720/1902 32012G18KT 9999 FEW030 QNH3009INS BECMG 1820/1821 32004KT 9999 SCT040 QNH3017INS TX03/1806Z TNM03/1722Z RKSI 171700Z 1718/1824 34020G37KT 6000 FEW030 SCT150 TNM03/1721Z TX01/1805Z TNM05/1821Z BECMG 1802/1803 34017G27KT CAVOK TEMPO 1808/1814 33015KT BECMG 1814/1815 35009KT 9999 SCT030 RKSM 171700Z 1718/1824 33008KT 9000 BR BKN030 WND 33006G16KT AFT 1803 TNM05/1721Z TX04/1806Z RKSO 171900Z 1719/1901 32012KT 9999 FEW030 QNH3009INS BECMG 1820/1821 32004KT 9999 SCT040 QNH3017INS TX03/1806Z TNM03/1722Z RKSS 171700Z 1718/1824 33015G28KT 6000 FEW030 TNM06/1721Z TX02/1806Z TNM08/1821Z BECMG 1807/1808 33008KT CAVOK RKTN 172122Z 1721/1824 30010KT 9999 SCT040 TX05/1806Z TNM05/1821Z BECMG 1800/1801 30010G20KT BECMG 1809/1810 30010KT RKTU 171700Z 1718/1824 30008KT 9999 SCT030 TNM03/1721Z TX03/1806Z BECMG 1802/1803 30006G16KT BECMG 1809/1810 30006KT ROAH 171710Z 1718/1900 30013KT 9999 FEW015 BKN045 TEMPO 1718/1719 SHRA FEW010 BKN015 FEW025CB BECMG 1804/1806 01020KT RODN 172235Z 1722/1822 28015KT 9999 SCT015 QNH2976INS BECMG 1803/1804 36018G25KT 9999 FEW020 QNH3006INS TX26/1806Z TN17/1816Z ROIG 171715Z 1718/1900 29006KT 9999 FEW015 SCT040 BECMG 1720/1722 36010KT BECMG 1806/1809 02024KT TEMPO 1809/1818 02026G38KT ROTM 1721/1821 28012G17KT 9999 FEW015 BKN080 QNH2977INS TEMPO 1800/1806 31012G18KT 9000 -SHRA BR SCT018 BKN080 BKN100 FM180730 34012G22KT 9999 VCSH FEW015 SCT080 QNH2982INS TEMPO 1809/1812 9000 -SHRA BR SCT015 BKN080 TEMPO 1815/1821 01015G25KT T23/1721Z T25/1804Z RPLB 171700Z 1718/1818 06006KT 9999 FEW020 BKN300 TX31/1806Z TN24/1721Z TEMPO 1718/1724 05008KT 9000 -SHRA FEW018CB SCT020 BKN080 RPLI 171700Z 1718/1818 28004KT 9999 FEW019 SCT100 BKN280 TEMPO 1718/1724 34002KT FEW018CB FEW019 BKN100 RPLL 171700Z 1718/1824 11006KT 9999 FEW025 SCT100 TX32/1806Z TN26/1721Z TEMPO 1718/1724 VRB02KT FEW023 BKN250 TEMPO 1806/1812 12008KT FEW023 BKN100 RPMD 171700Z 1718/1818 34005KT 9999 FEW016 BKN290 TEMPO 1718/1724 01004KT FEW015CB SCT090 BKN290 RPMZ 171700Z 1718/1818 16004KT 9999 FEW018 BKN300 TEMPO 1718/1724 17002KT 9000 -SHRA FEW017CB SCT019 BKN090 RPVM 171700Z 1718/1824 10006KT 9999 FEW020 SCT100 BKN300 TEMPO 1718/1724 07005KT 9000 -SHRA FEW018CB BKN100 TEMPO 1800/1806 07008KT FEW020 SCT300 SA0Z 1712/1812 34015KT 9999 SCT BKN100 TX20/1718Z TN11/1809Z BECMG 1715/1717 23015G25KT 5000 TSRA BKN015 FEW040CB OVC045 BECMG 1801/1803 25010KT 9999 BKN020 SAAR 171700Z 1718/1818 22020G30KT 7000 NSC TX30/1718Z TN12/1810Z BECMG 1804/1807 20010KT CAVOK BECMG 1814/1816 25015KT SABE 171700Z 1718/1818 34015KT 9999 SCT035 BKN100 TX26/1719Z TN12/18090Z BECMG 1719/1721 23015G25KT PROB30 TEMPO 1722/1801 8000 RA BKN020 BKN045 BECMG 1802/1804 21015KT 9999 SCT025 SCT100 BECMG 1814/1816 25015KT CAVOK SACO 171700Z 1718/1818 16020KT 8000 SCT020 TX30/1719Z TN11/1810Z BECMG 1723/1802 18010KT 9999 SCT020 FEW040CB BECMG 1810/1812 14005KT CAVOK SADF 171700Z 1718/1818 32010KT 9999 FEW030 SCT100 TX26/1718Z TN10/1809Z BECMG 1719/1721 23015G25KT 9999 SCT030 FEW035TCU BKN100 BECMG 1800/1802 23010KT CAVOK SAEZ 171700Z 1718/1818 32015G25KT 9999 SCT030 BKN100TX26/1719Z TN09/1809Z PROB40 TEMPO 1719/1800 23015G25KT 8000 -SHRA BKN040 FEW050CB BECMG 1801/1803 22015KT 9999 SC0300 SAME 171700Z 1718/1818 14010KT 9999 FEW040 TX27/1720Z TN12/1810Z SANR 171700Z 1718/1818 05010KT CAVOK TX32/1719Z TN17/1810Z BECMG 1801/1803 18010KT 9999 BKN020 PROB40 TEMPO 1806/1810 FEW035CB SANT 171700Z 1718/1818 18005KT CAVOK TX31/1719Z TN16/1810Z BECMG 1801/1803 18010KT 9999 BKN020 FEW040CB PROB40 TEMPO 1806/1810 FEW035CB SARE 171700Z 1718/1818 11005KT 9999 SCT035 TX28/1818Z TN16/1809Z PROB30 1807/1811 VRB03KT 3000 BR NSC SARF 171700Z 1718/1818 14005KT 9999 BKN025 TX28/1818Z TN18/1809Z PROB30 1807/1811 VRB03KT 3000 BR NSC SARI 171700Z 1718/1818 36005KT 8000 -TSRA BKN030 BKN040 FEW050CB TX26/1818Z TN19/1809Z TEMPO 1719/1724 9999 BKN30 BKN040 BECMG 1802/1804 3000 BR NSC SARP 171700Z 1718/1818 07005KT 9999 SCT025 TX28/1818Z TN16/1809Z PROB30 1807/1811 VRB03KT 3000 BR NSC SASA 171700Z 1718/1818 05010KT CAVOK TX29/1719Z TN13/1810Z BECMG 1806/1808 32005KT 9999 SCT020 FEW040CB TEMPO 1810/1814 18005KT 5000 SH RA BKN015 FEW035 SASJ 171700Z 1718/1818 05010KT CAVOK TX30/1719Z TN16/1810Z BECMG 1806/1808 27005KT 9999 SCT020 FEW040CB BECMG 1808/1810 18015KT 5000 SH RA BKN015 FEW035 SAVC 171700Z 1718/1818 23025G35KT 9999 SCT025 SCT030 TX15/1719Z TN08/1810Z BECMG 1720/1722 21020KT CAVOK BECMG 1723/1801 VRB03KT BECMG 1808/1810 27020KT 9999 SCT030 BKN100 SAWE 171700Z 1718/1818 23015G25KT 9999 SCT030 TX14/1719Z TN04/1810Z BECMG 1801/1803 29020KT 9999 -RA BKN020 SCT050 BECMG 1810/1812 25025G40KT SAWG 171700Z 1718/1818 23018KT 9999 SCT030 SCT100 TX17/1719Z TN05/1810Z BECMG 1720/1722 27012KT BECMG 1803/1805 29020KT 9999 -RA BKN030 SCT050 BECMG 1810/1812 25030G45KT SAWH 171700Z 1718/1818 25020G30KT 9999 -SHRA BKN030 SCT090 TX12/1719Z TN03/1810Z BECMG 1719/1721 27015KT 9999 NSW SCT020 BECMG 1803/1805 29010KT 8000 -RA BKN020 SCT050 BECMG 1810/1812 25025G35KT SAZM 171700Z 1718/1818 23020G30KT 5000 SHRA BKN015 FEW040CB OVC045 TX19/1818Z TN11/1809Z BECMG 1801/1803 25010KT 9999 BKN020 SAZN 171700Z 1718/1818 25015G25KT CAVOK TX22/1818Z TN08/1809Z BECMG 1722/1801 23015KT BECMG 1815/1817 25025G35KT SAZS 171700Z 1718/1818 29020G30KT 9999 SCT030 SCT100 TX13/1819Z TN02/1809Z BECMG 1803/1806 29015KT SBAF 171339Z 1718/1806 22005KT 9999 FEW025TX39/1718Z TN27/1801Z PROB40 1718/1721 FEW025TCU BECMG 1721/1723 24005KT BECMG 1801/1803 32005KT RMK PHQ SBAN 171600Z 1718/1806 02005KT 8000 BKN030 TX30/1718Z TN19/1805Z PROB40 1718/1719 SHRA BKN030 FEW030TCU PROB30 1719/1721 TS BKN020 FEW040CB BECMG 1721/1723 8000 NSC BECMG 1700/1701 CAVOK RMK PCZ SBAR 171500Z 1718/1806 10009KT 9000 SCT018 TX28/1718Z TN25/1805Z RMK PEU SBAT 171600Z 1718/1806 14003KT 9999 SCT025 FEW035TCU TX30/1719Z TN21/1806Z PROB30 TEMPO 1718/1721 8000 TSRA SCT020 FEW025CB BECMG 1721/1723 31005KT CAVOK RMK PCQ SBBE 171600Z 1718/1818 34010KT 9999 BKN030 FEW035TCU TN24/1809Z TX32/1816Z PROB30 TEMPO 1718/1721 8000 RA BECMG 1723/1801 08010KT CAVOK BECMG 1803/1805 09005KT BECMG 1809/1811 09010KT 9999 SCT020 BECMG 1813/1814 BKN030 BECMG 1816/1817 34010KT BKN030 FEW035TCU RMK PCQ SBBI 171430Z 1718/1806 33006KT 9999 SCT020 TX27/1718Z TN18/1805Z PROB30 1718/1722 4000 TSRA FEW030CB RMK PEB SBBR 171600Z 1718/1818 03005KT 8000 NSC TX29/1718Z TN18/1809Z PROB40 1718/1722 SHRA BKN030 FEW040TCU PROB30 1720/1721 TS BKN020 FEW040CB BECMG 1722/1724 8000 NSC BECMG 1700/1701 03005KT CAVOK PROB40 1708/1712 07008KT BKN010 BECMG 1712/1714 8000 NSC RMK PCZ SBBU 171430Z 1718/1806 35010KT CAVOK TX31/1718Z TN22/1805Z PROB30 1718/1721 8000 SHRA SCT030 FEW035TCU BECMG 1721/1724 19004KT RMK PEB SBBV 171600Z 1718/1818 09010KT 9999 BKN035 FEW040TCU TX35/1718Z TN26/1809Z BECMG 1719/1721 15005KT SCT035 FEW040TCU BECMG 1723/1801 09005KT FEW030 BECMG 1803/1805 06002KT BECMG 1807/1809 CAVOK BECMG 1811/1813 09010KT 9999 SCT030 BECMG 1815/1817 11010KT BKN030 FEW035TCU RMK PCQ SBBW 171600Z 1718/1806 02005KT 8000 NSC TX31/1818Z TN21/1704Z PROB30 1718/1723 TSRA SCT020 FEW040CB BECMG 1723/1801 00000KT CAVOK RMK PCZ SBCF 171600Z 1718/1818 35008KT 8000 NSC TX28/1718Z TN17/1807Z PROB40 1718/1720 FEW030TCU BECMG 1722/1724 CAVOK BECMG 1800/1801 11005KT BECMG 1812/1814 05008KT 8000 NSC RMK PCZ SBCG 171430Z 1718/1818 35010KT 9999 SCT030 TX30/1718Z TN22/1808Z PROB40 TEMPO 1808/1816 35014KT 6000 TSRA FEW040CB RMK PEB SBCJ 171600Z 1718/1806 06005KT 9999 SCT025 FEW030TCU TX30/1718Z TN20/1806Z BECMG 1719/1721 00000KT CAVOK BECMG 1803/1805 SCT015 RMK PCQ SBCO 171430Z 1718/1806 12010KT 9999 SCT020 TX26/1718Z TN19/1805Z RMK PEB SBCP 171339Z 1718/1806 08020KT CAVOK TX32/1718Z TN26/1722Z BECMG 1801/1803 03010KT RMK PHQ SBCR 171430Z 1718/1818 36008KT 9999 SCT030 TX34/1718Z TN25/1808Z PROB30 1718/1722 6000 TSRA FEW040CB PROB30 1805/1809 35004KT 5000 TSRA FEW040CB RMK PEB SBCT 171430Z 1718/1818 36007KT 9999 SCT020 TX27/1718Z TN17/1808Z PROB30 TEMPO 1718/1722 4000 TSRA FEW030CB PROB30 1805/1811 03008KT 4000 BR BKN008 RMK PEB SBCY 171600Z 1718/1818 32008KT 9999 SCT020 TX36/1718Z TN25/1807Z PROB30 TEMPO 1718/1721 8000 TSRA SCT020 FEW025CB BECMG 1722/1724 33005KT CAVOK BECMG 1809/1811 33008KT BECMG 1813/1815 9999 SCT020 RMK PCQ SBDN 171430Z 1718/1806 05008KT 9999 SCT030 TX29/1718Z TN22/1805Z PROB30 1718/1721 7000 TSRA SCT030 FEW035CB BECMG 1721/1724 07004KT RMK PEB SBEG 171600Z 1718/1818 04008KT 9999 SCT020 FEW025TCU TX32/1718Z TN24/1805Z PROB30 TEMPO 1718/1721 8000 TSRA SCT015 FEW025CB BECMG 1721/1723 04002KT FEW020 BECMG 1723/1801 00000KT CAVOK BECMG 1803/1805 15002KT 9999 FEW010 BECMG 1807/1809 SCT007 BECMG 1811/1813 20005KT SCT015 BECMG 1815/1817 070005KT SCT020 FEW025TCU RMK PCQ SBFI 171430Z 1718/1818 36007KT 9999 BKN012 TX30/1718Z TN22/1808Z PROB30 1718/1722 19008KT 4000 TSRA FEW035CB PROB40 1804/1811 00000KT 4000 RA BKN010 BKN020 RMK PEB SBFL 171430Z 1718/1818 28007KT 9999 BKN025 TX25/1718Z TN19/1808Z PROB30 1718/1720 19006KT 8000 RA PROB30 TEMPO 1809/1814 00000KT 4000 RA RMK PEB SBFN 171500Z 1718/1806 13013KT 9999 SCT018 TX29/1718Z TN26/1722Z RMK PEU SBFZ 171500Z 1718/1818 09013KT 9999 SCT025 TN26/1807Z TX30/1814Z BECMG 1805/1806 9000 BKN018 BECMG 1809/1811 09016KT 8000 BECMG 1815/1816 SCT025 RMK PEU SBGL 171339Z 1718/1824 15015KT 9999 FEW025TX38/1718Z TN25/1807Z PROB40 1718/1721 FEW025TCU BECMG 1722/1724 10005KT BECMG 1803/1805 34005KT BECMG 1815/1817 14015KT PROB40 1819/1821 TS SCT020 FEW025CB BECMG 1822/1824 09005KT RMK PHQ SBGO 171600Z 1718/1818 03005KT 8000 NSC TX32/1718Z TN17/1808Z PROB40 1718/1719 SHRA SCT030 FEW030TCU PROB30 1719/1721 TS SCT020 FEW040CB BECMG 1722/1724 8000 NSC BECMG 1700/1701 02005KT CAVOK BECMG 1715/1717 06008KT 8000 NSC RMK PCZ SBGR 171630Z 1718/1824 32010KT CAVOK TN19/1809Z TX30/1816Z BECMG 1720/1722 SCT040 FEW045TCU PROB40 1723/1803 04010KT 8000 TSRA BKN020 FEW040CB BECMG 1803/1805 06005KT CAVOK BECMG 1811/1813 31010G25KT SCT035 PROB40 1816/1819 8000 TSRA BKN030 FEW045CB BECMG 1819/1821 29005KT 8000 RA SCT010 BKN015 RMK PGG SBGW 171339Z 1718/1806 22010KT 7000 SCT030TX33/1720Z TN22/1723Z TEMPO 1719/1724 30015G25KT 5000 TSRA BKN020 FEW030CB BECMG 1802/1804 06005KT RMK PHQ SBIH 171600Z 1718/1806 14008KT 8000 FEW025 TX34/1719Z TN22/1806Z BECMG 1719/1721 00000KT 6000 FEW020 FEW025TCU BECMG 1723/1801 5000 BR FEW005 RMK PCQ SBIL 171500Z 1718/1806 07007KT 9999 SCT020 TX27/1718Z TN23/1805Z RMK PEU SBIZ 171600Z 1718/1806 07008KT 9999 SCT020 FEW025TCU TX34/1718Z TN25/1806Z BECMG 1723/1801 00000KT 9999 SCT015 RMK PCQ SBJP 171500Z 1718/1818 11012KT 9999 SCT020 SCT040 TN22/1808Z TX30/1814Z BECMG 1723/1801 13007KT BECMG 1810/1811 11013KT 9000 BKN020 BECMG 1816/1817 SCT025 RMK PEU SBJV 171430Z 1718/1806 10005KT 9999 BKN015 TX25/1718Z TN21/1805Z PROB40 TEMPO 1718/1722 02010KT 5000 TSRA FEW035CB RMK PEB SBKG 171500Z 1718/1806 11010KT 9999 SCT020 SCT045 TX29/1718Z TN21/1805Z BECMG 1801/1802 BKN010 RMK PEU SBKP 171630Z 1718/1818 33010KT 9999 FEW035TN19/1809Z TX31/1816Z BECMG 1720/1722 SCT040 FEW050TCU PROB40 1723/1803 04010KT 8000 TSRA BKN030 FEW045CB BECMG 1803/1805 09005KT CAVOK BECMG 1810/1812 33010G25KT SCT035 PROB40 1815/1818 8000 TSRA BKN030 FEW045CB RMK PGG SBLO 171430Z 1718/1806 36005KT 9999 FEW020 TX27/1718Z TN23/1805Z PROB30 1718/1720 33008KT 5000 TSRA SCT030 FEW035CB RMK PEB SBLP 171500Z 1718/1806 09006KT 9999 SCT020 TX33/1719Z TN27/1805Z RMK PEU SBME 171339Z 1718/1806 09015KT CAVOK TX36/1718Z TN23/1806Z BECMG 1722/1724 04010KT RMK PHQ SBMN 171600Z 1718/1818 11008KT 9999 SCT020 FEW025TCU TX33/1718Z TN24/1806Z PROB30 TEMPO 1718/1721 8000 TSRA SCT015 FEW025CB BECMG 1721/1723 10005KT FEW020 BECMG 1723/1801 18002KT CAVOK BECMG 1803/1805 15003KT 9999 FEW010 BECMG 1807/1809 SCT005 BECMG 1811/1813 21005KT SCT015 BECMG 1815/1817 12008KT SCT020 FEW025TCU RMK PCQ SBMO 171500Z 1718/1818 10012KT 9999 SCT020 TN22/1807Z TX29/1815Z BECMG 1722/1724 08006KT BECMG 1810/1812 10011KT RMK PEU SBMQ 171600Z 1718/1818 06015KT 9999 SCT030 TN26/1807Z TX35/1815Z BECMG 1719/1721 05010KT CAVOK BECMG 1723/1801 SCT020 BECMG 1803/1805 03005KT CAVOK BECMG 1809/1811 09010KT 9999 SCT020 BECMG 1813/1815 06015KT RMK PCQ SBNF 171430Z 1718/1818 14008KT 9999 BKN025 TX25/1718Z TN19/1808Z PROB30 1722/1803 03016KT PROB40 TEMPO 1804/1814 22008KT 8000 RA BKN012 BKN020 RMK PEB SBNT 171500Z 1718/1818 12012KT 9999 SCT025 TN25/1806Z TX30/1815Z BECMG 1806/1807 13008KT BECMG 1809/1811 12016KT BKN023 BECMG 1815/1816 SCT025 RMK PEU SBPJ 171600Z 1718/1806 36007KT 8000 NSC TX31/1718Z TN24/1804Z PROB40 1718/1719 SHRA SCT020 FEW030TCU PROB30 1719/1721 TS SCT020 FEW040CB RMK PCZ SBPL 171500Z 1718/1818 13009KT 9999 SCT030 TN23/1807Z TX33/1817Z BECMG 1800/1801 CAVOK BECMG 1807/1809 9999 BKN025 BECMG 1812/1814 SCT025 RMK PEU SBPS 171500Z 1718/1818 08007KT 8000 SCT020 SCT040 TN22/1807Z TX27/1814Z BECMG 1805/1806 26005KT BECMG 1809/1811 07009KT RMK PEU SBRB 171600Z 1718/1818 33015KT 9999 BKN030 FEW035TCU TX31/1719Z TN23/1807Z PROB30 TEMPO 1718/1721 8000 TSRA SCT030 FEW035CB BECMG 1723/1801 CAVOK BECMG 1811/1813 9999 SCT025 BECMG 1815/1817 BKN025 RMK PCQ SBRF 171500Z 1718/1818 12010KT 9999 SCT025 TN25/1808Z TX29/1814Z BECMG 1808/1810 10010KT RMK PEU SBRJ 171339Z 1718/1806 17015KT 9999 FEW025TX38/1718Z TN28/1806Z PROB40 1718/1721 FEW025TCU BECMG 1721/1723 17005KT BECMG 1801/1803 33005KT RMK PHQ SBRP 171630Z 1718/1818 30007KT 9999 SCT040TN20/1809Z TX34/1817Z PROB30 1721/1802 14010KT 8000 TSRA BKN030 FEW045CB BECMG 1802/1804 10005KT CAVOK BECMG 1812/1814 33010KT SCT035 PROB30 1817/1818 8000 TSRA BKN030 FEW045CB RMK PGG SBSC 171339Z 1718/1806 23015KT 9999 FEW025TX38/1718Z TN24/1806Z PROB40 1718/1721 FEW025TCU BECMG 1721/1723 22005KT BECMG 1802/1804 04005KT RMK PHQ SBSJ 171339Z 1718/1818 14010KT 9999 SCT030TX29/1718Z TN18/1808Z TEMPO 1719/1724 30015G25KT 5000 TSRA BKN020 FEW030CB BECMG 1801/1803 06005KT BECMG 1806/1809 36007KT 7000 SCT012 BECMG 1811/1813 07005KT 9999 SCT025 BECMG 1815/1817 33015KT SCT025 FEW030TCU RMK PHQ SBSL 171600Z 1718/1818 04020KT 9999 SCT017 FEW025TCU TN26/1805Z TX31/1814Z BECMG 1719/1721 05012KT CAVOK BECMG 1803/1805 9999 9999 SCT017 BECMG 1809/1811 08010KT BKN020 BECMG 1815/1817 04020KT FEW020 RMK PCQ SBSM 171430Z 1718/1806 10008KT 9999 SCT020 TX25/1718Z TN18/1805Z RMK PEB SBSN 171600Z 1718/1818 07010KT 9999 SCT020 TN27/1808Z TX33/1816Z BECMG 1719/1721 CAVOK BECMG 1723/1801 09005KT BECMG 1805/1807 09010KT BECMG 1809/1811 06012KT 9999 SCT017 BECMG 1813/1815 09015KT RMK PCQ SBSP 171630Z 1718/1818 34010KT CAVOK TN20/1809Z TX30/1816Z BECMG 1720/1722 SCT040 FEW045TCU PROB40 1723/1803 03010KT 8000 TSRA BKN020 FEW040CB BECMG 1803/1805 33005KT CAVOK BECMG 1811/1813 31010G25KT SCT035 PROB40 1816/1818 8000 TSRA BKN025 FEW040CB RMK PGG SBSV 171500Z 1718/1818 08010KT 9999 SCT018 SCT045 TN24/1807Z TX28/1814Z BECMG 1800/1801 07008KT BECMG 1804/1805 05005KT BECMG 1810/1812 09010KT RMK PEU SBTE 171500Z 1718/1806 27006KT 9999 SCT030 TX36/1718Z TN27/1805Z BECMG 1801/1802 35005KT CAVOK RMK PEU SBTT 171600Z 1718/1818 07005KT 9999 SCT015 FEW020TCU TX28/1719Z TN21/1806Z BECMG 1719/1721 27002KT FEW020 FEW025TCU BECMG 1723/1801 00000KT CAVOK BECMG 1807/1809 02002KT 9999 SCT010 BECMG 1811/1813 18002KT SCT015 BECMG 1815/1817 31005KT RMK PCQ SBUG 171430Z 1718/1818 17008KT CAVOK TX26/1718Z TN16/1808Z RMK PEB SBUL 171630Z 1718/1806 33008KT 8000 TSRA FEW035 FEW045CBTX24/1721Z TN21/1805Z BECMG 1720/1722 04005KT 9999 NSW FEW040 BECMG 1802/1804 34005KT CAVOK RMK PGG SBUR 171630Z 1718/1806 31008KT 8000 TSRA SCT035 FEW045CBTX26/1719Z TN21/1805Z BECMG 1720/1722 16005KT 9999 NSW FEW040 BECMG 1800/1802 04005KT CAVOK RMK PGG SBVH 171600Z 1718/1806 31010KT 9999 SCT020 FEW025TCU TX30/1718Z TN19/1806Z BECMG 1719/1721 31005KT SCT030 FEW035TCU BECMG 1723/1801 CAVOK RMK PCQ SBVT 171500Z 1718/1818 05013KT 9999 SCT025 TN23/1808Z TX30/1814Z BECMG 1722/1724 01009KT BECMG 1806/1807 03010KT BECMG 1813/1814 05014KT RMK PEU SBYS 171630Z 1718/1806 33010KT 9999 SCT040 FEW050TCUTX32/1718Z TN20/1805Z PROB40 1722/1802 04010KT 8000 TSRA BKN030 FEW045CB BECMG 1802/1804 VRB02KT CAVOK RMK PGG SCAR 171630Z 1718/1818 21014KT CAVOK TX22/1718Z TN17/1805Z BECMG 1723/1801 18004KT OVC025 BECMG 1816/1818 22014KT CAVOK SCAT 171630Z 1718/1818 32017KT 9999 SCT030 TX21/1718Z TN14/1806Z BECMG 1800/1802 16005KT 8000 OVC017 BECMG 1808/1810 32010KT BECMG 1816/1818 28014KT CAVOK SCBA 171657Z 1718/1818 31020KT 9999 FEW030 TX12/1718Z TN04/1809Z TEMPO 1809/1814 8000 -SHRA BKN025 BECMG 1810/1812 29030G40KT SCCF 171630Z 1718/1818 28025KT CAVOK TX25/1718Z TN08/1806Z BECMG 1801/1803 24010KT BECMG 1804/1806 11015KT BECMG 1813/1814 09005KT BECMG 1816/1818 28025KT SCCI 171640Z 1718/1818 27020KT 9999 SCT035 TN03/1811Z TX12/1718Z TEMPO 1718/1723 23028G40KT TEMPO 1721/1802 9000 -SHRA SCT020 BKN030 BECMG 1803/1805 25020G30KT 8000 -RA SCT015 BKN028 BECMG 1812/1814 23025G35KT 9000 -SHRA SCT035 PROB30 TEMPO 1814/1818 5000 SHRASN SHGR SCT015 BKN025 SCDA 171630Z 1718/1818 21012KT 9999 BKN040 TX19/1718Z TN16/1806Z BECMG 1719/1721 FEW035 BECMG 1723/1801 OVC027 BECMG 1802/1804 36004KT BECMG 1814/1816 22012KT CAVOK SCEL 171625Z 1718/1818 21015KT CAVOK TX26/1719Z TN08/1810Z TEMPO 1719/1722 SCT180 BECMG 1801/1803 15006KT TEMPO 1807/1812 VRB02KT 7000 NSC BECMG 1814/1816 17006KT SCFA 171630Z 1718/1818 20015KT 9999 SCT040 TX19/1718Z TN16/1805Z BECMG 1722/1800 BKN030 BECMG 1800/1802 18004KT BECMG 1806/1808 36010KT BECMG 1814/1816 20015KT FEW027 SCIE 171625Z 1718/1818 21015KT CAVOK TX19/1718Z TN10/1810Z TEMPO 1712/1714 00000KT SCT012 BKN035 BECMG 1716/1718 23017KT BECMG 1800/1802 18012KT BECMG 1806/1808 20008KT SCIP 171630Z 1718/1818 08015KT 9999 BKN020 BKN050 TX22/1720Z TN17 /1810Z TEMPO 1718/1723 05015G25KT 5000 SHRA/-TS SCT015CB BKN020 OVC030 BECMG 1802/1804 05013KT SCT020 SCT040 TEMPO 1808/1812 08008KT 6000 -SHRA BKN020 BKN040 BECMG 1816/1818 05013KT SCJO 171015Z 1712/1724 23005KT 9999 BKN050 TN08/1712Z TX13/1718Z BECMG 1714/1716 20010KT BKN040 BECMG 1722/1724 SCT060 SCNT 171050Z 1712/1800 24015KT 9999 FEW040 TN05/1712Z TX11/1718Z TEMPO 1712/1714 FEW025 SCT035 BECMG 1716/1718 27015KT SCPQ 171018Z 1712/1724 22005KT 9999 SCT040 TN08/1712Z TX12/1718 BECMG 1714/1716 19008KT CAVOK SCQP 171656Z 1718/1818 20007KT 9999 BKN040 TX16/1719Z TN02/1809Z SCSE 171625Z 1718/1818 28012KT CAVOK TX19/1718Z TN11/1810Z BECMG 1800/1802 30005KT BECMG 1805/1807 12004KT TEMPO 1806/1812 VRB02KT BKN012 BECMG 1814/1816 28008KT SCTE 171657Z 1718/1818 20007KT 9999 BKN035 TX13/1718Z TN05/1808Z BECMG 1802/1804 VRB02KT BECMG 1816/1818 8000 -RA BKN025 BKN070 SCVD 171014Z 1712/1724 VRB02KT 9999 BKN050 TN06/1712Z TX14/1718Z TEMPO 1712/1713 3000 BR BECMG 1714/1716 20005KT BKN040 BECMG 1718/1720 SCT050 BECMG 1722/1724 CAVOK SELT 171230Z 1712/1812 17008KT 9999 SCT030 SCT100 FM171800 18016KT 9999 BKN030 BKN100 FM180200 16005KT 9999 FEW010 BKN030 TX21/1719Z TN10/1811Z SKBG 171700Z 171818 14007KT 9999 FEW015 SCT090 BECMG 1720/1721 32008KT TEMPO 1807/1812 VRB02KT 4000 BCFG SCT005 TX27/1718Z TN18/1811Z SKBO 171700Z 171818 28006KT 9999 SCT020 OVC090 TEMPO 1720/1723 8000 DZRA SCT017TCU BECMG 1802/1804 VRB02KT FEW020 SCT090 BECMG 1814/1816 27008KT SCT020 BKN090 TX20/1718Z TN09/1811Z SKBQ 171700Z 171818 16010KT 9999 SCT020 BKN090 TEMPO 1720/1723 8000 SHRA SCT015CB TEMPO 1809/1813 00000KT 5000 BR BKN010 TX31/1718Z TN24/1811Z SKCC 171700Z 171818 24007KT 9999 FEW020 SCT090 TEMPO 1802/1810 13005KT TX34/1718Z TN23/1811Z SKCG 171700Z 171818 19008KT 9999 SCT015 BKN090 TEMPO 1719/1722 8000 DZ SCT015CB TEMPO 1801/1809 02006KT FEW020 TX31/1718Z TN25/1811Z SKCL 171700Z 171818 34008KT 9999 SCT020 BKN250 BECMG 1723/1801 VRB02KT FEW017 BKN120 TEMPO 1810/1813 7000 VCFG TX30/1719Z TN19/1811Z SKLT 171700Z 171818 32008KT 9999 SCT017 BKN090 TEMPO 1719/1721 8000 DZ SCT015CB BECMG 1721/1722 00000KT FEW020 SCT090 TEMPO 1802/1808 CAVOK TX33/1718Z TN23/1811Z SKPE 171700Z 171818 29006KT 9999 SCT017 SCT080 PROB40 TEMPO 1719/1721 8000 VCSH SCT017TCU BECMG 1723/1801 VRB02KT PROB30 TEMPO 1805/1808 8000 DZ TEMPO 1810/1814 5000 BR SCT010 TX25/1718Z TN18/1811Z SKRG 171700Z 171818 07008KT 9999 SCT017 SCT200 PROB40 TEMPO 1720/1723 8000 VCSH SCT015TCU BECMG 1723/1724 VRB02KT BKN015 PROB40 TEMPO 1804/1807 8000 DZRA TEMPO 1810/1813 5000 BR BECMG 1813/1814 FEW013 TX22/1718Z TN12/1811Z SKSP 171700Z 171818 35010KT 300V050 9999 FEW018 SCT200 BECMG 1723/1801 01008KT TX31/1719Z TN26/1811Z SOCA 171700Z 1718/1818 09010KT 9999 FEW038 FM180000 VRB02KT 9999 FEW018 PROB30 TEMPO 1806/1811 4000 SHRA FEW012TCU PROB40 TEMPO 1815/1818 3000 SHRA SCT012TCU PROB30 TEMPO 1816/1818 1000 TSRA FEW010CB SPCL 171700Z 1718/1818 35004KT 9999 SCT020 BKN080 TX32/1720Z TN23/1811Z TEMPO 1718/1721 03004KT FEW030TCU BKN100 BECMG 1721/1801 00000KT 9999 SCT080 SPGM 171700Z 1718/1818 09002KT 8000 SCT015 OVC080 TX28/1719Z TN20/1811Z TEMPO 1718/1721 4000 -RA BR BKN020 OVC080 TEMPO 1812/1814 6000 SCT015 OVC090 FM181600 06003KT 9999 FEW040 BKN110 SPHI 171700Z 1718/1818 19016KT CAVOK TX25/1720Z TN16/1811Z FM180400 19007KT CAVOK BECMG 1806/1810 9999 BKN020 FM181600 19016KT CAVOK SPHO 171700Z 1718/1818 35010KT 9999 FEW040TCU BKN080 TX27/1719Z TN09/1811Z TEMPO 1719/1722 06010KT 9000 -TSRA FEW040CB BKN100 SPHY 171700Z 1718/1818 01010KT 9999 FEW016 SCT070 TX17/1719Z TN00/1811Z TEMPO 1719/1722 FEW020TCU BKN060 BECMG 1723/1802 00000KT 9999 SPJC 171700Z 1718/1818 28008KT 9999 SCT020 TX23/1719Z TN16/1810Z TEMPO 1819/1822 CAVOK BECMG 1723/1802 19006KT 9999 OVC016 FM181500 17012KT CAVOK SPJI 171700Z 1718/1818 00000KT 9999 BKN030 TX32/1720Z TN18/1811Z TEMPO 1718/1722 03008KT 3000 SHRA SCT010 FEW020TCU BKN100 SPJL 171700Z 1718/1818 28005KT 9999 SCT020 TX18/1719Z TN05/1810Z TEMPO 1721/1801 20011KT 8000 RA SCT015TCU OVC080 SPJR 171700Z 1718/1818 18006KT 9999 SCT027 BKN120 TX24/1719Z TN10/1811Z TEMPO 1719/1722 RA SCT025 OVC043 OVC080 FM172200 13006KT 9999 SCT026 OVC060 BECMG 1808/1812 00000KT SCT025 BKN040 SPLO 171700Z 1718/1818 19010KT CAVOK TX22/1719Z TN17/1811Z SPME 171700Z 1718/1818 28011KT 9999 SCT014 SCT017 TX27/1719Z TN20/1811Z FM172300 26004KT 9999 FEW017 BKN023 TEMPO 1812/1814 OVC012 SPMS 171700Z 1718/1818 01008KT 9999 SCT020 BKN100 TX33/1718Z TN21/1811Z TEMPO 1718/1722 03004KT 7000 -RA BKN020 BKN080 BECMG 17221801 00000KT 9999 SCT100 SPQT 171700Z 1718/1818 02006KT 9000 SCT020 BKN100 TX31/1720Z TN23/1811Z TEMPO 1718/1722 06008KT 3000 SHRA SCT020 FEW010TCU BKN080 BECMG 1722/1802 29004KT 9999 FEW010 SCT080 SPQU 171700Z 1718/1818 25010KT 9999 SCT090 TX20/1719Z TN11/1811Z FM180000 VRB04KT 9999 CAVOK BECMG 1811/1813 25010KT SPRU 171700Z 1718/1818 17010KT 9999 SCT050 TX22/1720Z TN16/1811Z TEMPO 1718/1720 9000 SCT035 FM180400 14008KT 8000 BKN020 BECMG 1808/1813 5000 BR OVC020 FM181800 17010KT 9999 FEW050 SPSO 171700Z 1718/1818 29010KT CAVOK TX23/1720Z TN14/1810Z FM172200 22016KT CAVOK FM180400 21008KT CAVOK TEMPO 1810/1813 5000 BR SCT020 FM181800 24012KT CAVOK SPST 171700Z 1718/1818 36008KT 9999 SCT020 BKN080 TX34/1719Z TN22/1811Z TEMPO 1718/1722 01010G22KT 8000 -RA SCT015TCU BKN070 FM180100 VRB02KT 9999 SCT025 BKN100 TEMPO 1812/1814 3000 BR SCT010 OVC050 SPTN 171700Z 1718/1818 20009KT CAVOK TX24/1719Z TN16/1811Z FM180000 22005KT 9999 BKN025 SPTU 171700Z 1718/1818 28005KT 9000 SCT012 TX28/1720Z TN22/1811Z TEMPO 1718/1720 33008KT 9999 BKN010 FM172200 00000KT 9999 FEW020 SPYL 171700Z 1718/1818 23013KT CAVOK TX27/1719Z TN19/1811Z SPZO 171700Z 1718/1818 29010KT 9999 FEW040TCU SCT050 BKN100 TX23/1719Z TN07/1811Z TEMPO 1718/1720 29015KT TEMPO 1720/1723 09015KT 8000 -TSRA FEW050CB SCT060 BKN080 FM180200 00000KT 9999 SCT040 BKN100 SUAA 171730Z 1718/1818 32010KT 9999 FEW025 TX19/1818Z TN12/1810Z TEMPO 1720/1804 20015KT 5000 TSRA BKN020 FEW040CB OVC070 SUCA 171730Z 1718/1818 32010KT 9999 FEW025 TX19/1818Z TN12/1810Z TEMPO 1720/1804 20015KT 5000 TSRA BKN020 FEW040CB OVC070 SULS 171730Z 1718/1818 32010KT 9999 FEW025 TX19/1818Z TN12/1810Z TEMPO 1720/1804 20015KT 5000 TSRA BKN020 FEW040CB OVC070 SUMU 171730Z 1718/1818 32010KT 9999 FEW025 TX19/1818Z TN12/1810Z TEMPO 1720/1804 20015KT 5000 TSRA BKN020 FEW040CB OVC070 SURV 171730Z 1718/1818 14010KT 9999 FEW025 TX24/1818Z TN10/1810Z SYCJ 171712Z 1718/1818 08012KT 9999 SCT020 BECMG 1723/1801 FEW016 BECMG 1805/1807 VRB02KT 3000 BR SCT012 SCT038 SYEB 171126Z 1712/1723 06008KT 9999 BKN020 SCT038 TEMPO 1720/1723 5000 TS SHRA BKN018 BKN034 SYEC 171712Z 1718/1818 06014KT 9999 BKN016 BECMG 1723/1801 05008KT SCT015 TEMPO 1805/1810 04006KT 6000 SHRA BKN012 BKN038 SYKA 171126Z 1712/1723 06006KT 9999 BKN020 BECMG 1716/1723 5000 TS SHRA FEW012CB BKN036 SYKM 171126Z 1712/1723 06006KT 9999 BKN020 BECMG 1716/1723 5000 TS SHRA FEW012CB BKN036 SYLT 171126Z 1712/1723 05012KT 9999 BKN024 SCT040 SYMB 171126Z 1712/1723 10010KT 9999 BKN020 TEMPO 1716/1720 5000 TS FEW012CB BKN034 TAPA 171700Z 1718/1818 16006KT 9999 FEW022 PROB30 TEMPO 1718/1723 SHRA TBPB 171105Z 1712/1812 11010KT 9999 SCT018 TFFF 171700Z 1718/1818 12010KT 9999 SCT030 BECMG 1722/1724 VRB04KT PROB30 TEMPO 1806/1810 4000 SHRA FEW015TCU TFFR 171700Z 1718/1818 15010KT 9999 SCT025 BECMG 1722/1724 VRB04KT PROB30 TEMPO 1806/1810 4000 SHRA FEW015TCU TIST 171720Z 1718/1818 11013KT P6SM VCSH SCT025 BKN120 FM172300 17005KT P6SM VCSH SCT030 BKN100 FM180800 17007KT P6SM VCSH SCT025 BKN150 FM181600 20012KT P6SM VCTS SCT025CB OVC100 NOT SKED TISX 171720Z 1718/1818 15003KT P6SM VCSH SCT025 BKN150 FM172300 17005KT P6SM VCSH SCT030 BKN100 FM180800 17007KT P6SM VCSH SCT025 BKN150 FM181200 20012KT P6SM VCTS SCT020CB OVC100 NOT SKED TJBQ 171720Z 1718/1818 24005KT P6SM VCSH SCT020 FM180000 VRB02KT P6SM VCSH SCT025 BKN120 FM181200 23005KT P6SM VCSH SCT025 BKN050 FM181500 22008KT P6SM VCTS SCT025CB OVC150 NOT SKED 1702/1711 TJMZ 171720Z 1718/1818 20005KT P6SM SCT030 OVC150 FM180000 VRB02KT P6SM VCSH SCT025 BKN120 FM181200 23005KT P6SM VCSH SCT025 BKN050 FM181500 22008KT P6SM VCTS SCT025CB OVC150 NOT SKED TJPS 171720Z 1718/1818 17006KT P6SM VCSH SCT017 BKN170 FM180000 VRB02KT P6SM VCSH SCT025 BKN120 FM181200 23005KT P6SM VCSH SCT025 BKN050 FM181500 22008KT P6SM VCTS SCT025CB OVC100 NOT SKED TIL 180300 TJSJ 171720Z 1718/1818 12010KT P6SM VCSH FEW018 FEW030 SCT050 FM172200 VRB03KT P6SM VCTS SCT030CB BKN120 FM180600 24004KT P6SM SCT025 BKN150 FM180900 VRB03KT P6SM VCTS SCT020CB BKN250 TKPK 171720Z 1718/1818 19008KT P6SM VCSH SCT021 FM180000 17005KT P6SM SCT025 BKN100 FM181200 18005KT P6SM VCSH SCT025 BKN050 NOT SKED TIL 181100 TKPN 171700Z 1718/1818 16006KT 9999 FEW022 PROB30 TEMPO 1718/1723 SHRA TNCB 171715Z 1718/1824 13006KT 9999 SCT020 TEMPO 1718/1720 VRB10G20KT 6000 SHRA TSRA SCT018CB PROB30 TEMPO 1806/1818 VRB10G20KT 6000 SHRA SCT018CB TNCM 171720Z 1718/1818 15005KT P6SM VCSH SCT020 FM180000 17005KT P6SM SCT025 BKN100 FM181200 18005KT P6SM VCSH SCT025 BKN050 TQPF 171700Z 1718/1818 16006KT 9999 FEW022 PROB30 TEMPO 1718/1723 SHRA PROB40 TEMPO 1723/1818 SHRA FEW012CB BKN014 TRPG 171700Z 1718/1818 13006KT 9999 FEW022 PROB30 TEMPO 1718/1723 SHRA TUPJ 171700Z 1718/1818 16006KT 9999 FEW022 PROB30 TEMPO 1718/1723 SHRA BKN014 PROB40 TEMPO 1723/1818 SHRA FEW012CB BKN014 TXKF 171731Z 1718/1818 30015KT 8000 SHRA BKN018 OVC100 BECMG 1718/1719 35018KT 9999 -SHRA SCT020 BKN030 BECMG 1719/1721 NSW BECMG 1816/1818 01008KT FEW035 UAAA 171700Z 1718/1818 16005MPS 1200 BR FU SCT050 BKN100 TX07/1809Z TNM08/1801Z TEMPO 1718/1803 0200 FZFG VV001 BECMG 1805/1806 04005MPS 5000 BECMG 1811/1812 16005MPS 2000 TEMPO 1814/1818 0500 FZFG UACC 171700Z 1718/1818 20009MPS 9999 BKN007 BKN020 TX01/1809Z TNM01/1721Z TEMPO 1718/1724 3000 -SNRA BR SCT004 FM180000 22006MPS 4000 SNRA BKN007 OVC020 TEMPO 1800/1809 1500 SHRASN SCT004 BKN010CB FM180900 32006MPS 5000 -SNRA BKN007 BKN020 TEMPO 1809/1815 2000 SHSNRA SCT004 BKN010CB UAII 171700Z 1718/1818 11005MPS 2000 BR FU SCT050 BKN100 TX13/1809Z TNM01/1801Z TEMPO 1718/1801 16004MPS 1200 BECMG 1802/1804 23007G12MPS 6000 NSW UAKK 171700Z 1718/1818 18010MPS 9999 BKN020 BKN100 TX03/1809Z TNM03/1723Z TEMPO 1720/1802 2000 BR SCT004 BKN008 BECMG 1802/1804 22010G15MPS SCT007 BKN015 OVC100 BECMG 1806/1808 5000 -SHSNRA BKN015CB TEMPO 1808/1818 2000 SHSNRA SCT005 BKN010CB UATE 171704Z 1718/1818 05005MPS 9999 BKN020 TX10/1809Z TN04/1802Z UATG 171704Z 1718/1818 VRB02MPS 3000 BR BKN010 TX07/1811Z TNM04/1803Z TEMPO 1719/1804 0300 FZFG VV001 BECMG 1804/1806 11005MPS UATT 171835Z 1719/1818 28005MPS 3000 -SHSNRA BR BKN005 BKN010CB TX02/1812Z TNM04/1801Z TEMPO 1719/1724 0500 -FZDZ FZFG VV002 TEMPO 1800/1806 0300 FZFG VV001 FM180800 27005MPS 9999 BKN010 SCT010CB UBBB 171709Z 1718/1818 34008KT 9999 BKN010 OVC025 TX14/1809Z TN10/1802Z TEMPO 1718/1724 02010KT -RA BKN007 OVC025 TEMPO 1800/1805 VRB04KT -RA BECMG 1805/1807 16012KT TEMPO 1807/1816 17024KT 6000 -SHRA BKN007 SCT020CB OVC020 UBBQ 171716Z 1718/1818 VRB04KT 3000 BR BKN010 OVC020 TX13/1812Z TN07/1802Z TEMPO 1720/1723 1500 BKN005 OVC012 TEMPO 1723/1806 0600 FG BKN001 BECMG 1806/1808 6000 NSW SCT015 BKN070 UCFM 171650Z 1718/1818 15003G08MPS 3000 BR NSC TEMPO 1718/1720 1000 BR FU FEW003 TEMPO 1720/1803 20003MPS 0300 FZFG FU VV002 FM180400 26006MPS 6000 FEW050 SCT100 UCFO 171640Z 1718/1818 17003G08MPS 3000 BR NSC TEMPO 1718/1724 0200 FG FU SCT002 BECMG 1802/1804 27003G08MPS UDYZ 171702Z 1718/1818 VRB04KT 6000 NSC TEMPO 1718/1806 2000 BR= UEEE 172000Z 1721/1903 28003MPS 9999 -SN BKN020 OVC070 TEMPO 1721/1723 2100 -SN BR VV007 TEMPO 1723/1801 0300 SN FG VV003 UGKO 171700Z 1718/1818 09010KT CAVOK TX20/1812Z TN12/1718Z BECMG 1720/1722 08020G33KT UGSB 171700Z 1718/1818 13010KT CAVOK TX18/1810Z TN09/1800Z PROB40 TEMPO 1718/1805 VRB03KT 5000 BR SCT017 BECMG 1807/1809 28006KT UGTB 171700Z 1718/1818 VRB02KT 6000 BKN015 OVC030 TX12/1812Z TN07/1802Z TEMPO 1718/1724 3500 BR SCT005 OVC015 TEMPO 1800/1807 1000 DZ BR OVC005 PROB40 1802/1807 0300 DZ FG VV001 UHBB 171955Z 1721/1821 34003MPS CAVOK= UHSS 172000Z 1721/1903 01003MPS 9999 BKN025CB TEMPO 1721/1802 1400 SHSN BR BKN004 BKN015CB BECMG 1722/1724 10005G10MPS FM180200 11009G14MPS 1400 SHSN BLSN BKN004 BKN015CB OVC100 TEMPO 1803/1818 0400 +SHSN BLSN VV002 BECMG 1805/1808 29009G14MPS UHHH 171957Z 1721/1903 26005MPS 9999 SCT025 TEMPO 1805/1812 33005MPS UHMA 171949Z 1721/1821 11008G13MPS 9999 -SN DRSN SCT008 BKN023 TEMPO 1721/1803 11013G18MPS 4000 -SN BLSN BKN007 OVC020 FM180300 10013G18MPS 4000 -SN BLSN BKN008 OVC017 TEMPO 1803/1807 1000 SHSN BLSN VV003 TEMPO 1807/1812 12018G23MPS 0700 +SHSNRA VV002 TEMPO 1812/1821 0300 RA FG VV002 BECMG 1814/1817 27008G13MPS UHMM 171955Z 1721/1903 34003MPS 5000 BR SCT007 BKN070 TEMPO 1721/1724 1000 BR FM180000 24003G08MPS 9999 SCT030 OVC070 TEMPO 1803/1810 5000 -SHSN BKN025CB OVC070 UHPP 171955Z 1721/1903 34003G12MPS 9999 SCT030CB TEMPO 1721/1807 29005G15MPS FM181800 16007G18MPS 3100 -SHSNRA BKN005 OVC015CB TEMPO 1818/1903 12012G25MPS 0700 +SHSN VV002 UHSS 172250Z 1722/1903 02009G14MPS 2000 SHSN BLSN BKN006 BKN020CB OVC100 TEMPO 1722/1815 0400 +SHSN BLSN VV002 FM181500 33009G14MPS 5000 -SHSN BLSN BKN020CB UHWW 171955Z 1721/1821 36006MPS 9999 SCT030 TEMPO 1721/1807 01013MPS 4000 -SHSN BKN020CB BECMG 1808/1810 36003MPS UIAA 172000Z 1721/1821 29003G09MPS 9999 SCT030CB UIBB 172230Z 1722/1821 20003MPS 2500 -SHSN BR SCT003 BKN011CB TEMPO 1722/1806 0900 +SHSN VV003 BECMG 1806/1807 5000 -SHSN SCT015CB UIII 172000Z 1721/1821 06003MPS 9999 BKN011 TEMPO 1721/1803 0300 FZFG VV001 BECMG 1804/1806 NSC UIUU 172000Z 1721/1821 24003MPS 9999 SCT030CB TEMPO 1721/1815 2400 -SHSN BKN014CB UKBB 171703Z 1718/1818 19005MPS 9999 BKN020 TEMPO 1718/1724 1000 BR BKN004 SCT012CB TEMPO 1800/1806 0400 -SHRA FG OVC002 SCT012CB TEMPO 1806/1818 2100 -SHRA BKN006 SCT015CB TX05/1812Z TN01/1803Z UKDD 171705Z 1718/1818 13004MPS 9999 BKN011 BKN100 BECMG 1720/1722 3100 BR BKN008 TEMPO 1722/1808 1100 -SHRA BR BKN003 BKN015CB TX07/1812Z TN01/1804Z UKDR 171708Z 1718/1818 10002MPS 3100 BR SCT011 BECMG 1722/1724 0400 -DZ FG VV002 BECMG 1807/1809 3100 BR BKN011 TX07/1812Z TN03/1806Z UKKK 171703Z 1718/1818 19003MPS 4000 BR BKN010 TEMPO 1718/1806 22005G11MPS 0400 -SHRASN FG BKN001 SCT012CB BECMG 1806/1808 18005G10MPS 9999 NSW BKN020 TEMPO 1812/1818 2100 -SHRA BKN005 SCT015CB TX05/1812Z TN00/1804Z UKKM 171501Z 1712/1812 CNL UKLL 172201Z 1722/1818 VRB02MPS 2100 -RA BR OVC007 TEMPO 1722/1808 0400 -SHRA FG BKN002 BKN020CB BECMG 1808/1809 26003MPS TEMPO 1809/1818 -SHRA BKN004 BKN018CB TX04/1812Z TN01/1805Z UKOO 171702Z 1718/1818 07003MPS 2100 BR SCT004 BKN007 SCT017CB TEMPO 1718/1807 0300 -SHRA FG VV002 TX07/1812Z TN03/1804Z ULAA 172000Z 1721/1821 13005MPS 3100 -SN BKN006 BKN012 TEMPO 1721/1803 15003G09MPS 1000 SHSN BR BKN004 BKN011CB TEMPO 1803/1809 19003G10MPS 4000 -SHSN SCT004 BKN011CB FM180900 22004G09MPS 9999 BKN011 TEMPO 1809/1815 3100 -SHSN BKN011CB ULLI 171958Z 1721/1821 22006G12MPS 9999 BKN011 BKN015 TEMPO 1721/1809 3100 -SHRASN BKN007 BKN015CB TEMPO 1809/1821 19008G15MPS 3100 -SHSNRA BKN007 BKN015CB ULMM 171957Z 1721/1821 12002MPS 0500 FZFG BKN001 TEMPO 1721/1802 VRB01MPS 3100 BR BKN003 BECMG 1802/1803 5000 BR BKN004 TEMPO 1803/1810 05003MPS 0300 -SHSN FZFG BKN002 BKN011CB TEMPO 1810/1821 05003MPS 3100 BR BKN007 UMGG 171700Z 1718/1818 20005MPS 6000 BKN015 TX04/1812Z TNM00/1801Z TEMPO 1718/1806 1200 BCFG BR BKN004 TEMPO 1806/1808 2000 BR BKN005 TEMPO 1815/1818 1200 SHRASN BR BKN004 BKN015CB UMKK 171955Z 1721/1821 23005MPS 6000 BKN011 TEMPO 1721/1809 3100 -SHRA BR BKN007 BKN020CB BECMG 1803/1805 23007G12MPS TEMPO 1809/1821 21009G15MPS UMMS 171709Z 1718/1818 21006MPS 4000 BR BKN005 TX03/1813Z TNM00/1803Z TEMPO 1718/1808 0400 -FZDZ FZFG VV002 FM180800 23005G10MPS 7000 BKN007 UNAA 172000Z 1721/1821 21002MPS 5000 BR FU NSC TEMPO 1721/1803 0300 FZFG VV002 UNBB 172000Z 1721/1821 17006G12MPS 9999 BKN020CB TEMPO 1721/1804 19003MPS 0400 FZFG SCT002 BKN020CB BECMG 1804/1805 23009G14MPS TEMPO 1804/1821 3100 -SHSNRA SCT002 BKN011CB UNEE 172000Z 1721/1821 16006MPS 9999 BKN013CB TEMPO 1721/1812 15005MPS 3100 -SHSN BKN004 BKN011CB UNKL 171953Z 1721/1821 22003G09MPS 9999 SCT040 BECMG 1723/1801 SCT020CB TEMPO 1801/1815 23008G14MPS 2100 -SHSN BLSN SCT007 BKN015CB UNNT 172000Z 1721/1821 19006G12MPS 9999 BKN011CB TEMPO 1721/1803 22003G08MPS 1500 -SHSN BR BKN005 BKN011CB TEMPO 1803/1821 3100 -SHSNRA BKN005 BKN015CB UNOO 171950Z 1721/1821 19005MPS 3100 -SHSNRA BKN007 BKN025CB TEMPO 1721/1803 1000 BR VV004 BECMG 1806/1808 28003G08MPS URKA 171908Z 1718/1818 CNL URKK 171956Z 1721/1821 07003G08MPS 3100 BR SCT011 TEMPO 1800/1805 0200 FG OVC002 FM180600 08003G08MPS 9999 SCT020 URRR 172000Z 1721/1821 10007G12MPS 3100 BR BKN011 BECMG 1806/1808 9999 NSW BKN015 URSS 171956Z 1721/1821 05006MPS 9999 SCT030 SCT100 TEMPO 1721/1803 12004MPS SCT011 BECMG 1809/1811 24005G10MPS SCT100 TEMPO 1811/1815 15004G09MPS BECMG 1815/1816 05006MPS TEMPO 1815/1818 SCT011 SCT100 USCC 172000Z 1721/1821 26004MPS 5000 BR BKN015CB TEMPO 1721/1804 23007MPS 3100 -SHSN BKN011CB USHH 171954Z 1721/1821 19003MPS 3100 -SHSN BR BKN006 OVC011CB TEMPO 1721/1803 VRB01MPS 1000 SHSN BR BKN003 OVC011CB USNN 172000Z 1721/1821 30003MPS 3100 -SHSN BR BKN007 SCT017CB TEMPO 1721/1803 VRB01MPS 0300 FZFG VV002 TEMPO 1803/1806 2000 BR BECMG 1806/1808 19003MPS USPP 171959Z 1721/1821 24003MPS 8000 -SN BKN011 OVC100 TEMPO 1721/1803 3100 -SN BR USRR 171955Z 1721/1821 14003MPS 3100 -SN BR BKN004 OVC010 TEMPO 1721/1805 VRB01MPS 0300 FZFG VV002 USSS 172037Z 1721/1821 24003MPS 3100 -SHSN BR BKN007 SCT020CB TEMPO 1721/1805 0300 FZFG VV002 BECMG 1805/1806 5000 -SN SCT011 OVC020 BECMG 1807/1808 9999 NSW USTR 171940Z 1721/1821 VRB01MPS 1500 SHSN BR BKN005 BKN015CB TEMPO 1721/1805 0900 +SHSN VV003 FM180500 27005MPS 9999 BKN015CB TEMPO 1805/1815 4000 -SHSN BKN011 BKN015CB UTDD 172100Z 1722/1810 VRB02MPS 5000 BR SCT030 BKN050 TEMPO 1722/1807 2100 FU BR UTFN 171700Z 1718/1818 33010KT 3000 BR NSC TEMPO 1718/1805 VRB02KT 1100 BR SCT007 UTNN 171700Z 1718/1818 VRB04KT CAVOK TEMPO 1806/1814 01010KT UTNU 171712Z 1718/1818 15008G18KT 7000 NSC TEMPO 1718/1724 VRB04KT 3000 BR UTSA 171701Z 1718/1818 VRB03KT 7000 NSC TEMPO 1718/1804 21010KT 3500 BR UTSB 171700Z 1718/1818 VRB03KT 7000 NSC TEMPO 1718/1804 30010KT 3000 BR UTSS 171655Z 1718/1818 13010KT 9999 NSC TEMPO 1718/1803 3000 BR FU UTST 171700Z 1718/1818 VRB06KT 5000 BR NSC TEMPO 1718/1805 0100 FG VV001 TEMPO 1806/1812 SCT020 SCT100 UTTT 171700Z 1718/1818 05008KT 5000 BR FU NSC TEMPO 1718/1802 2000 BR FU UUBW 171959Z 1721/1821 20005MPS 8000 BKN010 TX02/1812Z TN00/1803Z TEMPO 1721/1807 3100 -SHSN BR SCT006 BKN012CB UUDD 171957Z 1721/1903 22008MPS 8000 SCT007 BKN015 TX03/1811Z TN00/1801Z TEMPO 1723/1807 3100 -SHSNRA SCT004 BKN015CB BECMG 1815/181 LOWMYZYA FTRS36 RUMS 172000 ULAA 172000Z 1721/1821 13005MPS 3100 -SN BKN006 BKN012 TEMPO 1721/1803 15003G09MPS 1000 SHSN BR BKN004 BKN011CB TEMPO 1803/1809 19003G10MPS 4000 -SHSN SCT004 BKN011CB FM180900 22004G09MPS 9999 BKN011 TEMPO 1809/1815 3100 -SHSN BKN011CB UUDL 172000Z 1721/1821 22005MPS 6000 -SNRA BKN011 OVC020 TEMPO 1721/1806 22010MPS 3100 -SHRASN BKN006 OVC015CB UUEE 172000Z 1721/1821 23006MPS 9000 BKN010 TX02/1812Z TNM00/1802Z TEMPO 1721/1806 2000 SN SCT004 OVC008 BECMG 1818/1820 17005MPS UUWW 171958Z 1721/1821 23005MPS 8000 BKN007 TX02/1812Z TN00/1721Z TEMPO 1721/1807 22012MPS 1500 -SHSN BR BKN003 SCT015CB BECMG 1815/1817 17004MPS UUYY 172000Z 1721/1821 20003MPS 3100 -SHSN BR BKN009 BKN015CB TEMPO 1721/1806 1000 SHSN FZRA BKN003 BKN012CB TEMPO 1806/1812 20003G09MPS 1000 SHSN BKN003 BKN012CB BECMG 1812/1814 24005G10MPS TEMPO 1812/1821 1000 SHSN BKN003 BKN012CB UWGG 171950Z 1721/1821 23006G13MPS 5000 -SHSN BKN012CB TX02/1812Z TNM01/1803Z UWKE 171945Z 1721/1821 23006G12MPS 3100 BR BKN007 TEMPO 1721/1805 27003G09MPS 0500 -SHSN FZFG BKN003 SCT011CB BECMG 1805/1806 9999 NSW BKN011 TEMPO 1805/1821 21007G14MPS 3100 -SHSNRA BKN005 BKN015CB UWLW 171945Z 1721/1821 23003G08MPS 8000 BKN015 TEMPO 1721/1821 27005G10MPS 3100 -SHSNRA BR BKN011 BKN013CB UWOO 172000Z 1721/1821 27003G09MPS 3100 BR BKN011 TX02/1809Z TNM03/1723Z TEMPO 1721/1806 2100 -SN BR OVC005 FM180600 24005G11MPS 9999 BKN011 BKN020CB FM181300 22005MPS 3100 BR BKN011 UWUU 172000Z 1721/1821 29005MPS 9999 OVC015 TEMPO 1721/1724 27003G08MPS 3100 -SHSN BKN011CB BECMG 1800/1802 24006MPS TEMPO 1803/1815 22005G10MPS 2100 -SNRA -FZRA BR OVC007 UWWW 172000Z 1721/1821 25003G09MPS 9999 BKN015 TX02/1811Z TN00/1801Z TEMPO 1721/1805 1000 BR OVC004 BECMG 1805/1806 23007G13MPS BECMG 1816/1818 22003G09MPS VAAH 171700Z 1718/1824 00000KT 4000 FUHZ NSC BECMG 1801/1803 VRB03KT 2000 BR HZ NSC BECMG 1804/1806 05007KT 5000 HZ FU BECMG 1812/1814 02005KT 4000 FUHZ VABB 171700Z 1718/1803 07004KT 3000 HZ FU FEW100 BECMG 1804/1806 14005KT BECMG 1807/1809 33004KT 5000 FU BECMG 1813/1815 3000 FU BECMG 1816/1818 00000KT VANP 171700Z 1718/1824 05005KT 3000 HZ FEW020 SCT100 BECMG 1800/1802 VRB03KT 1500 BR HZ SCT020 SCT100 VDPP 171700Z 1718/1812 03007KT 9999 SCT017 SCT040 TEMPO 1718/1722 TS SCT015 FEW017CB VDSR 171700Z 1718/1812 01007KT 9999 SCT017 SCT040 VEBN 171700Z 1718/1824 VRB02KT 2500 BR HZ NSC BECMG 1800/1802 00000KT 1500 BR FEW020 BECMG 1804/1806 35004KT 2500 HZ FEW020 SCT100 BECMG 1809/1811 29004KT 5000 HZ BECMG 1816/1818 VRB02KT 2000 BR HZ NSC VEPT 171700Z 1718/1824 00000KT 2000 -RA BR SCT015 BKN090 BECMG 1721/1723 1200 -RA BR BECMG 1801/1803 36005KT 2200 -RA BR BECMG 1804/1806 3500 -RA HZ BECMG 1812/1814 00000KT 2500 -RA HZ SCT018 BKN090 BECMG 1821/1823 1400 BR VGHS 171700Z 1718/1824 VRB03KT 3500 HZ SCT012 BKN1000 TEMPO 1718/1724 24025KT 2000 RA/TSRA BKN007 FEW025CB OVC090 BECMG 1800/1802 00000KT 2500 BR/DZ SCT010 BKN100 BECMG 1804/1806 04007KT 4000 HZ SCT015 BKN100 TEMPO 1808/1812 23025KT 2000 RA/TSRA BKN007 FEW025CB OVC090 BECMG 1818/1820 VRB03KT 3500 HZ FEW015 SCT100 VHHH 171729Z 1718/1824 VRB05KT 9000 FEW015 SCT030 TX26/1804Z TN23/1723Z TN19/1823Z TEMPO 1721/1805 36010KT 3500 BR -RA BECMG 1803/1805 02015KT VIAR 171700Z 1718/1824 33005KT 2000 BR FEW035 BECMG 1800/1802 1000 BR SCT035 BKN100 BECMG 1803/1805 27005KT 2500 BR HZ BECMG 1807/1809 35005KT 4000 HZ FEW100 BECMG 1817/1819 VRB02KT 2000 BR VIDP 171700Z 1718/1824 35007KT 2000 HZ BR SCT040 BKN100 BECMG 1800/1802 0800 MIFG BECMG 1804/1806 1200 BR FU FEW035 SCT100 BECMG 1809/1811 3500 FU HZ BECMG 1816/1818 2000 HZ FU SCT035 BKN100 TEMPO 1817/1824 FEW040CB OVC080 BECMG 1820/1822 1000 FU BR VIJP 171700Z 1718/1824 VRB03KT 2000 HZ FU SCT035 SCT090 1805/1807 12005KT 4000 HZ BECMG 1813/1815 VRB02KT 2000 HZ FU VILK 171700Z 1718/1824 00000KT 2000 BR FEW020 SCT100 BECMG 1800/1802 1500 BR SCT100 BECMG 1804/1806 VRB02KT 2500 HZ FU BECMG 1808/1810 4000 FU HZ FEW100 BECMG 1816/1818 00000KT 1500 BR NSC VLLB 171700Z 1718/1818 36004KT 9999 SCT020 FEW060 TEMPO 1718/1722 1000 BCFG OVC006 VLLN 171700Z 1718/1818 34004KT 8000 SCT020 FEW100 TEMPO 1718/1722 0700 FG VV/// VLPS 171700Z 1718/1818 34004KT 9999 SCT020 SCT050 FEW200 VLSK 171700Z 1718/1818 27004KT 8000 SCT020 FEW100 TEMPO 1718/1722 3000 BR FEW040 SCT100 VLVT 171700Z 1718/1818 34004KT 8000 SCT020 FEW200 TEMPO 1718/1722 4000 BR FEW050 FEW200 VMMC 171700Z 1718/1824 VRB03KT 9999 FEW010 SCT020 TEMPO 1720/1806 03010KT 4000 -RA BR BECMG 1806/1809 36015KT TEMPO 1812/1824 36020G30KT VNKT 171700Z 1718/1818 VRB02KT 7000 FEW020 BECMG 1800/1802 00000KT 4000 BR FEW010 PROB30 1801/1803 2000 BR BECMG 1803/1804 11003KT 5000 BR/HZ FEW015 BECMG 1806/1808 28008KT 9999 FEW020 BECMG 1813/1814 22003KT 7000 FEW015 VOCI 171700Z 1718/1824 00000KT 4000 HZ SCT015 SCT090 TEMPO 1723/1803 2000 BR FEW025CB BECMG 1805/1806 30010KT 5000 HZ TEMPO 1809/1812 2000 TSRA RA SCT010 FEW025CB BKN090 BECMG 1817/1818 00000KT 4000 HZ VOHS 171700Z 1718/1824 05005KT 5000 HZ SCT015 SCT100 TEMPO 1722/1803 10006KT 3000 BR SCT025 BECMG 1804/1806 06006KT 6000 FEW015 SCT100 TEMPO 1810/1820 01006KT 5000 HZ SCT025 TEMPO 1821/1824 09006KT 3000 BR FEW025 SCT100 VOMM 171700Z 1718/1824 07005KT 5000 BR FEW020 SCT100 BECMG 1721/1722 VRB03KT 3000 BR TEMPO 1800/1803 1500 BR BECMG 1805/1806 07010KT 5000 HZ TEMPO 1812/1818 SCT018 FEW025CB BKN080 BECMG 1821/1822 07005KT 3000 BR VOTR 171700Z 1718/1824 00000KT 5000 HZ FEW020 SCT100 BECMG 1721/1722 3000 BR TEMPO 1800/1803 1500 BR BECMG 1805/1806 09005KT 5000 HZ BECMG 1821/1822 00000KT 3000 BR VOTV 171700Z 1718/1824 35005KT 4000 HZ SCT015 SCT090 TEMPO 1723/1803 2000 BR FEW025CB BECMG 1805/1806 26010KT 5000 HZ TEMPO 1809/1812 3000 RA SCT015 FEW025CB BKN090 BECMG 1817/1818 35005KT 4000 HZ VRMG 171700Z 1718/1824 29009KT 9999 SCT018TCU TEMPO 1718/1724 3000 TSRA SCT016 FEW017CB VRMM 171700Z 1718/1824 32007KT 9999 FEW018TCU TEMPO 1718/1724 FEW018CB VTBD 171700Z 1718/1824 22003KT 8000 FEW030 BECMG 1720/1722 34005KT BECMG 1801/1803 9999 SCT020 BECMG 1806/1808 FEW020CB SCT040 TEMPO 1808/1814 08010G20KT 5000 TSRA FEW018CB SCT035 BECMG 1814/1816 28005KT FEW030 VTBO 171700Z 1718/1818 00000KT 5000 BR FEW022 BECMG 1801/1803 30005KT 8000 NSW SCT020 BECMG 1804/1806 24010KT 9999 FEW018CB SCT020 TEMPO 1806/1812 06010G20KT 4000 TSRA FEW018CB SCT020 BKN040 BECMG 1812/1814 32005KT 8000 FEW020 SCT100 VTBS 171700Z 1718/1824 23005KT 8000 FEW030 BECMG 1801/1803 29005KT 9999 SCT020 BECMG 1806/1808 22010KT FEW020CB SCT040 TEMPO 1808/1812 08010G20KT 5000 TSRA FEW018CB SCT035 BECMG 1814/1816 32005KT FEW025 VTBU 171700Z 1718/1818 34003KT 3000 BR FEW020 BECMG 1720/1722 01004KT 2000 BR BECMG 1803/1805 18006KT 4000 BR VTCC 171700Z 1718/1824 34005KT 9999 FEW035 VTCH 171700Z 1718/1818 34005KT 9999 FEW035 VTCL 171700Z 1718/1818 32005KT 9999 FEW035 BECMG 1724/1802 2000 BR BECMG 1803/1805 9999 NSW VTCN 171700Z 1718/1818 34005KT 9999 FEW035 BECMG 1724/1802 2000 BR BECMG 1803/1805 9999 NSW VTCP 171700Z 1718/1818 32005KT 9999 FEW035 BECMG 1724/1802 2000 BR BECMG 1803/1805 9999 NSW VTCT 171700Z 1718/1824 34005KT 9999 FEW035 VTPB 171700Z 1718/1818 32005KT 8000 FEW035 VTPH 171700Z 1718/1818 VRB03KT 8000 NSC BECMG 1800/1802 34005KT 9999 FEW035 BECMG 1804/1806 06010KT BECMG 1807/1809 14005KT FEW020 SCT035 BECMG 1812/1814 24005KT CAVOK VTPM 171700Z 1718/1818 30005KT 9999 FEW035 VTPO 171700Z 1718/1818 32005KT 9999 FEW035 VTPP 171700Z 1718/1818 32005KT 8000 FEW035 VTPT 171700Z 1718/1818 30005KT 9999 FEW035 VTSB 171700Z 1718/1818 00000KT 9999 FEW020 BECMG 1721/1723 5000 BR BECMG 1802/1804 03010KT 9999 NSW BECMG 1813/1815 00000KT VTSC 171700Z 1718/1818 VRB02KT 9999 FEW020 BECMG 1804/1806 07010KT BECMG 1814/1816 VRB02KT VTSE 171700Z 1718/1818 VRB02KT 9999 FEW020 BECMG 1802/1804 07010KT BECMG 1813/1815 VRB02KT VTSF 171700Z 1718/1818 VRB02KT 9999 FEW020 BECMG 1804/1806 07010KT BECMG 1812/1814 VRB02KT VTSG 171700Z 1718/1818 05005KT 9999 FEW020 BECMG 1718/1720 VRB03 BECMG 1720/1722 5000 BR BECMG 1800/1802 9999 NSW TEMPO 1808/1812 VRB10G20KT 5000 SHRA FEW018CB SCT020 BKN100 VTSH 171700Z 1718/1818 VRB02KT 9999 FEW020 BECMG 1804/1806 03010KT BECMG 1814/1816 VRB02KT VTSK 171700Z 1718/1818 VRB02KT 9999 FEW020 BECMG 1804/1806 06010KT BECMG 1811/1813 VRB02KT VTSM 171700Z 1718/1818 00000KT 9999 FEW020 BECMG 1804/1806 12010KT BECMG 1812/1814 00000KT VTSP 171700Z 1718/1824 08007KT 9999 FEW020 BECMG 1718/1720 VRB03KT SCT020 BECMG 1801/1803 08006KT FEW020 PROB30 TEMPO 1808/1812 VRB10G20KT 5000 SHRA FEW018CB SCT020 BKN100 BECMG 1812/1814 VRB03KT VTSR 171700Z 1717/1818 VRB03KT 9999 SCT020 BECMG 1002/1804 10006KT FEW025 PROB30 TEMPO 1806/1810 VRB10G20KT 5000 SHRA FEW018CB SCT020 BKN100 VTSS 171700Z 1718/1818 VRB02KT 9999 FEW020 BECMG 1721/1723 5000 BR BECMG 1802/1804 06010KT 9999 NSW BECMG 1812/1814 VRB02KT VTST 171700Z 1718/1818 VRB03KT 9999 FEW020 BECMG 1718/1720 SCT020 BECMG 1722/1724 5000 BR FEW020 BECMG 1801/1803 9999 NSW TEMPO 1807/1811 VRB10G20KT 5000 SHRA FEW018CB SCT020 BKN100 VTUD 171700Z 1718/1818 26003KT CAVOK BECMG 1723/1801 01005KT 9999 FEW040 BECMG 1808/1810 08010KT 9999 SCT035 TEMPO 1813/1818 VRB15KT 5000 TSRA FEW020CB BKN025 VTUI 171700Z 1718/1818 24003KT 9999 FEW035 BECMG 1723/1801 30005KT 9999 FEW035 BECMG 1806/1808 08010KT 9999 SCT035 TEMPO 1808/1812 VRB15KT 5000 TSRA FEW020CB BKN025 VTUJ 171700Z 1718/1818 09003KT 6000 NSC BECMG 1801/1803 06008KT 9999 SCT025 VTUK 171700Z 1718/1818 25003KT CAVOK BECMG 1723/1801 01005KT 9999 FEW030 BECMG 1808/1810 04010KT 9999 SCT030 TEMPO 1813/1818 VRB15KT 6000 -TSRA FEW020CB BKN025 VTUL 171700Z 1718/1818 27003KT 9999 FEW030 BECMG 1721/1723 00000KT 0800 FG FEW015 SCT30 BECMG 1800/1802 VRB02KT 5000 BR FEW035 BECMG 1802/1804 33005KT 9999 NSW BECMG 1811/1812 VRB02KT 9999 SCT035 TEMPO 1815/1818 VRB15KT 6000 -TSRA FEW020CB BKN025 VTUO 171700Z 1718/1818 10003KT 6000 NSC BECMG 1801/1803 06008KT 9999 SCT025 VTUQ 171700Z 1718/1818 09003KT 6000 NSC BECMG 1801/1803 06008KT 9999 SCT025 VTUU 171700Z 1718/1818 07003KT 9999 FEW030 BECMG 1801/1803 04008KT SCT025 VTUV 171700Z 1718/1818 09003KT 7000 NSC BECMG 1801/1803 06008KT SCT025 VTUW 171700Z 1718/1818 26003KT 9999 FEW025 BECMG 1800/1802 27005KT BECMG 1806/1808 06010KT SCT035 TEMPO 1808/1812 VRB15KT 5000 TSRA FEW020CB BKN025 VVCI 171700Z 1718/1818 15007KT 8000 FEW015 BKN040 TEMPO 1722/1803 4000 RA SCT010 BKN040 BECMG 1803/1805 02012KT TEMPO 1803/1809 02015G25KT VVCR 171700Z 1718/1818 36006KT 9999 SCT015 VVCT 171700Z 1718/1818 VRB02KT 9999 SCT015 SCT040 BECMG 1800/1801 11010KT TEMPO 1809/1812 TS SCT015 FEW017CB BKN040 VVDN 171700Z 1718/1818 21005KT 7000 FEW013 SCT060 BECMG 1720/1721 4000 BR BECMG 1800/1801 8000 NSW BECMG 1803/1804 12010KT BECMG 1810/1811 03010KT TEMPO 1811/1818 4000 SHRA SCT013 FEW015CB BKN050 VVNB 171700Z 1718/1818 13008KT 7000 FEW020 TEMPO 1722/1803 4000 RA SCT010 BKN040 BECMG 1803/1805 02012KT SCT012 BKN040 TEMPO 1803/1809 02015G25KT VVPB 171700Z 1718/1818 VRB02KT 8000 FEW013 SCT060 BECMG 1720/1721 2500 BR BECMG 1800/1802 8000 NSW BECMG 1803/1804 08010KT BECMG 1808/1809 02010KT TEMPO 1810/1818 3500 SHRA SCT013 FEW015CB BKN050 VVPQ 171700Z 1718/1818 VRB02KT 9999 SCT015 SCT040 TEMPO 1719/1722 5000 TSRA SCT013 FEW015CB BKN040 BECMG 1802/1803 09010KT TEMPO 1809/1812 TS SCT015 FEW017CB BKN040 VVTS 171700Z 1718/1824 VRB02KT 9999 SCT015 SCT040 BECMG 1721/1722 3000 BR BECMG 1800/1801 36010KT 9999 NSW TEMPO 1809/1812 TS SCT015 FEW017CB BKN040 VYMD 171100Z 1712/1812 02005KT 7000 BKN020 FEW025CB TEMPO 1712/ 1718 32003KT 6000 BKN018 FEW020CB VYYY 171700Z 1718/1818 32006KT 7000 SCT015 FEW018CB BKN100 BECMG 1718/1723 28005KT 5000 -RA BKN015 FEW018CB BKN100 WADL 171700Z 1718/1818 15005KT 7000 SCT016 TEMPO 1720/1723 3000 BR BECMG 1723/1801 15015KT 9999 TEMPO 1806/1810 4000 TSRA FEW015CB WAMM 171100Z 1712/1818 05003KT 9000 FEW021 PROB30 TEMPO 1715/1719 5000 -RA FEW017CB SCT018 BECMG 1723/1801 27008KT SCT022 WATT 171700Z 1718/1818 VRB02KT 8000 SCT018 BECMG 1802/1804 31010KT BKN017 PROB40 TEMPO 1806/1809 6000 RA FEW017CB BKN018 WBGG 171100Z 1712/1812 23005KT 9999 FEW020 SCT150 BKN300 TEMPO 1807/1811 3000 TSRA FEW015CB SCT020 BKN150 WBKK 171100Z 1712/1812 11008KT 9999 FEW014 TEMPO 1712/1716 4000 RA FEW012 FEW016CB SCT040 WBKW 171825Z 1718/1818 30007KT 9999 FEW017 TEMPO 1718/1722 25009G22KT 4000 TSRA FEW015CB SCT025 WBSB 171100Z 1712/1816 24004KT 9999 FEW015 FEW016CB TEMPO 1716/1718 6000 SHRA TSRA SCT014 FEW015CB BECMG 1804/1806 32008KT FEW016 FEW017CB WIDD 171700Z 1718/1818 00000KT 9000 FEW014 BECMG 1800/1802 24008KT 9000 SCT014 WIPP 171800Z 1718/1818 30005KT 9999 SCT012 TEMPO 1720/1724 5000 HZ TEMPO 1808/1812 3000 TSRA BKN012 FEW015CB YAMB 171923Z 1719/1812 VRB03KT 9999 -RA BKN030 BKN100 FM172300 09010KT 9999 -RA BKN040 BKN100 TEMPO 1719/1812 3000 SHRA BKN012 YBAS 171707Z 1718/1818 07005KT CAVOK FM172300 05008KT CAVOK FM180400 18006KT CAVOK YBBN 171717Z 1718/1824 07006KT 9999 -SHRA SCT025 BKN050 FM172300 07012KT 9999 -RA SCT030 BKN050 OVC110 FM180800 07008KT 9999 SCT030 OVC100 FM181300 14006KT 9999 -SHRA SCT030 OVC100 FM182300 11010KT 9999 -SHRA SCT030 SCT050 INTER 1718/1808 3000 SHRA BKN012 BKN025 INTER 1814/1824 3000 SHRA BKN012 YBCG 172115Z 1721/1818 VRB05KT 9999 -SHRA SCT030 BKN050 FM172200 07010KT 9999 -SHRA SCT030 BKN050 FM180000 07015KT 9999 -SHRA SCT030 BKN050 FM180800 08008KT 9999 -SHRA SCT025 BKN045 TEMPO 1721/1808 2000 SHRA BKN006 BKN025 YBCS 171719Z 1718/1818 17008KT 9999 -SHRA SCT025 SCT045 FM180100 07013KT 9999 SCT032 FM180800 17008KT 9999 -SHRA SCT025 SCT045 YBRK 171955Z 1720/1818 12010KT 9999 -RA SCT030 OVC100 FM180000 09012KT 9999 -SHRA SCT035 SCT090 FM180900 09007KT 9999 SCT030 OVC100 TEMPO 1720/1800 3000 RA BKN012 BKN025 PROB30 TEMPO 1806/1812 VRB25G35KT 1000 TSRA BKN012 SCT040CB YBRM 171705Z 1718/1818 22010KT 9999 SCT020 FM180400 25016KT CAVOK FM181200 23010KT CAVOK YBTL 171720Z 1718/1818 11010KT 9999 SCT025 FM180000 06016KT 9999 FEW035 FM180800 11010KT 9999 SCT025 YCFS 171714Z 1718/1818 06014KT 9999 -SHRA BKN030 FM180500 09012KT 9999 SCT030 FM181100 08005KT 9999 -SHRA BKN030 INTER 1718/1804 4000 SHRA BKN015 INTER 1811/1818 4000 SHRA BKN015 YCIN 171429Z 1715/1802 27008KT CAVOK PROB30 TEMPO 1715/1720 VRB25G40KT 3000 TSRA SCT050 FEW080CB YFRT 171215Z 1712/1802 09016KT CAVOK FM171600 05014KT CAVOK FM172200 03020G28KT CAVOK YGEL 172134Z 1721/1812 30010KT 9999 -SHRA SCT020 FM180100 25016KT 9999 -SHRA SCT030 FM181000 20008KT 9999 -SHRA BKN025 INTER 1721/1804 4000 SHRA BKN020 INTER 1810/1812 3000 SHRA BKN015 PROB30 INTER 1721/1724 VRB25G45KT 2000 TSRA BKN010 FEW020CB YGLA 172246Z 1722/1812 VRB05KT 9999 -RA SCT025 SCT050 OVC110 FM172300 09012KT 9999 -RA SCT030 SCT050 BKN100 FM180000 09012KT 9999 -SHRA SCT035 INTER 1806/1812 VRB14KT 3000 SHRA BKN012 BKN025 YHID 171719Z 1718/1818 13012KT 9999 -SHRA SCT018 BKN024 FM180000 10015G30KT 9999 -SHRA SCT020 BKN028 FM181000 13012KT 9999 -SHRA SCT018 BKN024 INTER 1718/1724 4000 SHRA BKN018 YLHI 171700Z 1718/1818 11013KT 9999 -SHRA SCT025 SCT040 YMAV 171721Z 1718/1818 VRB05KT 9999 FEW008 SCT040 FM172300 10013KT 9999 -SHRA FEW030 SCT040 FM181000 VRB05KT 9999 SCT040 PROB30 1718/1722 0500 FG BKN005 PROB30 INTER 1802/1809 2000 TSRA BKN015 FEW045CB YMHB 171706Z 1718/1818 01010KT 9999 FEW015 SCT025 FM172200 03012KT 9999 FEW045 FM180200 04015KT 9999 FEW045 FM181200 01010KT 9999 FEW010 YMLT 171705Z 1718/1818 17005KT 9999 SCT020 BKN030 FM172200 02014KT 9999 SCT035 FM180100 01015KT 9999 SCT045 FM180900 35010KT 9999 FEW045 FM181300 VRB05KT 9999 SCT015 SCT025 YMML 171720Z 1718/1824 36006KT 9999 FEW005 SCT035 BECMG 1721/1723 03010KT 9999 -SHRA FEW030 SCT040 FM180600 13006KT 9999 -SHRA SCT030 SCT045 FM181000 35010KT 9999 FEW040 PROB30 INTER 1718/1720 2000 TSRA BKN020 FEW070CB PROB30 INTER 1802/1810 2000 TSRA BKN015 FEW045CB YPAD 171709Z 1718/1824 19006KT 9999 FEW010 BKN016 FM172300 19008KT 9999 BKN025 FM180100 23012KT 9999 FEW035 FM180800 14008KT CAVOK FM182100 06010KT CAVOK YPCC 171706Z 1718/1818 13012KT 9999 -SHRA SCT025 YPDN 171923Z 1719/1824 11006KT 9999 SCT020 FM180400 03012KT 9999 SCT025 FM181000 06008KT 9999 SCT020 PROB30 TEMPO 1804/1810 VRB20G35KT 1000 TSRA BKN010 SCT020CB YPGV 171208Z 1714/1802 VRB03KT 9999 SCT020 FM180000 09011KT 9999 SCT030 YPKG 171826Z 1718/1818 28008KT CAVOK FM180300 30020G30KT CAVOK FM180800 27014KT CAVOK FM181400 24005KT CAVOK INTER 1718/1724 VRB25G40KT 4000 TSRA SCT070 FEW110CB PROB30 INTER 1800/1814 VRB25G45KT 2000 TSRAGS SCT040 FEW070CB YPKU 172149Z 1722/1808 VRB05KT 9999 BKN016 FM172300 07006KT CAVOK PROB30 INTER 1804/1808 VRB25G45KT 2000 TSRA SCT030 FEW070CB YPLM 171705Z 1718/1818 24007KT 9999 SCT025 FM180800 24016KT CAVOK FM181400 20012KT CAVOK YPPD 171705Z 1718/1818 24010KT CAVOK FM180300 30019KT CAVOK YPPH 171707Z 1718/1824 03005KT 9999 -SHRA FEW017 BKN022 FM180200 27012KT 9999 -SHRA SCT025 FM180700 24014G24KT 9999 -SHRA SCT030 FM181500 19008KT 9999 FEW025 INTER 1718/1803 32018G28KT 3000 SHRA BKN015 INTER 1803/1815 26016G26KT 4000 SHRA SCT015 PROB30 INTER 1718/1803 VRB25G45KT 2000 TSRA BKN010 FEW022CB YPTN 171712Z 1718/1818 VRB03KT 9999 SCT045 FM180000 08010KT 9999 SCT040 FM180900 06005KT 9999 SCT045 PROB30 TEMPO 1806/1815 VRB20G35KT 1000 TSRA SCT015 SCT030CB YPWR 171631Z 1718/1812 14010KT CAVOK FM180200 18008KT CAVOK FM181000 14010KT CAVOK YPXM 171705Z 1718/1818 16005KT 9999 BKN016 YSCB 172212Z 1722/1818 10010KT 9999 -SHRA BKN020 BKN040 FM180000 08012KT 9999 -SHRA SCT030 BKN050 FM180900 09010KT 9999 BKN020 BKN040 PROB30 INTER 1801/1807 VRB20G30KT 4000 TSRA BKN020 SCT040CB YSDU 171958Z 1720/1812 04010KT 9999 -SHRA SCT010 BKN040 TEMPO 1721/1803 4000 SHRA BKN010 INTER 1803/1806 5000 SHRA BKN015 PROB30 INTER 1801/1806 VRB20G30KT 4000 TSRA BKN015 SCT040CB YSNF 171701Z 1718/1818 17020KT 9999 -SHRA SCT023 SCT040 FM181200 16014KT 9999 -SHRA SCT020 SCT040 YSRI 171743Z 1718/1818 05005KT 9999 -SHRA BKN020 FM180200 08010KT 9999 -SHRA BKN030 FM181000 07010KT 9999 SCT030 FM181400 VRB04KT 9999 BKN030 INTER 1800/1810 4000 SHRA BKN015 YSSY 171633Z 1718/1824 06013KT 9999 -SHRA SCT025 FM180000 03020KT 9999 -SHRA SCT030 FM180900 06013KT 9999 SCT025 INTER 1718/1802 4000 SHRA BKN010 YSTW 171109Z 1712/1806 05008KT 9999 -SHRA SCT035 BECMG 1716/1718 07010KT 9999 -SHRA FEW010 SCT020 BKN060 TEMPO 1715/1718 4000 SHRA BKN010 YTNK 171822Z 1720/1808 10009KT CAVOK FM172200 07012KT CAVOK FM180400 10008KT CAVOK YTRE 171752Z 1719/1808 VRB03KT 9999 -SHRA SCT030 INTER 1719/1804 4000 SHRA BKN015 YWGT 171755Z 1719/1808 VRB05KT 9999 -SHRA FEW030 BKN040 FM172200 05012KT 9999 -SHRA FEW030 SCT040 PROB30 INTER 1722/1808 2000 TSRA BKN020 FEW045CB YWLM 171743Z 1718/1818 05010KT 9999 -SHRA SCT030 BKN070 FM180000 07020KT 9999 -SHRA BKN030 FM180600 07015KT 9999 SCT030 FM181400 08008KT 9999 -SHRA BKN025 ZHHH 171612Z 1712/1812 04006G13MPS 2800 -RA BR SCT015 TX12/1807Z TN06/1722Z BECMG 1717/1718 3000 BR

Map